SQLite format 3@ 3C3-)v?tablebuoy_nowbuoy_nowCREATE TABLE buoy_now ( STN, LAT, LON, YYYY, MM, DD, hh, minute, WDIR, WSPD, GST, WVHT, DPD, APD, MWD, PRES, PTDY, ATMP, WTMP, DEWP, VIS, TIDE, raw_text DEFAULT '', timestamp TIMESTAMP DEFAULT CURRENT_TIMESTAMP )j7tablebuoybuoyCREATE TABLE buoy ( STN, LAT, LON, YYYY, MM, DD, hh, minute, WDIR, WSPD, GST, WVHT, DPD, APD, MWD, PRES, PTDY, ATMP, WTMP, DEWP, VIS, TIDE, raw_text DEFAULT '', timestamp TIMESTAMP DEFAULT C   xph`XPH@80( xph`XPH@80( xph`XPH@80( #ɋ{#nh#&";"]g"I!D!L$ 9 J ;W.-*:ϋMtOGcoXaRz A2YI08Ջz*>ċSiKDYXjXVG95D6Vۋg%6ʋ o #6^?UZM1AQ=<; :98|7w6r5m4h3c2^1Y0T/O.J-E,@+;*6)1(,''&"%$#"! }xsnid_[WRNID?:50 + & !   {wqlgc_[WSOKGC?;73/ؠI/׾UM ܓ>kw&k j )tablemetar_nowmetar_nowCREATE TABLE metar_now ( raw_text DEFAULT '', station_id, observation_time, latitude, longitude, temp_c, dewpoint_c, wind_dir_degrees, wind_speed_kt, wind_gust_kt, visibility_statute_mi, altim_in_hg, sea_level_pressure_mb, corrected, auto, auto_station, maintenance_indicator_on, no_signal, lightning_sensor_off, freezing_rain_sensor_off, present_weather_sensor_off, wx_string, sky_cover, cloud_base_ft_agl, flight_category, three_hr_pressure_tendency_mb, maxT_c, minT_c, maxT24hr_c, minT24hr_c, precip_in, pcp3hr_in, pcp6hr_in, pcp24hr_in, snow_in, vert_vis_ft, metar_type, elevation_m, timestamp TIMESTAMP DEFAULT CURRENT_TIMESTAMP )T tableshipship CREATE TABLE ship (day, dewpoint_c, gust, latitude, longitude, maxgst, sea_level_pressure_mb, station_id, temp_c, wind, raw_text DEFAULT '', timestamp TIMESTAMP DEFAULT CURRENT_TIMESTAMP ) ެ{tmf_XQJC<5.'  xqjc\UNG@92+$|ung`YRKD=6/(! 6323ܬ3۬&ڬ٬ ج~׬p֬bլUԬGӬ9Ҭ,ѬЬϬάvͬh̬WˬGʬ:ɬ+ȬǬƬŬsĬeìX¬K>1ٿ#پٽټuٻgٺXٹJٸ<ٷ.ٶ ٵٴٳvٲhٱZٰLٯ>ٮ/٭!٬٫٪u٩f٨W٧H٦:٥+٤٣٢١u٠hٟZٞLٝ>ٜ1ٛ$ٚٙ ٘}ٗpٖbٕTٔFٓ6ْ%ِّ ُzَlٍ^ٌPًCي6ى)وهنمpلbكSقEف7ـ)~ }|q{czUHD䭁 ܸ݀@TRcی (Ĭ6RKଔo߬`~xrlf`A   306/0718.0G821.1-64.84104324.233042020-04-06 07:26:16I   306/0722.4G1214.6-53.01014.54104025.8090102020-04-06 07:26:16A   306/0711.9G835.0-75.44102517.133062020-04-06 07:26:16G   306/0712.5G833.4-77.71018.64101320.321062020-04-06 07:26:16B   306/0714.9G1228.9-78.54101022.009082020-04-06 07:26:16I   306/0715.6G1728.5-80.21017.14100922.3110142020-04-06 07:26:16K  306/0717.3G231.4-80.932041018.44100818.831022020-04-06 07:26:16D   306/0720.8G832.5-79.11018.34100420.962020-04-06 07:26:16G   306/0712.4G631.9-74.91018.54100219.003042020-04-06 07:26:16F    306/0712.228.3-80.51017.13FZO821.0120152020-04-06 07:26:16E    306/072.153.7-177.11025.03EKU37.0260192020-04-06 07:26:166  ྃ ག༂qໂcຂUโGข9ෂ+ංൂംುsಁeుWఁJு<஁.ୁ ଁુpbUH9+ =uWFuindexi3buoyCREATE UNIQUE INDEX i3 ON buoy(STN,YYYY,MM,DD,hh,mm)F kindexi2metar_nowCREATE UNIQUE INDEX i2 ON metar_now(station_id)`tableship_nowship_now CREATE TABLE ship_now (day, dewpoint_c, gust, latitude, longitude, maxgst, sea_level_pressure_mb, station_id, temp_c, wind, raw_text DEFAULT '', timestamp TIMESTAMP DEFAULT CURRENT_TIMESTAMP )t;tablestationss`tableship_nowship_now CREATE TABLE ship_now (day, dewpoint_c, gust, latitude, longitude, maxgst, sea_level_pressure_mb, station_id, temp_c, wind, raw_text DEFAULT '', timestamp TIMESTAMP DEFAULT CURRENT_TIMESTAMP )t;tablestationsstations CREATE TABLE stations ( metar TEXT, wmob INT, wmos INT, city TEXT, state TEXT, country TEXT, latitude DOUBLE, longitude DOUBLE, elevation DOUBLE, x DOUBLE, y DOUBLE, z DOUBLE, humor TEXT, source TEXT )B[indexi_metarstations CREATE INDEX i_metar ON stations(metar) ~xrlf`ZTNHB<60*$ |vpjd^XRLF@:4.(" ztnhb\VPJD>82,& DDEuDmCeB\AS@J?A>8=/<&;:9 87y6o5e4[3R2I1@07/..$-,+*|)r(h'^&T%I$?#5"+!! ~ulcZQH?6-$v m d [ R JB90' {ri`WOG>6.' zqi`XOF>6.% {ri߁`ށY݁Q܁Iہ@ځ7ف.؁%ׁցՁ ԁzrj~# S㜴}+q⺤qIAɖcIHyugYK=/!yk]OA3% }oaSE7) { KNBG KMSS KMJX KMAI < KLOT  KLAM KJFX_ KIGC ^ KHRL ,~ KHCD } KGPT | KFYV { KFGN Sz KESF y KECP x KDNV w KD19 zv KCOS Cu KCEW t KBUR s KBIH r KAWI cq KALY1p K9W7o K87Qn K62Wm K4A6cl K36Yk K25Rj K13Ai HSTR!h HFFF7g GUMAf GCLAe FYWBd FQLCVc FLMPb FCOGa FAMM` ETUNw_ ESSK4^ EPSK] ENHE\ EHMA [ EGSY[Z EGDYY EDSBX EBLBW DISSfV DABCU CYYUT CYSKS CYLK^R CYCQQ CXOXP CXBKO CWVON CWRHZM CWMZL CWIUK CWETJCWAR4 KMJX>p^L:(ucQ?- zhVD2 ~ ţ|DA %*% A V ЫMP J KWX1 #쇡  ٦Z=  pq#a Ț 򆪲- +;>}i  Qz DNv* ̘\} ͽ\? = έщp#  ϔUZ _ "~~ :_A Ҵ2 h)L% > +v !%瀕W V/m# vfr &F:f T l9x# I Fw ؒ'4z QWG PWM> ;h# E Nh5 ڽ =^-0 ܤv# 1}{ \Y%B ]x>0L # ac> ⚏ M rp#   ?UWsUy ?by+ Jp^L:(tbP>,xfTB0 | * Wg) f> ( y#8' [J& )YG b% 笸@$ O-# Μ " ufb+!  Ӱ%l i$  /bh  E5xe _L] xni z20@ ʢy@ Q@d  1  .7 ; QpG" }GdK  雋`qx ^*  ԭ߷A T عT I ,  KVb t ͗ ް !1 Ni~  [  -p ! 8HJ  _wN ū\4 Jir/ GV >^# NOA %cg RC( _ ' T63p {2tfb ?ҿt/(. ە|0ie- 笸@p^L:(tbP>,xfTB0 |! ?1mrOG ?ZZ ?߭PU^ ?=@!~ ?޷r!} ?O=8| ?ᵇj{ ?lugYK=/!yk]OA3% ~pbTF8*vlbXND:0&k YMML3j WMSAi VTCHdh VABMg UNAAf TNCMe SCATd RPLBc RJEBb PATC &a PAFM` OISR/_ OEABV^ LZIB"] LSZB$\ LIVR [ LIBF/Z LFQA&YLEVX#X KYKMW KVBGV KTNB U KSRR ?T KSEES KRNT xR KPTT UQ KPDK 2P KOLS O KNAK N KMMU uM KMCFPL KLNS :K KJVL J KIJX 'I KHPNH KGVQG KGCM ZF KFGN JE KELK D KDRI C KCVX B KCKC A KBWD@ KBHC? KASJ > KADS= K4F2 < K1CM; GQPPy: FOORE9 EYPAN8 ESGR7 ELLX6 EGSH5 EFHK=4 DGLE3 CYYNw2 CYPQ1CYAYM0 CXBI/ CWPC<. CWFJ   6n1yAkindexi6shipCREATE UNIQUE INDEX i6 ON ship(station_id, day)Diindexi5ship_nowCREATE UNIQUE INDEX i5 ON ship_now(station_id)6 Kindexi_xstationsCREATE INDEX i_x ON stations(x)6 Kindexi_ystationsCREATE INDEX i_y ON stations(y)6 Kindexi_zstationsCREATE INDEX i_z ON stations(z)Q indexi1metarCREATE UNIQUE INDEX i1 ON metar(station_id, observation_time)F kindexi2metar_nowCREATE UNIQUE INDEX i2 ON metar_now(station_id)Fuindexi3buoyCREATE UNIQUE INDEX i3 ON buoy(STN,YYYY,MM,DD,hh,mm)=[indexi4buoy_nowCREATE UNIQUE INDEX i4 ON buoy_now(STN)ukaWMC9/%{qg]SI?5+! wmcYOE;1' 46047T 46042S 46041R 46035Q 46029P 46028O 46027N 46026M 46025L 46022K 46014J 46013I 46012H 46011G 46005F 46001E 45168D 45029C 45026B 44100A 44098@ 44097? 44091> 44090= 44072< 44066; 44065: 440649 440628 440587 440566 440425 440404 440273 440252 440221 440200 44018/ 44013. 44011- 44008, 44007+ 42099* 42098) 42097( 42059' 42058& 42057% 42056$ 42055# 42040" 42039! 42036 42035 42020 42019 42012 42003 42002 42001 41159 41115 41113 41112 41110 41049 41048 41047 41046 41044 41043 41040 41025 41013 41010 41009 4 SBIO1\ NPSF1 FMOA1 55905 46022K "zdN8"t^H2lV@*zd4402206/00 4!4401806/03 =n4401106/06 Fm4400905/08 4400705/11 4239505/13  4209805/17  4208505/20 ( 4205905/21 *^ 4205706/00 34205506/03 =4203906/06 Fe4203605/09 ?4202005/12 4201205/15 @4200205/18 4115905/21 *4111705/13 4111305/17 4111005/20 ''4106405/20 (4105305/15 F4104805/18 4104605/21 *K4104306/00 34103806/02 ;4103306/05 D4102905/08 4102405/11 4101005/15 24100805/18 4100205/21 YTFDRN05/23 21PNLM405/23 1 MCYI305/22 .FRVM306/02 7)5    3EFPO 050720Z AUTO 31008KT 260V350 9999 FEW030 02/M07 Q1028EFPO2020-04-05T07:20:00Z61.4721.82.0-7.031086.2130.35433TRUEVFRMETAR17.02020-04-05 07:27:5456(g5    3EFJO 050720Z AUTO 29014KT CAVOK M02/M08 Q1019EFJO2020-04-05T07:20:00Z62.6729.62-2.0-8.0290146.2130.088583TRUEVFRMETAR117.02020-04-05 07:27:54 J>~J6?(g5    3EFKI 050720Z AUTO 28011KT CAVOK M05/M10 Q1019EFKI2020-04-05T07:20:00Z64.2727.67-5.0-10.0280116.2130.088583TRUEVFRMETAR136.02020-04-05 07:27:545>(g5    3EFKS 050720Z AUTO 31010KT CAVOK M06/M13 Q1015EFKS2020-04-05T07:20:00Z66.029.23-6.0-13.0310106.2129.970472TRUEVFRMETAR263.02020-04-05 07:27:547=(w5    3EFKT 050720Z AUTO 29005KT 220V350 CAVOK M07/M14 Q1016EFKT2020-04-05T07:20:00Z67.724.85-7.0-14.029056.2130.0TRUEVFRMETAR643.02020-04-05 07:27:54:<(u5    3EFMI 050720Z AUTO 27011KT 240V310 CAVOK 00/M09 Q1023EFMI2020-04-05T07:20:00Z61.6827.20.0-9.0270116.2130.206694TRUEVFRMETAR138.02020-04-05 07:27:54<;(w5    3EFSA 050720Z AUTO 29012KT 260V320 CAVOK M02/M07 Q1022EFSA2020-04-05T07:20:00Z61.9528.93-2.0-7.0290126.2130.177166TRUEVFRMETAR95.02020-04-05 07:27:54 ,?,OD)5   3LGRP 050720Z 12010G20KT 060V210 9999 FEW010 19/12 Q1004 WS ALL RWY NOSIGLGRP2020-04-05T07:20:00Z36.428.0819.012.012010206.2129.64567TRUEVFRMETAR5.02020-04-05 07:27:54:C(w5    3EFSI 050720Z AUTO 29007KT 240V320 CAVOK M01/M09 Q1025EFSI2020-04-05T07:20:00Z62.722.83-1.0-9.029076.2130.265747TRUEVFRMETAR91.02020-04-05 07:27:54')5   3LLBG 050720Z 12009KT CAVOK 32/04 Q1009 BECMG 24015KT 6000 NSCLLBG2020-04-05T07:20:00Z32.034.8832.04.012096.2129.793306VFRSPECI49.02020-04-05 07:27:548&(m5    3ESNL 050720Z AUTO 25008KT 9999 NCD M03/M11 Q1023ESNL2020-04-05T07:20:00Z64.5518.72-3.0-11.025086.2130.206694TRUEVFRMETAR214.02020-04-05 07:27:546%(m5    3ESUT 050720Z AUTO 00000KT 9999 NCD M11/M13 Q1021ESUT2020-04-05T07:20:00Z65.815.08-11.0-13.0006.2130.147638TRUEVFRMETAR463.02020-04-05 07:27:549$(m5    3ESNX 050720Z AUTO 27011KT 9999 NCD M06/M12 Q1021ESNX2020-04-05T07:20:00Z65.5819.28-6.0-12.0270116.2130.147638TRUEVFRMETAR379.02020-04-05 07:27:54/#(o5   3EKSP 050720Z 14008KT CAVOK 08/02 Q1028 RMK SCT250EKSP2020-04-05T07:20:00Z55.229.278.02.014086.2130.35433VFRMETAR40.02020-04-05 07:27:54 Gq+)?5       3PATK 050720Z AUTO 36003KT 1 1/4SM -SN BR OVC005 01/M01 A2985 RMK AO2 P0001 T00061011 TSNOPATK2020-04-05T07:20:00Z62.3-150.10.6-1.136031.2529.84941TRUETRUETRUE-SN BRIFR0.01SPECI109.02020-04-05 07:27:54.*(e5    3LSGG 050720Z VRB01KT CAVOK 08/02 Q1023 NOSIGLSGG2020-04-05T07:20:00Z46.256.128.02.0016.2130.206694TRUEVFRMETAR416.02020-04-05 07:27:54-)(e5    3LSZB 050720Z 00000KT CAVOK 05/01 Q1023 NOSIGLSZB2020-04-05T07:20:00Z46.927.55.01.0006.2130.206694TRUEVFRMETAR505.02020-04-05 07:27:543((q5    3LSZA 050720Z VRB02KT 9999 BKN065 09/05 Q1026 NOSIGLSZA2020-04-05T07:20:00Z46.08.929.05.0026.2130.295275TRUEVFRMETAR276.02020-04-05 07:27:54 ?  ?[/)%5    3KEVV 050720Z AUTO 34005KT 10SM SCT009 OVC110 09/06 A3008 RMK AO2 T00890061 $KEVV2020-04-05T07:20:00Z38.05-87.528.96.1340510.030.079725TRUETRUETRUEVFRSPECI117.02020-04-05 07:27:54t.)G5     3KLVK 050720Z AUTO 26003KT 3SM -RA BR FEW013 BKN023 OVC035 11/10 A2974 RMK AO2 T01060100 PNO $KLVK2020-04-05T07:20:00Z37.7-121.8210.610.026033.029.740158TRUETRUETRUE-RA BRMVFRSPECI117.02020-04-05 07:27:54-)S5       3KMLP 050720Z AUTO 1 3/4SM -SN BR FEW020 OVC030 M04/M06 A2956 RMK AO2 SNB02 P0000 T10441061 FZRANO $KMLP2020-04-05T07:20:00Z47.45-115.67-4.4-6.11.7529.56004TRUETRUETRUETRUE-SN BRIFR0.005SPECI1837.02020-04-05 07:27:54Z,)5     3KBMQ 050720Z AUTO 03007KT 3/4SM BR OVC002 09/09 A3004 RMK AO2 T00940089 $KBMQ2020-04-05T07:20:00Z30.73-98.239.48.93070.7530.041338TRUETRUETRUEBRLIFRSPECI389.02020-04-05 07:27:54 -K93(q5    3LGIR 050720Z 31010KT 9999 SCT025 17/12 Q1007 NOSIGLGIR2020-04-05T07:20:00Z35.3225.1717.012.0310106.2129.734253TRUEVFRMETAR39.02020-04-05 07:27:5472(q5    3LGKR 050720Z 10004KT 9999 FEW035 15/10 Q1009 NOSIGLGKR2020-04-05T07:20:00Z39.6219.9215.010.010046.2129.793306TRUEVFRMETAR2.02020-04-05 07:27:54\1)5    3CYYQ 050720Z 07010KT 2 1/2SM -SN BLSN OVC014 M12/M13 A3005 RMK SC8 SLP181CYYQ2020-04-05T07:20:00Z58.75-94.07-12.0-13.070102.530.0501981018.1-SN BLSNIFRSPECI29.02020-04-05 07:27:54M0)5    3KPBF 050720Z AUTO 02005KT 10SM SCT021 12/09 A3005 RMK AO2 T01220094KPBF2020-04-05T07:20:00Z34.18-91.9312.29.420510.030.050198TRUETRUEVFRSPECI62.02020-04-05 07:27:54 v;"v&8(Y5   3EKOD 050720Z 17007KT CAVOK 08/02 Q1030EKOD2020-04-05T07:20:00Z55.4710.328.02.017076.2130.413385VFRMETAR17.02020-04-05 07:27:54"7(Y5   3EKYT 050720Z 18009KT CAVOK 09/04 Q1028EKYT2020-04-05T07:20:00Z57.19.879.04.018096.2130.35433VFRMETAR3.02020-04-05 07:27:5456(u5    3EVLA 050720Z AUTO 23005KT 9999 OVC049/// 06/05 Q1032EVLA2020-04-05T07:20:00Z56.5221.16.05.023056.2130.47244TRUEVFRMETAR4.02020-04-05 07:27:5405(e5    3EVVA 050720Z AUTO 26005KT CAVOK 07/M01 Q1031EVVA2020-04-05T07:20:00Z57.3521.557.0-1.026056.2130.442913TRUEVFRMETAR6.02020-04-05 07:27:54?4(5    3LGAV 050720Z 31008KT 9999 FEW015 BKN030 14/08 Q1006 NOSIGLGAV2020-04-05T07:20:00Z37.9323.9514.08.031086.2129.704725TRUEMVFRMETAR94.02020-04-05 07:27:54 _N_2=(i5    3EKEB 050720Z AUTO 15010KT 9999 NCD 08/01 Q1027EKEB2020-04-05T07:20:00Z55.528.558.01.0150106.2130.324802TRUEVFRMETAR29.02020-04-05 07:27:548<(y5    3EKBI 050720Z AUTO 13007KT 100V160 9999 NCD 07/02 Q1028EKBI2020-04-05T07:20:00Z55.729.157.02.013076.2130.35433TRUEVFRMETAR66.02020-04-05 07:27:54>;({5     3ESGJ 050720Z AUTO 20008KT 8000 BR OVC007/// 06/05 Q1029ESGJ2020-04-05T07:20:00Z57.7714.076.05.020084.9730.383858TRUEBRIFRMETAR232.02020-04-05 07:27:54/:(i5    3EKRS 050720Z AUTO VRB02KT 9999 NCD 07/05 Q1031EKRS2020-04-05T07:20:00Z55.4211.87.05.0026.2130.442913TRUEVFRMETAR34.02020-04-05 07:27:54,9(o5   3EKSB 050720Z AUTO 13008KT 9999NDV NCD 09/02 Q1029EKSB2020-04-05T07:20:00Z54.979.89.02.0130830.383858TRUEMETAR23.02020-04-05 07:27:54 PDP2B(i5    3ESMT 050720Z AUTO 17008KT 9999 NCD 07/04 Q1031ESMT2020-04-05T07:20:00Z56.6712.827.04.017086.2130.442913TRUEVFRMETAR30.02020-04-05 07:27:54>A({5     3ESMX 050720Z AUTO 23004KT 7000 BR OVC005/// 06/05 Q1030ESMX2020-04-05T07:20:00Z56.9214.726.05.023044.3530.413385TRUEBRIFRMETAR186.02020-04-05 07:27:541@(i5    3EKRN 050720Z AUTO 13001KT 9999 NCD 08/04 Q1032EKRN2020-04-05T07:20:00Z55.0714.758.04.013016.2130.47244TRUEVFRMETAR16.02020-04-05 07:27:54;?(u5     3EKCH 050720Z AUTO 20004KT 9999 NCD 08/04 Q1031 NOSIGEKCH2020-04-05T07:20:00Z55.6212.678.04.020046.2130.442913TRUETRUEVFRMETAR5.02020-04-05 07:27:546>(5   3EKAH 050720Z AUTO 17005KT 110V210 9999NDV NCD 08/05 Q1030EKAH2020-04-05T07:20:00Z56.2810.628.05.0170530.413385TRUEMETAR25.02020-04-05 07:27:54 P8P0G(i5    3ESTL 050720Z AUTO VRB01KT 9999 NCD 11/03 Q1031ESTL2020-04-05T07:20:00Z56.0713.211.03.0016.2130.442913TRUEVFRMETAR43.02020-04-05 07:27:540F(w5   3LSMA 050720Z AUTO VRB02KT 9999NDV NCD 05/01 Q1023 RMKLSMA2020-04-05T07:20:00Z46.958.285.01.00230.206694TRUEMETAR444.02020-04-05 07:27:54=E({5     3ESGT 050720Z AUTO 18010KT 9999 BR OVC007/// 06/05 Q1028ESGT2020-04-05T07:20:00Z58.3212.336.05.0180106.2130.35433TRUEBRIFRMETAR41.02020-04-05 07:27:543D(i5    3ESMK 050720Z AUTO 24002KT 9999 NCD 10/04 Q1031ESMK2020-04-05T07:20:00Z55.9214.0710.04.024026.2130.442913TRUEVFRMETAR23.02020-04-05 07:27:54BC) 5    3ESMQ 050720Z AUTO 23003KT 9999 SCT045/// BKN054/// 06/04 Q1031ESMQ2020-04-05T07:20:00Z56.6816.36.04.023036.2130.442913TRUEVFRMETAR16.02020-04-05 07:27:54 jT j0L(w5   3LSMP 050720Z AUTO VRB02KT 9999NDV NCD 05/01 Q1023 RMKLSMP2020-04-05T07:20:00Z46.826.925.01.00230.206694TRUEMETAR491.02020-04-05 07:27:54/K(w5   3LSMD 050720Z AUTO 00000KT 9999NDV NCD 06/02 Q1023 RMKLSMD2020-04-05T07:20:00Z47.48.656.02.00030.206694TRUEMETAR448.02020-04-05 07:27:54.J(w5   3LSME 050720Z AUTO 00000KT 9999NDV NCD 07/01 Q1023 RMKLSME2020-04-05T07:20:00Z47.18.37.01.00030.206694TRUEMETAR427.02020-04-05 07:27:54EI)5    3ESGG 050720Z 17008KT 8000 BR FEW005 BKN080 06/05 Q1029 R21/09//95ESGG2020-04-05T07:20:00Z57.6712.36.05.017084.9730.383858BRMVFRMETAR169.02020-04-05 07:27:54&H(Y5   3ESTA 050720Z 14005KT CAVOK 08/04 Q1031ESTA2020-04-05T07:20:00Z56.2812.838.04.014056.2130.442913VFRMETAR47.02020-04-05 07:27:54 .2u>P)5    3ENOL 050720Z 12016KT 9999 FEW040 BKN070 00/M06 Q1021 NOSIGENOL2020-04-05T07:20:00Z63.79.580.0-6.0120166.2130.147638TRUEVFRMETAR7.02020-04-05 07:27:547O(q5    3LATI 050720Z 35009KT 9999 SCT110 14/04 Q1013 NOSIGLATI2020-04-05T07:20:00Z41.4219.7214.04.035096.2129.911417TRUEVFRMETAR90.02020-04-05 07:27:54vN)i5    3ENDU 050720Z AUTO 22005KT 180V250 7000 -SN ///024/// M04/M11 Q1017 RMK WIND 1100FT 19019KT WIND 2200FT 23027KTENDU2020-04-05T07:20:00Z69.0318.55-4.0-11.022054.3530.029528TRUE-SNMETAR79.02020-04-05 07:27:54LM)5    3ENGM 050720Z 17006KT 7000 -DZ OVC003 02/02 Q1025 TEMPO 4000 -DZRA OVC004ENGM2020-04-05T07:20:00Z60.211.12.02.017064.3530.265747-DZLIFRMETAR204.02020-04-05 07:27:54 NB N8U(u5    3EFTU 050720Z AUTO 31009KT 280V340 CAVOK 03/M08 Q1028EFTU2020-04-05T07:20:00Z60.5222.273.0-8.031096.2130.35433TRUEVFRMETAR59.02020-04-05 07:27:542T(g5    3EFVA 050720Z AUTO 28008KT CAVOK M01/M07 Q1026EFVA2020-04-05T07:20:00Z63.0321.77-1.0-7.028086.2130.295275TRUEVFRMETAR4.02020-04-05 07:27:545S(g5    3EFOU 050720Z AUTO 32013KT CAVOK M03/M10 Q1021EFOU2020-04-05T07:20:00Z64.9225.37-3.0-10.0320136.2130.147638TRUEVFRMETAR15.02020-04-05 07:27:54=R(w5    3EFRO 050720Z AUTO 28007KT 240V320 CAVOK M06/M14 Q1017EFRO2020-04-05T07:20:00Z66.5725.82-6.0-14.028076.2130.029528TRUEVFRMETAR201.02020-04-05 07:27:548Q(u5    3EFMA 050720Z AUTO 19003KT 150V230 CAVOK 04/M07 Q1029EFMA2020-04-05T07:20:00Z60.1219.884.0-7.019036.2130.383858TRUEVFRMETAR6.02020-04-05 07:27:54 8yXY))5     3ENVA 050720Z 12007KT 9999 OVC094/// M02/M08 Q1022 NOSIG RMK WIND 670FT 10010KTENVA2020-04-05T07:20:00Z63.4710.92-2.0-8.012076.2130.177166TRUEVFR1.0METAR17.02020-04-05 07:27:54/X(e5    3ENZV 050720Z 15015KT CAVOK 08/03 Q1022 NOSIGENZV2020-04-05T07:20:00Z58.875.628.03.0150156.2130.177166TRUEVFRMETAR9.02020-04-05 07:27:549W(s5    3EFHK 050720Z 30013KT 9999 FEW038 03/M07 Q1027 NOSIGEFHK2020-04-05T07:20:00Z60.3224.973.0-7.0300136.2130.324802TRUEVFRMETAR56.02020-04-05 07:27:54BV)5    3EFTP 050720Z AUTO 30010KT 260V350 9999 SCT032 00/M08 Q1026EFTP2020-04-05T07:20:00Z61.4223.620.0-8.0300106.2130.295275TRUEVFRMETAR112.02020-04-05 07:27:54 &f@])5    3EETN 050720Z 30010KT 270V330 9999 FEW030 04/M05 Q1028 NOSIGEETN2020-04-05T07:20:00Z59.424.824.0-5.0300106.2130.35433TRUEVFRMETAR40.02020-04-05 07:27:54D\)5    3EKVG 050720Z AUTO 14017G28KT 9999 -RA OVC008/// 07/06 Q1000EKVG2020-04-05T07:20:00Z62.07-7.37.06.014017286.2129.52756TRUE-RAIFRMETAR85.02020-04-05 07:27:54:[(w5    3EVRA 050720Z 30005KT 240V340 CAVOK 06/M03 Q1031 NOSIGEVRA2020-04-05T07:20:00Z56.9223.976.0-3.030056.2130.442913TRUEVFRMETAR10.02020-04-05 07:27:54TZ)!5    3PKWA 050720Z AUTO 07014KT 10SM SCT027 OVC035 28/23 A2982 RMK AO2 T02820234PKWA2020-04-05T07:20:00Z8.72167.7228.223.4701410.029.819881TRUETRUEVFRMETAR8.02020-04-05 07:27:54 0P0b(e5    3EDDF 050720Z 07010KT CAVOK 10/01 Q1025 NOSIGEDDF2020-04-05T07:20:00Z50.058.610.01.070106.2130.265747TRUEVFRMETAR113.02020-04-05 07:27:540a(g5    3EDDH 050720Z 14012KT CAVOK 09/M00 Q1028 NOSIGEDDH2020-04-05T07:20:00Z53.6310.09.00.0140126.2130.35433TRUEVFRMETAR16.02020-04-05 07:27:54D`({5    3KSTK 050720Z AUTO 19009KT 10SM CLR 04/M03 A2986 RMK AO2KSTK2020-04-05T07:20:00Z40.62-103.274.0-3.0190910.029.861221TRUETRUEVFRSPECI1231.02020-04-05 07:27:54Z_))5    3KHAF 050720Z AUTO 21008KT 180V250 8SM SCT012 BKN020 OVC049 12/10 A2976 RMK AO2KHAF2020-04-05T07:20:00Z37.52-122.512.010.021088.029.760826TRUETRUEMVFRSPECI21.02020-04-05 07:27:54J^)5    3VNKT 050720Z 24007KT 200V300 8000 FEW020 SCT030 25/08 Q1018 NOSIGVNKT2020-04-05T07:20:00Z27.6885.3725.08.024074.9730.059055TRUEMVFRMETAR1337.02020-04-05 07:27:54 Bi=f)5   3EDDK 050720Z 16005KT 120V190 CAVOK 10/01 Q1024 BECMG 13012KTEDDK2020-04-05T07:20:00Z50.877.1510.01.016056.2130.236221VFRMETAR99.02020-04-05 07:27:54Te)5     3KWBF 050720Z AUTO VRB04KT 3SM BR SCT008 BKN013 OVC018 24/23 A2987 RMK A01KWBF2020-04-05T07:20:00Z26.93-90.524.023.0043.029.870079TRUETRUEBRMVFRSPECI10.02020-04-05 07:27:54Sd)5    3KHQI 050720Z AUTO 07026KT 10SM FEW017 SCT038 BKN080 21/17 A2989 RMK A01KHQI2020-04-05T07:20:00Z27.93-93.6721.017.0702610.029.890747TRUETRUEVFRSPECI26.02020-04-05 07:27:548c(o5   3KHHV 050720Z AUTO 07028KT 7SM 22/20 A2987 RMK A01KHHV2020-04-05T07:20:00Z26.93-94.6822.020.070287.029.870079TRUETRUESPECI25.02020-04-05 07:27:54 /UzNj)5   3ENAN 050720Z AUTO 26021G35KT 210V280 6000 -FZRA ///039/// M02/M07 Q1016ENAN2020-04-05T07:20:00Z69.2816.13-2.0-7.026021353.7330.0TRUE-FZRAMETAR14.02020-04-05 07:27:54Ui)/5    3ENBR 050720Z 15013KT 9999 SCT015 BKN060 07/05 Q1020 NOSIG RMK WIND 1200FT 14021KTENBR2020-04-05T07:20:00Z60.285.227.05.0150136.2130.11811TRUEVFRMETAR50.02020-04-05 07:27:54Th)#5    3ENBO 050720Z 29016KT 9999 4000NE -SHSN FEW005 FEW012CB SCT040 M02/M06 Q1022ENBO2020-04-05T07:20:00Z67.2714.37-2.0-6.0290166.2130.177166-SHSNVFRMETAR13.02020-04-05 07:27:54Kg) 5    3KSQL 050720Z AUTO 21003KT 9SM SCT022 OVC030 12/11 A2976 RMK AO2KSQL2020-04-05T07:20:00Z37.52-122.2512.011.021039.029.760826TRUETRUEMVFRMETAR1.02020-04-05 07:27:54 9NQKn)'5   3ENSB 050720Z VRB02KT 9999 FEW020 BKN200 M16/M20 Q1016 RMK WIND 1400FT VRB03KTENSB2020-04-05T07:20:00Z78.2515.47-16.0-20.0026.2130.0VFRMETAR29.02020-04-05 07:27:54wm)c5    3ENTC 050720Z 19020KT 1000 SHSN VV006 M05/M06 Q1015 TEMPO 22020G30KT 0700 SHSN VV005 RMK WIND 2600FT 18026KTENTC2020-04-05T07:20:00Z69.6818.92-5.0-6.0190200.6229.970472SHSNLIFR600METAR10.02020-04-05 07:27:54el)K5    3ENTO 050720Z 20008KT 140V220 0200 R18/0700N R36/0550N FG VV002 05/05 Q1026 BECMG 2000 BR OVC005ENTO2020-04-05T07:20:00Z59.210.275.05.020080.1230.295275FGLIFR200METAR88.02020-04-05 07:27:54Ak) 5    3EYPA 050720Z AUTO VRB05KT 9999 SCT066/// BKN093/// 07/05 Q1033EYPA2020-04-05T07:20:00Z55.9721.087.05.0056.2130.501968TRUEVFRMETAR10.02020-04-05 07:27:54 &S&3s(s5   3ENAL 050720Z 14012KT 9999 SCT039 BKN053 04/01 Q1018ENAL2020-04-05T07:20:00Z62.576.124.01.0140126.2130.059055VFRMETAR22.02020-04-05 07:27:545r(y5    3ENCN 050720Z 05005KT 4400 BR FEW002 BKN080 04/04 Q1026ENCN2020-04-05T07:20:00Z58.28.074.04.05052.7330.295275BRIFRMETAR17.02020-04-05 07:27:543q(s5   3ENHD 050720Z 15018KT 9999 FEW010 BKN065 08/04 Q1021ENHD2020-04-05T07:20:00Z59.355.228.04.0150186.2130.147638VFRMETAR24.02020-04-05 07:27:54Cp)5   3ENRO 050720Z AUTO 34003KT 320V020 9999NDV OVC064/// M08/M11 Q1021ENRO2020-04-05T07:20:00Z62.5711.33-8.0-11.0340330.147638TRUEMETAR626.02020-04-05 07:27:54^o)75     3ENRY 050720Z AUTO 18010KT 1300NDV R12/P2000D R30/P2000N BR OVC001/// 05/05 Q1026 REDZENRY2020-04-05T07:20:00Z59.3710.775.05.0180101.2430.295275TRUEBRLIFRMETAR53.02020-04-05 07:27:54 ?Ow)5    3KSBD 050720Z AUTO 00000KT 10SM OVC025 14/08 A2991 RMK AO2 T01400083KSBD2020-04-05T07:20:00Z34.08-117.2514.08.30010.029.911417TRUETRUEMVFRSPECI353.02020-04-05 07:27:54\v)!5    3CYNM 050720Z AUTO 32011G17KT 4SM -SN BKN008 OVC019 00/M00 A2991 RMK SLP141CYNM2020-04-05T07:20:00Z49.77-77.820.00.032011174.029.9114171014.1TRUE-SNIFRSPECI281.02020-04-05 07:27:54,u(e5   3EYKA 050720Z 26009KT 9999 OVC005 03/01 Q1034EYKA2020-04-05T07:20:00Z54.9724.083.01.026096.2130.531496IFRMETAR77.02020-04-05 07:27:54;t(}5    3EYSA 050720Z 22008KT 190V270 CAVOK 06/01 Q1033 BLU NOSIGEYSA2020-04-05T07:20:00Z55.923.46.01.022086.2130.501968TRUEVFRMETAR135.02020-04-05 07:27:54 CV{([5 3CWND 051834Z M01/M01 RMK 8001 T10121010CWND2020-04-05T07:18:08Z69.63-135.43-1.2-1.0METAR12.02020-04-05 07:27:54gz)%5   3KINS 050719Z AUTO 21013G19KT 10SM CLR 17/M03 A2966 RMK AO2 WSHFT 17 SLP009 $KINS2020-04-05T07:19:00Z36.58-115.6717.0-3.0210131910.029.6604331000.9TRUETRUETRUEVFRSPECI955.02020-04-05 07:27:54Vy)!5    3KUKI 050719Z AUTO 18006KT 10SM BKN029 OVC035 09/07 A2968 RMK AO2 T00890072KUKI2020-04-05T07:19:00Z39.12-123.28.97.2180610.029.681103TRUETRUEMVFRMETAR187.02020-04-05 07:27:54[x)-5     3KESF 050719Z AUTO 00000KT 1 3/4SM BR FEW002 OVC110 16/16 A2997 RMK AO2 T01610156KESF2020-04-05T07:19:00Z31.4-92.2816.115.6001.7529.970472TRUETRUEBRIFRMETAR28.02020-04-05 07:27:54 @_T)5   3KMMH 050718Z AUTO 13007G15KT 10SM BKN050 BKN065 03/M07 A2976 RMK AO2KMMH2020-04-05T07:18:00Z37.62-118.823.0-7.013071510.029.760826TRUETRUEVFRSPECI2173.02020-04-05 07:27:54[~)5     3PALU 050718Z AUTO 03011KT 1 1/4SM SN OVC009 M09/M10 A2929 RMK AO2 SLP918PALU2020-04-05T07:18:00Z68.88-166.1-9.0-10.030111.2529.291338991.8TRUETRUESNIFRSPECI3.02020-04-05 07:27:54K}) 5    3KCUL 050718Z AUTO 36005KT 10SM BKN009 OVC019 08/07 A3008 RMK AO2KCUL2020-04-05T07:18:00Z38.08-88.128.07.0360510.030.079725TRUETRUEIFRMETAR118.02020-04-05 07:27:54i|)35      3KMFE 050718Z AUTO 32005KT 2 1/2SM -RA BR OVC004 19/18 A2994 RMK AO2 P0001 T01890178KMFE2020-04-05T07:18:00Z26.18-98.2518.917.832052.529.940945TRUETRUE-RA BRLIFR0.01METAR38.02020-04-05 07:27:54 ;iL)5    3KSAW 050718Z AUTO 00000KT 10SM CLR M07/M08 A3016 RMK AO2 T10701081KSAW2020-04-05T07:18:00Z46.35-87.4-7.0-8.10010.030.159449TRUETRUEVFRMETAR372.02020-04-05 07:27:54U)5     3KRSL 050718Z AUTO 15006KT 6SM HZ SCT021 M01/M04 A3003 RMK AO2 T10111039KRSL2020-04-05T07:18:00Z38.87-98.82-1.1-3.915066.030.029528TRUETRUEHZVFRMETAR567.02020-04-05 07:27:54L) 5     3KPRX 050718Z AUTO 35004KT 1 1/2SM BR OVC003 08/07 A3005 RMK AO2KPRX2020-04-05T07:18:00Z33.62-95.458.07.035041.530.050198TRUETRUEBRLIFRMETAR167.02020-04-05 07:27:54?(y5    3KJES 050718Z AUTO 00000KT 10SM CLR 16/13 A2995 RMK AO2KJES2020-04-05T07:18:00Z31.55-81.8816.013.00010.029.949802TRUETRUEVFRSPECI33.02020-04-05 07:27:54 S~k)?5      3KCEC 050718Z AUTO 17017KT 8SM RA FEW008 BKN036 OVC043 10/08 A2955 RMK AO2 P0002 T01000083KCEC2020-04-05T07:18:00Z41.77-124.2210.08.3170178.029.551182TRUETRUERAVFR0.02METAR17.02020-04-05 07:27:54O)5     3KBVO 050718Z AUTO 00000KT 3SM BR OVC005 05/04 A3011 RMK AO2 T00500044KBVO2020-04-05T07:18:00Z36.77-96.025.04.4003.030.109253TRUETRUEBRIFRMETAR210.02020-04-05 07:27:54=(q5    3CYED 050718Z AUTO 11007KT 4SM OVC013 M10/M11 A2991CYED2020-04-05T07:18:00Z53.67-113.47-10.0-11.011074.029.911417TRUEMVFRSPECI688.02020-04-05 07:27:54d)15     3KNQI 050718Z AUTO 34011KT 4SM BR BKN004 OVC008 16/14 A2996 RMK AO2 T01560144 PNO $KNQI2020-04-05T07:18:00Z27.5-97.8215.614.4340114.029.958662TRUETRUETRUEBRLIFRSPECI15.02020-04-05 07:27:54 *VO )5    3KHZR 050717Z AUTO 00000KT 7SM SCT014 SCT028 BKN120 17/17 A2997 RMK AO2KHZR2020-04-05T07:17:00Z30.72-91.4817.017.0007.029.970472TRUETRUEVFRSPECI12.02020-04-05 07:27:54> (}5    3K06C 050717Z AUTO 00000KT 7SM SCT120 02/01 A3014 RMK AO1K06C2020-04-05T07:17:00Z41.98-88.12.01.0007.030.138779TRUETRUEVFRSPECI244.02020-04-05 07:27:54N ) 5    3KCCU 050718Z AUTO 22008KT 120V250 10SM CLR M02/M09 A2998 RMK AO2KCCU2020-04-05T07:18:00Z39.48-106.15-2.0-9.0220810.029.97933TRUETRUEVFRMETAR3680.02020-04-05 07:27:54P)5    3KC07 050718Z AUTO 24006KT 10SM BKN075 OVC080 M01/M07 A2992 RMK AO2KC072020-04-05T07:18:00Z40.35-106.7-1.0-7.0240610.029.920275TRUETRUEVFRSPECI3224.02020-04-05 07:27:54 #0oW)5     3KODO 050717Z AUTO 15005KT 1 3/4SM BR OVC002 08/07 A2999 RMK AO2 T00830072KODO2020-04-05T07:17:00Z31.92-102.48.37.215051.7529.991142TRUETRUEBRLIFRMETAR902.02020-04-05 07:27:54;(s5    3SCAT 050717Z AUTO VRB03KT 9999 // VV/// 16/13 Q1014SCAT2020-04-05T07:17:00Z-27.27-70.7716.013.0036.2129.940945TRUELIFRSPECI204.02020-04-05 07:27:54m )C5     3PACD 050717Z AUTO 26018KT 10SM OVC029 03/M01 A3019 RMK AO2 PK WND 25029/0707 T00281006 TSNOPACD2020-04-05T07:17:00Z55.22-162.722.8-0.62601810.030.188976TRUETRUETRUEMVFRSPECI23.02020-04-05 07:27:54W )5     3KMAF 050717Z AUTO 14007KT 1 3/4SM BR OVC003 09/08 A2999 RMK AO2 T00940078KMAF2020-04-05T07:17:00Z31.95-102.29.47.814071.7529.991142TRUETRUEBRLIFRMETAR874.02020-04-05 07:27:54 0^e)75     3CYVO 050717Z AUTO 31007KT 270V330 9SM -RA SCT007 BKN013 OVC017 04/04 A2991 RMK SLP142CYVO2020-04-05T07:17:00Z48.07-77.774.04.031079.029.9114171014.2TRUE-RAMVFRSPECI337.02020-04-05 07:27:54I) 5    3KDVP 050717Z AUTO 16004KT M01/M03 A3009 RMK AO2 T10101028 PWINOKDVP2020-04-05T07:17:00Z43.98-95.78-1.0-2.8160430.088583TRUETRUETRUESPECI495.02020-04-05 07:27:54L)5    3KMYP 050717Z AUTO 22030KT 10SM BKN065 M03/M10 A3009 RMK AO2KMYP2020-04-05T07:17:00Z38.48-106.32-3.0-10.02203010.030.088583TRUETRUEVFRMETAR3667.02020-04-05 07:27:54J)5    3KMIV 050717Z AUTO 00000KT 7SM BKN004 03/02 A3005 RMK AO2 T00280017KMIV2020-04-05T07:17:00Z39.37-75.082.81.7007.030.050198TRUETRUELIFRMETAR23.02020-04-05 07:27:54 Qp)C5      3KMYL 050716Z AUTO 17008KT 1 1/4SM -SN BR FEW003 OVC008 01/M01 A2958 RMK AO2 P0003 T00061011KMYL2020-04-05T07:16:00Z44.9-116.10.6-1.117081.2529.58071TRUETRUE-SN BRIFR0.03SPECI1533.02020-04-05 07:27:54K)5    3KMOP 050716Z AUTO 00000KT 10SM CLR 00/M02 A3012 RMK AO2 T00001018KMOP2020-04-05T07:16:00Z43.62-84.730.0-1.80010.030.121063TRUETRUEVFRMETAR230.02020-04-05 07:27:54C(5    3KMQJ 050716Z AUTO 36007KT 10SM OVC010 05/05 A3008 RMK AO1KMQJ2020-04-05T07:16:00Z39.85-85.95.05.0360710.030.079725TRUETRUEMVFRMETAR263.02020-04-05 07:27:54`))5    3KBAD 050716Z AUTO 35007KT 10SM OVC003 14/14 A3001 RMK AO2 CIG 002 RWY15 SLP165KBAD2020-04-05T07:16:00Z32.5-93.6714.014.0350710.030.0088581016.5TRUETRUELIFRSPECI51.02020-04-05 07:27:54 :g)m5   3PAEH 050716Z AUTO 31018G28KT 210V140 10SM FEW015 SCT027 00/M04 A2992 RMK AO2 PK WND 28039/0659 WSHFT 0700 SLP141PAEH2020-04-05T07:16:00Z58.65-162.070.0-4.0310182810.029.9202751014.1TRUETRUEVFRSPECI161.02020-04-05 07:27:54C(}5    3KACQ 050716Z AUTO 09005KT 10SM CLR M01/M04 A3014 RMK AO2KACQ2020-04-05T07:16:00Z44.07-93.55-1.0-4.090510.030.138779TRUETRUEVFRSPECI343.02020-04-05 07:27:54M)5    3KHCD 050716Z AUTO 00000KT 10SM CLR M01/M03 A3014 RMK AO2 T10061031KHCD2020-04-05T07:16:00Z44.87-94.38-0.6-3.10010.030.138779TRUETRUEVFRSPECI323.02020-04-05 07:27:54@(}5    3KMWM 050716Z AUTO 00000KT 10SM CLR M01/M04 A3010 RMK AO2KMWM2020-04-05T07:16:00Z43.9-95.1-1.0-4.00010.030.100393TRUETRUEVFRSPECI430.02020-04-05 07:27:54 MA(5    3KNY0 050716Z AUTO 00000KT 10SM OVC036 08/07 A3001 RMK AO2KNY02020-04-05T07:16:00Z42.98-74.338.07.00010.030.008858TRUETRUEVFRSPECI271.02020-04-05 07:27:54J)#5   3RJTC 050716Z VRB02KT 9999 FEW030 SCT120 10/02 Q1010 RMK 1CU030 3AC120 A2984RJTC2020-04-05T07:16:00Z35.7139.410.02.0026.2129.822834VFRSPECI98.02020-04-05 07:27:54d)%5     3KGRF 050716Z AUTO 32004KT 10SM -DZ FEW042 07/04 A2962 RMK AO2 DZB16 SLP035 $KGRF2020-04-05T07:16:00Z47.07-122.577.04.0320410.029.6190951003.5TRUETRUETRUE-DZVFRSPECI92.02020-04-05 07:27:54s);5     3KMIB 050716Z AUTO 23003KT 1/2SM R30/2200V3500FT FZFG CLR M05/M05 A2991 RMK AO2 SLP158 $KMIB2020-04-05T07:16:00Z48.42-101.33-5.0-5.023030.529.9114171015.8TRUETRUETRUEFZFGLIFRSPECI508.02020-04-05 07:27:54 *PN#)5    3KPWA 050716Z AUTO 10003KT 10SM OVC009 06/03 A3008 RMK AO2 T00560028KPWA2020-04-05T07:16:00Z35.53-97.655.62.8100310.030.079725TRUETRUEIFRMETAR397.02020-04-05 07:27:54C"(}5    3KRQB 050716Z AUTO 33003KT 10SM CLR M01/M03 A3012 RMK AO2KRQB2020-04-05T07:16:00Z43.72-85.5-1.0-3.0330310.030.121063TRUETRUEVFRMETAR302.02020-04-05 07:27:54T!)5    3KSAT 050716Z 34003KT 10SM BKN009 OVC022 13/12 A3001 RMK AO2 T01330117 $KSAT2020-04-05T07:16:00Z29.53-98.4713.311.7340310.030.008858TRUETRUEIFRSPECI243.02020-04-05 07:27:54P )5    3KY49 050716Z AUTO 00000KT 10SM OVC100 M02/M06 A3011 RMK AO2 T10251059KY492020-04-05T07:16:00Z47.13-94.65-2.5-5.90010.030.109253TRUETRUEVFRSPECI416.02020-04-05 07:27:54 1_K')5    3KLWA 050716Z AUTO 00000KT 7SM CLR M01/M01 A3014 RMK AO2 T10121012KLWA2020-04-05T07:16:00Z42.35-86.25-1.2-1.2007.030.138779TRUETRUEVFRSPECI203.02020-04-05 07:27:54M&)5    3KI19 050716Z AUTO 36004KT 10SM OVC075 09/07 A3005 RMK AO2 T00930070KI192020-04-05T07:16:00Z39.7-83.989.37.0360410.030.050198TRUETRUEVFRMETAR289.02020-04-05 07:27:54L%)5    3KOZW 050716Z AUTO 33005KT 7SM OVC007 04/03 A3009 RMK AO2 T00350033KOZW2020-04-05T07:16:00Z42.62-83.973.53.333057.030.088583TRUETRUEIFRSPECI293.02020-04-05 07:27:54I$)5    3KPNC 050716Z AUTO 00000KT 9SM OVC009 05/02 A3008 RMK AO2 T00500022KPNC2020-04-05T07:16:00Z36.73-97.15.02.2009.030.079725TRUETRUEIFRMETAR308.02020-04-05 07:27:54 6bR+)5    3KMCD 050716Z AUTO 35006KT 10SM OVC014 M02/M04 A3015 RMK AO2 T10181043KMCD2020-04-05T07:16:00Z45.85-84.63-1.8-4.3350610.030.15059TRUETRUEMVFRSPECI226.02020-04-05 07:27:54L*)5    3K9MN 050716Z AUTO 00000KT 10SM CLR M01/M04 A3015 RMK AO1 T10061039K9MN2020-04-05T07:16:00Z44.02-92.48-0.6-3.90010.030.15059TRUETRUEVFRMETAR355.02020-04-05 07:27:54N)) 5     3K21D 050716Z AUTO 00000KT 10SM SCT110 M03/M05 A3017 RMK AO2 TSNOK21D2020-04-05T07:16:00Z45.0-92.85-3.0-5.00010.030.171259TRUETRUETRUEVFRMETAR285.02020-04-05 07:27:54D()5    3K04W 050716Z AUTO 00000KT 10SM BKN120 M04/M05 A3015 RMK AO2K04W2020-04-05T07:16:00Z46.02-92.9-4.0-5.00010.030.15059TRUETRUEVFRMETAR311.02020-04-05 07:27:54 !YA/(}5    3KOWX 050716Z AUTO 36008KT 7SM OVC008 07/05 A3009 RMK AO1KOWX2020-04-05T07:16:00Z41.03-83.987.05.036087.030.088583TRUETRUEIFRMETAR233.02020-04-05 07:27:54B.(5    3KPHN 050716Z AUTO 02005KT 10SM OVC008 03/02 A3009 RMK AO2KPHN2020-04-05T07:16:00Z42.92-82.523.02.020510.030.088583TRUETRUEIFRMETAR198.02020-04-05 07:27:54B-)5    3KPNM 050716Z AUTO 00000KT 10SM BKN120 00/M06 A3015 RMK AO2KPNM2020-04-05T07:16:00Z45.57-93.60.0-6.00010.030.15059TRUETRUEVFRMETAR298.02020-04-05 07:27:54Y,)5     3KPOV 050716Z AUTO 31003KT 10SM OVC060 11/03 A3001 RMK AO2 T01050032 PWINOKPOV2020-04-05T07:16:00Z41.22-81.2510.53.2310310.030.008858TRUETRUETRUEVFRMETAR365.02020-04-05 07:27:54 9qK3) 5    3KDLZ 050716Z AUTO 35007KT 10SM BKN008 OVC060 08/07 A3003 RMK AO2KDLZ2020-04-05T07:16:00Z40.28-83.128.07.0350710.030.029528TRUETRUEIFRMETAR289.02020-04-05 07:27:54N2) 5     3KROX 050716Z AUTO 00000KT 10SM BKN110 M04/M07 A3008 RMK AO2 TSNOKROX2020-04-05T07:16:00Z48.85-95.7-4.0-7.00010.030.079725TRUETRUETRUEVFRMETAR323.02020-04-05 07:27:54B1(}5    3KRGK 050716Z AUTO 00000KT 10SM CLR M04/M05 A3016 RMK AO2KRGK2020-04-05T07:16:00Z44.58-92.48-4.0-5.00010.030.159449TRUETRUEVFRMETAR239.02020-04-05 07:27:54A0(}5    3KLVN 050716Z AUTO 00000KT 10SM CLR M03/M03 A3015 RMK AO2KLVN2020-04-05T07:16:00Z44.63-93.23-3.0-3.00010.030.15059TRUETRUEVFRSPECI293.02020-04-05 07:27:54 4fO7)5    3KI69 050716Z AUTO 33007KT 10SM OVC080 12/09 A3004 RMK AO2 T01200088KI692020-04-05T07:16:00Z39.08-84.2212.08.8330710.030.041338TRUETRUEVFRMETAR255.02020-04-05 07:27:54L6)5   3KFFM 050716Z AUTO 14013G18KT 10SM BKN100 02/M04 A3008 RMK AO2KFFM2020-04-05T07:16:00Z46.28-96.152.0-4.0140131810.030.079725TRUETRUEVFRMETAR361.02020-04-05 07:27:54H5)5    3KEFK 050716Z AUTO 00000KT 10SM BKN100 00/00 A3000 RMK AO2 T00001001KEFK2020-04-05T07:16:00Z44.88-72.230.0-0.10010.030.0TRUETRUEVFRMETAR284.02020-04-05 07:27:54F4)5    3KDYT 050716Z AUTO 00000KT 10SM OVC060 M01/M06 A3018 RMK AO2KDYT2020-04-05T07:16:00Z46.72-92.03-1.0-6.00010.030.180119TRUETRUEVFRMETAR186.02020-04-05 07:27:54 -^P;)5    3KY63 050716Z AUTO 11011KT 10SM OVC100 01/M03 A3008 RMK AO2 T00101035KY632020-04-05T07:16:00Z45.98-96.01.0-3.51101110.030.079725TRUETRUEVFRMETAR367.02020-04-05 07:27:54E:)5    3KVVV 050716Z AUTO 14009KT 10SM SCT120 00/M02 A3006 RMK AO2KVVV2020-04-05T07:16:00Z45.3-96.420.0-2.0140910.030.059055TRUETRUEVFRMETAR335.02020-04-05 07:27:54I9) 5    3KUNV 050716Z AUTO 00000KT 10SM CLR 06/03 A3001 RMK AO2 T00590031KUNV2020-04-05T07:16:00Z40.85-77.835.93.10010.030.008858TRUETRUEVFRMETAR378.02020-04-05 07:27:54M8)5    3KSYN 050716Z AUTO 00000KT 10SM CLR M03/M04 A3014 RMK AO2 T10321040KSYN2020-04-05T07:16:00Z44.47-93.02-3.2-4.00010.030.138779TRUETRUEVFRMETAR280.02020-04-05 07:27:54 *SB?({5    3KJKJ 050716Z AUTO 14008KT 10SM CLR 01/M05 A3005 RMK AO2KJKJ2020-04-05T07:16:00Z46.83-96.671.0-5.0140810.030.050198TRUETRUEVFRMETAR280.02020-04-05 07:27:54B>(}5    3KJMR 050716Z AUTO 00000KT 10SM CLR M03/M05 A3017 RMK AO2KJMR2020-04-05T07:16:00Z45.88-93.27-3.0-5.00010.030.171259TRUETRUEVFRMETAR309.02020-04-05 07:27:54Q=)5    3KNTD 050716Z AUTO 00000KT 8SM BKN017 11/09 A2991 RMK AO2 T01110094 $KNTD2020-04-05T07:16:00Z34.12-119.1211.19.4008.029.911417TRUETRUETRUEMVFRSPECI4.02020-04-05 07:27:54P<)5    3CYNA 050716Z AUTO VRB02KT 9SM SCT009 OVC018 M03/M04 A2999 RMK SLP158CYNA2020-04-05T07:16:00Z50.17-61.82-3.0-4.0029.029.9911421015.8TRUEMVFRSPECI11.02020-04-05 07:27:54 KvAC({5    3KBDH 050716Z AUTO 11004KT 10SM CLR 00/M03 A3015 RMK AO2KBDH2020-04-05T07:16:00Z45.12-95.130.0-3.0110410.030.15059TRUETRUEVFRSPECI247.02020-04-05 07:27:54OB)5    3KADC 050716Z AUTO 13003KT 10SM SCT090 OVC110 M02/M05 A3010 RMK AO2KADC2020-04-05T07:16:00Z46.45-95.22-2.0-5.0130310.030.100393TRUETRUEVFRSPECI418.02020-04-05 07:27:54DA(5    3K4I3 050716Z AUTO 34006KT 10SM OVC060 10/05 A3003 RMK AO2K4I32020-04-05T07:16:00Z40.33-82.5310.05.0340610.030.029528TRUETRUEVFRSPECI363.02020-04-05 07:27:54e@)35     3CYPH 050716Z AUTO 09027KT 2SM BLSN CLR M14/M16 A3004 RMK VIS VRB 1 1/2-2 1/2 SLP176CYPH2020-04-05T07:16:00Z58.45-78.08-14.0-16.090272.030.0413381017.6TRUEBLSNIFRSPECI3.02020-04-05 07:27:54 0\;G(5    3KPJC 050716Z AUTO 00000KT 10SM SCT095 05/05 A3000 RMK AO2KPJC2020-04-05T07:16:00Z40.8-80.175.05.00010.030.0TRUETRUEVFRMETAR284.02020-04-05 07:27:54BF({5    3KOVL 050716Z AUTO 14004KT 10SM CLR 00/M02 A3012 RMK AO2KOVL2020-04-05T07:16:00Z44.78-95.030.0-2.0140410.030.121063TRUETRUEVFRSPECI328.02020-04-05 07:27:54NE)5    3KONZ 050716Z AUTO 36006KT 10SM OVC012 08/06 A3006 RMK AO2 T00760058KONZ2020-04-05T07:16:00Z42.1-83.157.65.8360610.030.059055TRUETRUEMVFRSPECI180.02020-04-05 07:27:54JD) 5    3KMVE 050716Z AUTO 18007KT 10SM SCT100 120 02/M04 A3010 RMK AO2KMVE2020-04-05T07:16:00Z44.97-95.722.0-4.0180710.030.100393TRUETRUEVFRSPECI315.02020-04-05 07:27:54 )TRK)5    3KSLH 050716Z AUTO 30008KT 10SM OVC015 M01/M04 A3015 RMK AO2 T10151041KSLH2020-04-05T07:16:00Z45.65-84.52-1.5-4.1300810.030.15059TRUETRUEMVFRSPECI195.02020-04-05 07:27:54FJ)5    3KRRT 050716Z AUTO 00000KT 10SM SCT120 M04/M07 A3010 RMK AO2KRRT2020-04-05T07:16:00Z48.93-95.33-4.0-7.00010.030.100393TRUETRUEVFRSPECI327.02020-04-05 07:27:54OI)5    3KRMY 050716Z AUTO 36003KT 10SM OVC011 04/02 A3009 RMK AO2 T00410016KRMY2020-04-05T07:16:00Z42.23-84.954.11.6360310.030.088583TRUETRUEMVFRSPECI287.02020-04-05 07:27:54QH)5    3KPZQ 050716Z AUTO 32006KT 10SM OVC012 M01/M04 A3015 RMK AO2 T10101036KPZQ2020-04-05T07:16:00Z45.4-83.82-1.0-3.6320610.030.15059TRUETRUEMVFRMETAR204.02020-04-05 07:27:54 ,dCO(}5    3KCKC 050716Z AUTO 00000KT 10SM CLR M06/M13 A3012 RMK AO2KCKC2020-04-05T07:16:00Z47.83-90.37-6.0-13.00010.030.121063TRUETRUEVFRSPECI548.02020-04-05 07:27:548N(w5    3KCFE 050716Z 10SM CLR M02/M05 A3015 RMK AO2 T10201046KCFE2020-04-05T07:16:00Z45.17-93.85-2.0-4.610.030.15059TRUEVFRMETAR295.02020-04-05 07:27:54BM(}5    3KTOB 050716Z AUTO 00000KT 10SM CLR M02/M04 A3014 RMK AO2KTOB2020-04-05T07:16:00Z44.02-92.82-2.0-4.00010.030.138779TRUETRUEVFRSPECI398.02020-04-05 07:27:54NL)5    3KTEW 050716Z AUTO 33004KT 10SM OVC008 02/01 A3011 RMK AO2 T00230010KTEW2020-04-05T07:16:00Z42.57-84.422.31.0330410.030.109253TRUETRUEIFRSPECI280.02020-04-05 07:27:54 $MNS)5    3KFPK 050716Z AUTO 36004KT 10SM OVC008 03/01 A3009 RMK AO2 T00270010KFPK2020-04-05T07:16:00Z42.57-84.822.71.0360410.030.088583TRUETRUEIFRSPECI272.02020-04-05 07:27:540R(i5   3KFBL 050716Z 00000KT 7SM M03/M03 A3014 RMK AO2KFBL2020-04-05T07:16:00Z44.33-93.32-3.0-3.0007.030.138779TRUESPECI322.02020-04-05 07:27:54QQ)5    3KERY 050716Z AUTO 33003KT 10SM OVC016 M01/M02 A3015 RMK AO2 T10081020KERY2020-04-05T07:16:00Z46.3-85.45-0.8-2.0330310.030.15059TRUETRUEMVFRSPECI265.02020-04-05 07:27:54VP)!5    3KDUH 050716Z AUTO 35005KT 10SM SCT008 OVC013 07/07 A3008 RMK AO2 T00720068KDUH2020-04-05T07:16:00Z41.73-83.657.26.8350510.030.079725TRUETRUEMVFRSPECI204.02020-04-05 07:27:54 ,ZQW)5    3KIKW 050716Z AUTO 31005KT 10SM OVC012 01/M02 A3012 RMK AO2 T00081020KIKW2020-04-05T07:16:00Z43.67-84.270.8-2.0310510.030.121063TRUETRUEMVFRMETAR194.02020-04-05 07:27:54DV(5    3KHYX 050716Z AUTO 32008KT 10SM OVC011 02/00 A3011 RMK AO2KHYX2020-04-05T07:16:00Z43.43-83.872.00.0320810.030.109253TRUETRUEMVFRSPECI183.02020-04-05 07:27:54LU)5    3KHAI 050716Z AUTO 00000KT 10SM OVC014 06/03 A3011 RMK AO2 T00580025KHAI2020-04-05T07:16:00Z41.97-85.65.82.50010.030.109253TRUETRUEMVFRSPECI251.02020-04-05 07:27:54NT)5    3KGDB 050716Z AUTO 13007KT 7SM SCT100 01/M01 A3013 RMK AO2 T00111015KGDB2020-04-05T07:16:00Z44.75-95.551.1-1.513077.030.129921TRUETRUEVFRSPECI319.02020-04-05 07:27:54 ,jQ[)5    3K40B 050716Z AUTO 00000KT 00/M02 A2998 RMK AO1 SLP170 T00041016 57002K40B2020-04-05T07:16:00Z46.62-69.520.4-1.60029.979331017.0TRUETRUE-0.2METAR314.02020-04-05 07:27:54MZ)5    3KJYM 050716Z AUTO 02004KT 10SM OVC007 05/03 A3007 RMK AO2 T00450032KJYM2020-04-05T07:16:00Z41.92-84.584.53.220410.030.070866TRUETRUEIFRSPECI360.02020-04-05 07:27:54vK) 5    3KGYY 050715Z AUTO 36006KT 10SM CLR 04/02 A3014 RMK AO2 T00370023KGYY2020-04-05T07:15:00Z41.62-87.423.72.3360610.030.138779TRUETRUEVFRSPECI180.02020-04-05 07:27:54I)5     3KGZL 050715Z AUTO 31003KT 1/2SM FG OVC002 06/06 A3008 RMK AO2KGZL2020-04-05T07:15:00Z35.28-95.16.06.031030.530.079725TRUETRUEFGLIFRSPECI183.02020-04-05 07:27:54B (5    3KGZS 050715Z AUTO 00000KT 10SM FEW049 13/11 A2998 RMK A01KGZS2020-04-05T07:15:00Z35.15-87.0513.011.00010.029.97933TRUETRUEVFRSPECI209.02020-04-05 07:27:54< (u5    3KH71 050715Z AUTO 35005KT 5SM BR 06/06 A3008 RMK AO2KH712020-04-05T07:15:00Z36.22-95.336.06.035055.030.079725TRUETRUEBRSPECI190.02020-04-05 07:27:54 $_N)5    3KONM 050715Z AUTO 13004KT 10SM CLR 08/M08 A2990 RMK AO2 T00781085KONM2020-04-05T07:15:00Z34.02-106.97.8-8.5130410.029.899607TRUETRUEVFRMETAR1410.02020-04-05 07:27:54Z)-5    3KOPL 050715Z AUTO 02004KT 7SM SCT013 BKN019 OVC030 17/17 A2997 RMK AO2 T01700165KOPL2020-04-05T07:15:00Z30.55-92.117.016.52047.029.970472TRUETRUEMVFRMETAR23.02020-04-05 07:27:54?(y5    3KOBE 050715Z AUTO 00000KT 10SM CLR 18/16 A2992 RMK AO2KOBE2020-04-05T07:15:00Z27.27-80.8518.016.00010.029.920275TRUETRUEVFRSPECI11.02020-04-05 07:27:54V)5     3KGYI 050715Z AUTO 33006KT 2 1/2SM BR OVC004 07/07 A3008 RMK AO2 T00730066KGYI2020-04-05T07:15:00Z33.72-96.677.36.633062.530.079725TRUETRUEBRLIFRSPECI228.02020-04-05 07:27:54 ,\U)!5    3KUKL 050715Z AUTO 14004KT 10SM SCT009 OVC015 04/03 A3009 RMK AO2 T00410025KUKL2020-04-05T07:15:00Z38.3-95.734.12.5140410.030.088583TRUETRUEMVFRSPECI358.02020-04-05 07:27:54R)5     3KOKM 050715Z AUTO 32004KT 5SM BR OVC004 06/06 A3009 RMK AO2 T00550055KOKM2020-04-05T07:15:00Z35.67-95.955.55.532045.030.088583TRUETRUEBRLIFRMETAR220.02020-04-05 07:27:54J) 5    3KOKZ 050715Z AUTO 00000KT 10SM CLR 15/07 A2996 RMK AO2 T01460066KOKZ2020-04-05T07:15:00Z32.97-82.8314.66.60010.029.958662TRUETRUEVFRMETAR134.02020-04-05 07:27:54N)5    3KONL 050715Z AUTO 17011KT 10SM CLR 01/M04 A3001 RMK AO2 T00111045KONL2020-04-05T07:15:00Z42.47-98.671.1-4.51701110.030.008858TRUETRUEVFRMETAR619.02020-04-05 07:27:54 :hM) 5    3KHQU 050715Z AUTO 19003KT 10SM CLR 11/10 A2997 RMK AO2 T01140104KHQU2020-04-05T07:15:00Z33.53-82.5211.410.4190310.029.970472TRUETRUEVFRSPECI152.02020-04-05 07:27:54J)5    3KHQZ 050715Z AUTO 00000KT 7SM OVC007 08/08 A3007 RMK AO1 T00820076KHQZ2020-04-05T07:15:00Z32.75-96.538.27.6007.030.070866TRUETRUEIFRSPECI136.02020-04-05 07:27:54L) 5    3KHRX 050715Z AUTO 19006KT 10SM CLR 05/04 A2998 RMK AO2 T00490036KHRX2020-04-05T07:15:00Z34.87-102.334.93.6190610.029.97933TRUETRUEVFRSPECI1154.02020-04-05 07:27:54@(y5    3KUCY 050715Z AUTO 36006KT 10SM CLR 08/07 A3006 RMK A01KUCY2020-04-05T07:15:00Z36.38-88.988.07.0360610.030.059055TRUETRUEVFRSPECI104.02020-04-05 07:27:54 8pK)5    3KI75 050715Z AUTO 00000KT 10SM CLR 01/M01 A3012 RMK AO2 T00121006KI752020-04-05T07:15:00Z41.05-93.681.2-0.60010.030.121063TRUETRUEVFRSPECI339.02020-04-05 07:27:54V)%5     3KIER 050715Z AUTO 00000KT 2SM BR SCT005 OVC100 16/16 A2999 RMK AO2 T01560156KIER2020-04-05T07:15:00Z31.73-93.115.615.6002.029.991142TRUETRUEBRIFRSPECI37.02020-04-05 07:27:54B(y5    3KIFP 050715Z AUTO 22005KT 10SM CLR 18/03 A2970 RMK AO2KIFP2020-04-05T07:15:00Z35.15-114.5718.03.0220510.029.698818TRUETRUEVFRSPECI212.02020-04-05 07:27:54B(}5    3KHPT 050715Z AUTO 00000KT 10SM CLR M01/M01 A3014 RMK AO2KHPT2020-04-05T07:15:00Z42.72-93.23-1.0-1.00010.030.138779TRUETRUEVFRSPECI354.02020-04-05 07:27:54 %]E#({5    3K82V 050715Z AUTO 19012KT 10SM CLR 03/M03 A2983 RMK AO2K82V2020-04-05T07:15:00Z41.15-104.133.0-3.01901210.029.828741TRUETRUEVFRSPECI1570.02020-04-05 07:27:54<"(y5    3K8A3 050715Z AUTO 36006KT 10SM CLR 14/08 A3000 RMK A01K8A32020-04-05T07:15:00Z36.42-85.3214.08.0360610.030.0TRUETRUEVFRSPECI419.02020-04-05 07:27:54B!(5    3KHSD 050715Z AUTO 07003KT 10SM OVC011 05/03 A3009 RMK A01KHSD2020-04-05T07:15:00Z35.6-97.725.03.070310.030.088583TRUETRUEMVFRSPECI364.02020-04-05 07:27:54U )'5    3KHUM 050715Z AUTO 00000KT 7SM OVC100 15/14 A2996 RMK AO2 LTG DSNT S T01510143KHUM2020-04-05T07:15:00Z29.57-90.6715.114.3007.029.958662TRUETRUEVFRSPECI3.02020-04-05 07:27:54 3YI')5     3K5T9 050715Z AUTO 00000KT 3SM BR OVC003 13/12 A3004 RMK A01K5T92020-04-05T07:15:00Z28.85-100.5213.012.0003.030.041338TRUETRUEBRLIFRSPECI270.02020-04-05 07:27:54D&(}5    3K6S0 050715Z AUTO 03008KT 10SM CLR M03/M07 A2978 RMK A01K6S02020-04-05T07:15:00Z45.8-109.97-3.0-7.030810.029.778543TRUETRUEVFRMETAR1363.02020-04-05 07:27:54T%)5    3K6S5 050715Z AUTO 00000KT 10SM SCT029 BKN038 OVC055 03/M03 A2963 RMK AO2K6S52020-04-05T07:15:00Z46.25-114.133.0-3.00010.029.630905TRUETRUEVFRMETAR1110.02020-04-05 07:27:54G$)5    3K7S1 050715Z AUTO 15004KT 10SM OVC070 05/M06 A2964 RMK AO2K7S12020-04-05T07:15:00Z45.53-112.35.0-6.0150410.029.639763TRUETRUEVFRMETAR1456.02020-04-05 07:27:54 7dN+)5      3K4F2 050715Z AUTO 33005KT 1/2SM FG OVC003 12/ A3001 RMK AO2 T0124////K4F22020-04-05T07:15:00Z32.18-94.312.433050.530.008858TRUETRUEFGLIFRMETAR76.02020-04-05 07:27:54E*)5    3K4O4 050715Z AUTO 00000KT 1 3/4SM OVC002 09/08 A3002 RMK AO2K4O42020-04-05T07:15:00Z33.92-94.879.08.0001.7530.02067TRUETRUELIFRMETAR144.02020-04-05 07:27:54M))5    3K4R5 050715Z AUTO 00000KT 10SM CLR M05/M06 A3019 RMK AO2 T10531059K4R52020-04-05T07:15:00Z46.78-90.77-5.3-5.90010.030.188976TRUETRUEVFRSPECI198.02020-04-05 07:27:54C((5    3K54A 050715Z AUTO 05004KT 10SM FEW044 20/20 A2990 RMK AO2K54A2020-04-05T07:15:00Z26.85-82.2520.020.050410.029.899607TRUETRUEVFRMETAR14.02020-04-05 07:27:54 9bM/)5    3KUNI 050715Z AUTO 00000KT 10SM OVC090 12/09 A2999 RMK AO2 T01200092KUNI2020-04-05T07:15:00Z39.22-82.2312.09.20010.029.991142TRUETRUEVFRSPECI193.02020-04-05 07:27:54A.(}5    3KUSE 050715Z AUTO 34006KT 8SM OVC008 07/07 A3008 RMK AO2KUSE2020-04-05T07:15:00Z41.62-84.137.07.034068.030.079725TRUETRUEIFRSPECI238.02020-04-05 07:27:54Q-)5    3KUVA 050715Z AUTO 32004KT 10SM OVC010 14/13 A3005 RMK AO2 T01350130KUVA2020-04-05T07:15:00Z29.22-99.7513.513.0320410.030.050198TRUETRUEMVFRMETAR287.02020-04-05 07:27:54A,(}5     3KVKS 050715Z AUTO 00000KT 6SM BR CLR 16/16 A2998 RMK A01KVKS2020-04-05T07:15:00Z32.23-90.9316.016.0006.029.97933TRUETRUEBRVFRSPECI32.02020-04-05 07:27:54 6eN3)5    3K41U 050715Z AUTO 28003KT 10SM CLR 05/M03 A2977 RMK AO1 T00501033K41U2020-04-05T07:15:00Z39.33-111.65.0-3.3280310.029.769686TRUETRUEVFRMETAR1676.02020-04-05 07:27:54C2)5   3K6A1 050715Z AUTO 00000KT 10SM 16/10 A2995 RMK AO2 T01600096K6A12020-04-05T07:15:00Z32.57-84.2516.09.60010.029.949802TRUETRUEMETAR203.02020-04-05 07:27:54K1)5     3K8A0 050715Z AUTO 03004KT 10SM CLR 16/08 A2996 RMK AO2 PWINOK8A02020-04-05T07:15:00Z34.23-86.2516.08.030410.029.958662TRUETRUETRUEVFRMETAR315.02020-04-05 07:27:54D0({5    3KA39 050715Z AUTO 15007KT 10SM CLR 15/M01 A2987 RMK AO2KA392020-04-05T07:15:00Z32.98-111.9215.0-1.0150710.029.870079TRUETRUEVFRMETAR396.02020-04-05 07:27:54 .a=7(y5    3KBIJ 050715Z AUTO 00000KT 10SM CLR 16/13 A2991 RMK AO2KBIJ2020-04-05T07:15:00Z31.4-84.916.013.00010.029.911417TRUETRUEVFRMETAR65.02020-04-05 07:27:54;6(5    3KBYL 050715Z AUTO 00000KT 10SM BKN120 11/07 A3000 RMK AO1KBYL2020-04-05T07:15:00Z36.8-84.211.07.00010.030.0TRUETRUEVFRMETAR359.02020-04-05 07:27:54G5)5     3KCDH 050715Z AUTO 02004KT 5SM BR OVC007 14/12 A3003 RMK AO2KCDH2020-04-05T07:15:00Z33.62-92.7714.012.02045.030.029528TRUETRUEBRIFRMETAR35.02020-04-05 07:27:54L4)5    3K0R4 050715Z AUTO 00000KT 10SM OVC110 17/16 A2997 RMK AO2 T01660156K0R42020-04-05T07:15:00Z31.57-91.516.615.60010.029.970472TRUETRUEVFRMETAR17.02020-04-05 07:27:54 "SA;({5    3KMRJ 050715Z AUTO 03004KT 10SM CLR 02/M04 A3013 RMK AO2KMRJ2020-04-05T07:15:00Z42.88-90.232.0-4.030410.030.129921TRUETRUEVFRMETAR359.02020-04-05 07:27:54J:) 5    3KCPC 050715Z AUTO 05003KT 10SM CLR 11/10 A3003 RMK AO2 T01080097KCPC2020-04-05T07:15:00Z34.28-78.7210.89.750310.030.029528TRUETRUEVFRMETAR29.02020-04-05 07:27:54I9) 5    3KAAA 050715Z AUTO 00000KT 10SM CLR 02/01 A3013 RMK AO2 T00230006KAAA2020-04-05T07:15:00Z40.17-89.332.30.60010.030.129921TRUETRUEVFRSPECI182.02020-04-05 07:27:54X8)5    3KAFO 050715Z AUTO 20008KT 10SM SCT060 BKN080 OVC090 M01/M04 A2973 RMK AO2KAFO2020-04-05T07:15:00Z42.72-110.95-1.0-4.0200810.029.731298TRUETRUEVFRMETAR1897.02020-04-05 07:27:54 ;}I@) 5    3KJCA 050715Z AUTO 00000KT 10SM CLR 12/07 A2998 RMK AO2 T01230073KJCA2020-04-05T07:15:00Z34.18-83.5712.37.30010.029.97933TRUETRUEVFRMETAR290.02020-04-05 07:27:54E?) 5    3KJZP 050715Z AUTO 00000KT 10SM CLR 14/06 A3000 RMK AO2 T01350059KJZP2020-04-05T07:15:00Z34.45-84.4713.55.90010.030.0TRUETRUEVFRMETAR468.02020-04-05 07:27:54?>(y5    3KLCQ 050715Z AUTO 00000KT 10SM CLR 16/12 A2993 RMK AO2KLCQ2020-04-05T07:15:00Z30.18-82.5816.012.00010.029.929134TRUETRUEVFRMETAR61.02020-04-05 07:27:548=(y5     3KMEZ 050715Z AUTO 00000KT 1 3/4SM OVC003 A3005 RMK AO2KMEZ2020-04-05T07:15:00Z34.55-94.2001.7530.050198TRUETRUELIFRMETAR329.02020-04-05 07:27:54?<(5    3KMMU 050715Z AUTO 00000KT 10SM OVC050 07/07 A3002 RMK AO2KMMU2020-04-05T07:15:00Z40.78-74.427.07.00010.030.02067TRUETRUEVFRSPECI57.02020-04-05 07:27:54 'ULD)5      3KETN 050715Z AUTO 09004KT 1SM BR OVC003 06/ A3005 RMK AO2 T0063////KETN2020-04-05T07:15:00Z32.42-98.826.39041.030.050198TRUETRUEBRLIFRMETAR446.02020-04-05 07:27:54NC)5    3KFGX 050715Z AUTO 33003KT 10SM OVC080 13/10 A3002 RMK AO2 T01310096KFGX2020-04-05T07:15:00Z38.55-83.7513.19.6330310.030.02067TRUETRUEVFRMETAR278.02020-04-05 07:27:54LB)5    3KGBG 050715Z AUTO 00000KT 10SM SCT120 04/01 A3014 RMK AO2 T00440011KGBG2020-04-05T07:15:00Z40.93-90.434.41.10010.030.138779TRUETRUEVFRSPECI233.02020-04-05 07:27:54SA)5     3KIDP 050715Z AUTO 00000KT 3 1/2SM BR OVC006 05/04 A3011 RMK AO2 T00460041KIDP2020-04-05T07:15:00Z37.17-95.784.64.1003.530.109253TRUETRUEBRIFRMETAR251.02020-04-05 07:27:54 2aDH({5    3KDTA 050715Z AUTO 18012KT 10SM CLR 09/M05 A2973 RMK AO1KDTA2020-04-05T07:15:00Z39.38-112.59.0-5.01801210.029.731298TRUETRUEVFRMETAR1402.02020-04-05 07:27:54DG(}5    3KEBS 050715Z AUTO 10005KT 10SM CLR M02/M03 A3012 RMK AO2KEBS2020-04-05T07:15:00Z42.42-93.87-2.0-3.0100510.030.121063TRUETRUEVFRMETAR342.02020-04-05 07:27:54KF) 5    3KEHA 050715Z AUTO 15009KT 10SM CLR 02/00 A2994 RMK AO2 T00210000KEHA2020-04-05T07:15:00Z37.0-101.92.10.0150910.029.940945TRUETRUEVFRMETAR1099.02020-04-05 07:27:54HE)5    3KEMM 050715Z AUTO 09006KT 10SM SCT075 03/M11 A2975 RMK AO2KEMM2020-04-05T07:15:00Z41.82-110.553.0-11.090610.029.749016TRUETRUEVFRMETAR2220.02020-04-05 07:27:54Y8q8@HPX`hpx (08@HPX`hpx (08@HPX`hpx#'+ 0!5":#?#'+ 0!5":#?$D%I&N'S(X)]*b+g,l-q.v/{012 34567"8'9+:/;3<8==>B?G@LAPBUCYD]EbFfGjHnIsJwK{LMNO PQRSTU#V'W+X/Y3Z7[;\?]C^G_K`OaSbWc[d_ecfggkhoisjwk{lmno pY88@HPX`hpx (08@HPX`hpx (08@HPX`hpxrstu#v'w+x/y3z7{;|@}Drstu#v'w+x/y3z7{;|@}D~HLPTX\`dhlptx|  $(,048<@DIMQUY]aeimquy} !%)-159=AEIM‹QËUċYŋ]ƋaNjeȋiɋmʋqˋűz :rSL)5    3KPNA 050715Z AUTO 09004KT 10SM SCT034 BKN055 OVC070 01/M05 A2979 RMK AO2KPNA2020-04-05T07:15:00Z42.8-109.81.0-5.090410.029.790354TRUETRUEVFRMETAR2160.02020-04-05 07:27:54HK) 5    3KPNT 050715Z AUTO 09006KT 7SM CLR 02/02 A3013 RMK AO2 T00220020KPNT2020-04-05T07:15:00Z40.92-88.622.22.09067.030.129921TRUETRUEVFRSPECI201.02020-04-05 07:27:54BJ(5    3KDBN 050715Z AUTO 00000KT 10SM BKN090 13/12 A2997 RMK AO2KDBN2020-04-05T07:15:00Z32.57-82.9813.012.00010.029.970472TRUETRUEVFRMETAR94.02020-04-05 07:27:54@I(y5    3KDNN 050715Z AUTO 00000KT 10SM CLR 13/10 A2997 RMK AO2KDNN2020-04-05T07:15:00Z34.72-84.8713.010.00010.029.970472TRUETRUEVFRMETAR216.02020-04-05 07:27:54 #O}>P(y5    3KSME 050715Z AUTO 00000KT 10SM CLR 10/06 A3002 RMK AO2KSME2020-04-05T07:15:00Z37.05-84.6210.06.00010.030.02067TRUETRUEVFRMETAR283.02020-04-05 07:27:54LO)5    3KREG 050715Z AUTO 00000KT 10SM OVC090 18/17 A2993 RMK AO2 T01750170KREG2020-04-05T07:15:00Z30.17-90.9317.517.00010.029.929134TRUETRUEVFRMETAR4.02020-04-05 07:27:54NN) 5     3KO54 050715Z AUTO 23003KT 5SM OVC003 03/03 A2962 RMK AO1 P0001KO542020-04-05T07:15:00Z40.75-122.923.03.023035.029.619095TRUETRUELIFR0.01METAR717.02020-04-05 07:27:54WM)5     3KOUN 050715Z AUTO 05003KT 10SM OVC008 05/03 A3006 RMK AO2 PWINO T00470033KOUN2020-04-05T07:15:00Z35.25-97.474.73.350310.030.059055TRUETRUETRUEIFRMETAR357.02020-04-05 07:27:54 5ZBT(5    3KGGP 050715Z AUTO 02008KT 10SM OVC006 02/02 A3010 RMK AO2KGGP2020-04-05T07:15:00Z40.72-86.372.02.020810.030.100393TRUETRUEIFRSPECI225.02020-04-05 07:27:54IS) 5    3KLWB 050715Z AUTO 02003KT 10SM CLR 04/01 A3005 RMK AO2 T00390007KLWB2020-04-05T07:15:00Z37.87-80.43.90.720310.030.050198TRUETRUEVFRSPECI702.02020-04-05 07:27:54UR)!5    3KELK 050715Z AUTO 13005KT 10SM SCT009 OVC028 05/03 A3004 RMK AO2 T00520031KELK2020-04-05T07:15:00Z35.43-99.45.23.1130510.030.041338TRUETRUEMVFRSPECI610.02020-04-05 07:27:54EQ(5    3KDVK 050715Z AUTO 33005KT 10SM SCT110 12/10 A3003 RMK AO2KDVK2020-04-05T07:15:00Z37.58-84.7712.010.0330510.030.029528TRUETRUEVFRSPECI312.02020-04-05 07:27:54 +\BX(5    3KOGS 050715Z AUTO 20007KT 10SM OVC037 08/06 A2997 RMK AO2KOGS2020-04-05T07:15:00Z44.67-75.478.06.0200710.029.970472TRUETRUEVFRMETAR91.02020-04-05 07:27:54PW)5     3KRPH 050715Z AUTO 00000KT 3SM BR OVC004 07/07 A3006 RMK AO2 T00720072KRPH2020-04-05T07:15:00Z33.12-98.557.27.2003.030.059055TRUETRUEBRLIFRSPECI342.02020-04-05 07:27:54IV) 5    3KW78 050715Z AUTO 00000KT 10SM CLR 07/06 A3009 RMK AO1 T00650057KW782020-04-05T07:15:00Z36.68-78.856.55.70010.030.088583TRUETRUEVFRSPECI129.02020-04-05 07:27:54OU)5    3KEZM 050715Z AUTO 13003KT 10SM BKN090 16/12 A2997 RMK AO2 T01580120KEZM2020-04-05T07:15:00Z32.22-83.1315.812.0130310.029.970472TRUETRUEVFRSPECI93.02020-04-05 07:27:54 ,Z@\(y5    3KMYZ 050715Z AUTO 12003KT 10SM CLR 00/00 A3010 RMK AO2KMYZ2020-04-05T07:15:00Z39.85-96.630.00.0120310.030.100393TRUETRUEVFRMETAR319.02020-04-05 07:27:54N[)5    3KMZZ 050715Z AUTO 36007KT 10SM OVC007 04/04 A3010 RMK AO2 T00400040KMZZ2020-04-05T07:15:00Z40.48-85.684.04.0360710.030.100393TRUETRUEIFRMETAR262.02020-04-05 07:27:54LZ)5    3KOEO 050715Z AUTO 00000KT 10SM CLR M04/M04 A3019 RMK AO2 T10361045KOEO2020-04-05T07:15:00Z45.32-92.7-3.6-4.50010.030.188976TRUETRUEVFRSPECI275.02020-04-05 07:27:54NY)5    3KOGA 050715Z AUTO 16004KT 10SM CLR 03/M07 A2993 RMK AO2 T00251067KOGA2020-04-05T07:15:00Z41.12-101.772.5-6.7160410.029.929134TRUETRUEVFRMETAR999.02020-04-05 07:27:54 /iA`(}5    3KXNX 050715Z AUTO 00000KT 8SM OVC100 14/11 A3005 RMK A01KXNX2020-04-05T07:15:00Z36.38-86.4214.011.0008.030.050198TRUETRUEVFRSPECI178.02020-04-05 07:27:54F_)5     3KRKR 050715Z AUTO 00000KT 3SM BR OVC003 07/06 A3008 RMK AO2KRKR2020-04-05T07:15:00Z35.02-94.627.06.0003.030.079725TRUETRUEBRLIFRSPECI138.02020-04-05 07:27:54@^(y5    3KRKW 050715Z AUTO 33004KT 10SM CLR 15/04 A2998 RMK A01KRKW2020-04-05T07:15:00Z35.92-84.6815.04.0330410.029.97933TRUETRUEVFRSPECI508.02020-04-05 07:27:54K]) 5    3KVUJ 050715Z AUTO 05006KT 10SM CLR 11/04 A3007 RMK AO2 T01130044KVUJ2020-04-05T07:15:00Z35.42-80.1511.34.450610.030.070866TRUETRUEVFRSPECI186.02020-04-05 07:27:54 8ySd)5     3KRYW 050715Z AUTO 05005KT 1/4SM DZ OVC003 10/10 A3003 RMK AO2 T00960096KRYW2020-04-05T07:15:00Z30.5-97.979.69.65050.2530.029528TRUETRUEDZLIFRMETAR376.02020-04-05 07:27:54Bc(5    3KRZL 050715Z AUTO 01005KT 10SM OVC005 01/00 A3013 RMK AO2KRZL2020-04-05T07:15:00Z40.95-87.181.00.010510.030.129921TRUETRUEIFRSPECI213.02020-04-05 07:27:549b(y5    3KRNC 050715Z AUTO 00000KT 10SM CLR 14/09 A3000 RMK A01KRNC2020-04-05T07:15:00Z35.7-85.8514.09.00010.030.0TRUETRUEVFRSPECI315.02020-04-05 07:27:54Ba(5    3KWDG 050715Z AUTO 00000KT 10SM OVC011 05/03 A3007 RMK AO2KWDG2020-04-05T07:15:00Z36.37-97.775.03.00010.030.070866TRUETRUEMVFRSPECI356.02020-04-05 07:27:54 %LkTh)!5    3KFKR 050715Z AUTO 03007KT 10SM BKN007 OVC041 04/02 A3010 RMK AO2 T00420020KFKR2020-04-05T07:15:00Z40.27-86.574.22.030710.030.100393TRUETRUEIFRSPECI262.02020-04-05 07:27:54[g)-5    3KRSN 050715Z AUTO 04003KT 7SM BKN004 BKN014 OVC026 16/15 A3005 RMK AO2 T01600153KRSN2020-04-05T07:15:00Z32.52-92.5816.015.34037.030.050198TRUETRUELIFRSPECI95.02020-04-05 07:27:54Sf)5    3KRSV 050715Z AUTO 36005KT 7SM BKN009 OVC014 07/07 A3011 RMK AO2 T00700066KRSV2020-04-05T07:15:00Z39.02-87.657.06.636057.030.109253TRUETRUEIFRMETAR141.02020-04-05 07:27:54Ue)5   3KRTS 050715Z AUTO 24012G19KT 10SM FEW034 OVC042 05/M02 A2966 RMK AO2KRTS2020-04-05T07:15:00Z39.67-119.885.0-2.0240121910.029.660433TRUETRUEVFRSPECI1540.02020-04-05 07:27:54 1h?l(y5    3KOPN 050715Z AUTO 00000KT 10SM CLR 15/09 A2996 RMK AO2KOPN2020-04-05T07:15:00Z32.95-84.2715.09.00010.029.958662TRUETRUEVFRMETAR243.02020-04-05 07:27:54Lk)5    3KORG 050715Z AUTO 00000KT 10SM OVC020 18/16 A2999 RMK AO2 T01780162KORG2020-04-05T07:15:00Z30.07-93.817.816.20010.029.991142TRUETRUEMVFRMETAR4.02020-04-05 07:27:54Cj) 5     3KFHB 050715Z AUTO 00000KT 10SM CLR 17/ A2994 RMK AO2 T0174////KFHB2020-04-05T07:15:00Z30.62-81.4717.40010.029.940945TRUETRUEVFRSPECI5.02020-04-05 07:27:54Ii)5    3KFKN 050715Z AUTO 00000KT 10SM SCT090 04/04 A3010 RMK AO2 T00420039KFKN2020-04-05T07:15:00Z36.7-76.94.23.90010.030.100393TRUETRUEVFRSPECI12.02020-04-05 07:27:54 /YCp) 5    3KSCX 050715Z AUTO 00000KT 9SM FEW050 BKN110 12/05 A3000 RMK A01KSCX2020-04-05T07:15:00Z36.45-84.5812.05.0009.030.0TRUETRUEVFRSPECI471.02020-04-05 07:27:54Oo)5    3KSEP 050715Z AUTO 00000KT 2 1/2SM OVC003 07/07 A3007 RMK AO2 T00730065KSEP2020-04-05T07:15:00Z32.22-98.177.36.5002.530.070866TRUETRUELIFRMETAR402.02020-04-05 07:27:54Pn)5    3KSGS 050715Z AUTO 00000KT 10SM SCT110 M01/M03 A3016 RMK AO2 T10101035KSGS2020-04-05T07:15:00Z44.87-93.03-1.0-3.50010.030.159449TRUETRUEVFRSPECI250.02020-04-05 07:27:54Km)5    3KOSA 050715Z AUTO 00000KT 4SM OVC003 10/10 A3006 RMK AO1 T01040095KOSA2020-04-05T07:15:00Z33.1-94.9710.49.5004.030.059055TRUETRUELIFRMETAR111.02020-04-05 07:27:54 4VNt)5    3KSLO 050715Z AUTO 02007KT 10SM OVC017 08/07 A3009 RMK AO2 T00760065KSLO2020-04-05T07:15:00Z38.65-88.977.66.520710.030.088583TRUETRUEMVFRSPECI175.02020-04-05 07:27:54?s(y5    3KRZR 050715Z AUTO 00000KT 10SM CLR 12/12 A2996 RMK A01KRZR2020-04-05T07:15:00Z35.22-84.812.012.00010.029.958662TRUETRUEVFRSPECI263.02020-04-05 07:27:54Xr)#5     3KS21 050715Z AUTO 00000KT 6SM BR FEW026 SCT046 OVC065 M00/M01 A2959 RMK AO2KS212020-04-05T07:15:00Z43.88-121.450.0-1.0006.029.589567TRUETRUEBRVFRMETAR1269.02020-04-05 07:27:54Fq)5     3KS39 050715Z AUTO 02003KT 4SM BR OVC003 02/02 A2956 RMK AO2KS392020-04-05T07:15:00Z44.28-120.92.02.02034.029.56004TRUETRUEBRLIFRMETAR991.02020-04-05 07:27:54 1aJx) 5    3KOXI 050715Z AUTO 34005KT 4SM BKN001 OVC013 01/00 A3012 RMK AO1KOXI2020-04-05T07:15:00Z41.33-86.671.00.034054.030.121063TRUETRUELIFRMETAR209.02020-04-05 07:27:54Hw) 5    3KOYM 050715Z AUTO 00000KT 10SM SCT065 OVC085 07/03 A3003 RMK AO2KOYM2020-04-05T07:15:00Z41.42-78.57.03.00010.030.029528TRUETRUEVFRSPECI590.02020-04-05 07:27:54Jv)5    3KMLE 050715Z AUTO 00000KT 10SM CLR 01/M02 A3011 RMK AO2 T00101021KMLE2020-04-05T07:15:00Z41.2-96.121.0-2.10010.030.109253TRUETRUEVFRMETAR320.02020-04-05 07:27:54Iu) 5    3KMHP 050715Z AUTO 00000KT 10SM CLR 13/09 A2996 RMK AO2 T01350093KMHP2020-04-05T07:15:00Z32.37-82.0813.59.30010.029.958662TRUETRUEVFRMETAR60.02020-04-05 07:27:54 -VF|)5     3KSRE 050715Z AUTO 00000KT 2SM BR OVC003 04/03 A3009 RMK AO2KSRE2020-04-05T07:15:00Z35.27-96.684.03.0002.030.088583TRUETRUEBRLIFRSPECI312.02020-04-05 07:27:549{(y5    3KSRB 050715Z AUTO 00000KT 10SM CLR 09/08 A3000 RMK A01KSRB2020-04-05T07:15:00Z36.05-85.539.08.00010.030.0TRUETRUEVFRSPECI313.02020-04-05 07:27:54Qz)5     3KSNK 050715Z AUTO 14004KT 2SM BR OVC002 07/07 A3002 RMK AO2 T00720072KSNK2020-04-05T07:15:00Z32.7-100.957.27.214042.030.02067TRUETRUEBRLIFRSPECI741.02020-04-05 07:27:54My) 5    3KSNH 050715Z AUTO 36004KT 10SM FEW055 SCT100 14/12 A2999 RMK A01KSNH2020-04-05T07:15:00Z35.17-88.2214.012.0360410.029.991142TRUETRUEVFRSPECI144.02020-04-05 07:27:54 +`S)5   3KSXU 050715Z AUTO 16011G15KT 10SM CLR 08/03 A2994 RMK AO2 T00770031KSXU2020-04-05T07:15:00Z34.93-104.657.73.1160111510.029.940945TRUETRUEVFRMETAR1460.02020-04-05 07:27:54B(y5    3KSYI 050715Z AUTO 36008KT 10SM CLR 13/11 A2999 RMK A01KSYI2020-04-05T07:15:00Z35.57-86.4513.011.0360810.029.991142TRUETRUEVFRSPECI245.02020-04-05 07:27:54E~)5    3KSZT 050715Z AUTO 04008KT 10SM OVC075 01/M05 A2966 RMK AO2KSZT2020-04-05T07:15:00Z48.3-116.571.0-5.040810.029.660433TRUETRUEVFRSPECI648.02020-04-05 07:27:54O})5    3KSTE 050715Z AUTO 36003KT 10SM CLR M04/M07 A3016 RMK AO2 T10441073KSTE2020-04-05T07:15:00Z44.55-89.53-4.4-7.3360310.030.159449TRUETRUEVFRSPECI338.02020-04-05 07:27:54 /XI) 5     3KTQH 050715Z AUTO 00000KT 2 1/2SM BR OVC003 06/06 A3007 RMK AO2KTQH2020-04-05T07:15:00Z35.93-95.06.06.0002.530.070866TRUETRUEBRLIFRSPECI266.02020-04-05 07:27:54N)5    3KTYQ 050715Z AUTO 36006KT 10SM OVC009 04/04 A3008 RMK AO2 T00370037KTYQ2020-04-05T07:15:00Z40.03-86.253.73.7360610.030.079725TRUETRUEIFRSPECI281.02020-04-05 07:27:54Q)5    3KSUN 050715Z AUTO 00000KT 10SM SCT023 SCT038 BKN044 01/01 A2970 RMK AO2KSUN2020-04-05T07:15:00Z43.5-114.281.01.00010.029.698818TRUETRUEVFRSPECI1620.02020-04-05 07:27:54K) 5    3KSVH 050715Z AUTO 05004KT 10SM CLR 13/03 A3001 RMK AO2 T01290034KSVH2020-04-05T07:15:00Z35.75-80.9512.93.450410.030.008858TRUETRUEVFRSPECI294.02020-04-05 07:27:54 9fS)5    3KTFP 050715Z AUTO 35010KT 10SM OVC005 15/14 A2996 RMK AO2 T01450142 PNOKTFP2020-04-05T07:15:00Z27.92-97.2214.514.23501010.029.958662TRUETRUEIFRMETAR6.02020-04-05 07:27:54>(y5    3KTHA 050715Z AUTO 00000KT 10SM CLR 14/09 A2998 RMK A01KTHA2020-04-05T07:15:00Z35.38-86.2514.09.00010.029.97933TRUETRUEVFRSPECI331.02020-04-05 07:27:54M)5    3KTKV 050715Z AUTO 00000KT 10SM CLR M07/M08 A3017 RMK AO2 T10701078KTKV2020-04-05T07:15:00Z45.47-89.82-7.0-7.80010.030.171259TRUETRUEVFRMETAR453.02020-04-05 07:27:54A)5   3KTNB 050715Z AUTO 00000KT 10SM 08/03 A3006 RMK AO2 T00820032KTNB2020-04-05T07:15:00Z36.2-81.658.23.20010.030.059055TRUETRUESPECI911.02020-04-05 07:27:54 &UQ )5     3KMDD 050715Z AUTO 14006KT 3 1/2SM BR OVC003 08/08 A3000 RMK AO2 T00850079KMDD2020-04-05T07:15:00Z32.03-102.18.57.914063.530.0TRUETRUEBRLIFRMETAR854.02020-04-05 07:27:54J ) 5    3KPBX 050715Z AUTO 00000KT 10SM CLR 15/03 A2999 RMK AO2 T01480033KPBX2020-04-05T07:15:00Z37.57-82.5714.83.30010.029.991142TRUETRUEVFRMETAR449.02020-04-05 07:27:54K ) 5    3KPEQ 050715Z AUTO 06004KT 10SM CLR 09/06 A2997 RMK AO2 T00910060KPEQ2020-04-05T07:15:00Z31.38-103.529.16.060410.029.970472TRUETRUEVFRMETAR797.02020-04-05 07:27:54T )5    3KTCY 050715Z AUTO 18006KT 10SM FEW060 SCT070 BKN085 11/11 A2974 RMK A01KTCY2020-04-05T07:15:00Z37.68-121.4311.011.0180610.029.740158TRUETRUEVFRMETAR59.02020-04-05 07:27:54 <W`)-5      3KONP 050715Z AUTO 09007KT 10SM RA SCT031 BKN050 OVC055 06/06 A2957 RMK AO2 P0001KONP2020-04-05T07:15:00Z44.57-124.036.06.090710.029.568897TRUETRUERAVFR0.01METAR48.02020-04-05 07:27:54D(5    3KMQS 050715Z AUTO 27005KT 10SM OVC035 10/07 A3005 RMK AO2KMQS2020-04-05T07:15:00Z39.98-75.8710.07.0270510.030.050198TRUETRUEVFRMETAR201.02020-04-05 07:27:54_)-5     3KTZR 050715Z AUTO 36007KT 10SM SCT075 BKN090 11/08 A3003 RMK AO2 T01050079 PWINOKTZR2020-04-05T07:15:00Z39.9-83.1310.57.9360710.030.029528TRUETRUETRUEVFRMETAR276.02020-04-05 07:27:54> (s5   3KU68 050715Z AUTO 24003KT 10SM 00/M25 A2973 RMK AO2KU682020-04-05T07:15:00Z44.92-108.450.0-25.0240310.029.731298TRUETRUESPECI1247.02020-04-05 07:27:54 8kL) 5    3KPMV 050715Z AUTO 15004KT 10SM CLR 01/00 A3010 RMK AO2 T00131002KPMV2020-04-05T07:15:00Z40.95-95.921.3-0.2150410.030.100393TRUETRUEVFRMETAR367.02020-04-05 07:27:54>(y5    3KPCM 050715Z AUTO 00000KT 10SM CLR 20/17 A2995 RMK AO2KPCM2020-04-05T07:15:00Z28.0-82.1720.017.00010.029.949802TRUETRUEVFRSPECI47.02020-04-05 07:27:54G) 5    3KOJA 050715Z AUTO 00000KT 7SM BKN007 OVC030 05/03 A3007 RMK AO2KOJA2020-04-05T07:15:00Z35.55-98.675.03.0007.030.070866TRUETRUEIFRSPECI490.02020-04-05 07:27:54B(}5    3KOLG 050715Z AUTO 03003KT 10SM CLR M06/M06 A3016 RMK AO1KOLG2020-04-05T07:15:00Z46.3-91.82-6.0-6.030310.030.159449TRUETRUEVFRMETAR336.02020-04-05 07:27:54 8VM)5    3KPVJ 050715Z AUTO 04003KT 10SM OVC005 05/05 A3007 RMK AO2 T00480048KPVJ2020-04-05T07:15:00Z34.72-97.224.84.840310.030.070866TRUETRUEIFRSPECI295.02020-04-05 07:27:54O)5    3KRAS 050715Z AUTO 32014KT 10SM OVC005 16/15 A2996 RMK AO2 T01570146KRAS2020-04-05T07:15:00Z27.82-97.0815.714.63201410.029.958662TRUETRUEIFRMETAR2.02020-04-05 07:27:54\)/5    3KRLD 050715Z AUTO 30011KT 10SM SCT050 BKN065 OVC110 08/02 A2965 RMK AO2 T00760015KRLD2020-04-05T07:15:00Z46.3-119.37.61.53001110.029.648623TRUETRUEVFRMETAR120.02020-04-05 07:27:54B(}5    3KPOY 050715Z AUTO 00000KT 10SM CLR M01/M07 A2971 RMK AO2KPOY2020-04-05T07:15:00Z44.87-108.8-1.0-7.00010.029.71063TRUETRUEVFRMETAR1552.02020-04-05 07:27:54 'XK)5    3KS52 050715Z AUTO 00000KT 10SM CLR 02/M06 A2967 RMK AO2 T00161059KS522020-04-05T07:15:00Z48.38-120.151.6-5.90010.029.66929TRUETRUEVFRMETAR520.02020-04-05 07:27:54M)5    3KRZN 050715Z AUTO 00000KT 10SM CLR M05/M07 A3017 RMK AO2 T10551070KRZN2020-04-05T07:15:00Z45.82-92.37-5.5-7.00010.030.171259TRUETRUEVFRMETAR301.02020-04-05 07:27:54I) 5    3KPPQ 050715Z AUTO 00000KT 10SM CLR 03/03 A3013 RMK AO2 T00330029KPPQ2020-04-05T07:15:00Z39.63-90.783.32.90010.030.129921TRUETRUEVFRMETAR216.02020-04-05 07:27:54S)5     3KPSN 050715Z AUTO 33003KT 2SM BR OVC003 10/10 A3004 RMK AO2 T01000100KPSN2020-04-05T07:15:00Z31.78-95.710.010.033032.030.041338TRUETRUEBRLIFRMETAR129.02020-04-05 07:27:54 0cT )5    3KT41 050715Z AUTO 36005KT 7SM SCT004 OVC025 17/16 A2996 RMK AO2 T01660163KT412020-04-05T07:15:00Z29.67-95.0716.616.336057.029.958662TRUETRUEMVFRMETAR8.02020-04-05 07:27:54H) 5    3KSHD 050715Z AUTO 00000KT 10SM CLR 04/03 A3008 RMK AO2 T00400025KSHD2020-04-05T07:15:00Z38.27-78.94.02.50010.030.079725TRUETRUEVFRSPECI366.02020-04-05 07:27:54G) 5    3KSCR 050715Z AUTO 00000KT 10SM CLR 10/08 A3006 RMK AO2 T00970077KSCR2020-04-05T07:15:00Z35.7-79.59.77.70010.030.059055TRUETRUEVFRSPECI188.02020-04-05 07:27:54J) 5    3KSCD 050715Z AUTO 00000KT 10SM CLR 15/13 A2995 RMK AO2 T01500126KSCD2020-04-05T07:15:00Z33.17-86.315.012.60010.029.949802TRUETRUEVFRSPECI173.02020-04-05 07:27:54 #Eq[$)/5    3KMWO 050715Z AUTO 35006KT 10SM SCT011 SCT065 OVC080 09/07 A3006 RMK AO2 T00950074KMWO2020-04-05T07:15:00Z39.53-84.49.57.4350610.030.059055TRUETRUEVFRMETAR198.02020-04-05 07:27:54N#)5    3KOCQ 050715Z AUTO 00000KT 5SM OVC009 M02/M02 A3019 RMK AO1 T10211023KOCQ2020-04-05T07:15:00Z44.87-87.92-2.1-2.3005.030.188976TRUETRUEIFRSPECI183.02020-04-05 07:27:54X")5     3KT74 050715Z AUTO 36011KT 1 1/4SM BR OVC002 09/09 A3003 RMK AO2 T00920090KT742020-04-05T07:15:00Z30.57-97.459.29.0360111.2530.029528TRUETRUEBRLIFRMETAR183.02020-04-05 07:27:54W!)5     3KSLR 050715Z AUTO 35003KT 1 3/4SM BR OVC003 09/09 A3007 RMK AO2 T00870087KSLR2020-04-05T07:15:00Z33.17-95.628.78.735031.7530.070866TRUETRUEBRLIFRMETAR149.02020-04-05 07:27:54 1jR()5    3KUYF 050715Z AUTO 36007KT 10SM SCT055 SCT070 OVC080 09/08 A3003 RMK AO2KUYF2020-04-05T07:15:00Z39.93-83.479.08.0360710.030.029528TRUETRUEVFRMETAR330.02020-04-05 07:27:54?'(y5    3KUKF 050715Z AUTO 06005KT 10SM CLR 13/01 A3008 RMK AO2KUKF2020-04-05T07:15:00Z36.22-81.113.01.060510.030.079725TRUETRUEVFRSPECI396.02020-04-05 07:27:54A&(}5    3KUBE 050715Z AUTO 00000KT 10SM CLR M03/M05 A3016 RMK AO2KUBE2020-04-05T07:15:00Z45.5-91.98-3.0-5.00010.030.159449TRUETRUEVFRMETAR379.02020-04-05 07:27:54I%)5     3KTMK 050715Z AUTO 00000KT 3/4SM BR OVC001 05/04 A2960 RMK AO2KTMK2020-04-05T07:15:00Z45.42-123.825.04.0000.7529.601377TRUETRUEBRLIFRMETAR11.02020-04-05 07:27:54 ,eL,)5    3KCOM 050715Z AUTO 08003KT 10SM OVC005 08/07 A3004 RMK AO2 T00810066KCOM2020-04-05T07:15:00Z31.83-99.48.16.680310.030.041338TRUETRUEIFRMETAR517.02020-04-05 07:27:54V+)5     3KCLI 050715Z AUTO 04006KT 1 3/4SM BR OVC003 01/00 A3016 RMK AO2 T00070000KCLI2020-04-05T07:15:00Z44.62-88.730.70.04061.7530.159449TRUETRUEBRLIFRMETAR250.02020-04-05 07:27:54A*(5    3KCKZ 050715Z AUTO 00000KT 10SM OVC047 09/08 A3004 RMK AO2KCKZ2020-04-05T07:15:00Z40.38-75.289.08.00010.030.041338TRUETRUEVFRMETAR173.02020-04-05 07:27:54N))5    3KVJI 050715Z AUTO 10004KT 10SM OVC080 12/02 A3002 RMK AO2 T01200020KVJI2020-04-05T07:15:00Z36.67-82.0212.02.0100410.030.02067TRUETRUEVFRSPECI631.02020-04-05 07:27:54 ._I0) 5    3KCWF 050715Z AUTO 00000KT 10SM CLR 15/14 A2996 RMK AO2 T01470144KCWF2020-04-05T07:15:00Z30.22-93.1514.714.40010.029.958662TRUETRUEVFRSPECI4.02020-04-05 07:27:54B/)5    3KMUT 050715Z AUTO 00000KT 10SM OVC110 05/M00 A3015 RMK AO2KMUT2020-04-05T07:15:00Z41.37-91.155.00.00010.030.15059TRUETRUEVFRMETAR167.02020-04-05 07:27:54I.) 5    3KMTV 050715Z AUTO 00000KT 10SM CLR 05/04 A3010 RMK AO2 T00510035KMTV2020-04-05T07:15:00Z36.63-80.025.13.50010.030.100393TRUETRUEVFRMETAR287.02020-04-05 07:27:54L-)5    3KCQB 050715Z AUTO 00000KT 10SM OVC007 04/03 A3009 RMK AO2 T00440030KCQB2020-04-05T07:15:00Z35.72-96.824.43.00010.030.088583TRUETRUEIFRSPECI300.02020-04-05 07:27:54 .^I4) 5    3KD73 050715Z AUTO 00000KT 10SM CLR 12/10 A2997 RMK AO2 T01170099KD732020-04-05T07:15:00Z33.78-83.711.79.90010.029.970472TRUETRUEVFRSPECI267.02020-04-05 07:27:54K3) 5    3KDQH 050715Z AUTO 09004KT 10SM CLR 17/14 A2995 RMK AO2 T01660136KDQH2020-04-05T07:15:00Z31.48-82.8716.613.690410.029.949802TRUETRUEVFRSPECI78.02020-04-05 07:27:54J2) 5    3KCXU 050715Z AUTO 00000KT 10SM CLR 18/14 A2991 RMK AO1 T01810136KCXU2020-04-05T07:15:00Z31.22-84.2318.113.60010.029.911417TRUETRUEVFRSPECI53.02020-04-05 07:27:54L1)5    3KCUH 050715Z AUTO 00000KT 10SM OVC008 04/03 A3009 RMK AO2 T00430031KCUH2020-04-05T07:15:00Z35.95-96.774.33.10010.030.088583TRUETRUEIFRSPECI279.02020-04-05 07:27:54 ,SN8) 5    3KDUX 050715Z AUTO 13008KT 10SM CLR 03/00 A2996 RMK AO2 T00311003KDUX2020-04-05T07:15:00Z35.85-102.023.1-0.3130810.029.958662TRUETRUEVFRMETAR1129.02020-04-05 07:27:54L7) 5    3KDVO 050715Z AUTO 24003KT 10SM FEW042 OVC055 11/11 A2973 RMK AO2KDVO2020-04-05T07:15:00Z38.15-122.5511.011.0240310.029.731298TRUETRUEVFRMETAR1.02020-04-05 07:27:54S6)5     3KE11 050715Z AUTO 14006KT 1 3/4SM BR OVC004 08/08 A3000 RMK AO2 T00750075KE112020-04-05T07:15:00Z32.33-102.537.57.514061.7530.0TRUETRUEBRLIFRMETAR967.02020-04-05 07:27:54N5) 5    3KE38 050715Z AUTO 22005KT 10SM CLR 14/06 A3004 RMK AO2 T01350057KE382020-04-05T07:15:00Z30.38-103.6813.55.7220510.030.041338TRUETRUEVFRMETAR1376.02020-04-05 07:27:54 8fT<)5    3KOIN 050715Z AUTO 06005KT 350V280 10SM CLR 01/M04 A3002 RMK AO1 T00061042KOIN2020-04-05T07:15:00Z39.83-100.530.6-4.260510.030.02067TRUETRUEVFRSPECI824.02020-04-05 07:27:54A;(5    3KOLE 050715Z AUTO 00000KT 10SM OVC050 05/05 A2999 RMK AO2KOLE2020-04-05T07:15:00Z42.23-78.375.05.00010.029.991142TRUETRUEVFRSPECI651.02020-04-05 07:27:54L:)5    3KOOA 050715Z AUTO 05004KT 10SM OVC100 05/01 A3013 RMK AO2 T00500008KOOA2020-04-05T07:15:00Z41.23-92.55.00.850410.030.129921TRUETRUEVFRSPECI256.02020-04-05 07:27:54B9({5    3KDTL 050715Z AUTO 14007KT 10SM CLR 00/M03 A3008 RMK AO2KDTL2020-04-05T07:15:00Z46.82-95.870.0-3.0140710.030.079725TRUETRUEVFRMETAR426.02020-04-05 07:27:54 1]C@(5    3KPTD 050715Z AUTO 20004KT 10SM OVC041 08/06 A2999 RMK AO2KPTD2020-04-05T07:15:00Z44.68-74.958.06.0200410.029.991142TRUETRUEVFRSPECI144.02020-04-05 07:27:54C?(5    3KPVE 050715Z AUTO 01006KT 10SM SCT095 13/10 A3001 RMK A01KPVE2020-04-05T07:15:00Z35.65-88.213.010.010610.030.008858TRUETRUEVFRSPECI149.02020-04-05 07:27:54N>)5    3KPXE 050715Z AUTO 00000KT 10SM BKN090 17/11 A2995 RMK AO2 T01680111KPXE2020-04-05T07:15:00Z32.52-83.7716.811.10010.029.949802TRUETRUEVFRSPECI127.02020-04-05 07:27:54I=) 5    3KOQN 050715Z AUTO 00000KT 10SM SCT042 OVC048 08/06 A3004 RMK AO2KOQN2020-04-05T07:15:00Z39.98-75.588.06.00010.030.041338TRUETRUEVFRSPECI142.02020-04-05 07:27:54 %N|CD(}5     3KPHT 050715Z AUTO 01006KT 5SM BR CLR 09/08 A3005 RMK A01KPHT2020-04-05T07:15:00Z36.33-88.389.08.01065.030.050198TRUETRUEBRMVFRSPECI177.02020-04-05 07:27:54LC) 5    3KPIM 050715Z AUTO 12006KT 10SM CLR 19/06 A2994 RMK AO2 T01910063KPIM2020-04-05T07:15:00Z32.83-84.8819.16.3120610.029.940945TRUETRUEVFRSPECI275.02020-04-05 07:27:54QB)5     3KPKV 050715Z AUTO 01008KT 5SM BR OVC004 14/14 A2994 RMK AO2 T01380135KPKV2020-04-05T07:15:00Z28.65-96.6813.813.51085.029.940945TRUETRUEBRLIFRSPECI9.02020-04-05 07:27:54UA)5   3KPRS 050715Z AUTO 01010G18KT 10SM BKN120 18/07 A2996 RMK AO2 T01770070KPRS2020-04-05T07:15:00Z29.63-104.3517.77.010101810.029.958662TRUETRUEVFRSPECI896.02020-04-05 07:27:54 E}II) 5    3KFVX 050715Z AUTO 00000KT 10SM CLR 04/04 A3008 RMK AO2 T00420040KFVX2020-04-05T07:15:00Z37.35-78.424.24.00010.030.079725TRUETRUEVFRSPECI125.02020-04-05 07:27:54PH)5     3KGLE 050715Z AUTO 01004KT 3SM BR OVC004 07/06 A3009 RMK AO2 T00650062KGLE2020-04-05T07:15:00Z33.65-97.26.56.21043.030.088583TRUETRUEBRLIFRMETAR256.02020-04-05 07:27:54=G(y5    3KHYW 050715Z AUTO 00000KT 10SM CLR 08/07 A3003 RMK AO2KHYW2020-04-05T07:15:00Z33.83-79.128.07.00010.030.029528TRUETRUEVFRSPECI11.02020-04-05 07:27:54BF(5    3KOWI 050715Z AUTO 00000KT 10SM OVC018 05/04 A3009 RMK AO2KOWI2020-04-05T07:15:00Z38.53-95.255.04.00010.030.088583TRUETRUEMVFRSPECI292.02020-04-05 07:27:545E(m5    3KPCW 050715Z AUTO 9SM OVC007 08/07 A3005 RMK AO2KPCW2020-04-05T07:15:00Z41.52-82.878.07.09.030.050198TRUETRUEIFRSPECI178.02020-04-05 07:27:54 1cBM(y5    3KL35 050715Z AUTO 26008KT 10SM CLR 01/00 A2990 RMK AO2KL352020-04-05T07:15:00Z34.27-116.851.00.0260810.029.899607TRUETRUEVFRMETAR2059.02020-04-05 07:27:54WL)!5    3KEBG 050715Z AUTO 33006KT 10SM SCT011 OVC017 18/17 A2995 RMK AO2 T01770170KEBG2020-04-05T07:15:00Z26.45-98.1317.717.0330610.029.949802TRUETRUEMVFRMETAR24.02020-04-05 07:27:54HK)5     3KEDC 050715Z AUTO 01007KT 1/2SM FG OVC002 09/09 A3004 RMK AO2KEDC2020-04-05T07:15:00Z30.4-97.579.09.01070.530.041338TRUETRUEFGLIFRMETAR189.02020-04-05 07:27:54IJ)5     3KETB 050715Z AUTO 00000KT 1/4SM FG OVC002 00/00 A3016 RMK AO2KETB2020-04-05T07:15:00Z43.42-88.130.00.0000.2530.159449TRUETRUEFGLIFRMETAR270.02020-04-05 07:27:54 'SAQ(5    3KJDD 050715Z AUTO 00000KT 10SM OVC004 09/09 A3005 RMK AO2KJDD2020-04-05T07:15:00Z32.75-95.59.09.00010.030.050198TRUETRUELIFRMETAR132.02020-04-05 07:27:54KP) 5    3KJVY 050715Z AUTO 01004KT 10SM CLR 11/08 A3004 RMK AO2 T01050082KJVY2020-04-05T07:15:00Z38.37-85.7310.58.210410.030.041338TRUETRUEVFRMETAR145.02020-04-05 07:27:54NO)5    3KJWG 050715Z AUTO 11005KT 10SM OVC008 04/02 A3009 RMK AO2 T00400023KJWG2020-04-05T07:15:00Z35.87-98.424.02.3110510.030.088583TRUETRUEIFRSPECI472.02020-04-05 07:27:54SN)!5    3KK88 050715Z AUTO 00000KT 10SM SCT019 OVC035 04/03 A3011 RMK AO1 T00430030KK882020-04-05T07:15:00Z37.87-95.384.33.00010.030.109253TRUETRUEVFRSPECI309.02020-04-05 07:27:54 .fQU)5    3KLRU 050715Z AUTO 26013KT 10SM CLR 13/M04 A2995 RMK AO2 T01311045KLRU2020-04-05T07:15:00Z32.27-106.9213.1-4.52601310.029.949802TRUETRUEVFRMETAR1358.02020-04-05 07:27:54AT(5    3KIMS 050715Z AUTO 00000KT 10SM SCT100 09/08 A3005 RMK AO1KIMS2020-04-05T07:15:00Z38.75-85.479.08.00010.030.050198TRUETRUEVFRMETAR250.02020-04-05 07:27:54BS(5    3KIOB 050715Z AUTO 00000KT 10SM OVC100 12/08 A3003 RMK AO2KIOB2020-04-05T07:15:00Z38.05-83.9812.08.00010.030.029528TRUETRUEVFRSPECI311.02020-04-05 07:27:54LR) 5    3KIWA 050715Z AUTO 16008KT 10SM CLR 16/02 A2983 RMK AO2 T01570017KIWA2020-04-05T07:15:00Z33.3-111.6515.71.7160810.029.828741TRUETRUEVFRMETAR412.02020-04-05 07:27:54 'LrHY) 5    3KOCW 050715Z AUTO 00000KT 10SM CLR 06/05 A3009 RMK AO2 T00560049KOCW2020-04-05T07:15:00Z35.57-77.055.64.90010.030.088583TRUETRUEVFRMETAR12.02020-04-05 07:27:54TX)5      3KLUV 050715Z AUTO 17008KT 2SM BR OVC003 07/ A3001 RMK AO2 VIS 1 1/2V2 1/2KLUV2020-04-05T07:15:00Z32.75-101.927.017082.030.008858TRUETRUEBRLIFRMETAR912.02020-04-05 07:27:54UW)5     3KLUL 050715Z AUTO 00000KT 7SM OVC120 17/16 A2996 RMK A02 PWINO T01660159KLUL2020-04-05T07:15:00Z31.67-89.1716.615.9007.029.958662TRUETRUETRUEVFRSPECI73.02020-04-05 07:27:54SV)5     3KLUD 050715Z AUTO 00000KT 1/4SM FG OVC002 07/07 A3007 RMK AO2 T00710065KLUD2020-04-05T07:15:00Z33.25-97.587.16.5000.2530.070866TRUETRUEFGLIFRMETAR319.02020-04-05 07:27:54 7pK]) 5    3KMWK 050715Z AUTO 07006KT 10SM CLR 12/05 A3007 RMK AO2 T01220053KMWK2020-04-05T07:15:00Z36.47-80.5512.25.370610.030.070866TRUETRUEVFRMETAR380.02020-04-05 07:27:54C\)5    3KMXO 050715Z AUTO 00000KT 10SM OVC110 01/M00 A3014 RMK AO2KMXO2020-04-05T07:15:00Z42.22-91.171.00.00010.030.138779TRUETRUEVFRMETAR259.02020-04-05 07:27:54A[(}5    3KMZH 050715Z AUTO 00000KT 10SM CLR M05/M06 A3014 RMK AO2KMZH2020-04-05T07:15:00Z46.42-92.8-5.0-6.00010.030.138779TRUETRUEVFRMETAR328.02020-04-05 07:27:54CZ) 5    3KN03 050715Z AUTO 00000KT 10SM SCT035 OVC050 07/07 A3000 RMK AO2KN032020-04-05T07:15:00Z42.6-76.227.07.00010.030.0TRUETRUEVFRMETAR366.02020-04-05 07:27:54 -N~=a(y5    3KM54 050715Z AUTO 35004KT 10SM CLR 13/10 A3000 RMK A01KM542020-04-05T07:15:00Z36.18-86.3213.010.0350410.030.0TRUETRUEVFRSPECI180.02020-04-05 07:27:54J`) 5    3KM91 050715Z AUTO 34006KT 7SM SCT100 BKN120 11/09 A3003 RMK A01KM912020-04-05T07:15:00Z36.53-86.9211.09.034067.030.029528TRUETRUEVFRSPECI215.02020-04-05 07:27:54Y_)!5     3KMCC 050715Z AUTO 15007KT 3SM -RA SCT006 BKN034 OVC040 11/10 A2975 RMK AO2KMCC2020-04-05T07:15:00Z38.67-121.411.010.015073.029.749016TRUETRUE-RAMVFRMETAR23.02020-04-05 07:27:54M^) 5     3KMWC 050715Z AUTO 00000KT 1 1/4SM BR OVC002 00/M01 A3018 RMK AO2KMWC2020-04-05T07:15:00Z43.12-88.030.0-1.0001.2530.180119TRUETRUEBRLIFRMETAR227.02020-04-05 07:27:54 -oMe)5     3KLYO 050715Z AUTO 00000KT 4SM BR CLR 02/01 A3004 RMK AO2 T00230013KLYO2020-04-05T07:15:00Z38.35-98.232.31.3004.030.041338TRUETRUEBRMVFRSPECI515.02020-04-05 07:27:54Bd(5    3KM02 050715Z AUTO 01005KT 10SM SCT100 11/09 A3002 RMK A01KM022020-04-05T07:15:00Z36.13-87.4311.09.010510.030.02067TRUETRUEVFRSPECI272.02020-04-05 07:27:548c(q5   3KM04 050715Z AUTO 01006KT 10SM 11/09 A3004 RMK A01KM042020-04-05T07:15:00Z35.58-89.5811.09.010610.030.041338TRUETRUESPECI85.02020-04-05 07:27:54Mb) 5    3KM08 050715Z AUTO 33004KT 10SM SCT090 BKN110 13/10 A3001 RMK A01KM082020-04-05T07:15:00Z35.22-89.0513.010.0330410.030.008858TRUETRUEVFRSPECI152.02020-04-05 07:27:54 (]Mi)5    3KRFI 050715Z AUTO 00000KT 4SM OVC003 11/10 A3004 RMK AO2 T01070104KRFI2020-04-05T07:15:00Z32.15-94.8510.710.4004.030.041338TRUETRUELIFRMETAR135.02020-04-05 07:27:54Jh) 5    3KFRH 050715Z AUTO 34003KT 10SM BKN008 OVC065 08/06 A3007 RMK AO1KFRH2020-04-05T07:15:00Z38.5-86.638.06.0340310.030.070866TRUETRUEIFRSPECI241.02020-04-05 07:27:54Eg) 5    3KLUG 050715Z AUTO 00000KT 10SM FEW048 FEW120 11/10 A3000 RMK A01KLUG2020-04-05T07:15:00Z35.52-86.811.010.00010.030.0TRUETRUEVFRSPECI219.02020-04-05 07:27:54Rf)5     3KLXY 050715Z AUTO 32005KT 3SM BR OVC002 09/09 A3005 RMK AO2 T00940091KLXY2020-04-05T07:15:00Z31.63-96.529.49.132053.030.050198TRUETRUEBRLIFRSPECI166.02020-04-05 07:27:54 9iPm)5    3KPLU 050715Z AUTO 00000KT 10SM SCT033 SCT038 OVC046 07/04 A2963 RMK AO2KPLU2020-04-05T07:15:00Z47.1-122.287.04.00010.029.630905TRUETRUEVFRSPECI164.02020-04-05 07:27:54?l(}5    3KPMU 050715Z AUTO VRB04KT 8SM OVC120 14/13 A3001 RMK AO2KPMU2020-04-05T07:15:00Z34.37-89.914.013.0048.030.008858TRUETRUEVFRMETAR67.02020-04-05 07:27:54Jk) 5    3KPYX 050715Z AUTO 13007KT 7SM CLR 02/00 A2997 RMK AO2 T00180004KPYX2020-04-05T07:15:00Z36.42-100.751.80.413077.029.970472TRUETRUEVFRSPECI889.02020-04-05 07:27:54Aj(}5    3KRCR 050715Z AUTO 36004KT 7SM OVC005 03/02 A3011 RMK AO2KRCR2020-04-05T07:15:00Z41.07-86.183.02.036047.030.109253TRUETRUEIFRSPECI241.02020-04-05 07:27:54 #^Tq)5     3KFWS 050715Z AUTO 00000KT 4SM OVC004 08/07 A3008 RMK AO2 T00810074 PWINOKFWS2020-04-05T07:15:00Z32.57-97.38.17.4004.030.079725TRUETRUETRUELIFRSPECI208.02020-04-05 07:27:54Pp)5    3KFYG 050715Z AUTO 00000KT 10SM BKN023 BKN032 OVC065 06/04 A3012 RMK AO2KFYG2020-04-05T07:15:00Z38.58-91.06.04.00010.030.121063TRUETRUEMVFRSPECI149.02020-04-05 07:27:54?o(y5    3KFYM 050715Z AUTO 01006KT 10SM CLR 16/09 A2998 RMK A01KFYM2020-04-05T07:15:00Z35.07-86.5716.09.010610.029.97933TRUETRUEVFRSPECI300.02020-04-05 07:27:54Wn))5    3KGAO 050715Z AUTO 00000KT 10SM OVC090 16/14 A2997 RMK AO2 LTG DSNT S T01550143KGAO2020-04-05T07:15:00Z29.45-90.2715.514.30010.029.970472TRUETRUEVFRSPECI1.02020-04-05 07:27:54 1s@u(5    3KGCY 050715Z AUTO 00000KT 10SM BKN110 15/06 A2998 RMK A01KGCY2020-04-05T07:15:00Z36.2-82.8215.06.00010.029.97933TRUETRUEVFRSPECI490.02020-04-05 07:27:54Pt)5     3KGDJ 050715Z AUTO 00000KT 3SM BR OVC003 09/08 A3008 RMK AO2 T00850075KGDJ2020-04-05T07:15:00Z32.45-97.828.57.5003.030.079725TRUETRUEBRLIFRSPECI237.02020-04-05 07:27:548s(q5   3KFSW 050715Z AUTO 03003KT 10SM 04/01 A3011 RMK AO2KFSW2020-04-05T07:15:00Z40.67-91.324.01.030310.030.109253TRUETRUEMETAR221.02020-04-05 07:27:54Ir)5     3KFWB 050715Z AUTO 12003KT 3/4SM BR OVC002 06/06 A3007 RMK AO2KFWB2020-04-05T07:15:00Z36.7-93.46.06.012030.7530.070866TRUETRUEBRLIFRSPECI406.02020-04-05 07:27:54 1`Dy) 5    3K1A6 050715Z AUTO 00000KT 10SM CLR 09/08 A3000 RMK AO2 T00930081K1A62020-04-05T07:15:00Z36.62-83.739.38.10010.030.0TRUETRUEVFRSPECI352.02020-04-05 07:27:54Ux)5     3K11R 050715Z AUTO 34009KT 1/4SM FG OVC002 11/11 A3002 RMK AO2 T01110110K11R2020-04-05T07:15:00Z30.22-96.3711.111.034090.2530.02067TRUETRUEFGLIFRMETAR94.02020-04-05 07:27:54Kw) 5    3K19S 050715Z AUTO 13010KT 7SM CLR 01/00 A2998 RMK AO2 T00061002K19S2020-04-05T07:15:00Z37.48-100.830.6-0.2130107.029.97933TRUETRUEVFRSPECI886.02020-04-05 07:27:54Iv) 5     3KGCM 050715Z AUTO 00000KT 2 1/2SM BR OVC004 05/02 A3010 RMK AO2KGCM2020-04-05T07:15:00Z36.3-95.485.02.0002.530.100393TRUETRUEBRLIFRSPECI221.02020-04-05 07:27:54 /aJ}) 5    3K40J 050715Z AUTO 00000KT 10SM CLR 18/16 A2991 RMK AO2 T01770162K40J2020-04-05T07:15:00Z30.07-83.5717.716.20010.029.911417TRUETRUEVFRMETAR13.02020-04-05 07:27:54D|({5    3K3K3 050715Z AUTO 13012KT 10SM CLR 01/M01 A2994 RMK AO2K3K32020-04-05T07:15:00Z38.0-101.751.0-1.01301210.029.940945TRUETRUEVFRSPECI1013.02020-04-05 07:27:54H{)5     3K3AU 050715Z AUTO 14004KT 5SM BR OVC011 03/03 A3007 RMK AO2K3AU2020-04-05T07:15:00Z37.67-97.083.03.014045.030.070866TRUETRUEBRMVFRSPECI405.02020-04-05 07:27:54Kz)5    3K2I0 050715Z AUTO 35005KT 7SM OVC100 09/06 A3007 RMK AO2 T00900061K2I02020-04-05T07:15:00Z37.35-87.49.06.135057.030.070866TRUETRUEVFRMETAR134.02020-04-05 07:27:54 ,[?(}5    3K5C1 050715Z AUTO 00000KT 7SM OVC008 11/11 A3002 RMK AO1K5C12020-04-05T07:15:00Z29.72-98.711.011.0007.030.02067TRUETRUEIFRMETAR423.02020-04-05 07:27:54L)5    3K5A6 050715Z AUTO 00000KT 7SM SCT110 15/14 A2999 RMK AO2 T01480136K5A62020-04-05T07:15:00Z33.47-89.7314.813.6007.029.991142TRUETRUEVFRSPECI111.02020-04-05 07:27:54K) 5    3K4A9 050715Z AUTO 00000KT 10SM CLR 13/10 A2995 RMK AO2 T01290101K4A92020-04-05T07:15:00Z34.47-85.7212.910.10010.029.949802TRUETRUEVFRSPECI267.02020-04-05 07:27:54N~)5    3K48A 050715Z AUTO 09004KT 10SM OVC095 17/12 A2994 RMK AO2 T01670120K48A2020-04-05T07:15:00Z32.4-83.2716.712.090410.029.940945TRUETRUEVFRMETAR115.02020-04-05 07:27:54 ,YO)5    3KA08 050715Z AUTO 33004KT 10SM OVC100 18/14 A2993 RMK AO2 T01780138KA082020-04-05T07:15:00Z32.52-87.3817.813.8330410.029.929134TRUETRUEVFRSPECI69.02020-04-05 07:27:54K) 5    3K9A5 050715Z AUTO 00000KT 10SM CLR 12/11 A2997 RMK AO2 T01220106K9A52020-04-05T07:15:00Z34.68-85.2812.210.60010.029.970472TRUETRUEVFRSPECI237.02020-04-05 07:27:54M)5     3K66R 050715Z AUTO 35006KT 4SM BR OVC003 11/10 A3000 RMK AO2 T01070095K66R2020-04-05T07:15:00Z29.65-96.5210.79.535064.030.0TRUETRUEBRLIFRMETAR74.02020-04-05 07:27:54N)5    3K5M9 050715Z AUTO 36003KT 10SM OVC005 08/06 A3008 RMK AO2 T00750063K5M92020-04-05T07:15:00Z37.33-88.127.56.3360310.030.079725TRUETRUEIFRSPECI199.02020-04-05 07:27:54 .ZN )5    3KASL 050715Z AUTO 35006KT 4SM OVC003 12/11 A3004 RMK AO1 T01150105KASL2020-04-05T07:15:00Z32.52-94.311.510.535064.030.041338TRUETRUELIFRMETAR109.02020-04-05 07:27:54B)5    3KAPS 050715Z AUTO 10SM OVC110 17/15 A2996 RMK AO2 T01730148KAPS2020-04-05T07:15:00Z30.08-90.5817.314.810.029.958662TRUETRUEVFRSPECI2.02020-04-05 07:27:54N)5    3KANW 050715Z AUTO 19015KT 10SM CLR 02/M05 A2995 RMK AO2 T00181053KANW2020-04-05T07:15:00Z42.57-100.01.8-5.31901510.029.949802TRUETRUEVFRMETAR789.02020-04-05 07:27:54L)5    3KAHQ 050715Z AUTO 00000KT 10SM CLR M01/M03 A3011 RMK AO2 T10081031KAHQ2020-04-05T07:15:00Z41.23-96.6-0.8-3.10010.030.109253TRUETRUEVFRMETAR374.02020-04-05 07:27:54 .QwA (5    3KBBD 050715Z AUTO 00000KT 10SM OVC008 09/08 A3003 RMK AO2KBBD2020-04-05T07:15:00Z31.18-99.329.08.00010.030.029528TRUETRUEIFRMETAR557.02020-04-05 07:27:54T )#5    3KAXX 050715Z AUTO 32003KT 10SM SCT070 OVC085 01/M03 A3000 RMK AO2 T00051032KAXX2020-04-05T07:15:00Z36.42-105.280.5-3.2320310.030.0TRUETRUEVFRMETAR2548.02020-04-05 07:27:54W )5     3KAUN 050715Z AUTO 18006KT 3SM BR BKN004 BKN012 OVC040 09/08 A2974 RMK A01KAUN2020-04-05T07:15:00Z38.95-121.089.08.018063.029.740158TRUETRUEBRLIFRMETAR467.02020-04-05 07:27:54L )5    3KAUH 050715Z AUTO 17006KT 10SM CLR 00/M03 A3006 RMK AO2 T00001034KAUH2020-04-05T07:15:00Z40.88-98.00.0-3.4170610.030.059055TRUETRUEVFRMETAR550.02020-04-05 07:27:54 2aA(}5     3KMGC 050715Z AUTO 00000KT 3SM BR CLR 00/00 A3013 RMK AO2KMGC2020-04-05T07:15:00Z41.7-86.820.00.0003.030.129921TRUETRUEBRMVFRSPECI200.02020-04-05 07:27:54H) 5    3KMIO 050715Z AUTO 00000KT 9SM BKN004 OVC015 06/05 A3008 RMK AO2KMIO2020-04-05T07:15:00Z36.92-94.886.05.0009.030.079725TRUETRUELIFRSPECI246.02020-04-05 07:27:54K)5    3KBIE 050715Z AUTO 00000KT 10SM CLR 00/M01 A3010 RMK AO2 T00021007KBIE2020-04-05T07:15:00Z40.28-96.750.2-0.70010.030.100393TRUETRUEVFRMETAR403.02020-04-05 07:27:54H)5   3KBDG 050715Z AUTO 19004KT 10SM 07/M07 A2991 RMK AO1 T00651075KBDG2020-04-05T07:15:00Z37.58-109.476.5-7.5190410.029.911417TRUETRUEMETAR1788.02020-04-05 07:27:54 /R{K)5    3KBTA 050715Z AUTO 00000KT 10SM CLR 02/M02 A3010 RMK AO2 T00171021KBTA2020-04-05T07:15:00Z41.42-96.121.7-2.10010.030.100393TRUETRUEVFRMETAR396.02020-04-05 07:27:54Q)5    3KBQP 050715Z AUTO 00000KT 7SM BKN006 BKN120 15/15 A3002 RMK AO2 T01520149KBQP2020-04-05T07:15:00Z32.75-91.8815.214.9007.030.02067TRUETRUEIFRSPECI51.02020-04-05 07:27:54W)5     3KBPG 050715Z AUTO 12004KT 3 1/2SM BR OVC002 08/08 A3001 RMK AO2 T00850083KBPG2020-04-05T07:15:00Z32.22-101.528.58.312043.530.008858TRUETRUEBRLIFRMETAR784.02020-04-05 07:27:54K)5   3KMEV 050715Z AUTO 20019G25KT 10SM CLR 06/M07 A2965 RMK AO2KMEV2020-04-05T07:15:00Z38.98-119.756.0-7.0200192510.029.648623TRUETRUEVFRSPECI1439.02020-04-05 07:27:54 5Y6(}5     3CMGB 050715Z AUTO 00000KT 02/ RMK AO1 SLP160 T0016 58003CMGB2020-04-05T07:15:00Z45.37-72.771.6001016.0TRUETRUE-0.3METAR86.02020-04-05 07:27:54C(5    3KC65 050715Z AUTO 35004KT 10SM OVC014 03/02 A3010 RMK A01KC652020-04-05T07:15:00Z41.37-86.33.02.0350410.030.100393TRUETRUEMVFRMETAR244.02020-04-05 07:27:54V)5     3KCFD 050715Z AUTO 34006KT 1/2SM FG OVC003 11/11 A3005 RMK AO2 T01050105KCFD2020-04-05T07:15:00Z30.72-96.3310.510.534060.530.050198TRUETRUEFGLIFRMETAR112.02020-04-05 07:27:54E)5    3KBVS 050715Z AUTO 34003KT 10SM OVC060 06/M00 A2966 RMK A01KBVS2020-04-05T07:15:00Z48.47-122.426.00.0340310.029.660433TRUETRUEVFRMETAR43.02020-04-05 07:27:54 'Lo>(5    3KGHG 050715Z AUTO 00000KT 10SM OVC050 03/03 A3004 RMK AO2KGHG2020-04-05T07:15:00Z42.1-70.673.03.00010.030.041338TRUETRUEVFRMETAR4.02020-04-05 07:27:54W)5     3KFZG 050715Z AUTO 12003KT 10SM CLR 17/15 A2995 RMK AO2 T01730145 PWINOKFZG2020-04-05T07:15:00Z31.68-83.2717.314.5120310.029.949802TRUETRUETRUEVFRMETAR111.02020-04-05 07:27:54U)!5    3KCHK 050715Z AUTO 12004KT 10SM BKN010 OVC032 06/04 A3005 RMK AO2 T00560036KCHK2020-04-05T07:15:00Z35.1-97.975.63.6120410.030.050198TRUETRUEMVFRSPECI351.02020-04-05 07:27:54S)!5    3KCIR 050715Z AUTO 03004KT 10SM SCT026 OVC046 08/06 A3009 RMK AO2 T00800060KCIR2020-04-05T07:15:00Z37.07-89.228.06.030410.030.088583TRUETRUEVFRMETAR98.02020-04-05 07:27:54 ,XvN!)5    3KHDE 050715Z AUTO 15006KT 10SM CLR M02/M05 A3002 RMK AO2 T10241054KHDE2020-04-05T07:15:00Z40.45-99.32-2.4-5.4150610.030.02067TRUETRUEVFRMETAR705.02020-04-05 07:27:54\ )#5   3KHCR 050715Z AUTO 22018G32KT 10SM SCT047 BKN055 OVC065 11/M06 A2971 RMK AO2KHCR2020-04-05T07:15:00Z40.48-111.4311.0-6.0220183210.029.71063TRUETRUEVFRMETAR1706.02020-04-05 07:27:54N)5    3KGRN 050715Z AUTO 21004KT 10SM CLR 03/M04 A2987 RMK AO2 T00341045KGRN2020-04-05T07:15:00Z42.8-102.173.4-4.5210410.029.870079TRUETRUEVFRMETAR1086.02020-04-05 07:27:54N)5    3KGPC 050715Z AUTO 01003KT 10SM OVC018 05/04 A3008 RMK AO2 T00550038KGPC2020-04-05T07:15:00Z39.63-86.825.53.810310.030.079725TRUETRUEMVFRMETAR257.02020-04-05 07:27:54 -Z?%(y5    3KHOE 050715Z AUTO 00000KT 10SM CLR 16/13 A2993 RMK AO2KHOE2020-04-05T07:15:00Z31.05-82.7816.013.00010.029.929134TRUETRUEVFRMETAR57.02020-04-05 07:27:54I$) 5    3KHMZ 050715Z AUTO 00000KT 10SM CLR 01/01 A3004 RMK AO2 T00120008KHMZ2020-04-05T07:15:00Z40.08-78.521.20.80010.030.041338TRUETRUEVFRMETAR354.02020-04-05 07:27:54M#)5    3KHJH 050715Z AUTO 00000KT 10SM CLR M03/M04 A3010 RMK AO2 T10281045KHJH2020-04-05T07:15:00Z40.15-97.58-2.8-4.50010.030.100393TRUETRUEVFRMETAR447.02020-04-05 07:27:54M")5    3KHHG 050715Z AUTO 35004KT 7SM OVC003 03/02 A3010 RMK AO2 T00280022KHHG2020-04-05T07:15:00Z40.85-85.452.82.235047.030.100393TRUETRUELIFRMETAR246.02020-04-05 07:27:54 /dC)(5    3KI74 050715Z AUTO 34004KT 10SM OVC055 08/07 A3004 RMK AO2KI742020-04-05T07:15:00Z40.12-83.758.07.0340410.030.041338TRUETRUEVFRMETAR322.02020-04-05 07:27:54K()5    3KI63 050715Z AUTO 00000KT 10SM BKN120 03/02 A3012 RMK AO2 T00280015KI632020-04-05T07:15:00Z39.98-90.82.81.50010.030.121063TRUETRUEVFRMETAR223.02020-04-05 07:27:54E') 5    3KI35 050715Z AUTO 00000KT 10SM CLR 10/07 A3000 RMK AO2 T01000069KI352020-04-05T07:15:00Z36.87-83.3710.06.90010.030.0TRUETRUEVFRMETAR473.02020-04-05 07:27:54K&)5    3KHTO 050715Z AUTO 00000KT 10SM OVC065 04/03 A3005 RMK AO2 T00370028KHTO2020-04-05T07:15:00Z40.95-72.253.72.80010.030.050198TRUETRUEVFRMETAR17.02020-04-05 07:27:54 *]]-)/5    3KJAQ 050715Z AUTO 14008KT 10SM SCT018 BKN025 OVC036 08/08 A2975 RMK AO1 T00830083KJAQ2020-04-05T07:15:00Z38.37-120.88.38.3140810.029.749016TRUETRUEMVFRSPECI512.02020-04-05 07:27:54K,) 5    3KIKK 050715Z AUTO 36004KT 10SM CLR 01/00 A3014 RMK AO2 T00090000KIKK2020-04-05T07:15:00Z41.07-87.850.90.0360410.030.138779TRUETRUEVFRMETAR192.02020-04-05 07:27:54G+) 5    3KIJX 050715Z AUTO 00000KT 7SM CLR 03/02 A3013 RMK AO2 T00270018KIJX2020-04-05T07:15:00Z39.77-90.252.71.8007.030.129921TRUETRUEVFRMETAR190.02020-04-05 07:27:54P*)5    3KIBM 050715Z AUTO 18014KT 10SM CLR 03/M03 A2984 RMK AO2 T00301035KIBM2020-04-05T07:15:00Z41.18-103.683.0-3.51801410.029.840551TRUETRUEVFRMETAR1501.02020-04-05 07:27:54 $8hG1)5    3KJYR 050715Z AUTO 16008KT 10SM OVC016 M00/M03 A3007 RMK AO2KJYR2020-04-05T07:15:00Z40.9-97.620.0-3.0160810.030.070866TRUETRUEMVFRMETAR509.02020-04-05 07:27:54J0) 5    3KJOT 050715Z AUTO 36003KT 10SM CLR 03/02 A3015 RMK AO2 T00310018KJOT2020-04-05T07:15:00Z41.52-88.183.11.8360310.030.15059TRUETRUEVFRMETAR177.02020-04-05 07:27:54f/)55      3KJKA 050715Z AUTO 31004KT 10SM -RA SCT095 BKN120 18/16 A2994 RMK AO2 P0001 T01780163KJKA2020-04-05T07:15:00Z30.28-87.6717.816.3310410.029.940945TRUETRUE-RAVFR0.01METAR5.02020-04-05 07:27:54V.)5     3KJAS 050715Z AUTO 00000KT 3/4SM BR VV005 16/16 A3001 RMK AO2 T01560155KJAS2020-04-05T07:15:00Z30.88-94.0315.615.5000.7530.008858TRUETRUEBRLIFR500METAR65.02020-04-05 07:27:54 'RM5)5    3KLNN 050715Z AUTO 01004KT 10SM OVC055 06/02 A3004 RMK AO1 T00580021KLNN2020-04-05T07:15:00Z41.67-81.375.82.110410.030.041338TRUETRUEVFRMETAR191.02020-04-05 07:27:54J4) 5    3KLGC 050715Z AUTO 00000KT 10SM CLR 13/10 A2995 RMK AO2 T01320103KLGC2020-04-05T07:15:00Z33.0-85.0713.210.30010.029.949802TRUETRUEVFRMETAR211.02020-04-05 07:27:54O3)5    3KLCG 050715Z AUTO 20004KT 10SM CLR M02/M05 A3007 RMK AO2 T10161046KLCG2020-04-05T07:15:00Z42.25-96.98-1.6-4.6200410.030.070866TRUETRUEVFRMETAR436.02020-04-05 07:27:54S2)5    3KLAM 050715Z AUTO 23004KT 10SM OVC090 10/M07 A2997 RMK AO2 T01001072KLAM2020-04-05T07:15:00Z35.87-106.2710.0-7.2230410.029.970472TRUETRUEVFRMETAR2179.02020-04-05 07:27:54 N{29(i5   3KPQN 050715Z 20005KT 10SM 01/M02 A3006 RMK AO2KPQN2020-04-05T07:15:00Z43.97-96.321.0-2.0200510.030.059055TRUEMETAR529.02020-04-05 07:27:54M8)5    3KPSK 050715Z AUTO 05004KT 10SM SCT085 09/05 A3008 RMK AO2 T00880045KPSK2020-04-05T07:15:00Z37.12-80.678.84.550410.030.079725TRUETRUEVFRMETAR642.02020-04-05 07:27:54K7)5    3KLOM 050715Z AUTO 00000KT 10SM OVC050 08/07 A3004 RMK AO2 T00820074KLOM2020-04-05T07:15:00Z40.13-75.278.27.40010.030.041338TRUETRUEVFRMETAR92.02020-04-05 07:27:54[6)/5    3KLNQ 050715Z AUTO 33004KT 10SM SCT060 SCT070 OVC100 17/14 A2998 RMK AO2 T01740144KLNQ2020-04-05T07:15:00Z29.35-89.4317.414.4330410.029.97933TRUETRUEVFRMETAR1.02020-04-05 07:27:54 (XE=)5    3KOXV 050715Z AUTO 06003KT 10SM FEW140 03/M01 A3011 RMK AO2KOXV2020-04-05T07:15:00Z41.28-93.123.0-1.060310.030.109253TRUETRUEVFRMETAR283.02020-04-05 07:27:54E<({5    3KPAN 050715Z AUTO 16003KT 10SM CLR 10/M03 A2994 RMK AO2KPAN2020-04-05T07:15:00Z34.25-111.3310.0-3.0160310.029.940945TRUETRUEVFRMETAR1572.02020-04-05 07:27:54J;)5    3KPEA 050715Z AUTO 00000KT 10SM CLR 02/M03 A3014 RMK AO2 T00211026KPEA2020-04-05T07:15:00Z41.4-92.952.1-2.60010.030.138779TRUETRUEVFRMETAR270.02020-04-05 07:27:54R:)5    3KPLR 050715Z AUTO 00000KT 10SM FEW039 SCT050 BKN075 14/14 A2995 RMK A01KPLR2020-04-05T07:15:00Z33.57-86.2514.014.00010.029.949802TRUETRUEVFRMETAR148.02020-04-05 07:27:54 *Z=A(w5    3KOLV 050715Z AUTO 00000KT 7SM CLR 12/11 A3002 RMK A01KOLV2020-04-05T07:15:00Z34.98-89.7812.011.0007.030.02067TRUETRUEVFRMETAR122.02020-04-05 07:27:54B@(}5    3KOLZ 050715Z AUTO 06005KT 10SM CLR M01/M03 A3015 RMK A01KOLZ2020-04-05T07:15:00Z42.67-91.97-1.0-3.060510.030.15059TRUETRUEVFRMETAR328.02020-04-05 07:27:54J?) 5    3KORS 050715Z AUTO 34012KT 10SM SCT065 OVC075 08/04 A2966 RMK AO2KORS2020-04-05T07:15:00Z48.7-122.928.04.03401210.029.660433TRUETRUEVFRMETAR9.02020-04-05 07:27:54P>)5    3KOSC 050715Z AUTO 35007KT 10SM OVC011 00/M02 A3012 RMK AO2 T00001016KOSC2020-04-05T07:15:00Z44.45-83.40.0-1.6350710.030.121063TRUETRUEMVFRSPECI193.02020-04-05 07:27:54 2]LE) 5    3KMDQ 050715Z AUTO 32003KT 10SM CLR 14/12 A2998 RMK A02 T01370123KMDQ2020-04-05T07:15:00Z34.87-86.5513.712.3320310.029.97933TRUETRUEVFRMETAR230.02020-04-05 07:27:54ND)5    3KM30 050715Z AUTO 03003KT 10SM OVC010 08/06 A3009 RMK AO2 T00770055KM302020-04-05T07:15:00Z37.18-88.757.75.530310.030.088583TRUETRUEMVFRSPECI117.02020-04-05 07:27:54OC)5    3KLXN 050715Z AUTO 14006KT 10SM CLR M01/M04 A3001 RMK AO2 T10101042KLXN2020-04-05T07:15:00Z40.78-99.77-1.0-4.2140610.030.008858TRUETRUEVFRMETAR734.02020-04-05 07:27:54HB) 5    3KLOT 050715Z AUTO 03005KT 10SM CLR 02/01 A3014 RMK AO2 T00150010KLOT2020-04-05T07:15:00Z41.6-88.11.51.030510.030.138779TRUETRUEVFRSPECI205.02020-04-05 07:27:54 2^@I(y5    3K2G9 050715Z AUTO 15003KT 10SM CLR 02/01 A3001 RMK AO2K2G92020-04-05T07:15:00Z40.03-79.022.01.0150310.030.008858TRUETRUEVFRSPECI693.02020-04-05 07:27:54QH)5    3K1H2 050715Z AUTO 00000KT 7SM BKN009 OVC020 07/07 A3011 RMK AO2 T00700070K1H22020-04-05T07:15:00Z39.07-88.537.07.0007.030.109253TRUETRUEIFRSPECI179.02020-04-05 07:27:54NG)5    3K17J 050715Z AUTO 22003KT 10SM BKN110 18/15 A2991 RMK AO2 T01770153K17J2020-04-05T07:15:00Z31.0-84.8717.715.3220310.029.911417TRUETRUEVFRMETAR42.02020-04-05 07:27:54HF)5   3K0E0 050715Z AUTO 23007KT 10SM 10/M07 A2996 RMK AO2 T01011073K0E02020-04-05T07:15:00Z34.98-106.010.1-7.3230710.029.958662TRUETRUESPECI1890.02020-04-05 07:27:54 )Q{BM(y5    3KACJ 050715Z AUTO 10005KT 10SM CLR 19/12 A2994 RMK AO2KACJ2020-04-05T07:15:00Z32.12-84.1819.012.0100510.029.940945TRUETRUEVFRMETAR143.02020-04-05 07:27:54PL)5    3K9V9 050715Z AUTO 18005KT 10SM BKN120 03/M03 A2997 RMK AO2 T00321028K9V92020-04-05T07:15:00Z43.77-99.323.2-2.8180510.029.970472TRUETRUEVFRSPECI519.02020-04-05 07:27:54RK)5     3K6P9 050715Z AUTO 00000KT 3/4SM BR OVC003 07/07 A3006 RMK AO2 T00650065K6P92020-04-05T07:15:00Z32.43-98.66.56.5000.7530.059055TRUETRUEBRLIFRSPECI449.02020-04-05 07:27:54QJ)5     3K3F3 050715Z AUTO 00000KT 1SM BR OVC002 15/15 A3003 RMK AO2 T01520151K3F32020-04-05T07:15:00Z32.07-93.7715.215.1001.030.029528TRUETRUEBRLIFRMETAR96.02020-04-05 07:27:54 0VMQ)5    3KALN 050715Z AUTO 00000KT 10SM OVC028 06/05 A3012 RMK AO2 T00630050KALN2020-04-05T07:15:00Z38.88-90.036.35.00010.030.121063TRUETRUEMVFRSPECI166.02020-04-05 07:27:54OP)5    3KAJZ 050715Z AUTO 06003KT 10SM CLR 10/M06 A2981 RMK AO2 T01001056KAJZ2020-04-05T07:15:00Z38.78-108.0710.0-5.660310.029.811024TRUETRUEVFRSPECI1583.02020-04-05 07:27:54TO)5    3KADS 050715Z AUTO 32003KT 7SM SCT008 OVC019 08/07 A3008 RMK AO2 T00800067KADS2020-04-05T07:15:00Z32.97-96.828.06.732037.030.079725TRUETRUEMVFRSPECI196.02020-04-05 07:27:54JN) 5     3KADH 050715Z AUTO 00000KT 1 3/4SM BR OVC002 05/05 A3009 RMK AO2KADH2020-04-05T07:15:00Z34.8-96.675.05.0001.7530.088583TRUETRUEBRLIFRMETAR308.02020-04-05 07:27:54 (dS(y5    3KBHC 050715Z AUTO 00000KT 10SM CLR 16/11 A2994 RMK AO2KBHC2020-04-05T07:15:00Z31.72-82.416.011.00010.029.940945TRUETRUEVFRMETAR61.02020-04-05 07:27:54RR)5     3KAYS 050715Z AUTO 00000KT 10SM CLR 17/14 A2994 RMK AO2 T01680141 TSNOKAYS2020-04-05T07:15:00Z31.25-82.416.814.10010.029.940945TRUETRUETRUEVFRMETAR46.02020-04-05 07:27:54 ._LY) 5    3KCKF 050715Z AUTO 10004KT 10SM CLR 18/12 A2994 RMK AO2 T01750115KCKF2020-04-05T07:15:00Z31.98-83.7717.511.5100410.029.940945TRUETRUEVFRMETAR91.02020-04-05 07:27:54KX) 5    3KCCO 050715Z AUTO 00000KT 10SM CLR 16/12 A2995 RMK AO2 T01560115KCCO2020-04-05T07:15:00Z33.32-84.7715.611.50010.029.949802TRUETRUEVFRMETAR296.02020-04-05 07:27:54IW) 5    3KC75 050715Z AUTO 00000KT 10SM CLR 03/02 A3014 RMK AO2 T00330020KC752020-04-05T07:15:00Z41.02-89.383.32.00010.030.138779TRUETRUEVFRSPECI173.02020-04-05 07:27:54LV)5    3KC09 050715Z AUTO 00000KT 10SM SCT120 02/02 A3013 RMK AO2 T00220020KC092020-04-05T07:15:00Z41.43-88.422.22.00010.030.129921TRUETRUEVFRSPECI178.02020-04-05 07:27:54 M{T])5    3KFOT 050715Z AUTO 13012G19KT 5SM OVC035 09/07 A2957 RMK AO1 P0001KFOT2020-04-05T07:15:00Z40.55-124.139.07.013012195.029.568897TRUETRUEMVFR0.01SPECI120.02020-04-05 07:27:54L\)5    3KCVB 050715Z AUTO 00000KT 7SM OVC010 14/14 A3002 RMK AO2 T01430143KCVB2020-04-05T07:15:00Z29.35-98.8514.314.3007.030.02067TRUETRUEMVFRSPECI235.02020-04-05 07:27:54J[) 5    3KCTJ 050715Z AUTO 00000KT 10SM CLR 13/09 A2999 RMK AO2 T01250087KCTJ2020-04-05T07:15:00Z33.63-85.1512.58.70010.029.991142TRUETRUEVFRMETAR354.02020-04-05 07:27:54]Z)!5      3KCQF 050715Z AUTO 35003KT 10SM -RA SCT095 BKN120 17/15 A2995 RMK AO2 P0001KCQF2020-04-05T07:15:00Z30.47-87.8817.015.0350310.029.949802TRUETRUE-RAVFR0.01METAR28.02020-04-05 07:27:54 ,dQa)5     3KINJ 050715Z AUTO 32004KT 4SM BR OVC003 09/09 A3006 RMK AO2 T00850085KINJ2020-04-05T07:15:00Z32.08-97.18.58.532044.030.059055TRUETRUEBRLIFRSPECI209.02020-04-05 07:27:54C`(5    3KIZA 050715Z AUTO 00000KT 10SM OVC015 11/08 A2990 RMK AO2KIZA2020-04-05T07:15:00Z34.6-120.0711.08.00010.029.899607TRUETRUEMVFRMETAR205.02020-04-05 07:27:54B_(5    3KJAU 050715Z AUTO 00000KT 10SM BKN120 11/07 A3001 RMK A01KJAU2020-04-05T07:15:00Z36.33-84.1711.07.00010.030.008858TRUETRUEVFRSPECI360.02020-04-05 07:27:54N^)5    3KFLY 050715Z AUTO 00000KT 10SM CLR 00/M05 A2991 RMK AO2 T10051046KFLY2020-04-05T07:15:00Z38.95-104.57-0.5-4.60010.029.911417TRUETRUEVFRSPECI2096.02020-04-05 07:27:54 8gDe)5    3KCVC 050715Z AUTO 00000KT 10SM CLR 13/08 A2996 RMK AO2 PNOKCVC2020-04-05T07:15:00Z33.63-83.8513.08.00010.029.958662TRUETRUEVFRMETAR247.02020-04-05 07:27:54Id) 5    3KIGQ 050715Z AUTO 00000KT 10SM CLR 02/01 A3014 RMK AO2 T00200013KIGQ2020-04-05T07:15:00Z41.53-87.532.01.30010.030.138779TRUETRUEVFRSPECI188.02020-04-05 07:27:54Kc)5     3KIIY 050715Z AUTO 17003KT 10SM CLR 14/07 A2997 RMK AO2 TSNOKIIY2020-04-05T07:15:00Z33.78-82.8214.07.0170310.029.970472TRUETRUETRUEVFRSPECI197.02020-04-05 07:27:54Bb(5    3KIMM 050715Z AUTO 00000KT 10SM OVC029 22/19 A2992 RMK AO2KIMM2020-04-05T07:15:00Z26.43-81.422.019.00010.029.920275TRUETRUEMVFRSPECI12.02020-04-05 07:27:54 "^Gi(}5    3KDUB 050715Z AUTO 28004KT 10SM CLR M02/M10 A2973 RMK AO2KDUB2020-04-05T07:15:00Z43.55-109.68-2.0-10.0280410.029.731298TRUETRUEVFRSPECI2224.02020-04-05 07:27:54g({5     3KDED 050715Z AUTO 13004KT 10SM SCT120 20/ A2990 RMK AO2KDED2020-04-05T07:15:00Z29.07-81.2820.0130410.029.899607TRUETRUEVFRMETAR24.02020-04-05 07:27:54Xf)-5    3KDCY 050715Z AUTO 00000KT 7SM SCT007 BKN024 OVC110 08/08 A3007 RMK AO2 T00800078KDCY2020-04-05T07:15:00Z38.7-87.138.07.8007.030.070866TRUETRUEMVFRSPECI144.02020-04-05 07:27:54 6aJm)5    3K0F2 050715Z AUTO 00000KT 7SM OVC004 09/08 A3007 RMK AO2 T00870079K0F22020-04-05T07:15:00Z33.6-97.788.77.9007.030.070866TRUETRUELIFRSPECI336.02020-04-05 07:27:54Pl)5     3KELA 050715Z AUTO 01006KT 5SM BR OVC003 13/13 A2998 RMK AO2 T01310127KELA2020-04-05T07:15:00Z29.6-96.3213.112.71065.029.97933TRUETRUEBRLIFRSPECI56.02020-04-05 07:27:54Ok)5     3KEHY 050715Z AUTO 11005KT 10SM CLR 01/M09 A2978 RMK AO2 PWINOKEHY2020-04-05T07:15:00Z41.73-106.471.0-9.0110510.029.778543TRUETRUETRUEVFRSPECI2225.02020-04-05 07:27:54Dj({5    3KECS 050715Z AUTO 28003KT 10SM CLR 00/M07 A2981 RMK AO2KECS2020-04-05T07:15:00Z43.88-104.320.0-7.0280310.029.811024TRUETRUEVFRSPECI1273.02020-04-05 07:27:54 *S|Jq) 5    3K18A 050715Z AUTO 00000KT 10SM CLR 12/07 A2997 RMK AO2 T01200065K18A2020-04-05T07:15:00Z34.35-83.1312.06.50010.029.970472TRUETRUEVFRSPECI271.02020-04-05 07:27:54Qp)5     3K13K 050715Z AUTO 13003KT 4SM BR OVC004 04/03 A3009 RMK AO2 T00380034K13K2020-04-05T07:15:00Z37.85-96.33.83.413034.030.088583TRUETRUEBRLIFRSPECI369.02020-04-05 07:27:54Qo)!5     3K0R0 050715Z AUTO 00000KT 5SM -DZ FEW060 BKN095 OVC120 16/16 A3000 RMK AO2K0R02020-04-05T07:15:00Z31.3-89.8216.016.0005.030.0TRUETRUE-DZMVFRSPECI81.02020-04-05 07:27:54Pn)5    3K05U 050715Z AUTO 00000KT 10SM SCT055 BKN065 OVC085 03/01 A2973 RMK A01K05U2020-04-05T07:15:00Z39.6-116.03.01.00010.029.731298TRUETRUEVFRSPECI1816.02020-04-05 07:27:54 3R|Pu)5    3KPSO 050715Z AUTO 00000KT 10SM BKN110 03/M04 A2995 RMK AO2 T00321043KPSO2020-04-05T07:15:00Z37.28-107.053.2-4.30010.029.949802TRUETRUEVFRMETAR2334.02020-04-05 07:27:54Pt)5     3KPTS 050715Z AUTO 06003KT 5SM BR OVC005 05/04 A3008 RMK AO2 T00460044KPTS2020-04-05T07:15:00Z37.45-94.734.64.46035.030.079725TRUETRUEBRIFRMETAR290.02020-04-05 07:27:54[s)'5    3KPWG 050715Z AUTO 36005KT 8SM BKN005 OVC011 09/08 A3006 RMK AO2 CIG 004V008 $KPWG2020-04-05T07:15:00Z31.47-97.329.08.036058.030.059055TRUETRUETRUEIFRMETAR180.02020-04-05 07:27:54Gr)5     3K1F0 050715Z AUTO 03003KT 5SM BR OVC004 06/05 A3008 RMK AO2K1F02020-04-05T07:15:00Z34.15-97.126.05.03035.030.079725TRUETRUEBRLIFRSPECI257.02020-04-05 07:27:54 6f7z(q5   3KRCE 050715Z AUTO 00000KT 10SM 05/03 A3007 RMK AO2KRCE2020-04-05T07:15:00Z35.48-97.825.03.00010.030.070866TRUETRUEMETAR413.02020-04-05 07:27:54By(}5    3KRDK 050715Z AUTO 00000KT 10SM CLR M01/M01 A3012 RMK AO2KRDK2020-04-05T07:15:00Z41.02-95.27-1.0-1.00010.030.121063TRUETRUEVFRMETAR318.02020-04-05 07:27:54Ex({5    3KJTC 050715Z AUTO 14008KT 10SM CLR 06/M10 A2999 RMK AO2KJTC2020-04-05T07:15:00Z34.13-109.326.0-10.0140810.029.991142TRUETRUEVFRSPECI2150.02020-04-05 07:27:54Jw)5    3KJWY 050715Z AUTO 00000KT 7SM OVC008 08/08 A3008 RMK AO2 T00840084KJWY2020-04-05T07:15:00Z32.45-96.928.48.4007.030.079725TRUETRUEIFRSPECI217.02020-04-05 07:27:54Dv(5    3K1M5 050715Z AUTO 34006KT 10SM OVC095 12/10 A3003 RMK A01K1M52020-04-05T07:15:00Z36.6-86.4812.010.0340610.030.029528TRUETRUEVFRSPECI250.02020-04-05 07:27:54 'T~@~(y5    3K2A0 050715Z AUTO 00000KT 10SM CLR 12/11 A2996 RMK A01K2A02020-04-05T07:15:00Z35.48-84.9312.011.00010.029.958662TRUETRUEVFRSPECI219.02020-04-05 07:27:54P})5    3K28J 050715Z AUTO 00000KT 10SM FEW050 SCT065 BKN120 15/13 A2993 RMK AO2K28J2020-04-05T07:15:00Z29.65-81.6815.013.00010.029.929134TRUETRUEVFRSPECI9.02020-04-05 07:27:54M|)5    3KFEP 050715Z AUTO 00000KT 10SM OVC120 01/M01 A3015 RMK AO2 T00051015KFEP2020-04-05T07:15:00Z42.25-89.580.5-1.50010.030.15059TRUETRUEVFRSPECI262.02020-04-05 07:27:54S{)5    3K1U7 050715Z AUTO 00000KT 10SM FEW048 FEW060 OVC075 02/M01 A2971 RMK A01K1U72020-04-05T07:15:00Z42.25-111.332.0-1.00010.029.71063TRUETRUEVFRMETAR1807.02020-04-05 07:27:54 ;vO)5    3K2R9 050715Z AUTO 36006KT 10SM OVC006 12/11 A3001 RMK AO2 T01190110K2R92020-04-05T07:15:00Z28.82-97.8711.911.0360610.030.008858TRUETRUEIFRSPECI88.02020-04-05 07:27:54H) 5    3KFFA 050715Z AUTO 02004KT 10SM CLR 08/05 A3004 RMK AO2 T00750054KFFA2020-04-05T07:15:00Z36.02-75.677.55.420410.030.041338TRUETRUEVFRSPECI4.02020-04-05 07:27:54?(y5    3KMKS 050715Z AUTO 00000KT 10SM CLR 10/10 A2999 RMK AO2KMKS2020-04-05T07:15:00Z33.18-80.0310.010.00010.029.991142TRUETRUEVFRSPECI23.02020-04-05 07:27:54?(y5    3KMMI 050715Z AUTO 00000KT 10SM CLR 12/10 A2999 RMK A01KMMI2020-04-05T07:15:00Z35.4-84.5712.010.00010.029.991142TRUETRUEVFRSPECI266.02020-04-05 07:27:54 5U<(u5   3KFGN 050715Z AUTO 11003KT 10SM M04/M07 A3010 RMK AO2KFGN2020-04-05T07:15:00Z49.32-94.9-4.0-7.0110310.030.100393TRUETRUESPECI328.02020-04-05 07:27:54A(5    3K33N 050715Z AUTO 23004KT 10SM OVC041 09/08 A3006 RMK A01K33N2020-04-05T07:15:00Z39.22-75.69.08.0230410.030.059055TRUETRUEVFRSPECI17.02020-04-05 07:27:54Z)15    3K2LS 050715Z AUTO 00000KT 10SM SCT044 BKN055 OVC080 16/14 A2998 RMK AO2 LTG DSNT SK2LS2020-04-05T07:15:00Z29.42-90.316.014.00010.029.97933TRUETRUEVFRMETAR-2.02020-04-05 07:27:54E(5    3K2M2 050715Z AUTO 35005KT 10SM BKN110 14/10 A2999 RMK A01K2M22020-04-05T07:15:00Z35.23-87.2514.010.0350510.029.991142TRUETRUEVFRSPECI286.02020-04-05 07:27:54 6iN )5    3KRNV 050715Z AUTO 34007KT 10SM OVC090 15/15 A3002 RMK AO2 T01450145KRNV2020-04-05T07:15:00Z33.77-90.7514.514.5340710.030.02067TRUETRUEVFRMETAR41.02020-04-05 07:27:54N )5    3KRNP 050715Z AUTO 32005KT 10SM OVC011 03/01 A3011 RMK AO2 T00320008KRNP2020-04-05T07:15:00Z43.0-84.133.20.8320510.030.109253TRUETRUEMVFRMETAR224.02020-04-05 07:27:54G) 5    3KRMN 050715Z AUTO 00000KT 10SM CLR 04/04 A3011 RMK AO2 T00410041KRMN2020-04-05T07:15:00Z38.4-77.454.14.10010.030.109253TRUETRUEVFRMETAR65.02020-04-05 07:27:54D) 5    3KRHP 050715Z AUTO 00000KT 10SM CLR 09/07 A3000 RMK AO2 T00930074KRHP2020-04-05T07:15:00Z35.18-83.859.37.40010.030.0TRUETRUEVFRMETAR518.02020-04-05 07:27:54 0_E)5    3KCIN 050715Z AUTO 00000KT 10SM SCT095 M00/M01 A3011 RMK AO2KCIN2020-04-05T07:15:00Z42.03-94.770.0-1.00010.030.109253TRUETRUEVFRMETAR375.02020-04-05 07:27:54= (y5    3KRVL 050715Z AUTO 00000KT 10SM CLR 05/05 A3002 RMK AO2KRVL2020-04-05T07:15:00Z40.68-77.635.05.00010.030.02067TRUETRUEVFRMETAR250.02020-04-05 07:27:54K ) 5    3KRUQ 050715Z AUTO 05003KT 10SM CLR 11/03 A3001 RMK AO2 T01140031KRUQ2020-04-05T07:15:00Z35.65-80.5211.43.150310.030.008858TRUETRUEVFRMETAR236.02020-04-05 07:27:54J )5    3KRUG 050715Z AUTO 14010KT 10SM OVC034 M04/M05 A2995 RMK AO2KRUG2020-04-05T07:15:00Z48.38-100.02-4.0-5.01401010.029.949802TRUETRUEVFRMETAR472.02020-04-05 07:27:54 2]H)5   3KCMR 050715Z AUTO 21008G14KT 10SM CLR 06/M03 A2992 RMK AO2KCMR2020-04-05T07:15:00Z35.3-112.26.0-3.021081410.029.920275TRUETRUEVFRSPECI2036.02020-04-05 07:27:54?(y5    3KCLW 050715Z AUTO 00000KT 10SM CLR 20/16 A2992 RMK AO2KCLW2020-04-05T07:15:00Z27.98-82.7520.016.00010.029.920275TRUETRUEVFRSPECI22.02020-04-05 07:27:54O)5    3KCKP 050715Z AUTO 19004KT 10SM CLR M02/M04 A3010 RMK AO2 T10171040KCKP2020-04-05T07:15:00Z42.73-95.55-1.7-4.0190410.030.100393TRUETRUEVFRMETAR374.02020-04-05 07:27:54H)5    3KCKN 050715Z AUTO 14006KT 10SM OVC075 M01/M03 A3005 RMK AO2KCKN2020-04-05T07:15:00Z47.85-96.62-1.0-3.0140610.030.050198TRUETRUEVFRMETAR273.02020-04-05 07:27:54 9iV)5     3KF00 050715Z AUTO 32006KT 1 1/2SM BR OVC003 06/06 A3007 RMK AO2 T00650063KF002020-04-05T07:15:00Z33.62-96.186.56.332061.530.070866TRUETRUEBRLIFRSPECI188.02020-04-05 07:27:54H)5     3KCPT 050715Z AUTO 29003KT 2SM BR OVC003 08/08 A3008 RMK A01KCPT2020-04-05T07:15:00Z32.35-97.438.08.029032.030.079725TRUETRUEBRLIFRSPECI260.02020-04-05 07:27:54J)5     3KCOQ 050715Z AUTO 00000KT 10SM CLR M04/M08 A3014 RMK AO2 TSNOKCOQ2020-04-05T07:15:00Z46.7-92.5-4.0-8.00010.030.138779TRUETRUETRUEVFRMETAR390.02020-04-05 07:27:54A(5    3KCNC 050715Z AUTO 00000KT 10SM OVC090 03/03 A3011 RMK AO2KCNC2020-04-05T07:15:00Z41.02-93.373.03.00010.030.109253TRUETRUEVFRMETAR320.02020-04-05 07:27:54 0\F(5    3KF70 050715Z AUTO 21008KT 10SM OVC012 12/09 A2992 RMK AO1KF702020-04-05T07:15:00Z33.57-117.1312.09.0210810.029.920275TRUETRUEMVFRSPECI412.02020-04-05 07:27:54:(q5   3KFCH 050715Z AUTO 32003KT 10SM 12/08 A2981 RMK A01KFCH2020-04-05T07:15:00Z36.72-119.8212.08.0320310.029.811024TRUETRUESPECI85.02020-04-05 07:27:54N)5    3KF05 050715Z AUTO 08007KT 10SM OVC027 07/06 A3007 RMK AO1 T00710061KF052020-04-05T07:15:00Z34.23-99.287.16.180710.030.070866TRUETRUEMVFRSPECI386.02020-04-05 07:27:54J) 5    3KEZZ 050715Z AUTO 06004KT 10SM CLR 01/01 A3011 RMK AO2 T00120006KEZZ2020-04-05T07:15:00Z39.72-94.281.20.660410.030.109253TRUETRUEVFRSPECI317.02020-04-05 07:27:54 $U~C(5    3KCSQ 050715Z AUTO 11003KT 10SM OVC090 00/00 A3011 RMK AO2KCSQ2020-04-05T07:15:00Z41.02-94.370.00.0110310.030.109253TRUETRUEVFRMETAR394.02020-04-05 07:27:54Q)5     3KF17 050715Z AUTO 00000KT 1SM BR OVC002 14/13 A3001 RMK AO2 T01360130KF172020-04-05T07:15:00Z31.83-94.1513.613.0001.030.008858TRUETRUEBRLIFRSPECI97.02020-04-05 07:27:54I)5     3KF44 050715Z AUTO 34003KT 5SM BR OVC004 10/09 A3003 RMK AO2KF442020-04-05T07:15:00Z32.17-95.8310.09.034035.030.029528TRUETRUEBRLIFRSPECI135.02020-04-05 07:27:54V)5     3KF46 050715Z AUTO 03003KT 1 1/4SM BR OVC002 08/08 A3007 RMK AO2 T00750075KF462020-04-05T07:15:00Z32.93-96.437.57.53031.2530.070866TRUETRUEBRLIFRSPECI176.02020-04-05 07:27:54 ;dD"(}5    3KD60 050715Z AUTO 31003KT 10SM CLR M06/M05 A2994 RMK AO2KD602020-04-05T07:15:00Z48.38-102.9-6.0-5.0310310.029.940945TRUETRUEVFRMETAR693.02020-04-05 07:27:54G!)5    3KD57 050715Z AUTO 00000KT 10SM BKN080 M05/M07 A2993 RMK AO2KD572020-04-05T07:15:00Z46.82-101.87-5.0-7.00010.029.929134TRUETRUEVFRMETAR637.02020-04-05 07:27:54Q )5    3KCVX 050715Z AUTO 34007KT 10SM SCT011 M02/M04 A3017 RMK AO2 T10171045KCVX2020-04-05T07:15:00Z45.3-85.27-1.7-4.5340710.030.171259TRUETRUEVFRMETAR204.02020-04-05 07:27:54?(y5    3KCQW 050715Z AUTO 08003KT 10SM CLR 10/08 A3003 RMK AO2KCQW2020-04-05T07:15:00Z34.72-79.9510.08.080310.030.029528TRUETRUEVFRSPECI73.02020-04-05 07:27:54 3i?&(y5    3KDYB 050715Z AUTO 00000KT 10SM CLR 11/10 A2997 RMK AO2KDYB2020-04-05T07:15:00Z33.07-80.2811.010.00010.029.970472TRUETRUEVFRSPECI18.02020-04-05 07:27:54C%(}5    3KDNS 050715Z AUTO 12003KT 10SM CLR M00/M02 A3013 RMK AO2KDNS2020-04-05T07:15:00Z41.97-95.370.0-2.0120310.030.129921TRUETRUEVFRMETAR388.02020-04-05 07:27:54D$({5    3KDNA 050715Z AUTO 24009KT 10SM CLR 15/M04 A2995 RMK AO2KDNA2020-04-05T07:15:00Z31.88-106.715.0-4.0240910.029.949802TRUETRUEVFRSPECI1253.02020-04-05 07:27:54G#)5    3KDEH 050715Z AUTO 06003KT 10SM OVC014 M00/M03 A3013 RMK AO2KDEH2020-04-05T07:15:00Z43.27-91.720.0-3.060310.030.129921TRUETRUEMVFRMETAR353.02020-04-05 07:27:54 3aQ*)5    3KEQA 050715Z AUTO 17004KT 7SM SCT005 SCT009 OVC021 05/03 A3007 RMK AO2KEQA2020-04-05T07:15:00Z37.78-96.825.03.017047.030.070866TRUETRUEMVFRSPECI420.02020-04-05 07:27:54?)(y5    3KEOK 050715Z AUTO 01004KT 10SM CLR 04/01 A3011 RMK AO2KEOK2020-04-05T07:15:00Z40.47-91.424.01.010410.030.109253TRUETRUEVFRMETAR205.02020-04-05 07:27:54L()5    3KEGV 050715Z AUTO 00000KT 10SM CLR M05/M09 A3015 RMK AO2 T10551089KEGV2020-04-05T07:15:00Z45.93-89.27-5.5-8.90010.030.15059TRUETRUEVFRSPECI500.02020-04-05 07:27:54G') 5    3KEDE 050715Z AUTO 00000KT 10SM CLR 06/06 A3009 RMK AO2 T00610058KEDE2020-04-05T07:15:00Z36.02-76.576.15.80010.030.088583TRUETRUEVFRSPECI6.02020-04-05 07:27:54 .^M.)5    3KLMO 050715Z AUTO 00000KT 10SM CLR 05/M01 A2983 RMK AO2 T00491014KLMO2020-04-05T07:15:00Z40.17-105.174.9-1.40010.029.828741TRUETRUEVFRMETAR1541.02020-04-05 07:27:54H-) 5    3KEZF 050715Z AUTO 00000KT 10SM CLR 06/06 A3007 RMK AO2 T00640064KEZF2020-04-05T07:15:00Z38.27-77.456.46.40010.030.070866TRUETRUEVFRSPECI26.02020-04-05 07:27:54J,) 5    3KEXX 050715Z AUTO 07006KT 10SM CLR 12/05 A3003 RMK AO2 T01170045KEXX2020-04-05T07:15:00Z35.78-80.311.74.570610.030.029528TRUETRUEVFRSPECI223.02020-04-05 07:27:54L+)5     3KETC 050715Z AUTO 00000KT 5SM BR CLR 05/05 A3009 RMK AO2 T00550053KETC2020-04-05T07:15:00Z35.93-77.555.55.3005.030.088583TRUETRUEBRMVFRSPECI17.02020-04-05 07:27:54 =y?3(5    3KLRO 050715Z AUTO 00000KT 10SM FEW042 12/12 A2998 RMK AO2KLRO2020-04-05T07:15:00Z32.9-79.7812.012.00010.029.97933TRUETRUEVFRMETAR4.02020-04-05 07:27:54H2) 5    3KLVL 050715Z AUTO 00000KT 10SM CLR 05/04 A3009 RMK AO1 T00480043KLVL2020-04-05T07:15:00Z36.78-77.84.84.30010.030.088583TRUETRUEVFRMETAR100.02020-04-05 07:27:54N1)5    3KM21 050715Z AUTO 33003KT 10SM OVC090 08/07 A3007 RMK AO2 T00830073KM212020-04-05T07:15:00Z37.22-87.158.37.3330310.030.070866TRUETRUEVFRMETAR129.02020-04-05 07:27:54>0(y5    3KLHZ 050715Z AUTO 00000KT 10SM CLR 06/05 A3010 RMK AO2KLHZ2020-04-05T07:15:00Z36.02-78.336.05.00010.030.100393TRUETRUEVFRMETAR113.02020-04-05 07:27:54=/(5    3KLKR 050715Z AUTO 00000KT 10SM BKN095 14/06 A3000 RMK AO2KLKR2020-04-05T07:15:00Z34.72-80.8514.06.00010.030.0TRUETRUEVFRMETAR149.02020-04-05 07:27:54 cDqYcp7);5       3PAWM 050715Z AUTO 19016G23KT 1 1/4SM -RA OVC003 A2922 RMK AO2 RAB04SNE04 P0000 FZRANO $PAWM2020-04-05T07:15:00Z64.68-163.4219016231.2529.220472TRUETRUETRUETRUE-RALIFR0.005SPECI82.02020-04-05 07:27:546)w5      3PAPO 050715Z AUTO 01022G29KT 1 1/4SM -SN BR FEW013 SCT030 OVC036 M09/M11 A2921 RMK AO2 PK WND 01029/0706 P0000 FZRANOPAPO2020-04-05T07:15:00Z68.35-166.8-9.0-11.01022291.2529.208662TRUETRUETRUE-SN BRIFR0.005METAR6.02020-04-05 07:27:54M5)5    3KFKA 050715Z AUTO 00000KT 10SM CLR M01/M05 A3014 RMK AO2 T10091052KFKA2020-04-05T07:15:00Z43.68-92.17-0.9-5.20010.030.138779TRUETRUEVFRMETAR389.02020-04-05 07:27:5464(u5   3KFFL 050715Z AUTO 03006KT OVC100 05/02 A3012 RMK A01KFFL2020-04-05T07:15:00Z41.03-91.975.02.030630.121063TRUETRUEMETAR244.02020-04-05 07:27:54 3aH;)5    3KFSE 050715Z AUTO 13006KT 10SM OVC080 M01/M07 A3007 RMK AO2KFSE2020-04-05T07:15:00Z47.58-95.77-1.0-7.0130610.030.070866TRUETRUEVFRMETAR389.02020-04-05 07:27:54?:(y5    3KFQD 050715Z AUTO 00000KT 10SM CLR 12/05 A2999 RMK AO2KFQD2020-04-05T07:15:00Z35.42-81.9312.05.00010.029.991142TRUETRUEVFRMETAR329.02020-04-05 07:27:54L9)5    3KFKS 050715Z AUTO 00000KT 10SM CLR M04/M05 A3018 RMK AO2 T10431052KFKS2020-04-05T07:15:00Z44.63-86.2-4.3-5.20010.030.180119TRUETRUEVFRMETAR193.02020-04-05 07:27:54G8)5     3KL52 050715Z AUTO 14003KT 2SM BR OVC012 12/11 A2989 RMK A01KL522020-04-05T07:15:00Z35.1-120.6212.011.014032.029.890747TRUETRUEBRIFRMETAR4.02020-04-05 07:27:54 )GyL?)5    3KGNT 050715Z AUTO 00000KT 10SM CLR 07/M09 A2999 RMK AO2 T00741090KGNT2020-04-05T07:15:00Z35.17-107.97.4-9.00010.029.991142TRUETRUEVFRMETAR1987.02020-04-05 07:27:54H>)5    3KGHW 050715Z AUTO 13005KT 10SM SCT100 M01/M03 A3011 RMK AO2KGHW2020-04-05T07:15:00Z45.63-95.32-1.0-3.0130510.030.109253TRUETRUEVFRMETAR425.02020-04-05 07:27:54\=)/5    3KGCD 050715Z AUTO 00000KT 10SM SCT026 BKN032 OVC039 04/02 A2959 RMK AO2 T00400021KGCD2020-04-05T07:15:00Z44.38-118.974.02.10010.029.589567TRUETRUEVFRMETAR1127.02020-04-05 07:27:54Q<)!5    3KFYJ 050715Z AUTO 00000KT 10SM BKN008 BKN012 07/07 A3011 RMK AO1 T00700068KFYJ2020-04-05T07:15:00Z37.52-76.777.06.80010.030.109253TRUETRUEIFRMETAR7.02020-04-05 07:27:54 1[HC)5    3KHCO 050715Z AUTO 12005KT 10SM OVC075 M02/M05 A3005 RMK AO2KHCO2020-04-05T07:15:00Z48.75-96.93-2.0-5.0120510.030.050198TRUETRUEVFRMETAR250.02020-04-05 07:27:54HB) 5    3KGWW 050715Z AUTO 00000KT 10SM CLR 06/06 A3008 RMK AO2 T00610061KGWW2020-04-05T07:15:00Z35.47-77.976.16.10010.030.079725TRUETRUEVFRMETAR41.02020-04-05 07:27:54PA)5    3KGWR 050715Z AUTO 14011KT 10SM FEW032 SCT041 M02/M02 A2999 RMK A01KGWR2020-04-05T07:15:00Z46.22-97.65-2.0-2.01401110.029.991142TRUETRUEVFRMETAR386.02020-04-05 07:27:54I@) 5    3KGVE 050715Z AUTO 00000KT 10SM CLR 05/05 A3006 RMK AO1 T00530053KGVE2020-04-05T07:15:00Z38.15-78.175.35.30010.030.059055TRUETRUEVFRMETAR138.02020-04-05 07:27:54 ,X?G(w5    3KHOB 050715Z AUTO 16005KT 8SM CLR 04/03 A2998 RMK AO2KHOB2020-04-05T07:15:00Z32.67-103.224.03.016058.029.97933TRUETRUEVFRMETAR1115.02020-04-05 07:27:54DF)5    3KHNR 050715Z AUTO 00000KT 10SM OVC085 02/M01 A3011 RMK AO2KHNR2020-04-05T07:15:00Z41.58-95.332.0-1.00010.030.109253TRUETRUEVFRMETAR375.02020-04-05 07:27:54NE)5    3KHLX 050715Z AUTO 09005KT 10SM BKN085 10/00 A3005 RMK AO2 T01010002KHLX2020-04-05T07:15:00Z36.77-80.8210.10.290510.030.050198TRUETRUEVFRMETAR834.02020-04-05 07:27:54ND)5    3KHEG 050715Z AUTO 00000KT 8SM FEW045 FEW065 FEW120 17/14 A2995 RMK AO2KHEG2020-04-05T07:15:00Z30.28-81.817.014.0008.029.949802TRUETRUEVFRMETAR27.02020-04-05 07:27:54 8iIK)5     3KHYI 050715Z AUTO 02007KT 4SM BR OVC003 12/12 A3001 RMK AO2KHYI2020-04-05T07:15:00Z29.88-97.8712.012.02074.030.008858TRUETRUEBRLIFRMETAR182.02020-04-05 07:27:54BFJNRVZ^cgk o s w {  #'+/37;?CG K!O"S#W$[%_&c'g 8g?i(y5    3KVQQ 050715Z AUTO 00000KT 10SM CLR 16/14 A2993 RMK AO2KVQQ2020-04-05T07:15:00Z30.22-81.8816.014.00010.029.929134TRUETRUEVFRMETAR25.02020-04-05 07:27:54Nh)5    3KVLL 050715Z AUTO 35005KT 10SM OVC008 06/05 A3010 RMK AO2 T00560045KVLL2020-04-05T07:15:00Z42.55-83.185.64.5350510.030.100393TRUETRUEIFRMETAR222.02020-04-05 07:27:54Kg)5     3KUTA 050715Z AUTO 34007KT 10SM CLR 11/10 A3004 RMK AO2 TSNOKUTA2020-04-05T07:15:00Z34.68-90.3511.010.0340710.030.041338TRUETRUETRUEVFRMETAR59.02020-04-05 07:27:54Bf(}5    3KUOX 050715Z AUTO 32005KT 9SM OVC120 14/12 A3002 RMK AO2KUOX2020-04-05T07:15:00Z34.38-89.5314.012.032059.030.02067TRUETRUEVFRMETAR137.02020-04-05 07:27:54 (S}Km)5    3KLDM 050715Z AUTO 00000KT 10SM CLR M02/M02 A3015 RMK AO2 T10231023KLDM2020-04-05T07:15:00Z43.97-86.4-2.3-2.30010.030.15059TRUETRUEVFRMETAR197.02020-04-05 07:27:54Pl)5    3KY70 050715Z AUTO 35004KT 10SM OVC011 02/00 A3012 RMK AO2 T00181003KY702020-04-05T07:15:00Z42.93-85.071.8-0.3350410.030.121063TRUETRUEMVFRMETAR250.02020-04-05 07:27:54Ok)5    3KY31 050715Z AUTO 28007KT 10SM CLR M01/M03 A3010 RMK AO2 T10121030KY312020-04-05T07:15:00Z44.25-84.18-1.2-3.0280710.030.100393TRUETRUEVFRMETAR269.02020-04-05 07:27:54Rj)5     3KY19 050715Z AUTO 24003KT 10SM FEW085 M05/M04 A2995 RMK AO2 PWINOKY192020-04-05T07:15:00Z46.77-100.9-5.0-4.0240310.029.949802TRUETRUETRUEVFRMETAR593.02020-04-05 07:27:54 0m;r(y5    3KJZI 050715Z AUTO 00000KT 10SM CLR 13/13 A2998 RMK AO2KJZI2020-04-05T07:15:00Z32.7-80.013.013.00010.029.97933TRUETRUEVFRMETAR6.02020-04-05 07:27:54Cq(5    3KKY8 050715Z AUTO 33005KT 10SM OVC075 09/09 A3006 RMK A01KKY82020-04-05T07:15:00Z37.95-86.879.09.0330510.030.059055TRUETRUEVFRMETAR126.02020-04-05 07:27:54@p(y5    3KL08 050715Z AUTO 00000KT 10SM CLR 16/04 A2981 RMK AO2KL082020-04-05T07:15:00Z33.27-116.3216.04.00010.029.811024TRUETRUEVFRMETAR159.02020-04-05 07:27:54=o(y5    3KLBE 050715Z AUTO 00000KT 10SM CLR 05/04 A3001 RMK AO2KLBE2020-04-05T07:15:00Z40.27-79.45.04.00010.030.008858TRUETRUEVFRMETAR361.02020-04-05 07:27:54Jn) 5     3KLBO 050715Z AUTO 00000KT 2 1/2SM BR OVC002 04/03 A3010 RMK AO2KLBO2020-04-05T07:15:00Z37.65-92.654.03.0002.530.100393TRUETRUEBRLIFRMETAR403.02020-04-05 07:27:54 <awv)M5       3PAVL 050715Z AUTO 16010KT 2SM -RA BKN004 OVC015 08/01 A2915 RMK AO2 RAB0654 P0000 T00830006 TSNOPAVL2020-04-05T07:15:00Z67.73-164.558.30.6160102.029.149607TRUETRUETRUE-RALIFR0.005METAR3.02020-04-05 07:27:54Nu) 5    3KJHN 050715Z AUTO 13011KT 10SM CLR 02/00 A2994 RMK AO2 T00160002KJHN2020-04-05T07:15:00Z37.58-101.731.60.21301110.029.940945TRUETRUEVFRMETAR1013.02020-04-05 07:27:54Ut)5     3KJSO 050715Z AUTO 00000KT 1/4SM FG OVC001 10/10 A3003 RMK AO2 T01020102KJSO2020-04-05T07:15:00Z31.87-95.2210.210.2000.2530.029528TRUETRUEFGLIFRMETAR206.02020-04-05 07:27:54>s(y5    3KJVW 050715Z AUTO 00000KT 10SM CLR 16/16 A2997 RMK AO2KJVW2020-04-05T07:15:00Z32.3-90.4216.016.00010.029.970472TRUETRUEVFRMETAR76.02020-04-05 07:27:54 &LyQz)5    3K3D2 050715Z AUTO 00000KT 10SM OVC010 M02/M03 A3017 RMK AO2 T10161028K3D22020-04-05T07:15:00Z45.13-87.18-1.6-2.80010.030.171259TRUETRUEMVFRSPECI234.02020-04-05 07:27:54My)5    3K2P2 050715Z AUTO 00000KT 10SM CLR M06/M06 A3019 RMK AO2 T10571058K2P22020-04-05T07:15:00Z45.38-86.92-5.7-5.80010.030.188976TRUETRUEVFRSPECI199.02020-04-05 07:27:54Tx)!5    3K1A9 050715Z AUTO 00000KT 10SM BKN100 OVC120 17/14 A2993 RMK AO2 T01680142K1A92020-04-05T07:15:00Z32.43-86.5216.814.20010.029.929134TRUETRUEVFRMETAR69.02020-04-05 07:27:54Tw)5    3K18H 050715Z AUTO 22013KT 10SM SCT005 SCT031 BKN120 26/23 A2983 RMK A01K18H2020-04-05T07:15:00Z26.13-92.0326.023.02201310.029.828741TRUETRUEVFRMETAR10.02020-04-05 07:27:54 *Y~@~(y5    3K3J7 050715Z AUTO 14004KT 10SM CLR 16/07 A2996 RMK AO2K3J72020-04-05T07:15:00Z33.6-83.1316.07.0140410.029.958662TRUETRUEVFRSPECI206.02020-04-05 07:27:54U})!5    3K3R7 050715Z AUTO 02003KT 10SM BKN017 OVC033 16/15 A2997 RMK AO2 T01620150K3R72020-04-05T07:15:00Z30.25-92.6716.215.020310.029.970472TRUETRUEMVFRMETAR7.02020-04-05 07:27:54K|)5    3K3LF 050715Z AUTO 01003KT 7SM OVC031 06/03 A3012 RMK AO2 T00560033K3LF2020-04-05T07:15:00Z39.17-89.675.63.31037.030.121063TRUETRUEVFRSPECI210.02020-04-05 07:27:54P{)5     3K3I2 050715Z AUTO 00000KT 10SM -RA CLR 11/07 A3001 RMK AO2 T01060072K3I22020-04-05T07:15:00Z38.92-82.110.67.20010.030.008858TRUETRUE-RAVFRSPECI196.02020-04-05 07:27:54 FgO)5    3K54J 050715Z AUTO 35006KT 10SM OVC110 18/14 A2993 RMK AO2 T01830140K54J2020-04-05T07:15:00Z30.73-86.1518.314.0350610.029.929134TRUETRUEVFRMETAR88.02020-04-05 07:27:54N)5    3K4V0 050715Z AUTO 12003KT 10SM CLR 02/M02 A2976 RMK AO2 T00241021K4V02020-04-05T07:15:00Z40.1-108.772.4-2.1120310.029.760826TRUETRUEVFRSPECI1608.02020-04-05 07:27:54Y)5     3K4S1 050715Z AUTO 17017G28KT 5SM -RA OVC014 09/08 A2950 RMK AO2 P0004K4S12020-04-05T07:15:00Z42.42-124.429.08.017017285.029.500984TRUETRUE-RAMVFR0.04METAR5.02020-04-05 07:27:544(w5      3K3T5 050715Z AUTO 35007KT 1SM BR OVC002 A3000 RMK AO2K3T52020-04-05T07:15:00Z29.9-96.9535071.030.0TRUETRUEBRLIFRSPECI99.02020-04-05 07:27:54 .iM)5    3K82C 050715Z AUTO 00000KT 10SM CLR M02/M03 A3016 RMK AO2 T10251035K82C2020-04-05T07:15:00Z43.83-90.13-2.5-3.50010.030.159449TRUETRUEVFRSPECI276.02020-04-05 07:27:54I) 5    3K7W4 050715Z AUTO 00000KT 10SM CLR 04/03 A3007 RMK AO1 T00380031K7W42020-04-05T07:15:00Z37.97-77.753.83.10010.030.070866TRUETRUEVFRMETAR106.02020-04-05 07:27:54?(y5    3K6A2 050715Z AUTO 00000KT 10SM CLR 15/05 A2996 RMK AO2K6A22020-04-05T07:15:00Z33.23-84.2715.05.00010.029.958662TRUETRUEVFRMETAR292.02020-04-05 07:27:54L)5    3K5R8 050715Z AUTO 00000KT 7SM OVC003 16/16 A2997 RMK AO2 T01610157K5R82020-04-05T07:15:00Z30.43-93.4716.115.7007.029.970472TRUETRUELIFRMETAR24.02020-04-05 07:27:54 3jB (}5    3KAEL 050715Z AUTO 00000KT 10SM CLR M03/M03 A3014 RMK AO2KAEL2020-04-05T07:15:00Z43.68-93.37-3.0-3.00010.030.138779TRUETRUEVFRSPECI383.02020-04-05 07:27:54N )5    3KAEG 050715Z AUTO 26009KT 10SM CLR 08/M08 A2993 RMK AO2 T00821085KAEG2020-04-05T07:15:00Z35.13-106.88.2-8.5260910.029.929134TRUETRUEVFRSPECI1779.02020-04-05 07:27:54C(5    3KAAS 050715Z AUTO 00000KT 10SM OVC090 13/10 A3006 RMK AO1KAAS2020-04-05T07:15:00Z37.35-85.3213.010.00010.030.059055TRUETRUEVFRMETAR281.02020-04-05 07:27:54G)5     3KACP 050715Z AUTO 08003KT 4SM BR OVC005 17/16 A2996 RMK AO2KACP2020-04-05T07:15:00Z30.75-92.6817.016.08034.029.958662TRUETRUEBRIFRMETAR33.02020-04-05 07:27:54 .RV)5     3KATP 050715Z AUTO 06023KT 3SM BR SCT009 BKN036 OVC060 21/20 A2988 RMK A01KATP2020-04-05T07:15:00Z27.2-90.0321.020.060233.029.878937TRUETRUEBRMVFRMETAR62.02020-04-05 07:27:54G )5     3KATW 050715Z AUTO 06005KT 5SM BR OVC002 00/00 A3014 RMK AO2KATW2020-04-05T07:15:00Z44.27-88.520.00.06055.030.138779TRUETRUEBRLIFRSPECI280.02020-04-05 07:27:54V )5     3KAXH 050715Z AUTO 01003KT 1 1/2SM BR OVC003 15/15 A2997 RMK AO2 T01470147KAXH2020-04-05T07:15:00Z29.52-95.4814.714.71031.529.970472TRUETRUEBRLIFRSPECI21.02020-04-05 07:27:54L )5    3KAPY 050715Z AUTO 31003KT 10SM OVC013 18/18 A3000 RMK AO2 T01810178KAPY2020-04-05T07:15:00Z26.97-99.2518.117.8310310.030.0TRUETRUEMVFRSPECI129.02020-04-05 07:27:54 @o_)-5     3KBBG 050715Z AUTO 10004KT 1/4SM OVC002 06/06 A3008 RMK AO2 VSBY M1/4V5 PWINO PNOKBBG2020-04-05T07:15:00Z36.53-93.26.06.010040.2530.079725TRUETRUETRUELIFRMETAR397.02020-04-05 07:27:54V)!5    3KCFJ 050715Z AUTO 34005KT 10SM BKN011 OVC041 03/02 A3009 RMK AO2 T00320016KCFJ2020-04-05T07:15:00Z39.98-86.923.21.6340510.030.088583TRUETRUEMVFRMETAR244.02020-04-05 07:27:54K)5   3KBBF 050715Z AUTO 10010G18KT 10SM FEW070 21/19 A2986 RMK A01KBBF2020-04-05T07:15:00Z27.83-96.0221.019.0100101810.029.861221TRUETRUEVFRSPECI36.02020-04-05 07:27:54:(q5   3KAZC 050715Z AUTO 07004KT 10SM 06/00 A2986 RMK AO2KAZC2020-04-05T07:15:00Z36.97-113.026.00.070410.029.861221TRUETRUESPECI1486.02020-04-05 07:27:54 )SD(5    3KGIC 050715Z AUTO 07003KT 10SM OVC060 04/01 A2955 RMK AO1KGIC2020-04-05T07:15:00Z45.95-116.124.01.070310.029.551182TRUETRUEVFRMETAR1009.02020-04-05 07:27:54A(5    3KGKT 050715Z AUTO 00000KT 10SM FEW120 11/08 A2998 RMK A01KGKT2020-04-05T07:15:00Z35.85-83.5311.08.00010.029.97933TRUETRUEVFRSPECI309.02020-04-05 07:27:54P)5     3KBEC 050715Z AUTO 13004KT 4SM BR OVC009 04/02 A3006 RMK AO2 T00370022KBEC2020-04-05T07:15:00Z37.7-97.223.72.213044.030.059055TRUETRUEBRIFRMETAR429.02020-04-05 07:27:54Q)5     3KBEA 050715Z AUTO 33005KT 3SM BR OVC005 13/13 A2998 RMK AO2 T01250125KBEA2020-04-05T07:15:00Z28.37-97.7812.512.533053.029.97933TRUETRUEBRIFRSPECI82.02020-04-05 07:27:54 +bU)5    3KMZG 050715Z AUTO 15007G15KT 130V200 6SM HZ OVC070 22/20 A2987 RMK A01KMZG2020-04-05T07:15:00Z27.73-96.1822.020.01507156.029.870079TRUETRUEHZVFRSPECI29.02020-04-05 07:27:54K)5    3KC29 050715Z AUTO 00000KT 10SM CLR 00/M03 A3016 RMK AO1 T00011026KC292020-04-05T07:15:00Z43.12-89.530.1-2.60010.030.159449TRUETRUEVFRSPECI283.02020-04-05 07:27:54C(}5    3KBWW 050715Z AUTO 07006KT 10SM CLR M02/M04 A2991 RMK AO2KBWW2020-04-05T07:15:00Z46.17-103.3-2.0-4.070610.029.911417TRUETRUEVFRSPECI910.02020-04-05 07:27:54O)5     3KBKD 050715Z AUTO 00000KT 4SM BR OVC005 08/08 A3006 RMK AO2 T00840084KBKD2020-04-05T07:15:00Z32.72-98.888.48.4004.030.059055TRUETRUEBRIFRSPECI392.02020-04-05 07:27:54 8e7)5    3KONX 050715Z AUTO 00000KT 10SM CLR 06/06 RMK AO2 T00620062KONX2020-04-05T07:15:00Z36.4-76.026.26.20010.0TRUETRUEVFRMETAR5.02020-04-05 07:27:54=(y5    3KOKV 050715Z AUTO 00000KT 10SM CLR 03/03 A3002 RMK AO2KOKV2020-04-05T07:15:00Z39.13-78.153.03.00010.030.02067TRUETRUEVFRMETAR222.02020-04-05 07:27:54M)5    3KOEL 050715Z AUTO 17009KT 10SM CLR 01/M03 A2998 RMK AO1 T00051031KOEL2020-04-05T07:15:00Z39.12-100.820.5-3.1170910.029.97933TRUETRUEVFRMETAR929.02020-04-05 07:27:54B(5    3KOEB 050715Z AUTO 00003KT 10SM OVC013 05/03 A3009 RMK AO2KOEB2020-04-05T07:15:00Z41.92-85.035.03.00310.030.088583TRUETRUEMVFRSPECI292.02020-04-05 07:27:54 SwQ")5    3KPEZ 050715Z AUTO 33003KT 10SM OVC010 12/11 A3003 RMK AO2 T01200106KPEZ2020-04-05T07:15:00Z28.95-98.5212.010.6330310.030.029528TRUETRUEMVFRSPECI132.02020-04-05 07:27:54V!)!5    3KPCD 050715Z AUTO 32005KT 10SM BKN017 OVC023 06/05 A3011 RMK AO2 T00610045KPCD2020-04-05T07:15:00Z37.87-89.876.14.5320510.030.109253TRUETRUEMVFRMETAR113.02020-04-05 07:27:54F (5    3KOZA 050715Z AUTO 18006KT 10SM OVC004 11/10 A3004 RMK AO2KOZA2020-04-05T07:15:00Z30.73-101.211.010.0180610.030.041338TRUETRUELIFRSPECI726.02020-04-05 07:27:54[)%5     3KOWP 050715Z AUTO 02003KT 1 1/4SM OVC002 06/06 A3009 RMK AO2 T00600055 PWINOKOWP2020-04-05T07:15:00Z36.18-96.156.05.52031.2530.088583TRUETRUETRUELIFRMETAR272.02020-04-05 07:27:54 +dE&)5    3KPWC 050715Z AUTO 00000KT 10SM SCT100 M06/M08 A3015 RMK AO2KPWC2020-04-05T07:15:00Z46.72-94.37-6.0-8.00010.030.15059TRUETRUEVFRSPECI395.02020-04-05 07:27:54O%)5    3KPVB 050715Z AUTO 01004KT 10SM OVC110 01/M02 A3014 RMK AO1 T00111025KPVB2020-04-05T07:15:00Z42.68-90.431.1-2.510410.030.138779TRUETRUEVFRSPECI313.02020-04-05 07:27:54A$(y5    3KPUJ 050715Z AUTO 32003KT 10SM CLR 16/04 A2996 RMK AO2KPUJ2020-04-05T07:15:00Z33.92-84.9316.04.0320310.029.958662TRUETRUEVFRMETAR393.02020-04-05 07:27:54O#)5    3KPMH 050715Z AUTO 36003KT 10SM OVC090 13/08 A3001 RMK AO2 T01260076KPMH2020-04-05T07:15:00Z38.83-82.8512.67.6360310.030.008858TRUETRUEVFRSPECI202.02020-04-05 07:27:54 .VO*)5    3KCFS 050715Z AUTO 34005KT 10SM OVC011 04/02 A3010 RMK AO2 T00410015KCFS2020-04-05T07:15:00Z43.47-83.454.11.5340510.030.100393TRUETRUEMVFRMETAR214.02020-04-05 07:27:54A)(5    3KCGC 050715Z AUTO 00000KT 10SM BKN120 17/14 A2992 RMK AO2KCGC2020-04-05T07:15:00Z28.87-82.5717.014.00010.029.920275TRUETRUEVFRSPECI3.02020-04-05 07:27:54R()5   3KCIC 050715Z AUTO 14016G19KT 10SM FEW012 OVC060 10/08 A2970 RMK AO1KCIC2020-04-05T07:15:00Z39.78-121.8310.08.0140161910.029.698818TRUETRUEVFRSPECI73.02020-04-05 07:27:54L') 5    3KPZZ 050715Z AUTO 06025G34KT 1SM BR OVC008 18/17 A2992 RMK A01KPZZ2020-04-05T07:15:00Z28.43-91.0218.017.06025341.029.920275TRUETRUEBRIFRMETAR5.02020-04-05 07:27:54 <UM.)5    3KRYV 050715Z AUTO 00000KT 10SM CLR M01/M01 A3014 RMK AO2 T10111011KRYV2020-04-05T07:15:00Z43.17-88.72-1.1-1.10010.030.138779TRUETRUEVFRSPECI254.02020-04-05 07:27:54B-(5    3KRGA 050715Z AUTO 00000KT 10SM OVC110 12/08 A3001 RMK AO2KRGA2020-04-05T07:15:00Z37.63-84.3312.08.00010.030.008858TRUETRUEVFRMETAR305.02020-04-05 07:27:54a,))5   3KRCV 050715Z AUTO 25010G18KT 10SM SCT065 BKN075 00/M10 A2994 RMK AO2 T10041101KRCV2020-04-05T07:15:00Z37.72-106.35-0.4-10.1250101810.029.940945TRUETRUEVFRSPECI2424.02020-04-05 07:27:54>+(y5    3KRBW 050715Z AUTO 00000KT 10SM CLR 13/11 A2998 RMK AO2KRBW2020-04-05T07:15:00Z32.92-80.6313.011.00010.029.97933TRUETRUEVFRMETAR31.02020-04-05 07:27:54 2hE2)5    3K14Y 050715Z AUTO 00000KT 10SM OVC100 M02/M04 A3012 RMK AO2K14Y2020-04-05T07:15:00Z45.9-94.87-2.0-4.00010.030.121063TRUETRUEVFRMETAR406.02020-04-05 07:27:54E1({5    3KSEZ 050715Z AUTO 18004KT 10SM CLR 12/M01 A2991 RMK AO2KSEZ2020-04-05T07:15:00Z34.85-111.7812.0-1.0180410.029.911417TRUETRUEVFRSPECI1473.02020-04-05 07:27:54D0(5    3KSCF 050715Z AUTO 10028KT 10SM OVC065 18/14 A2991 RMK A01KSCF2020-04-05T07:15:00Z29.12-91.8718.014.01002810.029.911417TRUETRUEVFRMETAR8.02020-04-05 07:27:54H/)5    3KSAA 050715Z AUTO 16006KT 10SM BKN110 02/M06 A2981 RMK AO2KSAA2020-04-05T07:15:00Z41.45-106.832.0-6.0160610.029.811024TRUETRUEVFRSPECI2138.02020-04-05 07:27:54 "TB6(}5    3KAUM 050715Z AUTO 00000KT 10SM CLR M01/M02 A3013 RMK AO2KAUM2020-04-05T07:15:00Z43.67-92.92-1.0-2.00010.030.129921TRUETRUEVFRMETAR375.02020-04-05 07:27:54M5)5    3K24A 050715Z AUTO 01003KT 10SM OVC085 11/04 A3004 RMK AO2 T01140041K24A2020-04-05T07:15:00Z35.32-83.211.44.110310.030.041338TRUETRUEVFRSPECI871.02020-04-05 07:27:54H4) 5    3K22N 050715Z AUTO 00000KT 10SM BKN042 OVC050 08/08 A3003 RMK AO2K22N2020-04-05T07:15:00Z40.8-75.778.08.00010.030.029528TRUETRUEVFRMETAR163.02020-04-05 07:27:54X3)5     3K1P1 050715Z AUTO 00000KT 1/2SM FZFG OVC001 00/00 A3001 RMK AO2 T10031004K1P12020-04-05T07:15:00Z43.78-71.75-0.3-0.4000.530.008858TRUETRUEFZFGLIFRMETAR154.02020-04-05 07:27:54 ._H:)5    3KCDA 050715Z AUTO 02003KT 10SM BKN036 02/00 A3000 RMK AO2 T00160000KCDA2020-04-05T07:15:00Z44.57-72.021.60.020310.030.0TRUETRUEVFRMETAR363.02020-04-05 07:27:54M9)5    3KBRG 050715Z AUTO 00000KT 10SM CLR 10/M09 A2993 RMK AO2 T00961095KBRG2020-04-05T07:15:00Z34.65-106.839.6-9.50010.029.929134TRUETRUEVFRSPECI1585.02020-04-05 07:27:54I8) 5    3KBCB 050715Z AUTO 00000KT 10SM CLR 08/05 A3010 RMK AO2 T00800051KBCB2020-04-05T07:15:00Z37.22-80.428.05.10010.030.100393TRUETRUEVFRSPECI650.02020-04-05 07:27:54L7)5    3KAVC 050715Z AUTO 00000KT 10SM SCT100 05/04 A3014 RMK AO2 T00460036KAVC2020-04-05T07:15:00Z36.68-78.034.63.60010.030.138779TRUETRUEVFRSPECI135.02020-04-05 07:27:54 EtG>) 5    3KSFQ 050715Z AUTO 00000KT 10SM CLR 04/04 A3009 RMK AO2 T00410040KSFQ2020-04-05T07:15:00Z36.68-76.64.14.00010.030.088583TRUETRUEVFRMETAR22.02020-04-05 07:27:54O=)5    3KCNB 050715Z AUTO 09007KT 10SM OVC110 00/M02 A3008 RMK AO2 T00001020KCNB2020-04-05T07:15:00Z44.73-96.270.0-2.090710.030.079725TRUETRUEVFRMETAR364.02020-04-05 07:27:54K<) 5    3KCLK 050715Z AUTO 14003KT 10SM SCT009 OVC031 05/02 A3008 RMK AO2KCLK2020-04-05T07:15:00Z35.53-98.935.02.0140310.030.079725TRUETRUEVFRSPECI492.02020-04-05 07:27:545;(o5   3KCKM 050715Z AUTO 00000KT 8SM 14/14 A3003 RMK A01KCKM2020-04-05T07:15:00Z34.3-90.5214.014.0008.030.029528TRUETRUESPECI53.02020-04-05 07:27:54 5q>B(y5    3KTPF 050715Z AUTO 00000KT 10SM CLR 21/18 A2992 RMK AO2KTPF2020-04-05T07:15:00Z27.92-82.4521.018.00010.029.920275TRUETRUEVFRMETAR3.02020-04-05 07:27:54MA) 5    3KTMA 050715Z AUTO 12003KT 10SM CLR 18/13 A2992 RMK AO2 T01760125KTMA2020-04-05T07:15:00Z31.43-83.4817.612.5120310.029.920275TRUETRUEVFRSPECI109.02020-04-05 07:27:54>@(y5    3KTDF 050715Z AUTO 00000KT 10SM CLR 06/05 A3009 RMK AO2KTDF2020-04-05T07:15:00Z36.28-78.986.05.00010.030.088583TRUETRUEVFRMETAR186.02020-04-05 07:27:54E?)5     3KSMS 050715Z AUTO 00000KT 10SM -DZ CLR 10/09 A3001 RMK AO2KSMS2020-04-05T07:15:00Z34.0-80.3710.09.00010.030.008858TRUETRUE-DZVFRMETAR56.02020-04-05 07:27:54 (_JF) 5    3KCLS 050715Z AUTO 03005KT 10SM BKN039 OVC046 06/06 A2962 RMK AO2KCLS2020-04-05T07:15:00Z46.68-122.986.06.030510.029.619095TRUETRUEVFRSPECI54.02020-04-05 07:27:54HE) 5    3KCJR 050715Z AUTO 00000KT 10SM CLR 04/03 A3007 RMK AO2 T00380030KCJR2020-04-05T07:15:00Z38.53-77.873.83.00010.030.070866TRUETRUEVFRMETAR97.02020-04-05 07:27:54CD(5    3KCEY 050715Z AUTO 33008KT 10SM OVC008 09/07 A3007 RMK AO1KCEY2020-04-05T07:15:00Z36.67-88.379.07.0330810.030.070866TRUETRUEIFRMETAR176.02020-04-05 07:27:54RC) 5     3KCBK 050715Z AUTO 15013KT 10SM BKN120 02/M03 A2997 RMK AO2 PWINOKCBK2020-04-05T07:15:00Z39.43-101.052.0-3.01501310.029.970472TRUETRUETRUEVFRMETAR971.02020-04-05 07:27:54 /ZAJ({5    3KCWA 050715Z AUTO 01007KT 10SM CLR 00/M07 A3016 RMK AO2KCWA2020-04-05T07:15:00Z44.78-89.670.0-7.010710.030.159449TRUETRUEVFRSPECI389.02020-04-05 07:27:54II) 5    3KCTZ 050715Z AUTO 00000KT 10SM CLR 10/09 A3007 RMK AO2 T01000090KCTZ2020-04-05T07:15:00Z34.98-78.3710.09.00010.030.070866TRUETRUEVFRMETAR45.02020-04-05 07:27:54OH)5    3KCPU 050715Z AUTO 15007KT 10SM OVC035 10/07 A2978 RMK AO2 T00950065KCPU2020-04-05T07:15:00Z38.15-120.659.56.5150710.029.778543TRUETRUEVFRMETAR404.02020-04-05 07:27:54KG) 5    3KCMD 050715Z AUTO 00000KT 10SM CLR 14/11 A2999 RMK AO2 T01360105KCMD2020-04-05T07:15:00Z34.27-86.8513.610.50010.029.991142TRUETRUEVFRMETAR294.02020-04-05 07:27:54 ;qJN)5    3KDNV 050715Z AUTO 00000KT 10SM OVC100 04/03 A3012 RMK AO2 T00370030KDNV2020-04-05T07:15:00Z40.2-87.63.73.00010.030.121063TRUETRUEVFRSPECI212.02020-04-05 07:27:54BM(5    3KDLP 050715Z AUTO 00000KT 10SM OVC070 23/13 A2995 RMK A01KDLP2020-04-05T07:15:00Z29.12-89.5523.013.00010.029.949802TRUETRUEVFRMETAR36.02020-04-05 07:27:54DL(5    3KCZT 050715Z AUTO 00000KT 10SM OVC011 13/13 A3003 RMK AO2KCZT2020-04-05T07:15:00Z28.52-99.8213.013.00010.030.029528TRUETRUEMVFRSPECI183.02020-04-05 07:27:54?K(y5    3KCZL 050715Z AUTO 00000KT 10SM CLR 12/10 A2998 RMK AO2KCZL2020-04-05T07:15:00Z34.47-84.9312.010.00010.029.97933TRUETRUEVFRMETAR195.02020-04-05 07:27:54 8eNR)5    3KD95 050715Z AUTO 34006KT 10SM OVC008 04/04 A3009 RMK AO2 T00430041KD952020-04-05T07:15:00Z43.07-83.274.34.1340610.030.088583TRUETRUEIFRMETAR255.02020-04-05 07:27:54LQ)5    3KD25 050715Z AUTO 00000KT 10SM CLR M08/M08 A3015 RMK AO2 T10801080KD252020-04-05T07:15:00Z46.12-89.88-8.0-8.00010.030.15059TRUETRUEVFRMETAR491.02020-04-05 07:27:54MP)5     3KECU 050715Z AUTO 09004KT 3/4SM BR OVC003 11/11 A3007 RMK AO2KECU2020-04-05T07:15:00Z29.95-100.1711.011.09040.7530.070866TRUETRUEBRLIFRSPECI725.02020-04-05 07:27:54BO(5      3KDSF 050715Z AUTO 03014KT 1/4SM FZFG OVC004 A2995 RMK A01KDSF2020-04-05T07:15:00Z28.35-88.2730140.2529.949802TRUETRUEFZFGLIFRSPECI130.02020-04-05 07:27:54 (VVV)!5    3KGEV 050715Z AUTO 31003KT 10SM BKN080 OVC110 11/02 A3005 RMK AO2 T01110019KGEV2020-04-05T07:15:00Z36.43-81.4211.11.9310310.030.050198TRUETRUEVFRSPECI969.02020-04-05 07:27:54OU)5    3KGYL 050715Z AUTO 11003KT 10SM CLR M02/M07 A3013 RMK AO2 T10221070KGYL2020-04-05T07:15:00Z44.77-94.08-2.2-7.0110310.030.129921TRUETRUEVFRMETAR302.02020-04-05 07:27:54LT)5    3KFSO 050715Z AUTO 13003KT 10SM OVC110 05/03 A3001 RMK AO2 T00490031KFSO2020-04-05T07:15:00Z44.93-73.14.93.1130310.030.008858TRUETRUEVFRMETAR70.02020-04-05 07:27:54RS)5    3KDRM 050715Z AUTO 32006KT 10SM OVC011 M01/M03 A3012 RMK AO2 T10091032KDRM2020-04-05T07:15:00Z46.0-83.75-0.9-3.2320610.030.121063TRUETRUEMVFRMETAR204.02020-04-05 07:27:54 1nHZ) 5    3KHZL 050715Z AUTO 00000KT 10SM SCT041 OVC048 08/06 A3004 RMK AO2KHZL2020-04-05T07:15:00Z40.98-76.08.06.00010.030.041338TRUETRUEVFRMETAR489.02020-04-05 07:27:54KY)5    3KIIB 050715Z AUTO 00000KT CLR M01/M04 A3014 RMK AO2 T10111044 PWINOKIIB2020-04-05T07:15:00Z42.45-91.95-1.1-4.40030.138779TRUETRUETRUEMETAR298.02020-04-05 07:27:54=X(y5    3KIXA 050715Z AUTO 00000KT 10SM CLR 03/03 A3009 RMK AO2KIXA2020-04-05T07:15:00Z36.33-77.633.03.00010.030.088583TRUETRUEVFRSPECI44.02020-04-05 07:27:54IW) 5    3KHNZ 050715Z AUTO 00000KT 10SM CLR 06/05 A3008 RMK AO2 T00590050KHNZ2020-04-05T07:15:00Z36.37-78.535.95.00010.030.079725TRUETRUEVFRSPECI161.02020-04-05 07:27:54 0bO^)5   3KEMK 050715Z AUTO 07028G34KT 7SM FEW015 BKN065 22/18 A2987 RMK A01KEMK2020-04-05T07:15:00Z27.82-94.3222.018.07028347.029.870079TRUETRUEVFRSPECI26.02020-04-05 07:27:54B](}5    3KELO 050715Z AUTO 00000KT 10SM CLR M08/M09 A3014 RMK AO2KELO2020-04-05T07:15:00Z47.82-91.82-8.0-9.00010.030.138779TRUETRUEVFRSPECI443.02020-04-05 07:27:54H\)5   3KEIR 050715Z AUTO 07007G17KT 8SM OVC010 17/17 A2994 RMK A01KEIR2020-04-05T07:15:00Z28.63-91.4817.017.0707178.029.940945TRUETRUEMVFRMETAR28.02020-04-05 07:27:54J[) 5    3KHRJ 050715Z AUTO 08003KT 10SM CLR 10/08 A3007 RMK AO2 T01040075KHRJ2020-04-05T07:15:00Z35.38-78.7310.47.580310.030.070866TRUETRUEVFRSPECI60.02020-04-05 07:27:54 '>n'?c(}5    3KMYJ 050715Z AUTO 00000KT 7SM OVC060 03/02 A3012 RMK AO2KMYJ2020-04-05T07:15:00Z39.15-91.823.02.0007.030.121063TRUETRUEVFRSPECI251.02020-04-05 07:27:549b(y5    3KMNI 050715Z AUTO 00000KT 10SM CLR 10/09 A3000 RMK AO2KMNI2020-04-05T07:15:00Z33.58-80.2210.09.00010.030.0TRUETRUEVFRSPECI32.02020-04-05 07:27:54=a(y5    3KLUA 050715Z AUTO 00000KT 10SM CLR 05/04 A3004 RMK AO2KLUA2020-04-05T07:15:00Z38.67-78.55.04.00010.030.041338TRUETRUEVFRSPECI275.02020-04-05 07:27:54J`)5    3KLDJ 050715Z AUTO 00000KT 10SM SCT050 07/05 A3003 RMK AO2 T00730048KLDJ2020-04-05T07:15:00Z40.62-74.257.34.80010.030.029528TRUETRUEVFRMETAR7.02020-04-05 07:27:54<_)5     3KJFZ 050715Z AUTO 00000KT 10SM SCT075 BKN100 A3004 RMK AO2KJFZ2020-04-05T07:15:00Z37.07-81.80010.030.041338TRUETRUEVFRSPECI809.02020-04-05 07:27:54 9rPg)5    3KPEX 050715Z AUTO 00000KT 10SM SCT110 M02/M03 A3013 RMK AO2 T10241028KPEX2020-04-05T07:15:00Z45.37-94.73-2.4-2.80010.030.129921TRUETRUEVFRMETAR360.02020-04-05 07:27:54Mf)5    3KPDC 050715Z AUTO 00000KT 10SM CLR M01/M04 A3016 RMK AO2 T10131041KPDC2020-04-05T07:15:00Z43.02-91.12-1.3-4.10010.030.159449TRUETRUEVFRMETAR201.02020-04-05 07:27:54Ae(5    3KPCZ 050715Z AUTO 10SM CLR 00/M05 A3016 RMK AO2 T10011050KPCZ2020-04-05T07:15:00Z44.33-89.02-0.1-5.010.030.159449TRUETRUEVFRMETAR252.02020-04-05 07:27:54Ad(}5    3KONA 050715Z AUTO 00000KT 10SM CLR M01/M01 A3018 RMK AO2KONA2020-04-05T07:15:00Z44.07-91.7-1.0-1.00010.030.180119TRUETRUEVFRMETAR200.02020-04-05 07:27:54 1Z\k)'5     3KRZT 050715Z AUTO 34004KT 10SM SCT065 SCT075 OVC085 11/08 A3002 RMK AO2 PWINOKRZT2020-04-05T07:15:00Z39.43-83.0211.08.0340410.030.02067TRUETRUETRUEVFRMETAR221.02020-04-05 07:27:54Mj) 5    3KS33 050715Z AUTO 35003KT 10SM BKN014 OVC022 03/02 A2961 RMK AO2KS332020-04-05T07:15:00Z44.67-121.153.02.0350310.029.610237TRUETRUEMVFRMETAR743.02020-04-05 07:27:54Qi)5    3KSJX 050715Z AUTO 36003KT 10SM SCT013 M03/M04 A3018 RMK AO2 T10271042KSJX2020-04-05T07:15:00Z45.7-85.57-2.7-4.2360310.030.180119TRUETRUEVFRMETAR204.02020-04-05 07:27:54Ih) 5    3KSUT 050715Z AUTO 07004KT 10SM CLR 13/09 A3004 RMK AO2 T01260090KSUT2020-04-05T07:15:00Z33.93-78.0812.69.070410.030.041338TRUETRUEVFRSPECI8.02020-04-05 07:27:54 +YGo) 5    3KTTA 050715Z AUTO 00000KT 10SM CLR 08/07 A3006 RMK AO2 T00800074KTTA2020-04-05T07:15:00Z35.58-79.18.07.40010.030.059055TRUETRUEVFRSPECI75.02020-04-05 07:27:54On)5    3KTVY 050715Z AUTO 19009KT 10SM SCT095 SCT120 12/M02 A2967 RMK AO2KTVY2020-04-05T07:15:00Z40.62-112.3512.0-2.0190910.029.66929TRUETRUEVFRMETAR1317.02020-04-05 07:27:54Lm) 5    3KRCZ 050715Z AUTO 11006KT 10SM CLR 12/05 A3003 RMK AO2 T01160052KRCZ2020-04-05T07:15:00Z34.88-79.7711.65.2110610.030.029528TRUETRUEVFRSPECI109.02020-04-05 07:27:54Ol)5    3KROS 050715Z AUTO 00000KT 10SM OVC120 M03/M06 A3016 RMK AO2 T10301062KROS2020-04-05T07:15:00Z45.7-92.95-3.0-6.20010.030.159449TRUETRUEVFRMETAR281.02020-04-05 07:27:54 8cGs) 5    3KW96 050715Z AUTO 00000KT 10SM CLR 05/05 A3008 RMK AO1 T00450045KW962020-04-05T07:15:00Z37.5-77.124.54.50010.030.079725TRUETRUEVFRSPECI37.02020-04-05 07:27:54Ir) 5    3KW31 050715Z AUTO 00000KT 10SM CLR 05/05 A3008 RMK AO1 T00540052KW312020-04-05T07:15:00Z36.95-78.185.45.20010.030.079725TRUETRUEVFRSPECI162.02020-04-05 07:27:54Oq)5    3KSVC 050715Z AUTO 28006KT 10SM CLR 07/M05 A2999 RMK AO2 T00681050KSVC2020-04-05T07:15:00Z32.63-108.156.8-5.0280610.029.991142TRUETRUEVFRMETAR1659.02020-04-05 07:27:54Bp({5    3KSXK 050715Z AUTO 18005KT 10SM CLR 00/M01 A3008 RMK AO2KSXK2020-04-05T07:15:00Z42.98-96.170.0-1.0180510.030.079725TRUETRUEVFRMETAR430.02020-04-05 07:27:54 1_Ew({5    3KFWZ 050715Z AUTO 25014KT 10SM CLR 00/M07 A2970 RMK AO2KFWZ2020-04-05T07:15:00Z42.52-108.780.0-7.02501410.029.698818TRUETRUEVFRSPECI2588.02020-04-05 07:27:54Kv) 5    3KFIN 050715Z AUTO 10004KT 10SM CLR 20/19 A2991 RMK AO2 T02000185KFIN2020-04-05T07:15:00Z29.47-81.220.018.5100410.029.911417TRUETRUEVFRMETAR10.02020-04-05 07:27:54Lu)5    3KFFX 050715Z AUTO 00000KT 10SM CLR M01/M02 A3013 RMK AO2 T10101018KFFX2020-04-05T07:15:00Z43.43-86.0-1.0-1.80010.030.129921TRUETRUEVFRSPECI236.02020-04-05 07:27:54It) 5    3KEYF 050715Z AUTO 08004KT 10SM CLR 10/09 A3005 RMK AO2 T01000090KEYF2020-04-05T07:15:00Z34.6-78.5810.09.080410.030.050198TRUETRUEVFRMETAR41.02020-04-05 07:27:54 6hE{)5     3KGMJ 050715Z AUTO 00000KT 5SM BR OVC003 05/05 A3009 RMK AO2KGMJ2020-04-05T07:15:00Z36.6-94.735.05.0005.030.088583TRUETRUEBRLIFRMETAR254.02020-04-05 07:27:54Mz)5    3KGLW 050715Z AUTO 00000KT 10SM BKN100 11/09 A3003 RMK AO2 T01140087KGLW2020-04-05T07:15:00Z37.03-85.9511.48.70010.030.029528TRUETRUEVFRMETAR218.02020-04-05 07:27:54Hy)5     3KGHB 050715Z AUTO 08026KT 2SM HZ OVC013 20/18 A2991 RMK A01KGHB2020-04-05T07:15:00Z27.83-91.9820.018.080262.029.911417TRUETRUEHZIFRMETAR30.02020-04-05 07:27:54Dx(}5    3KFXY 050715Z AUTO 13003KT 10SM CLR M02/M02 A3013 RMK AO2KFXY2020-04-05T07:15:00Z43.23-93.62-2.0-2.0130310.030.129921TRUETRUEVFRSPECI375.02020-04-05 07:27:54 9`M) 5    3KHQG 050715Z AUTO 13010KT 10SM CLR 02/00 A2996 RMK AO2 T00150000KHQG2020-04-05T07:15:00Z37.17-101.371.50.01301010.029.958662TRUETRUEVFRMETAR956.02020-04-05 07:27:54E~)5     3KHFJ 050715Z AUTO 00000KT 3SM BR OVC003 05/05 A3006 RMK AO2KHFJ2020-04-05T07:15:00Z36.9-94.025.05.0003.030.059055TRUETRUEBRLIFRMETAR401.02020-04-05 07:27:54S})5     3KGYB 050715Z AUTO 01006KT 3/4SM BR OVC002 08/08 A3002 RMK AO2 T00820081KGYB2020-04-05T07:15:00Z30.17-96.988.28.11060.7530.02067TRUETRUEBRLIFRSPECI148.02020-04-05 07:27:54A|(}5    3KGUL 050715Z AUTO 06029KT 7SM OVC013 21/19 A2985 RMK A01KGUL2020-04-05T07:15:00Z27.3-93.5321.019.060297.029.84941TRUETRUEMVFRSPECI30.02020-04-05 07:27:54 'KwP)5     3KJLN 050715Z AUTO 06004KT 6SM BR OVC004 06/04 A3008 RMK AO2 T00560044KJLN2020-04-05T07:15:00Z37.15-94.55.64.46046.030.079725TRUETRUEBRLIFRMETAR299.02020-04-05 07:27:54N)5     3KIKT 050715Z AUTO 2 1/2SM HZ SCT023 BKN041 OVC055 16/12 A2994 RMK A01KIKT2020-04-05T07:15:00Z28.52-88.2816.012.02.529.940945TRUETRUEHZIFRSPECI25.02020-04-05 07:27:54V)5     3KIKG 050715Z AUTO 33006KT 2 1/2SM BR OVC003 14/13 A2998 RMK AO2 T01420133KIKG2020-04-05T07:15:00Z27.55-98.0314.213.333062.529.97933TRUETRUEBRLIFRSPECI40.02020-04-05 07:27:54S)5    3KHSB 050715Z AUTO 01003KT 7SM BKN012 OVC030 08/08 A3009 RMK AO2 T00800075KHSB2020-04-05T07:15:00Z37.82-88.558.07.51037.030.088583TRUETRUEMVFRSPECI121.02020-04-05 07:27:54 .WK) 5    3KLKU 050715Z AUTO 20003KT 10SM CLR 04/03 A3012 RMK AO2 T00380035KLKU2020-04-05T07:15:00Z38.02-77.973.83.5200310.030.121063TRUETRUEVFRMETAR150.02020-04-05 07:27:548(s5   3KLJF 050715Z AUTO 00000KT 10SM 00/M03 A3014 RMK AO2KLJF2020-04-05T07:15:00Z45.1-94.520.0-3.00010.030.138779TRUETRUESPECI348.02020-04-05 07:27:54Q)5     3KLHB 050715Z AUTO 34007KT 2SM BR OVC003 10/10 A3005 RMK AO2 T00980095KLHB2020-04-05T07:15:00Z30.87-96.629.89.534072.030.050198TRUETRUEBRLIFRSPECI87.02020-04-05 07:27:54L) 5     3KJSV 050715Z AUTO 26003KT 1 3/4SM BR OVC002 08/07 A3008 RMK AO2KJSV2020-04-05T07:15:00Z35.43-94.88.07.026031.7530.079725TRUETRUEBRLIFRMETAR161.02020-04-05 07:27:54 3sC (}5    3K08D 050715Z AUTO 27005KT 10SM CLR M06/M06 A2993 RMK AO2K08D2020-04-05T07:15:00Z48.3-102.4-6.0-6.0270510.029.929134TRUETRUEVFRMETAR684.02020-04-05 07:27:54U )5    3K06D 050715Z AUTO 18007KT 9SM SCT016 BKN022 OVC041 M05/M05 A2996 RMK AO2K06D2020-04-05T07:15:00Z48.88-99.62-5.0-5.018079.029.958662TRUETRUEMVFRMETAR556.02020-04-05 07:27:54: (u5    3LMML 050715Z 31014KT 280V340 CAVOK 15/09 Q1017 NOSIGLMML2020-04-05T07:15:00Z35.8514.4715.09.0310146.2130.029528TRUEVFRMETAR91.02020-04-05 07:27:54G)5   3KLRJ 050715Z AUTO 17006G12KT 10SM CLR 01/M03 A3008 RMK AO2KLRJ2020-04-05T07:15:00Z42.77-96.21.0-3.017061210.030.079725TRUETRUEVFRSPECI365.02020-04-05 07:27:54 /^V)!5     3K1R7 050715Z AUTO 00000KT 7SM -DZ FEW047 BKN075 OVC110 16/16 A2999 RMK AO2K1R72020-04-05T07:15:00Z31.6-90.4216.016.0007.029.991142TRUETRUE-DZVFRMETAR149.02020-04-05 07:27:54=(5    3K0VG 050715Z AUTO 00000KT 10SM BKN120 10/08 A3000 RMK AO2K0VG2020-04-05T07:15:00Z36.65-83.2210.08.00010.030.0TRUETRUEVFRMETAR430.02020-04-05 07:27:54K ) 5    3K0S9 050715Z AUTO 31004KT 10SM BKN065 OVC090 07/01 A2966 RMK AO2K0S92020-04-05T07:15:00Z48.05-122.827.01.0310410.029.660433TRUETRUEVFRMETAR33.02020-04-05 07:27:54K ) 5    3K0V4 050715Z AUTO 15006KT 10SM CLR 06/06 A3008 RMK AO1 T00600060K0V42020-04-05T07:15:00Z37.15-79.026.06.0150610.030.079725TRUETRUEVFRMETAR182.02020-04-05 07:27:54 %_K)5    3KMDZ 050715Z AUTO 00000KT 10SM CLR M04/M04 A3014 RMK AO2 T10361045KMDZ2020-04-05T07:15:00Z45.1-90.3-3.6-4.50010.030.138779TRUETRUEVFRSPECI448.02020-04-05 07:27:54G)5    3K20U 050715Z AUTO 00000KT 10SM OVC075 M05/M05 A2992 RMK AO2K20U2020-04-05T07:15:00Z46.93-103.98-5.0-5.00010.029.920275TRUETRUEVFRMETAR840.02020-04-05 07:27:54@(y5    3KMDS 050715Z AUTO 18008KT 10SM CLR 00/00 A3005 RMK AO2KMDS2020-04-05T07:15:00Z44.02-97.080.00.0180810.030.050198TRUETRUEVFRSPECI524.02020-04-05 07:27:54U)5     3KMDJ 050715Z AUTO 09020KT 2SM BR SCT009 BKN036 OVC055 16/16 A2997 RMK A01KMDJ2020-04-05T07:15:00Z28.65-89.816.016.090202.029.970472TRUETRUEBRIFRMETAR31.02020-04-05 07:27:54 *aQ)5    3KMGN 050715Z AUTO 00000KT 10SM OVC013 M02/M03 A3016 RMK AO2 T10211032KMGN2020-04-05T07:15:00Z45.43-84.92-2.1-3.20010.030.159449TRUETRUEMVFRSPECI209.02020-04-05 07:27:54E) 5   3KMGG 050715Z AUTO 00000KT 10SM M02/M04 A3015 RMK AO2 T10181045KMGG2020-04-05T07:15:00Z45.23-93.98-1.8-4.50010.030.15059TRUETRUESPECI313.02020-04-05 07:27:54C(}5    3K2D5 050715Z AUTO 09005KT 10SM CLR M04/M04 A2999 RMK AO2K2D52020-04-05T07:15:00Z46.17-98.08-4.0-4.090510.029.991142TRUETRUEVFRMETAR407.02020-04-05 07:27:54P)5    3K24J 050715Z AUTO 00000KT 10SM FEW060 FEW080 BKN120 17/12 A2992 RMK A01K24J2020-04-05T07:15:00Z30.3-83.0317.012.00010.029.920275TRUETRUEVFRMETAR32.02020-04-05 07:27:54 )cM)5    3KMRT 050715Z AUTO 02006KT 10SM OVC008 09/07 A3004 RMK AO2 T00850067KMRT2020-04-05T07:15:00Z40.22-83.358.56.720610.030.041338TRUETRUEIFRSPECI312.02020-04-05 07:27:54L) 5    3KMRN 050715Z AUTO 36004KT 10SM CLR 10/05 A3004 RMK AO2 T01000049KMRN2020-04-05T07:15:00Z35.82-81.6210.04.9360410.030.041338TRUETRUEVFRMETAR387.02020-04-05 07:27:54@(y5    3KMLJ 050715Z AUTO 00000KT 10SM CLR 13/10 A2997 RMK AO2KMLJ2020-04-05T07:15:00Z33.15-83.2313.010.00010.029.970472TRUETRUEVFRMETAR117.02020-04-05 07:27:54Q)5    3KMIS 050715Z AUTO 03004KT 10SM SCT075 BKN090 OVC110 21/13 A2996 RMK A01KMIS2020-04-05T07:15:00Z29.3-88.8521.013.030410.029.958662TRUETRUEVFRMETAR32.02020-04-05 07:27:54 -NC(5    3KVOA 050715Z AUTO 09006KT 10SM OVC075 24/14 A2993 RMK A01KVOA2020-04-05T07:15:00Z29.23-87.7824.014.090610.029.929134TRUETRUEVFRMETAR53.02020-04-05 07:27:54C(5    3KVKY 050715Z AUTO 08004KT 10SM OVC070 22/13 A2997 RMK A01KVKY2020-04-05T07:15:00Z29.25-88.4322.013.080410.029.970472TRUETRUEVFRMETAR32.02020-04-05 07:27:54Y)!5   3KVAF 050715Z AUTO 08025G31KT 10SM BKN014 BKN020 BKN050 21/18 A2987 RMK A01KVAF2020-04-05T07:15:00Z27.35-94.6321.018.080253110.029.870079TRUETRUEMVFRSPECI46.02020-04-05 07:27:54M) 5     3KUES 050715Z AUTO 05004KT 1/2SM FZFG OVC002 00/00 A3016 RMK AO2KUES2020-04-05T07:15:00Z43.05-88.250.00.05040.530.159449TRUETRUEFZFGLIFRSPECI278.02020-04-05 07:27:54 6lJ#) 5    3KXPY 050715Z AUTO 13008KT 10SM BKN065 OVC095 17/14 A2996 RMK A01KXPY2020-04-05T07:15:00Z29.12-90.217.014.0130810.029.958662TRUETRUEVFRMETAR2.02020-04-05 07:27:54O")5    3KX60 050715Z AUTO 32003KT 10SM SCT120 17/14 A2992 RMK AO2 T01700137KX602020-04-05T07:15:00Z29.35-82.4717.013.7320310.029.920275TRUETRUEVFRMETAR23.02020-04-05 07:27:54D!(}5     3KWWR 050715Z AUTO 11005KT 5SM BR CLR 00/00 A3005 RMK AO2KWWR2020-04-05T07:15:00Z36.45-99.520.00.011055.030.050198TRUETRUEBRMVFRMETAR667.02020-04-05 07:27:54D (}5    3KVQT 050715Z AUTO 10021KT 8SM OVC011 19/18 A2992 RMK A01KVQT2020-04-05T07:15:00Z28.27-92.2719.018.0100218.029.920275TRUETRUEMVFRSPECI25.02020-04-05 07:27:54 ,aH') 5    3KAFK 050715Z AUTO 00000KT 10SM CLR 02/02 A3011 RMK AO2 T00210020KAFK2020-04-05T07:15:00Z40.6-95.852.12.00010.030.109253TRUETRUEVFRMETAR354.02020-04-05 07:27:54Q&)5     3KADM 050715Z AUTO 02004KT 4SM BR OVC004 06/06 A3008 RMK AO2 T00580058KADM2020-04-05T07:15:00Z34.28-97.025.85.82044.030.079725TRUETRUEBRLIFRSPECI232.02020-04-05 07:27:54E%) 5    3CWPF 050715Z AUTO 35001KT 06/M00 RMK AO1 SLP044 T00591002 57005CWPF2020-04-05T07:15:00Z48.43-123.435.9-0.235011004.4TRUETRUE-0.5METAR12.02020-04-05 07:27:54N$)5   3CYTR 050715Z 25002KT 15SM FEW003 OVC026 05/05 A3001 RMK SC2SC6 SLP164CYTR2020-04-05T07:15:00Z44.12-77.525.05.0250215.030.0088581016.4MVFRSPECI86.02020-04-05 07:27:54 ,VJ+) 5    3KAJR 050715Z AUTO 08003KT 10SM CLR 13/07 A2997 RMK AO2 T01280066KAJR2020-04-05T07:15:00Z34.5-83.5512.86.680310.029.970472TRUETRUEVFRSPECI441.02020-04-05 07:27:54A*({5    3K42J 050715Z AUTO 00000KT 10SM 18/16 A2992 RMK A01 TSNOK42J2020-04-05T07:15:00Z29.85-82.0518.016.00010.029.920275TRUETRUETRUEMETAR60.02020-04-05 07:27:54P))5     3KAJG 050715Z AUTO 02004KT 5SM BR OVC006 08/07 A3008 RMK AO2 T00800071KAJG2020-04-05T07:15:00Z38.62-87.738.07.12045.030.079725TRUETRUEBRIFRSPECI131.02020-04-05 07:27:54N()5    3KAIG 050715Z AUTO 36004KT 10SM CLR M03/M07 A3015 RMK AO2 T10301070KAIG2020-04-05T07:15:00Z45.15-89.12-3.0-7.0360410.030.15059TRUETRUEVFRSPECI464.02020-04-05 07:27:54 4\xF/(5    3KL18 050715Z AUTO 22004KT 10SM OVC037 12/10 A2993 RMK AO2KL182020-04-05T07:15:00Z33.35-117.2512.010.0220410.029.929134TRUETRUEVFRSPECI216.02020-04-05 07:27:54^.)'5     3KLHM 050715Z AUTO 14007KT 10SM SCT036 BKN047 OVC055 10/10 A2973 RMK AO1 P0005KLHM2020-04-05T07:15:00Z38.92-121.3510.010.0140710.029.731298TRUETRUEVFR0.05SPECI37.02020-04-05 07:27:54R-)5    3KLNC 050715Z AUTO 00000KT 7SM BKN013 OVC018 09/07 A3007 RMK AO2 T00850069KLNC2020-04-05T07:15:00Z32.58-96.728.56.9007.030.070866TRUETRUEMVFRSPECI153.02020-04-05 07:27:54F,) 5    3KJXI 050715Z AUTO 32004KT 3SM BR 10/09 A3003 RMK AO2 T00950092KJXI2020-04-05T07:15:00Z32.7-94.959.59.232043.030.029528TRUETRUEBRSPECI127.02020-04-05 07:27:54 2d83(k5    3KALM 050715Z AUTO 10SM CLR 09/M04 A2992 RMK AO2KALM2020-04-05T07:15:00Z32.82-105.979.0-4.010.029.920275TRUETRUEVFRSPECI1279.02020-04-05 07:27:54L2) 5    3KALX 050715Z AUTO 36003KT 10SM CLR 17/09 A2994 RMK AO2 T01740090KALX2020-04-05T07:15:00Z32.92-85.9717.49.0360310.029.940945TRUETRUEVFRSPECI198.02020-04-05 07:27:54H1) 5    3KJYL 050715Z AUTO 00000KT 10SM CLR 13/11 A2998 RMK AO2 T01290110KJYL2020-04-05T07:15:00Z32.65-81.612.911.00010.029.97933TRUETRUEVFRSPECI57.02020-04-05 07:27:54H0)5    3KKNB 050715Z AUTO 10005KT 10SM SCT075 07/M01 A2987 RMK A01KKNB2020-04-05T07:15:00Z37.02-112.537.0-1.0100510.029.870079TRUETRUEVFRMETAR1484.02020-04-05 07:27:54 -ZL7)5    3KFWC 050715Z AUTO 00000KT 10SM OVC009 07/07 A3009 RMK AO1 T00740067KFWC2020-04-05T07:15:00Z38.38-88.427.46.70010.030.088583TRUETRUEIFRSPECI133.02020-04-05 07:27:54B6(5    3KFOA 050715Z AUTO 01004KT 10SM OVC009 07/06 A3009 RMK AO2KFOA2020-04-05T07:15:00Z38.67-88.457.06.010410.030.088583TRUETRUEIFRSPECI144.02020-04-05 07:27:54M5)5    3KFMM 050715Z AUTO 16008KT 10SM CLR 03/M04 A2985 RMK AO2 T00341041KFMM2020-04-05T07:15:00Z40.33-103.83.4-4.1160810.029.84941TRUETRUEVFRSPECI1393.02020-04-05 07:27:54M4)5    3KFET 050715Z AUTO 16003KT 10SM CLR 03/M01 A3011 RMK AO2 T00291008KFET2020-04-05T07:15:00Z41.45-96.522.9-0.8160310.030.109253TRUETRUEVFRSPECI367.02020-04-05 07:27:54 6kF;(5    3KSOA 050715Z AUTO 15004KT 10SM OVC007 12/10 A3005 RMK AO2KSOA2020-04-05T07:15:00Z30.58-100.6512.010.0150410.030.050198TRUETRUEIFRMETAR652.02020-04-05 07:27:54L:)5    3KSNL 050715Z AUTO 00000KT 10SM OVC005 04/04 A3009 RMK AO2 T00400037KSNL2020-04-05T07:15:00Z35.35-96.954.03.70010.030.088583TRUETRUEIFRMETAR327.02020-04-05 07:27:54E9) 5    3KSJS 050715Z AUTO 00000KT 10SM CLR 13/04 A3000 RMK AO2 T01300040KSJS2020-04-05T07:15:00Z37.75-82.6313.04.00010.030.0TRUETRUEVFRMETAR372.02020-04-05 07:27:54D8)5    3KSFY 050715Z AUTO 00000KT 10SM OVC110 03/M01 A3014 RMK AO2KSFY2020-04-05T07:15:00Z42.05-90.123.0-1.00010.030.138779TRUETRUEVFRMETAR188.02020-04-05 07:27:54 7]C?(}5    3K46D 050715Z AUTO 15008KT 10SM CLR M05/M06 A2998 RMK AO2K46D2020-04-05T07:15:00Z47.45-99.15-5.0-6.0150810.029.97933TRUETRUEVFRMETAR490.02020-04-05 07:27:54T>)5     3KT20 050715Z AUTO 36008KT 3SM BR OVC003 11/11 A2999 RMK AO2 T01110111KT202020-04-05T07:15:00Z29.52-97.4711.111.136083.029.991142TRUETRUEBRLIFRMETAR108.02020-04-05 07:27:54a=)'5    3KSYF 050715Z AUTO 17013G16KT 10SM SCT120 03/M05 A2993 RMK AO2 T00311053 PWINOKSYF2020-04-05T07:15:00Z39.77-101.83.1-5.3170131610.029.929134TRUETRUETRUEVFRMETAR1025.02020-04-05 07:27:54\<)/5    3KSWW 050715Z AUTO 00000KT 10SM SCT005 BKN010 OVC022 08/08 A3005 RMK AO2 T00750075KSWW2020-04-05T07:15:00Z32.47-100.477.57.50010.030.050198TRUETRUEMVFRMETAR727.02020-04-05 07:27:54 :fUC)5     3KAQR 050715Z AUTO 36004KT 2 1/2SM BR OVC002 04/04 A3009 RMK AO2 T00380038KAQR2020-04-05T07:15:00Z34.4-96.153.83.836042.530.088583TRUETRUEBRLIFRSPECI189.02020-04-05 07:27:54RB)5     3KARM 050715Z AUTO 01008KT 5SM BR OVC002 13/12 A2997 RMK AO2 T01260122KARM2020-04-05T07:15:00Z29.25-96.1512.612.21085.029.970472TRUETRUEBRLIFRSPECI31.02020-04-05 07:27:54NA)5    3KARV 050715Z AUTO 35003KT 10SM CLR M06/M09 A3015 RMK AO2 T10571087KARV2020-04-05T07:15:00Z45.92-89.72-5.7-8.7350310.030.15059TRUETRUEVFRMETAR496.02020-04-05 07:27:54@@(}5    3KASW 050715Z AUTO 00000KT 7SM OVC003 03/02 A3010 RMK AO2KASW2020-04-05T07:15:00Z41.27-85.833.02.0007.030.100393TRUETRUELIFRMETAR259.02020-04-05 07:27:54 %N|HG)5     3K3K8 050715Z AUTO 15005KT 5SM BR OVC004 01/01 A3006 RMK AO2K3K82020-04-05T07:15:00Z37.22-99.331.01.015055.030.059055TRUETRUEBRLIFRSPECI636.02020-04-05 07:27:54LF) 5     3K4M9 050715Z AUTO 02006KT 10SM OVC085 10/07 A3009 RMK AO2 PWINOK4M92020-04-05T07:15:00Z36.4-90.6510.07.020610.030.088583TRUETRUETRUEVFRMETAR90.02020-04-05 07:27:54QE)5    3K4A6 050715Z AUTO 00000KT 10SM SCT042 BKN049 BKN055 15/14 A2997 RMK AO2K4A62020-04-05T07:15:00Z34.68-86.015.014.00010.029.970472TRUETRUEVFRMETAR198.02020-04-05 07:27:54UD)5      3KAVK 050715Z AUTO 12005KT 7SM OVC006 03/03 A3007 RMK AO2 PWINO TSNOKAVK2020-04-05T07:15:00Z36.77-98.673.03.012057.030.070866TRUETRUETRUETRUEIFRSPECI449.02020-04-05 07:27:54 (KxIK) 5    3KTBR 050715Z AUTO 00000KT 10SM CLR 12/10 A2997 RMK AO2 T01220098KTBR2020-04-05T07:15:00Z32.48-81.7312.29.80010.029.970472TRUETRUEVFRMETAR57.02020-04-05 07:27:54MJ)5    3KTAZ 050715Z AUTO 00000KT 10SM OVC012 06/04 A3011 RMK AO2 T00550040KTAZ2020-04-05T07:15:00Z39.53-89.335.54.00010.030.109253TRUETRUEMVFRMETAR190.02020-04-05 07:27:54WI)5     3KT35 050715Z AUTO 36007KT 1 3/4SM BR OVC003 09/09 A3004 RMK AO2 T00910088KT352020-04-05T07:15:00Z30.88-96.979.18.836071.7530.041338TRUETRUEBRLIFRMETAR123.02020-04-05 07:27:54RH)5     3KT82 050715Z AUTO 00000KT 5SM BR OVC003 11/11 A3003 RMK AO2 T01100107KT822020-04-05T07:15:00Z30.25-98.9211.010.7005.030.029528TRUETRUEBRLIFRMETAR517.02020-04-05 07:27:54 'SDO(}5    3K5H4 050715Z AUTO 11007KT 10SM CLR M08/M08 A2997 RMK AO2K5H42020-04-05T07:15:00Z47.78-99.93-8.0-8.0110710.029.970472TRUETRUEVFRMETAR490.02020-04-05 07:27:54BN(5    3K4S2 050715Z AUTO 00000KT 10SM OVC039 06/02 A2965 RMK AO2K4S22020-04-05T07:15:00Z45.68-121.556.02.00010.029.648623TRUETRUEVFRSPECI192.02020-04-05 07:27:54NM)5    3KTIF 050715Z AUTO 17009KT 10SM CLR 02/M06 A2996 RMK AO2 T00211057KTIF2020-04-05T07:15:00Z41.97-100.572.1-5.7170910.029.958662TRUETRUEVFRMETAR892.02020-04-05 07:27:54SL)5   3KTEX 050715Z AUTO 16009G15KT 10SM BKN075 OVC090 06/M09 A2996 RMK AO2KTEX2020-04-05T07:15:00Z37.95-107.96.0-9.016091510.029.958662TRUETRUEVFRSPECI2769.02020-04-05 07:27:54 )]BS(5    3K6L4 050715Z AUTO 00000KT 10SM BKN090 13/03 A3001 RMK AO2K6L42020-04-05T07:15:00Z37.85-81.9213.03.00010.030.008858TRUETRUEVFRMETAR508.02020-04-05 07:27:54DR) 5    3K6B9 050715Z AUTO 00000KT 10SM BKN050 OVC055 08/07 A3000 RMK AO2K6B92020-04-05T07:15:00Z42.92-76.438.07.00010.030.0TRUETRUEVFRMETAR316.02020-04-05 07:27:54FQ)5    3K6B0 050715Z AUTO 00000KT 10SM OVC050 05/03 A3000 RMK AO2 T00500030K6B02020-04-05T07:15:00Z43.98-73.15.03.00010.030.0TRUETRUEVFRSPECI149.02020-04-05 07:27:54QP)5     3K57C 050715Z AUTO 07003KT 1/2SM FG OVC003 00/00 A3015 RMK AO2 T00020002K57C2020-04-05T07:15:00Z42.8-88.370.20.27030.530.15059TRUETRUEFGLIFRMETAR262.02020-04-05 07:27:54 EiKW)5    3KAVQ 050715Z AUTO 00000KT 10SM CLR 18/M04 A2985 RMK AO2 T01751045KAVQ2020-04-05T07:15:00Z32.4-111.2217.5-4.50010.029.84941TRUETRUEVFRMETAR619.02020-04-05 07:27:54VV)!5    3KAXS 050715Z AUTO 12010KT 10SM BKN028 OVC043 07/04 A3008 RMK AO2 T00710039KAXS2020-04-05T07:15:00Z34.7-99.337.13.91201010.030.079725TRUETRUEMVFRSPECI437.02020-04-05 07:27:54MU)5    3KBCK 050715Z AUTO 00000KT 10SM CLR M07/M08 A3017 RMK AO2 T10751081KBCK2020-04-05T07:15:00Z44.25-90.85-7.5-8.10010.030.171259TRUETRUEVFRSPECI255.02020-04-05 07:27:54bT)35      3K6S2 050715Z AUTO 00000KT 7SM -RA SCT029 OVC036 07/07 A2953 RMK AO2 P0001 T00730070K6S22020-04-05T07:15:00Z43.98-124.127.37.0007.029.530512TRUETRUE-RAVFR0.01SPECI16.02020-04-05 07:27:54 +fL[)5    3KBKS 050715Z AUTO 34007KT 7SM OVC007 18/16 A2996 RMK AO1 T01790160KBKS2020-04-05T07:15:00Z27.2-98.1217.916.034077.029.958662TRUETRUEIFRSPECI34.02020-04-05 07:27:54QZ)5    3KBJI 050715Z AUTO 13004KT 10SM SCT090 M04/M08 A3010 RMK AO2 T10421083KBJI2020-04-05T07:15:00Z47.5-94.92-4.2-8.3130410.030.100393TRUETRUEVFRMETAR420.02020-04-05 07:27:54?Y(y5    3KBGF 050715Z AUTO 00000KT 10SM CLR 13/11 A2998 RMK A01KBGF2020-04-05T07:15:00Z35.18-86.0713.011.00010.029.97933TRUETRUEVFRSPECI299.02020-04-05 07:27:54OX)5    3KBGE 050715Z AUTO 25003KT 10SM OVC110 19/13 A2991 RMK AO2 T01870134KBGE2020-04-05T07:15:00Z30.97-84.6318.713.4250310.029.911417TRUETRUEVFRSPECI43.02020-04-05 07:27:54 ,hI_) 5    3KBQK 050715Z AUTO 00000KT 10SM CLR 16/15 A2995 RMK AO2 T01580146KBQK2020-04-05T07:15:00Z31.25-81.4715.814.60010.029.949802TRUETRUEVFRSPECI8.02020-04-05 07:27:54:^(y5    3KBPC 050715Z AUTO 00000KT 10SM CLR 04/00 A3000 RMK AO2KBPC2020-04-05T07:15:00Z35.88-101.034.00.00010.030.0TRUETRUEVFRMETAR845.02020-04-05 07:27:54>](y5    3KBNL 050715Z AUTO 00000KT 10SM CLR 12/09 A2999 RMK AO2KBNL2020-04-05T07:15:00Z33.25-81.3812.09.00010.029.991142TRUETRUEVFRSPECI75.02020-04-05 07:27:54N\)5    3KBMT 050715Z AUTO 00000KT 10SM OVC020 18/17 A2996 RMK AO2 T01810170KBMT2020-04-05T07:15:00Z30.07-94.2218.117.00010.029.958662TRUETRUEMVFRMETAR10.02020-04-05 07:27:54 /ZRc)5     3KBYY 050715Z AUTO 03006KT 4SM BR OVC004 16/16 A2993 RMK AO2 T01620162KBYY2020-04-05T07:15:00Z28.97-95.8716.216.23064.029.929134TRUETRUEBRLIFRSPECI14.02020-04-05 07:27:54Lb)5    3KBXA 050715Z AUTO 01003KT 7SM OVC110 18/17 A2996 RMK AO2 T01820165KBXA2020-04-05T07:15:00Z30.82-89.8718.216.51037.029.958662TRUETRUEVFRSPECI36.02020-04-05 07:27:54Oa)5    3KBVN 050715Z AUTO 16004KT 10SM CLR M01/M04 A3005 RMK AO2 T10121043KBVN2020-04-05T07:15:00Z41.73-98.05-1.2-4.3160410.030.050198TRUETRUEVFRMETAR551.02020-04-05 07:27:54K`)5    3KBUU 050715Z AUTO 00000KT 10SM OVC005 02/01 A3016 RMK AO2 T00150010KBUU2020-04-05T07:15:00Z42.68-88.31.51.00010.030.159449TRUETRUEIFRSPECI237.02020-04-05 07:27:54 9nJg)5    3K9D7 050715Z AUTO 12005KT 10SM BKN033 OVC065 M04/M04 A3000 RMK AO2K9D72020-04-05T07:15:00Z48.48-99.23-4.0-4.0120510.030.0TRUETRUEVFRMETAR452.02020-04-05 07:27:54If) 5    3K7W6 050715Z AUTO 33003KT 10SM CLR 05/05 A3006 RMK AO2 T00520045K7W62020-04-05T07:15:00Z35.55-75.955.24.5330310.030.059055TRUETRUEVFRMETAR2.02020-04-05 07:27:54Ee(}5    3K7L2 050715Z AUTO 11006KT 10SM CLR M04/M04 A2996 RMK AO2K7L22020-04-05T07:15:00Z46.22-100.25-4.0-4.0110610.029.958662TRUETRUEVFRMETAR543.02020-04-05 07:27:54Ad(5    3K77S 050715Z AUTO 00000KT 10SM OVC004 07/07 A2956 RMK A01K77S2020-04-05T07:15:00Z43.93-123.07.07.00010.029.56004TRUETRUELIFRMETAR164.02020-04-05 07:27:54 7sEk) 5    3KAIK 050715Z AUTO 00000KT 10SM CLR 11/08 A3000 RMK AO2 T01120078KAIK2020-04-05T07:15:00Z33.65-81.6811.27.80010.030.0TRUETRUEVFRMETAR161.02020-04-05 07:27:54Oj)5    3KAMN 050715Z AUTO 32005KT 10SM OVC009 01/00 A3013 RMK AO2 T00111005KAMN2020-04-05T07:15:00Z43.32-84.681.1-0.5320510.030.129921TRUETRUEIFRMETAR230.02020-04-05 07:27:54>i(y5    3KAQX 050715Z AUTO 00000KT 10SM CLR 12/11 A2998 RMK AO2KAQX2020-04-05T07:15:00Z32.98-81.2712.011.00010.029.97933TRUETRUEVFRMETAR49.02020-04-05 07:27:54Ch)5    3KADU 050715Z AUTO 00000KT 10SM BKN100 00/M06 A3012 RMK AO2KADU2020-04-05T07:15:00Z41.7-94.920.0-6.00010.030.121063TRUETRUEVFRMETAR392.02020-04-05 07:27:54 +YFo) 5    3KASJ 050715Z AUTO 00000KT 7SM CLR 04/04 A3010 RMK AO2 T00350035KASJ2020-04-05T07:15:00Z36.28-77.173.53.5007.030.100393TRUETRUEVFRMETAR21.02020-04-05 07:27:54Sn)5    3KAEJ 050715Z AUTO 27003KT 10SM SCT080 00/M06 A2990 RMK AO2 T10011057KAEJ2020-04-05T07:15:00Z38.82-106.12-0.1-5.7270310.029.899607TRUETRUEVFRMETAR2422.02020-04-05 07:27:54Lm)5    3KAFP 050715Z AUTO 00000KT 10SM BKN100 11/06 A3003 RMK AO2 T01060056KAFP2020-04-05T07:15:00Z35.02-80.0810.65.60010.030.029528TRUETRUEVFRMETAR92.02020-04-05 07:27:54Ol)5    3KAIB 050715Z AUTO 11008KT 10SM SCT095 BKN120 08/M06 A2986 RMK AO2KAIB2020-04-05T07:15:00Z38.23-108.578.0-6.0110810.029.861221TRUETRUEVFRSPECI1811.02020-04-05 07:27:54 8pAs(y5    3KCRX 050715Z AUTO 34006KT 10SM CLR 15/12 A2999 RMK AO2KCRX2020-04-05T07:15:00Z34.92-88.615.012.0340610.029.991142TRUETRUEVFRSPECI130.02020-04-05 07:27:54Br({5    3KAXA 050715Z AUTO 13007KT 10SM CLR 00/M01 A3010 RMK A01KAXA2020-04-05T07:15:00Z43.07-94.270.0-1.0130710.030.100393TRUETRUEVFRMETAR372.02020-04-05 07:27:54Bq(5    3KAWG 050715Z AUTO 03006KT 10SM OVC100 04/01 A3011 RMK AO2KAWG2020-04-05T07:15:00Z41.27-91.674.01.030610.030.109253TRUETRUEVFRMETAR230.02020-04-05 07:27:54Bp(y5    3KATS 050715Z AUTO 16007KT 10SM CLR 07/05 A2997 RMK AO2KATS2020-04-05T07:15:00Z32.85-104.477.05.0160710.029.970472TRUETRUEVFRMETAR1081.02020-04-05 07:27:54 AmMw)5    3KCDD 050715Z AUTO 00000KT 10SM SCT100 OVC120 M07/M07 A3017 RMK AO2KCDD2020-04-05T07:15:00Z48.27-92.48-7.0-7.00010.030.171259TRUETRUEVFRMETAR341.02020-04-05 07:27:54Nv)5    3KCGF 050715Z AUTO 33005KT 10SM OVC050 06/04 A3005 RMK AO2 T00630038KCGF2020-04-05T07:15:00Z41.57-81.476.33.8330510.030.050198TRUETRUEVFRSPECI268.02020-04-05 07:27:54Mu)5    3KCMY 050715Z AUTO 00000KT 10SM CLR M06/M06 A3019 RMK AO2 T10571060KCMY2020-04-05T07:15:00Z43.97-90.73-5.7-6.00010.030.188976TRUETRUEVFRSPECI256.02020-04-05 07:27:54ft)55    3PAUT 050715Z AUTO 29022G28KT 10SM SCT035 OVC042 03/M02 A3024 RMK AO2 T00321016 PWINOPAUT2020-04-05T07:15:00Z54.15-165.63.2-1.6290222810.030.239174TRUETRUETRUEVFRSPECI39.02020-04-05 07:27:54 ?iO{)5    3K46U 050715Z AUTO 15005KT 10SM FEW060 OVC070 02/M06 A2974 RMK A01K46U2020-04-05T07:15:00Z43.18-111.052.0-6.0150510.029.740158TRUETRUEVFRSPECI1717.02020-04-05 07:27:54?z(}5    3K3S8 050715Z AUTO 00000KT 9SM OVC015 07/06 A2957 RMK AO2K3S82020-04-05T07:15:00Z42.5-123.47.06.0009.029.568897TRUETRUEMVFRSPECI343.02020-04-05 07:27:54Py)5    3K3N8 050715Z AUTO 14008KT 10SM OVC080 01/M04 A3006 RMK AO2 T00051038K3N82020-04-05T07:15:00Z47.25-95.880.5-3.8140810.030.059055TRUETRUEVFRSPECI383.02020-04-05 07:27:54;x(q5   3KCCB 050715Z AUTO 27007KT 10SM 12/08 A2991 RMK AO2KCCB2020-04-05T07:15:00Z34.12-117.6812.08.0270710.029.911417TRUETRUEMETAR440.02020-04-05 07:27:54 5lE(}5    3KBAC 050715Z AUTO 16011KT 10SM CLR M02/M02 A2999 RMK AO2KBAC2020-04-05T07:15:00Z46.93-98.02-2.0-2.01601110.029.991142TRUETRUEVFRMETAR427.02020-04-05 07:27:54I~) 5     3KBDN 050715Z AUTO 00000KT M1/4SM FG OVC001 02/02 A2956 RMK AO2KBDN2020-04-05T07:15:00Z44.1-121.22.02.0000.2529.56004TRUETRUEFGLIFRMETAR1055.02020-04-05 07:27:54C}(5    3KBKN 050715Z AUTO 08004KT 10SM OVC012 05/05 A3008 RMK AO2KBKN2020-04-05T07:15:00Z36.75-97.355.05.080410.030.079725TRUETRUEMVFRMETAR314.02020-04-05 07:27:54E|) 5    3K49A 050715Z AUTO 00000KT 10SM CLR 11/08 A3000 RMK AO2 T01110076K49A2020-04-05T07:15:00Z34.63-84.5311.17.60010.030.0TRUETRUEVFRSPECI453.02020-04-05 07:27:54 5}T)!5    3KBVI 050715Z AUTO 14004KT 10SM SCT080 BKN100 10/04 A2999 RMK AO2 T00970040KBVI2020-04-05T07:15:00Z40.77-80.49.74.0140410.029.991142TRUETRUEVFRMETAR382.02020-04-05 07:27:54?(y5    3KM40 050715Z AUTO 36004KT 10SM CLR 16/07 A2998 RMK AO2KM402020-04-05T07:15:00Z33.87-88.4816.07.0360410.029.97933TRUETRUEVFRMETAR69.02020-04-05 07:27:54?(y5    3KBOW 050715Z AUTO 00000KT 10SM CLR 18/15 A2991 RMK AO2KBOW2020-04-05T07:15:00Z27.93-81.7718.015.00010.029.911417TRUETRUEVFRMETAR39.02020-04-05 07:27:542(m5     3KBKT 050715Z AUTO 00000KT 10SM CLR A3008 RMK AO1KBKT2020-04-05T07:15:00Z37.07-77.950010.030.079725TRUETRUEVFRMETAR134.02020-04-05 07:27:54E)5    3KBNW 050715Z AUTO 07004KT 10SM BKN100 00/M01 A3012 RMK AO2KBNW2020-04-05T07:15:00Z42.03-93.830.0-1.070410.030.121063TRUETRUEVFRMETAR354.02020-04-05 07:27:54 3dL)5    3KCWV 050715Z AUTO 00000KT 10SM BKN085 13/11 A2996 RMK AO2 T01310109KCWV2020-04-05T07:15:00Z32.2-81.8713.110.90010.029.958662TRUETRUEVFRSPECI33.02020-04-05 07:27:54O)5    3KCWC 050715Z AUTO 12003KT 10SM OVC011 08/06 A3009 RMK AO2 T00810063KCWC2020-04-05T07:15:00Z33.85-98.488.16.3120310.030.088583TRUETRUEMVFRSPECI305.02020-04-05 07:27:54I) 5    3KCTY 050715Z AUTO 00000KT 10SM CLR 17/14 A2992 RMK AO2 T01720140KCTY2020-04-05T07:15:00Z29.63-83.117.214.00010.029.920275TRUETRUEVFRMETAR13.02020-04-05 07:27:54G(5   3KBVU 050715Z AUTO 21008G14KT 10SM CLR 16/00 A2972 RMK AO2KBVU2020-04-05T07:15:00Z35.95-114.8716.00.021081410.029.719488TRUETRUEVFRMETAR671.02020-04-05 07:27:54 2jJ )5    3KDKB 050715Z AUTO 00000KT 10SM OVC100 02/01 A3015 RMK AO2 T00230013KDKB2020-04-05T07:15:00Z41.93-88.72.31.30010.030.15059TRUETRUEVFRSPECI279.02020-04-05 07:27:54@ (}5    3KCXW 050715Z AUTO 00000KT 9SM OVC035 12/11 A3005 RMK A01KCXW2020-04-05T07:15:00Z35.02-92.5512.011.0009.030.050198TRUETRUEVFRSPECI84.02020-04-05 07:27:54B ({5    3KCXP 050715Z AUTO VRB05KT 10SM CLR 06/M05 A2965 RMK AO2KCXP2020-04-05T07:15:00Z39.18-119.736.0-5.00510.029.648623TRUETRUEVFRSPECI1435.02020-04-05 07:27:54H ) 5    3KCXE 050715Z AUTO 00000KT 10SM CLR 06/05 A3009 RMK AO1 T00600051KCXE2020-04-05T07:15:00Z36.78-78.56.05.10010.030.088583TRUETRUEVFRSPECI153.02020-04-05 07:27:54 )cN)5    3KDUC 050715Z AUTO 11007KT 10SM OVC009 06/05 A3009 RMK AO2 T00620049KDUC2020-04-05T07:15:00Z34.47-97.976.24.9110710.030.088583TRUETRUEIFRSPECI339.02020-04-05 07:27:54L) 5     3KDUA 050715Z AUTO 34004KT 1 3/4SM BR OVC003 07/06 A3008 RMK AO2KDUA2020-04-05T07:15:00Z33.95-96.47.06.034041.7530.079725TRUETRUEBRLIFRSPECI213.02020-04-05 07:27:54@(y5    3KDKX 050715Z AUTO 00000KT 10SM CLR 11/10 A2997 RMK A01KDKX2020-04-05T07:15:00Z35.97-83.8711.010.00010.029.970472TRUETRUEVFRSPECI254.02020-04-05 07:27:54Q )5     3KDRI 050715Z AUTO 00000KT 5SM BR OVC004 16/15 A2999 RMK AO2 T01600153KDRI2020-04-05T07:15:00Z30.83-93.3316.015.3005.029.991142TRUETRUEBRLIFRSPECI63.02020-04-05 07:27:54 7eL)5    3KENL 050715Z AUTO 26003KT 7SM OVC015 07/06 A3010 RMK AO2 T00720062KENL2020-04-05T07:15:00Z38.52-89.17.26.226037.030.100393TRUETRUEMVFRSPECI163.02020-04-05 07:27:54M) 5    3KEDU 050715Z AUTO 16006KT 10SM FEW004 BKN060 10/10 A2974 RMK AO1KEDU2020-04-05T07:15:00Z38.53-121.7810.010.0160610.029.740158TRUETRUEVFRMETAR21.02020-04-05 07:27:54L)5    3KEDN 050715Z AUTO 00000KT 10SM BKN120 19/15 A2992 RMK AO2 T01850146KEDN2020-04-05T07:15:00Z31.3-85.918.514.60010.029.920275TRUETRUEVFRSPECI110.02020-04-05 07:27:54C) 5    3KDZJ 050715Z AUTO 00000KT 10SM CLR 09/07 A3000 RMK AO2 T00930073KDZJ2020-04-05T07:15:00Z34.85-84.09.37.30010.030.0TRUETRUEVFRSPECI582.02020-04-05 07:27:54 #bN)5    3KCAV 050715Z AUTO 11007KT 10SM FEW022 FEW028 M00/M01 A3013 RMK A01KCAV2020-04-05T07:15:00Z42.75-93.770.0-1.0110710.030.129921TRUETRUEVFRMETAR354.02020-04-05 07:27:54W)5     3KC35 050715Z AUTO 00000KT 10SM CLR M01/M03 A3016 RMK AO2 T10151034 PWINOKC352020-04-05T07:15:00Z43.53-89.98-1.5-3.40010.030.159449TRUETRUETRUEVFRMETAR276.02020-04-05 07:27:54;(q5   3KBXK 050715Z AUTO 22008KT 10SM 18/02 A2980 RMK A01KBXK2020-04-05T07:15:00Z33.42-112.6818.02.0220810.029.799213TRUETRUESPECI315.02020-04-05 07:27:54W)5     3KERV 050715Z AUTO 29003KT 2 1/2SM BR OVC003 11/10 A3003 RMK AO2 T01060095KERV2020-04-05T07:15:00Z29.98-99.0810.69.529032.530.029528TRUETRUEBRLIFRSPECI510.02020-04-05 07:27:54 9qJ) 5    3KSEF 050715Z AUTO 00000KT 10SM CLR 19/17 A2992 RMK AO2 T01900169KSEF2020-04-05T07:15:00Z27.45-81.3519.016.90010.029.920275TRUETRUEVFRMETAR19.02020-04-05 07:27:54>(y5    3KCDN 050715Z AUTO 00000KT 10SM CLR 10/07 A3001 RMK AO2KCDN2020-04-05T07:15:00Z34.28-80.5710.07.00010.030.008858TRUETRUEVFRSPECI92.02020-04-05 07:27:54C(}5    3KCCY 050715Z AUTO 07004KT 10SM CLR M01/M03 A3014 RMK AO2KCCY2020-04-05T07:15:00Z43.07-92.62-1.0-3.070410.030.138779TRUETRUEVFRMETAR343.02020-04-05 07:27:54B(5    3KCCA 050715Z AUTO 00000KT 10SM OVC012 10/08 A3007 RMK AO2KCCA2020-04-05T07:15:00Z35.6-92.4510.08.00010.030.070866TRUETRUEMVFRSPECI157.02020-04-05 07:27:54A({5    3KCBF 050715Z AUTO 18005KT 10SM CLR 01/M00 A3009 RMK AO2KCBF2020-04-05T07:15:00Z41.27-95.771.00.0180510.030.088583TRUETRUEVFRMETAR382.02020-04-05 07:27:54 5_P!)5    3KRNH 050715Z AUTO 00000KT 10SM SCT110 M02/M06 A3016 RMK AO2 T10231059KRNH2020-04-05T07:15:00Z45.15-92.53-2.3-5.90010.030.159449TRUETRUEVFRMETAR304.02020-04-05 07:27:54L )5    3KRPJ 050715Z AUTO 12004KT 7SM OVC110 03/02 A3014 RMK AO2 T00260021KRPJ2020-04-05T07:15:00Z41.88-89.082.62.112047.030.138779TRUETRUEVFRMETAR238.02020-04-05 07:27:54P)5    3KSBS 050715Z AUTO 00000KT 10SM OVC090 02/M03 A2982 RMK AO1 T00161035KSBS2020-04-05T07:15:00Z40.52-106.871.6-3.50010.029.819881TRUETRUEVFRSPECI2096.02020-04-05 07:27:54E(5    3KSEE 050715Z AUTO 19007KT 10SM OVC034 14/08 A2993 RMK AO2KSEE2020-04-05T07:15:00Z32.82-116.9714.08.0190710.029.929134TRUETRUEVFRMETAR117.02020-04-05 07:27:54 &SxK%) 5    3KPPA 050715Z AUTO 15011KT 10SM CLR 06/02 A2998 RMK AO2 T00560018KPPA2020-04-05T07:15:00Z35.62-101.05.61.81501110.029.97933TRUETRUEVFRSPECI989.02020-04-05 07:27:54U$)5     3KPPO 050715Z AUTO 34004KT 3/4SM BR OVC001 02/01 A3013 RMK AO2 T00150013KPPO2020-04-05T07:15:00Z41.57-86.731.51.334040.7530.129921TRUETRUEBRLIFRMETAR248.02020-04-05 07:27:54M#)5    3KPTT 050715Z AUTO 16003KT 10SM OVC009 03/02 A3005 RMK AO2 T00290020KPTT2020-04-05T07:15:00Z37.7-98.752.92.0160310.030.050198TRUETRUEIFRMETAR595.02020-04-05 07:27:54T")5   3KPVW 050715Z AUTO 18009G14KT 10SM OVC006 07/06 A2998 RMK AO2 T00710058KPVW2020-04-05T07:15:00Z34.17-101.727.15.818091410.029.97933TRUETRUEIFRMETAR1028.02020-04-05 07:27:54 &QK))5    3KXBP 050715Z AUTO 00000KT 7SM OVC011 08/08 A3009 RMK AO2 T00750075KXBP2020-04-05T07:15:00Z33.18-97.837.57.5007.030.088583TRUETRUEMVFRSPECI260.02020-04-05 07:27:54B((5    3KXLL 050715Z AUTO 00000KT 10SM OVC047 11/07 A3004 RMK AO2KXLL2020-04-05T07:15:00Z40.57-75.4811.07.00010.030.041338TRUETRUEVFRMETAR122.02020-04-05 07:27:54O')5    3KY23 050715Z AUTO 00000KT 10SM BKN120 M04/M05 A3017 RMK AO2 T10451050KY232020-04-05T07:15:00Z45.3-91.63-4.5-5.00010.030.171259TRUETRUEVFRMETAR322.02020-04-05 07:27:54T&)!5    3KOXD 050715Z AUTO 34007KT 10SM BKN007 OVC065 09/09 A3005 RMK AO2 T00870087KOXD2020-04-05T07:15:00Z39.5-84.788.78.7340710.030.050198TRUETRUEIFRSPECI317.02020-04-05 07:27:54 0pG-) 5    3KW22 050715Z AUTO 00000KT 10SM BKN070 OVC090 09/02 A3002 RMK AO2KW222020-04-05T07:15:00Z39.0-80.279.02.00010.030.02067TRUETRUEVFRMETAR499.02020-04-05 07:27:54H,) 5    3KW99 050715Z AUTO 00000KT 10SM CLR 03/03 A3006 RMK AO2 T00290027KW992020-04-05T07:15:00Z39.0-79.152.92.70010.030.059055TRUETRUEVFRSPECI293.02020-04-05 07:27:54:+(y5    3KWDR 050715Z AUTO 00000KT 10SM CLR 13/07 A3000 RMK AO2KWDR2020-04-05T07:15:00Z33.98-83.6713.07.00010.030.0TRUETRUEVFRMETAR287.02020-04-05 07:27:54J*) 5    3KX26 050715Z AUTO 22004KT 10SM CLR 19/16 A2991 RMK AO2 T01880161KX262020-04-05T07:15:00Z27.82-80.518.816.1220410.029.911417TRUETRUEVFRMETAR6.02020-04-05 07:27:54 /^I1) 5    3KUXL 050715Z AUTO 00000KT 10SM CLR 16/15 A2997 RMK AO2 T01600147KUXL2020-04-05T07:15:00Z30.13-93.3816.014.70010.029.970472TRUETRUEVFRMETAR4.02020-04-05 07:27:54=0(y5    3KVDI 050715Z AUTO 00000KT 10SM CLR 16/07 A2996 RMK AO2KVDI2020-04-05T07:15:00Z32.2-82.3716.07.00010.029.958662TRUETRUEVFRMETAR84.02020-04-05 07:27:54K/)5    3KVYS 050715Z AUTO 09004KT 7SM SCT120 04/03 A3012 RMK AO2 T00400025KVYS2020-04-05T07:15:00Z41.35-89.154.02.59047.030.121063TRUETRUEVFRMETAR199.02020-04-05 07:27:54K.) 5    3KW13 050715Z AUTO 21003KT 10SM CLR 08/05 A3006 RMK AO1 T00760047KW132020-04-05T07:15:00Z38.08-78.957.64.7210310.030.059055TRUETRUEVFRMETAR443.02020-04-05 07:27:54 9aG5(5    3KTSP 050715Z AUTO 31010KT 10SM BKN030 06/01 A2986 RMK AO2KTSP2020-04-05T07:15:00Z35.13-118.436.01.03101010.029.861221TRUETRUEMVFRMETAR1220.02020-04-05 07:27:54>4(y5    3KTVI 050715Z AUTO 00000KT 10SM CLR 17/13 A2992 RMK AO2KTVI2020-04-05T07:15:00Z30.9-83.8817.013.00010.029.920275TRUETRUEVFRMETAR80.02020-04-05 07:27:54R3)5     3KTXW 050715Z AUTO 01004KT 4SM BR OVC003 19/19 A2992 RMK AO2 T01920185KTXW2020-04-05T07:15:00Z26.18-97.9719.218.51044.029.920275TRUETRUEBRLIFRSPECI21.02020-04-05 07:27:54A2(y5    3KULS 050715Z AUTO 13012KT 10SM CLR 01/00 A2994 RMK AO2KULS2020-04-05T07:15:00Z37.6-101.371.00.01301210.029.940945TRUETRUEVFRMETAR936.02020-04-05 07:27:54 LwK9)5    3KTIP 050715Z AUTO 03003KT 7SM BKN100 02/02 A3011 RMK AO2 T00190017KTIP2020-04-05T07:15:00Z40.28-88.151.91.73037.030.109253TRUETRUEVFRMETAR225.02020-04-05 07:27:54O8)5    3KTMT 050715Z AUTO 26005KT 10SM CLR M02/M04 A2971 RMK AO2 T10211043KTMT2020-04-05T07:15:00Z39.47-117.2-2.1-4.3260510.029.71063TRUETRUEVFRMETAR1748.02020-04-05 07:27:54H7) 5    3KTOC 050715Z AUTO 00000KT 10SM CLR 12/08 A2997 RMK AO2 T01210077KTOC2020-04-05T07:15:00Z34.6-83.312.17.70010.029.970472TRUETRUEVFRMETAR304.02020-04-05 07:27:54`6))5    3KTRK 050715Z AUTO 21015G19KT 7SM -SN SCT023 BKN031 OVC035 01/M01 A2967 RMK AO2KTRK2020-04-05T07:15:00Z39.32-120.121.0-1.021015197.029.66929TRUETRUE-SNVFRSPECI1798.02020-04-05 07:27:54 &V>=(y5    3KMGR 050715Z AUTO 00000KT 10SM CLR 17/12 A2993 RMK AO2KMGR2020-04-05T07:15:00Z31.08-83.817.012.00010.029.929134TRUETRUEVFRMETAR90.02020-04-05 07:27:54K<)5    3KMFV 050715Z AUTO 00000KT 10SM BKN055 05/04 A3008 RMK AO2 T00460043KMFV2020-04-05T07:15:00Z37.63-75.774.64.30010.030.079725TRUETRUEVFRMETAR15.02020-04-05 07:27:54J;) 5    3KZPH 050715Z AUTO 00000KT 10SM CLR 17/15 A2993 RMK A02 T01660145KZPH2020-04-05T07:15:00Z28.23-82.1516.614.50010.029.929134TRUETRUEVFRMETAR26.02020-04-05 07:27:54T:)5    3PAAD 050715Z AUTO 11011KT 10SM OVC070 M14/M15 A2947 RMK AO2 T11401153PAAD2020-04-05T07:15:00Z70.13-146.28-14.0-15.31101110.029.471457TRUETRUEVFRMETAR8.02020-04-05 07:27:54 6[FA)5    3KORB 050714Z AUTO 00000KT 10SM SCT100 M03/M09 A3011 RMK AO2KORB2020-04-05T07:14:00Z48.02-92.87-3.0-9.00010.030.109253TRUETRUEVFRSPECI397.02020-04-05 07:27:54U@)5     3KICT 050714Z 15007KT 3SM HZ BKN008 OVC019 05/02 A3006 RMK AO2 T00500022 $KICT2020-04-05T07:14:00Z37.65-97.435.02.215073.030.059055TRUETRUEHZIFRMETAR407.02020-04-05 07:27:54c?)75     3KMWL 050714Z AUTO 32004KT 1 3/4SM BR OVC003 07/07 A3005 RMK AO2 CIG 001V006 T00720067KMWL2020-04-05T07:14:00Z32.78-98.077.26.732041.7530.050198TRUETRUEBRLIFRMETAR284.02020-04-05 07:27:54[>)/5    3KMTO 050714Z AUTO 05007KT 10SM FEW010 FEW018 OVC036 06/04 A3008 RMK AO2 T00610044KMTO2020-04-05T07:14:00Z39.47-88.276.14.450710.030.079725TRUETRUEVFRMETAR214.02020-04-05 07:27:54 /i_E)5    3KSDB 050714Z AUTO 19016G21KT 1/4SM FG VV001 06/04 A2986 RMK AO2 T00560044KSDB2020-04-05T07:14:00Z34.75-118.725.64.419016210.2529.861221TRUETRUEFGLIFR100SPECI1377.02020-04-05 07:27:54GD)5    3KETH 050714Z AUTO 12011KT 10SM SCT100 00/M02 A3007 RMK AO2KETH2020-04-05T07:14:00Z45.78-96.550.0-2.01201110.030.070866TRUETRUEVFRMETAR313.02020-04-05 07:27:54@C(}5    3KCVO 050714Z AUTO 29003KT 8SM OVC007 06/06 A2957 RMK AO2KCVO2020-04-05T07:14:00Z44.5-123.276.06.029038.029.568897TRUETRUEIFRSPECI75.02020-04-05 07:27:54KB)5     3KLEB 050714Z AUTO 06003KT 3SM BR SCT001 02/01 A3000 RMK AO2 T00170006KLEB2020-04-05T07:14:00Z43.63-72.31.70.66033.030.0TRUETRUEBRMVFRMETAR171.02020-04-05 07:27:54 GqcI)15    3KHLR 050713Z AUTO 36006KT 9SM SCT005 OVC011 08/08 A3004 RMK AO2 CIG 005V011 SLP173KHLR2020-04-05T07:13:00Z31.13-97.728.08.036069.030.0413381017.3TRUETRUEMVFRSPECI283.02020-04-05 07:27:54PH) 5    3KGRK 050713Z AUTO 02007KT 10SM OVC006 08/07 A3003 RMK AO2 SLP172KGRK2020-04-05T07:13:00Z31.07-97.838.07.020710.030.0295281017.2TRUETRUEIFRSPECI309.02020-04-05 07:27:541G(e5   3FAIR 050713Z 30003KT 9999 FEW010 18/14 Q1022FAIR2020-04-05T07:13:00Z-25.9228.2218.014.030036.2130.177166VFRSPECI1500.02020-04-05 07:27:54|F)O5       3PABR 050714Z AUTO 08013KT 2 1/2SM -SN BR BKN010 OVC024 M08/M10 A2934 RMK AO2 P0000 T10831100 TSNOPABR2020-04-05T07:14:00Z71.28-156.78-8.3-10.080132.529.338583TRUETRUETRUE-SN BRIFR0.005METAR7.02020-04-05 07:27:54 k-[kjM)=5      3PHTO 050713Z 16007KT 5SM -RA BR SCT015 BKN023 OVC037 23/21 A3002 RMK AO2 P0004 T02280206PHTO2020-04-05T07:13:00Z19.72-155.0522.820.616075.030.02067TRUE-RA BRMVFR0.04SPECI12.02020-04-05 07:27:54LL)5    3KHIO 050713Z AUTO 00000KT 10SM OVC031 06/05 A2959 RMK AO2 T00610050KHIO2020-04-05T07:13:00Z45.55-122.956.15.00010.029.589567TRUETRUEVFRSPECI68.02020-04-05 07:27:54\K)/5    3KCGI 050713Z AUTO 01006KT 10SM SCT013 SCT021 OVC028 08/05 A3009 RMK AO2 T00830050KCGI2020-04-05T07:13:00Z37.23-89.588.35.010610.030.088583TRUETRUEMVFRSPECI102.02020-04-05 07:27:54kJ)/5      3KBTR 050713Z AUTO 04004KT 3SM -RA BR OVC100 18/17 A2994 RMK AO2 P0000 T01780172 $KBTR2020-04-05T07:13:00Z30.53-91.1517.817.24043.029.940945TRUETRUETRUE-RA BRMVFR0.005SPECI21.02020-04-05 07:27:54 $Hn\Q)5     3KPOE 050713Z AUTO 05004KT 5SM BR FEW006 SCT080 16/16 A2995 RMK AO2 SLP142KPOE2020-04-05T07:13:00Z31.05-93.216.016.05045.029.9498021014.2TRUETRUEBRMVFRSPECI101.02020-04-05 07:27:54TP)5    3KTOP 050713Z AUTO 03003KT 10SM BKN029 03/01 A3010 RMK AO2 T00330006 $KTOP2020-04-05T07:13:00Z39.07-95.633.30.630310.030.100393TRUETRUETRUEMVFRSPECI268.02020-04-05 07:27:54VO)!5    3KMYV 050713Z AUTO 15010KT 10SM BKN007 OVC050 11/09 A2974 RMK AO2 T01060094KMYV2020-04-05T07:13:00Z39.1-121.5710.69.41501010.029.740158TRUETRUEIFRSPECI21.02020-04-05 07:27:54VN)5     3KMKO 050713Z AUTO 34003KT 2 1/2SM BR OVC003 06/05 A3010 RMK AO2 T00610050KMKO2020-04-05T07:13:00Z35.65-95.376.15.034032.530.100393TRUETRUEBRLIFRSPECI185.02020-04-05 07:27:54 X"4XVU)5   3KCPW 050712Z AUTO 20023G33KT 10SM BKN040 OVC049 M03/M09 A3006 RMK AO2KCPW2020-04-05T07:12:00Z37.45-106.8-3.0-9.0200233310.030.059055TRUETRUEVFRSPECI3584.02020-04-05 07:27:54hT)W5    3RJFY 050712Z 26016KT 9999 VCVA FEW030 BKN230 17/03 Q1016 RMK 1CU030 A3000 VOLCANIC ASH 15KM NW MOV SERJFY2020-04-05T07:12:00Z31.37130.8217.03.0260166.2130.0VCVAVFRSPECI68.02020-04-05 07:27:54KS)5   3KMNH 050712Z AUTO 18014G17KT 10SM CLR 00/M03 A2989 RMK AO2KMNH2020-04-05T07:12:00Z39.22-104.650.0-3.0180141710.029.890747TRUETRUEVFRMETAR2152.02020-04-05 07:27:54R)i5     3KVBG 050713Z AUTO 18005KT 4SM BR BKN005 BKN011 OVC018 11/10 A2990 RMK AO2 VIS 2 1/2 RWY12 CIG 005V013 SLP128 $KVBG2020-04-05T07:13:00Z34.73-120.5811.010.018054.029.8996071012.8TRUETRUETRUEBRIFRSPECI112.02020-04-05 07:27:54 8nTY)5    3K20V 050712Z AUTO 00000KT 10SM SCT075 BKN100 BKN120 00/M03 A2988 RMK AO2K20V2020-04-05T07:12:00Z40.05-106.370.0-3.00010.029.878937TRUETRUEVFRSPECI2259.02020-04-05 07:27:54DX({5    3K04V 050712Z AUTO 32010KT 10SM CLR 00/M08 A2993 RMK AO2K04V2020-04-05T07:12:00Z38.1-106.170.0-8.03201010.029.929134TRUETRUEVFRSPECI2385.02020-04-05 07:27:54\W)-5     3KAAO 050712Z AUTO 14006KT 2 1/2SM BR BKN008 OVC017 04/02 A3006 RMK AO2 T00390022KAAO2020-04-05T07:12:00Z37.75-97.223.92.214062.530.059055TRUETRUEBRIFRSPECI434.02020-04-05 07:27:54`V)35    3KGNB 050712Z AUTO 00000KT 10SM SCT070 SCT090 SCT110 M01/M05 A2990 RMK AO2 T10141046KGNB2020-04-05T07:12:00Z40.08-105.92-1.4-4.60010.029.899607TRUETRUEVFRMETAR2500.02020-04-05 07:27:54 4lv])I5    3KBAB 050711Z AUTO 14010KT 10SM FEW007 FEW030 OVC046 11/10 A2972 RMK AO2 DZE01RAB01E11 SLP067 $KBAB2020-04-05T07:11:00Z39.12-121.4211.010.01401010.029.7194881006.7TRUETRUETRUEVFRSPECI34.02020-04-05 07:27:54D\({5    3KBDU 050712Z AUTO 20003KT 10SM CLR 05/M02 A2981 RMK AO2KBDU2020-04-05T07:12:00Z40.03-105.235.0-2.0200310.029.811024TRUETRUEVFRMETAR1612.02020-04-05 07:27:54B[({5    3KBJC 050712Z AUTO 20005KT 10SM CLR 05/M01 A2982 RMK AO2KBJC2020-04-05T07:12:00Z39.9-105.15.0-1.0200510.029.819881TRUETRUEVFRMETAR1724.02020-04-05 07:27:54FZ(}5    3K4BM 050712Z AUTO 23007KT 10SM CLR M03/M07 A2999 RMK AO2K4BM2020-04-05T07:12:00Z39.05-105.52-3.0-7.0230710.029.991142TRUETRUEVFRMETAR3438.02020-04-05 07:27:54 $WNa) 5     3KAQO 050710Z AUTO 00000KT 10SM OVC005 11/11 A3006 RMK AO2 PWINOKAQO2020-04-05T07:10:00Z30.78-98.6711.011.00010.030.059055TRUETRUETRUEIFRMETAR336.02020-04-05 07:27:54G`(}5    3KC99 050711Z AUTO 28007KT 10SM CLR M03/M11 A2995 RMK AO2KC992020-04-05T07:11:00Z39.87-105.55-3.0-11.0280710.029.949802TRUETRUEVFRSPECI3334.02020-04-05 07:27:54d_)-5    3KGUS 050711Z AUTO 01007KT 10SM OVC005 03/03 A3008 RMK AO2 CIG 004 RWY23 SLP194 $KGUS2020-04-05T07:11:00Z40.63-86.153.03.010710.030.0797251019.4TRUETRUETRUEIFRSPECI247.02020-04-05 07:27:54l^)G5    3KDYS 050711Z AUTO 06004KT 10SM BKN009 OVC013 08/04 A3002 RMK AO2 CIG 009V013 BKN V SCT SLP165KDYS2020-04-05T07:11:00Z32.42-99.838.04.060410.030.020671016.5TRUETRUEIFRSPECI545.02020-04-05 07:27:54 :hEe(5    3K6I2 050710Z AUTO 33003KT 10SM BKN100 13/11 A3003 RMK AO2K6I22020-04-05T07:10:00Z37.63-85.2513.011.0330310.030.029528TRUETRUEVFRSPECI264.02020-04-05 07:27:54Hd) 5    3K2J5 050710Z AUTO 00000KT 10SM CLR 13/10 A2997 RMK AO2 T01260095K2J52020-04-05T07:10:00Z32.9-81.9712.69.50010.029.970472TRUETRUEVFRSPECI72.02020-04-05 07:27:54Lc) 5     3KO86 050710Z AUTO 28003KT 4SM OVC006 02/01 A2962 RMK AO1 P0001KO862020-04-05T07:10:00Z40.98-122.72.01.028034.029.619095TRUETRUEIFR0.01METAR729.02020-04-05 07:27:54@b(y5    3KNQA 050710Z AUTO 34005KT 10SM CLR 10/09 A3003 RMK A01KNQA2020-04-05T07:10:00Z35.35-89.8710.09.0340510.030.029528TRUETRUEVFRSPECI86.02020-04-05 07:27:54 9bJi) 5    3KAZE 050710Z AUTO 00000KT 10SM CLR 18/11 A2993 RMK AO2 T01760112KAZE2020-04-05T07:10:00Z31.88-82.6517.611.20010.029.929134TRUETRUEVFRSPECI78.02020-04-05 07:27:54Qh)5    3KBMC 050710Z AUTO 14004KT 10SM OVC100 08/M03 A2967 RMK AO1 T00841034KBMC2020-04-05T07:10:00Z41.55-112.078.4-3.4140410.029.66929TRUETRUEVFRSPECI1288.02020-04-05 07:27:54Qg)5     3K1K1 050710Z AUTO 15004KT 3SM BR OVC007 03/02 A3007 RMK AO2 T00320022K1K12020-04-05T07:10:00Z37.77-97.123.22.215043.030.070866TRUETRUEBRIFRSPECI416.02020-04-05 07:27:54Af(}5    3K65S 050710Z AUTO 00000KT 10SM CLR M02/M05 A2969 RMK AO2K65S2020-04-05T07:10:00Z48.73-116.3-2.0-5.00010.029.68996TRUETRUEVFRSPECI713.02020-04-05 07:27:54 *fIm) 5    3KNOW 050710Z AUTO 16003KT 10SM CLR 05/02 A2968 RMK AO2 T00530020KNOW2020-04-05T07:10:00Z48.13-123.45.32.0160310.029.681103TRUETRUEVFRSPECI4.02020-04-05 07:27:54\l))5   3KDWX 050710Z AUTO 09007G15KT 10SM BKN090 OVC100 02/M05 A2982 RMK AO2 T00201055KDWX2020-04-05T07:10:00Z41.03-107.52.0-5.59071510.029.819881TRUETRUEVFRSPECI1996.02020-04-05 07:27:54>k(y5    3KCNI 050710Z AUTO 00000KT 10SM CLR 12/07 A2998 RMK AO2KCNI2020-04-05T07:10:00Z34.32-84.4212.07.00010.029.97933TRUETRUEVFRSPECI372.02020-04-05 07:27:54Pj)5     3K6R3 050710Z AUTO 00000KT 4SM BR OVC003 15/15 A2999 RMK AO2 T01540152K6R32020-04-05T07:10:00Z30.35-95.015.415.2004.029.991142TRUETRUEBRLIFRSPECI46.02020-04-05 07:27:54 (`Kq)5    3KPRG 050710Z AUTO 00000KT 10SM OVC038 07/05 A3011 RMK AO2 T00660045KPRG2020-04-05T07:10:00Z39.7-87.676.64.50010.030.109253TRUETRUEVFRSPECI199.02020-04-05 07:27:54Tp)5     3KRBO 050710Z AUTO 33010KT 5SM BR OVC002 13/13 A2997 RMK AO2 T01330125KRBO2020-04-05T07:10:00Z27.78-97.6813.312.5330105.029.970472TRUETRUEBRLIFRSPECI24.02020-04-05 07:27:54Bo(5      3KGVT 050710Z AUTO 33005KT 1SM BR OVC002 09/ A3007 RMK AO2KGVT2020-04-05T07:10:00Z33.07-96.079.033051.030.070866TRUETRUEBRLIFRSPECI163.02020-04-05 07:27:54Rn)5    3KHSG 050710Z AUTO 00000KT 10SM SCT110 M02/M08 A2973 RMK AO2 T10211076KHSG2020-04-05T07:10:00Z43.72-108.38-2.1-7.60010.029.731298TRUETRUEVFRSPECI1494.02020-04-05 07:27:54 UOu)5      3KRWV 050710Z AUTO 36008KT 3/4SM BR OVC003 09/ A3003 RMK AO2 T0093////KRWV2020-04-05T07:10:00Z30.52-96.79.336080.7530.029528TRUETRUEBRLIFRSPECI119.02020-04-05 07:27:54At(y5    3KSBO 050710Z AUTO 11003KT 10SM CLR 15/09 A2996 RMK AO2KSBO2020-04-05T07:10:00Z32.62-82.3715.09.0110310.029.958662TRUETRUEVFRSPECI100.02020-04-05 07:27:54Bs(5    3KVES 050710Z AUTO 35007KT 10SM OVC007 06/05 A3006 RMK AO2KVES2020-04-05T07:10:00Z40.2-84.536.05.0350710.030.059055TRUETRUEIFRSPECI307.02020-04-05 07:27:54]r)+5     3KRQO 050710Z AUTO 09004KT 10SM BKN011 OVC036 05/03 A3009 RMK AO2 TSNO T00480032KRQO2020-04-05T07:10:00Z35.47-98.04.83.290410.030.088583TRUETRUETRUEMVFRSPECI432.02020-04-05 07:27:54 2mDz({5    3KHEQ 050710Z AUTO 16007KT 10SM CLR 02/M05 A2991 RMK AO2KHEQ2020-04-05T07:10:00Z40.57-102.282.0-5.0160710.029.911417TRUETRUEVFRMETAR1137.02020-04-05 07:27:54Cy(5    3KF45 050710Z AUTO 22003KT 10SM OVC055 23/18 A2993 RMK AO2KF452020-04-05T07:10:00Z26.85-80.2223.018.0220310.029.929134TRUETRUEVFRSPECI7.02020-04-05 07:27:545x(q5    3VCBI 050710Z 24008KT 9999 FEW018 31/24 Q1012 NOSIGVCBI2020-04-05T07:10:00Z7.1779.8731.024.024086.2129.88189TRUEVFRMETAR8.02020-04-05 07:27:54?w)5    3VCRI 050710Z 15007KT 070V230 9999 FEW018 34/23 Q1011 NOSIGVCRI2020-04-05T07:10:00Z6.2881.1334.023.015076.2129.852362TRUEVFRMETAR7.02020-04-05 07:27:54Hv) 5    3KMBT 050710Z AUTO 34005KT 10SM FEW043 SCT055 15/10 A3000 RMK A01KMBT2020-04-05T07:10:00Z35.88-86.3815.010.0340510.030.0TRUETRUEVFRSPECI188.02020-04-05 07:27:54 %`5~(s5   3KPWD 050710Z AUTO M07/M08 A2993 RMK A01 Plentywood KPWD2020-04-05T07:10:00Z48.78-104.52-7.0-8.029.929134TRUETRUEMETAR686.02020-04-05 07:27:54F})5   3K6S8 050710Z AUTO 02011KT 10SM M01/M06 A2977 RMK A01 LAURELK6S82020-04-05T07:10:00Z45.7-108.77-1.0-6.0201110.029.769686TRUETRUEMETAR1072.02020-04-05 07:27:54?|)5    3FALA 050710Z VRB02KT 4500 BR FEW008 14/13 Q1023 BECMG 6000FALA2020-04-05T07:10:00Z-25.9227.9214.013.0022.830.206694BRIFRSPECI1377.02020-04-05 07:27:54U{)5    3KWYS 050710Z AUTO 00000KT 10SM BKN048 BKN060 OVC110 M04/M08 A2969 RMK AO2KWYS2020-04-05T07:10:00Z44.67-111.12-4.0-8.00010.029.68996TRUETRUEVFRSPECI2025.02020-04-05 07:27:54 QuF)5    3K7BM 050706Z AUTO 00000KT 10SM SCT065 02/M07 A2994 RMK AO2K7BM2020-04-05T07:06:00Z38.78-106.222.0-7.00010.029.940945TRUETRUEVFRMETAR2995.02020-04-05 07:27:54V)5   3K5SM 050706Z AUTO 22009G23KT 190V260 10SM OVC050 M02/M08 A2998 RMK AO2K5SM2020-04-05T07:06:00Z39.43-107.38-2.0-8.022092310.029.97933TRUETRUEVFRSPECI3232.02020-04-05 07:27:54@(5    3TXKF 050709Z 33010KT 9999 VCSH SCT024 BKN120 17/15 Q1003 TXKF2020-04-05T07:09:00Z32.37-64.6817.015.0330106.2129.616142VCSHVFRSPECI6.02020-04-05 07:27:54c)%5     3KTCM 050710Z AUTO 01004KT 10SM -RA OVC045 07/01 A2963 RMK AO2 RAB10 SLP038 $KTCM2020-04-05T07:10:00Z47.12-122.477.01.010410.029.6309051003.8TRUETRUETRUE-RAVFRSPECI98.02020-04-05 07:27:54Y88@HPX`hpx (08@HPX`hpx (08@HPX`hpx)o*s+w,{-./0 1234)o*s+w,{-./0 12345!6%7)8-91:5;9<==A>E?I@MAQBUCYD]EaFeGiHmIqJuKzL~MOP QRSTU$V)W.X3Y8Z=[B\G]K^O_T`Xa\b`cddhemfrgwh{ijk lmnop!q&r+s0t5u:v?wDxIyNzS{X|]}b~glptx jV&j6(k5    3GGOV 050700Z 30002KT 8000 NSC 22/20 Q1012 NOSIGGGOV2020-04-05T07:00:00Z11.87-15.6522.020.030024.9729.88189TRUEMVFRMETAR36.02020-04-05 07:27:548({5    3CWJO 050700Z AUTO 01/M01 RMK AO1 SLP163 T00131006 58007CWJO2020-04-05T07:00:00Z48.43-71.151.3-0.61016.3TRUETRUE-0.7METAR133.02020-04-05 07:27:54C({5    3K2V6 050704Z AUTO 15007KT 10SM CLR 00/M06 A2989 RMK AO2K2V62020-04-05T07:04:00Z40.1-102.720.0-6.0150710.029.890747TRUETRUEVFRSPECI1261.02020-04-05 07:27:54#(W5   3MUCL 050705Z AUTO 10001KT 23/21 Q1012MUCL2020-04-05T07:05:00Z21.63-81.5523.021.0100129.88189TRUEMETAR5.02020-04-05 07:27:54$(W5   3MUCC 050705Z AUTO 12004KT 20/17 Q1013MUCC2020-04-05T07:05:00Z22.47-78.3320.017.0120429.911417TRUEMETAR4.02020-04-05 07:27:54 KyE ) 5    3CWZV 050700Z AUTO 31007KT 03/M02 RMK AO1 SLP105 T00261019 58007CWZV2020-04-05T07:00:00Z51.93-131.022.6-1.931071010.5TRUETRUE-0.7METAR92.02020-04-05 07:27:54\ )=5   3CXTV 050700Z AUTO 19011KT M10/M15 RMK AO1 SOG 26 7017 PK WND 19017/0605 SLP065 T10951149CXTV2020-04-05T07:00:00Z68.75-133.5-9.5-14.9190111006.5TRUETRUEMETAR85.02020-04-05 07:27:54- (q5  3CWME 050700Z AUTO 11002KT 02/M04 RMK AO1 T00191036CWME2020-04-05T07:00:00Z52.18-127.471.9-3.61102TRUETRUEMETAR32.02020-04-05 07:27:54L )!5     3CWRU 050700Z AUTO 01018KT 04/ RMK AO1 PK WND 01022/0657 SLP035 T0035 58005CWRU2020-04-05T07:00:00Z50.12-127.933.510181003.5TRUETRUE-0.5METAR98.02020-04-05 07:27:54/(e5   3VOTP 050700Z 18005KT 8000 FEW020 35/23 Q1012VOTP2020-04-05T07:00:00Z13.6379.5535.023.018054.9729.88189MVFRMETAR107.02020-04-05 07:27:54 !C!K)5     3KGZN 050700Z AUTO 10003KT 1/4SM FG OVC002 07/07 A3005 RMK AO2KGZN2020-04-05T07:00:00Z32.37-99.027.07.010030.2530.050198TRUETRUEFGLIFRMETAR522.02020-04-05 07:27:542(s5  3CXDP 050700Z AUTO 10006KT M12/M13 RMK AO1 T11191128CXDP2020-04-05T07:00:00Z54.32-113.95-11.9-12.81006TRUETRUEMETAR614.02020-04-05 07:27:54U)-5    3CWWX 050700Z AUTO 34018KT 01/00 RMK AO1 PK WND 34021/0604 SLP178 T00090000 51004CWWX2020-04-05T07:00:00Z45.32-81.730.90.0340181017.8TRUETRUE0.4METAR181.02020-04-05 07:27:548(5     3CWHP 050700Z AUTO 24005KT M02/ RMK AO1 SLP166 T1020 57007CWHP2020-04-05T07:00:00Z49.07-61.7-2.024051016.6TRUETRUE-0.7METAR4.02020-04-05 07:27:547 (}5     3CWZL 050700Z AUTO 30006KT 03/ RMK AO1 SLP126 T0028 50000CWZL2020-04-05T07:00:00Z53.03-131.62.830061012.6TRUETRUE0.0METAR17.02020-04-05 07:27:54 ;T)5    3KMHV 050700Z AUTO 21015KT 10SM FEW034 FEW041 FEW047 09/06 A2983 RMK A01KMHV2020-04-05T07:00:00Z35.07-118.159.06.02101510.029.828741TRUETRUEVFRSPECI849.02020-04-05 07:27:54;(5    3VRMM 050700Z 09006KT 9999 SCT018 BKN280 32/26 Q1013 NOSIGVRMM2020-04-05T07:00:00Z4.273.5232.026.09066.2129.911417TRUEVFRMETAR2.02020-04-05 07:27:542(e5    3FZNA 050700Z VRB03KT CAVOK 27/22 Q1017 NOSIGFZNA2020-04-05T07:00:00Z-1.6729.2227.022.0036.2130.029528TRUEVFRMETAR1552.02020-04-05 07:27:54?(5    3VOGO 050700Z 23009KT 6000 FEW020 SCT090 31/24 Q1012 NOSIGVOGO2020-04-05T07:00:00Z15.3773.8231.024.023093.7329.88189TRUEMVFRMETAR52.02020-04-05 07:27:54 V$hV%(a5    3FTTY 050700Z 04021KT 1000 BLSA 31/// Q1011FTTY2020-04-05T07:00:00Z17.9219.140210.6229.852362BLSAMETAR234.02020-04-05 07:27:54((Y5   3FTTD 050700Z 24006KT CAVOK 30/23 Q1013FTTD2020-04-05T07:00:00Z8.6216.0730.023.024066.2129.911417VFRMETAR422.02020-04-05 07:27:543(u5   3FALW 050700Z AUTO 02011KT //// // ////// 16/14 Q1013FALW2020-04-05T07:00:00Z-32.9718.1716.014.0201129.911417TRUEMETAR0.02020-04-05 07:27:546(q5    3VOAT 050700Z 00000KT 6000 FEW015 32/23 Q1013 NOSIGVOAT2020-04-05T07:00:00Z10.8272.1832.023.0003.7329.911417TRUEMVFRMETAR4.02020-04-05 07:27:54V)!5   3KJSL 050700Z AUTO VRB03G11KT 10SM FEW017 SCT022 BKN090 25/23 A2984 RMK A01KJSL2020-04-05T07:00:00Z26.23-95.2525.023.0031110.029.840551TRUETRUEVFRMETAR10.02020-04-05 07:27:54 sV1s8(q5    3HKMO 050700Z 25004KT 9999 SCT025 30/26 Q1014 NOSIGHKMO2020-04-05T07:00:00Z-4.0239.6230.026.025046.2129.940945TRUEVFRMETAR55.02020-04-05 07:27:54,(e5   3HKML 050700Z 09006KT 9999 SCT022 31/27 Q1014HKML2020-04-05T07:00:00Z-3.2240.131.027.09066.2129.940945VFRMETAR23.02020-04-05 07:27:54:(q5    3HKJK 050700Z 04008KT 9999 BKN020 22/16 Q1025 NOSIGHKJK2020-04-05T07:00:00Z-1.3236.9222.016.04086.2130.265747TRUEMVFRMETAR1624.02020-04-05 07:27:54-(e5   3HCMM 050700Z 07012KT 9999 BKN024 32/23 Q1013HCMM2020-04-05T07:00:00Z2.0245.3532.023.070126.2129.911417MVFRMETAR9.02020-04-05 07:27:54$(_5    3FTTC 050700Z 10004KT 8000 NSC 34/// Q1012FTTC2020-04-05T07:00:00Z13.8320.8510044.9729.88189MVFRMETAR549.02020-04-05 07:27:54 1J19$(o5    3YNBR 050700Z AUTO 24009KT 9999 // NCD 22/06 Q1015YNBR2020-04-05T07:00:00Z-30.32149.8322.06.024096.2129.970472TRUEVFRMETAR240.02020-04-05 07:27:54<#(u5    3YNAR 050700Z AUTO 30012KT 9999 // BKN052 17/08 Q1015YNAR2020-04-05T07:00:00Z-34.7146.5217.08.0300126.2129.970472TRUEVFRMETAR145.02020-04-05 07:27:54K")5    3YMTG 050700Z AUTO 26016KT 9999 // SCT024 SCT041 BKN052 14/10 Q1012YMTG2020-04-05T07:00:00Z-37.75140.7814.010.0260166.2129.88189TRUEVFRMETAR65.02020-04-05 07:27:54A!(5    3HRYR 050700Z 14003KT 9999 SCT020 BKN100 21/19 Q1023 NOSIGHRYR2020-04-05T07:00:00Z-1.9730.1221.019.014036.2130.206694TRUEVFRMETAR1497.02020-04-05 07:27:540 (e5   3HKNW 050700Z 05005KT 9999 BKN023 21/15 Q1024HKNW2020-04-05T07:00:00Z-1.3236.8221.015.05056.2130.236221MVFRMETAR1679.02020-04-05 07:27:54 A@A7)(s5   3AYPY 050700Z 16010KT 9999 FEW050 SCT200 30/24 Q1009AYPY2020-04-05T07:00:00Z-9.42147.2230.024.0160106.2129.793306VFRMETAR47.02020-04-05 07:27:54@((5    3YPBO 050700Z AUTO 05004KT 010V080 9999 // NCD 34/06 Q1010YPBO2020-04-05T07:00:00Z-23.2117.7534.06.05046.2129.822834TRUEVFRMETAR1292.02020-04-05 07:27:549'(o5    3YOLD 050700Z AUTO 21009KT 9999 // NCD 23/08 Q1017YOLD2020-04-05T07:00:00Z-30.48136.8823.08.021096.2130.029528TRUEVFRMETAR105.02020-04-05 07:27:547&(o5    3YNWN 050700Z AUTO 09002KT 9999 // NCD 33/01 Q1013YNWN2020-04-05T07:00:00Z-23.42119.833.01.09026.2129.911417TRUEVFRMETAR525.02020-04-05 07:27:54:%(o5    3YNTN 050700Z AUTO 16010KT 9999 // NCD 34/15 Q1008YNTN2020-04-05T07:00:00Z-17.68141.0734.015.0160106.2129.763779TRUEVFRMETAR22.02020-04-05 07:27:54 UFU4.(o5    3YBHI 050700Z AUTO 27015KT 9999 // NCD 22/04 Q1016YBHI2020-04-05T07:00:00Z-32.0141.4722.04.0270156.2130.0TRUEVFRMETAR292.02020-04-05 07:27:54/-(u5   3YBDV 050700Z AUTO 18012KT //// // ////// 26/05 Q1016YBDV2020-04-05T07:00:00Z-25.9139.3526.05.01801230.0TRUEMETAR47.02020-04-05 07:27:54;,(u5    3YABA 050700Z AUTO 09012KT 9999 // SCT024 19/13 Q1019YABA2020-04-05T07:00:00Z-34.93117.819.013.090126.2130.088583TRUEVFRMETAR69.02020-04-05 07:27:54;+(q5    3YAYE 050700Z AUTO 11007KT 9999 // NCD 29/M02 Q1015YAYE2020-04-05T07:00:00Z-25.18130.9829.0-2.011076.2129.970472TRUEVFRMETAR496.02020-04-05 07:27:544*(o5    3YBCV 050700Z AUTO 15008KT 9999 // NCD 24/04 Q1016YBCV2020-04-05T07:00:00Z-26.38146.2724.04.015086.2130.0TRUEVFRMETAR304.02020-04-05 07:27:54 =J=K3)5    3YBPN 050700Z AUTO 11011KT 9999 // SCT047 SCT068 BKN079 29/21 Q1010YBPN2020-04-05T07:00:00Z-20.5148.5529.021.0110116.2129.822834TRUEVFRMETAR25.02020-04-05 07:27:5492(o5    3YBOK 050700Z AUTO 19008KT 9999 // NCD 24/06 Q1015YBOK2020-04-05T07:00:00Z-27.42151.7224.06.019086.2129.970472TRUEVFRMETAR407.02020-04-05 07:27:5481(o5    3YBNA 050700Z AUTO 17007KT 9999 // NCD 22/15 Q1014YBNA2020-04-05T07:00:00Z-28.83153.5722.015.017076.2129.940945TRUEVFRMETAR2.02020-04-05 07:27:5490(o5    3YBMK 050700Z AUTO 10008KT 9999 // NCD 28/23 Q1011YBMK2020-04-05T07:00:00Z-21.17149.1728.023.010086.2129.852362TRUEVFRMETAR31.02020-04-05 07:27:540/(u5   3YBLN 050700Z AUTO 12010KT //// // ////// 20/12 Q1016YBLN2020-04-05T07:00:00Z-33.68115.420.012.01201030.0TRUEMETAR17.02020-04-05 07:27:54 VDV:8(q5   3RKPS 050700Z 22008KT CAVOK 16/M08 Q1019 RMK SLP192RKPS2020-04-05T07:00:00Z35.07128.0716.0-8.022086.2130.0885831019.2VFRMETAR8.02020-04-05 07:27:54<7(q5   3RKJJ 050700Z 31013KT CAVOK 13/M05 Q1021 RMK SLP217RKJJ2020-04-05T07:00:00Z35.12126.8213.0-5.0310136.2130.1476381021.7VFRSPECI13.02020-04-05 07:27:54*6(Y5   3FLKK 050700Z 07008KT CAVOK 22/15 Q1023FLKK2020-04-05T07:00:00Z-15.3228.4522.015.07086.2130.206694VFRMETAR1154.02020-04-05 07:27:5465(u5   3FAWK 050700Z AUTO 30003KT //// // ////// 16/13 Q1023FAWK2020-04-05T07:00:00Z-25.8228.2216.013.0300330.206694TRUESPECI1500.02020-04-05 07:27:5464(u5   3FAWB 050700Z AUTO 25001KT //// // ////// 14/13 Q1021FAWB2020-04-05T07:00:00Z-25.6328.2214.013.0250130.147638TRUEMETAR1248.02020-04-05 07:27:54 NLN$=(Y5   3SBBH 050700Z 00000KT CAVOK 21/19 Q1016SBBH2020-04-05T07:00:00Z-19.85-43.9521.019.0006.2130.0VFRMETAR785.02020-04-05 07:27:54J<)5   3CXDK 050700Z AUTO 03002KT M09/M14 RMK AO1 SOG 33 0000 SLP147 T10921139CXDK2020-04-05T07:00:00Z61.27-124.47-9.2-13.93021014.7TRUETRUEMETAR283.02020-04-05 07:27:54<;(s5    3SBAX 050700Z AUTO 19003KT 080V220 CAVOK 18/17 Q1017SBAX2020-04-05T07:00:00Z-19.57-46.9718.017.019036.2130.029528TRUEVFRMETAR998.02020-04-05 07:27:54<:(q5   3RKTH 050700Z 13011KT CAVOK 13/M02 Q1018 RMK SLP188RKTH2020-04-05T07:00:00Z35.97129.4213.0-2.0130116.2130.0590551018.8VFRSPECI20.02020-04-05 07:27:54.9(a5   3RKSM 050700Z 31007KT 9999 SKC 14/M11 A3014RKSM2020-04-05T07:00:00Z37.42127.1214.0-11.031076.2130.138779VFRMETAR20.02020-04-05 07:27:54 O='B(Y5   3SBSR 050700Z 00000KT CAVOK 21/15 Q1014SBSR2020-04-05T07:00:00Z-20.8-49.421.015.0006.2129.940945VFRMETAR543.02020-04-05 07:27:54/A(e5   3SBSC 050700Z 31002KT 9999 BKN040 22/20 Q1015SBSC2020-04-05T07:00:00Z-22.92-43.7222.020.031026.2129.970472VFRMETAR3.02020-04-05 07:27:54)@(Y5   3SBME 050700Z 32002KT CAVOK 22/21 Q1014SBME2020-04-05T07:00:00Z-22.35-41.7722.021.032026.2129.940945VFRMETAR2.02020-04-05 07:27:54(?(Y5   3SBDN 050700Z 00000KT CAVOK 19/08 Q1013SBDN2020-04-05T07:00:00Z-22.18-51.4319.08.0006.2129.911417VFRMETAR435.02020-04-05 07:27:54+>(Y5   3SBBU 050700Z 08010KT CAVOK 18/18 Q1015SBBU2020-04-05T07:00:00Z-22.32-49.0718.018.080106.2129.970472VFRMETAR590.02020-04-05 07:27:54 kO'k6G(s5   3SBNT 050700Z 18003KT 9999 FEW017 SCT021 26/25 Q1011SBNT2020-04-05T07:00:00Z-5.92-35.2526.025.018036.2129.852362VFRMETAR49.02020-04-05 07:27:54;F(}5    3SBIL 050700Z 23002KT 9999 TS SCT023 FEW032CB 27/27 Q1012SBIL2020-04-05T07:00:00Z-14.8-39.0227.027.023026.2129.88189TSVFRMETAR5.02020-04-05 07:27:542E(c5    3SBSY 050700Z AUTO 00000KT CAVOK 13/13 Q1015SBSY2020-04-05T07:00:00Z-11.57-50.6713.013.0006.2129.970472TRUEVFRMETAR197.02020-04-05 07:27:54)D(Y5   3SBIZ 050700Z 02003KT CAVOK 26/24 Q1010SBIZ2020-04-05T07:00:00Z-5.52-47.4526.024.02036.2129.822834VFRMETAR123.02020-04-05 07:27:54+C(Y5   3SBUL 050700Z 11004KT CAVOK 20/18 Q1017SBUL2020-04-05T07:00:00Z-18.87-48.2220.018.011046.2130.029528VFRMETAR922.02020-04-05 07:27:54 0NIK) 5    3CXYH 050700Z AUTO 20004KT M06/M14 RMK AO1 SLP143 T10571135 58002CXYH2020-04-05T07:00:00Z61.25-123.75-5.7-13.520041014.3TRUETRUE-0.2METAR204.02020-04-05 07:27:549J(5     3CWXC 050700Z AUTO 00000KT M05/ RMK AO1 SLP146 T1046 58010CWXC2020-04-05T07:00:00Z48.88-71.03-4.6001014.6TRUETRUE-1.0METAR300.02020-04-05 07:27:54\I)15    3CXTN 050700Z AUTO 18029KT M19/M21 RMK AO1 PK WND 18034/0649 SLP155 T11881210 58001CXTN2020-04-05T07:00:00Z69.2-122.35-18.8-21.0180291015.5TRUETRUE-0.1METAR552.02020-04-05 07:27:54JH)5   3CXLL 050700Z AUTO 02003KT M10/M15 RMK AO1 SOG 72 8003 SLP169 T10971147CXLL2020-04-05T07:00:00Z61.12-122.85-9.7-14.72031016.9TRUETRUEMETAR183.02020-04-05 07:27:54 #Y7O(w5   3HKEL 050700Z 12012KT 9999 FEW021CB BKN270 21/11 Q1028HKEL2020-04-05T07:00:00Z0.435.2321.011.0120126.2130.35433VFRMETAR2133.02020-04-05 07:27:54IN)5    3HUEN 050700Z 13005KT 8000 TSRA SCT018 FEW020CB BKN120 20/18 Q1020HUEN2020-04-05T07:00:00Z0.0332.4520.018.013054.9730.11811TSRAMVFRMETAR1155.02020-04-05 07:27:54DM) 5    3CWQS 050700Z AUTO 02007KT 03/M02 RMK AO1 SLP120 T00301020 58003CWQS2020-04-05T07:00:00Z53.32-132.773.0-2.02071012.0TRUETRUE-0.3METAR14.02020-04-05 07:27:54WL)/5    3CWWL 050700Z AUTO 35017KT 05/M00 RMK AO1 PK WND 00021/0609 SLP103 T00481001 57007CWWL2020-04-05T07:00:00Z53.5-130.634.8-0.1350171010.3TRUETRUE-0.7METAR17.02020-04-05 07:27:54 -By-/T(e5   3LICG 050650Z 27009KT 9999 FEW015 14/10 Q1019LICG2020-04-05T06:50:00Z36.8211.9714.010.027096.2130.088583VFRMETAR191.02020-04-05 07:27:54:S(o5    3FAEO 050650Z 25008KT 1000 BCFG OVC005 12/12 Q1023FAEO2020-04-05T06:50:00Z-26.529.9712.012.025080.6230.206694BCFGLIFRSPECI1737.02020-04-05 07:27:54QR)5    3K33V 050655Z AUTO 13005KT 10SM SCT065 BKN080 M01/M06 A2988 RMK AO1K33V2020-04-05T06:55:00Z40.75-106.28-1.0-6.0130510.029.878937TRUETRUEVFRSPECI2484.02020-04-05 07:27:54CQ(5    3KMER 050655Z AUTO 00000KT 10SM BKN044 10/10 A2979 RMK AO1KMER2020-04-05T06:55:00Z37.38-120.5710.010.00010.029.790354TRUETRUEVFRMETAR57.02020-04-05 07:27:548P(q5    3FQMA 050700Z 01009KT 9999 SCT025 24/20 Q1014 NOSIGFQMA2020-04-05T07:00:00Z-25.9232.5724.020.01096.2129.940945TRUEVFRMETAR44.02020-04-05 07:27:54 Bv^X))5     3CYNM 050733Z AUTO 31011KT 2 1/2SM -SN BKN008 OVC019 00/00 A2991 RMK ICG SLP140CYNM2020-04-05T07:33:00Z49.77-77.820.00.0310112.529.9114171014.0TRUE-SNIFRSPECI281.02020-04-05 07:38:05=W(u5   3KOWA 050733Z AUTO 12004KT 10SM M01/M03 A3014 RMK AO2KOWA2020-04-05T07:33:00Z44.12-93.25-1.0-3.0120410.030.138779TRUETRUESPECI350.02020-04-05 07:38:05FV)5    3KFOZ 050733Z AUTO 00000KT 10SM BKN120 M05/M07 A3016 RMK AO2KFOZ2020-04-05T07:33:00Z47.77-93.65-5.0-7.00010.030.159449TRUETRUEVFRSPECI411.02020-04-05 07:38:058U)5   3OOSH 050650Z AUTO 04006KT //// ////// 37/12 Q1012 RMK 1009OOSH2020-04-05T06:50:00Z24.3856.6237.012.040629.88189TRUEMETAR35.02020-04-05 07:27:54 '\~I\) 5      3KSLG 050732Z AUTO 00000KT 2SM BR OVC003 07/07 RMK AO2 TSNO PNO $KSLG2020-04-05T07:32:00Z36.2-94.477.07.0002.0TRUETRUETRUETRUEBRLIFRSPECI300.02020-04-05 07:38:05X[)5     3CYBU 050732Z AUTO 02006KT 3/4SM -SN VV013 M08/M09 A3003 RMK SLP201CYBU2020-04-05T07:32:00Z53.32-104.0-8.0-9.02060.7530.0295281020.1TRUE-SNLIFR1300SPECI374.02020-04-05 07:38:05EZ)5    3KXVG 050732Z AUTO 00000KT 10SM BKN100 M04/M05 A3012 RMK AO2KXVG2020-04-05T07:32:00Z46.98-94.2-4.0-5.00010.030.121063TRUETRUEVFRSPECI407.02020-04-05 07:38:05SY) 5    3CYPH 050733Z AUTO 10022G28KT 6SM BR CLR M14/M17 A3005 RMK SLP179CYPH2020-04-05T07:33:00Z58.45-78.08-14.0-17.010022286.030.0501981017.9TRUEBRVFRSPECI3.02020-04-05 07:38:05 <3<q`)?5       3PATK 050731Z AUTO 36003KT 1 1/4SM -SN BR OVC006 01/M01 A2985 RMK AO2 P0002 T00061011 TSNOPATK2020-04-05T07:31:00Z62.3-150.10.6-1.136031.2529.84941TRUETRUETRUE-SN BRIFR0.02SPECI109.02020-04-05 07:38:05b_)75     3KBEH 050731Z AUTO 00000KT 1 1/2SM BR BKN001 M01/M02 A3014 RMK AO2 VIS 1/4V5 T10111017KBEH2020-04-05T07:31:00Z42.13-86.42-1.1-1.7001.530.138779TRUETRUEBRLIFRSPECI191.02020-04-05 07:38:05s^)Q5     3PACD 050731Z AUTO 26014KT 10SM BKN031 OVC036 03/M01 A3019 RMK AO2 PK WND 25029/0707 T00281006 TSNOPACD2020-04-05T07:31:00Z55.22-162.722.8-0.62601410.030.188976TRUETRUETRUEVFRSPECI23.02020-04-05 07:38:05f])95    3PADL 050731Z AUTO 22008G15KT 180V270 9SM OVC010 01/00 A2991 RMK AO2 CIG 008V013 FZRANOPADL2020-04-05T07:31:00Z59.05-158.51.00.02208159.029.911417TRUETRUETRUEMVFRSPECI26.02020-04-05 07:38:05 p)MpWd)5     3KODO 050731Z AUTO 15004KT 3/4SM BR VV002 08/08 A2999 RMK AO2 T00830078KODO2020-04-05T07:31:00Z31.92-102.48.37.815040.7529.991142TRUETRUEBRLIFR200SPECI902.02020-04-05 07:38:05Vc)5     3KMWL 050731Z AUTO 30004KT 2 1/2SM BR OVC002 07/07 A3006 RMK AO2 T00720067KMWL2020-04-05T07:31:00Z32.78-98.077.26.730042.530.059055TRUETRUEBRLIFRSPECI284.02020-04-05 07:38:05Xb)'5     3KMPV 050731Z AUTO 00000KT 4SM BR SCT001 OVC090 00/M01 A3003 RMK AO2 T00001006KMPV2020-04-05T07:31:00Z44.2-72.570.0-0.6004.030.029528TRUETRUEBRMVFRSPECI343.02020-04-05 07:38:05sa)M5      3KBMG 050731Z AUTO 04006KT 2 1/2SM +RA BR SCT009 OVC043 07/06 A3005 RMK AO2 RAB07 P0013 T00720056KBMG2020-04-05T07:31:00Z39.15-86.627.25.64062.530.050198TRUETRUE+RA BRIFR0.13SPECI257.02020-04-05 07:38:05 OZMh)5     3KSHV 050731Z 35007KT 1/2SM FG OVC002 14/14 A3000 RMK AO2 T01440139 $KSHV2020-04-05T07:31:00Z32.45-93.8314.413.935070.530.0TRUETRUEFGLIFRSPECI83.02020-04-05 07:38:05og)E5      3PHTO 050731Z 17006KT 1 3/4SM +RA BR SCT017 BKN025 OVC035 23/21 A3003 RMK AO2 P0012 T02280206PHTO2020-04-05T07:31:00Z19.72-155.0522.820.617061.7530.029528TRUE+RA BRIFR0.12SPECI12.02020-04-05 07:38:05If)5    3FACT 050731Z 34010KT 310V010 9999 SCT015 BKN035 18/17 Q1013 NOSIGFACT2020-04-05T07:31:00Z-33.9718.618.017.0340106.2129.911417TRUEVFRSPECI42.02020-04-05 07:38:05\e)/5    3KPSF 050731Z AUTO 26003KT 10SM SCT014 BKN026 OVC050 09/07 A2998 RMK AO2 T00940067KPSF2020-04-05T07:31:00Z42.43-73.289.46.7260310.029.97933TRUETRUEMVFRSPECI355.02020-04-05 07:38:05 -F-=m(y5    3KFDK 050730Z AUTO 00000KT 10SM CLR 07/06 A3006 RMK AO2KFDK2020-04-05T07:30:00Z39.42-77.377.06.00010.030.059055TRUETRUEVFRSPECI92.02020-04-05 07:38:05al)75     3WIII 050730Z 25013KT 220V290 4500 -TSRA FEW017CB SCT020 30/24 Q1008 NOSIG RMK CB TO SWIII2020-04-05T07:30:00Z-6.13106.6730.024.0250132.829.763779TRUE-TSRAIFRSPECI8.02020-04-05 07:38:05*k(c5    3LEJR 050730Z AUTO VRB04KT CAVOK 16/10 Q1016LEJR2020-04-05T07:30:00Z36.75-6.0716.010.0046.2130.0TRUEVFRMETAR30.02020-04-05 07:38:059j(q5    3WAMM 050730Z 36011KT 9999 SCT021 31/24 Q1008 NOSIGWAMM2020-04-05T07:30:00Z1.55124.9231.024.0360116.2129.763779TRUEVFRMETAR80.02020-04-05 07:38:054i(q5    3FOOL 050730Z 09005KT 9999 FEW009 28/25 Q1012 NOSIGFOOL2020-04-05T07:30:00Z0.459.4228.025.09056.2129.88189TRUEVFRMETAR15.02020-04-05 07:38:05 :?:Qr)5    3WADL 050730Z 19004KT 7000 FEW015CB BKN016 29/27 Q1008 NOSIG RMK CB TO NEWADL2020-04-05T07:30:00Z-8.75116.2829.027.019044.3529.763779TRUEMVFRSPECI97.02020-04-05 07:38:051q(g5   3KPO1 050730Z AUTO 00000KT 10SM M06/M08 A2994 KPO12020-04-05T07:30:00Z48.13-105.17-6.0-8.00010.029.940945TRUEMETAR621.02020-04-05 07:38:051p(g5   3KS71 050730Z AUTO 08004KT 10SM M06/M07 A2989 KS712020-04-05T07:30:00Z48.6-109.25-6.0-7.080410.029.890747TRUEMETAR736.02020-04-05 07:38:05:o(y5  3LWOH 050730Z 35010G24KT 9999 FEW010 BKN040 08/02 Q1015LWOH2020-04-05T07:30:00Z41.1820.758.02.035010246.2129.970472VFRMETAR761.02020-04-05 07:38:05;n(q5     3OPMT 050730Z 36004KT 8000 FU NSC 29/14 Q1012 NOSIGOPMT2020-04-05T07:30:00Z30.1871.4229.014.036044.9729.88189TRUEFUMVFRMETAR123.02020-04-05 07:38:05 HHH4w(o5    3YNBR 050730Z AUTO 26007KT 3800 // NCD 21/09 Q1016YNBR2020-04-05T07:30:00Z-30.32149.8321.09.026072.3630.0TRUEIFRSPECI240.02020-04-05 07:38:05Cv)5    3UBBG 050730Z 08004KT 8000 OVC005 10/08 Q1024 R12/CLRD// NOSIGUBBG2020-04-05T07:30:00Z40.7346.3210.08.08044.9730.236221TRUEIFRSPECI330.02020-04-05 07:38:058u(o5     3TFFF 050730Z AUTO 13004KT CAVOK 22/22 Q1012 NOSIGTFFF2020-04-05T07:30:00Z14.6-61.022.022.013046.2129.88189TRUETRUEVFRMETAR5.02020-04-05 07:38:059t(q5    3VTSM 050730Z 13011KT 9999 FEW020 33/24 Q1011 NOSIGVTSM2020-04-05T07:30:00Z9.55100.0733.024.0130116.2129.852362TRUEVFRMETAR17.02020-04-05 07:38:052s(e5    3GOBD 050730Z 01024KT CAVOK 19/17 Q1012 NOSIGGOBD2020-04-05T07:30:00Z14.67-17.0719.017.010246.2129.88189TRUEVFRMETAR88.02020-04-05 07:38:05 "H~:{(q5    3VOCB 050730Z 10005KT 7000 SCT015 33/22 Q1014 NOSIGVOCB2020-04-05T07:30:00Z11.0277.0333.022.010054.3529.940945TRUEMVFRMETAR399.02020-04-05 07:38:05Dz)5     3VGHS 050730Z 16008KT 4000 HZ SCT015 BKN100 36/24 Q1010 NOSIGVGHS2020-04-05T07:30:00Z23.8590.436.024.016082.4929.822834TRUEHZIFRMETAR10.02020-04-05 07:38:05Ty)5     3YPXM 050730Z AUTO 14003KT 9999 -SHRA SCT003 BKN008 BKN011 25/25 Q1010YPXM2020-04-05T07:30:00Z-10.45105.6725.025.014036.2129.822834TRUE-SHRAIFRSPECI259.02020-04-05 07:38:05Xx)5    3YBTL 050730Z AUTO 19016G26KT 3800 +SHRA SCT029 BKN041 BKN048 24/23 Q1011YBTL2020-04-05T07:30:00Z-19.25146.7524.023.019016262.3629.852362TRUE+SHRAIFRSPECI6.02020-04-05 07:38:05 9;96(q5  3LDRI 050730Z 06010G21KT 350V120 CAVOK 15/M04 Q1024LDRI2020-04-05T07:30:00Z45.2214.5715.0-4.06010216.2130.236221VFRMETAR85.02020-04-05 07:38:059(q5     3VABB 050730Z 27010KT 3000 FU NSC 33/23 Q1011 NOSIGVABB2020-04-05T07:30:00Z19.172.8733.023.0270101.8629.852362TRUEFUIFRMETAR8.02020-04-05 07:38:05F~)5     3VIDP 050730Z 30006KT 4000 HZ FEW040 SCT100 31/11 Q1014 NOSIGVIDP2020-04-05T07:30:00Z28.5777.1231.011.030062.4929.940945TRUEHZIFRMETAR233.02020-04-05 07:38:055}(e5    3FAOR 050730Z 20008KT CAVOK 16/11 Q1023 NOSIGFAOR2020-04-05T07:30:00Z-26.1228.2216.011.020086.2130.206694TRUEVFRMETAR1700.02020-04-05 07:38:05?|(}5    3LUKK 050730Z 07010KT CAVOK 13/M09 Q1030 R08/CLRD// NOSIGLUKK2020-04-05T07:30:00Z46.9328.9313.0-9.070106.2130.413385TRUEVFRMETAR122.02020-04-05 07:38:05 *@*S)5     3NWWW 050730Z AUTO 12011KT 9999 BKN048 BKN056 OVC100 27/20 Q1009 NOSIGNWWW2020-04-05T07:30:00Z-22.02166.2227.020.0120116.2129.793306TRUETRUEVFRMETAR16.02020-04-05 07:38:05E)5     3VECC 050730Z 36007KT 5000 HZ FEW020 BKN100 36/18 Q1010 NOSIGVECC2020-04-05T07:30:00Z22.6588.4336.018.036073.1129.822834TRUEHZMVFRMETAR6.02020-04-05 07:38:05@(}5   3LDDU 050730Z 04019G33KT 340V090 CAVOK 15/M00 Q1015 NOSIGLDDU2020-04-05T07:30:00Z42.5718.2715.00.04019336.2129.970472TRUEVFRMETAR165.02020-04-05 07:38:05&(Y5   3LDOS 050730Z 06012KT CAVOK 09/00 Q1026LDOS2020-04-05T07:30:00Z45.4718.829.00.060126.2130.295275VFRMETAR89.02020-04-05 07:38:05:(}5   3LDPL 050730Z 05014KT CAVOK 15/M02 Q1023 TEMPO 06015G25KTLDPL2020-04-05T07:30:00Z44.8813.9215.0-2.050146.2130.206694VFRMETAR63.02020-04-05 07:38:05 V< (u5     3LBGO 050730Z AUTO 27008KT 9999 NCD 08/04 Q1024 NOSIGLBGO2020-04-05T07:30:00Z43.1525.728.04.027086.2130.236221TRUETRUEVFRMETAR86.02020-04-05 07:38:05: (u5    3UGTB 050730Z 17005KT 130V220 CAVOK 12/06 Q1026 NOSIGUGTB2020-04-05T07:30:00Z41.6744.9512.06.017056.2130.295275TRUEVFRMETAR495.02020-04-05 07:38:05/(e5    3UGSB 050730Z 35008KT CAVOK 12/09 Q1020 NOSIGUGSB2020-04-05T07:30:00Z41.6241.612.09.035086.2130.11811TRUEVFRMETAR32.02020-04-05 07:38:056(q5    3UGKO 050730Z 09012KT 9999 BKN100 17/07 Q1020 NOSIGUGKO2020-04-05T07:30:00Z42.1842.4817.07.090126.2130.11811TRUEVFRMETAR68.02020-04-05 07:38:05h)O5    3SOCA 050730Z AUTO 11003KT 090V150 9999 SCT022 BKN027 BKN035 27/23 Q1010 TEMPO 4000 SHRA SCT012TCUSOCA2020-04-05T07:30:00Z4.82-52.3727.023.011036.2129.822834TRUEMVFRSPECI9.02020-04-05 07:38:05 $)l$:(w5    3LZTT 050730Z 07006KT 020V120 CAVOK 06/M06 Q1030 NOSIGLZTT2020-04-05T07:30:00Z49.0720.256.0-6.07066.2130.413385TRUEVFRMETAR707.02020-04-05 07:38:05F) 5    3LBSF 050730Z 09012KT 9999 FEW023 BKN039 OVC050 06/02 Q1022 NOSIGLBSF2020-04-05T07:30:00Z42.6523.376.02.090126.2130.177166TRUEVFRMETAR592.02020-04-05 07:38:056 (k5   3LBWN 050730Z 06018G29KT CAVOK 13/01 Q1022 NOSIGLBWN2020-04-05T07:30:00Z43.2227.8213.01.06018296.2130.177166TRUEVFRMETAR43.02020-04-05 07:38:057 (q5    3LBBG 050730Z 06020KT 9999 FEW036 10/04 Q1021 NOSIGLBBG2020-04-05T07:30:00Z42.5727.5210.04.060206.2130.147638TRUEVFRMETAR28.02020-04-05 07:38:05Q )5      3LBPD 050730Z AUTO 17010KT 6000 -RA BKN020 OVC025 06/05 Q1022 NOSIGLBPD2020-04-05T07:30:00Z42.0524.856.05.0170103.7330.177166TRUETRUE-RAMVFRMETAR182.02020-04-05 07:38:05 7F7C) 5    3CWPF 050730Z AUTO 00000KT 06/M00 RMK AO1 SLP043 T00571002 56006CWPF2020-04-05T07:30:00Z48.43-123.435.7-0.2001004.3TRUETRUE-0.6METAR12.02020-04-05 07:38:05?(5    3NTAA 050730Z 06002KT 9999 FEW020 SCT076 28/23 Q1012 NOSIGNTAA2020-04-05T07:30:00Z-17.55-149.6228.023.06026.2129.88189TRUEVFRMETAR2.02020-04-05 07:38:05:(q5    3VOML 050730Z 26009KT 8000 SCT015 34/25 Q1011 NOSIGVOML2020-04-05T07:30:00Z12.9774.8834.025.026094.9729.852362TRUEMVFRMETAR103.02020-04-05 07:38:05;(w5    3LZIB 050730Z 04006KT 360V080 CAVOK 10/M03 Q1030 NOSIGLZIB2020-04-05T07:30:00Z48.1717.2210.0-3.04066.2130.413385TRUEVFRMETAR134.02020-04-05 07:38:054(g5    3LZKZ 050730Z 02014KT CAVOK 10/M05 Q1030 NOSIGLZKZ2020-04-05T07:30:00Z48.6721.2310.0-5.020146.2130.413385TRUEVFRMETAR232.02020-04-05 07:38:05 *hz)E5      3PASA 050730Z AUTO 02016G22KT 1 3/4SM -SN BR SCT011 OVC015 M09/M10 A2916 RMK AO2 P0000 FZRANOPASA2020-04-05T07:30:00Z63.68-170.5-9.0-10.02016221.7529.161417TRUETRUETRUE-SN BRIFR0.005SPECI16.02020-04-05 07:38:05D)5    3WAJJ 050730Z 28019KT 9999 FEW012CB FEW013 30/21 Q1006 NOSIGWAJJ2020-04-05T07:30:00Z-2.58140.5230.021.0280196.2129.704725TRUEVFRMETAR88.02020-04-05 07:38:05<(y5     3LWSK 050730Z 00000KT 9999 -RA OVC050 08/06 Q1019 NOSIGLWSK2020-04-05T07:30:00Z41.9721.638.06.0006.2130.088583TRUE-RAVFRMETAR239.02020-04-05 07:38:05P)5    3VHHH 050730Z 08009KT 9999 -SHRA FEW012 SCT028 19/17 Q1017 TEMPO 3500 SHRAVHHH2020-04-05T07:30:00Z22.32113.9219.017.08096.2130.029528-SHRAVFRMETAR9.02020-04-05 07:38:05 II&(Y5   3LDLO 050730Z 01015KT CAVOK 15/02 Q1022LDLO2020-04-05T07:30:00Z44.5714.415.02.010156.2130.177166VFRMETAR46.02020-04-05 07:38:05b)?5    3TFFR 050730Z AUTO 12003KT 9999 SCT018 SCT023 BKN029 25/23 Q1011 TEMPO 4000 SHRA SCT015TCUTFFR2020-04-05T07:30:00Z16.27-61.5325.023.012036.2129.852362TRUEMVFRMETAR11.02020-04-05 07:38:05y)I5     3PAGM 050730Z AUTO 01030G37KT 3/4SM -SN BR M09/M11 A2919 RMK AO2 PK WND 02038/0713 P0000 FZRANOPAGM2020-04-05T07:30:00Z63.77-171.73-9.0-11.01030370.7529.190945TRUETRUETRUE-SN BR0.005SPECI8.02020-04-05 07:38:05) 5      3PAMO 050730Z AUTO 24027G44KT 1 1/4SM -SN BR OVC003 M02/M02 A2939 RMK AO2 PK WND 21044/0721 UPE13SNB13 CIG 002V005 P0000 FZRANOPAMO2020-04-05T07:30:00Z62.1-163.68-2.0-2.024027441.2529.388779TRUETRUETRUE-SN BRLIFR0.005SPECI103.02020-04-05 07:38:05 8G8;!(w5    3EPWA 050730Z 16003KT 110V200 CAVOK 09/M03 Q1035 NOSIGEPWA2020-04-05T07:30:00Z52.1720.979.0-3.016036.2130.561024TRUEVFRMETAR107.02020-04-05 07:38:05? (}5   3LDSP 050730Z 04015G29KT 010V080 CAVOK 18/M02 Q1018 NOSIGLDSP2020-04-05T07:30:00Z43.5216.318.0-2.04015296.2130.059055TRUEVFRMETAR21.02020-04-05 07:38:05<(w5    3LDZA 050730Z 05012KT 010V090 CAVOK 12/M02 Q1027 NOSIGLDZA2020-04-05T07:30:00Z45.7216.0712.0-2.050126.2130.324802TRUEVFRMETAR107.02020-04-05 07:38:05A) 5   3LDZD 050730Z 06016KT 030V100 CAVOK 17/M04 Q1020 TEMPO 05020G30KTLDZD2020-04-05T07:30:00Z44.115.3717.0-4.060166.2130.11811VFRMETAR84.02020-04-05 07:38:053(g5    3LHBP 050730Z 06012KT CAVOK 13/M05 Q1028 NOSIGLHBP2020-04-05T07:30:00Z47.4219.2713.0-5.060126.2130.35433TRUEVFRMETAR185.02020-04-05 07:38:05 SB)&([5   3EPGD 050730Z 24009KT CAVOK 08/M02 Q1033EPGD2020-04-05T07:30:00Z54.3718.478.0-2.024096.2130.501968VFRMETAR138.02020-04-05 07:38:05'%([5   3EPKK 050730Z 06010KT CAVOK 07/M04 Q1032EPKK2020-04-05T07:30:00Z50.0719.87.0-4.060106.2130.47244VFRMETAR237.02020-04-05 07:38:050$(k5   3EPLL 050730Z 11006KT 080V140 CAVOK 09/M03 Q1034EPLL2020-04-05T07:30:00Z51.7219.49.0-3.011066.2130.531496VFRMETAR184.02020-04-05 07:38:05(#([5   3EPPO 050730Z 13008KT CAVOK 09/M04 Q1033EPPO2020-04-05T07:30:00Z52.4216.829.0-4.013086.2130.501968VFRMETAR92.02020-04-05 07:38:05'"([5   3EPRZ 050730Z 09009KT CAVOK 07/M04 Q1033EPRZ2020-04-05T07:30:00Z50.122.057.0-4.09096.2130.501968VFRMETAR202.02020-04-05 07:38:05 C>eC1+(k5   3EPSY 050730Z 16004KT 110V190 CAVOK 06/M02 Q1035EPSY2020-04-05T07:30:00Z53.4720.936.0-2.016046.2130.561024VFRMETAR141.02020-04-05 07:38:050*(k5   3EPWR 050730Z 13005KT 100V160 CAVOK 09/M01 Q1033EPWR2020-04-05T07:30:00Z51.116.879.0-1.013056.2130.501968VFRMETAR121.02020-04-05 07:38:05/)(k5   3EPZG 050730Z 13003KT 080V210 CAVOK 08/M01 Q1033EPZG2020-04-05T07:30:00Z52.1315.88.0-1.013036.2130.501968VFRMETAR59.02020-04-05 07:38:05S()'5    3WSSS 050730Z 05009KT 010V080 9999 FEW017CB FEW018TCU SCT270 31/24 Q1008 NOSIGWSSS2020-04-05T07:30:00Z1.37103.9731.024.05096.2129.763779TRUEVFRMETAR16.02020-04-05 07:38:05<'(5    3VOHY 050730Z 11005KT 6000 FEW020 FEW100 34/22 Q1016 NOSIGVOHY2020-04-05T07:30:00Z17.4578.4534.022.011053.7330.0TRUEMVFRMETAR545.02020-04-05 07:38:05 SJ.0(k5   3EPBY 050730Z 17003KT 130V210 CAVOK 09/M03 Q1034EPBY2020-04-05T07:30:00Z53.118.09.0-3.017036.2130.531496VFRMETAR71.02020-04-05 07:38:05(/([5   3EPKT 050730Z 09011KT CAVOK 09/M04 Q1032EPKT2020-04-05T07:30:00Z50.4719.089.0-4.090116.2130.47244VFRMETAR284.02020-04-05 07:38:05(.([5   3EPLB 050730Z 09004KT CAVOK 08/M03 Q1035EPLB2020-04-05T07:30:00Z51.2322.728.0-3.09046.2130.561024VFRMETAR206.02020-04-05 07:38:05'-([5   3EPMO 050730Z VRB02KT CAVOK 09/M04 Q1035EPMO2020-04-05T07:30:00Z52.4520.659.0-4.0026.2130.561024VFRMETAR104.02020-04-05 07:38:05',([5   3EPSC 050730Z 14009KT CAVOK 08/M02 Q1033EPSC2020-04-05T07:30:00Z53.5814.98.0-2.014096.2130.501968VFRMETAR47.02020-04-05 07:38:05 $%k$+5(e5   3DTTA 050730Z 19006KT 9999 FEW030 13/08 Q1020DTTA2020-04-05T07:30:00Z36.8510.2213.08.019066.2130.11811VFRMETAR4.02020-04-05 07:38:0554(q5    3DTTJ 050730Z 03010KT 9999 FEW020 16/08 Q1020 NOSIGDTTJ2020-04-05T07:30:00Z33.8710.7716.08.030106.2130.11811TRUEVFRMETAR4.02020-04-05 07:38:05U3)5     3KXNA 050730Z AUTO 06003KT 1 3/4SM BR OVC002 07/06 A3006 RMK AO2 T00720061KXNA2020-04-05T07:30:00Z36.28-94.37.26.16031.7530.059055TRUETRUEBRLIFRSPECI392.02020-04-05 07:38:0542(k5    3VEPT 050730Z 27008KT 6000 NSC 34/03 Q1010 NOSIGVEPT2020-04-05T07:30:00Z25.685.0834.03.027083.7329.822834TRUEMVFRMETAR60.02020-04-05 07:38:05U1)!5    3KLFT 050730Z AUTO 34006KT 10SM BKN015 OVC100 17/14 A2997 RMK AO2 T01670144KLFT2020-04-05T07:30:00Z30.2-92.016.714.4340610.029.970472TRUETRUEMVFRSPECI11.02020-04-05 07:38:05 YDY%:([5   3LZSL 050730Z /////KT CAVOK 07/M02 Q1030LZSL2020-04-05T07:30:00Z48.6319.137.0-2.06.2130.413385VFRSPECI313.02020-04-05 07:38:05)9([5   3LZZI 050730Z 05010KT CAVOK 09/M04 Q1030LZZI2020-04-05T07:30:00Z49.2318.629.0-4.050106.2130.413385VFRMETAR311.02020-04-05 07:38:05T8)5    3BIKF 050730Z 03023KT 2000 R10/P1500N -SN BLSN BKN013 OVC025 M05/M06 Q0994BIKF2020-04-05T07:30:00Z63.98-22.6-5.0-6.030231.2429.350393-SN BLSNIFRMETAR54.02020-04-05 07:38:0517(o5   3DTMB 050730Z 28005KT 220V310 8000 NSC 14/07 Q1020DTMB2020-04-05T07:30:00Z35.7710.7514.07.028054.9730.11811MVFRMETAR2.02020-04-05 07:38:0566(s5    3DTNH 050730Z AUTO 20004KT 160V230 CAVOK 13/06 Q1020DTNH2020-04-05T07:30:00Z36.0710.4313.06.020046.2130.11811TRUEVFRMETAR2.02020-04-05 07:38:05 gIg(?([5   3LKKV 050730Z 12010KT CAVOK 07/M02 Q1028LKKV2020-04-05T07:30:00Z50.212.927.0-2.0120106.2130.35433VFRMETAR604.02020-04-05 07:38:05>>(}5    3LKMT 050730Z 04007KT 010V070 8000 NSC 06/M01 Q1031 NOSIGLKMT2020-04-05T07:30:00Z49.6718.126.0-1.04074.9730.442913TRUEMVFRMETAR256.02020-04-05 07:38:051=(g5    3LKPR 050730Z 09007KT CAVOK 07/M02 Q1030 NOSIGLKPR2020-04-05T07:30:00Z50.114.277.0-2.09076.2130.413385TRUEVFRMETAR365.02020-04-05 07:38:053<(g5    3LKTB 050730Z 05009KT CAVOK 10/M03 Q1030 NOSIGLKTB2020-04-05T07:30:00Z49.1316.6810.0-3.05096.2130.413385TRUEVFRMETAR246.02020-04-05 07:38:051;(k5   3LZPP 050730Z 36003KT 300V040 CAVOK 09/M03 Q1030LZPP2020-04-05T07:30:00Z48.6217.839.0-3.036036.2130.413385VFRMETAR161.02020-04-05 07:38:05 T3tT6D(k5    3VAJJ 050730Z 27012KT 6000 NSC 32/25 Q1011 NOSIGVAJJ2020-04-05T07:30:00Z19.1272.8232.025.0270123.7329.852362TRUEMVFRMETAR4.02020-04-05 07:38:051C(e5    3LCLK 050730Z 05017KT CAVOK 21/14 Q1010 NOSIGLCLK2020-04-05T07:30:00Z34.8733.6221.014.050176.2129.822834TRUEVFRMETAR2.02020-04-05 07:38:05'B(Y5   3LCPH 050730Z 12022KT CAVOK 25/07 Q1007LCPH2020-04-05T07:30:00Z34.7232.4725.07.0120226.2129.734253VFRMETAR8.02020-04-05 07:38:059A(o5     3FMCZ 050730Z AUTO 06007KT CAVOK 32/24 Q1013 NOSIGFMCZ2020-04-05T07:30:00Z-12.845.2732.024.06076.2129.911417TRUETRUEVFRMETAR7.02020-04-05 07:38:05G@) 5    3NCRG 050730Z AUTO 29012KT 9999 SCT019/// BKN100/// 27/25 Q1009NCRG2020-04-05T07:30:00Z-21.2-159.8227.025.0290126.2129.793306TRUEVFRMETAR7.02020-04-05 07:38:05 JM J=I(y5   3LYTV 050730Z 32006G16KT 9999 FEW060 17/M01 Q1014 NOSIGLYTV2020-04-05T07:30:00Z42.3818.7217.0-1.03206166.2129.940945TRUEVFRMETAR5.02020-04-05 07:38:057H(u5    3LYUZ 050730Z AUTO 06008KT 020V160 CAVOK 06/M02 Q1023LYUZ2020-04-05T07:30:00Z43.919.76.0-2.06086.2130.206694TRUEVFRMETAR904.02020-04-05 07:38:05=G(5    3EIDW 050730Z 16018KT 9999 FEW018 BKN200 09/05 Q1004 NOSIGEIDW2020-04-05T07:30:00Z53.42-6.259.05.0160186.2129.64567TRUEVFRMETAR85.02020-04-05 07:38:05:F(y5    3VEGT 050730Z 34006KT 5000 HZ FEW020 33/16 Q1009 NO SIGVEGT2020-04-05T07:30:00Z26.191.5833.016.034063.1129.793306HZMVFRMETAR54.02020-04-05 07:38:05-E(_5   3VEJH 050730Z 14001KT 6000 NSC 35/15 Q1013VEJH2020-04-05T07:30:00Z21.9284.0835.015.014013.7329.911417MVFRMETAR230.02020-04-05 07:38:05 @:{@0N(e5    3LYBE 050730Z 08007KT CAVOK 13/02 Q1026 NOSIGLYBE2020-04-05T07:30:00Z44.8220.2813.02.08076.2130.295275TRUEVFRMETAR99.02020-04-05 07:38:068M(u5    3LYBT 050730Z 06003KT 340V120 CAVOK 12/02 Q1026 NOSIGLYBT2020-04-05T07:30:00Z44.9320.2512.02.06036.2130.295275TRUEVFRMETAR80.02020-04-05 07:38:05AL)5    3LYKV 050730Z 04010KT 360V060 9999 FEW040 11/01 Q1024 NOSIGLYKV2020-04-05T07:30:00Z43.8220.5811.01.040106.2130.236221TRUEVFRMETAR209.02020-04-05 07:38:059K(s5    3LYNI 050730Z 05015KT 9999 FEW040 10/M00 Q1022 NOSIGLYNI2020-04-05T07:30:00Z43.3221.8810.00.050156.2130.177166TRUEVFRMETAR202.02020-04-05 07:38:05@J)5    3LYPG 050730Z 01018KT 9999 FEW040 BKN100 15/M00 Q1015 NOSIGLYPG2020-04-05T07:30:00Z42.3719.2515.00.010186.2129.970472TRUEVFRMETAR43.02020-04-05 07:38:05 18x10S(e5    3GMAD 050730Z 00000KT CAVOK 14/13 Q1017 NOSIGGMAD2020-04-05T07:30:00Z30.32-9.4214.013.0006.2130.029528TRUEVFRMETAR74.02020-04-05 07:38:06?R(5    3EICK 050730Z 14020KT 9999 FEW015 BKN080 09/07 Q0999 NOSIGEICK2020-04-05T07:30:00Z51.85-8.479.07.0140206.2129.498032TRUEVFRMETAR162.02020-04-05 07:38:06FQ) 5    3EINN 050730Z 11016KT 9999 FEW025 SCT080 BKN200 10/06 Q0998 NOSIGEINN2020-04-05T07:30:00Z52.7-8.9210.06.0110166.2129.468504TRUEVFRMETAR20.02020-04-05 07:38:06:P(w5    3LQBK 050730Z 04004KT 340V120 CAVOK 11/M01 Q1026 NOSIGLQBK2020-04-05T07:30:00Z44.9317.311.0-1.04046.2130.295275TRUEVFRMETAR122.02020-04-05 07:38:06BO)5    3LQSA 050730Z 04007KT 350V120 9999 FEW060 12/M01 Q1022 NOSIGLQSA2020-04-05T07:30:00Z43.8218.3212.0-1.04076.2130.177166TRUEVFRMETAR511.02020-04-05 07:38:06 XIX3X(e5    3GMMX 050730Z 25003KT CAVOK 15/12 Q1018 NOSIGGMMX2020-04-05T07:30:00Z31.62-8.0215.012.025036.2130.059055TRUEVFRMETAR466.02020-04-05 07:38:064W(o5     3GMTT 050730Z AUTO 09008KT CAVOK 16/14 Q1016 NOSIGGMTT2020-04-05T07:30:00Z35.72-5.916.014.09086.2130.0TRUETRUEVFRMETAR21.02020-04-05 07:38:06AV(5    3GMMN 050730Z 20004KT 6000 FEW020 SCT200 13/13 Q1017 NOSIGGMMN2020-04-05T07:30:00Z33.37-7.5713.013.020043.7330.029528TRUEMVFRMETAR206.02020-04-05 07:38:061U(k5    3GMME 050730Z 16005KT 8000 NSC 15/15 Q1016 NOSIGGMME2020-04-05T07:30:00Z34.03-6.7715.015.016054.9730.0TRUEMVFRMETAR75.02020-04-05 07:38:061T(e5    3GMFF 050730Z VRB02KT CAVOK 15/12 Q1018 NOSIGGMFF2020-04-05T07:30:00Z33.92-4.9715.012.0026.2130.059055TRUEVFRMETAR579.02020-04-05 07:38:06 H6~ H>])5   3OIMM 050730Z 00000KT 9999 SCT035TCU BKN180 15/10 Q1019 A3011OIMM2020-04-05T07:30:00Z36.2359.6215.010.0006.2130.088583VFRMETAR980.02020-04-05 07:38:061\(g5   3OISS 050730Z 14004KT CAVOK 22/M04 Q1023 A3023OISS2020-04-05T07:30:00Z29.5252.5722.0-4.014046.2130.206694VFRMETAR1491.02020-04-05 07:38:065[(q5   3OITT 050730Z 28006KT 9999 FEW030 11/03 Q1026 A3030OITT2020-04-05T07:30:00Z38.1346.2311.03.028066.2130.295275VFRMETAR1361.02020-04-05 07:38:062Z(g5   3OIKK 050730Z 27012KT CAVOK 21/M05 Q1022 A3020OIKK2020-04-05T07:30:00Z30.2556.9721.0-5.0270126.2130.177166VFRMETAR1754.02020-04-05 07:38:06DY(}5    3KMVH 050730Z AUTO 00000KT 10SM CLR M05/M08 A2982 RMK AO2KMVH2020-04-05T07:30:00Z46.83-108.93-5.0-8.00010.029.819881TRUETRUEVFRSPECI1355.02020-04-05 07:38:06 wH)w,b(e5   3OIGG 050730Z 00000KT 9999 FEW025 16/11 Q1023OIGG2020-04-05T07:30:00Z37.3349.616.011.0006.2130.206694VFRMETAR-13.02020-04-05 07:38:06'a(Y5   3OIAW 050730Z 13002KT CAVOK 28/09 Q1017OIAW2020-04-05T07:30:00Z31.3248.7728.09.013026.2130.029528VFRMETAR22.02020-04-05 07:38:062`(g5   3OIFM 050730Z 25012KT CAVOK 18/M07 Q1024 A3024OIFM2020-04-05T07:30:00Z32.7551.8718.0-7.0250126.2130.236221VFRMETAR1542.02020-04-05 07:38:064_(q5   3OIII 050730Z 27020KT 9999 FEW040 15/01 Q1020 A3013OIII2020-04-05T07:30:00Z35.6851.315.01.0270206.2130.11811VFRMETAR1191.02020-04-05 07:38:062^(k5   3OIKB 050730Z 20008KT 6000 NSC 30/17 Q1013 A2992OIKB2020-04-05T07:30:00Z27.2256.3730.017.020083.7329.911417MVFRMETAR10.02020-04-05 07:38:06 =K=Rg)5    3KUNO 050730Z AUTO 05003KT 7SM SCT005 OVC011 07/06 A3008 RMK AO2 T00720056KUNO2020-04-05T07:30:00Z36.88-91.97.25.65037.030.079725TRUETRUEMVFRSPECI372.02020-04-05 07:38:06:f({5    3UBBB 050730Z VRB02KT CAVOK 15/08 Q1023 R88/CLRD// NOSIGUBBB2020-04-05T07:30:00Z40.4550.0715.08.0026.2130.206694TRUEVFRSPECI-6.02020-04-05 07:38:06.e(e5   3OIBP 050730Z 31014KT CAVOK 30/17 Q1014 A2994OIBP2020-04-05T07:30:00Z27.3852.7330.017.0310146.2129.940945VFRMETAR9.02020-04-05 07:38:06j(5    3LKPD 050730Z 06003KT CAVOK 07/M01 Q1031 NOSIG RMK BLU BLULKPD2020-04-05T07:30:00Z50.0215.737.0-1.06036.2130.442913TRUEVFRSPECI226.02020-04-05 07:38:066i(}5     3CMGB 050730Z AUTO 00000KT 02/ RMK AO1 SLP160 T0019 58003CMGB2020-04-05T07:30:00Z45.37-72.771.9001016.0TRUETRUE-0.3METAR86.02020-04-05 07:38:06Hh)5    3LKNA 050730Z 06010KT 030V100 CAVOK 08/M04 Q1029 NOSIG RMK BLU BLULKNA2020-04-05T07:30:00Z49.1716.128.0-4.060106.2130.383858TRUEVFRSPECI472.02020-04-05 07:38:06 ?Xp)%5     3KWLD 050729Z AUTO 13004KT 6SM BR BKN005 OVC016 04/03 A3009 RMK AO2 T00390028KWLD2020-04-05T07:29:00Z37.17-97.033.92.813046.030.088583TRUETRUEBRIFRSPECI350.02020-04-05 07:38:06>o(y5     3BKPR 050730Z 01016KT 9999 -RA BKN030 07/02 Q1020 NOSIGBKPR2020-04-05T07:30:00Z42.5821.037.02.010166.2130.11811TRUE-RAMVFRMETAR576.02020-04-05 07:38:068n(y5   3OITL 050730Z VRB10KT 9999 FEW010 FEW025TCU 11/02 Q1023OITL2020-04-05T07:30:00Z38.3348.4211.02.00106.2130.206694VFRMETAR1316.02020-04-05 07:38:06;m(}5    3LKCV 050730Z VRB02KT CAVOK 06/00 Q1030 NOSIG RMK BLU BLULKCV2020-04-05T07:30:00Z49.9315.386.00.0026.2130.413385TRUEVFRSPECI242.02020-04-05 07:38:06 T IFTlt);5      3KMYL 050729Z AUTO 15010KT 3SM -SN BR BKN006 OVC013 01/M01 A2958 RMK AO2 P0005 T00061011KMYL2020-04-05T07:29:00Z44.9-116.10.6-1.1150103.029.58071TRUETRUE-SN BRIFR0.05SPECI1533.02020-04-05 07:38:06}s)O5       3PABR 050729Z AUTO 08014KT 1 3/4SM -SN BR BKN010 OVC014 M08/M10 A2933 RMK AO2 P0000 T10831100 TSNOPABR2020-04-05T07:29:00Z71.28-156.78-8.3-10.080141.7529.329725TRUETRUETRUE-SN BRIFR0.005SPECI7.02020-04-05 07:38:06Qr)5     3CYGW 050729Z AUTO 32005KT 9SM -SN OVC002 M02/M02 A2985 RMK SLP111CYGW2020-04-05T07:29:00Z55.27-77.77-2.0-2.032059.029.849411011.1TRUE-SNLIFRSPECI12.02020-04-05 07:38:06Zq)5     3KFLD 050729Z AUTO 13005KT 3/4SM BR VV001 M01/M02 A3015 RMK AO2 T10061017KFLD2020-04-05T07:29:00Z43.77-88.48-0.6-1.713050.7530.15059TRUETRUEBRLIFR100SPECI240.02020-04-05 07:38:06 w6]SwVx)5     3KBVO 050728Z AUTO 36003KT 2 1/2SM BR OVC004 05/04 A3010 RMK AO2 T00500044KBVO2020-04-05T07:28:00Z36.77-96.025.04.436032.530.100393TRUETRUEBRLIFRSPECI210.02020-04-05 07:38:06w)i5      3KSXT 050729Z AUTO 16013KT 1 1/2SM UP BR FEW015 OVC030 02/01 A2947 RMK AO2 VIS 1/2V5 RAE12UPB12 P0000 T00170011KSXT2020-04-05T07:29:00Z42.6-123.371.71.1160131.529.471457TRUETRUEBR UPIFR0.005SPECI1170.02020-04-05 07:38:06Sv)5    3KMFD 050729Z AUTO 33008KT 9SM SCT007 OVC055 09/07 A3003 RMK AO2 T00890067KMFD2020-04-05T07:29:00Z40.82-82.528.96.733089.030.029528TRUETRUEVFRSPECI395.02020-04-05 07:38:06Du) 5    3KMKC 050729Z 02004KT 10SM OVC029 05/01 A3011 RMK AO2 T00500011KMKC2020-04-05T07:29:00Z39.12-94.65.01.120410.030.109253TRUEMVFRSPECI227.02020-04-05 07:38:06 &&\|)/5    3KSMX 050728Z AUTO 15004KT 10SM SCT022 BKN034 OVC070 11/09 A2989 RMK AO2 T01110094KSMX2020-04-05T07:28:00Z34.9-120.4511.19.4150410.029.890747TRUETRUEVFRSPECI74.02020-04-05 07:38:06M{)5    3KYIP 050728Z 36008KT 10SM SCT012 OVC017 08/04 A3008 RMK AO2 T00830044KYIP2020-04-05T07:28:00Z42.23-83.538.34.4360810.030.079725TRUEMVFRSPECI215.02020-04-05 07:38:06z){5       3PATG 050728Z AUTO 21019KT 8SM UP SCT015 BKN023 OVC033 01/M01 A2992 RMK AO2 PK WND 21026/0703 RAB14E23UPB23 P0000 FZRANOPATG2020-04-05T07:28:00Z59.05-160.381.0-1.0210198.029.920275TRUETRUETRUEUPMVFR0.005SPECI4.02020-04-05 07:38:06 y)e5       3PATQ 050728Z AUTO 13016KT 2SM -SN BR SCT015 BKN020 OVC026 M03/M03 A2927 RMK AO2 UPE16SNB16 P0000 FZRANO TSNOPATQ2020-04-05T07:28:00Z70.47-157.43-3.0-3.0130162.029.27067TRUETRUETRUETRUE-SN BRIFR0.005SPECI29.02020-04-05 07:38:06 (JzY))5     3KESF 050728Z AUTO 00000KT 1/2SM FG BKN002 OVC110 16/15 A2997 RMK AO2 T01560150KESF2020-04-05T07:28:00Z31.4-92.2815.615.0000.529.970472TRUETRUEFGLIFRSPECI28.02020-04-05 07:38:06J)5    3KHUF 050728Z 01004KT 10SM FEW022 OVC035 07/05 A3009 RMK AO2 T00670050KHUF2020-04-05T07:28:00Z39.45-87.36.75.010410.030.088583TRUEVFRSPECI179.02020-04-05 07:38:06X~)5     3KJCT 050728Z AUTO 11004KT 1 3/4SM BR OVC002 10/10 A3004 RMK AO2 T01000100KJCT2020-04-05T07:28:00Z30.5-99.7710.010.011041.7530.041338TRUETRUEBRLIFRSPECI522.02020-04-05 07:38:06R})5     3KMKO 050728Z AUTO 34005KT 3SM BR OVC003 06/05 A3010 RMK AO2 T00610050KMKO2020-04-05T07:28:00Z35.65-95.376.15.034053.030.100393TRUETRUEBRLIFRSPECI185.02020-04-05 07:38:06 )>\M)5    3KCNU 050727Z AUTO 09003KT 10SM OVC009 06/03 A3009 RMK AO2 T00560033KCNU2020-04-05T07:27:00Z37.67-95.485.63.390310.030.088583TRUETRUEIFRSPECI297.02020-04-05 07:38:06\)5   3PACZ 050728Z AUTO 24040G49KT 10SM OVC016 M04/M06 A2939 RMK AO2 SLP960PACZ2020-04-05T07:28:00Z61.78-166.03-4.0-6.0240404910.029.388779996.0TRUETRUEMVFRSPECI146.02020-04-05 07:38:06e)15     3KBUR 050728Z AUTO 17008KT 10SM OVC014 13/10 A2989 RMK AO2 RAB13E26 P0000 T01280100KBUR2020-04-05T07:28:00Z34.2-118.3712.810.0170810.029.890747TRUETRUEMVFR0.005SPECI217.02020-04-05 07:38:06Q)5     3KELD 050728Z AUTO 03003KT 6SM BR OVC005 14/14 A3003 RMK AO2 T01440144KELD2020-04-05T07:28:00Z33.22-92.8214.414.43036.030.029528TRUETRUEBRIFRSPECI81.02020-04-05 07:38:06 (D:(w5   3SCAT 050727Z AUTO 08003KT 050V180 9999 // 16/13 Q1014SCAT2020-04-05T07:27:00Z-27.27-70.7716.013.08036.2129.940945TRUESPECI204.02020-04-05 07:38:06^)-5     3PABT 050727Z 12007KT 2 1/2SM -SN BR BKN010 OVC014 00/M01 A2949 RMK AO2 T00001011PABT2020-04-05T07:27:00Z66.92-151.520.0-1.112072.529.489174TRUE-SN BRIFRSPECI195.02020-04-05 07:38:06Y)%5     3KAAO 050727Z AUTO 15004KT 3SM BR SCT008 OVC019 04/02 A3007 RMK AO2 T00390022KAAO2020-04-05T07:27:00Z37.75-97.223.92.215043.030.070866TRUETRUEBRMVFRSPECI434.02020-04-05 07:38:06s)=5      3KBTR 050727Z AUTO 35004KT 4SM -RA BR FEW003 OVC100 18/17 A2995 RMK AO2 P0000 T01780172 $KBTR2020-04-05T07:27:00Z30.53-91.1517.817.235044.029.949802TRUETRUETRUE-RA BRMVFR0.005SPECI21.02020-04-05 07:38:06 O  6Oa )#5     3KIAB 050726Z AUTO 15005KT 5SM BR BKN006 OVC017 04/02 A3006 RMK AO2 SLP189 $KIAB2020-04-05T07:26:00Z37.62-97.274.02.015055.030.0590551018.9TRUETRUETRUEBRIFRSPECI418.02020-04-05 07:38:06P ) 5     3KOCF 050727Z AUTO 01003KT 1/2SM HZ FEW100 18/14 A2992 RMK AO2 $KOCF2020-04-05T07:27:00Z29.17-82.2218.014.01030.529.920275TRUETRUETRUEHZLIFRSPECI27.02020-04-05 07:38:06x )K5       3PAFM 050727Z AUTO 14008KT 3SM -SN BR BKN009 OVC022 01/M01 A2938 RMK AO2 RAE06SNB06 P0000 FZRANOPAFM2020-04-05T07:27:00Z67.1-157.851.0-1.014083.029.379921TRUETRUETRUE-SN BRIFR0.005SPECI79.02020-04-05 07:38:06p )/5      3PAIW 050727Z AUTO 36019G24KT 3SM -SN BR OVC018 M11/M12 A2920 RMK AO2 P0000 FZRANOPAIW2020-04-05T07:27:00Z65.62-168.1-11.0-12.036019243.029.199802TRUETRUETRUE-SN BRMVFR0.005SPECI7.02020-04-05 07:38:06 &XB(5    3K2W6 050726Z AUTO 23004KT 10SM OVC048 08/07 A3009 RMK AO1K2W62020-04-05T07:26:00Z38.32-76.558.07.0230410.030.088583TRUETRUEVFRSPECI44.02020-04-05 07:38:06H) 5    3KCGS 050726Z AUTO 00000KT 10SM CLR 09/05 A3007 RMK AO1 T00900053KCGS2020-04-05T07:26:00Z38.98-76.929.05.30010.030.070866TRUETRUEVFRSPECI15.02020-04-05 07:38:06H)5     3KGTU 050726Z AUTO 35008KT 2SM BR OVC003 09/09 A3005 RMK AO2KGTU2020-04-05T07:26:00Z30.68-97.689.09.035082.030.050198TRUETRUEBRLIFRSPECI240.02020-04-05 07:38:06T )5      3KVBT 050726Z AUTO 08003KT 2 1/2SM BR OVC004 07/07 A3008 RMK AO2 TSNOKVBT2020-04-05T07:26:00Z36.35-94.227.07.08032.530.079725TRUETRUETRUEBRLIFRSPECI395.02020-04-05 07:38:06 EbsI)5     3KRIC 050726Z 00000KT 8SM MIFG SCT007 05/04 A3008 RMK AO2 T00500044KRIC2020-04-05T07:26:00Z37.52-77.325.04.4008.030.079725TRUEMIFGVFRSPECI50.02020-04-05 07:38:06i)55     3KOZR 050726Z AUTO 30004KT 3/4SM R06/4500V5000FT HZ SCT120 19/15 A2991 RMK AO2 SLP128KOZR2020-04-05T07:26:00Z31.28-85.7219.015.030040.7529.9114171012.8TRUETRUEHZLIFRSPECI93.02020-04-05 07:38:06])/5    3CYQA 050726Z AUTO 27004KT 250V310 9SM FEW010 BKN017 OVC026 06/04 A2998 RMK SLP160CYQA2020-04-05T07:26:00Z44.97-79.286.04.027049.029.979331016.0TRUEMVFRSPECI282.02020-04-05 07:38:065(m5    3CYWA 050726Z AUTO 25002KT 9SM OVC038 05/04 A2996CYWA2020-04-05T07:26:00Z45.95-77.325.04.025029.029.958662TRUEVFRSPECI130.02020-04-05 07:38:06 /T~w)I5     3KMIB 050726Z AUTO 21003KT 1SM R30/2800VP6000FT BR CLR M06/M07 A2991 RMK AO2 VIS 1/2V1 SLP158 $KMIB2020-04-05T07:26:00Z48.42-101.33-6.0-7.021031.029.9114171015.8TRUETRUETRUEBRIFRSPECI508.02020-04-05 07:38:06P)5    3KAVX 050726Z AUTO 24008KT 10SM BKN024 11/08 A2991 RMK AO2 T01060078KAVX2020-04-05T07:26:00Z33.4-118.4210.67.8240810.029.911417TRUETRUEMVFRSPECI482.02020-04-05 07:38:06U)!5    3KGEZ 050726Z AUTO 35007KT 10SM BKN011 OVC021 08/04 A3006 RMK AO2 T00780044KGEZ2020-04-05T07:26:00Z39.58-85.87.84.4350710.030.059055TRUETRUEMVFRSPECI245.02020-04-05 07:38:06K)5    3KMIV 050726Z AUTO 00000KT 10SM FEW004 02/01 A3005 RMK AO2 T00170006KMIV2020-04-05T07:26:00Z39.37-75.081.70.60010.030.050198TRUETRUEVFRSPECI23.02020-04-05 07:38:06 o.[ro})[5     3PABE 050725Z 22034G42KT 5SM -SN BR BKN010 OVC018 00/M02 A2966 RMK AO2 PK WND 21048/0708 P0000 T00001017PABE2020-04-05T07:25:00Z60.78-161.830.0-1.722034425.029.660433TRUE-SN BRMVFR0.005SPECI28.02020-04-05 07:38:06c)+5    3CYYQ 050725Z 07011KT 3SM -SN DRSN BKN014 OVC025 M12/M13 A3005 RMK SC6SC2 SLP181CYYQ2020-04-05T07:25:00Z58.75-94.07-12.0-13.070113.030.0501981018.1-SN DRSNMVFRSPECI29.02020-04-05 07:38:06M)5    3EHEH 050725Z AUTO 12007KT 090V190 9999 NCD 10/01 Q1022 BLU 12008KT CAVOKEHEH2020-04-05T07:25:00Z51.455.3810.01.012076.2130.177166TRUEVFRMETAR22.02020-04-05 07:38:06L)5    3EHKD 050725Z AUTO 13008KT 100V170 9999 NCD 09/03 Q1022 BLU 13010KT CAVOKEHKD2020-04-05T07:25:00Z52.924.779.03.013086.2130.177166TRUEVFRMETAR14.02020-04-05 07:38:06 '0cU )!5    3KHOT 050725Z AUTO 00000KT 10SM BKN013 OVC023 13/11 A3005 RMK AO2 T01280106KHOT2020-04-05T07:25:00Z34.48-93.112.810.60010.030.050198TRUETRUEMVFRSPECI162.02020-04-05 07:38:06G)5    3KLEB 050725Z AUTO 00000KT 10SM BKN001 02/01 A3000 RMK AO2 T00170006KLEB2020-04-05T07:25:00Z43.63-72.31.70.60010.030.0TRUETRUELIFRSPECI171.02020-04-05 07:38:06q)C5      3KMFE 050725Z AUTO 33005KT 3SM -RA BR OVC004 19/18 A2994 RMK AO2 CIG 003V007 P0001 T01890178KMFE2020-04-05T07:25:00Z26.18-98.2518.917.833053.029.940945TRUETRUE-RA BRLIFR0.01SPECI38.02020-04-05 07:38:06S)5    3KTOP 050725Z AUTO 05003KT 10SM OVC031 03/01 A3010 RMK AO2 T00330011 $KTOP2020-04-05T07:25:00Z39.07-95.633.31.150310.030.100393TRUETRUETRUEVFRSPECI268.02020-04-05 07:38:06 +:u+C%)5     3EHGG 050725Z AUTO 11009KT 080V150 9999 NCD 08/01 Q1024 NOSIGEHGG2020-04-05T07:25:00Z53.126.578.01.011096.2130.236221TRUETRUEVFRMETAR4.02020-04-05 07:38:06D$)5     3EHRD 050725Z AUTO 12008KT 090V150 9999 NCD 09/02 Q1021 NOSIGEHRD2020-04-05T07:25:00Z51.954.459.02.012086.2130.147638TRUETRUEVFRMETAR-5.02020-04-05 07:38:061#(i5    3EHLE 050725Z AUTO 13009KT 9999 NCD 09/02 Q1023EHLE2020-04-05T07:25:00Z52.455.529.02.013096.2130.206694TRUEVFRMETAR-6.02020-04-05 07:38:06?"(y5    3K2G4 050725Z AUTO 23003KT 10SM CLR 06/02 A3002 RMK AO1K2G42020-04-05T07:25:00Z39.58-79.336.02.0230310.030.02067TRUETRUEVFRSPECI894.02020-04-05 07:38:06@!(5    3KCGE 050725Z AUTO 00000KT 10SM OVC044 10/09 A3007 RMK A01KCGE2020-04-05T07:25:00Z38.53-76.0310.09.00010.030.070866TRUETRUEVFRSPECI6.02020-04-05 07:38:06 C=C?*)5    3EHVK 050725Z AUTO 13010KT 090V160 9999 NCD 10/02 Q1022 BLUEHVK2020-04-05T07:25:00Z51.635.710.02.0130106.2130.177166TRUEVFRMETAR21.02020-04-05 07:38:065)(q5    3EHVL 050725Z AUTO 14015KT 9999 NCD 09/04 Q1022 BLUEHVL2020-04-05T07:25:00Z53.285.089.04.0140156.2130.177166TRUEVFRMETAR2.02020-04-05 07:38:06>()5    3EHWO 050725Z AUTO 11006KT 070V140 9999 NCD 09/01 Q1021 BLUEHWO2020-04-05T07:25:00Z51.454.329.01.011066.2130.147638TRUEVFRMETAR17.02020-04-05 07:38:060'(e5    3EHAM 050725Z 13011KT CAVOK 10/02 Q1022 NOSIGEHAM2020-04-05T07:25:00Z52.324.7810.02.0130116.2130.177166TRUEVFRMETAR9.02020-04-05 07:38:06=&(u5     3EHBK 050725Z AUTO 11009KT 9999 NCD 11/02 Q1022 NOSIGEHBK2020-04-05T07:25:00Z50.925.7711.02.011096.2130.177166TRUETRUEVFRMETAR116.02020-04-05 07:38:06 <Z.))5     3RCTP 050725Z 06017KT 9999 -RA FEW012 BKN025 BKN035 17/13 Q1019 NOSIG RMK A3011RCTP2020-04-05T07:25:00Z25.07121.2217.013.060176.2130.088583TRUE-RAMVFRMETAR33.02020-04-05 07:38:06@-)5    3EHDL 050725Z AUTO 14012KT 070V200 9999 NCD 10/01 Q1023 BLUEHDL2020-04-05T07:25:00Z52.075.8710.01.0140126.2130.206694TRUEVFRMETAR52.02020-04-05 07:38:067,(q5    3EHGR 050725Z AUTO 13010KT 9999 NCD 10/01 Q1021 BLUEHGR2020-04-05T07:25:00Z51.574.9210.01.0130106.2130.147638TRUEVFRMETAR13.02020-04-05 07:38:06>+)5    3EHLW 050725Z AUTO 13010KT 090V160 9999 NCD 09/02 Q1023 BLUEHLW2020-04-05T07:25:00Z53.225.759.02.0130106.2130.206694TRUEVFRMETAR2.02020-04-05 07:38:06 8Y23(i5    3EHQE 050725Z AUTO 10019KT 9999 NCD 09/04 Q1021EHQE2020-04-05T07:25:00Z52.924.159.04.0100196.2130.147638TRUEVFRMETAR50.02020-04-05 07:38:06;2)5   3EHSA 050725Z AUTO 11016KT 9999 ///////// 09/04 Q1020 W06/H7EHSA2020-04-05T07:25:00Z52.03.289.04.0110166.2130.11811TRUEMETAR50.02020-04-05 07:38:06<1)5   3EHSC 050725Z AUTO 13015KT 9999 ///////// 08/04 Q1020 W08/H5EHSC2020-04-05T07:25:00Z51.933.678.04.0130156.2130.11811TRUEMETAR50.02020-04-05 07:38:06Y0)5     3CYER 050725Z AUTO 24006KT 9SM -SN BKN023 OVC050 M06/M06 A2995 RMK SLP146CYER2020-04-05T07:25:00Z56.02-87.68-6.0-6.024069.029.9498021014.6TRUE-SNMVFRSPECI16.02020-04-05 07:38:06B/(}5    3KTWM 050725Z AUTO 00000KT 10SM CLR M06/M10 A3015 RMK AO2KTWM2020-04-05T07:25:00Z47.03-91.75-6.0-10.00010.030.15059TRUETRUEVFRSPECI328.02020-04-05 07:38:06 ]I#]@8)5   3EHJR 050725Z AUTO 14021KT //// // ///////// 09/05 Q1020 RE// W08/H9EHJR2020-04-05T07:25:00Z53.223.229.05.01402130.11811TRUEMETAR50.02020-04-05 07:38:0617(i5    3EHKV 050725Z AUTO 07020KT 9999 NCD 09/04 Q1022EHKV2020-04-05T07:25:00Z53.273.639.04.070206.2130.177166TRUEVFRMETAR50.02020-04-05 07:38:0616(i5    3EHMA 050725Z AUTO 12021KT 9999 NCD 07/02 Q1023EHMA2020-04-05T07:25:00Z53.55.957.02.0120216.2130.206694TRUEVFRMETAR50.02020-04-05 07:38:0625(i5    3EHMG 050725Z AUTO 16018KT 9999 NCD 08/04 Q1023EHMG2020-04-05T07:25:00Z53.624.978.04.0160186.2130.206694TRUEVFRMETAR50.02020-04-05 07:38:0614(i5    3EHPG 050725Z AUTO 12018KT 9999 NCD 09/05 Q1020EHPG2020-04-05T07:25:00Z52.373.359.05.0120186.2130.11811TRUEVFRMETAR50.02020-04-05 07:38:06 iI i1=(i5    3EHDV 050725Z AUTO 15022KT 9999 NCD 08/05 Q1020EHDV2020-04-05T07:25:00Z54.322.938.05.0150226.2130.11811TRUEVFRMETAR50.02020-04-05 07:38:06,<(i5    3EHFD 050725Z AUTO ///19KT 9999 NCD 08/04 Q1022EHFD2020-04-05T07:25:00Z54.854.78.04.06.2130.177166TRUEVFRMETAR50.02020-04-05 07:38:062;(i5    3EHFZ 050725Z AUTO 14021KT 9999 NCD 08/05 Q1021EHFZ2020-04-05T07:25:00Z54.124.028.05.0140216.2130.147638TRUEVFRMETAR50.02020-04-05 07:38:069:(y5    3EHHW 050725Z AUTO 17013KT 130V200 9999 NCD 08/03 Q1023EHHW2020-04-05T07:25:00Z54.036.038.03.0170136.2130.206694TRUEVFRMETAR0.02020-04-05 07:38:0619(i5    3EHJA 050725Z AUTO 12022KT 9999 NCD 08/04 Q1020EHJA2020-04-05T07:25:00Z53.822.958.04.0120226.2130.11811TRUEVFRMETAR50.02020-04-05 07:38:06 Hh`A)15    3K6S5 050725Z AUTO 11004KT 10SM FEW029 BKN038 OVC070 03/M02 A2962 RMK AO2 Hamilton K6S52020-04-05T07:25:00Z46.25-114.133.0-2.0110410.029.619095TRUETRUEVFRMETAR1110.02020-04-05 07:38:06D@(5    3KW29 050725Z AUTO 20004KT 10SM OVC049 11/10 A3006 RMK AO2KW292020-04-05T07:25:00Z38.98-76.3311.010.0200410.030.059055TRUETRUEVFRSPECI15.02020-04-05 07:38:06Z?)+5    3K7S1 050725Z AUTO 00000KT 10SM BKN070 OVC075 05/M06 A2963 RMK AO2 Twin Bridges K7S12020-04-05T07:25:00Z45.53-112.35.0-6.00010.029.630905TRUETRUEVFRMETAR1456.02020-04-05 07:38:062>(i5    3EHAK 050725Z AUTO 16020KT 9999 NCD 08/05 Q1021EHAK2020-04-05T07:25:00Z55.423.828.05.0160206.2130.147638TRUEVFRMETAR50.02020-04-05 07:38:06 0Ey06F(q5    3EBBL 050725Z AUTO 10004KT 9999 NCD 10/01 Q1022 BLUEBBL2020-04-05T07:25:00Z51.175.4710.01.010046.2130.177166TRUEVFRSPECI64.02020-04-05 07:38:060E(i5    3EHFS 050725Z AUTO 11014KT 9999 NCD 09/02 Q1020EHFS2020-04-05T07:25:00Z51.453.69.02.0110146.2130.11811TRUEVFRMETAR32.02020-04-05 07:38:06QD)5    3K6S0 050725Z AUTO 03009KT 10SM CLR M03/M07 A2977 RMK A01 Big Timber K6S02020-04-05T07:25:00Z45.8-109.97-3.0-7.030910.029.769686TRUETRUEVFRMETAR1363.02020-04-05 07:38:06FC)5   3K6S8 050725Z AUTO 01010KT 10SM M02/M06 A2977 RMK A01 LaurelK6S82020-04-05T07:25:00Z45.7-108.77-2.0-6.0101010.029.769686TRUETRUESPECI1072.02020-04-05 07:38:065B(s5   3KPWD 050725Z AUTO M07/M08 A2993 RMK A01 Plentywood KPWD2020-04-05T07:25:00Z48.78-104.52-7.0-8.029.929134TRUETRUEMETAR686.02020-04-05 07:38:06 CvYK)%5    3KAST 050725Z AUTO 14003KT 10SM SCT025 OVC037 07/05 A2958 RMK AO2 T00670050 $KAST2020-04-05T07:25:00Z46.15-123.886.75.0140310.029.58071TRUETRUETRUEVFRSPECI3.02020-04-05 07:38:06>J(y5   3EBLB 050725Z AUTO 15007G18KT 9999 NCD 10/M01 Q1022 BLUEBLB2020-04-05T07:25:00Z50.476.1710.0-1.01507186.2130.177166TRUEVFRSPECI570.02020-04-05 07:38:064I(q5    3EBFN 050725Z AUTO 13007KT 9999 NCD 09/02 Q1019 BLUEBFN2020-04-05T07:25:00Z51.072.639.02.013076.2130.088583TRUEVFRSPECI9.02020-04-05 07:38:06GH)5    3EBDT 050725Z AUTO 14007KT 9999 FEW130/// BKN220/// 10/01 Q1021 BLUEBDT2020-04-05T07:25:00Z51.025.0710.01.014076.2130.147638TRUEVFRSPECI54.02020-04-05 07:38:067G(q5    3EBBE 050725Z AUTO 12006KT 9999 NCD 10/01 Q1021 BLUEBBE2020-04-05T07:25:00Z50.754.7710.01.012066.2130.147638TRUEVFRSPECI127.02020-04-05 07:38:06 8r^O)%5    3KDRT 050724Z AUTO 10005KT 10SM BKN005 OVC025 13/12 A3001 RMK AO2 T01330117 $KDRT2020-04-05T07:24:00Z29.37-100.9213.311.7100510.030.008858TRUETRUETRUEIFRSPECI313.02020-04-05 07:38:06RN)5     3KTTN 050724Z AUTO 00000KT 1 1/2SM BR FEW004 06/05 A3003 RMK AO2 T00560050KTTN2020-04-05T07:24:00Z40.28-74.825.65.0001.530.029528TRUETRUEBRIFRSPECI59.02020-04-05 07:38:06@M(5    3KFME 050724Z AUTO 00000KT 10SM OVC050 08/06 A3008 RMK AO1KFME2020-04-05T07:24:00Z39.08-76.778.06.00010.030.079725TRUETRUEVFRSPECI46.02020-04-05 07:38:06BL(5    3KMTN 050724Z AUTO 19003KT 10SM OVC049 11/09 A3007 RMK AO2KMTN2020-04-05T07:24:00Z39.32-76.4211.09.0190310.030.070866TRUETRUEVFRSPECI7.02020-04-05 07:38:06 0SzS)a5   3PAOU 050724Z AUTO 28019G26KT 9SM BKN016 BKN020 OVC036 04/01 A3016 RMK AO2 PK WND 28026/0723 RAB12E24 PNO $PAOU2020-04-05T07:24:00Z56.0-161.174.01.028019269.030.159449TRUETRUETRUEMVFRSPECI4.02020-04-05 07:38:061R(g5    3KNRS 050724Z AUTO 10SM OVC030 A2994 RMK AO2 $KNRS2020-04-05T07:24:00Z32.57-117.1210.029.940945TRUETRUETRUEMVFRSPECI7.02020-04-05 07:38:06WQ)+5   3KNFW 050724Z AUTO 28004KT FEW009 OVC015 09/07 A3007 RMK AO2 T00890072 VISNO N $KNFW2020-04-05T07:24:00Z32.78-97.438.97.2280430.070866TRUETRUETRUESPECI198.02020-04-05 07:38:06JP)5   3CYQR 050724Z 27007KT 15SM OVC014 M05/M08 A2994 RMK SC8 SLP174CYQR2020-04-05T07:24:00Z50.43-104.67-5.0-8.0270715.029.9409451017.4MVFRSPECI577.02020-04-05 07:38:06 CpVW)5    3KBLV 050721Z AUTO 00000KT 10SM OVC019 07/04 A3011 RMK AO2 SLP201 $KBLV2020-04-05T07:21:00Z38.53-89.837.04.00010.030.1092531020.1TRUETRUETRUEMVFRSPECI138.02020-04-05 07:38:06MV)5    3KAEX 050723Z 00000KT 2 1/2SM SCT100 SCT120 16/16 A2995 RMK AO2 T01610156KAEX2020-04-05T07:23:00Z31.33-92.5716.115.6002.529.949802TRUEIFRSPECI27.02020-04-05 07:38:06RU)5    3KRND 050723Z AUTO 01005KT 10SM OVC006 12/08 A3000 RMK AO2 SLP158 $KRND2020-04-05T07:23:00Z29.52-98.2712.08.010510.030.01015.8TRUETRUETRUEIFRSPECI232.02020-04-05 07:38:06_T)?5   3RJAW 050724Z 28010KT 9999 FEW008 BKN012 BKN040 25/21 Q1012 RMK 1ST008 5CU012 7SC040 A2989RJAW2020-04-05T07:24:00Z24.77141.3225.021.0280106.2129.88189MVFRMETAR116.02020-04-05 07:38:06 WEW;\(w5    3LOWK 050720Z 31004KT 260V340 CAVOK 06/M02 Q1029 NOSIGLOWK2020-04-05T07:20:00Z46.6514.326.0-2.031046.2130.383858TRUEVFRMETAR441.02020-04-05 07:38:064[(s5   3LGAD 050720Z 35007KT 9999 SCT030 BKN080 14/08 Q1009LGAD2020-04-05T07:20:00Z37.9221.2714.08.035076.2129.793306VFRMETAR12.02020-04-05 07:38:061Z(s5   3LGKL 050720Z 00009KT 9999 FEW030 BKN080 15/09 Q1007LGKL2020-04-05T07:20:00Z37.0722.0215.09.0096.2129.734253VFRMETAR8.02020-04-05 07:38:066Y(s5   3LGKO 050720Z 17014KT 8000 SCT012 SCT020 18/14 Q1004LGKO2020-04-05T07:20:00Z36.827.0818.014.0170144.9729.64567MVFRMETAR125.02020-04-05 07:38:065X(s5   3LGNX 050720Z 36010KT 9999 FEW014 SCT025 15/11 Q1005LGNX2020-04-05T07:20:00Z37.0825.3715.011.0360106.2129.675198VFRMETAR4.02020-04-05 07:38:06 ]L]1a(g5    3LOWW 050720Z VRB02KT CAVOK 07/M02 Q1030 NOSIGLOWW2020-04-05T07:20:00Z48.1216.577.0-2.0026.2130.413385TRUEVFRMETAR190.02020-04-05 07:38:06:`(w5    3LOWL 050720Z 09009KT 060V120 CAVOK 08/M01 Q1027 NOSIGLOWL2020-04-05T07:20:00Z48.2214.188.0-1.09096.2130.324802TRUEVFRMETAR313.02020-04-05 07:38:061_(g5    3LOWS 050720Z VRB01KT CAVOK 07/M01 Q1025 NOSIGLOWS2020-04-05T07:20:00Z47.7813.027.0-1.0016.2130.265747TRUEVFRMETAR430.02020-04-05 07:38:06;^(w5    3LOWI 050720Z 24003KT 190V320 CAVOK 05/M01 Q1025 NOSIGLOWI2020-04-05T07:20:00Z47.2711.335.0-1.024036.2130.265747TRUEVFRMETAR581.02020-04-05 07:38:06.](e5    3LOWG 050720Z VRB02KT CAVOK 07/00 Q1029 NOSIGLOWG2020-04-05T07:20:00Z47.015.427.00.0026.2130.383858TRUEVFRMETAR347.02020-04-05 07:38:06 ODf)5   3ENFB 050720Z AUTO 16040KT 9999NDV BKN033/// BKN051/// 09/06 Q1012 W///S4ENFB2020-04-05T07:20:00Z61.21.839.06.01604029.88189TRUESPECI10.02020-04-05 07:38:06-e) 5   3ENSF 050720Z AUTO 17038KT 9999NDV BKN033/// ///// Q//// W///S4ENSF2020-04-05T07:20:00Z61.251.8517038TRUEMETAR10.02020-04-05 07:38:064d(m5    3LOXZ 050720Z 00000KT 20KM SKC 01/M03 Q1029 NOSIGLOXZ2020-04-05T07:20:00Z47.214.751.0-3.00012.4330.383858TRUEVFRMETAR682.02020-04-05 07:38:06/c(q5   3ENBN 050720Z AUTO 15006KT 9999NDV NCD 02/M05 Q1024ENBN2020-04-05T07:20:00Z65.4712.222.0-5.0150630.236221TRUESPECI9.02020-04-05 07:38:06vb)c5     3ENHF 050720Z AUTO 24017KT 5000 -SN SCT002/// BKN007/// BKN010/// M03/M05 Q1013 RESN RMK WIND 1254FT 26017KTENHF2020-04-05T07:20:00Z70.6723.67-3.0-5.0240173.1129.911417TRUE-SNIFRSPECI81.02020-04-05 07:38:06 /K/_k)=5    3ENNA 050720Z AUTO 28013KT 9999 BKN070/// OVC088/// M02/M09 Q1014 RMK WIND 1800FT 28029KTENNA2020-04-05T07:20:00Z70.0724.97-2.0-9.0280136.2129.940945TRUEVFRSPECI8.02020-04-05 07:38:062j(s5   3ENGC 050720Z 18035KT 9999 BKN040 08/06 Q1012 W07/S5ENGC2020-04-05T07:20:00Z61.022.028.06.0180356.2129.88189VFRSPECI10.02020-04-05 07:38:063i(u5   3ENHE 050720Z 13016KT 9999 FEW038 01/M07 Q1020 W///S4ENHE2020-04-05T07:20:00Z65.332.331.0-7.0130166.2130.11811VFRSPECI1.02020-04-05 07:38:06@h)5   3ENOA 050720Z 16036KT 9999 FEW010 SCT040 BKN053 08/06 Q1014 W///S4ENOA2020-04-05T07:20:00Z60.52.838.06.0160366.2129.940945VFRSPECI5.02020-04-05 07:38:06/g(}5   3ENSL 050720Z AUTO 18037KT 8000NDV NCD 08/06 Q1016 W04/S4ENSL2020-04-05T07:20:00Z58.371.98.06.01803730.0TRUEMETAR50.02020-04-05 07:38:06 ;d2o(s5   3ENFL 050720Z 13018KT 9999 FEW020 BKN055 07/03 Q1018ENFL2020-04-05T07:20:00Z61.575.027.03.0130186.2130.059055VFRMETAR9.02020-04-05 07:38:06Tn)35   3ENKB 050720Z 12007KT 090V150 9999 FEW027 BKN040 02/M02 Q1019 RMK WIND 745FT 13017KTENKB2020-04-05T07:20:00Z63.127.822.0-2.012076.2130.088583VFRSPECI62.02020-04-05 07:38:06Qm)5    3ENKR 050720Z 29012KT 5000 -SN BKN020 M05/M07 Q1011 RMK WIND 731FT 28022KTENKR2020-04-05T07:20:00Z69.7229.88-5.0-7.0290123.1129.852362-SNMVFRSPECI91.02020-04-05 07:38:06?l)5   3ENML 050720Z AUTO 09013KT 9999NDV BKN064/// OVC096/// 01/M01 Q1019ENML2020-04-05T07:20:00Z62.757.271.0-1.0901330.088583TRUESPECI3.02020-04-05 07:38:06 0,s0-t(g5   3ENHM 050720Z 17028KT CAVOK 08/06 Q1015 W07/S4ENHM2020-04-05T07:20:00Z59.572.238.06.0170286.2129.970472VFRMETAR10.02020-04-05 07:38:063s(}5   3ENLA 050720Z AUTO 16025KT 9999NDV NCD 08/05 Q1019 W///S4ENLA2020-04-05T07:20:00Z57.12.838.05.01602530.088583TRUEMETAR4.02020-04-05 07:38:06Qr)/5   3ENUG 050720Z AUTO 27010KT 190V320 9999NDV SCT035/// SCT046/// 01/M10 Q1011 W///S4ENUG2020-04-05T07:20:00Z71.322.251.0-10.02701029.852362TRUEMETAR30.02020-04-05 07:38:063q(}5   3ENWV 050720Z AUTO 16026KT 9999NDV NCD 08/04 Q1020 W///S4ENWV2020-04-05T07:20:00Z56.283.48.04.01602630.11811TRUEMETAR30.02020-04-05 07:38:06Np)5    3ENAT 050720Z AUTO 10004KT 9999 NCD M03/M10 Q1015 RMK WIND 700FT 24006KTENAT2020-04-05T07:20:00Z69.9723.37-3.0-10.010046.2129.970472TRUEVFRSPECI3.02020-04-05 07:38:06 'Cw'>y)5   3ENNE 050720Z 16006KT 100V180 9999 FEW040 00/M10 Q1022 W///S4ENNE2020-04-05T07:20:00Z66.038.080.0-10.016066.2130.177166VFRMETAR10.02020-04-05 07:38:06;x) 5   3ENQR 050720Z AUTO 15029KT 9999NDV OVC041/// 08/06 Q1012 W///S/ENQR2020-04-05T07:20:00Z61.522.228.06.01502929.88189TRUEMETAR10.02020-04-05 07:38:06Ew)5   3ENSE 050720Z AUTO 17033KT 9999NDV BKN042/// OVC069/// 08/06 Q1012 W///S4ENSE2020-04-05T07:20:00Z61.452.158.06.01703329.88189TRUEMETAR10.02020-04-05 07:38:06Fv)5   3ENQC 050720Z AUTO 14032KT 9999NDV FEW005/// BKN049/// 07/05 Q1015 W///S4ENQC2020-04-05T07:20:00Z60.883.627.05.01403229.970472TRUEMETAR20.02020-04-05 07:38:067u) 5   3ENQA 050720Z AUTO 16034KT 5000NDV OVC050/// 06/05 Q1016 W04/S4ENQA2020-04-05T07:20:00Z60.653.726.05.01603430.0TRUEMETAR20.02020-04-05 07:38:06 AEA9~(w5    3ESKM 050720Z AUTO VRB02KT 9999 SCT098/// 00/M06 Q1026ESKM2020-04-05T07:20:00Z60.9714.520.0-6.0026.2130.295275TRUEVFRMETAR193.02020-04-05 07:38:068}(m5    3ESNV 050720Z AUTO 20006KT 9999 NCD M05/M10 Q1023ESNV2020-04-05T07:20:00Z64.5816.83-5.0-10.020066.2130.206694TRUEVFRMETAR348.02020-04-05 07:38:06A|)5    3ESST 050720Z AUTO 15006KT 9999 OVC013/// 02/M00 Q1027 RESGESST2020-04-05T07:20:00Z60.1512.982.00.015066.2130.324802TRUEMVFRMETAR120.02020-04-05 07:38:06:{(5   3ESUP 050720Z AUTO 25006KT //// R11///// NCD M06/M15 Q1018ESUP2020-04-05T07:20:00Z67.2523.07-6.0-15.0250630.059055TRUEMETAR165.02020-04-05 07:38:065z(m5    3ESND 050720Z AUTO VRB02KT 9999 NCD M05/M09 Q1025ESND2020-04-05T07:20:00Z62.0514.42-5.0-9.0026.2130.265747TRUEVFRMETAR359.02020-04-05 07:38:06 kA k/(c5    3EBCI 050720Z AUTO 13009KT CAVOK 10/00 Q1020EBCI2020-04-05T07:20:00Z50.474.4510.00.013096.2130.11811TRUEVFRMETAR192.02020-04-05 07:38:063(g5    3EBLG 050720Z 15010KT CAVOK 11/M00 Q1021 NOSIGEBLG2020-04-05T07:20:00Z50.635.4511.00.0150106.2130.147638TRUEVFRMETAR178.02020-04-05 07:38:06,(e5    3EBOS 050720Z 12006KT CAVOK 09/02 Q1020 NOSIGEBOS2020-04-05T07:20:00Z51.22.879.02.012066.2130.11811TRUEVFRMETAR5.02020-04-05 07:38:060(g5    3ELLX 050720Z 09008KT CAVOK 10/M00 Q1022 NOSIGELLX2020-04-05T07:20:00Z49.636.210.00.09086.2130.177166TRUEVFRMETAR379.02020-04-05 07:38:069(u5    3ESGR 050720Z AUTO 16006KT 9999 OVC011/// 06/05 Q1028ESGR2020-04-05T07:20:00Z58.4513.976.05.016066.2130.35433TRUEMVFRMETAR105.02020-04-05 07:38:06 eM6eK) 5    3KCBE 050720Z AUTO 34003KT 10SM CLR 05/03 A3008 RMK AO2 T00470028KCBE2020-04-05T07:20:00Z39.62-78.774.72.8340310.030.079725TRUETRUEVFRSPECI236.02020-04-05 07:38:062(y5   3LSMM 050720Z AUTO 00000KT 9999NDV NCD 07/M01 Q1023 RMKLSMM2020-04-05T07:20:00Z46.758.127.0-1.00030.206694TRUEMETAR577.02020-04-05 07:38:06%(Y5   3EDLN 050720Z 14006KT CAVOK 10/02 Q1024EDLN2020-04-05T07:20:00Z51.236.510.02.014066.2130.236221VFRMETAR38.02020-04-05 07:38:06.(e5    3EBAW 050720Z 12008KT CAVOK 09/02 Q1021 NOSIGEBAW2020-04-05T07:20:00Z51.24.479.02.012086.2130.147638TRUEVFRMETAR14.02020-04-05 07:38:06-(e5    3EBBR 050720Z 13007KT CAVOK 09/01 Q1021 NOSIGEBBR2020-04-05T07:20:00Z50.94.59.01.013076.2130.147638TRUEVFRMETAR58.02020-04-05 07:38:06 PHP8 (}5   3ETNT 050720Z AUTO 14008KT 6000 // ////// 08/00 Q1026 ///ETNT2020-04-05T07:20:00Z53.537.678.00.014083.7330.295275TRUEMETAR12.02020-04-05 07:38:069 (5   3ETNW 050720Z AUTO 13009KT 7000 // ////// 08/M00 Q1027 ///ETNW2020-04-05T07:20:00Z52.459.428.00.013094.3530.324802TRUEMETAR70.02020-04-05 07:38:06; (5   3ETSH 050720Z AUTO 10008KT 7000 // ////// 09/M01 Q1030 ///ETSH2020-04-05T07:20:00Z51.7713.179.0-1.010084.3530.413385TRUEMETAR79.02020-04-05 07:38:064 (}5   3ETWM 050720Z AUTO 12003KT //// // ////// 09/00 Q1025 ///ETWM2020-04-05T07:20:00Z52.727.339.00.0120330.265747TRUEMETAR21.02020-04-05 07:38:062 (e5    3LCRA 050720Z 07018KT CAVOK 21/12 Q1008 NOSIGLCRA2020-04-05T07:20:00Z34.5732.9721.012.070186.2129.763779TRUEVFRMETAR23.02020-04-05 07:38:06 c@$c;(5   3ETHS 050720Z AUTO 15011KT 8000 // ////// 09/M01 Q1028 ///ETHS2020-04-05T07:20:00Z52.9210.189.0-1.0150114.9730.35433TRUEMETAR88.02020-04-05 07:38:062(q5   3ETMN 050720Z 14009KT 9999 FEW300 08/M01 Q1027 BLU+ETMN2020-04-05T07:20:00Z53.778.678.0-1.014096.2130.324802VFRMETAR31.02020-04-05 07:38:06&(c5  3ETNH 050720Z 13008KT 9999 08/M00 Q1028 BLU+ETNH2020-04-05T07:20:00Z54.329.558.00.013086.2130.35433METAR17.02020-04-05 07:38:062(q5   3ETNL 050720Z 14006KT 9999 SCT280 08/M00 Q1031 BLU+ETNL2020-04-05T07:20:00Z53.9212.278.00.014066.2130.442913VFRMETAR40.02020-04-05 07:38:06:(5   3ETNS 050720Z AUTO 14010KT 9000 // ////// 08/M01 Q1028 ///ETNS2020-04-05T07:20:00Z54.479.528.0-1.0140105.5930.35433TRUEMETAR25.02020-04-05 07:38:06 XAX)(c5  3ETSN 050720Z 08010KT 9999 08/M00 Q1025 BLU+ETSN2020-04-05T07:20:00Z48.7211.228.00.080106.2130.265747METAR387.02020-04-05 07:38:065(5   3ETGG 050720Z AUTO 16010KT //// // ////// 08/M01 Q1028 ///ETGG2020-04-05T07:20:00Z54.839.58.0-1.01601030.35433TRUEMETAR33.02020-04-05 07:38:06:(5   3ETHB 050720Z AUTO 15005KT 5000 // ////// 10/M00 Q1026 ///ETHB2020-04-05T07:20:00Z52.279.0710.00.015053.1130.295275TRUEMETAR78.02020-04-05 07:38:069(5   3ETHC 050720Z AUTO 10007KT 8000 // ////// 07/M01 Q1028 ///ETHC2020-04-05T07:20:00Z52.610.027.0-1.010074.9730.35433TRUEMETAR52.02020-04-05 07:38:069(}5   3ETHF 050720Z AUTO 29002KT 7000 // ////// 06/01 Q1027 ///ETHF2020-04-05T07:20:00Z51.129.276.01.029024.3530.324802TRUEMETAR181.02020-04-05 07:38:06 a@~a)(c5  3ETHN 050720Z 12015KT 9999 08/M00 Q1025 BLU+ETHN2020-04-05T07:20:00Z49.389.978.00.0120156.2130.265747METAR473.02020-04-05 07:38:06'(a5  3ETNN 050720Z 12005KT 9999 09/02 Q1023 BLU+ETNN2020-04-05T07:20:00Z50.826.679.02.012056.2130.206694METAR135.02020-04-05 07:38:06;(5   3ETSB 050720Z AUTO 10008KT 9999 // ////// 08/M01 Q1023 ///ETSB2020-04-05T07:20:00Z50.177.078.0-1.010086.2130.206694TRUEMETAR486.02020-04-05 07:38:06<(5   3ETSI 050720Z AUTO 10008KT 9999 // ////// 09/M01 Q1026 ///ETSI2020-04-05T07:20:00Z48.7211.529.0-1.010086.2130.295275TRUEMETAR370.02020-04-05 07:38:06:(5   3ETSL 050720Z AUTO 07009KT 9999 // ////// 06/M00 Q1024 ///ETSL2020-04-05T07:20:00Z48.1710.876.00.07096.2130.236221TRUEMETAR562.02020-04-05 07:38:06 QRQC!) 5    3EDSB 050720Z AUTO 02004KT 330V060 9999 // FEW003/// 09/02 Q1023EDSB2020-04-05T07:20:00Z48.788.089.02.02046.2130.206694TRUEVFRMETAR124.02020-04-05 07:38:06= (}5    3EGVN 050720Z 12010KT CAVOK 09/03 Q1014 NOSIG RMK BLU BLUEGVN2020-04-05T07:20:00Z51.77-1.589.03.0120106.2129.940945TRUEVFRMETAR88.02020-04-05 07:38:063(}5   3LSZL 050720Z AUTO VRB01KT 9999NDV BKN069 09/05 Q1026 RMKLSZL2020-04-05T07:20:00Z46.178.889.05.00130.295275TRUESPECI600.02020-04-05 07:38:066(5   3ETHA 050720Z AUTO VRB02KT //// // ////// 05/M01 Q1023 ///ETHA2020-04-05T07:20:00Z47.8210.875.0-1.00230.206694TRUEMETAR760.02020-04-05 07:38:06((c5  3ETHL 050720Z 07008KT 9999 05/M01 Q1024 BLU+ETHL2020-04-05T07:20:00Z48.229.925.0-1.07086.2130.236221METAR549.02020-04-05 07:38:06 L0&&(Y5   3EDLP 050720Z 14009KT CAVOK 09/01 Q1026EDLP2020-04-05T07:20:00Z51.628.629.01.014096.2130.295275VFRMETAR213.02020-04-05 07:38:06'%(Y5   3EDLW 050720Z 11006KT CAVOK 11/02 Q1025EDLW2020-04-05T07:20:00Z51.527.6211.02.011066.2130.265747VFRMETAR127.02020-04-05 07:38:06'$(Y5   3EDMA 050720Z 09011KT CAVOK 08/00 Q1025EDMA2020-04-05T07:20:00Z48.4210.928.00.090116.2130.265747VFRMETAR463.02020-04-05 07:38:06<#(5    3EDNY 050720Z AUTO 05004KT 340V100 9999 // NCD 07/01 Q1023EDNY2020-04-05T07:20:00Z47.679.527.01.05046.2130.206694TRUEVFRMETAR424.02020-04-05 07:38:06."(i5   3EDQM 050720Z 13005KT 100V170 CAVOK 06/01 Q1027EDQM2020-04-05T07:20:00Z50.311.856.01.013056.2130.324802VFRMETAR568.02020-04-05 07:38:06Y88@HPX`hpx (08@HPX`hpx (08@HPX`hpx  %*.  %*.38=AFKOSW\afkoty~ !&+05:?DINSW[_cgkpuy~  ‹Ëċŋ!Ƌ%Nj)ȋ-ɋ1ʋ5ˋ9̋=͋A΋EϋIЋMыQҋUӋYԋ]Ջa֋e׋i؋mًqڋuۋy܋}݋ KH7+(q5    3EDMO 050720Z AUTO 07010KT 9999 // NCD 05/M00 Q1024EDMO2020-04-05T07:20:00Z48.0711.275.00.070106.2130.236221TRUEVFRMETAR600.02020-04-05 07:38:06'*(Y5   3EDTY 050720Z 10011KT CAVOK 08/01 Q1025EDTY2020-04-05T07:20:00Z49.129.788.01.0100116.2130.265747VFRMETAR400.02020-04-05 07:38:06$)(Y5   3EDAC 050720Z VRB01KT CAVOK 05/02 Q1029EDAC2020-04-05T07:20:00Z50.9812.55.02.0016.2130.383858VFRMETAR195.02020-04-05 07:38:06&((Y5   3EDGS 050720Z 12012KT CAVOK 07/00 Q1024EDGS2020-04-05T07:20:00Z50.78.087.00.0120126.2130.236221VFRMETAR602.02020-04-05 07:38:06/'(k5   3EDHL 050720Z 13006KT 100V170 CAVOK 08/M01 Q1030EDHL2020-04-05T07:20:00Z53.810.728.0-1.013066.2130.413385VFRMETAR16.02020-04-05 07:38:06 xS5x70(s5   3LGKP 050720Z 29014KT 9999 FEW012 BKN025 16/13 Q1007LGKP2020-04-05T07:20:00Z35.4227.1516.013.0290146.2129.734253MVFRMETAR20.02020-04-05 07:38:06'/(Y5   3EDFH 050720Z 13011KT CAVOK 06/00 Q1023EDFH2020-04-05T07:20:00Z49.957.276.00.0130116.2130.206694VFRMETAR498.02020-04-05 07:38:06'.([5   3EDVK 050720Z 12009KT CAVOK 08/M00 Q1027EDVK2020-04-05T07:20:00Z51.389.378.00.012096.2130.324802VFRMETAR285.02020-04-05 07:38:06>-)5    3EDHI 050720Z AUTO 12007KT 070V160 9999 // NCD 07/M01 Q1028EDHI2020-04-05T07:20:00Z53.539.837.0-1.012076.2130.35433TRUEVFRMETAR13.02020-04-05 07:38:06',([5   3EDJA 050720Z 04006KT CAVOK 05/M00 Q1023EDJA2020-04-05T07:20:00Z47.9810.235.00.04066.2130.206694VFRMETAR633.02020-04-05 07:38:06 sB3s:5(y5    3LIPQ 050720Z AUTO 05004KT 020V090 9999 NCD 15/00 Q1025LIPQ2020-04-05T07:20:00Z45.8213.4715.00.05046.2130.265747TRUEVFRMETAR12.02020-04-05 07:38:06(4(Y5   3LIPR 050720Z 28012KT CAVOK 11/04 Q1023LIPR2020-04-05T07:20:00Z44.0212.6211.04.0280126.2130.206694VFRMETAR13.02020-04-05 07:38:06'3(Y5   3LIPX 050720Z 35003KT CAVOK 14/01 Q1025LIPX2020-04-05T07:20:00Z45.3810.8714.01.035036.2130.265747VFRMETAR68.02020-04-05 07:38:06.2(e5    3LIPZ 050720Z 03009KT CAVOK 13/01 Q1025 NOSIGLIPZ2020-04-05T07:20:00Z45.512.3513.01.03096.2130.265747TRUEVFRMETAR6.02020-04-05 07:38:0681(y5    3LGBL 050720Z 27010KT 7000 RA SCT010 OVC025 09/08 Q1012LGBL2020-04-05T07:20:00Z39.2222.89.08.0270104.3529.88189RAMVFRMETAR26.02020-04-05 07:38:06 L1':(Y5   3LIBR 050720Z 03019KT CAVOK 15/08 Q1013LIBR2020-04-05T07:20:00Z40.6517.9515.08.030196.2129.911417VFRMETAR10.02020-04-05 07:38:06%9(Y5   3LICC 050720Z VRB01KT CAVOK 15/08 Q1015LICC2020-04-05T07:20:00Z37.4715.0515.08.0016.2129.970472VFRMETAR17.02020-04-05 07:38:0668(s5   3LICJ 050720Z 24005KT 9999 FEW015 BKN025 14/11 Q1018LICJ2020-04-05T07:20:00Z38.1713.0814.011.024056.2130.059055MVFRMETAR34.02020-04-05 07:38:06.7(i5   3LIPE 050720Z 26003KT 210V290 CAVOK 10/03 Q1025LIPE2020-04-05T07:20:00Z44.5211.310.03.026036.2130.265747VFRMETAR42.02020-04-05 07:38:06.6(i5   3LIPH 050720Z 04005KT 360V060 CAVOK 14/01 Q1025LIPH2020-04-05T07:20:00Z45.6312.1714.01.04056.2130.265747VFRMETAR23.02020-04-05 07:38:06 K+&?(Y5   3LIRA 050720Z 03008KT CAVOK 11/00 Q1018LIRA2020-04-05T07:20:00Z41.812.5811.00.03086.2130.059055VFRMETAR101.02020-04-05 07:38:060>(e5    3LIRF 050720Z 03011KT CAVOK 13/02 Q1018 NOSIGLIRF2020-04-05T07:20:00Z41.7812.2213.02.030116.2130.059055TRUEVFRMETAR3.02020-04-05 07:38:060=(e5    3LIRN 050720Z 36007KT CAVOK 15/01 Q1017 NOSIGLIRN2020-04-05T07:20:00Z40.8814.315.01.036076.2130.029528TRUEVFRMETAR72.02020-04-05 07:38:06.<(i5   3LIRQ 050720Z 02006KT 330V080 CAVOK 15/01 Q1023LIRQ2020-04-05T07:20:00Z43.7811.1815.01.02066.2130.206694VFRMETAR38.02020-04-05 07:38:06/;(i5   3LIBD 050720Z 02007KT 340V060 CAVOK 16/10 Q1014LIBD2020-04-05T07:20:00Z41.1216.7716.010.02076.2129.940945VFRMETAR44.02020-04-05 07:38:06 kA'k6D(q5    3LIMC 050720Z 09004KT 9999 FEW070 13/01 Q1026 NOSIGLIMC2020-04-05T07:20:00Z45.628.7213.01.09046.2130.295275TRUEVFRMETAR211.02020-04-05 07:38:060C(e5    3LIME 050720Z 01004KT CAVOK 11/03 Q1025 NOSIGLIME2020-04-05T07:20:00Z45.679.6811.03.01046.2130.265747TRUEVFRMETAR237.02020-04-05 07:38:064B(u5   3LIMF 050720Z 02005KT 340V040 9999 SCT060 12/02 Q1026LIMF2020-04-05T07:20:00Z45.227.6512.02.02056.2130.295275VFRMETAR287.02020-04-05 07:38:06$A(Y5   3LIMJ 050720Z 04009KT CAVOK 14/00 Q1023LIMJ2020-04-05T07:20:00Z44.428.8314.00.04096.2130.206694VFRMETAR3.02020-04-05 07:38:069@(u5    3LIML 050720Z 10005KT 060V140 CAVOK 12/01 Q1026 NOSIGLIML2020-04-05T07:20:00Z45.479.2712.01.010056.2130.295275TRUEVFRMETAR103.02020-04-05 07:38:06 M>2I(s5   3LGRX 050720Z 00000KT 9999 FEW025 BKN060 14/08 Q1009LGRX2020-04-05T07:20:00Z38.1721.4214.08.0006.2129.793306VFRMETAR15.02020-04-05 07:38:065H(s5   3LGSR 050720Z 27013KT 9999 SCT015 SCT020 16/13 Q1005LGSR2020-04-05T07:20:00Z36.425.4816.013.0270136.2129.675198VFRMETAR40.02020-04-05 07:38:06$G(Y5   3LIEA 050720Z VRB01KT CAVOK 11/07 Q1021LIEA2020-04-05T07:20:00Z40.628.2711.07.0016.2130.147638VFRMETAR23.02020-04-05 07:38:06$F(Y5   3LIEE 050720Z 32007KT CAVOK 10/08 Q1020LIEE2020-04-05T07:20:00Z39.259.0710.08.032076.2130.11811VFRMETAR4.02020-04-05 07:38:06-E(i5   3LIEO 050720Z 01009KT 330V060 CAVOK 15/06 Q1021LIEO2020-04-05T07:20:00Z40.889.5215.06.01096.2130.147638VFRMETAR13.02020-04-05 07:38:06 JO J;N(y5  3LGEL 050720Z 31010G20KT 9999 FEW008 BKN020 14/08 Q1006LGEL2020-04-05T07:20:00Z38.0723.5514.08.031010206.2129.704725MVFRMETAR31.02020-04-05 07:38:065M(s5   3LGIO 050720Z 35012KT 9999 BKN035 BKN080 11/02 Q1009LGIO2020-04-05T07:20:00Z39.720.8211.02.0350126.2129.793306VFRMETAR476.02020-04-05 07:38:06HL)5   3LGKV 050720Z 04017G27KT 9999 -RA FEW015 BKN030 OVC070 11/06 Q1013LGKV2020-04-05T07:20:00Z40.9224.6211.06.04017276.2129.911417-RAMVFRMETAR5.02020-04-05 07:38:065K(s5   3LGMT 050720Z 32004KT 9999 FEW015 BKN025 14/12 Q1007LGMT2020-04-05T07:20:00Z39.0526.614.012.032046.2129.734253MVFRMETAR17.02020-04-05 07:38:06+J(e5   3LGPZ 050720Z 05004KT 9999 SCT020 13/08 Q1010LGPZ2020-04-05T07:20:00Z38.9220.7713.08.05046.2129.822834VFRMETAR4.02020-04-05 07:38:06 :b>S(5   3LGLM 050720Z 05026G38KT 7000 RA SCT010 BKN020 11/09 Q1009LGLM2020-04-05T07:20:00Z39.9225.2311.09.05026384.3529.793306RAMVFRMETAR5.02020-04-05 07:38:061R(e5   3LGSA 050720Z 26011KT 9999 BKN020 13/12 Q1007LGSA2020-04-05T07:20:00Z35.5324.1313.012.0260116.2129.734253MVFRMETAR135.02020-04-05 07:38:06JQ) 5    3LGTS 050720Z 34010G24KT 8000 RA SCT010 BKN020 10/08 Q1013 NOSIGLGTS2020-04-05T07:20:00Z40.5222.9710.08.034010244.9729.911417TRUERAMVFRMETAR7.02020-04-05 07:38:06RP)-5    3ENOV 050720Z VRB02KT 9999 VCSH FEW035 BKN040 07/01 Q1018 RMK WIND 2175FT 14025KTENOV2020-04-05T07:20:00Z62.176.077.01.0026.2130.059055VCSHVFRSPECI74.02020-04-05 07:38:06@O)5   3LGAL 050720Z 03024G35KT 8000 -RA FEW008 BKN018 10/08 Q1012LGAL2020-04-05T07:20:00Z40.8525.9510.08.03024354.9729.88189-RAMVFRMETAR3.02020-04-05 07:38:06 $Kc]W)/5     3LTAP 050720Z 31004KT 9999 -SHRA BKN040 BKN080 11/08 Q1019 NOSIG RMK RWY23 32005KTLTAP2020-04-05T07:20:00Z40.8335.5211.08.031046.2130.088583TRUE-SHRAVFRSPECI535.02020-04-05 07:38:06bV)C5    3LTAT 050720Z 24003KT 190V350 9999 SCT040 BKN100 11/04 Q1025 NOSIG RMK RWY03 25003KT 190V320LTAT2020-04-05T07:20:00Z38.4238.0711.04.024036.2130.265747TRUEVFRSPECI849.02020-04-05 07:38:06SU)#5    3LTAU 050720Z 07013KT 9999 FEW040 BKN100 12/05 Q1018 NOSIG RMK RWY07 04019KTLTAU2020-04-05T07:20:00Z38.7735.4712.05.070136.2130.059055TRUEVFRSPECI1054.02020-04-05 07:38:06VT)15  3LTBU 050720Z 04030G43KT 8000 BKN008 BKN030 09/08 Q1013 RESHRA RMK RWY22 04029G40KTLTBU2020-04-05T07:20:00Z41.1227.929.08.04030434.9729.911417IFRSPECI173.02020-04-05 07:38:06 JNfQ[)#5    3LTFE 050720Z 16014KT 9999 SCT035 BKN100 21/09 Q1005 NOSIG RMK RWY10 /////KTLTFE2020-04-05T07:20:00Z37.2527.6721.09.0160146.2129.675198TRUEVFRSPECI6.02020-04-05 07:38:06bZ)=5     3LTFJ 050720Z 04019KT 9999 -SHRA SCT008 BKN030 BKN090 10/09 Q1013 NOSIG RMK RWY24 04014KTLTFJ2020-04-05T07:20:00Z40.929.310.09.040196.2129.911417TRUE-SHRAMVFRSPECI98.02020-04-05 07:38:06vY)m5     3LTFM 050720Z 07021KT 8000 -SHRA BKN004 BKN025 09/08 Q1016 NOSIG RMK RWY17L 07022KT RWY34L 06020KT RWY16R 07025KTLTFM2020-04-05T07:20:00Z41.2728.759.08.070214.9730.0TRUE-SHRALIFRMETAR99.02020-04-05 07:38:060X(e5    3LTAG 050720Z 04022KT CAVOK 21/08 Q1014 NOSIGLTAG2020-04-05T07:20:00Z37.035.4221.08.040226.2129.940945TRUEVFRMETAR66.02020-04-05 07:38:06 )Lqd_)I5   3LTBS 050720Z 17018G30KT 130V190 9999 FEW030 SCT100 24/09 Q1004 NOSIG RMK RWY19 16016KT 130V190LTBS2020-04-05T07:20:00Z36.728.7724.09.017018306.2129.64567TRUEVFRSPECI2.02020-04-05 07:38:06U^)35    3LTCG 050720Z VRB02KT 9999 SCT035 BKN100 12/09 Q1021 NOSIG RMK RWY29 35003KT 300V010LTCG2020-04-05T07:20:00Z41.039.812.09.0026.2130.147638TRUEVFRSPECI30.02020-04-05 07:38:06W])75   3LTCS 050720Z 11003KT 060V200 9999 FEW040 BKN100 14/05 Q1024 RMK RWY22 31004KT 270V340LTCS2020-04-05T07:20:00Z37.4538.914.05.011036.2130.236221VFRMETAR825.02020-04-05 07:38:06Q\)'5   3LTFC 050720Z 19014KT 9999 SCT035 BKN080 19/02 Q1008 RMK RWY23 18008KT 160V220LTFC2020-04-05T07:20:00Z37.8730.3819.02.0190146.2129.763779VFRSPECI864.02020-04-05 07:38:06 m!J?mLc)5    3LTAZ 050720Z 10016KT 9999 SCT040 BKN100 15/04 Q1015 RMK RWY29 10018KTLTAZ2020-04-05T07:20:00Z38.7734.5515.04.0100166.2129.970472VFR1.8SPECI945.02020-04-05 07:38:06b)5     3LTBA 050720Z 04018KT 9999 -RA SCT008 BKN030 OVC080 11/09 Q1013 NOSIG RMK RWY17L 04018KT 010V070 RWY05 06020KT RWY23 06017KTLTBA2020-04-05T07:20:00Z40.9728.8211.09.040186.2129.911417TRUE-RAMVFRSPECI37.02020-04-05 07:38:06Qa)#5    3LTBJ 050720Z 00000KT 9999 SCT030 BKN100 16/13 Q1005 NOSIG RMK RWY16 VRB02KTLTBJ2020-04-05T07:20:00Z38.2827.1516.013.0006.2129.675198TRUEVFRSPECI120.02020-04-05 07:38:06Y`)35    3LTBR 050720Z 05009KT 9999 SCT030 BKN100 14/09 Q1011 NOSIG RMK RWY07 07006KT 030V100LTBR2020-04-05T07:20:00Z40.2529.5714.09.05096.2129.852362TRUEVFRSPECI232.02020-04-05 07:38:06 Q!([Qg)}5     3LTAC 050720Z 04014KT 9999 -SHRA BKN040 BKN080 10/06 Q1017 NOSIG RMK RWY21L 01008KT RWY03L 03011KT 360V060 RWY21R 03010KTLTAC2020-04-05T07:20:00Z40.1232.9710.06.040146.2130.029528TRUE-SHRAVFRSPECI949.02020-04-05 07:38:06Gf)5    3LTAF 050720Z 05019KT CAVOK 21/06 Q1014 NOSIG RMK RWY23 06014G24KTLTAF2020-04-05T07:20:00Z36.9735.2821.06.050196.2129.940945TRUEVFRSPECI20.02020-04-05 07:38:06se)a5     3LTAI 050720Z 21018KT 9999 SCT030 BKN100 23/07 Q1007 NOSIG RMK RWY18C 21016KT RWY36R 21017KT RWY18L 21018KTLTAI2020-04-05T07:20:00Z36.930.823.07.0210186.2129.734253TRUEVFR-1.6SPECI54.02020-04-05 07:38:06Yd)35    3LTAJ 050720Z 06006KT 040V100 9999 FEW040 BKN100 15/06 Q1022 NOSIG RMK RWY10 06010KTLTAJ2020-04-05T07:20:00Z36.9537.4815.06.06066.2130.177166TRUEVFRSPECI855.02020-04-05 07:38:06 "8^%k(Y5   3EDVE 050720Z 11009KT CAVOK 09/00 Q1028EDVE2020-04-05T07:20:00Z52.3210.559.00.011096.2130.35433VFRMETAR88.02020-04-05 07:38:06Tj))5    3LTCC 050720Z 12005KT 080V170 CAVOK 14/09 Q1023 NOSIG RMK RWY16 06004KT 350V150LTCC2020-04-05T07:20:00Z37.8740.214.09.012056.2130.206694TRUEVFRSPECI677.02020-04-05 07:38:06di)I5    3LTCE 050720Z VRB02KT CAVOK 09/M01 Q1025 NOSIG RMK RWY08R VRB03KT RWY26R VRB03KT RWY08L VRB02KTLTCE2020-04-05T07:20:00Z39.9541.179.0-1.0026.2130.265747TRUEVFRSPECI1758.02020-04-05 07:38:06Xh)75   3LTCJ 050720Z 27003KT 200V330 9999 FEW040 SCT100 14/09 Q1023 RMK RWY20 25004KT 170V320LTCJ2020-04-05T07:20:00Z37.9341.1214.09.027036.2130.206694VFRSPECI540.02020-04-05 07:38:06 2G2=p(y5    3KTVK 050715Z AUTO 00000KT 10SM CLR 05/03 A3012 RMK AO2KTVK2020-04-05T07:15:00Z40.68-92.95.03.00010.030.121063TRUETRUEVFRSPECI314.02020-04-05 07:38:06Go)5   3RJSS 050715Z 22010KT 9999 FEW020 10/01 Q1010 WS R27 RMK 1CU020 A2983RJSS2020-04-05T07:15:00Z38.12140.9210.01.0220106.2129.822834VFRSPECI5.02020-04-05 07:38:06=n(}5    3EGDY 050719Z 13015KT CAVOK 11/05 Q1011 NOSIG RMK BLU BLUEGDY2020-04-05T07:19:00Z51.0-2.6211.05.0130156.2129.852362TRUEVFRMETAR23.02020-04-05 07:38:06s({5    3LHDC 050715Z AUTO 07016KT 030V100 8000 NCD 12/M02 Q1028LHDC2020-04-05T07:15:00Z47.4721.6212.0-2.070164.9730.35433TRUEMVFRMETAR112.02020-04-05 07:38:06;r(w5    3KJVL 050715Z AUTO 00000KT 7SM CLR 02/02 A3015 RMK AO2KJVL2020-04-05T07:15:00Z42.62-89.052.02.0007.030.15059TRUETRUEVFRSPECI246.02020-04-05 07:38:060q(e5    3LIRP 050715Z 14007KT CAVOK 11/03 Q1023 NOSIGLIRP2020-04-05T07:15:00Z43.6710.3711.03.014076.2130.206694TRUEVFRMETAR2.02020-04-05 07:38:06 PKy) 5    3K2J3 050710Z AUTO 09003KT 10SM CLR 13/09 A2997 RMK AO2 T01300091K2J32020-04-05T07:10:00Z32.98-82.3813.09.190310.029.970472TRUETRUEVFRMETAR100.02020-04-05 07:38:06x)m5     3OAJL 050714Z AUTO 00000KT 9999 -RA VCTS FEW028 SCT060 BKN075 17/11 A3016 RMK AO2 TSB0659E14 SLPNO WND DATA ESTMDOAJL2020-04-05T07:14:00Z34.4270.4717.011.0006.2130.159449TRUETRUE-RA VCTSVFRSPECI580.02020-04-05 07:38:069w(w5    3LHPA 050715Z 01002KT CAVOK 09/M02 Q1029 NOSIG RMK BLULHPA2020-04-05T07:15:00Z47.3517.59.0-2.01026.2130.383858TRUEVFRMETAR148.02020-04-05 07:38:06*v([5   3LHPP 050715Z 07014KT CAVOK 10/M03 Q1026LHPP2020-04-05T07:15:00Z45.9818.2310.0-3.070146.2130.295275VFRMETAR305.02020-04-05 07:38:06 bCb2~(s5  3CZPS 050700Z AUTO 13011KT M11/M11 RMK AO1 T11061107CZPS2020-04-05T07:00:00Z52.43-113.6-10.6-10.713011TRUETRUEMETAR965.02020-04-05 07:38:062}(s5  3CXAG 050700Z AUTO 14004KT M18/M20 RMK AO1 T11831198CXAG2020-04-05T07:00:00Z53.92-112.28-18.3-19.81404TRUETRUEMETAR625.02020-04-05 07:38:06/|(e5   3FNMO 050700Z 21010KT 9999 SCT014 20/19 Q1012FNMO2020-04-05T07:00:00Z-15.2712.1520.019.0210106.2129.88189VFRMETAR64.02020-04-05 07:38:066{(k5    3FNUE 050700Z 31004KT 8000 RA OVC010 19/18 Q1024FNUE2020-04-05T07:00:00Z-11.7719.919.018.031044.9730.236221RAMVFRMETAR1329.02020-04-05 07:38:067z(s5   3FNHU 050700Z 00000KT 9999 BKN010 SCT060 18/18 Q1023FNHU2020-04-05T07:00:00Z-12.8215.7718.018.0006.2130.206694MVFRMETAR1701.02020-04-05 07:38:06 &ZzM)5    3CYPQ 050742Z AUTO 18003KT 9SM BKN038 OVC060 06/06 A2998 RMK SLP159CYPQ2020-04-05T07:42:00Z44.22-78.376.06.018039.029.979331015.9TRUEVFRSPECI191.02020-04-05 07:48:17Z)5     3CYOO 050742Z AUTO 35002KT 6SM -RA BR SCT035 OVC055 06/06 A2999 RMK SLP160CYOO2020-04-05T07:42:00Z43.92-78.96.06.035026.029.9911421016.0TRUE-RA BRVFRSPECI139.02020-04-05 07:48:17F)5    3KBBB 050742Z AUTO 16008KT 10SM SCT100 01/M02 A3010 RMK AO2KBBB2020-04-05T07:42:00Z45.32-95.651.0-2.0160810.030.100393TRUETRUEVFRMETAR317.02020-04-05 07:48:17T)!5    3KESN 050744Z AUTO 24003KT 10SM SCT009 OVC046 11/09 A3010 RMK AO2 T01050090KESN2020-04-05T07:44:00Z38.8-76.0710.59.0240310.030.100393TRUETRUEVFRSPECI22.02020-04-05 07:48:17  )o5      3PAPO 050742Z AUTO 01022G27KT 1SM -SN BR BKN015 BKN020 OVC034 M09/M11 A2921 RMK AO2 PK WND 01029/0706 P0000 FZRANOPAPO2020-04-05T07:42:00Z68.35-166.8-9.0-11.01022271.029.208662TRUETRUETRUE-SN BRIFR0.005METAR6.02020-04-05 07:48:17z)K5       3PATE 050742Z AUTO 17019KT 2 1/2SM -SN BR SCT019 BKN025 OVC035 00/M01 A2909 RMK AO2 P0000 FZRANOPATE2020-04-05T07:42:00Z65.23-166.330.0-1.0170192.529.090551TRUETRUETRUE-SN BRIFR0.005METAR90.02020-04-05 07:48:17 )e5       3PATQ 050742Z AUTO 13014KT 2SM -SN BR FEW005 BKN015 OVC020 M03/M03 A2926 RMK AO2 UPE16SNB16 P0000 FZRANO TSNOPATQ2020-04-05T07:42:00Z70.47-157.43-3.0-3.0130142.029.258858TRUETRUETRUETRUE-SN BRIFR0.005METAR29.02020-04-05 07:48:17 @SF )5     3KTPL 050742Z AUTO 36007KT 6SM BR OVC005 08/08 A3004 RMK AO2KTPL2020-04-05T07:42:00Z31.13-97.48.08.036076.030.041338TRUETRUEBRIFRMETAR208.02020-04-05 07:48:17g)%5       3PFNO 050742Z AUTO 17017KT 3SM UP BR OVC004 00/M01 A2926 RMK AO2 P0000 FZRANOPFNO2020-04-05T07:42:00Z66.82-161.020.0-1.0170173.029.258858TRUETRUETRUEBR UPLIFR0.005SPECI17.02020-04-05 07:48:17:(u5     3CYWA 050742Z AUTO 00000KT 9SM -RA OVC038 04/04 A2996CYWA2020-04-05T07:42:00Z45.95-77.324.04.0009.029.958662TRUE-RAVFRSPECI130.02020-04-05 07:48:17z)G5      3PAIW 050742Z AUTO 01018G23KT 2 1/2SM -SN BR OVC018 M11/M12 A2920 RMK AO2 VIS 2V3 P0000 FZRANOPAIW2020-04-05T07:42:00Z65.62-168.1-11.0-12.01018232.529.199802TRUETRUETRUE-SN BRIFR0.005METAR7.02020-04-05 07:48:17 %S~Q ) 5    3KVTP 050742Z AUTO 24007G17KT 10SM CLR 00/M08 A2998 RMK AO2 TSNOKVTP2020-04-05T07:42:00Z37.5-105.170.0-8.024071710.029.97933TRUETRUETRUEVFRSPECI3114.02020-04-05 07:48:17O )5    3KEIK 050742Z AUTO 22003KT 10SM CLR 03/M02 A2986 RMK AO2 T00251020KEIK2020-04-05T07:42:00Z40.02-105.052.5-2.0220310.029.861221TRUETRUEVFRMETAR1564.02020-04-05 07:48:17L ) 5     3KGTU 050742Z AUTO 01007KT 1 3/4SM BR OVC003 09/09 A3005 RMK AO2KGTU2020-04-05T07:42:00Z30.68-97.689.09.01071.7530.050198TRUETRUEBRLIFRMETAR240.02020-04-05 07:48:17U )5      3KMKY 050742Z AUTO 09004KT 10SM SCT030 BKN037 A2991 RMK AO2 FZRANO TSNO $KMKY2020-04-05T07:42:00Z26.0-81.6790410.029.911417TRUETRUETRUETRUETRUEVFRMETAR2.02020-04-05 07:48:17 $FvH) 5    3CYUY 050741Z 31007KT 8SM -RA OVC008 03/02 A2995 RMK SF8 SLP155CYUY2020-04-05T07:41:00Z48.2-78.823.02.031078.029.9498021015.5-RAIFRMETAR301.02020-04-05 07:48:17J)5    3CYMH 050741Z AUTO 31004KT 9SM SCT019 M07/M09 A2999 RMK SLP156CYMH2020-04-05T07:41:00Z52.28-55.85-7.0-9.031049.029.9911421015.6TRUEVFRMETAR11.02020-04-05 07:48:17X)!5     3CZPC 050741Z AUTO /////KT 9SM -SN OVC006 M06/M07 A2975 RMK WND MISG SLP138CZPC2020-04-05T07:41:00Z49.52-114.0-6.0-7.09.029.7490161013.8TRUE-SNIFRSPECI1190.02020-04-05 07:48:17V)!5    3KSBD 050741Z AUTO 00000KT 10SM BKN020 OVC025 14/08 A2991 RMK AO2 T01390082KSBD2020-04-05T07:41:00Z34.08-117.2513.98.20010.029.911417TRUETRUEMVFRMETAR353.02020-04-05 07:48:17 9k`)95    3KFRG 050741Z AUTO 19008KT 10SM BKN009 OVC070 08/05 A3004 RMK AO2 CIG 008V012 T00830050KFRG2020-04-05T07:41:00Z40.73-73.428.35.0190810.030.041338TRUETRUEIFRMETAR21.02020-04-05 07:48:17M)5    3KSJT 050741Z AUTO 09003KT 10SM OVC009 10/07 A3002 RMK AO2 T01000067KSJT2020-04-05T07:41:00Z31.37-100.510.06.790310.030.02067TRUETRUEIFRMETAR576.02020-04-05 07:48:17H)5    3CYVV 050741Z 29007KT 3SM BR OVC003 01/01 A3005 RMK SF8 SLP185CYVV2020-04-05T07:41:00Z44.75-81.081.01.029073.030.0501981018.5BRLIFRSPECI222.02020-04-05 07:48:17A(5    3KSAR 050741Z AUTO 00000KT 10SM OVC015 06/05 A3011 RMK AO2KSAR2020-04-05T07:41:00Z38.15-89.76.05.00010.030.109253TRUETRUEMVFRMETAR164.02020-04-05 07:48:17 &hI)5     3KDZB 050740Z AUTO 09004KT 3SM BR OVC003 11/11 A3003 RMK AO2KDZB2020-04-05T07:40:00Z30.53-98.3711.011.09043.030.029528TRUETRUEBRLIFRMETAR334.02020-04-05 07:48:17V)5     3CYVO 050740Z AUTO 30005KT 8SM -RA SCT018 OVC025 04/03 A2991 RMK SLP143CYVO2020-04-05T07:40:00Z48.07-77.774.03.030058.029.9114171014.3TRUE-RAMVFRSPECI337.02020-04-05 07:48:178(s5     3KHFY 050740Z AUTO 35005KT 10SM OVC019 A3008 RMK AO2KHFY2020-04-05T07:40:00Z39.63-86.08350510.030.079725TRUETRUEMVFRMETAR251.02020-04-05 07:48:17T)!5    3PKWA 050740Z AUTO 06014KT 10SM SCT027 BKN035 28/24 A2983 RMK AO2 T02810235PKWA2020-04-05T07:40:00Z8.72167.7228.123.5601410.029.828741TRUETRUEVFRMETAR8.02020-04-05 07:48:17 (W^T)!5    3KNUI 050740Z AUTO 22006KT 10SM FEW008 OVC048 10/08 A3007 RMK AO2 T01000078KNUI2020-04-05T07:40:00Z38.15-76.4310.07.8220610.030.070866TRUETRUEVFRMETAR7.02020-04-05 07:48:17s)M5      3KMHS 050740Z AUTO 10006KT 10SM -RA BKN009 OVC016 02/01 A2956 RMK AO2 CIG 007V013 P0006 T00220011KMHS2020-04-05T07:40:00Z41.32-122.322.21.1100610.029.56004TRUETRUE-RAIFR0.06SPECI1078.02020-04-05 07:48:17K)5   3CYQR 050740Z 26010KT 15SM OVC016 M05/M08 A2994 RMK SC8 SLP174CYQR2020-04-05T07:40:00Z50.43-104.67-5.0-8.02601015.029.9409451017.4MVFRSPECI577.02020-04-05 07:48:17R)5    3KCVH 050740Z AUTO 14004KT 10SM SCT028 BKN041 OVC070 11/09 A2979 RMK A01KCVH2020-04-05T07:40:00Z36.9-121.4211.09.0140410.029.790354TRUETRUEVFRMETAR70.02020-04-05 07:48:17 w1Pnwq!)E5      3KBMG 050740Z AUTO 35007KT 4SM +RA BR SCT007 OVC050 07/06 A3006 RMK AO2 RAB07 P0017 T00720056KBMG2020-04-05T07:40:00Z39.15-86.627.25.635074.030.059055TRUETRUE+RA BRMVFR0.17SPECI257.02020-04-05 07:48:17\ )#5     3KATT 050740Z AUTO 03004KT 2 1/2SM BR OVC003 11/09 A3003 RMK AO2 T01060094 $KATT2020-04-05T07:40:00Z30.32-97.7710.69.43042.530.029528TRUETRUETRUEBRLIFRSPECI201.02020-04-05 07:48:17[)%5     3PABT 050740Z 12007KT 6SM -SN BR BKN012 OVC017 01/M01 A2949 RMK AO2 T00061011PABT2020-04-05T07:40:00Z66.92-151.520.6-1.112076.029.489174TRUE-SN BRMVFRSPECI195.02020-04-05 07:48:17I)5    3KAEX 050740Z 35003KT 1 3/4SM BKN095 16/15 A2996 RMK AO2 T01610150KAEX2020-04-05T07:40:00Z31.33-92.5716.115.035031.7529.958662TRUEIFRMETAR27.02020-04-05 07:48:17 EvS%)5    3KHQI 050740Z AUTO 07029KT 10SM FEW015 SCT060 SCT080 21/17 A2988 RMK A01KHQI2020-04-05T07:40:00Z27.93-93.6721.017.0702910.029.878937TRUETRUEVFRMETAR26.02020-04-05 07:48:17I$)5    3KSLE 050740Z AUTO 02005KT 8SM OVC004 06/05 A2956 RMK AO2 T00610050KSLE2020-04-05T07:40:00Z44.9-123.06.15.02058.029.56004TRUETRUELIFRMETAR59.02020-04-05 07:48:17S#)5     3KOSH 050740Z AUTO 11005KT 4SM BR BKN002 01/M01 A3015 RMK AO2 T00061006KOSH2020-04-05T07:40:00Z43.97-88.550.6-0.611054.030.15059TRUETRUEBRLIFRSPECI248.02020-04-05 07:48:17\")!5     3KBEH 050740Z AUTO 00000KT 1/2SM FZFG VV001 M01/M01 A3014 RMK AO2 T10061011KBEH2020-04-05T07:40:00Z42.13-86.42-0.6-1.1000.530.138779TRUETRUEFZFGLIFR100METAR191.02020-04-05 07:48:17 BmI))5   3KSTK 050740Z AUTO 19008G15KT 10SM CLR 04/M03 A2985 RMK AO2KSTK2020-04-05T07:40:00Z40.62-103.274.0-3.019081510.029.84941TRUETRUEVFRMETAR1231.02020-04-05 07:48:17P()5     3KWBF 050740Z AUTO VRB04KT 1/4SM FG BKN008 OVC011 22/22 A2987 RMK A01KWBF2020-04-05T07:40:00Z26.93-90.522.022.0040.2529.870079TRUETRUEFGLIFRMETAR10.02020-04-05 07:48:17O')5    3KCPU 050740Z AUTO 18004KT 10SM OVC035 09/07 A2977 RMK AO2 T00930068KCPU2020-04-05T07:40:00Z38.15-120.659.36.8180410.029.769686TRUETRUEVFRMETAR404.02020-04-05 07:48:178&(o5   3KHHV 050740Z AUTO 07028KT 8SM 22/19 A2986 RMK A01KHHV2020-04-05T07:40:00Z26.93-94.6822.019.070288.029.861221TRUETRUEMETAR25.02020-04-05 07:48:17 !>cU-)5     3KMAF 050739Z AUTO 13006KT 3/4SM BR OVC002 09/08 A2999 RMK AO2 T00940083KMAF2020-04-05T07:39:00Z31.95-102.29.48.313060.7529.991142TRUETRUEBRLIFRMETAR874.02020-04-05 07:48:17U,)!5    3KRBG 050739Z AUTO 00000KT 10SM BKN003 OVC070 08/07 A2952 RMK AO2 T00830072KRBG2020-04-05T07:39:00Z43.23-123.358.37.20010.029.518702TRUETRUELIFRMETAR154.02020-04-05 07:48:17]+)#5     3KTXK 050739Z AUTO 02003KT 1 1/2SM BR OVC003 12/12 A3003 RMK AO2 T01170117 $KTXK2020-04-05T07:39:00Z33.45-93.9811.711.72031.530.029528TRUETRUETRUEBRLIFRMETAR111.02020-04-05 07:48:17Y*)+5     3KUGN 050739Z AUTO 00000KT 2 1/2SM BR CLR 00/M02 A3015 RMK AO2 VIS 2V4 T00001017KUGN2020-04-05T07:39:00Z42.42-87.870.0-1.7002.530.15059TRUETRUEBRIFRMETAR222.02020-04-05 07:48:17 -XL1)5    3KSAW 050738Z AUTO 00000KT 10SM CLR M07/M08 A3016 RMK AO2 T10681077KSAW2020-04-05T07:38:00Z46.35-87.4-6.8-7.70010.030.159449TRUETRUEVFRMETAR372.02020-04-05 07:48:17Q0)5     3CYWK 050738Z AUTO 01005KT 9SM -SN OVC007 M03/M05 A2986 RMK SLP140CYWK2020-04-05T07:38:00Z52.92-66.87-3.0-5.01059.029.8612211014.0TRUE-SNIFRSPECI551.02020-04-05 07:48:17O/)5    3CYTR 050739Z 23003KT 10SM -SHRA OVC026 05/05 A3001 RMK SC8 SLP165CYTR2020-04-05T07:39:00Z44.12-77.525.05.0230310.030.0088581016.5-SHRAMVFRMETAR86.02020-04-05 07:48:17M.)5    3KLCH 050739Z AUTO 00000KT 10SM BKN019 14/14 A2996 RMK AO2 T01440139KLCH2020-04-05T07:39:00Z30.13-93.2214.413.90010.029.958662TRUETRUEMVFRMETAR4.02020-04-05 07:48:17 &%;&5)s5     3PHSF 050738Z AUTO 24006KT 7/8SM BR BKN002 OVC055 12/12 A3030 RMK AO2 VIS 7/8V8 CIG 002V055 BKN V FEW SLP147 RVRNO $PHSF2020-04-05T07:38:00Z19.77-155.5512.012.024060.8830.3011821014.7TRUETRUETRUEBRLIFRMETAR1887.02020-04-05 07:48:17d4)95    3KSBP 050738Z AUTO 14004KT 10SM BKN010 OVC015 12/11 A2987 RMK AO2 CIG 006V012 T01170106KSBP2020-04-05T07:38:00Z35.23-120.6311.710.6140410.029.870079TRUETRUEMVFRMETAR59.02020-04-05 07:48:17R3)5    3KTVC 050738Z AUTO 33003KT 10SM SCT012 M01/M03 A3017 RMK AO2 T10061033KTVC2020-04-05T07:38:00Z44.73-85.57-0.6-3.3330310.030.171259TRUETRUEVFRMETAR190.02020-04-05 07:48:17}2)O5       3PABR 050738Z AUTO 08013KT 1 1/4SM -SN BR SCT009 OVC020 M08/M10 A2933 RMK AO2 P0000 T10831100 TSNOPABR2020-04-05T07:38:00Z71.28-156.78-8.3-10.080131.2529.329725TRUETRUETRUE-SN BRIFR0.005METAR7.02020-04-05 07:48:17 .5fM9)5   3KMMH 050738Z AUTO 27004G21KT 10SM SCT050 03/M09 A2975 RMK AO2KMMH2020-04-05T07:38:00Z37.62-118.823.0-9.027042110.029.749016TRUETRUEVFRMETAR2173.02020-04-05 07:48:17I8) 5    3KHZR 050738Z AUTO 00000KT 7SM BKN028 OVC110 17/17 A2997 RMK AO2KHZR2020-04-05T07:38:00Z30.72-91.4817.017.0007.029.970472TRUETRUEMVFRMETAR12.02020-04-05 07:48:17s7)=5    3PAFR 050738Z AUTO 15009KT 9SM -PL FEW006 SCT016 BKN036 OVC050 04/01 A2981 RMK AO2 SLP103PAFR2020-04-05T07:38:00Z61.27-149.654.01.015099.029.8110241010.3TRUETRUE-PLOVC5000VFRMETAR115.02020-04-05 07:48:17L6) 5    3KCUL 050738Z AUTO 36005KT 10SM SCT009 OVC019 08/07 A3007 RMK AO2KCUL2020-04-05T07:38:00Z38.08-88.128.07.0360510.030.070866TRUETRUEMVFRMETAR118.02020-04-05 07:48:17 ;VQ=)5    3KANJ 050737Z AUTO 32009KT 10SM OVC015 01/M04 A3013 RMK AO2 T00061039KANJ2020-04-05T07:37:00Z46.47-84.370.6-3.9320910.030.129921TRUETRUEMVFRMETAR218.02020-04-05 07:48:17_<)/5    3KPTK 050737Z AUTO 01006KT 10SM OVC009 04/03 A3007 RMK AO2 CIG 004V014 T00440028 $KPTK2020-04-05T07:37:00Z42.67-83.424.42.810610.030.070866TRUETRUETRUEIFRMETAR299.02020-04-05 07:48:17Z;)'5   3CYKY 050737Z 04007KT 15SM SCT002 SCT230 M17/M19 A2994 RMK ST3CI1 CI TR SLP192CYKY2020-04-05T07:37:00Z51.52-109.17-17.0-19.040715.029.9409451019.2VFRSPECI694.02020-04-05 07:48:17_:))5    3CYNM 050738Z AUTO 31009G15KT 2SM -SN BKN008 OVC019 00/M00 A2991 RMK ICG SLP142CYNM2020-04-05T07:38:00Z49.77-77.820.00.03109152.029.9114171014.2TRUE-SNIFRSPECI281.02020-04-05 07:48:17  G?A(y5    3KJES 050737Z AUTO 00000KT 10SM CLR 16/13 A2994 RMK AO2KJES2020-04-05T07:37:00Z31.55-81.8816.013.00010.029.940945TRUETRUEVFRMETAR33.02020-04-05 07:48:17>@(5    3KNY0 050737Z AUTO 13003KT 10SM OVC036 08/08 A3000 RMK AO2KNY02020-04-05T07:37:00Z42.98-74.338.08.0130310.030.0TRUETRUEVFRMETAR271.02020-04-05 07:48:17>?(}5    3K06C 050737Z AUTO 00000KT 5SM SCT120 01/01 A3015 RMK AO1K06C2020-04-05T07:37:00Z41.98-88.11.01.0005.030.15059TRUETRUEMVFRMETAR244.02020-04-05 07:48:17o>)55       3PAIK 050737Z AUTO 18009KT 5SM -SN BR SCT008 OVC014 00/M01 A2929 RMK AO2 P0000 FZRANOPAIK2020-04-05T07:37:00Z66.98-160.430.0-1.018095.029.291338TRUETRUETRUE-SN BRMVFR0.005METAR51.02020-04-05 07:48:17 ^-^IE) 5    3KDVP 050737Z AUTO 15005KT M01/M03 A3009 RMK AO2 T10111030 PWINOKDVP2020-04-05T07:37:00Z43.98-95.78-1.1-3.0150530.088583TRUETRUETRUEMETAR495.02020-04-05 07:48:17]D))5     3KOCF 050737Z AUTO 00000KT 1SM HZ SCT100 SCT120 18/14 A2992 RMK AO2 VIS 1/4V5 $KOCF2020-04-05T07:37:00Z29.17-82.2218.014.0001.029.920275TRUETRUETRUEHZIFRMETAR27.02020-04-05 07:48:17rC)S5   3PAOU 050737Z AUTO 28018G24KT 7SM SCT016 OVC042 03/01 A3016 RMK AO2 PK WND 28026/0723 RAB12E24 PNO $PAOU2020-04-05T07:37:00Z56.0-161.173.01.028018247.030.159449TRUETRUETRUEVFRMETAR4.02020-04-05 07:48:17rB)?5       3PAWS 050737Z AUTO 08004KT 10SM -RA SCT020 BKN028 OVC055 02/M02 A2988 RMK AO2 P0000 FZRANOPAWS2020-04-05T07:37:00Z61.57-149.532.0-2.080410.029.878937TRUETRUETRUE-RAMVFR0.005METAR107.02020-04-05 07:48:17 -fQI)5    3KBJI 050736Z AUTO 13005KT 10SM BKN090 M02/M07 A3009 RMK AO2 T10241071KBJI2020-04-05T07:36:00Z47.5-94.92-2.4-7.1130510.030.088583TRUETRUEVFRMETAR420.02020-04-05 07:48:17DH)5    3K04W 050736Z AUTO 00000KT 10SM OVC120 M03/M05 A3015 RMK AO2K04W2020-04-05T07:36:00Z46.02-92.9-3.0-5.00010.030.15059TRUETRUEVFRMETAR311.02020-04-05 07:48:17AG(}5    3KRQB 050736Z AUTO 00000KT 10SM CLR M01/M03 A3012 RMK AO2KRQB2020-04-05T07:36:00Z43.72-85.5-1.0-3.00010.030.121063TRUETRUEVFRMETAR302.02020-04-05 07:48:17MF)5    3KSGS 050736Z AUTO 00000KT 10SM CLR M01/M04 A3016 RMK AO2 T10151042KSGS2020-04-05T07:36:00Z44.87-93.03-1.5-4.20010.030.159449TRUETRUEVFRMETAR250.02020-04-05 07:48:17 /VZM)5     3KMIB 050736Z AUTO 00000KT 6SM BR CLR M07/M09 A2991 RMK AO2 SLP159 $KMIB2020-04-05T07:36:00Z48.42-101.33-7.0-9.0006.029.9114171015.9TRUETRUETRUEBRVFRMETAR508.02020-04-05 07:48:17DL(}5    3KACQ 050736Z AUTO 11007KT 10SM CLR M01/M03 A3014 RMK AO2KACQ2020-04-05T07:36:00Z44.07-93.55-1.0-3.0110710.030.138779TRUETRUEVFRMETAR343.02020-04-05 07:48:17SK)5     3KALI 050736Z AUTO 33010KT 4SM BR OVC002 13/13 A2998 RMK AO2 T01330128KALI2020-04-05T07:36:00Z27.73-98.0213.312.8330104.029.97933TRUETRUEBRLIFRMETAR53.02020-04-05 07:48:17KJ)5    3K9MN 050736Z AUTO 00000KT 10SM CLR 00/M04 A3015 RMK AO1 T10051039K9MN2020-04-05T07:36:00Z44.02-92.48-0.5-3.90010.030.15059TRUETRUEVFRMETAR355.02020-04-05 07:48:17 *cIQ)5    3KPMH 050736Z AUTO 01003KT 10SM OVC090 12/08 A3000 RMK AO2 T01220083KPMH2020-04-05T07:36:00Z38.83-82.8512.28.310310.030.0TRUETRUEVFRMETAR202.02020-04-05 07:48:17TP)5     3KSLN 050736Z AUTO 15004KT 2 1/2SM HZ CLR 01/M02 A3007 RMK AO2 T00111017KSLN2020-04-05T07:36:00Z38.78-97.651.1-1.715042.530.070866TRUETRUEHZIFRMETAR385.02020-04-05 07:48:17AO(}5    3KLVN 050736Z AUTO 00000KT 10SM CLR M03/M03 A3015 RMK AO2KLVN2020-04-05T07:36:00Z44.63-93.23-3.0-3.00010.030.15059TRUETRUEVFRMETAR293.02020-04-05 07:48:17PN)5     3KBAD 050736Z AUTO 36005KT 5SM BR OVC002 14/14 A3000 RMK AO2 SLP161KBAD2020-04-05T07:36:00Z32.5-93.6714.014.036055.030.01016.1TRUETRUEBRLIFRMETAR51.02020-04-05 07:48:17 7^KU)5    3KEVM 050736Z AUTO 00000KT 10SM CLR M06/M08 A3015 RMK AO2 T10651078KEVM2020-04-05T07:36:00Z47.42-92.5-6.5-7.80010.030.15059TRUETRUEVFRMETAR421.02020-04-05 07:48:17ET) 5   3KMGG 050736Z AUTO 00000KT 10SM M02/M04 A3015 RMK AO2 T10231040KMGG2020-04-05T07:36:00Z45.23-93.98-2.3-4.00010.030.15059TRUETRUEMETAR313.02020-04-05 07:48:17SS)5    3KMLU 050736Z AUTO 03006KT 8SM SCT006 BKN120 17/15 A3001 RMK AO2 T01670150KMLU2020-04-05T07:36:00Z32.52-92.0316.715.03068.030.008858TRUETRUEVFRMETAR29.02020-04-05 07:48:17CR(5    3KOEB 050736Z AUTO 04006KT 10SM OVC013 05/02 A3010 RMK AO2KOEB2020-04-05T07:36:00Z41.92-85.035.02.040610.030.100393TRUETRUEMVFRMETAR292.02020-04-05 07:48:17 &MxMY)5    3KFPK 050736Z AUTO 01006KT 10SM OVC008 03/01 A3009 RMK AO2 T00250008KFPK2020-04-05T07:36:00Z42.57-84.822.50.810610.030.088583TRUETRUEIFRMETAR272.02020-04-05 07:48:17OX)5    3KADC 050736Z AUTO 12004KT 10SM SCT090 OVC110 M02/M05 A3009 RMK AO2KADC2020-04-05T07:36:00Z46.45-95.22-2.0-5.0120410.030.088583TRUETRUEVFRMETAR418.02020-04-05 07:48:17SW)5    3KTOP 050736Z AUTO 00000KT 10SM OVC029 04/02 A3010 RMK AO2 T00390017 $KTOP2020-04-05T07:36:00Z39.07-95.633.91.70010.030.100393TRUETRUETRUEMVFRMETAR268.02020-04-05 07:48:17TV)!5    3KCOU 050736Z AUTO 00000KT 10SM BKN023 OVC055 04/02 A3009 RMK AO2 T00440022KCOU2020-04-05T07:36:00Z38.82-92.224.42.20010.030.088583TRUETRUEMVFRMETAR271.02020-04-05 07:48:17 +XN])5    3KIRS 050736Z AUTO 36004KT 10SM OVC014 05/03 A3010 RMK AO2 T00500031KIRS2020-04-05T07:36:00Z41.8-85.435.03.1360410.030.100393TRUETRUEMVFRMETAR282.02020-04-05 07:48:17A\(}5    3KULM 050736Z AUTO 00000KT 10SM CLR M01/M03 A3013 RMK AO2KULM2020-04-05T07:36:00Z44.32-94.5-1.0-3.00010.030.129921TRUETRUEVFRMETAR308.02020-04-05 07:48:17M[)5    3KFKA 050736Z AUTO 00000KT 10SM CLR M02/M05 A3014 RMK AO2 T10161052KFKA2020-04-05T07:36:00Z43.68-92.17-1.6-5.20010.030.138779TRUETRUEVFRMETAR389.02020-04-05 07:48:17OZ)5    3KFKS 050736Z AUTO 00000KT 10SM SCT011 M04/M05 A3018 RMK AO2 T10451052KFKS2020-04-05T07:36:00Z44.63-86.2-4.5-5.20010.030.180119TRUETRUEVFRMETAR193.02020-04-05 07:48:17 )UHa)5    3KRRT 050736Z AUTO 13004KT 10SM BKN110 M04/M07 A3009 RMK AO2KRRT2020-04-05T07:36:00Z48.93-95.33-4.0-7.0130410.030.088583TRUETRUEVFRMETAR327.02020-04-05 07:48:17I`)5    3KLDM 050736Z AUTO 00000KT 7SM CLR M03/M03 A3015 RMK AO2 T10351035KLDM2020-04-05T07:36:00Z43.97-86.4-3.5-3.5007.030.15059TRUETRUEVFRMETAR197.02020-04-05 07:48:17N_)5     3KPWG 050736Z AUTO 35005KT 5SM BR OVC003 09/08 A3005 RMK AO2 $KPWG2020-04-05T07:36:00Z31.47-97.329.08.035055.030.050198TRUETRUETRUEBRLIFRSPECI180.02020-04-05 07:48:17Q^)5    3KIKW 050736Z AUTO 30005KT 10SM OVC012 01/M02 A3012 RMK AO2 T00081020KIKW2020-04-05T07:36:00Z43.67-84.270.8-2.0300510.030.121063TRUETRUEMVFRMETAR194.02020-04-05 07:48:17 ,ZHe)5    3KCKN 050736Z AUTO 14006KT 10SM BKN075 M01/M04 A3005 RMK AO2KCKN2020-04-05T07:36:00Z47.85-96.62-1.0-4.0140610.030.050198TRUETRUEVFRMETAR273.02020-04-05 07:48:17Rd)5    3KOSC 050736Z AUTO 32006KT 10SM OVC011 M01/M03 A3012 RMK AO2 T10061026KOSC2020-04-05T07:36:00Z44.45-83.4-0.6-2.6320610.030.121063TRUETRUEMVFRMETAR193.02020-04-05 07:48:17Lc)5    3KHAI 050736Z AUTO 00000KT 10SM OVC016 06/03 A3011 RMK AO2 T00590025KHAI2020-04-05T07:36:00Z41.97-85.65.92.50010.030.109253TRUETRUEMVFRMETAR251.02020-04-05 07:48:17Nb)5    3KRNP 050736Z AUTO 31005KT 10SM OVC011 03/01 A3011 RMK AO2 T00320009KRNP2020-04-05T07:36:00Z43.0-84.133.20.9310510.030.109253TRUETRUEMVFRMETAR224.02020-04-05 07:48:17 ,_Qi)5    3KC07 050736Z AUTO 23007KT 190V270 10SM OVC070 M01/M08 A2991 RMK AO2KC072020-04-05T07:36:00Z40.35-106.7-1.0-8.0230710.029.911417TRUETRUEVFRMETAR3224.02020-04-05 07:48:17Fh(}5    3K4BM 050736Z AUTO 22007KT 10SM CLR M03/M08 A2999 RMK AO2K4BM2020-04-05T07:36:00Z39.05-105.52-3.0-8.0220710.029.991142TRUETRUEVFRMETAR3438.02020-04-05 07:48:17Gg)5    3K14Y 050736Z AUTO 14003KT 10SM BKN100 M02/M05 A3012 RMK AO2K14Y2020-04-05T07:36:00Z45.9-94.87-2.0-5.0140310.030.121063TRUETRUEVFRSPECI406.02020-04-05 07:48:17Nf)5    3KVLL 050736Z AUTO 35004KT 10SM OVC008 06/04 A3010 RMK AO2 T00550043KVLL2020-04-05T07:36:00Z42.55-83.185.54.3350410.030.100393TRUETRUEIFRMETAR222.02020-04-05 07:48:17 &R}Hm) 5    3KHZL 050736Z AUTO 00000KT 10SM SCT039 OVC050 08/06 A3004 RMK AO2KHZL2020-04-05T07:36:00Z40.98-76.08.06.00010.030.041338TRUETRUEVFRSPECI489.02020-04-05 07:48:17Ol)!5    3KCDI 050736Z AUTO 00000KT 10SM BKN065 OVC080 10/08 A3000 RMK AO2 T01020075KCDI2020-04-05T07:36:00Z39.97-81.5810.27.50010.030.0TRUETRUEVFRSPECI244.02020-04-05 07:48:17Nk)!5    3KCDA 050736Z AUTO 00000KT 10SM BKN036 OVC095 02/00 A3000 RMK AO2 T00200001KCDA2020-04-05T07:36:00Z44.57-72.022.00.10010.030.0TRUETRUEVFRMETAR363.02020-04-05 07:48:17Tj)5   3KCCU 050736Z AUTO 19011G18KT 140V240 10SM CLR M02/M08 A2998 RMK AO2KCCU2020-04-05T07:36:00Z39.48-106.15-2.0-8.0190111810.029.97933TRUETRUEVFRSPECI3680.02020-04-05 07:48:17 $\Cq(5    3KDLZ 050736Z AUTO 34006KT 10SM OVC006 08/07 A3003 RMK AO2KDLZ2020-04-05T07:36:00Z40.28-83.128.07.0340610.030.029528TRUETRUEIFRSPECI289.02020-04-05 07:48:17Pp)5    3KCNB 050736Z AUTO 10008KT 10SM BKN110 00/M02 A3007 RMK AO2 T00001020KCNB2020-04-05T07:36:00Z44.73-96.270.0-2.0100810.030.070866TRUETRUEVFRMETAR364.02020-04-05 07:48:17Bo({5    3KJKJ 050736Z AUTO 13009KT 10SM CLR 02/M05 A3004 RMK AO2KJKJ2020-04-05T07:36:00Z46.83-96.672.0-5.0130910.030.041338TRUETRUEVFRSPECI280.02020-04-05 07:48:17Vn)!5    3KI69 050736Z AUTO 33004KT 10SM SCT070 OVC080 12/09 A3004 RMK AO2 T01200087KI692020-04-05T07:36:00Z39.08-84.2212.08.7330410.030.041338TRUETRUEVFRSPECI255.02020-04-05 07:48:17 /gPu)5    3KY63 050736Z AUTO 11011KT 10SM OVC100 01/M03 A3007 RMK AO2 T00101032KY632020-04-05T07:36:00Z45.98-96.01.0-3.21101110.030.070866TRUETRUEVFRSPECI367.02020-04-05 07:48:17Ht) 5    3KUNV 050736Z AUTO 00000KT 10SM CLR 06/03 A3002 RMK AO2 T00640032KUNV2020-04-05T07:36:00Z40.85-77.836.43.20010.030.02067TRUETRUEVFRSPECI378.02020-04-05 07:48:17Bs(5    3KMQJ 050736Z AUTO 01007KT 10SM OVC010 05/05 A3007 RMK AO1KMQJ2020-04-05T07:36:00Z39.85-85.95.05.010710.030.070866TRUETRUEMVFRSPECI263.02020-04-05 07:48:17Kr)5    3KMOP 050736Z AUTO 00000KT 10SM CLR 00/M02 A3012 RMK AO2 T00001016KMOP2020-04-05T07:36:00Z43.62-84.730.0-1.60010.030.121063TRUETRUEVFRSPECI230.02020-04-05 07:48:17 8nRy)5    3KSJX 050736Z AUTO 36003KT 10SM OVC015 M02/M04 A3018 RMK AO2 T10221040KSJX2020-04-05T07:36:00Z45.7-85.57-2.2-4.0360310.030.180119TRUETRUEMVFRSPECI204.02020-04-05 07:48:17Bx(}5    3KRGK 050736Z AUTO 00000KT 10SM CLR M03/M05 A3016 RMK AO2KRGK2020-04-05T07:36:00Z44.58-92.48-3.0-5.00010.030.159449TRUETRUEVFRSPECI239.02020-04-05 07:48:17Dw)5    3KPNM 050736Z AUTO 00000KT 10SM BKN120 M02/M06 A3015 RMK AO2KPNM2020-04-05T07:36:00Z45.57-93.6-2.0-6.00010.030.15059TRUETRUEVFRSPECI298.02020-04-05 07:48:17Bv(5    3KPHN 050736Z AUTO 03005KT 10SM OVC006 03/02 A3010 RMK AO2KPHN2020-04-05T07:36:00Z42.92-82.523.02.030510.030.100393TRUETRUEIFRMETAR198.02020-04-05 07:48:17 FFI})5    3KBVI 050736Z AUTO 14003KT 10SM OVC080 10/04 A3000 RMK AO2 T01000041KBVI2020-04-05T07:36:00Z40.77-80.410.04.1140310.030.0TRUETRUEVFRMETAR382.02020-04-05 07:48:17P|)5    3KY70 050736Z AUTO 33005KT 10SM OVC011 02/00 A3012 RMK AO2 T00181005KY702020-04-05T07:36:00Z42.93-85.071.8-0.5330510.030.121063TRUETRUEMVFRMETAR250.02020-04-05 07:48:17 {)5      3PAMO 050736Z AUTO 24027G39KT 3SM -SN BR BKN003 OVC007 M02/M02 A2939 RMK AO2 PK WND 21044/0721 UPE13SNB13 CIG 002V005 P0000 FZRANOPAMO2020-04-05T07:36:00Z62.1-163.68-2.0-2.024027393.029.388779TRUETRUETRUE-SN BRLIFR0.005SPECI103.02020-04-05 07:48:17iz)95    3CYMO 050736Z AUTO 27009KT 5SM -SN SCT010 BKN015 BKN023 OVC030 M01/M01 A3000 RMK SLP162CYMO2020-04-05T07:36:00Z51.28-80.62-1.0-1.027095.030.01016.2TRUE-SNOVC3000MVFRSPECI10.02020-04-05 07:48:17 +TP)5   3KNFW 050736Z AUTO 30003KT OVC014 09/07 A3007 RMK AO2 T00890072 VISNO N $KNFW2020-04-05T07:36:00Z32.78-97.438.97.2300330.070866TRUETRUETRUEMETAR198.02020-04-05 07:48:17F)5    3K6B0 050736Z AUTO 00000KT 10SM OVC050 05/04 A3000 RMK AO2 T00490035K6B02020-04-05T07:36:00Z43.98-73.14.93.50010.030.0TRUETRUEVFRMETAR149.02020-04-05 07:48:17Q)5    3KY49 050736Z AUTO 09003KT 10SM OVC090 M03/M05 A3010 RMK AO2 T10301055KY492020-04-05T07:36:00Z47.13-94.65-3.0-5.590310.030.100393TRUETRUEVFRMETAR416.02020-04-05 07:48:17O~)5    3KCFS 050736Z AUTO 33007KT 10SM OVC013 04/01 A3010 RMK AO2 T00380011KCFS2020-04-05T07:36:00Z43.47-83.453.81.1330710.030.100393TRUETRUEMVFRMETAR214.02020-04-05 07:48:17 ,c9(q5   3KO32 050735Z AUTO 00000KT 10SM 13/09 A2980 RMK AO2KO322020-04-05T07:35:00Z36.67-119.4513.09.00010.029.799213TRUETRUEMETAR117.02020-04-05 07:48:17R)5    3KO69 050735Z AUTO 05004KT 10SM FEW016 FEW023 OVC055 10/10 A2973 RMK A01KO692020-04-05T07:35:00Z38.25-122.610.010.050410.029.731298TRUETRUEVFRMETAR28.02020-04-05 07:48:17C(}5    3KTOB 050736Z AUTO 08003KT 10SM CLR M02/M04 A3014 RMK AO2KTOB2020-04-05T07:36:00Z44.02-92.82-2.0-4.080310.030.138779TRUETRUEVFRMETAR398.02020-04-05 07:48:17N)5    3KTTF 050736Z AUTO 34006KT 10SM OVC008 07/06 A3007 RMK AO2 T00720059KTTF2020-04-05T07:36:00Z41.93-83.427.25.9340610.030.070866TRUETRUEIFRMETAR188.02020-04-05 07:48:17 0SS )5     3KE11 050735Z AUTO 14004KT 1 1/4SM BR OVC002 08/08 A3000 RMK AO2 T00760076KE112020-04-05T07:35:00Z32.33-102.537.67.614041.2530.0TRUETRUEBRLIFRMETAR967.02020-04-05 07:48:17N) 5    3KE38 050735Z AUTO 24005KT 10SM CLR 13/05 A3005 RMK AO2 T01280053KE382020-04-05T07:35:00Z30.38-103.6812.85.3240510.030.050198TRUETRUEVFRMETAR1376.02020-04-05 07:48:17W)!5    3KEBG 050735Z AUTO 33008KT 10SM SCT005 OVC014 18/17 A2995 RMK AO2 T01760167KEBG2020-04-05T07:35:00Z26.45-98.1317.616.7330810.029.949802TRUETRUEMVFRMETAR24.02020-04-05 07:48:17J) 5     3KEDC 050735Z AUTO 01009KT 1 1/2SM BR OVC003 09/09 A3003 RMK AO2KEDC2020-04-05T07:35:00Z30.4-97.579.09.01091.530.029528TRUETRUEBRLIFRMETAR189.02020-04-05 07:48:17 )aJ ) 5    3KD73 050735Z AUTO 00000KT 10SM CLR 11/10 A2997 RMK AO2 T01140102KD732020-04-05T07:35:00Z33.78-83.711.410.20010.029.970472TRUETRUEVFRMETAR267.02020-04-05 07:48:17L ) 5    3KDQH 050735Z AUTO 10004KT 10SM CLR 17/14 A2994 RMK AO2 T01660136KDQH2020-04-05T07:35:00Z31.48-82.8716.613.6100410.029.940945TRUETRUEVFRMETAR78.02020-04-05 07:48:17B ({5    3KDTL 050735Z AUTO 14008KT 10SM CLR 00/M03 A3007 RMK AO2KDTL2020-04-05T07:35:00Z46.82-95.870.0-3.0140810.030.070866TRUETRUEVFRMETAR426.02020-04-05 07:48:17Q )5    3KDVO 050735Z AUTO 00000KT 10SM FEW030 FEW042 OVC055 11/10 A2973 RMK AO2KDVO2020-04-05T07:35:00Z38.15-122.5511.010.00010.029.731298TRUETRUEVFRMETAR1.02020-04-05 07:48:17 0^L)5    3KCQB 050735Z AUTO 00000KT 10SM OVC007 04/03 A3010 RMK AO2 T00440030KCQB2020-04-05T07:35:00Z35.72-96.824.43.00010.030.100393TRUETRUEIFRMETAR300.02020-04-05 07:48:17L)5    3KCUH 050735Z AUTO 00000KT 10SM OVC008 05/03 A3009 RMK AO2 T00450033KCUH2020-04-05T07:35:00Z35.95-96.774.53.30010.030.088583TRUETRUEIFRMETAR279.02020-04-05 07:48:17L)5    3KCWF 050735Z AUTO 00000KT 10SM SCT018 14/14 A2996 RMK AO2 T01430139KCWF2020-04-05T07:35:00Z30.22-93.1514.313.90010.029.958662TRUETRUEVFRMETAR4.02020-04-05 07:48:17J) 5    3KCXU 050735Z AUTO 00000KT 10SM CLR 18/14 A2991 RMK AO1 T01830135KCXU2020-04-05T07:35:00Z31.22-84.2318.313.50010.029.911417TRUETRUEVFRMETAR53.02020-04-05 07:48:17 /XL)5    3KCIR 050735Z AUTO 02006KT 10SM OVC044 08/06 A3008 RMK AO2 T00810060KCIR2020-04-05T07:35:00Z37.07-89.228.16.020610.030.079725TRUETRUEVFRMETAR98.02020-04-05 07:48:17A(5    3KCKZ 050735Z AUTO 00000KT 10SM OVC047 09/08 A3003 RMK AO2KCKZ2020-04-05T07:35:00Z40.38-75.289.08.00010.030.029528TRUETRUEVFRMETAR173.02020-04-05 07:48:17Q)5     3KCLI 050735Z AUTO 03005KT 2SM BR OVC003 01/00 A3017 RMK AO2 T00070000KCLI2020-04-05T07:35:00Z44.62-88.730.70.03052.030.171259TRUETRUEBRLIFRMETAR250.02020-04-05 07:48:17K)5    3KCOM 050735Z AUTO 00000KT 10SM OVC005 08/07 A3005 RMK AO2 T00810067KCOM2020-04-05T07:35:00Z31.83-99.48.16.70010.030.050198TRUETRUEIFRMETAR517.02020-04-05 07:48:17 1^V)5     3KLUL 050735Z AUTO 00000KT 5SM OVC120 16/16 A2996 RMK A02 PWINO T01620158KLUL2020-04-05T07:35:00Z31.67-89.1716.215.8005.029.958662TRUETRUETRUEMVFRMETAR73.02020-04-05 07:48:17I)5     3KETB 050735Z AUTO 00000KT 1/4SM FG OVC002 00/00 A3016 RMK AO2KETB2020-04-05T07:35:00Z43.42-88.130.00.0000.2530.159449TRUETRUEFGLIFRMETAR270.02020-04-05 07:48:17M)5    3KFET 050735Z AUTO 14003KT 10SM CLR 02/M01 A3010 RMK AO2 T00221006KFET2020-04-05T07:35:00Z41.45-96.522.2-0.6140310.030.100393TRUETRUEVFRMETAR367.02020-04-05 07:48:17I) 5    3KFVX 050735Z AUTO 00000KT 10SM CLR 05/04 A3007 RMK AO2 T00450043KFVX2020-04-05T07:35:00Z37.35-78.424.54.30010.030.070866TRUETRUEVFRMETAR125.02020-04-05 07:48:17 '_N)5    3KJWG 050735Z AUTO 12004KT 10SM OVC008 04/02 A3010 RMK AO2 T00400023KJWG2020-04-05T07:35:00Z35.87-98.424.02.3120410.030.100393TRUETRUEIFRMETAR472.02020-04-05 07:48:17T)!5    3KK88 050735Z AUTO 00000KT 10SM BKN019 OVC035 04/03 A3010 RMK AO1 T00430030KK882020-04-05T07:35:00Z37.87-95.384.33.00010.030.100393TRUETRUEMVFRMETAR309.02020-04-05 07:48:17B(y5    3KL35 050735Z AUTO 25007KT 10SM CLR 01/00 A2989 RMK AO2KL352020-04-05T07:35:00Z34.27-116.851.00.0250710.029.890747TRUETRUEVFRMETAR2059.02020-04-05 07:48:17S)5     3KLUD 050735Z AUTO 00000KT 1/4SM FG OVC002 07/07 A3006 RMK AO2 T00710065KLUD2020-04-05T07:35:00Z33.25-97.587.16.5000.2530.059055TRUETRUEFGLIFRMETAR319.02020-04-05 07:48:17 .eC!(5    3KIOB 050735Z AUTO 35003KT 10SM OVC100 12/08 A3002 RMK AO2KIOB2020-04-05T07:35:00Z38.05-83.9812.08.0350310.030.02067TRUETRUEVFRMETAR311.02020-04-05 07:48:17M ) 5    3KIWA 050735Z AUTO 14010KT 10SM CLR 16/00 A2983 RMK AO2 T01570004KIWA2020-04-05T07:35:00Z33.3-111.6515.70.41401010.029.828741TRUETRUEVFRMETAR412.02020-04-05 07:48:17C(5    3KJDD 050735Z AUTO 34005KT 10SM OVC004 09/09 A3005 RMK AO2KJDD2020-04-05T07:35:00Z32.75-95.59.09.0340510.030.050198TRUETRUELIFRMETAR132.02020-04-05 07:48:17L) 5    3KJVY 050735Z AUTO 35007KT 10SM CLR 10/08 A3004 RMK AO2 T01040080KJVY2020-04-05T07:35:00Z38.37-85.7310.48.0350710.030.041338TRUETRUEVFRMETAR145.02020-04-05 07:48:17 /lK%) 5    3KHQU 050735Z AUTO 00000KT 10SM CLR 11/10 A2997 RMK AO2 T01150102KHQU2020-04-05T07:35:00Z33.53-82.5211.510.20010.029.970472TRUETRUEVFRMETAR152.02020-04-05 07:48:17L$) 5    3KHRX 050735Z AUTO 20007KT 10SM CLR 05/04 A2998 RMK AO2 T00460035KHRX2020-04-05T07:35:00Z34.87-102.334.63.5200710.029.97933TRUETRUEVFRMETAR1154.02020-04-05 07:48:17=#(y5    3KHYW 050735Z AUTO 00000KT 10SM CLR 08/07 A3003 RMK AO2KHYW2020-04-05T07:35:00Z33.83-79.128.07.00010.030.029528TRUETRUEVFRMETAR11.02020-04-05 07:48:17K") 5    3KIMS 050735Z AUTO 30003KT 10SM SCT070 SCT120 08/08 A3006 RMK AO1KIMS2020-04-05T07:35:00Z38.75-85.478.08.0300310.030.059055TRUETRUEVFRMETAR250.02020-04-05 07:48:17 @wB)(}5    3KOLG 050735Z AUTO 03003KT 10SM CLR M06/M06 A3016 RMK AO1KOLG2020-04-05T07:35:00Z46.3-91.82-6.0-6.030310.030.159449TRUETRUEVFRMETAR336.02020-04-05 07:48:17C()5      3KONP 050735Z AUTO 08008KT 10SM DZ OVC048 06/06 RMK AO2 P0001KONP2020-04-05T07:35:00Z44.57-124.036.06.080810.0TRUETRUEDZVFR0.01METAR48.02020-04-05 07:48:17U')5     3KGLE 050735Z AUTO 01003KT 1 3/4SM BR OVC002 07/06 A3009 RMK AO2 T00650062KGLE2020-04-05T07:35:00Z33.65-97.26.56.21031.7530.088583TRUETRUEBRLIFRMETAR256.02020-04-05 07:48:17_&)/5    3KHMT 050735Z AUTO 23005KT 10SM SCT015 BKN026 OVC040 11/10 A2991 RMK AO2 T01050095KHMT2020-04-05T07:35:00Z33.73-117.0210.59.5230510.029.911417TRUETRUEMVFRMETAR462.02020-04-05 07:48:17 2_L-) 5    3KPMV 050735Z AUTO 15003KT 10SM CLR 01/00 A3010 RMK AO2 T00081004KPMV2020-04-05T07:35:00Z40.95-95.920.8-0.4150310.030.100393TRUETRUEVFRMETAR367.02020-04-05 07:48:17D,)5      3KLUV 050735Z AUTO 18007KT 1 1/4SM BR OVC003 07/ A3000 RMK AO2KLUV2020-04-05T07:35:00Z32.75-101.927.018071.2530.0TRUETRUEBRLIFRMETAR912.02020-04-05 07:48:17M+)5     3KMDD 050735Z AUTO 13005KT 2SM BR OVC003 08/08 A3000 RMK AO2 T00840081KMDD2020-04-05T07:35:00Z32.03-102.18.48.113052.030.0TRUETRUEBRLIFRMETAR854.02020-04-05 07:48:17H*) 5    3KOJA 050735Z AUTO 00000KT 7SM SCT007 OVC030 05/03 A3007 RMK AO2KOJA2020-04-05T07:35:00Z35.55-98.675.03.0007.030.070866TRUETRUEMVFRMETAR490.02020-04-05 07:48:17 <^C1({5    3KPOY 050735Z AUTO 32003KT 10SM CLR 00/M06 A2970 RMK AO2KPOY2020-04-05T07:35:00Z44.87-108.80.0-6.0320310.029.698818TRUETRUEVFRMETAR1552.02020-04-05 07:48:17I0) 5    3KPPQ 050735Z AUTO 00000KT 10SM CLR 03/03 A3013 RMK AO2 T00310031KPPQ2020-04-05T07:35:00Z39.63-90.783.13.10010.030.129921TRUETRUEVFRMETAR216.02020-04-05 07:48:17X/)5     3KPSN 050735Z AUTO 32003KT 1 3/4SM BR OVC003 10/10 A3004 RMK AO2 T01000100KPSN2020-04-05T07:35:00Z31.78-95.710.010.032031.7530.041338TRUETRUEBRLIFRMETAR129.02020-04-05 07:48:17>.(y5    3KPCM 050735Z AUTO 00000KT 10SM CLR 19/17 A2994 RMK AO2KPCM2020-04-05T07:35:00Z28.0-82.1719.017.00010.029.940945TRUETRUEVFRMETAR47.02020-04-05 07:48:17 -S?5(y5    3KUKF 050735Z AUTO 05006KT 10SM CLR 12/01 A3008 RMK AO2KUKF2020-04-05T07:35:00Z36.22-81.112.01.050610.030.079725TRUETRUEVFRMETAR396.02020-04-05 07:48:17B4(5    3KUYF 050735Z AUTO 36008KT 10SM OVC080 08/07 A3002 RMK AO2KUYF2020-04-05T07:35:00Z39.93-83.478.07.0360810.030.02067TRUETRUEVFRMETAR330.02020-04-05 07:48:17T3)!5    3KVJI 050735Z AUTO 09004KT 10SM BKN080 OVC095 12/02 A3002 RMK AO2 T01160024KVJI2020-04-05T07:35:00Z36.67-82.0211.62.490410.030.02067TRUETRUEVFRMETAR631.02020-04-05 07:48:17M2)5    3KPVJ 050735Z AUTO 01003KT 10SM OVC005 05/05 A3007 RMK AO2 T00480048KPVJ2020-04-05T07:35:00Z34.72-97.224.84.810310.030.070866TRUETRUEIFRMETAR295.02020-04-05 07:48:17 5]_9)35     3KT41 050735Z AUTO 35007KT 7SM BR SCT004 BKN008 OVC025 16/16 A2996 RMK AO2 T01650162KT412020-04-05T07:35:00Z29.67-95.0716.516.235077.029.958662TRUETRUEBRIFRMETAR8.02020-04-05 07:48:17V8)5     3KT74 050735Z AUTO 01011KT 2 1/2SM BR OVC002 09/09 A3003 RMK AO2 T00900088KT742020-04-05T07:35:00Z30.57-97.459.08.810112.530.029528TRUETRUEBRLIFRMETAR183.02020-04-05 07:48:17R7)5      3KTMK 050735Z AUTO 00000KT 1/2SM FG OVC001 04/04 A2959 RMK AO2 P0001KTMK2020-04-05T07:35:00Z45.42-123.824.04.0000.529.589567TRUETRUEFGLIFR0.01METAR11.02020-04-05 07:48:17E6)5    3KUBE 050735Z AUTO 00000KT 10SM SCT120 M03/M05 A3016 RMK AO2KUBE2020-04-05T07:35:00Z45.5-91.98-3.0-5.00010.030.159449TRUETRUEVFRMETAR379.02020-04-05 07:48:17 (ZJ=) 5    3KSCD 050735Z AUTO 00000KT 10SM CLR 15/13 A2994 RMK AO2 T01490125KSCD2020-04-05T07:35:00Z33.17-86.314.912.50010.029.940945TRUETRUEVFRMETAR173.02020-04-05 07:48:17G<) 5    3KSCR 050735Z AUTO 00000KT 10SM CLR 10/08 A3006 RMK AO2 T00960075KSCR2020-04-05T07:35:00Z35.7-79.59.67.50010.030.059055TRUETRUEVFRMETAR188.02020-04-05 07:48:17H;) 5    3KSHD 050735Z AUTO 00000KT 10SM CLR 03/02 A3008 RMK AO2 T00330021KSHD2020-04-05T07:35:00Z38.27-78.93.32.10010.030.079725TRUETRUEVFRMETAR366.02020-04-05 07:48:17R:)5     3KSLR 050735Z AUTO 36006KT 2SM BR OVC003 09/09 A3008 RMK AO2 T00880088KSLR2020-04-05T07:35:00Z33.17-95.628.88.836062.030.079725TRUETRUEBRLIFRMETAR149.02020-04-05 07:48:17 /\OA)5    3KRAS 050735Z AUTO 33013KT 10SM OVC005 15/14 A2996 RMK AO2 T01500141KRAS2020-04-05T07:35:00Z27.82-97.0815.014.13301310.029.958662TRUETRUEIFRMETAR2.02020-04-05 07:48:17U@)!5    3KRLD 050735Z AUTO 31012KT 10SM SCT055 OVC065 07/02 A2965 RMK AO2 T00730015KRLD2020-04-05T07:35:00Z46.3-119.37.31.53101210.029.648623TRUETRUEVFRMETAR120.02020-04-05 07:48:17M?)5    3KRZN 050735Z AUTO 00000KT 10SM CLR M05/M07 A3017 RMK AO2 T10521066KRZN2020-04-05T07:35:00Z45.82-92.37-5.2-6.60010.030.171259TRUETRUEVFRMETAR301.02020-04-05 07:48:17K>)5    3KS52 050735Z AUTO 00000KT 10SM CLR 02/M06 A2967 RMK AO2 T00161056KS522020-04-05T07:35:00Z48.38-120.151.6-5.60010.029.66929TRUETRUEVFRMETAR520.02020-04-05 07:48:17 -]KE)5    3KBIE 050735Z AUTO 00000KT 10SM CLR 00/M01 A3011 RMK AO2 T00001009KBIE2020-04-05T07:35:00Z40.28-96.750.0-0.90010.030.109253TRUETRUEVFRMETAR403.02020-04-05 07:48:17ND)5     3KBPG 050735Z AUTO 13005KT 4SM BR OVC002 09/08 A3000 RMK AO2 T00850083KBPG2020-04-05T07:35:00Z32.22-101.528.58.313054.030.0TRUETRUEBRLIFRMETAR784.02020-04-05 07:48:17JC)5    3KBQP 050735Z AUTO 00000KT 7SM SCT120 15/15 A3002 RMK AO2 T01500146KBQP2020-04-05T07:35:00Z32.75-91.8815.014.6007.030.02067TRUETRUEVFRMETAR51.02020-04-05 07:48:17MB)5    3KBTA 050735Z AUTO 16004KT 10SM CLR 03/M01 A3010 RMK AO2 T00251014KBTA2020-04-05T07:35:00Z41.42-96.122.5-1.4160410.030.100393TRUETRUEVFRMETAR396.02020-04-05 07:48:17 2lWI)5     3KAUN 050735Z AUTO 19005KT 4SM BR BKN004 BKN016 OVC040 09/08 A2974 RMK A01KAUN2020-04-05T07:35:00Z38.95-121.089.08.019054.029.740158TRUETRUEBRLIFRMETAR467.02020-04-05 07:48:17RH)5    3KAXX 050735Z AUTO 23003KT 10SM OVC065 02/M03 A2999 RMK AO2 T00171035KAXX2020-04-05T07:35:00Z36.42-105.281.7-3.5230310.029.991142TRUETRUEVFRMETAR2548.02020-04-05 07:48:17@G(5    3KBBD 050735Z AUTO 00000KT 10SM OVC007 09/08 A3002 RMK AO2KBBD2020-04-05T07:35:00Z31.18-99.329.08.00010.030.02067TRUETRUEIFRMETAR557.02020-04-05 07:48:17HF)5   3KBDG 050735Z AUTO 20009KT 10SM 06/M07 A2992 RMK AO1 T00611069KBDG2020-04-05T07:35:00Z37.58-109.476.1-6.9200910.029.920275TRUETRUEMETAR1788.02020-04-05 07:48:17 ,XNM)5    3KAHQ 050735Z AUTO 14004KT 10SM CLR M01/M03 A3010 RMK AO2 T10091030KAHQ2020-04-05T07:35:00Z41.23-96.6-0.9-3.0140410.030.100393TRUETRUEVFRMETAR374.02020-04-05 07:48:17NL)5    3KANW 050735Z AUTO 19016KT 10SM CLR 02/M05 A2995 RMK AO2 T00181053KANW2020-04-05T07:35:00Z42.57-100.01.8-5.31901610.029.949802TRUETRUEVFRMETAR789.02020-04-05 07:48:17NK)5    3KASL 050735Z AUTO 36006KT 1SM OVC003 12/11 A3005 RMK AO1 T01150105KASL2020-04-05T07:35:00Z32.52-94.311.510.536061.030.050198TRUETRUELIFRMETAR109.02020-04-05 07:48:17NJ)5    3KAUH 050735Z AUTO 16006KT 10SM CLR M01/M04 A3005 RMK AO2 T10121039KAUH2020-04-05T07:35:00Z40.88-98.0-1.2-3.9160610.030.050198TRUETRUEVFRMETAR550.02020-04-05 07:48:17 -^NQ)5    3K5M9 050735Z AUTO 34003KT 10SM OVC005 08/07 A3007 RMK AO2 T00760065K5M92020-04-05T07:35:00Z37.33-88.127.66.5340310.030.070866TRUETRUEIFRMETAR199.02020-04-05 07:48:17MP)5     3K66R 050735Z AUTO 36005KT 4SM BR OVC003 11/09 A3000 RMK AO2 T01060094K66R2020-04-05T07:35:00Z29.65-96.5210.69.436054.030.0TRUETRUEBRLIFRMETAR74.02020-04-05 07:48:17IO) 5    3K9A5 050735Z AUTO 00000KT 7SM CLR 12/11 A2997 RMK AO2 T01240107K9A52020-04-05T07:35:00Z34.68-85.2812.410.7007.029.970472TRUETRUEVFRMETAR237.02020-04-05 07:48:17MN)5    3KA08 050735Z AUTO 00000KT 10SM OVC100 18/14 A2993 RMK AO2 T01790137KA082020-04-05T07:35:00Z32.52-87.3817.913.70010.029.929134TRUETRUEVFRMETAR69.02020-04-05 07:48:17 3_NU)5    3K48A 050735Z AUTO 07003KT 10SM OVC095 17/12 A2994 RMK AO2 T01660121K48A2020-04-05T07:35:00Z32.4-83.2716.612.170310.029.940945TRUETRUEVFRMETAR115.02020-04-05 07:48:17KT) 5    3K4A9 050735Z AUTO 00000KT 10SM CLR 12/10 A2995 RMK AO2 T01240101K4A92020-04-05T07:35:00Z34.47-85.7212.410.10010.029.949802TRUETRUEVFRMETAR267.02020-04-05 07:48:17NS)5    3K5A6 050735Z AUTO 34003KT 7SM SCT110 15/14 A2999 RMK AO2 T01470135K5A62020-04-05T07:35:00Z33.47-89.7314.713.534037.029.991142TRUETRUEVFRMETAR111.02020-04-05 07:48:17GR)5    3K5C1 050735Z AUTO 32003KT 2 1/2SM OVC006 11/11 A3003 RMK AO1K5C12020-04-05T07:35:00Z29.72-98.711.011.032032.530.029528TRUETRUEIFRMETAR423.02020-04-05 07:48:17 .dKY)5    3K2I0 050735Z AUTO 34004KT 7SM OVC110 09/06 A3007 RMK AO2 T00870061K2I02020-04-05T07:35:00Z37.35-87.48.76.134047.030.070866TRUETRUEVFRMETAR134.02020-04-05 07:48:17QX)5    3K3AU 050735Z AUTO 14005KT 7SM SCT007 SCT011 OVC020 03/03 A3007 RMK AO2K3AU2020-04-05T07:35:00Z37.67-97.083.03.014057.030.070866TRUETRUEMVFRMETAR405.02020-04-05 07:48:17DW({5    3K3K3 050735Z AUTO 13012KT 10SM CLR 01/M01 A2994 RMK AO2K3K32020-04-05T07:35:00Z38.0-101.751.0-1.01301210.029.940945TRUETRUEVFRMETAR1013.02020-04-05 07:48:17LV) 5    3K40J 050735Z AUTO 10005KT 10SM CLR 18/16 A2992 RMK AO2 T01800163K40J2020-04-05T07:35:00Z30.07-83.5718.016.3100510.029.920275TRUETRUEVFRMETAR13.02020-04-05 07:48:17 6eP])5    3KBVS 050735Z AUTO VRB04KT 10SM BKN060 BKN075 OVC095 06/00 A2965 RMK A01KBVS2020-04-05T07:35:00Z48.47-122.426.00.00410.029.648623TRUETRUEVFRMETAR43.02020-04-05 07:48:17U\)5     3K11R 050735Z AUTO 35008KT 1/4SM FG OVC002 11/11 A3002 RMK AO2 T01100110K11R2020-04-05T07:35:00Z30.22-96.3711.011.035080.2530.02067TRUETRUEFGLIFRMETAR94.02020-04-05 07:48:17K[) 5    3K19S 050735Z AUTO 13010KT 7SM CLR 00/00 A2998 RMK AO2 T00031004K19S2020-04-05T07:35:00Z37.48-100.830.3-0.4130107.029.97933TRUETRUEVFRMETAR886.02020-04-05 07:48:17DZ) 5    3K1A6 050735Z AUTO 00000KT 10SM CLR 10/08 A3000 RMK AO2 T00960081K1A62020-04-05T07:35:00Z36.62-83.739.68.10010.030.0TRUETRUEVFRMETAR352.02020-04-05 07:48:17 )ZNa)5    3KHUM 050735Z AUTO 12004KT 10SM OVC100 15/15 A2993 RMK AO2 T01530146KHUM2020-04-05T07:35:00Z29.57-90.6715.314.6120410.029.929134TRUETRUEVFRMETAR3.02020-04-05 07:48:17T`)!5    3KI19 050735Z AUTO 35004KT 10SM SCT009 OVC085 09/07 A3006 RMK AO2 T00910068KI192020-04-05T07:35:00Z39.7-83.989.16.8350410.030.059055TRUETRUEVFRMETAR289.02020-04-05 07:48:17I_) 5    3KI75 050735Z AUTO 00000KT 10SM CLR 01/00 A3012 RMK AO2 T00130000KI752020-04-05T07:35:00Z41.05-93.681.30.00010.030.121063TRUETRUEVFRMETAR339.02020-04-05 07:48:17Q^)5    3KIER 050735Z AUTO 00000KT 7SM SCT005 OVC100 16/16 A2999 RMK AO2 T01610161KIER2020-04-05T07:35:00Z31.73-93.116.116.1007.029.991142TRUETRUEVFRMETAR37.02020-04-05 07:48:17 .fLe)5   3KHII 050735Z AUTO 13014G20KT 10SM FEW060 21/02 A2972 RMK AO2KHII2020-04-05T07:35:00Z34.57-114.3721.02.0130142010.029.719488TRUETRUEVFRMETAR238.02020-04-05 07:48:17Jd) 5    3KHMP 050735Z AUTO 07004KT 10SM CLR 13/09 A2998 RMK AO2 T01290086KHMP2020-04-05T07:35:00Z33.38-84.3312.98.670410.029.97933TRUETRUEVFRMETAR269.02020-04-05 07:48:17Bc(}5    3KHPT 050735Z AUTO 00000KT 10SM CLR M01/M02 A3014 RMK AO2KHPT2020-04-05T07:35:00Z42.72-93.23-1.0-2.00010.030.138779TRUETRUEVFRMETAR354.02020-04-05 07:48:17Lb)5    3KHQZ 050735Z AUTO 32003KT 5SM OVC005 08/08 A3007 RMK AO1 T00820077KHQZ2020-04-05T07:35:00Z32.75-96.538.27.732035.030.070866TRUETRUEIFRMETAR136.02020-04-05 07:48:17 +eIi)5     3KGZL 050735Z AUTO 28003KT 1/2SM FG OVC002 07/07 A3009 RMK AO2KGZL2020-04-05T07:35:00Z35.28-95.17.07.028030.530.088583TRUETRUEFGLIFRMETAR183.02020-04-05 07:48:17Th)5     3KHBV 050735Z AUTO 36007KT 2SM BR OVC002 15/15 A2999 RMK AO2 T01520147KHBV2020-04-05T07:35:00Z27.35-98.7315.214.736072.029.991142TRUETRUEBRLIFRMETAR202.02020-04-05 07:48:17@g(}5    3KHDC 050735Z AUTO 00000KT 7SM OVC110 17/17 A2995 RMK AO2KHDC2020-04-05T07:35:00Z30.52-90.4217.017.0007.029.949802TRUETRUEVFRMETAR13.02020-04-05 07:48:17Of)5     3KHHF 050735Z AUTO 00000KT 5SM BR OVC023 04/03 A3001 RMK AO2 T00350029KHHF2020-04-05T07:35:00Z35.9-100.43.52.9005.030.008858TRUETRUEBRMVFRMETAR712.02020-04-05 07:48:17 /RPm)5    3KGPM 050735Z AUTO 00000KT 5SM BKN007 OVC014 09/09 A3008 RMK AO2 T00870087KGPM2020-04-05T07:35:00Z32.7-97.058.78.7005.030.079725TRUETRUEIFRMETAR180.02020-04-05 07:48:17Cl(5    3KGWB 050735Z AUTO 33003KT 10SM OVC014 04/03 A3009 RMK AO2KGWB2020-04-05T07:35:00Z41.3-85.074.03.0330310.030.088583TRUETRUEMVFRMETAR269.02020-04-05 07:48:17Wk)5     3KGYI 050735Z AUTO 36004KT 1 3/4SM BR OVC004 07/07 A3008 RMK AO2 T00720066KGYI2020-04-05T07:35:00Z33.72-96.677.26.636041.7530.079725TRUETRUEBRLIFRMETAR228.02020-04-05 07:48:17Kj) 5    3KGYY 050735Z AUTO 36007KT 10SM CLR 04/02 A3014 RMK AO2 T00380022KGYY2020-04-05T07:35:00Z41.62-87.423.82.2360710.030.138779TRUETRUEVFRMETAR180.02020-04-05 07:48:17 9_Pq)5     3KGDJ 050735Z AUTO 00000KT 5SM BR OVC003 09/08 A3008 RMK AO2 T00850075KGDJ2020-04-05T07:35:00Z32.45-97.828.57.5005.030.079725TRUETRUEBRLIFRMETAR237.02020-04-05 07:48:17Qp)5    3KGIC 050735Z AUTO 00000KT 10SM SCT039 BKN047 OVC060 04/00 A2956 RMK AO1KGIC2020-04-05T07:35:00Z45.95-116.124.00.00010.029.56004TRUETRUEVFRMETAR1009.02020-04-05 07:48:17To)5     3KGNC 050735Z AUTO 17005KT 5SM BR OVC004 08/07 A3003 RMK AO2 T00750070KGNC2020-04-05T07:35:00Z32.68-102.657.57.017055.030.029528TRUETRUEBRLIFRMETAR1010.02020-04-05 07:48:17An(}5    3KGOP 050735Z AUTO 34004KT 7SM OVC003 08/08 A3006 RMK AO2KGOP2020-04-05T07:35:00Z31.42-97.88.08.034047.030.059055TRUETRUELIFRMETAR276.02020-04-05 07:48:17 1]Su)5     3KFWS 050735Z AUTO 00000KT 3SM OVC006 08/08 A3008 RMK AO2 T00820076 PWINOKFWS2020-04-05T07:35:00Z32.57-97.38.27.6003.030.079725TRUETRUETRUEIFRMETAR208.02020-04-05 07:48:17At(5    3KFYG 050735Z AUTO 00000KT 10SM OVC025 06/04 A3011 RMK AO2KFYG2020-04-05T07:35:00Z38.58-91.06.04.00010.030.109253TRUETRUEMVFRMETAR149.02020-04-05 07:48:17Ns)5    3KGAO 050735Z AUTO 15003KT 10SM OVC090 16/14 A2995 RMK AO2 T01550141KGAO2020-04-05T07:35:00Z29.45-90.2715.514.1150310.029.949802TRUETRUEVFRMETAR1.02020-04-05 07:48:17Ir) 5     3KGCM 050735Z AUTO 00000KT 2 1/2SM BR OVC004 05/02 A3010 RMK AO2KGCM2020-04-05T07:35:00Z36.3-95.485.02.0002.530.100393TRUETRUEBRLIFRMETAR221.02020-04-05 07:48:17 3uPy)5    3KFLY 050735Z AUTO 35004KT 10SM CLR 00/M04 A2991 RMK AO2 T10051045KFLY2020-04-05T07:35:00Z38.95-104.57-0.5-4.5350410.029.911417TRUETRUEVFRMETAR2096.02020-04-05 07:48:17Px)5    3KFRH 050735Z AUTO 02003KT 10SM BKN008 BKN065 OVC090 08/06 A3006 RMK AO1KFRH2020-04-05T07:35:00Z38.5-86.638.06.020310.030.059055TRUETRUEIFRMETAR241.02020-04-05 07:48:178w(q5   3KFSW 050735Z AUTO 02004KT 10SM 04/01 A3012 RMK AO2KFSW2020-04-05T07:35:00Z40.67-91.324.01.020410.030.121063TRUETRUEMETAR221.02020-04-05 07:48:17Gv)5     3KFWB 050735Z AUTO 00000KT 3/4SM BR OVC002 06/06 A3007 RMK AO2KFWB2020-04-05T07:35:00Z36.7-93.46.06.0000.7530.070866TRUETRUEBRLIFRMETAR406.02020-04-05 07:48:17 S<}(u5   3KFGN 050735Z AUTO 10004KT 10SM M04/M07 A3010 RMK AO2KFGN2020-04-05T07:35:00Z49.32-94.9-4.0-7.0100410.030.100393TRUETRUEMETAR328.02020-04-05 07:48:17D|) 5     3KFHB 050735Z AUTO 09004KT 10SM CLR 17/ A2993 RMK AO2 T0174////KFHB2020-04-05T07:35:00Z30.62-81.4717.490410.029.929134TRUETRUEVFRMETAR5.02020-04-05 07:48:17F{) 5    3KFKN 050735Z AUTO 00000KT 10SM CLR 04/04 A3010 RMK AO2 T00420040KFKN2020-04-05T07:35:00Z36.7-76.94.24.00010.030.100393TRUETRUEVFRMETAR12.02020-04-05 07:48:17[z)/5    3KFKR 050735Z AUTO 01006KT 10SM BKN007 BKN041 OVC100 04/02 A3011 RMK AO2 T00400020KFKR2020-04-05T07:35:00Z40.27-86.574.02.010610.030.109253TRUETRUEIFRMETAR262.02020-04-05 07:48:17 3_O)5    3KAXS 050735Z AUTO 12010KT 10SM OVC028 07/04 A3008 RMK AO2 T00700040KAXS2020-04-05T07:35:00Z34.7-99.337.04.01201010.030.079725TRUETRUEMVFRMETAR437.02020-04-05 07:48:17M)5    3KBCK 050735Z AUTO 00000KT 10SM CLR M08/M09 A3017 RMK AO2 T10841094KBCK2020-04-05T07:35:00Z44.25-90.85-8.4-9.40010.030.171259TRUETRUEVFRMETAR255.02020-04-05 07:48:17N)5    3KFEP 050735Z AUTO 00000KT 10SM OVC120 00/M01 A3016 RMK AO2 T00031012KFEP2020-04-05T07:35:00Z42.25-89.580.3-1.20010.030.159449TRUETRUEVFRMETAR262.02020-04-05 07:48:17G~) 5    3KFFA 050735Z AUTO 00000KT 10SM CLR 08/05 A3005 RMK AO2 T00750054KFFA2020-04-05T07:35:00Z36.02-75.677.55.40010.030.050198TRUETRUEVFRMETAR4.02020-04-05 07:48:17 .^X)5    3KARM 050735Z AUTO 01010G14KT 4SM BR OVC002 13/12 A2997 RMK AO2 T01270123KARM2020-04-05T07:35:00Z29.25-96.1512.712.31010144.029.970472TRUETRUEBRLIFRMETAR31.02020-04-05 07:48:17L)5    3KARV 050735Z AUTO 00000KT 10SM CLR M06/M08 A3015 RMK AO2 T10571080KARV2020-04-05T07:35:00Z45.92-89.72-5.7-8.00010.030.15059TRUETRUEVFRMETAR496.02020-04-05 07:48:17J) 5    3KASW 050735Z AUTO 35003KT 7SM BKN003 OVC010 03/02 A3010 RMK AO2KASW2020-04-05T07:35:00Z41.27-85.833.02.035037.030.100393TRUETRUELIFRMETAR259.02020-04-05 07:48:17L)5    3KAVQ 050735Z AUTO 00000KT 10SM CLR 17/M05 A2986 RMK AO2 T01681046KAVQ2020-04-05T07:35:00Z32.4-111.2216.8-4.60010.029.861221TRUETRUEVFRMETAR619.02020-04-05 07:48:17 %UH ) 5    3KAJR 050735Z AUTO 00000KT 10SM CLR 13/07 A2998 RMK AO2 T01270065KAJR2020-04-05T07:35:00Z34.5-83.5512.76.50010.029.97933TRUETRUEVFRMETAR441.02020-04-05 07:48:17E({5    3KALM 050735Z AUTO 19005KT 10SM CLR 10/M05 A2993 RMK AO2KALM2020-04-05T07:35:00Z32.82-105.9710.0-5.0190510.029.929134TRUETRUEVFRMETAR1279.02020-04-05 07:48:17J) 5    3KALX 050735Z AUTO 00000KT 10SM CLR 17/09 A2994 RMK AO2 T01730091KALX2020-04-05T07:35:00Z32.92-85.9717.39.10010.029.940945TRUETRUEVFRMETAR198.02020-04-05 07:48:17U)5     3KAQR 050735Z AUTO 35004KT 2 1/2SM BR OVC002 04/04 A3009 RMK AO2 T00380038KAQR2020-04-05T07:35:00Z34.4-96.153.83.835042.530.088583TRUETRUEBRLIFRMETAR189.02020-04-05 07:48:17 *VQ )5     3KADM 050735Z AUTO 03003KT 4SM BR OVC004 06/06 A3008 RMK AO2 T00590059KADM2020-04-05T07:35:00Z34.28-97.025.95.93034.030.079725TRUETRUEBRLIFRMETAR232.02020-04-05 07:48:17J ) 5    3KAFK 050735Z AUTO 15003KT 10SM CLR 02/02 A3011 RMK AO2 T00170017KAFK2020-04-05T07:35:00Z40.6-95.851.71.7150310.030.109253TRUETRUEVFRMETAR354.02020-04-05 07:48:17N )5    3KAIG 050735Z AUTO 03003KT 10SM CLR M03/M06 A3016 RMK AO2 T10311057KAIG2020-04-05T07:35:00Z45.15-89.12-3.1-5.730310.030.159449TRUETRUEVFRMETAR464.02020-04-05 07:48:17P )5     3KAJG 050735Z AUTO 01003KT 4SM BR OVC006 08/07 A3009 RMK AO2 T00800071KAJG2020-04-05T07:35:00Z38.62-87.738.07.11034.030.088583TRUETRUEBRIFRMETAR131.02020-04-05 07:48:17 AzL)5    3KFWC 050735Z AUTO 00000KT 10SM OVC009 07/07 A3008 RMK AO1 T00740068KFWC2020-04-05T07:35:00Z38.38-88.427.46.80010.030.079725TRUETRUEIFRMETAR133.02020-04-05 07:48:17A(5    3KC65 050735Z AUTO 00000KT 10SM OVC013 03/02 A3011 RMK A01KC652020-04-05T07:35:00Z41.37-86.33.02.00010.030.109253TRUETRUEMVFRMETAR244.02020-04-05 07:48:17W)5     3KCFD 050735Z AUTO 34006KT 3/4SM BR OVC003 11/11 A3005 RMK AO2 T01050105KCFD2020-04-05T07:35:00Z30.72-96.3310.510.534060.7530.050198TRUETRUEBRLIFRMETAR112.02020-04-05 07:48:17\)/5    3KCHK 050735Z AUTO 13004KT 10SM SCT010 SCT013 OVC030 05/04 A3006 RMK AO2 T00540036KCHK2020-04-05T07:35:00Z35.1-97.975.43.6130410.030.059055TRUETRUEMVFRMETAR351.02020-04-05 07:48:17 8bB({5    3KECS 050735Z AUTO 00000KT 10SM CLR 00/M06 A2980 RMK AO2KECS2020-04-05T07:35:00Z43.88-104.320.0-6.00010.029.799213TRUETRUEVFRMETAR1273.02020-04-05 07:48:17R) 5     3KEHY 050735Z AUTO 12005KT 10SM SCT110 00/M08 A2978 RMK AO2 PWINOKEHY2020-04-05T07:35:00Z41.73-106.470.0-8.0120510.029.778543TRUETRUETRUEVFRMETAR2225.02020-04-05 07:48:17P)5     3KELA 050735Z AUTO 01007KT 4SM BR OVC003 13/13 A2998 RMK AO2 T01320128KELA2020-04-05T07:35:00Z29.6-96.3213.212.81074.029.97933TRUETRUEBRLIFRMETAR56.02020-04-05 07:48:17B(5    3KFOA 050735Z AUTO 01003KT 10SM OVC009 07/06 A3009 RMK AO2KFOA2020-04-05T07:35:00Z38.67-88.457.06.010310.030.088583TRUETRUEIFRMETAR144.02020-04-05 07:48:17 6tD)5    3KCVC 050735Z AUTO 00000KT 10SM CLR 13/08 A2995 RMK AO2 PNOKCVC2020-04-05T07:35:00Z33.63-83.8513.08.00010.029.949802TRUETRUEVFRMETAR247.02020-04-05 07:48:17K)5    3KDCY 050735Z AUTO 34005KT 7SM OVC009 08/08 A3007 RMK AO2 T00810080KDCY2020-04-05T07:35:00Z38.7-87.138.18.034057.030.070866TRUETRUEIFRMETAR144.02020-04-05 07:48:17;(u5     3KDED 050735Z AUTO 12003KT 10SM CLR 20/ A2990 RMK AO2KDED2020-04-05T07:35:00Z29.07-81.2820.0120310.029.899607TRUETRUEVFRMETAR24.02020-04-05 07:48:17<(y5    3KDPL 050735Z AUTO 00000KT 10SM CLR 06/06 A3008 RMK AO2KDPL2020-04-05T07:35:00Z35.0-77.976.06.00010.030.079725TRUETRUEVFRMETAR42.02020-04-05 07:48:17D(}5    3KDUB 050735Z AUTO 00000KT 10SM CLR M03/M08 A2974 RMK AO2KDUB2020-04-05T07:35:00Z43.55-109.68-3.0-8.00010.029.740158TRUETRUEVFRMETAR2224.02020-04-05 07:48:17Y898@HPX`hpx (08@HPX`hpx (08@HPX`hpxߋ  !%)-15ߋ  !%)-159=AEIMQUY]aeimquy}  #'+ / 3 7 ; ?CGKOSW[_cgkosw{ !"#$%&$'((,)1*5+9,=-A.E/I0N1R2V3Z4^5b6f7j8n 0M{M) 5    3KCCO 050735Z AUTO 10003KT 10SM CLR 15/11 A2995 RMK AO2 T01520114KCCO2020-04-05T07:35:00Z33.32-84.7715.211.4100310.029.949802TRUETRUEVFRMETAR296.02020-04-05 07:48:17L) 5    3KCKF 050735Z AUTO 11004KT 10SM CLR 17/12 A2993 RMK AO2 T01720117KCKF2020-04-05T07:35:00Z31.98-83.7717.211.7110410.029.929134TRUETRUEVFRMETAR91.02020-04-05 07:48:17])!5      3KCQF 050735Z AUTO 36003KT 10SM -RA SCT095 OVC120 17/16 A2994 RMK AO2 P0001KCQF2020-04-05T07:35:00Z30.47-87.8817.016.0360310.029.940945TRUETRUE-RAVFR0.01METAR28.02020-04-05 07:48:17J) 5    3KCTJ 050735Z AUTO 00000KT 10SM CLR 12/09 A2999 RMK AO2 T01230090KCTJ2020-04-05T07:35:00Z33.63-85.1512.39.00010.029.991142TRUETRUEVFRMETAR354.02020-04-05 07:48:17 0a>#(y5    3KBHC 050735Z AUTO 00000KT 10SM CLR 16/11 A2994 RMK AO2KBHC2020-04-05T07:35:00Z31.72-82.416.011.00010.029.940945TRUETRUEVFRMETAR61.02020-04-05 07:48:17?"(}5    3KBWD 050735Z AUTO 00000KT 5SM OVC004 08/08 A3005 RMK AO1KBWD2020-04-05T07:35:00Z31.8-98.958.08.0005.030.050198TRUETRUELIFRMETAR423.02020-04-05 07:48:17-(y5    3K2G9 050735Z AUTO 00000KT 10SM CLR 02/01 A3001 RMK AO2K2G92020-04-05T07:35:00Z40.03-79.022.01.00010.030.008858TRUETRUEVFRMETAR693.02020-04-05 07:48:17S,)5     3K3F3 050735Z AUTO 00000KT 1/2SM FG OVC002 15/15 A3003 RMK AO2 T01500150K3F32020-04-05T07:35:00Z32.07-93.7715.015.0000.530.029528TRUETRUEFGLIFRMETAR96.02020-04-05 07:48:17 6f>3(y5    3KMGR 050735Z AUTO 00000KT 10SM CLR 17/13 A2992 RMK AO2KMGR2020-04-05T07:35:00Z31.08-83.817.013.00010.029.920275TRUETRUEVFRMETAR90.02020-04-05 07:48:17I2) 5    3KMHP 050735Z AUTO 00000KT 10SM CLR 14/10 A2995 RMK AO2 T01360095KMHP2020-04-05T07:35:00Z32.37-82.0813.69.50010.029.949802TRUETRUEVFRMETAR60.02020-04-05 07:48:17J1)5    3KMLE 050735Z AUTO 00000KT 10SM CLR 01/M02 A3011 RMK AO2 T00071016KMLE2020-04-05T07:35:00Z41.2-96.120.7-1.60010.030.109253TRUETRUEVFRMETAR320.02020-04-05 07:48:17D0(5    3KMQS 050735Z AUTO 28005KT 10SM OVC038 10/07 A3005 RMK AO2KMQS2020-04-05T07:35:00Z39.98-75.8710.07.0280510.030.050198TRUETRUEVFRMETAR201.02020-04-05 07:48:17 -SO7)5    3KLXN 050735Z AUTO 15005KT 10SM CLR M01/M04 A3001 RMK AO2 T10121043KLXN2020-04-05T07:35:00Z40.78-99.77-1.2-4.3150510.030.008858TRUETRUEVFRMETAR734.02020-04-05 07:48:17N6)5     3KLZZ 050735Z AUTO 03005KT 5SM BR OVC003 08/07 A3002 RMK AO2 T00770073KLZZ2020-04-05T07:35:00Z31.1-98.27.77.33055.030.02067TRUETRUEBRLIFRMETAR371.02020-04-05 07:48:17T5)!5    3KM30 050735Z AUTO 00000KT 10SM BKN010 OVC049 08/06 A3009 RMK AO2 T00770055KM302020-04-05T07:35:00Z37.18-88.757.75.50010.030.088583TRUETRUEMVFRMETAR117.02020-04-05 07:48:17M4) 5    3KMDQ 050735Z AUTO 34004KT 10SM CLR 15/11 A2997 RMK A02 T01460113KMDQ2020-04-05T07:35:00Z34.87-86.5514.611.3340410.029.970472TRUETRUEVFRMETAR230.02020-04-05 07:48:17 1`N;)5    3KLNN 050735Z AUTO 35004KT 10SM OVC050 06/02 A3005 RMK AO1 T00610022KLNN2020-04-05T07:35:00Z41.67-81.376.12.2350410.030.050198TRUETRUEVFRMETAR191.02020-04-05 07:48:17S:)!5    3KLNQ 050735Z AUTO 00000KT 10SM SCT060 BKN100 17/13 A2997 RMK AO2 T01680133KLNQ2020-04-05T07:35:00Z29.35-89.4316.813.30010.029.970472TRUETRUEVFRMETAR1.02020-04-05 07:48:17K9)5    3KLOM 050735Z AUTO 00000KT 10SM OVC050 09/07 A3004 RMK AO2 T00880074KLOM2020-04-05T07:35:00Z40.13-75.278.87.40010.030.041338TRUETRUEVFRMETAR92.02020-04-05 07:48:17I8) 5    3KLOT 050735Z AUTO 36005KT 10SM CLR 02/01 A3014 RMK AO2 T00170011KLOT2020-04-05T07:35:00Z41.6-88.11.71.1360510.030.138779TRUETRUEVFRMETAR205.02020-04-05 07:48:17 0[N?)5    3KJYR 050735Z AUTO 16009KT 10SM BKN016 OVC022 M00/M02 A3006 RMK AO2KJYR2020-04-05T07:35:00Z40.9-97.620.0-2.0160910.030.059055TRUETRUEMVFRMETAR509.02020-04-05 07:48:17S>)5    3KLAM 050735Z AUTO 28007KT 10SM BKN090 10/M08 A2997 RMK AO2 T01041079KLAM2020-04-05T07:35:00Z35.87-106.2710.4-7.9280710.029.970472TRUETRUEVFRMETAR2179.02020-04-05 07:48:17O=)5    3KLCG 050735Z AUTO 20005KT 10SM CLR M01/M04 A3007 RMK AO2 T10141042KLCG2020-04-05T07:35:00Z42.25-96.98-1.4-4.2200510.030.070866TRUETRUEVFRMETAR436.02020-04-05 07:48:17J<) 5    3KLGC 050735Z AUTO 00000KT 10SM CLR 13/10 A2994 RMK AO2 T01330103KLGC2020-04-05T07:35:00Z33.0-85.0713.310.30010.029.940945TRUETRUEVFRMETAR211.02020-04-05 07:48:17 1LwbC)55   3KJAQ 050735Z AUTO 14006G15KT 10SM SCT018 BKN025 OVC043 08/08 A2975 RMK AO1 T00820082KJAQ2020-04-05T07:35:00Z38.37-120.88.28.214061510.029.749016TRUETRUEMVFRMETAR512.02020-04-05 07:48:17OB)5     3KJAS 050735Z AUTO 00000KT 1/4SM FG OVC003 16/15 A3000 RMK AO2 T01550154KJAS2020-04-05T07:35:00Z30.88-94.0315.515.4000.2530.0TRUETRUEFGLIFRMETAR65.02020-04-05 07:48:17_A)'5      3KJKA 050735Z AUTO 31006KT 10SM -RA OVC120 18/16 A2995 RMK AO2 P0001 T01800158KJKA2020-04-05T07:35:00Z30.28-87.6718.015.8310610.029.949802TRUETRUE-RAVFR0.01METAR5.02020-04-05 07:48:17I@) 5    3KJOT 050735Z AUTO 00000KT 10SM CLR 03/02 A3014 RMK AO2 T00320017KJOT2020-04-05T07:35:00Z41.52-88.183.21.70010.030.138779TRUETRUEVFRMETAR177.02020-04-05 07:48:17 1dKG) 5    3KI74 050735Z AUTO 35005KT 10SM BKN055 OVC065 08/07 A3004 RMK AO2KI742020-04-05T07:35:00Z40.12-83.758.07.0350510.030.041338TRUETRUEVFRMETAR322.02020-04-05 07:48:17PF)5    3KIBM 050735Z AUTO 17013KT 10SM CLR 03/M03 A2983 RMK AO2 T00271035KIBM2020-04-05T07:35:00Z41.18-103.682.7-3.51701310.029.828741TRUETRUEVFRMETAR1501.02020-04-05 07:48:17GE) 5    3KIJX 050735Z AUTO 00000KT 7SM CLR 03/02 A3013 RMK AO2 T00280020KIJX2020-04-05T07:35:00Z39.77-90.252.82.0007.030.129921TRUETRUEVFRMETAR190.02020-04-05 07:48:17ID) 5    3KIKK 050735Z AUTO 00000KT 10SM CLR 01/00 A3014 RMK AO2 T00130002KIKK2020-04-05T07:35:00Z41.07-87.851.30.20010.030.138779TRUETRUEVFRMETAR192.02020-04-05 07:48:17 /b?K(y5    3KHOE 050735Z AUTO 00000KT 10SM CLR 16/14 A2993 RMK AO2KHOE2020-04-05T07:35:00Z31.05-82.7816.014.00010.029.929134TRUETRUEVFRMETAR57.02020-04-05 07:48:17RJ)!5    3KHTO 050735Z AUTO 00000KT 10SM SCT065 OVC070 04/03 A3005 RMK AO2 T00390028KHTO2020-04-05T07:35:00Z40.95-72.253.92.80010.030.050198TRUETRUEVFRMETAR17.02020-04-05 07:48:17GI)5    3KI35 050735Z AUTO 00000KT 10SM SCT100 10/07 A3000 RMK AO2 T00950068KI352020-04-05T07:35:00Z36.87-83.379.56.80010.030.0TRUETRUEVFRMETAR473.02020-04-05 07:48:17KH)5    3KI63 050735Z AUTO 00000KT 10SM OVC120 03/01 A3011 RMK AO2 T00270014KI632020-04-05T07:35:00Z39.98-90.82.71.40010.030.109253TRUETRUEVFRMETAR223.02020-04-05 07:48:17 1^NO)5    3KHDE 050735Z AUTO 14009KT 10SM CLR M02/M05 A3002 RMK AO2 T10201047KHDE2020-04-05T07:35:00Z40.45-99.32-2.0-4.7140910.030.02067TRUETRUEVFRMETAR705.02020-04-05 07:48:17QN)5     3KHHG 050735Z AUTO 01003KT 5SM BR OVC003 03/02 A3009 RMK AO2 T00290023KHHG2020-04-05T07:35:00Z40.85-85.452.92.31035.030.088583TRUETRUEBRLIFRMETAR246.02020-04-05 07:48:17MM)5    3KHJH 050735Z AUTO 00000KT 10SM CLR M03/M04 A3010 RMK AO2 T10301042KHJH2020-04-05T07:35:00Z40.15-97.58-3.0-4.20010.030.100393TRUETRUEVFRMETAR447.02020-04-05 07:48:17IL) 5    3KHMZ 050735Z AUTO 00000KT 10SM CLR 01/01 A3003 RMK AO2 T00110008KHMZ2020-04-05T07:35:00Z40.08-78.521.10.80010.030.029528TRUETRUEVFRMETAR354.02020-04-05 07:48:17 CoUS)!5    3KGPC 050735Z AUTO 03006KT 10SM SCT010 OVC018 05/04 A3008 RMK AO2 T00550038KGPC2020-04-05T07:35:00Z39.63-86.825.53.830610.030.079725TRUETRUEMVFRMETAR257.02020-04-05 07:48:17NR)5    3KGRN 050735Z AUTO 19005KT 10SM CLR 03/M04 A2987 RMK AO2 T00291045KGRN2020-04-05T07:35:00Z42.8-102.172.9-4.5190510.029.870079TRUETRUEVFRMETAR1086.02020-04-05 07:48:17TQ)5    3PAAD 050735Z AUTO 10011KT 10SM OVC070 M14/M15 A2946 RMK AO2 T11401153PAAD2020-04-05T07:35:00Z70.13-146.28-14.0-15.31001110.029.459646TRUETRUEVFRMETAR8.02020-04-05 07:48:17]P)#5   3KHCR 050735Z AUTO 19018G26KT 10SM SCT042 BKN055 OVC070 10/M05 A2972 RMK AO2KHCR2020-04-05T07:35:00Z40.48-111.4310.0-5.0190182610.029.719488TRUETRUEVFRMETAR1706.02020-04-05 07:48:17 HkKW)5    3KOSA 050735Z AUTO 00000KT 4SM OVC003 10/10 A3006 RMK AO1 T01030095KOSA2020-04-05T07:35:00Z33.1-94.9710.39.5004.030.059055TRUETRUELIFRMETAR111.02020-04-05 07:48:17EV)5    3KOXI 050735Z AUTO 35004KT 1/2SM OVC001 01/00 A3012 RMK AO1KOXI2020-04-05T07:35:00Z41.33-86.671.00.035040.530.121063TRUETRUELIFRMETAR209.02020-04-05 07:48:17WU)5     3KFZG 050735Z AUTO 13003KT 10SM CLR 18/15 A2995 RMK AO2 T01750145 PWINOKFZG2020-04-05T07:35:00Z31.68-83.2717.514.5130310.029.949802TRUETRUETRUEVFRMETAR111.02020-04-05 07:48:172T(u5   3KGHG 050735Z AUTO 00000KT OVC055 03/03 A3004 RMK AO2KGHG2020-04-05T07:35:00Z42.1-70.673.03.00030.041338TRUETRUEMETAR4.02020-04-05 07:48:17 /gL[)5    3KONM 050735Z AUTO 00000KT 10SM CLR 09/M08 A2991 RMK AO2 T00871083KONM2020-04-05T07:35:00Z34.02-106.98.7-8.30010.029.911417TRUETRUEVFRMETAR1410.02020-04-05 07:48:17YZ)-5    3KOPL 050735Z AUTO 03003KT 7SM BKN007 BKN014 OVC030 17/16 A2996 RMK AO2 T01700163KOPL2020-04-05T07:35:00Z30.55-92.117.016.33037.029.958662TRUETRUEIFRMETAR23.02020-04-05 07:48:17BY(y5    3KOPN 050735Z AUTO 12003KT 10SM CLR 15/10 A2996 RMK AO2KOPN2020-04-05T07:35:00Z32.95-84.2715.010.0120310.029.958662TRUETRUEVFRMETAR243.02020-04-05 07:48:17KX)5    3KORG 050735Z AUTO 00000KT 10SM OVC020 18/16 A2998 RMK AO2 T01760162KORG2020-04-05T07:35:00Z30.07-93.817.616.20010.029.97933TRUETRUEMVFRMETAR4.02020-04-05 07:48:17 ,VP_)5     3KOKM 050735Z AUTO 00000KT 4SM BR OVC004 06/06 A3009 RMK AO2 T00550055KOKM2020-04-05T07:35:00Z35.67-95.955.55.5004.030.088583TRUETRUEBRLIFRMETAR220.02020-04-05 07:48:17L^) 5    3KOKZ 050735Z AUTO 13003KT 10SM CLR 14/07 A2995 RMK AO2 T01420066KOKZ2020-04-05T07:35:00Z32.97-82.8314.26.6130310.029.949802TRUETRUEVFRMETAR134.02020-04-05 07:48:17P])5     3KOLY 050735Z AUTO 04004KT 5SM BR OVC007 08/07 A3008 RMK AO2 T00780072KOLY2020-04-05T07:35:00Z38.72-88.187.87.24045.030.079725TRUETRUEBRIFRMETAR147.02020-04-05 07:48:17N\)5    3KONL 050735Z AUTO 17010KT 10SM CLR 01/M04 A3001 RMK AO2 T00101045KONL2020-04-05T07:35:00Z42.47-98.671.0-4.51701010.030.008858TRUETRUEVFRMETAR619.02020-04-05 07:48:17 8dMc)5    3KMZZ 050735Z AUTO 02006KT 10SM OVC007 04/04 A3009 RMK AO2 T00370037KMZZ2020-04-05T07:35:00Z40.48-85.683.73.720610.030.088583TRUETRUEIFRMETAR262.02020-04-05 07:48:17Ob)5    3KOEO 050735Z AUTO 00000KT 10SM SCT110 M04/M04 A3019 RMK AO2 T10381044KOEO2020-04-05T07:35:00Z45.32-92.7-3.8-4.40010.030.188976TRUETRUEVFRMETAR275.02020-04-05 07:48:17Na)5    3KOGA 050735Z AUTO 14005KT 10SM CLR 02/M06 A2992 RMK AO2 T00201065KOGA2020-04-05T07:35:00Z41.12-101.772.0-6.5140510.029.920275TRUETRUEVFRMETAR999.02020-04-05 07:48:17B`(5    3KOGS 050735Z AUTO 20005KT 10SM OVC036 08/06 A2997 RMK AO2KOGS2020-04-05T07:35:00Z44.67-75.478.06.0200510.029.970472TRUETRUEVFRMETAR91.02020-04-05 07:48:17 :`Lg) 5    3KPBX 050735Z AUTO 13003KT 10SM CLR 14/04 A2999 RMK AO2 T01430035KPBX2020-04-05T07:35:00Z37.57-82.5714.33.5130310.029.991142TRUETRUEVFRMETAR449.02020-04-05 07:48:17Hf) 5    3KOYM 050735Z AUTO 00000KT 10SM BKN065 OVC085 06/03 A3003 RMK AO2KOYM2020-04-05T07:35:00Z41.42-78.56.03.00010.030.029528TRUETRUEVFRMETAR590.02020-04-05 07:48:17Te)!5    3KMWO 050735Z AUTO 34007KT 10SM SCT011 OVC065 09/07 A3006 RMK AO2 T00930073KMWO2020-04-05T07:35:00Z39.53-84.49.37.3340710.030.059055TRUETRUEVFRMETAR198.02020-04-05 07:48:17@d(y5    3KMYZ 050735Z AUTO 12005KT 10SM CLR 00/00 A3010 RMK AO2KMYZ2020-04-05T07:35:00Z39.85-96.630.00.0120510.030.100393TRUETRUEVFRMETAR319.02020-04-05 07:48:17 .XsMk)5    3KPTT 050735Z AUTO 15007KT 10SM OVC007 04/02 A3005 RMK AO2 T00360023KPTT2020-04-05T07:35:00Z37.7-98.753.62.3150710.030.050198TRUETRUEIFRMETAR595.02020-04-05 07:48:17_j)#5    3KPVW 050735Z AUTO 19010G15KT 10SM OVC006 07/06 A2999 RMK AO2 T00670055 TSNOKPVW2020-04-05T07:35:00Z34.17-101.726.75.5190101510.029.991142TRUETRUETRUEIFRMETAR1028.02020-04-05 07:48:17Pi)5    3KRNH 050735Z AUTO 00000KT 10SM SCT110 M03/M06 A3016 RMK AO2 T10311060KRNH2020-04-05T07:35:00Z45.15-92.53-3.1-6.00010.030.159449TRUETRUEVFRMETAR304.02020-04-05 07:48:17Lh)5    3KRPJ 050735Z AUTO 12003KT 7SM OVC120 03/02 A3014 RMK AO2 T00260021KRPJ2020-04-05T07:35:00Z41.88-89.082.62.112037.030.138779TRUETRUEVFRMETAR238.02020-04-05 07:48:17 /WAo(}5    3KPMU 050735Z AUTO 36004KT 9SM OVC120 14/12 A3001 RMK AO2KPMU2020-04-05T07:35:00Z34.37-89.914.012.036049.030.008858TRUETRUEVFRMETAR67.02020-04-05 07:48:17Kn) 5    3KPPA 050735Z AUTO 15009KT 10SM CLR 06/02 A2999 RMK AO2 T00560019KPPA2020-04-05T07:35:00Z35.62-101.05.61.9150910.029.991142TRUETRUEVFRMETAR989.02020-04-05 07:48:17Rm)5     3KPPO 050735Z AUTO 34003KT 1SM BR OVC001 01/01 A3012 RMK AO2 T00140013KPPO2020-04-05T07:35:00Z41.57-86.731.41.334031.030.121063TRUETRUEBRLIFRMETAR248.02020-04-05 07:48:17Kl)5    3KPRG 050735Z AUTO 00000KT 10SM OVC036 06/04 A3011 RMK AO2 T00610044KPRG2020-04-05T07:35:00Z39.7-87.676.14.40010.030.109253TRUETRUEVFRMETAR199.02020-04-05 07:48:17 *YKs)5    3KEMP 050735Z AUTO 15004KT 9SM OVC009 04/03 A3007 RMK AO2 T00440033KEMP2020-04-05T07:35:00Z38.33-96.24.43.315049.030.070866TRUETRUEIFRSPECI367.02020-04-05 07:48:17Hr) 5    3KEYF 050735Z AUTO 07004KT 10SM CLR 10/09 A3006 RMK AO2 T00990089KEYF2020-04-05T07:35:00Z34.6-78.589.98.970410.030.059055TRUETRUEVFRSPECI41.02020-04-05 07:48:17Kq) 5    3KPEQ 050735Z AUTO 06004KT 10SM CLR 09/06 A2996 RMK AO2 T00900060KPEQ2020-04-05T07:35:00Z31.38-103.529.06.060410.029.958662TRUETRUEVFRMETAR797.02020-04-05 07:48:17Pp)5    3KPLU 050735Z AUTO 00000KT 10SM SCT031 BKN046 OVC060 07/04 A2962 RMK AO2KPLU2020-04-05T07:35:00Z47.1-122.287.04.00010.029.619095TRUETRUEVFRMETAR164.02020-04-05 07:48:17 9aDw(5    3KTSP 050735Z AUTO 29008KT 10SM FEW028 05/02 A2985 RMK AO2KTSP2020-04-05T07:35:00Z35.13-118.435.02.0290810.029.84941TRUETRUEVFRMETAR1220.02020-04-05 07:48:17Av(5    3KTVI 050735Z AUTO 00000KT 10SM SCT120 17/13 A2993 RMK AO2KTVI2020-04-05T07:35:00Z30.9-83.8817.013.00010.029.929134TRUETRUEVFRMETAR80.02020-04-05 07:48:17Ru)5     3KTXW 050735Z AUTO 01006KT 4SM RA OVC003 19/19 A2992 RMK AO2 T01920185KTXW2020-04-05T07:35:00Z26.18-97.9719.218.51064.029.920275TRUETRUERALIFRMETAR21.02020-04-05 07:48:17At(y5    3KULS 050735Z AUTO 13014KT 10SM CLR 01/00 A2994 RMK AO2KULS2020-04-05T07:35:00Z37.6-101.371.00.01301410.029.940945TRUETRUEVFRMETAR936.02020-04-05 07:48:17 JuO{)5    3KTEX 050735Z AUTO 18007KT 150V240 10SM OVC070 06/M08 A2997 RMK AO2KTEX2020-04-05T07:35:00Z37.95-107.96.0-8.0180710.029.970472TRUETRUEVFRMETAR2769.02020-04-05 07:48:17Oz)5    3KTIF 050735Z AUTO 17010KT 10SM CLR 02/M06 A2996 RMK AO2 T00201056KTIF2020-04-05T07:35:00Z41.97-100.572.0-5.61701010.029.958662TRUETRUEVFRMETAR892.02020-04-05 07:48:17My)5    3KTMT 050735Z AUTO 00000KT 10SM CLR M02/M05 A2971 RMK AO2 T10211046KTMT2020-04-05T07:35:00Z39.47-117.2-2.1-4.60010.029.71063TRUETRUEVFRMETAR1748.02020-04-05 07:48:17]x)5    3KTRK 050735Z AUTO 21013G23KT 10SM -SN BKN030 OVC038 02/M01 A2966 RMK AO2KTRK2020-04-05T07:35:00Z39.32-120.122.0-1.0210132310.029.660433TRUETRUE-SNMVFRMETAR1798.02020-04-05 07:48:17 1Z}\)!5     3KSYF 050735Z AUTO 17011KT 10SM SCT120 03/M05 A2992 RMK AO2 T00281050 PWINOKSYF2020-04-05T07:35:00Z39.77-101.82.8-5.01701110.029.920275TRUETRUETRUEVFRMETAR1025.02020-04-05 07:48:17W~)5     3KT20 050735Z AUTO 01009KT 2 1/2SM BR OVC003 11/11 A2999 RMK AO2 T01110111KT202020-04-05T07:35:00Z29.52-97.4711.111.11092.529.991142TRUETRUEBRLIFRMETAR108.02020-04-05 07:48:17Q})5     3KT35 050735Z AUTO 01006KT 2SM BR OVC003 09/09 A3004 RMK AO2 T00910088KT352020-04-05T07:35:00Z30.88-96.979.18.81062.030.041338TRUETRUEBRLIFRMETAR123.02020-04-05 07:48:17I|) 5    3KTBR 050735Z AUTO 00000KT 10SM CLR 12/10 A2996 RMK AO2 T01200099KTBR2020-04-05T07:35:00Z32.48-81.7312.09.90010.029.958662TRUETRUEVFRMETAR57.02020-04-05 07:48:17 ,`J) 5    3KSJS 050735Z AUTO 00000KT 10SM CLR 14/04 A2999 RMK AO2 T01350039KSJS2020-04-05T07:35:00Z37.75-82.6313.53.90010.029.991142TRUETRUEVFRMETAR372.02020-04-05 07:48:17M)5    3KSNL 050735Z AUTO 03004KT 10SM OVC005 04/04 A3008 RMK AO2 T00400037KSNL2020-04-05T07:35:00Z35.35-96.954.03.730410.030.079725TRUETRUEIFRMETAR327.02020-04-05 07:48:17F(5    3KSOA 050735Z AUTO 16004KT 10SM OVC006 12/11 A3006 RMK AO2KSOA2020-04-05T07:35:00Z30.58-100.6512.011.0160410.030.059055TRUETRUEIFRMETAR652.02020-04-05 07:48:17N)5    3KSWW 050735Z AUTO 00000KT 10SM OVC010 08/08 A3005 RMK AO2 T00750075KSWW2020-04-05T07:35:00Z32.47-100.477.57.50010.030.050198TRUETRUEMVFRMETAR727.02020-04-05 07:48:17 6fP)5    3KSBS 050735Z AUTO 00000KT 10SM OVC090 02/M03 A2982 RMK AO1 T00151033KSBS2020-04-05T07:35:00Z40.52-106.871.5-3.30010.029.819881TRUETRUEVFRMETAR2096.02020-04-05 07:48:17E(5    3KSEE 050735Z AUTO 19005KT 10SM OVC034 14/08 A2992 RMK AO2KSEE2020-04-05T07:35:00Z32.82-116.9714.08.0190510.029.920275TRUETRUEVFRMETAR117.02020-04-05 07:48:17J) 5    3KSEF 050735Z AUTO 00000KT 10SM CLR 19/17 A2992 RMK AO2 T01900168KSEF2020-04-05T07:35:00Z27.45-81.3519.016.80010.029.920275TRUETRUEVFRMETAR19.02020-04-05 07:48:17D)5    3KSFY 050735Z AUTO 00000KT 10SM OVC110 03/M01 A3014 RMK AO2KSFY2020-04-05T07:35:00Z42.05-90.123.0-1.00010.030.138779TRUETRUEVFRMETAR188.02020-04-05 07:48:17 LwD (5    3KXLL 050735Z AUTO 22004KT 10SM OVC049 11/07 A3004 RMK AO2KXLL2020-04-05T07:35:00Z40.57-75.4811.07.0220410.030.041338TRUETRUEVFRMETAR122.02020-04-05 07:48:17O )5    3KY23 050735Z AUTO 00000KT 10SM SCT120 M05/M06 A3017 RMK AO2 T10501057KY232020-04-05T07:35:00Z45.3-91.63-5.0-5.70010.030.171259TRUETRUEVFRMETAR322.02020-04-05 07:48:17J ) 5    3KZPH 050735Z AUTO 00000KT 10SM CLR 17/14 A2993 RMK A02 T01710145KZPH2020-04-05T07:35:00Z28.23-82.1517.114.50010.029.929134TRUETRUEVFRMETAR26.02020-04-05 07:48:17^)5    3KVPS 050735Z AUTO 33005KT 10SM FEW004 19/15 A2993 RMK AO2 RAE35 SLP142 $KVPS2020-04-05T07:35:00Z30.47-86.5219.015.0330510.029.9291341014.2TRUETRUETRUEVFRMETAR26.02020-04-05 07:48:17 /jI) 5    3KW13 050735Z AUTO 00000KT 10SM CLR 07/05 A3006 RMK AO1 T00720047KW132020-04-05T07:35:00Z38.08-78.957.24.70010.030.059055TRUETRUEVFRMETAR443.02020-04-05 07:48:17?(5    3KW22 050735Z AUTO 00000KT 10SM OVC070 09/04 A3002 RMK AO2KW222020-04-05T07:35:00Z39.0-80.279.04.00010.030.02067TRUETRUEVFRMETAR499.02020-04-05 07:48:17? (y5    3KWDR 050735Z AUTO 00000KT 10SM CLR 14/06 A2999 RMK AO2KWDR2020-04-05T07:35:00Z33.98-83.6714.06.00010.029.991142TRUETRUEVFRMETAR287.02020-04-05 07:48:17K )5    3KXBP 050735Z AUTO 00000KT 7SM OVC011 08/08 A3009 RMK AO2 T00760076KXBP2020-04-05T07:35:00Z33.18-97.837.67.6007.030.088583TRUETRUEMVFRMETAR260.02020-04-05 07:48:17 0lJ) 5    3KX26 050735Z AUTO 23003KT 10SM CLR 19/16 A2990 RMK AO2 T01890161KX262020-04-05T07:35:00Z27.82-80.518.916.1230310.029.899607TRUETRUEVFRMETAR6.02020-04-05 07:48:17M)5    3KUXL 050735Z AUTO 00000KT 10SM BKN019 16/15 A2997 RMK AO2 T01600147KUXL2020-04-05T07:35:00Z30.13-93.3816.014.70010.029.970472TRUETRUEMVFRMETAR4.02020-04-05 07:48:17>(y5    3KVDI 050735Z AUTO 07003KT 10SM CLR 16/08 A2995 RMK AO2KVDI2020-04-05T07:35:00Z32.2-82.3716.08.070310.029.949802TRUETRUEVFRMETAR84.02020-04-05 07:48:17J)5    3KVYS 050735Z AUTO 00000KT 7SM SCT120 04/02 A3013 RMK AO2 T00370023KVYS2020-04-05T07:35:00Z41.35-89.153.72.3007.030.129921TRUETRUEVFRMETAR199.02020-04-05 07:48:17 2eM)5    3KTAZ 050735Z AUTO 00000KT 10SM OVC012 06/04 A3011 RMK AO2 T00550040KTAZ2020-04-05T07:35:00Z39.53-89.335.54.00010.030.109253TRUETRUEMVFRMETAR190.02020-04-05 07:48:17K)5    3KTIP 050735Z AUTO 01004KT 7SM OVC100 02/02 A3011 RMK AO2 T00200019KTIP2020-04-05T07:35:00Z40.28-88.152.01.91047.030.109253TRUETRUEVFRMETAR225.02020-04-05 07:48:17G) 5    3KTOC 050735Z AUTO 00000KT 10SM CLR 12/08 A2998 RMK AO2 T01150080KTOC2020-04-05T07:35:00Z34.6-83.311.58.00010.029.97933TRUETRUEVFRMETAR304.02020-04-05 07:48:17H) 5    3KW99 050735Z AUTO 00000KT 10SM CLR 03/03 A3006 RMK AO2 T00270026KW992020-04-05T07:35:00Z39.0-79.152.72.60010.030.059055TRUETRUEVFRMETAR293.02020-04-05 07:48:17 )YJ) 5    3KPNT 050735Z AUTO 05003KT 10SM CLR 03/02 A3013 RMK AO2 T00260021KPNT2020-04-05T07:35:00Z40.92-88.622.62.150310.030.129921TRUETRUEVFRMETAR201.02020-04-05 07:48:17L)5    3KREG 050735Z AUTO 00000KT 10SM OVC100 18/17 A2993 RMK AO2 T01750170KREG2020-04-05T07:35:00Z30.17-90.9317.517.00010.029.929134TRUETRUEVFRMETAR4.02020-04-05 07:48:17J) 5     3KSME 050735Z AUTO 00000KT 10SM SCT120 09/06 A3002 RMK AO2 TSNOKSME2020-04-05T07:35:00Z37.05-84.629.06.00010.030.02067TRUETRUETRUEVFRMETAR283.02020-04-05 07:48:17Q)5     3KT82 050735Z AUTO 00000KT 4SM BR OVC003 11/11 A3002 RMK AO2 T01100108KT822020-04-05T07:35:00Z30.25-98.9211.010.8004.030.02067TRUETRUEBRLIFRMETAR517.02020-04-05 07:48:17 .RD)5    3KMRJ 050735Z AUTO 00000KT 10SM SCT110 01/M04 A3014 RMK AO2KMRJ2020-04-05T07:35:00Z42.88-90.231.0-4.00010.030.138779TRUETRUEVFRMETAR359.02020-04-05 07:48:17L) 5     3KO54 050735Z AUTO 00000KT 3SM OVC003 03/03 A2961 RMK AO1 P0003KO542020-04-05T07:35:00Z40.75-122.923.03.0003.029.610237TRUETRUELIFR0.03METAR717.02020-04-05 07:48:17V)5     3KOUN 050735Z AUTO 00000KT 10SM OVC008 05/03 A3006 RMK AO2 PWINO T00470034KOUN2020-04-05T07:35:00Z35.25-97.474.73.40010.030.059055TRUETRUETRUEIFRMETAR357.02020-04-05 07:48:17L)5    3KPNA 050735Z AUTO 04003KT 10SM SCT070 OVC075 01/M05 A2978 RMK AO2KPNA2020-04-05T07:35:00Z42.8-109.81.0-5.040310.029.778543TRUETRUEVFRMETAR2160.02020-04-05 07:48:17 ;}J$) 5    3KJCA 050735Z AUTO 00000KT 10SM CLR 12/08 A2997 RMK AO2 T01220084KJCA2020-04-05T07:35:00Z34.18-83.5712.28.40010.029.970472TRUETRUEVFRMETAR290.02020-04-05 07:48:17E#) 5    3KJZP 050735Z AUTO 00000KT 10SM CLR 15/04 A3000 RMK AO2 T01460040KJZP2020-04-05T07:35:00Z34.45-84.4714.64.00010.030.0TRUETRUEVFRMETAR468.02020-04-05 07:48:17J") 5    3KLCQ 050735Z AUTO 00000KT 10SM SCT085 SCT110 16/12 A2992 RMK AO2KLCQ2020-04-05T07:35:00Z30.18-82.5816.012.00010.029.920275TRUETRUEVFRMETAR61.02020-04-05 07:48:178!(y5     3KMEZ 050735Z AUTO 00000KT 1 3/4SM OVC003 A3005 RMK AO2KMEZ2020-04-05T07:35:00Z34.55-94.2001.7530.050198TRUETRUELIFRMETAR329.02020-04-05 07:48:17? (5    3KMMU 050735Z AUTO 00000KT 10SM OVC050 07/07 A3002 RMK AO2KMMU2020-04-05T07:35:00Z40.78-74.427.07.00010.030.02067TRUETRUEVFRMETAR57.02020-04-05 07:48:17 'UR()5      3KETN 050735Z AUTO 10005KT 1 3/4SM BR OVC003 06/ A3005 RMK AO2 T0064////KETN2020-04-05T07:35:00Z32.42-98.826.410051.7530.050198TRUETRUEBRLIFRMETAR446.02020-04-05 07:48:17O')5    3KFGX 050735Z AUTO 36003KT 10SM OVC080 13/10 A3002 RMK AO2 T01320100KFGX2020-04-05T07:35:00Z38.55-83.7513.210.0360310.030.02067TRUETRUEVFRMETAR278.02020-04-05 07:48:17L&)5    3KGBG 050735Z AUTO 00000KT 10SM SCT110 04/01 A3014 RMK AO2 T00360010KGBG2020-04-05T07:35:00Z40.93-90.433.61.00010.030.138779TRUETRUEVFRMETAR233.02020-04-05 07:48:17S%)5     3KIDP 050735Z AUTO 00000KT 2 1/2SM BR OVC008 05/04 A3010 RMK AO2 T00460042KIDP2020-04-05T07:35:00Z37.17-95.784.64.2002.530.100393TRUETRUEBRIFRMETAR251.02020-04-05 07:48:17 6eE,({5    3KDTA 050735Z AUTO 18012KT 10SM CLR 10/M05 A2973 RMK AO1KDTA2020-04-05T07:35:00Z39.38-112.510.0-5.01801210.029.731298TRUETRUEVFRMETAR1402.02020-04-05 07:48:17D+(}5    3KEBS 050735Z AUTO 10005KT 10SM CLR M02/M03 A3012 RMK AO2KEBS2020-04-05T07:35:00Z42.42-93.87-2.0-3.0100510.030.121063TRUETRUEVFRMETAR342.02020-04-05 07:48:17K*) 5    3KEHA 050735Z AUTO 15009KT 10SM CLR 02/00 A2994 RMK AO2 T00200001KEHA2020-04-05T07:35:00Z37.0-101.92.00.1150910.029.940945TRUETRUEVFRMETAR1099.02020-04-05 07:48:17D)({5    3KEMM 050735Z AUTO 08003KT 10SM CLR 03/M11 A2975 RMK AO2KEMM2020-04-05T07:35:00Z41.82-110.553.0-11.080310.029.749016TRUETRUEVFRMETAR2220.02020-04-05 07:48:17 :s@1(5    3KBIJ 050735Z AUTO 00000KT 10SM SCT110 16/13 A2991 RMK AO2KBIJ2020-04-05T07:35:00Z31.4-84.916.013.00010.029.911417TRUETRUEVFRMETAR65.02020-04-05 07:48:17@0(5    3KBYL 050735Z AUTO 00000KT 10SM OVC120 12/07 A2999 RMK AO1KBYL2020-04-05T07:35:00Z36.8-84.212.07.00010.029.991142TRUETRUEVFRMETAR359.02020-04-05 07:48:17G/)5     3KCDH 050735Z AUTO 03003KT 6SM BR OVC007 14/12 A3003 RMK AO2KCDH2020-04-05T07:35:00Z33.62-92.7714.012.03036.030.029528TRUETRUEBRIFRMETAR35.02020-04-05 07:48:17A.(5    3KDBN 050735Z AUTO 00000KT 10SM OVC090 13/12 A2998 RMK AO2KDBN2020-04-05T07:35:00Z32.57-82.9813.012.00010.029.97933TRUETRUEVFRMETAR94.02020-04-05 07:48:17@-(y5    3KDNN 050735Z AUTO 00000KT 10SM CLR 13/10 A2997 RMK AO2KDNN2020-04-05T07:35:00Z34.72-84.8713.010.00010.029.970472TRUETRUEVFRMETAR216.02020-04-05 07:48:17 &WK5)5     3K8A0 050735Z AUTO 03004KT 10SM CLR 16/07 A2996 RMK AO2 PWINOK8A02020-04-05T07:35:00Z34.23-86.2516.07.030410.029.958662TRUETRUETRUEVFRMETAR315.02020-04-05 07:48:17D4({5    3KA39 050735Z AUTO 11007KT 10SM CLR 15/M01 A2986 RMK AO2KA392020-04-05T07:35:00Z32.98-111.9215.0-1.0110710.029.861221TRUETRUEVFRMETAR396.02020-04-05 07:48:17I3) 5    3KAAA 050735Z AUTO 00000KT 10SM CLR 03/01 A3014 RMK AO2 T00270010KAAA2020-04-05T07:35:00Z40.17-89.332.71.00010.030.138779TRUETRUEVFRMETAR182.02020-04-05 07:48:17T2)5    3KAFO 050735Z AUTO 00000KT 10SM SCT050 BKN070 OVC090 00/M05 A2972 RMK AO2KAFO2020-04-05T07:35:00Z42.72-110.950.0-5.00010.029.719488TRUETRUEVFRMETAR1897.02020-04-05 07:48:17 7eL9) 5    3KDVK 050735Z AUTO 34006KT 10SM BKN100 BKN120 12/10 A3002 RMK AO2KDVK2020-04-05T07:35:00Z37.58-84.7712.010.0340610.030.02067TRUETRUEVFRMETAR312.02020-04-05 07:48:17L8)5    3K0R4 050735Z AUTO 00000KT 10SM OVC110 17/16 A2997 RMK AO2 T01660157K0R42020-04-05T07:35:00Z31.57-91.516.615.70010.029.970472TRUETRUEVFRMETAR17.02020-04-05 07:48:17L7)5    3K41U 050735Z AUTO 00000KT 10SM CLR 06/M03 A2977 RMK AO1 T00551034K41U2020-04-05T07:35:00Z39.33-111.65.5-3.40010.029.769686TRUETRUEVFRMETAR1676.02020-04-05 07:48:17C6)5   3K6A1 050735Z AUTO 00000KT 10SM 16/10 A2995 RMK AO2 T01570095K6A12020-04-05T07:35:00Z32.57-84.2515.79.50010.029.949802TRUETRUEMETAR203.02020-04-05 07:48:17 8fP=)5     3KRPH 050735Z AUTO 00000KT 4SM BR OVC004 07/07 A3005 RMK AO2 T00720072KRPH2020-04-05T07:35:00Z33.12-98.557.27.2004.030.050198TRUETRUEBRLIFRMETAR342.02020-04-05 07:48:17U<)!5    3KELK 050735Z AUTO 13005KT 10SM SCT008 OVC028 05/03 A3004 RMK AO2 T00520031KELK2020-04-05T07:35:00Z35.43-99.45.23.1130510.030.041338TRUETRUEMVFRMETAR610.02020-04-05 07:48:17L;)5    3KEZM 050735Z AUTO 00000KT 10SM BKN090 16/12 A2998 RMK AO2 T01610120KEZM2020-04-05T07:35:00Z32.22-83.1316.112.00010.029.97933TRUETRUEVFRMETAR93.02020-04-05 07:48:17B:(5    3KGGP 050735Z AUTO 03004KT 10SM OVC006 03/02 A3011 RMK AO2KGGP2020-04-05T07:35:00Z40.72-86.373.02.030410.030.109253TRUETRUEIFRMETAR225.02020-04-05 07:48:17 -^=A(y5    3KW63 050735Z AUTO 00000KT 10SM CLR 07/07 A3008 RMK AO1KW632020-04-05T07:35:00Z36.6-78.557.07.00010.030.079725TRUETRUEVFRSPECI129.02020-04-05 07:48:17J@) 5    3KVUJ 050735Z AUTO 00000KT 10SM CLR 11/04 A3007 RMK AO2 T01110044KVUJ2020-04-05T07:35:00Z35.42-80.1511.14.40010.030.070866TRUETRUEVFRMETAR186.02020-04-05 07:48:17I?) 5    3KLWB 050735Z AUTO 02003KT 10SM CLR 05/00 A3005 RMK AO2 T00450003KLWB2020-04-05T07:35:00Z37.87-80.44.50.320310.030.050198TRUETRUEVFRMETAR702.02020-04-05 07:48:17M>)5    3KMFV 050735Z AUTO 24003KT 10SM BKN055 05/04 A3008 RMK AO2 T00460042KMFV2020-04-05T07:35:00Z37.63-75.774.64.2240310.030.079725TRUETRUEVFRMETAR15.02020-04-05 07:48:17 -_NE)5    3KPRO 050735Z AUTO 00000KT 10SM OVC100 01/M02 A3012 RMK AO2 T00111020KPRO2020-04-05T07:35:00Z41.83-94.171.1-2.00010.030.121063TRUETRUEVFRSPECI308.02020-04-05 07:48:17KD)5     3KS39 050735Z AUTO 00000KT 6SM BR BKN005 OVC008 02/02 A2956 RMK AO2KS392020-04-05T07:35:00Z44.28-120.92.02.0006.029.56004TRUETRUEBRIFRMETAR991.02020-04-05 07:48:17HC) 5    3KEMV 050735Z AUTO 00000KT 10SM CLR 04/04 A3011 RMK AO2 T00390039KEMV2020-04-05T07:35:00Z36.68-77.483.93.90010.030.109253TRUETRUEVFRSPECI39.02020-04-05 07:48:17MB)5    3KMCX 050735Z AUTO 03008KT 10SM OVC006 02/01 A3011 RMK AO2 T00170010KMCX2020-04-05T07:35:00Z40.72-86.771.71.030810.030.109253TRUETRUEIFRMETAR206.02020-04-05 07:48:17 .\aI)75     3KOXD 050735Z AUTO 01007KT 10SM -RA SCT007 BKN060 OVC075 09/09 A3004 RMK AO2 T00860086KOXD2020-04-05T07:35:00Z39.5-84.788.68.610710.030.041338TRUETRUE-RAVFRMETAR317.02020-04-05 07:48:17NH) 5       3KNOG 050735Z AUTO 34010KT 4SM HZ OVC002 A2999 RMK AO2 TSNO PNO $KNOG2020-04-05T07:35:00Z27.9-98.05340104.029.991142TRUETRUETRUETRUEHZLIFRMETAR78.02020-04-05 07:48:17LG)5    3K1A5 050735Z AUTO 00000KT 10SM SCT090 09/07 A3005 RMK AO2 T00880072K1A52020-04-05T07:35:00Z35.22-83.428.87.20010.030.050198TRUETRUEVFRMETAR616.02020-04-05 07:48:17LF)5    3KIFA 050735Z AUTO 03003KT 10SM CLR 00/M04 A3015 RMK AO2 T10021039KIFA2020-04-05T07:35:00Z42.47-93.27-0.2-3.930310.030.15059TRUETRUEVFRSPECI347.02020-04-05 07:48:17 7mGN)5    3K2V5 050735Z AUTO 16009KT 10SM BKN120 05/M05 A2992 RMK AO2K2V52020-04-05T07:35:00Z40.1-102.255.0-5.0160910.029.920275TRUETRUEVFRMETAR1118.02020-04-05 07:48:17?M(y5    3KBBP 050735Z AUTO 09005KT 10SM CLR 11/09 A3003 RMK AO2KBBP2020-04-05T07:35:00Z34.62-79.7311.09.090510.030.029528TRUETRUEVFRSPECI45.02020-04-05 07:48:17>L(y5    3KJYO 050735Z AUTO 00000KT 10SM CLR 05/04 A3007 RMK AO2KJYO2020-04-05T07:35:00Z39.07-77.575.04.00010.030.070866TRUETRUEVFRSPECI119.02020-04-05 07:48:17DK(}5    3KS32 050735Z AUTO 15011KT 10SM CLR M02/M02 A2999 RMK AO2KS322020-04-05T07:35:00Z47.42-98.1-2.0-2.01501110.029.991142TRUETRUEVFRSPECI684.02020-04-05 07:48:17CJ(5    3KVNW 050735Z AUTO 36004KT 10SM OVC009 06/04 A3008 RMK AO2KVNW2020-04-05T07:35:00Z40.87-84.626.04.0360410.030.079725TRUETRUEIFRSPECI239.02020-04-05 07:48:17 =lCR(5    3KM25 050735Z AUTO 35005KT 10SM OVC006 08/07 A3008 RMK AO2KM252020-04-05T07:35:00Z36.77-88.588.07.0350510.030.079725TRUETRUEIFRSPECI160.02020-04-05 07:48:17KQ) 5    3KO22 050735Z AUTO VRB03KT 10SM BKN032 OVC055 10/05 A2978 RMK A01KO222020-04-05T07:35:00Z38.03-120.4210.05.00310.029.778543TRUETRUEVFRMETAR646.02020-04-05 07:48:17KP)5    3KRCX 050735Z AUTO 00000KT 10SM CLR M02/M04 A3017 RMK AO2 T10201041KRCX2020-04-05T07:35:00Z45.5-91.0-2.0-4.10010.030.171259TRUETRUEVFRSPECI377.02020-04-05 07:48:17=O(w5    3KVNC 050735Z AUTO 06003KT 9SM CLR 20/19 A2991 RMK AO2KVNC2020-04-05T07:35:00Z27.07-82.4320.019.06039.029.911417TRUETRUEVFRSPECI6.02020-04-05 07:48:17 3^LV)5    3KSUW 050735Z AUTO 00000KT 10SM CLR M05/M07 A3018 RMK AO2 T10491067KSUW2020-04-05T07:35:00Z46.68-92.1-4.9-6.70010.030.180119TRUETRUEVFRSPECI206.02020-04-05 07:48:17@U(}5    3KANQ 050735Z AUTO 00000KT 8SM OVC015 04/03 A3009 RMK AO2KANQ2020-04-05T07:35:00Z41.63-85.084.03.0008.030.088583TRUETRUEMVFRSPECI303.02020-04-05 07:48:17OT)5    3KC62 050735Z AUTO 33004KT 10SM OVC017 03/02 A3009 RMK AO2 T00370027KC622020-04-05T07:35:00Z41.47-85.253.72.7330410.030.088583TRUETRUEMVFRSPECI306.02020-04-05 07:48:17GS)5    3KGAF 050735Z AUTO 12006KT 10SM OVC065 M02/M05 A3005 RMK AO2KGAF2020-04-05T07:35:00Z48.4-97.37-2.0-5.0120610.030.050198TRUETRUEVFRSPECI252.02020-04-05 07:48:17 9uPZ)5    3KD50 050735Z AUTO 28007KT 10SM BKN027 BKN035 M05/M05 A2995 RMK AO2KD502020-04-05T07:35:00Z48.93-103.3-5.0-5.0280710.029.949802TRUETRUEMVFRSPECI595.02020-04-05 07:48:17KY) 5    3KHBI 050735Z AUTO 14004KT 10SM CLR 11/06 A3007 RMK AO2 T01070060KHBI2020-04-05T07:35:00Z35.65-79.910.76.0140410.030.070866TRUETRUEVFRSPECI205.02020-04-05 07:48:17>X(y5    3KOMH 050735Z AUTO 00000KT 10SM CLR 04/03 A3007 RMK AO2KOMH2020-04-05T07:35:00Z38.25-78.054.03.00010.030.070866TRUETRUEVFRSPECI142.02020-04-05 07:48:17AW(5    3KSDC 050735Z AUTO 00000KT 10SM SCT120 06/05 A3001 RMK AO2KSDC2020-04-05T07:35:00Z43.23-77.126.05.00010.030.008858TRUETRUEVFRSPECI129.02020-04-05 07:48:17 ,`>^(y5    3KVDF 050735Z AUTO 00000KT 10SM CLR 17/16 A2993 RMK AO2KVDF2020-04-05T07:35:00Z28.02-82.3317.016.00010.029.929134TRUETRUEVFRSPECI7.02020-04-05 07:48:17G]) 5    3KXSA 050735Z AUTO 00000KT 10SM CLR 04/04 A3009 RMK AO2 T00420042KXSA2020-04-05T07:35:00Z37.87-76.94.24.20010.030.088583TRUETRUEVFRSPECI42.02020-04-05 07:48:17F\)5    3K2C8 050735Z AUTO 00000KT 10SM OVC047 M03/M06 A3003 RMK AO2K2C82020-04-05T07:35:00Z48.78-97.63-3.0-6.00010.030.029528TRUETRUEVFRSPECI272.02020-04-05 07:48:17N[)5    3K96D 050735Z AUTO 13005KT 10SM BKN047 OVC060 M03/M06 A3003 RMK AO2K96D2020-04-05T07:35:00Z48.93-97.9-3.0-6.0130510.030.029528TRUETRUEVFRSPECI290.02020-04-05 07:48:17 5eBb(5    3KLRY 050735Z AUTO 00000KT 10SM OVC021 06/02 A3013 RMK AO2KLRY2020-04-05T07:35:00Z38.62-94.356.02.00010.030.129921TRUETRUEMVFRSPECI279.02020-04-05 07:48:17Pa)5    3KRPD 050735Z AUTO 00000KT 10SM SCT120 M04/M05 A3017 RMK AO2 T10411047KRPD2020-04-05T07:35:00Z45.42-91.77-4.1-4.70010.030.171259TRUETRUEVFRSPECI338.02020-04-05 07:48:17J`) 5    3KSIF 050735Z AUTO 01003KT 10SM CLR 07/05 A3007 RMK AO2 T00700045KSIF2020-04-05T07:35:00Z36.43-79.857.04.510310.030.070866TRUETRUEVFRSPECI211.02020-04-05 07:48:17E_({5    3KSPF 050735Z AUTO 11010KT 10SM CLR 03/M08 A2983 RMK AO2KSPF2020-04-05T07:35:00Z44.47-103.773.0-8.01101010.029.828741TRUETRUEVFRSPECI1188.02020-04-05 07:48:17 9sLf) 5    3KHSP 050735Z AUTO 22004KT 10SM CLR 06/01 A3006 RMK AO2 T00610012KHSP2020-04-05T07:35:00Z37.95-79.826.11.2220410.030.059055TRUETRUEVFRSPECI1156.02020-04-05 07:48:17Pe)5    3K2J9 050735Z AUTO 00000KT 10SM FEW065 BKN075 OVC090 17/15 A2992 RMK AO2K2J92020-04-05T07:35:00Z30.6-84.5517.015.00010.029.920275TRUETRUEVFRSPECI69.02020-04-05 07:48:17@d(y5    3KFDW 050735Z AUTO 14006KT 10SM CLR 13/07 A2998 RMK AO1KFDW2020-04-05T07:35:00Z34.32-81.1213.07.0140610.029.97933TRUETRUEVFRSPECI176.02020-04-05 07:48:17Ac(5    3KINF 050735Z AUTO 00000KT 10SM BKN120 17/16 A2992 RMK AO2KINF2020-04-05T07:35:00Z28.8-82.3217.016.00010.029.920275TRUETRUEVFRSPECI15.02020-04-05 07:48:17 6[Nj)5    3KEFT 050735Z AUTO 04006KT 10SM OVC110 03/M04 A3013 RMK AO2 T00251045KEFT2020-04-05T07:35:00Z42.62-89.62.5-4.540610.030.129921TRUETRUEVFRSPECI331.02020-04-05 07:48:17@i(y5    3KEOE 050735Z AUTO 00000KT 10SM CLR 12/10 A3001 RMK AO2KEOE2020-04-05T07:35:00Z34.32-81.6312.010.00010.030.008858TRUETRUEVFRSPECI174.02020-04-05 07:48:17Uh)5     3KEZS 050735Z AUTO 07004KT M1/4SM FG OVC002 01/01 A3017 RMK AO2 T00130010KEZS2020-04-05T07:35:00Z44.78-88.571.31.07040.2530.171259TRUETRUEFGLIFRSPECI248.02020-04-05 07:48:17Dg(5    3KGLY 050735Z AUTO 14003KT 10SM OVC015 05/03 A3010 RMK AO2KGLY2020-04-05T07:35:00Z38.35-93.685.03.0140310.030.100393TRUETRUEMVFRSPECI251.02020-04-05 07:48:17 -jMn)5    3KANK 050735Z AUTO 00000KT 10SM CLR 04/M04 A2997 RMK AO1 T00361044KANK2020-04-05T07:35:00Z38.53-106.053.6-4.40010.029.970472TRUETRUEVFRMETAR2293.02020-04-05 07:48:17(y5    3KMKS 050735Z AUTO 00000KT 10SM CLR 10/10 A2998 RMK AO2KMKS2020-04-05T07:35:00Z33.18-80.0310.010.00010.029.97933TRUETRUEVFRMETAR23.02020-04-05 07:48:17N)5    3KMNE 050735Z AUTO 34005KT 10SM OVC002 16/16 A3002 RMK AO2 T01620159KMNE2020-04-05T07:35:00Z32.65-93.316.215.9340510.030.02067TRUETRUELIFRMETAR85.02020-04-05 07:48:17V)5     3KMNZ 050735Z AUTO 30003KT 2 1/2SM BR OVC003 08/08 A3005 RMK AO2 T00780078KMNZ2020-04-05T07:35:00Z31.67-98.157.87.830032.530.050198TRUETRUEBRLIFRMETAR396.02020-04-05 07:48:17 *RV")5     3KLHM 050735Z AUTO 14008KT 5SM BKN040 OVC055 10/10 A2973 RMK AO1 P0008KLHM2020-04-05T07:35:00Z38.92-121.3510.010.014085.029.731298TRUETRUEMVFR0.08METAR37.02020-04-05 07:48:17K!)5    3KLNC 050735Z AUTO 00000KT 7SM OVC011 09/07 A3007 RMK AO2 T00850070KLNC2020-04-05T07:35:00Z32.58-96.728.57.0007.030.070866TRUETRUEMVFRMETAR153.02020-04-05 07:48:17R )5     3KLXY 050735Z AUTO 33006KT 2SM BR OVC002 10/09 A3005 RMK AO2 T00950092KLXY2020-04-05T07:35:00Z31.63-96.529.59.233062.030.050198TRUETRUEBRLIFRMETAR166.02020-04-05 07:48:17P)5     3KLYO 050735Z AUTO 00000KT 2 1/2SM BR CLR 02/01 A3005 RMK AO2 T00180012KLYO2020-04-05T07:35:00Z38.35-98.231.81.2002.530.050198TRUETRUEBRIFRMETAR515.02020-04-05 07:48:17 4dQ&)5    3KJWY 050735Z AUTO 00000KT 7SM BKN008 OVC012 09/09 A3008 RMK AO2 T00850085KJWY2020-04-05T07:35:00Z32.45-96.928.58.5007.030.079725TRUETRUEIFRMETAR217.02020-04-05 07:48:17F%) 5    3KJXI 050735Z AUTO 33006KT 3SM BR 10/09 A3004 RMK AO2 T00950092KJXI2020-04-05T07:35:00Z32.7-94.959.59.233063.030.041338TRUETRUEBRMETAR127.02020-04-05 07:48:17J$) 5    3KJYL 050735Z AUTO 13003KT 10SM CLR 13/12 A2998 RMK AO2 T01340115KJYL2020-04-05T07:35:00Z32.65-81.613.411.5130310.029.97933TRUETRUEVFRMETAR57.02020-04-05 07:48:17F#(5    3KL18 050735Z AUTO 22003KT 10SM OVC037 12/10 A2992 RMK AO2KL182020-04-05T07:35:00Z33.35-117.2512.010.0220310.029.920275TRUETRUEVFRMETAR216.02020-04-05 07:48:17 7`I*) 5    3KIGQ 050735Z AUTO 00000KT 10SM CLR 02/01 A3014 RMK AO2 T00200012KIGQ2020-04-05T07:35:00Z41.53-87.532.01.20010.030.138779TRUETRUEVFRMETAR188.02020-04-05 07:48:17K))5     3KIIY 050735Z AUTO 18004KT 10SM CLR 15/06 A2997 RMK AO2 TSNOKIIY2020-04-05T07:35:00Z33.78-82.8215.06.0180410.029.970472TRUETRUETRUEVFRMETAR197.02020-04-05 07:48:17Q()5     3KINJ 050735Z AUTO 33004KT 4SM BR OVC003 09/09 A3005 RMK AO2 T00850085KINJ2020-04-05T07:35:00Z32.08-97.18.58.533044.030.050198TRUETRUEBRLIFRMETAR209.02020-04-05 07:48:17C'(5    3KIZA 050735Z AUTO 00000KT 10SM OVC015 11/08 A2990 RMK AO2KIZA2020-04-05T07:35:00Z34.6-120.0711.08.00010.029.899607TRUETRUEMVFRMETAR205.02020-04-05 07:48:17 %M~Q.)5     3KF17 050735Z AUTO 00000KT 1SM BR OVC002 14/13 A3001 RMK AO2 T01350129KF172020-04-05T07:35:00Z31.83-94.1513.512.9001.030.008858TRUETRUEBRLIFRMETAR97.02020-04-05 07:48:17I-)5     3KF44 050735Z AUTO 34004KT 5SM BR OVC004 10/09 A3003 RMK AO2KF442020-04-05T07:35:00Z32.17-95.8310.09.034045.030.029528TRUETRUEBRLIFRMETAR135.02020-04-05 07:48:17R,)5     3KF46 050735Z AUTO 00000KT 1/2SM FG OVC002 08/08 A3007 RMK AO2 T00760076KF462020-04-05T07:35:00Z32.93-96.437.67.6000.530.070866TRUETRUEFGLIFRMETAR176.02020-04-05 07:48:17U+)5    3KF70 050735Z AUTO 22006KT 10SM BKN012 BKN018 OVC029 11/09 A2992 RMK AO1KF702020-04-05T07:35:00Z33.57-117.1311.09.0220610.029.920275TRUETRUEMVFRMETAR412.02020-04-05 07:48:17 +SR2)5     3KERV 050735Z AUTO 29003KT 3SM BR OVC003 11/10 A3002 RMK AO2 T01060095KERV2020-04-05T07:35:00Z29.98-99.0810.69.529033.030.02067TRUETRUEBRLIFRMETAR510.02020-04-05 07:48:17K1) 5    3KEZZ 050735Z AUTO 05006KT 10SM CLR 01/00 A3011 RMK AO2 T00081003KEZZ2020-04-05T07:35:00Z39.72-94.280.8-0.350610.030.109253TRUETRUEVFRMETAR317.02020-04-05 07:48:17R0)5     3KF00 050735Z AUTO 35005KT 3SM BR OVC003 07/06 A3007 RMK AO2 T00650063KF002020-04-05T07:35:00Z33.62-96.186.56.335053.030.070866TRUETRUEBRLIFRMETAR188.02020-04-05 07:48:17O/)5    3KF05 050735Z AUTO 10006KT 10SM OVC027 07/06 A3007 RMK AO1 T00730062KF052020-04-05T07:35:00Z34.23-99.287.36.2100610.030.070866TRUETRUEMVFRMETAR386.02020-04-05 07:48:17 0^N6) 5    3KDUX 050735Z AUTO 13009KT 10SM CLR 03/00 A2996 RMK AO2 T00281001KDUX2020-04-05T07:35:00Z35.85-102.022.8-0.1130910.029.958662TRUETRUEVFRMETAR1129.02020-04-05 07:48:17C5) 5    3KDZJ 050735Z AUTO 00000KT 10SM CLR 09/07 A3000 RMK AO2 T00940068KDZJ2020-04-05T07:35:00Z34.85-84.09.46.80010.030.0TRUETRUEVFRMETAR582.02020-04-05 07:48:17L4)5    3KEDN 050735Z AUTO 00000KT 10SM SCT120 18/15 A2992 RMK AO2 T01830146KEDN2020-04-05T07:35:00Z31.3-85.918.314.60010.029.920275TRUETRUEVFRMETAR110.02020-04-05 07:48:17J3)5    3KENL 050735Z AUTO 00000KT 7SM OVC015 07/06 A3010 RMK AO2 T00730064KENL2020-04-05T07:35:00Z38.52-89.17.36.4007.030.100393TRUETRUEMVFRMETAR163.02020-04-05 07:48:17 ,[K:)5    3KDKB 050735Z AUTO 00000KT 10SM OVC110 02/01 A3014 RMK AO2 T00220012KDKB2020-04-05T07:35:00Z41.93-88.72.21.20010.030.138779TRUETRUEVFRMETAR279.02020-04-05 07:48:17Q9)5     3KDRI 050735Z AUTO 00000KT 5SM BR BKN004 16/15 A2999 RMK AO2 T01600152KDRI2020-04-05T07:35:00Z30.83-93.3316.015.2005.029.991142TRUETRUEBRLIFRMETAR63.02020-04-05 07:48:17K8) 5     3KDUA 050735Z AUTO 34004KT 1 1/2SM BR OVC003 07/06 A3008 RMK AO2KDUA2020-04-05T07:35:00Z33.95-96.47.06.034041.530.079725TRUETRUEBRLIFRMETAR213.02020-04-05 07:48:17N7)5    3KDUC 050735Z AUTO 11005KT 10SM OVC009 06/05 A3009 RMK AO2 T00620048KDUC2020-04-05T07:35:00Z34.47-97.976.24.8110510.030.088583TRUETRUEIFRMETAR339.02020-04-05 07:48:17 2`I>) 5    3KCTY 050735Z AUTO 00000KT 10SM CLR 17/14 A2992 RMK AO2 T01730139KCTY2020-04-05T07:35:00Z29.63-83.117.313.90010.029.920275TRUETRUEVFRMETAR13.02020-04-05 07:48:17O=)5    3KCWC 050735Z AUTO 11003KT 10SM OVC011 08/07 A3009 RMK AO2 T00810065KCWC2020-04-05T07:35:00Z33.85-98.488.16.5110310.030.088583TRUETRUEMVFRMETAR305.02020-04-05 07:48:17L<)5    3KCWV 050735Z AUTO 00000KT 10SM BKN085 13/11 A2995 RMK AO2 T01330110KCWV2020-04-05T07:35:00Z32.2-81.8713.311.00010.029.949802TRUETRUEVFRMETAR33.02020-04-05 07:48:17H;) 5    3KCXE 050735Z AUTO 00000KT 10SM CLR 06/05 A3009 RMK AO1 T00580050KCXE2020-04-05T07:35:00Z36.78-78.55.85.00010.030.088583TRUETRUEVFRMETAR153.02020-04-05 07:48:17 -YNB)5    3KBXA 050735Z AUTO 02003KT 10SM OVC110 18/17 A2995 RMK AO2 T01810165KBXA2020-04-05T07:35:00Z30.82-89.8718.116.520310.029.949802TRUETRUEVFRMETAR36.02020-04-05 07:48:17RA)5     3KBYY 050735Z AUTO 01009KT 3SM BR OVC002 16/16 A2994 RMK AO2 T01610161KBYY2020-04-05T07:35:00Z28.97-95.8716.116.11093.029.940945TRUETRUEBRLIFRMETAR14.02020-04-05 07:48:17N@)5    3KCGF 050735Z AUTO 33004KT 10SM OVC050 06/04 A3006 RMK AO2 T00640037KCGF2020-04-05T07:35:00Z41.57-81.476.43.7330410.030.059055TRUETRUEVFRMETAR268.02020-04-05 07:48:17M?)5    3KCMY 050735Z AUTO 00000KT 10SM CLR M06/M07 A3018 RMK AO2 T10601066KCMY2020-04-05T07:35:00Z43.97-90.73-6.0-6.60010.030.180119TRUETRUEVFRMETAR256.02020-04-05 07:48:17 9fEF)5    3KSZT 050735Z AUTO 04009KT 10SM OVC075 01/M04 A2965 RMK AO2KSZT2020-04-05T07:35:00Z48.3-116.571.0-4.040910.029.648623TRUETRUEVFRMETAR648.02020-04-05 07:48:17SE)5    3KTFP 050735Z AUTO 35012KT 10SM OVC005 14/14 A2995 RMK AO2 T01400136 PNOKTFP2020-04-05T07:35:00Z27.92-97.2214.013.63501210.029.949802TRUETRUEIFRMETAR6.02020-04-05 07:48:17MD)5    3KTKV 050735Z AUTO 00000KT 10SM CLR M07/M08 A3016 RMK AO2 T10701076KTKV2020-04-05T07:35:00Z45.47-89.82-7.0-7.60010.030.159449TRUETRUEVFRMETAR453.02020-04-05 07:48:17AC)5   3KTNB 050735Z AUTO 00000KT 10SM 07/04 A3006 RMK AO2 T00720037KTNB2020-04-05T07:35:00Z36.2-81.657.23.70010.030.059055TRUETRUEMETAR911.02020-04-05 07:48:17 -dBJ(}5    3KAEL 050735Z AUTO 00000KT 10SM CLR M02/M03 A3014 RMK AO2KAEL2020-04-05T07:35:00Z43.68-93.37-2.0-3.00010.030.138779TRUETRUEVFRMETAR383.02020-04-05 07:48:17BI(}5    3KAIT 050735Z AUTO 00000KT 10SM CLR M06/M07 A3012 RMK AO2KAIT2020-04-05T07:35:00Z46.53-93.67-6.0-7.00010.030.121063TRUETRUEVFRMETAR367.02020-04-05 07:48:17CH(}5    3KXNX 050735Z AUTO 32004KT 8SM OVC100 14/10 A3004 RMK A01KXNX2020-04-05T07:35:00Z36.38-86.4214.010.032048.030.041338TRUETRUEVFRSPECI178.02020-04-05 07:48:17MG) 5    3KSXU 050735Z AUTO 15009KT 10SM CLR 07/03 A2994 RMK AO2 T00660030KSXU2020-04-05T07:35:00Z34.93-104.656.63.0150910.029.940945TRUETRUEVFRMETAR1460.02020-04-05 07:48:17 &O~MN)5    3KGLW 050735Z AUTO 00000KT 10SM OVC100 11/09 A3003 RMK AO2 T01130088KGLW2020-04-05T07:35:00Z37.03-85.9511.38.80010.030.029528TRUETRUEVFRSPECI218.02020-04-05 07:48:17KM)5   3KBBF 050735Z AUTO 10010G18KT 10SM FEW014 22/19 A2987 RMK A01KBBF2020-04-05T07:35:00Z27.83-96.0222.019.0100101810.029.870079TRUETRUEVFRMETAR36.02020-04-05 07:48:17QL)5     3KBBG 050735Z AUTO 00000KT 1/4SM OVC002 06/06 A3008 RMK AO2 PWINO PNOKBBG2020-04-05T07:35:00Z36.53-93.26.06.0000.2530.079725TRUETRUETRUELIFRSPECI397.02020-04-05 07:48:17TK)5   3KAEG 050735Z AUTO 26010G15KT 10SM CLR 09/M08 A2993 RMK AO2 T00861085KAEG2020-04-05T07:35:00Z35.13-106.88.6-8.5260101510.029.929134TRUETRUEVFRMETAR1779.02020-04-05 07:48:17 ;l@R(y5    3KFYM 050735Z AUTO 01006KT 10SM CLR 15/09 A2996 RMK A01KFYM2020-04-05T07:35:00Z35.07-86.5715.09.010610.029.958662TRUETRUEVFRSPECI300.02020-04-05 07:48:17HQ) 5    3KGCY 050735Z AUTO 00000KT 10SM BKN100 OVC120 15/06 A2998 RMK A01KGCY2020-04-05T07:35:00Z36.2-82.8215.06.00010.029.97933TRUETRUEVFRSPECI490.02020-04-05 07:48:17IP)5     3KGHB 050735Z AUTO 08025KT 6SM HZ OVC013 21/18 A2990 RMK A01KGHB2020-04-05T07:35:00Z27.83-91.9821.018.080256.029.899607TRUETRUEHZMVFRSPECI30.02020-04-05 07:48:17?O(y5    3KGKT 050735Z AUTO 00000KT 10SM CLR 11/08 A2997 RMK A01KGKT2020-04-05T07:35:00Z35.85-83.5311.08.00010.029.970472TRUETRUEVFRSPECI309.02020-04-05 07:48:17 8hJV) 5    3KFIN 050735Z AUTO 08003KT 10SM CLR 20/19 A2991 RMK AO2 T02010185KFIN2020-04-05T07:35:00Z29.47-81.220.118.580310.029.911417TRUETRUEVFRSPECI10.02020-04-05 07:48:17VU)5     3KFOT 050735Z AUTO 14010KT 5SM FEW030 OVC039 09/07 A2957 RMK AO1 P0003KFOT2020-04-05T07:35:00Z40.55-124.139.07.0140105.029.568897TRUETRUEMVFR0.03METAR120.02020-04-05 07:48:17JT)5   3KFWZ 050735Z AUTO 25013G20KT 10SM CLR 01/M07 A2969 RMK AO2KFWZ2020-04-05T07:35:00Z42.52-108.781.0-7.0250132010.029.68996TRUETRUEVFRMETAR2588.02020-04-05 07:48:17BS({5    3KFXY 050735Z AUTO 10003KT 10SM CLR 00/M01 A3013 RMK AO2KFXY2020-04-05T07:35:00Z43.23-93.620.0-1.0100310.030.129921TRUETRUEVFRMETAR375.02020-04-05 07:48:17 .pTZ)5     3KGYB 050735Z AUTO 35004KT 3/4SM BR OVC002 08/08 A3002 RMK AO2 T00820081KGYB2020-04-05T07:35:00Z30.17-96.988.28.135040.7530.02067TRUETRUEBRLIFRMETAR148.02020-04-05 07:48:17LY) 5     3KUES 050735Z AUTO 00000KT 1/2SM FZFG OVC002 00/00 A3016 RMK AO2KUES2020-04-05T07:35:00Z43.05-88.250.00.0000.530.159449TRUETRUEFZFGLIFRMETAR278.02020-04-05 07:48:178X(q5   3KFCH 050735Z AUTO 00000KT 10SM 12/08 A2980 RMK A01KFCH2020-04-05T07:35:00Z36.72-119.8212.08.00010.029.799213TRUETRUEMETAR85.02020-04-05 07:48:17LW)5    3KFFX 050735Z AUTO 00000KT 10SM CLR M01/M02 A3014 RMK AO2 T10151019KFFX2020-04-05T07:35:00Z43.43-86.0-1.5-1.90010.030.138779TRUETRUEVFRMETAR236.02020-04-05 07:48:17 3cH^) 5    3KCJR 050735Z AUTO 00000KT 10SM CLR 04/03 A3008 RMK AO2 T00410033KCJR2020-04-05T07:35:00Z38.53-77.874.13.30010.030.079725TRUETRUEVFRSPECI97.02020-04-05 07:48:17>](}5    3KGMJ 050735Z AUTO 00000KT 7SM OVC005 05/05 A3009 RMK AO2KGMJ2020-04-05T07:35:00Z36.6-94.735.05.0007.030.088583TRUETRUEIFRSPECI254.02020-04-05 07:48:17J\) 5    3KGOO 050735Z AUTO VRB04G11KT 2SM BR OVC001 05/05 A2971 RMK A01KGOO2020-04-05T07:35:00Z39.22-121.05.05.004112.029.71063TRUETRUEBRLIFRMETAR962.02020-04-05 07:48:17G[)5     3KGUL 050735Z AUTO 06028KT 6SM HZ OVC013 21/19 A2985 RMK A01KGUL2020-04-05T07:35:00Z27.3-93.5321.019.060286.029.84941TRUETRUEHZMVFRMETAR30.02020-04-05 07:48:17 8eKb)5     3KIKT 050735Z AUTO 3SM HZ FEW004 SCT024 BKN033 16/13 A2994 RMK A01KIKT2020-04-05T07:35:00Z28.52-88.2816.013.03.029.940945TRUETRUEHZMVFRMETAR25.02020-04-05 07:48:17Ja) 5    3KIMM 050735Z AUTO 00000KT 10SM BKN028 OVC034 22/19 A2991 RMK AO2KIMM2020-04-05T07:35:00Z26.43-81.422.019.00010.029.911417TRUETRUEMVFRSPECI12.02020-04-05 07:48:17M`)5    3KISQ 050735Z AUTO 00000KT 10SM CLR M06/M06 A3018 RMK AO2 T10621065KISQ2020-04-05T07:35:00Z45.97-86.17-6.2-6.50010.030.180119TRUETRUEVFRMETAR209.02020-04-05 07:48:17B_(5    3KJAU 050735Z AUTO 00000KT 10SM OVC120 11/07 A3001 RMK A01KJAU2020-04-05T07:35:00Z36.33-84.1711.07.00010.030.008858TRUETRUEVFRSPECI360.02020-04-05 07:48:17 $\Gf)5     3KATW 050735Z AUTO 10003KT 5SM BR OVC002 00/00 A3015 RMK AO2KATW2020-04-05T07:35:00Z44.27-88.520.00.010035.030.15059TRUETRUEBRLIFRMETAR280.02020-04-05 07:48:17Be(5    3KHSD 050735Z AUTO 04003KT 10SM OVC011 05/03 A3008 RMK A01KHSD2020-04-05T07:35:00Z35.6-97.725.03.040310.030.079725TRUETRUEMVFRSPECI364.02020-04-05 07:48:17Bd(y5    3KIFP 050735Z AUTO 22006KT 10SM CLR 18/04 A2970 RMK AO2KIFP2020-04-05T07:35:00Z35.15-114.5718.04.0220610.029.698818TRUETRUEVFRMETAR212.02020-04-05 07:48:17Vc)5     3KIKG 050735Z AUTO 33006KT 2 1/2SM BR OVC003 14/13 A2998 RMK AO2 T01380130KIKG2020-04-05T07:35:00Z27.55-98.0313.813.033062.529.97933TRUETRUEBRLIFRMETAR40.02020-04-05 07:48:17  Wu?j(y5    3KRBW 050735Z AUTO 00000KT 10SM CLR 12/11 A2999 RMK AO2KRBW2020-04-05T07:35:00Z32.92-80.6312.011.00010.029.991142TRUETRUEVFRSPECI31.02020-04-05 07:48:17\i)%5    3KRCV 050735Z AUTO 29007KT 10SM SCT065 SCT085 M01/M10 A2993 RMK AO2 T10071102KRCV2020-04-05T07:35:00Z37.72-106.35-0.7-10.2290710.029.929134TRUETRUEVFRMETAR2424.02020-04-05 07:48:17Ch(5    3KRGA 050735Z AUTO 05003KT 10SM OVC110 13/09 A3001 RMK AO2KRGA2020-04-05T07:35:00Z37.63-84.3313.09.050310.030.008858TRUETRUEVFRSPECI305.02020-04-05 07:48:17Zg)%5    3KATP 050735Z AUTO 07013G21KT 2SM BR FEW007 BKN034 OVC055 21/20 A2990 RMK A01KATP2020-04-05T07:35:00Z27.2-90.0321.020.07013212.029.899607TRUETRUEBRIFRSPECI62.02020-04-05 07:48:17 #F{Cn(5    3KPVE 050735Z AUTO 02006KT 10SM BKN090 13/10 A3001 RMK A01KPVE2020-04-05T07:35:00Z35.65-88.213.010.020610.030.008858TRUETRUEVFRSPECI149.02020-04-05 07:48:17Em)5    3KPWC 050735Z AUTO 00000KT 10SM SCT120 M06/M08 A3015 RMK AO2KPWC2020-04-05T07:35:00Z46.72-94.37-6.0-8.00010.030.15059TRUETRUEVFRMETAR395.02020-04-05 07:48:17Wl)5    3KPZZ 050735Z AUTO 07023G33KT 2 1/2SM BR BKN007 OVC012 18/17 A2991 RMK A01KPZZ2020-04-05T07:35:00Z28.43-91.0218.017.07023332.529.911417TRUETRUEBRIFRSPECI5.02020-04-05 07:48:17Wk)!5    3KRAL 050735Z AUTO 35004KT 10SM BKN031 BKN050 13/08 A2990 RMK AO2 T01330083KRAL2020-04-05T07:35:00Z33.95-117.4513.38.3350410.029.899607TRUETRUEVFRSPECI252.02020-04-05 07:48:17 +fRr)5    3KMCD 050735Z AUTO 32005KT 10SM OVC014 M02/M04 A3015 RMK AO2 T10171043KMCD2020-04-05T07:35:00Z45.85-84.63-1.7-4.3320510.030.15059TRUETRUEMVFRMETAR226.02020-04-05 07:48:17Cq(5    3KPTD 050735Z AUTO 21005KT 10SM OVC038 08/06 A2999 RMK AO2KPTD2020-04-05T07:35:00Z44.68-74.958.06.0210510.029.991142TRUETRUEVFRMETAR144.02020-04-05 07:48:17?p(y5    3KPUJ 050735Z AUTO 00000KT 10SM CLR 15/05 A2995 RMK AO2KPUJ2020-04-05T07:35:00Z33.92-84.9315.05.00010.029.949802TRUETRUEVFRSPECI393.02020-04-05 07:48:17Oo)5    3KPVB 050735Z AUTO 02004KT 10SM OVC110 01/M02 A3014 RMK AO1 T00141020KPVB2020-04-05T07:35:00Z42.68-90.431.4-2.020410.030.138779TRUETRUEVFRMETAR313.02020-04-05 07:48:17 SxCv(5    3KM54 050735Z AUTO 00000KT 10SM BKN100 13/10 A2999 RMK A01KM542020-04-05T07:35:00Z36.18-86.3213.010.00010.029.991142TRUETRUEVFRSPECI180.02020-04-05 07:48:17Uu)5     3KM91 050735Z AUTO 35004KT 6SM BR FEW050 BKN100 OVC120 10/09 A3002 RMK A01KM912020-04-05T07:35:00Z36.53-86.9210.09.035046.030.02067TRUETRUEBRVFRSPECI215.02020-04-05 07:48:17Et(5    3KMBT 050735Z AUTO 35004KT 10SM FEW050 14/10 A2999 RMK A01KMBT2020-04-05T07:35:00Z35.88-86.3814.010.0350410.029.991142TRUETRUEVFRSPECI188.02020-04-05 07:48:17\s))5     3KMCC 050735Z AUTO 14007KT 2 1/2SM -RA SCT005 BKN028 OVC050 11/10 A2974 RMK AO2KMCC2020-04-05T07:35:00Z38.67-121.411.010.014072.529.740158TRUETRUE-RAIFRMETAR23.02020-04-05 07:48:17 7y?{(y5    3KLUG 050735Z AUTO 00000KT 10SM CLR 11/10 A2999 RMK A01KLUG2020-04-05T07:35:00Z35.52-86.811.010.00010.029.991142TRUETRUEVFRSPECI219.02020-04-05 07:48:17Kz)5    3KLWA 050735Z AUTO 00000KT 7SM CLR M01/M01 A3014 RMK AO2 T10121012KLWA2020-04-05T07:35:00Z42.35-86.25-1.2-1.2007.030.138779TRUETRUEVFRMETAR203.02020-04-05 07:48:17@y(}5    3KM02 050735Z AUTO 02006KT 8SM SCT100 11/09 A3002 RMK A01KM022020-04-05T07:35:00Z36.13-87.4311.09.02068.030.02067TRUETRUEVFRSPECI272.02020-04-05 07:48:178x(q5   3KM04 050735Z AUTO 01006KT 10SM 11/09 A3005 RMK A01KM042020-04-05T07:35:00Z35.58-89.5811.09.010610.030.050198TRUETRUESPECI85.02020-04-05 07:48:17Cw(5    3KM08 050735Z AUTO VRB03KT 10SM BKN090 13/10 A3001 RMK A01KM082020-04-05T07:35:00Z35.22-89.0513.010.00310.030.008858TRUETRUEVFRSPECI152.02020-04-05 07:48:17 ;jU)5     3KLHB 050735Z AUTO 35006KT 2 1/2SM BR OVC003 10/10 A3005 RMK AO2 T00980095KLHB2020-04-05T07:35:00Z30.87-96.629.89.535062.530.050198TRUETRUEBRLIFRMETAR87.02020-04-05 07:48:17:~(s5   3KLJF 050735Z AUTO 12003KT 10SM 01/M03 A3014 RMK AO2KLJF2020-04-05T07:35:00Z45.1-94.521.0-3.0120310.030.138779TRUETRUEMETAR348.02020-04-05 07:48:17K}) 5    3KLKU 050735Z AUTO 20003KT 10SM CLR 04/03 A3011 RMK AO2 T00370034KLKU2020-04-05T07:35:00Z38.02-77.973.73.4200310.030.109253TRUETRUEVFRSPECI150.02020-04-05 07:48:17?|({5    3KLRJ 050735Z AUTO 00000KT 10SM CLR 00/M03 A3008 RMK AO2KLRJ2020-04-05T07:35:00Z42.77-96.20.0-3.00010.030.079725TRUETRUEVFRMETAR365.02020-04-05 07:48:17 8h@(y5    3KRKW 050735Z AUTO 34004KT 10SM CLR 14/04 A2998 RMK A01KRKW2020-04-05T07:35:00Z35.92-84.6814.04.0340410.029.97933TRUETRUEVFRSPECI508.02020-04-05 07:48:17J) 5     3KJSV 050735Z AUTO 00000KT 1 3/4SM BR OVC002 08/07 A3008 RMK AO2KJSV2020-04-05T07:35:00Z35.43-94.88.07.0001.7530.079725TRUETRUEBRLIFRSPECI161.02020-04-05 07:48:17J)5   3KJTC 050735Z AUTO 15005G10KT 10SM CLR 07/M10 A2998 RMK AO2KJTC2020-04-05T07:35:00Z34.13-109.327.0-10.015051010.029.97933TRUETRUEVFRMETAR2150.02020-04-05 07:48:17B({5    3KKNB 050735Z AUTO 00000KT 10SM CLR 05/M01 A2987 RMK A01KKNB2020-04-05T07:35:00Z37.02-112.535.0-1.00010.029.870079TRUETRUEVFRMETAR1484.02020-04-05 07:48:17 'XZ)-5    3KHSB 050735Z AUTO 02003KT 7SM SCT009 BKN014 OVC030 08/08 A3009 RMK AO2 T00800075KHSB2020-04-05T07:35:00Z37.82-88.558.07.52037.030.088583TRUETRUEMVFRMETAR121.02020-04-05 07:48:17?(y5    3KRNC 050735Z AUTO 00000KT 10SM CLR 12/10 A2999 RMK A01KRNC2020-04-05T07:35:00Z35.7-85.8512.010.00010.029.991142TRUETRUEVFRSPECI315.02020-04-05 07:48:17I)5    3KRTS 050735Z AUTO 23012KT 10SM OVC042 05/M02 A2965 RMK AO2KRTS2020-04-05T07:35:00Z39.67-119.885.0-2.02301210.029.648623TRUETRUEVFRMETAR1540.02020-04-05 07:48:17S)5     3KRYV 050735Z AUTO 00000KT 5SM BR SCT120 M01/M01 A3015 RMK AO2 T10061006KRYV2020-04-05T07:35:00Z43.17-88.72-0.6-0.6005.030.15059TRUETRUEBRMVFRMETAR254.02020-04-05 07:48:17Y88@HPX`hpx (08@HPX`hpx (08@HPX`hpx:v;z<~=>? @ABCDE":v;z<~=>? @ABCDE"F&G*H.I2J6K:L>MBNFOJPNQRRVSZT^UbVfWjXnYrZv[{\]^` abcde!f%g)h-i1j5k9l=mAnFoKpOqSrXs\t`udvhwlxpytzx{||}~  !%)-16:?CGKOTX\` -bA (y5    3KGZS 050735Z AUTO 33003KT 10SM CLR 13/11 A2998 RMK A01KGZS2020-04-05T07:35:00Z35.15-87.0513.011.0330310.029.97933TRUETRUEVFRSPECI209.02020-04-05 07:48:17L )5    3KHCD 050735Z AUTO 00000KT 10SM CLR M01/M03 A3015 RMK AO2 T10081032KHCD2020-04-05T07:35:00Z44.87-94.38-0.8-3.20010.030.15059TRUETRUEVFRMETAR323.02020-04-05 07:48:17E )5     3KHFJ 050735Z AUTO 00000KT 3SM BR OVC003 05/05 A3006 RMK AO2KHFJ2020-04-05T07:35:00Z36.9-94.025.05.0003.030.059055TRUETRUEBRLIFRSPECI401.02020-04-05 07:48:17M) 5    3KHQG 050735Z AUTO 14010KT 10SM CLR 01/00 A2995 RMK AO2 T00110000KHQG2020-04-05T07:35:00Z37.17-101.371.10.01401010.029.949802TRUETRUEVFRSPECI956.02020-04-05 07:48:17 8dO)5    3KPCD 050735Z AUTO 35004KT 10SM OVC015 06/05 A3011 RMK AO2 T00610047KPCD2020-04-05T07:35:00Z37.87-89.876.14.7350410.030.109253TRUETRUEMVFRSPECI113.02020-04-05 07:48:177(o5    3KPCW 050735Z AUTO 10SM OVC007 08/07 A3005 RMK AO2KPCW2020-04-05T07:35:00Z41.52-82.878.07.010.030.050198TRUETRUEIFRMETAR178.02020-04-05 07:48:17N )5    3KPEZ 050735Z AUTO 00000KT 10SM OVC010 12/11 A3002 RMK AO2 T01200107KPEZ2020-04-05T07:35:00Z28.95-98.5212.010.70010.030.02067TRUETRUEMVFRMETAR132.02020-04-05 07:48:17B (}5     3KPHT 050735Z AUTO 01007KT 6SM BR CLR 09/08 A3004 RMK A01KPHT2020-04-05T07:35:00Z36.33-88.389.08.01076.030.041338TRUETRUEBRVFRSPECI177.02020-04-05 07:48:17 .bB(5    3KOWI 050735Z AUTO 00000KT 10SM OVC018 05/04 A3009 RMK AO2KOWI2020-04-05T07:35:00Z38.53-95.255.04.00010.030.088583TRUETRUEMVFRSPECI292.02020-04-05 07:48:17Z)%5     3KOWP 050735Z AUTO 00000KT 1 3/4SM OVC002 06/06 A3009 RMK AO2 T00610055 PWINOKOWP2020-04-05T07:35:00Z36.18-96.156.15.5001.7530.088583TRUETRUETRUELIFRSPECI272.02020-04-05 07:48:17F(5    3KOZA 050735Z AUTO 19005KT 10SM OVC004 11/10 A3004 RMK AO2KOZA2020-04-05T07:35:00Z30.73-101.211.010.0190510.030.041338TRUETRUELIFRMETAR726.02020-04-05 07:48:17L)5    3KOZW 050735Z AUTO 34003KT 7SM OVC007 03/03 A3009 RMK AO2 T00340032KOZW2020-04-05T07:35:00Z42.62-83.973.43.234037.030.088583TRUETRUEIFRMETAR293.02020-04-05 07:48:17 8{K) 5    3KMZG 050735Z AUTO VRB03G10KT 6SM HZ OVC070 22/19 A2988 RMK A01KMZG2020-04-05T07:35:00Z27.73-96.1822.019.003106.029.878937TRUETRUEHZVFRMETAR29.02020-04-05 07:48:17M)5    3KOEL 050735Z AUTO 17008KT 10SM CLR 00/M03 A2998 RMK AO1 T00001030KOEL2020-04-05T07:35:00Z39.12-100.820.0-3.0170810.029.97933TRUETRUEVFRSPECI929.02020-04-05 07:48:17=(y5    3KOKV 050735Z AUTO 00000KT 10SM CLR 05/03 A3002 RMK AO2KOKV2020-04-05T07:35:00Z39.13-78.155.03.00010.030.02067TRUETRUEVFRSPECI222.02020-04-05 07:48:177)5    3KONX 050735Z AUTO 00000KT 10SM CLR 06/06 RMK AO2 T00590059KONX2020-04-05T07:35:00Z36.4-76.025.95.90010.0TRUETRUEVFRSPECI5.02020-04-05 07:48:17B({5    3KOVL 050735Z AUTO 13005KT 10SM CLR 00/M02 A3012 RMK AO2KOVL2020-04-05T07:35:00Z44.78-95.030.0-2.0130510.030.121063TRUETRUEVFRMETAR328.02020-04-05 07:48:17 8e@(y5    3KMRC 050735Z AUTO 00000KT 10SM CLR 14/12 A2999 RMK A01KMRC2020-04-05T07:35:00Z35.55-87.1814.012.00010.029.991142TRUETRUEVFRSPECI208.02020-04-05 07:48:17K) 5    3KMRN 050735Z AUTO 02004KT 10SM CLR 13/04 A3004 RMK AO2 T01290035KMRN2020-04-05T07:35:00Z35.82-81.6212.93.520410.030.041338TRUETRUEVFRSPECI387.02020-04-05 07:48:17M)5    3KMRT 050735Z AUTO 01008KT 10SM OVC008 08/07 A3004 RMK AO2 T00810065KMRT2020-04-05T07:35:00Z40.22-83.358.16.510810.030.041338TRUETRUEIFRMETAR312.02020-04-05 07:48:17B(}5    3KMWM 050735Z AUTO 14005KT 10SM CLR M01/M04 A3010 RMK AO2KMWM2020-04-05T07:35:00Z43.9-95.1-1.0-4.0140510.030.100393TRUETRUEVFRMETAR430.02020-04-05 07:48:17 8sQ!)5    3KMIS 050735Z AUTO 01003KT 10SM FEW050 BKN080 OVC100 21/12 A2997 RMK A01KMIS2020-04-05T07:35:00Z29.3-88.8521.012.010310.029.970472TRUETRUEVFRSPECI32.02020-04-05 07:48:17@ (y5    3KMLJ 050735Z AUTO 00000KT 10SM CLR 13/10 A2996 RMK AO2KMLJ2020-04-05T07:35:00Z33.15-83.2313.010.00010.029.958662TRUETRUEVFRSPECI117.02020-04-05 07:48:17>(y5    3KMMI 050735Z AUTO 00000KT 10SM CLR 12/10 A2998 RMK A01KMMI2020-04-05T07:35:00Z35.4-84.5712.010.00010.029.97933TRUETRUEVFRSPECI266.02020-04-05 07:48:17?(y5    3KMNV 050735Z AUTO 00000KT 10SM CLR 12/09 A2996 RMK A01KMNV2020-04-05T07:35:00Z35.55-84.3812.09.00010.029.958662TRUETRUEVFRSPECI314.02020-04-05 07:48:17B(5    3KMOR 050735Z AUTO 00000KT 10SM FEW120 13/06 A2996 RMK A01KMOR2020-04-05T07:35:00Z36.18-83.3713.06.00010.029.958662TRUETRUEVFRSPECI400.02020-04-05 07:48:17 3\L%)5    3KMDZ 050735Z AUTO 02003KT 10SM CLR M03/M05 A3014 RMK AO2 T10351055KMDZ2020-04-05T07:35:00Z45.1-90.3-3.5-5.520310.030.138779TRUETRUEVFRMETAR448.02020-04-05 07:48:17E$({5    3KMEV 050735Z AUTO 20017KT 10SM CLR 06/M06 A2965 RMK AO2KMEV2020-04-05T07:35:00Z38.98-119.756.0-6.02001710.029.648623TRUETRUEVFRMETAR1439.02020-04-05 07:48:17Q#)5    3KMGN 050735Z AUTO 00000KT 10SM OVC013 M02/M02 A3017 RMK AO2 T10211029KMGN2020-04-05T07:35:00Z45.43-84.92-2.1-2.90010.030.171259TRUETRUEMVFRMETAR209.02020-04-05 07:48:17G") 5    3KMIO 050735Z AUTO 00000KT 9SM BKN005 OVC015 06/05 A3008 RMK AO2KMIO2020-04-05T07:35:00Z36.92-94.886.05.0009.030.079725TRUETRUEIFRSPECI246.02020-04-05 07:48:17 6VA)({5    3KCWA 050735Z AUTO 01007KT 10SM CLR 00/M06 A3016 RMK AO2KCWA2020-04-05T07:35:00Z44.78-89.670.0-6.010710.030.159449TRUETRUEVFRMETAR389.02020-04-05 07:48:17D(({5    3KCXP 050735Z AUTO 18004KT 10SM CLR 06/M06 A2964 RMK AO2KCXP2020-04-05T07:35:00Z39.18-119.736.0-6.0180410.029.639763TRUETRUEVFRMETAR1435.02020-04-05 07:48:17Z')'5     3KMDJ 050735Z AUTO 11019KT 2 1/2SM BR SCT008 BKN015 OVC043 17/17 A2997 RMK A01KMDJ2020-04-05T07:35:00Z28.65-89.817.017.0110192.529.970472TRUETRUEBRIFRSPECI31.02020-04-05 07:48:17D&(}5    3KMDS 050735Z AUTO 18007KT 10SM CLR M01/M01 A3005 RMK AO2KMDS2020-04-05T07:35:00Z44.02-97.08-1.0-1.0180710.030.050198TRUETRUEVFRMETAR524.02020-04-05 07:48:17 2rF-)5    3KCQM 050735Z AUTO 00000KT 10SM SCT120 M05/M07 A3013 RMK AO2KCQM2020-04-05T07:35:00Z47.82-92.68-5.0-7.00010.030.129921TRUETRUEVFRMETAR404.02020-04-05 07:48:17P,)5     3KCRS 050735Z AUTO 35006KT 3SM BR OVC005 09/08 A3007 RMK AO2 T00940083KCRS2020-04-05T07:35:00Z32.03-96.49.48.335063.030.070866TRUETRUEBRIFRSPECI133.02020-04-05 07:48:17:+(y5    3KCRX 050735Z AUTO VRB05KT 10SM CLR 15/12 A3000 RMK AO2KCRX2020-04-05T07:35:00Z34.92-88.615.012.00510.030.0TRUETRUEVFRSPECI130.02020-04-05 07:48:17H*) 5    3KCTZ 050735Z AUTO 00000KT 10SM CLR 10/09 A3007 RMK AO2 T00970089KCTZ2020-04-05T07:35:00Z34.98-78.379.78.90010.030.070866TRUETRUEVFRSPECI45.02020-04-05 07:48:17 1Z?1(y5    3KN38 050735Z AUTO 21003KT 10SM CLR 06/04 A2999 RMK AO2KN382020-04-05T07:35:00Z41.73-77.46.04.0210310.029.991142TRUETRUEVFRMETAR577.02020-04-05 07:48:17R0)5     3KCLL 050735Z AUTO 35008KT 1SM BR OVC002 10/10 A3002 RMK AO2 T01000100KCLL2020-04-05T07:35:00Z30.58-96.3710.010.035081.030.02067TRUETRUEBRLIFRSPECI96.02020-04-05 07:48:17Q/)5     3KCLS 050735Z AUTO 01005KT 10SM -DZ BKN036 OVC043 06/06 A2961 RMK AO2KCLS2020-04-05T07:35:00Z46.68-122.986.06.010510.029.610237TRUETRUE-DZVFRMETAR54.02020-04-05 07:48:17I.) 5    3KCMD 050735Z AUTO 00000KT 10SM CLR 14/10 A2998 RMK AO2 T01360099KCMD2020-04-05T07:35:00Z34.27-86.8513.69.90010.029.97933TRUETRUEVFRSPECI294.02020-04-05 07:48:17 @cM5)5    3KX60 050735Z AUTO 00000KT 10SM SCT120 17/14 A2991 RMK AO2 T01680137KX602020-04-05T07:35:00Z29.35-82.4716.813.70010.029.911417TRUETRUEVFRSPECI23.02020-04-05 07:48:17Z4)5      3KAVK 050735Z AUTO 14004KT 6SM BR OVC006 03/03 A3007 RMK AO2 PWINO TSNOKAVK2020-04-05T07:35:00Z36.77-98.673.03.014046.030.070866TRUETRUETRUETRUEBRIFRSPECI449.02020-04-05 07:48:17W3)5     3KAXH 050735Z AUTO 01006KT 1 1/4SM BR OVC003 15/15 A2997 RMK AO2 T01470147KAXH2020-04-05T07:35:00Z29.52-95.4814.714.71061.2529.970472TRUETRUEBRLIFRMETAR21.02020-04-05 07:48:17:2(q5   3KAZC 050735Z AUTO 09006KT 10SM 03/00 A2986 RMK AO2KAZC2020-04-05T07:35:00Z36.97-113.023.00.090610.029.861221TRUETRUEMETAR1486.02020-04-05 07:48:17 6dC9(5    3KVKY 050735Z AUTO 03005KT 10SM OVC070 22/13 A2997 RMK A01KVKY2020-04-05T07:35:00Z29.25-88.4322.013.030510.029.970472TRUETRUEVFRSPECI32.02020-04-05 07:48:17D8(5    3KVOA 050735Z AUTO 10005KT 10SM OVC075 22/14 A2994 RMK A01KVOA2020-04-05T07:35:00Z29.23-87.7822.014.0100510.029.940945TRUETRUEVFRSPECI53.02020-04-05 07:48:17L7) 5    3KVQT 050735Z AUTO 10023KT 8SM BKN011 OVC027 20/18 A2991 RMK A01KVQT2020-04-05T07:35:00Z28.27-92.2720.018.0100238.029.911417TRUETRUEMVFRMETAR25.02020-04-05 07:48:17D6(}5     3KWWR 050735Z AUTO 10004KT 5SM BR CLR 00/00 A3006 RMK AO2KWWR2020-04-05T07:35:00Z36.45-99.520.00.010045.030.059055TRUETRUEBRMVFRSPECI667.02020-04-05 07:48:17 :`P=)5     3KBEC 050735Z AUTO 14004KT 4SM BR OVC007 04/02 A3007 RMK AO2 T00360022KBEC2020-04-05T07:35:00Z37.7-97.223.62.214044.030.070866TRUETRUEBRIFRSPECI429.02020-04-05 07:48:17C<(5    3KUSE 050735Z AUTO 35007KT 10SM OVC009 07/07 A3008 RMK AO2KUSE2020-04-05T07:35:00Z41.62-84.137.07.0350710.030.079725TRUETRUEIFRMETAR238.02020-04-05 07:48:17T;)5    3KVAF 050735Z AUTO 08028KT 10SM BKN014 BKN050 BKN075 21/18 A2986 RMK A01KVAF2020-04-05T07:35:00Z27.35-94.6321.018.0802810.029.861221TRUETRUEMVFRMETAR46.02020-04-05 07:48:17@:(}5    3KVKS 050735Z AUTO 00000KT 7SM BKN110 16/16 A2997 RMK A01KVKS2020-04-05T07:35:00Z32.23-90.9316.016.0007.029.970472TRUETRUEVFRSPECI32.02020-04-05 07:48:17 )aGA)5    3KAIO 050735Z AUTO 01004KT 10SM SCT090 M02/M02 A3011 RMK AO2KAIO2020-04-05T07:35:00Z41.38-95.03-2.0-2.010410.030.109253TRUETRUEVFRSPECI360.02020-04-05 07:48:17H@) 5    3K8W2 050735Z AUTO 00000KT 10SM CLR 02/02 A3005 RMK AO1 T00220017K8W22020-04-05T07:35:00Z38.65-78.72.21.70010.030.050198TRUETRUEVFRMETAR297.02020-04-05 07:48:17B?(5    3KXPY 050735Z AUTO 11007KT 10SM OVC065 17/14 A2995 RMK A01KXPY2020-04-05T07:35:00Z29.12-90.217.014.0110710.029.949802TRUETRUEVFRSPECI2.02020-04-05 07:48:17Q>)5     3KBEA 050735Z AUTO 34006KT 3SM BR OVC005 13/13 A2998 RMK AO2 T01250125KBEA2020-04-05T07:35:00Z28.37-97.7812.512.534063.029.97933TRUETRUEBRIFRMETAR82.02020-04-05 07:48:17 =w@F(y5    3KFRR 050735Z AUTO 19003KT 10SM CLR 06/05 A3003 RMK AO1KFRR2020-04-05T07:35:00Z38.92-78.256.05.0190310.030.029528TRUETRUEVFRMETAR216.02020-04-05 07:48:17ME)5    3KDYA 050735Z AUTO 00000KT 10SM OVC100 17/15 A2994 RMK AO2 T01650145KDYA2020-04-05T07:35:00Z32.47-87.9516.514.50010.029.940945TRUETRUEVFRMETAR34.02020-04-05 07:48:17FD)5    3KD55 050735Z AUTO 17009KT 10SM OVC040 M01/M03 A2998 RMK AO2KD552020-04-05T07:35:00Z48.75-98.4-1.0-3.0170910.029.97933TRUETRUEVFRSPECI491.02020-04-05 07:48:17@C(y5    3KDCM 050735Z AUTO 18003KT 10SM CLR 13/05 A2999 RMK AO2KDCM2020-04-05T07:35:00Z34.78-81.213.05.0180310.029.991142TRUETRUEVFRMETAR200.02020-04-05 07:48:17=B(y5    3KBRY 050735Z AUTO 00000KT 10SM CLR 11/08 A3002 RMK AO1KBRY2020-04-05T07:35:00Z37.82-85.511.08.00010.030.02067TRUETRUEVFRMETAR204.02020-04-05 07:48:17 #;y#=K(y5    3KJNX 050735Z AUTO 00000KT 10SM CLR 07/07 A3008 RMK AO2KJNX2020-04-05T07:35:00Z35.53-78.387.07.00010.030.079725TRUETRUEVFRMETAR50.02020-04-05 07:48:17IJ) 5    3KIDI 050735Z AUTO 00000KT 10SM FEW049 OVC065 05/04 A3004 RMK A01KIDI2020-04-05T07:35:00Z40.62-79.085.04.00010.030.041338TRUETRUEVFRSPECI429.02020-04-05 07:48:17>I(y5    3KGYH 050735Z AUTO 00000KT 10SM CLR 15/07 A2998 RMK AO2KGYH2020-04-05T07:35:00Z34.75-82.3815.07.00010.029.97933TRUETRUEVFRSPECI292.02020-04-05 07:48:17S(y5    3KSPA 050735Z AUTO 00000KT 10SM CLR 11/08 A2998 RMK AO2KSPA2020-04-05T07:35:00Z34.92-81.9311.08.00010.029.97933TRUETRUEVFRMETAR303.02020-04-05 07:48:17HR) 5    3KSIK 050735Z AUTO 01004KT 10SM SCT025 OVC036 08/06 A3008 RMK AO2KSIK2020-04-05T07:35:00Z36.9-89.578.06.010410.030.079725TRUETRUEVFRMETAR96.02020-04-05 07:48:17QQ)5     3KSEM 050735Z AUTO 00000KT 10SM -DZ FEW055 OVC075 17/14 A2993 RMK AO2KSEM2020-04-05T07:35:00Z32.35-86.9817.014.00010.029.929134TRUETRUE-DZVFRMETAR51.02020-04-05 07:48:17UP)5     3KRRL 050735Z AUTO 00000KT 10SM CLR M05/M06 A3017 RMK AO2 T10491056 TSNOKRRL2020-04-05T07:35:00Z45.2-89.72-4.9-5.60010.030.171259TRUETRUETRUEVFRSPECI401.02020-04-05 07:48:17 6hIX) 5    3KMYJ 050735Z AUTO 00000KT 10SM SCT032 OVC060 03/02 A3012 RMK AO2KMYJ2020-04-05T07:35:00Z39.15-91.823.02.00010.030.121063TRUETRUEVFRMETAR251.02020-04-05 07:48:179W(y5    3KMNI 050735Z AUTO 00000KT 10SM CLR 10/09 A3000 RMK AO2KMNI2020-04-05T07:35:00Z33.58-80.2210.09.00010.030.0TRUETRUEVFRMETAR32.02020-04-05 07:48:17BV(}5    3KEMK 050735Z AUTO 08030KT 7SM SCT015 22/18 A2987 RMK A01KEMK2020-04-05T07:35:00Z27.82-94.3222.018.080307.029.870079TRUETRUEVFRMETAR26.02020-04-05 07:48:17HU) 5    3KW81 050735Z AUTO 00000KT 10SM CLR 04/03 A3008 RMK AO1 T00430030KW812020-04-05T07:35:00Z37.18-78.14.33.00010.030.079725TRUETRUEVFRMETAR129.02020-04-05 07:48:17DT({5    3KTYL 050735Z AUTO 22003KT 10SM CLR 02/M06 A2994 RMK AO2KTYL2020-04-05T07:35:00Z34.45-110.122.0-6.0220310.029.940945TRUETRUEVFRSPECI1745.02020-04-05 07:48:17 9rN\)5    3KPDC 050735Z AUTO 09003KT 10SM CLR M01/M04 A3017 RMK AO2 T10131041KPDC2020-04-05T07:35:00Z43.02-91.12-1.3-4.190310.030.171259TRUETRUEVFRSPECI201.02020-04-05 07:48:17D[)5    3KPCZ 050735Z AUTO 10SM SCT004 00/M04 A3017 RMK AO2 T00001045KPCZ2020-04-05T07:35:00Z44.33-89.020.0-4.510.030.171259TRUETRUEVFRSPECI252.02020-04-05 07:48:17AZ(}5    3KOWX 050735Z AUTO 34006KT 4SM OVC006 07/05 A3009 RMK AO1KOWX2020-04-05T07:35:00Z41.03-83.987.05.034064.030.088583TRUETRUEIFRSPECI233.02020-04-05 07:48:17AY(}5    3KONA 050735Z AUTO 00000KT 10SM CLR M01/M01 A3018 RMK AO2KONA2020-04-05T07:35:00Z44.07-91.7-1.0-1.00010.030.180119TRUETRUEVFRSPECI200.02020-04-05 07:48:17 *RO`)5    3KROS 050735Z AUTO 00000KT 10SM OVC120 M03/M06 A3016 RMK AO2 T10311060KROS2020-04-05T07:35:00Z45.7-92.95-3.1-6.00010.030.159449TRUETRUEVFRSPECI281.02020-04-05 07:48:17J_) 5    3KRCZ 050735Z AUTO 11006KT 7SM CLR 12/07 A3004 RMK AO2 T01150068KRCZ2020-04-05T07:35:00Z34.88-79.7711.56.811067.030.041338TRUETRUEVFRMETAR109.02020-04-05 07:48:17R^)5     3KPOV 050735Z AUTO 00000KT 10SM OVC060 10/03 A3000 RMK AO2 T01040033 PWINOKPOV2020-04-05T07:35:00Z41.22-81.2510.43.30010.030.0TRUETRUETRUEVFRSPECI365.02020-04-05 07:48:17P])5    3KPEX 050735Z AUTO 00000KT 10SM SCT110 M02/M03 A3013 RMK AO2 T10211027KPEX2020-04-05T07:35:00Z45.37-94.73-2.1-2.70010.030.129921TRUETRUEVFRSPECI360.02020-04-05 07:48:17 *N}Rd)5    3KSQL 050735Z AUTO 20003KT 9SM BKN025 BKN031 OVC038 12/10 A2976 RMK AO2KSQL2020-04-05T07:35:00Z37.52-122.2512.010.020039.029.760826TRUETRUEMVFRSPECI1.02020-04-05 07:48:17Kc) 5    3KS33 050735Z AUTO 00000KT 10SM SCT012 OVC022 02/02 A2961 RMK AO2KS332020-04-05T07:35:00Z44.67-121.152.02.00010.029.610237TRUETRUEMVFRSPECI743.02020-04-05 07:48:17Vb)5     3KRZT 050735Z AUTO 35003KT 10SM BKN065 OVC085 12/08 A3001 RMK AO2 PWINOKRZT2020-04-05T07:35:00Z39.43-83.0212.08.0350310.030.008858TRUETRUETRUEVFRSPECI221.02020-04-05 07:48:17Pa) 5     3KROX 050735Z AUTO 13004KT 10SM OVC100 M02/M05 A3008 RMK AO2 TSNOKROX2020-04-05T07:35:00Z48.85-95.7-2.0-5.0130410.030.079725TRUETRUETRUEVFRSPECI323.02020-04-05 07:48:17 1\Kh)5    3KSYN 050735Z AUTO 00000KT 7SM CLR M03/M04 A3014 RMK AO2 T10281037KSYN2020-04-05T07:35:00Z44.47-93.02-2.8-3.7007.030.138779TRUETRUEVFRSPECI280.02020-04-05 07:48:17Bg({5    3KSXK 050735Z AUTO 20004KT 10SM CLR 00/M01 A3008 RMK AO2KSXK2020-04-05T07:35:00Z42.98-96.170.0-1.0200410.030.079725TRUETRUEVFRSPECI430.02020-04-05 07:48:17Of)5    3KSVC 050735Z AUTO 31007KT 10SM CLR 06/M05 A2999 RMK AO2 T00621049KSVC2020-04-05T07:35:00Z32.63-108.156.2-4.9310710.029.991142TRUETRUEVFRSPECI1659.02020-04-05 07:48:17Ie) 5    3KSUT 050735Z AUTO 06003KT 10SM CLR 13/09 A3004 RMK AO2 T01260088KSUT2020-04-05T07:35:00Z33.93-78.0812.68.860310.030.041338TRUETRUEVFRMETAR8.02020-04-05 07:48:17 3cLl)5    3KW31 050735Z AUTO 00000KT 10SM SCT095 06/06 A3008 RMK AO1 T00580056KW312020-04-05T07:35:00Z36.95-78.185.85.60010.030.079725TRUETRUEVFRMETAR162.02020-04-05 07:48:17Fk)5    3KVVV 050735Z AUTO 13011KT 10SM SCT120 00/M02 A3005 RMK AO2KVVV2020-04-05T07:35:00Z45.3-96.420.0-2.01301110.030.050198TRUETRUEVFRSPECI335.02020-04-05 07:48:17Jj)5    3KTVY 050735Z AUTO 22011KT 10SM SCT110 12/M02 A2968 RMK AO2KTVY2020-04-05T07:35:00Z40.62-112.3512.0-2.02201110.029.681103TRUETRUEVFRSPECI1317.02020-04-05 07:48:17Gi) 5    3KTTA 050735Z AUTO 00000KT 10SM CLR 07/07 A3006 RMK AO2 T00740069KTTA2020-04-05T07:35:00Z35.58-79.17.46.90010.030.059055TRUETRUEVFRMETAR75.02020-04-05 07:48:17 3UPp)5    3KACB 050735Z AUTO 00000KT 10SM OVC011 M04/M05 A3018 RMK AO2 T10361046KACB2020-04-05T07:35:00Z44.98-85.2-3.6-4.60010.030.180119TRUETRUEMVFRSPECI190.02020-04-05 07:48:17Ho) 5    3K22N 050735Z AUTO 00000KT 10SM BKN042 OVC060 09/08 A3003 RMK AO2K22N2020-04-05T07:35:00Z40.8-75.779.08.00010.030.029528TRUETRUEVFRSPECI163.02020-04-05 07:48:17Xn)5     3K1P1 050735Z AUTO 00000KT 1/2SM FZFG OVC001 00/00 A3001 RMK AO2 T10051005K1P12020-04-05T07:35:00Z43.78-71.75-0.5-0.5000.530.008858TRUETRUEFZFGLIFRSPECI154.02020-04-05 07:48:17Gm) 5    3KW96 050735Z AUTO 00000KT 10SM CLR 04/04 A3009 RMK AO1 T00420042KW962020-04-05T07:35:00Z37.5-77.124.24.20010.030.088583TRUETRUEVFRMETAR37.02020-04-05 07:48:17 9qEt)5     3KAXV 050735Z AUTO 35005KT 5SM BR OVC006 06/05 A3006 RMK AO2KAXV2020-04-05T07:35:00Z40.5-84.36.05.035055.030.059055TRUETRUEBRIFRSPECI279.02020-04-05 07:48:17Ls)5    3KAVC 050735Z AUTO 00000KT 10SM SCT100 04/03 A3014 RMK AO2 T00400030KAVC2020-04-05T07:35:00Z36.68-78.034.03.00010.030.138779TRUETRUEVFRMETAR135.02020-04-05 07:48:17Br(}5    3KAUM 050735Z AUTO 00000KT 10SM CLR M01/M03 A3013 RMK AO2KAUM2020-04-05T07:35:00Z43.67-92.92-1.0-3.00010.030.129921TRUETRUEVFRSPECI375.02020-04-05 07:48:17Aq(}5    3KANE 050735Z AUTO 00000KT 10SM CLR M02/M04 A3015 RMK AO2KANE2020-04-05T07:35:00Z45.15-93.22-2.0-4.00010.030.15059TRUETRUEVFRSPECI278.02020-04-05 07:48:17 -X7x(o5   3KCKM 050735Z AUTO 35004KT 8SM 14/14 A3003 RMK A01KCKM2020-04-05T07:35:00Z34.3-90.5214.014.035048.030.029528TRUETRUEMETAR53.02020-04-05 07:48:17Ew)5    3KCBG 050735Z AUTO 00000KT 10SM SCT120 M01/M07 A3015 RMK AO2KCBG2020-04-05T07:35:00Z45.57-93.27-1.0-7.00010.030.15059TRUETRUEVFRSPECI287.02020-04-05 07:48:17Ov)5    3KBRG 050735Z AUTO 18003KT 10SM CLR 08/M09 A2993 RMK AO2 T00761093KBRG2020-04-05T07:35:00Z34.65-106.837.6-9.3180310.029.929134TRUETRUEVFRMETAR1585.02020-04-05 07:48:17Mu)5    3KBAX 050735Z AUTO 01004KT 10SM OVC006 02/02 A3009 RMK AO2 T00200015KBAX2020-04-05T07:35:00Z43.78-82.982.01.510410.030.088583TRUETRUEIFRSPECI234.02020-04-05 07:48:17 7eR|)5    3KDRM 050735Z AUTO 32007KT 10SM OVC011 M01/M03 A3012 RMK AO2 T10071033KDRM2020-04-05T07:35:00Z46.0-83.75-0.7-3.3320710.030.121063TRUETRUEMVFRSPECI204.02020-04-05 07:48:17O{)5    3KD95 050735Z AUTO 33005KT 10SM OVC010 04/03 A3009 RMK AO2 T00400034KD952020-04-05T07:35:00Z43.07-83.274.03.4330510.030.088583TRUETRUEMVFRSPECI255.02020-04-05 07:48:17Lz)5    3KD25 050735Z AUTO 00000KT 10SM CLR M08/M08 A3015 RMK AO2 T10801082KD252020-04-05T07:35:00Z46.12-89.88-8.0-8.20010.030.15059TRUETRUEVFRSPECI491.02020-04-05 07:48:17Cy(5    3KCLK 050735Z AUTO 11003KT 10SM OVC034 05/02 A3008 RMK AO2KCLK2020-04-05T07:35:00Z35.53-98.935.02.0110310.030.079725TRUETRUEVFRMETAR492.02020-04-05 07:48:17 4gJ)5    3KFSO 050735Z AUTO 00000KT 10SM OVC110 05/03 A3001 RMK AO2 T00500032KFSO2020-04-05T07:35:00Z44.93-73.15.03.20010.030.008858TRUETRUEVFRSPECI70.02020-04-05 07:48:17G)5    3KFFM 050735Z AUTO 14013KT 10SM BKN100 02/M04 A3007 RMK AO2KFFM2020-04-05T07:35:00Z46.28-96.152.0-4.01401310.030.070866TRUETRUEVFRSPECI361.02020-04-05 07:48:17G~)5    3KEFK 050735Z AUTO 00000KT 10SM OVC100 00/00 A3000 RMK AO2 T00010000KEFK2020-04-05T07:35:00Z44.88-72.230.10.00010.030.0TRUETRUEVFRSPECI284.02020-04-05 07:48:17F})5    3KDYT 050735Z AUTO 00000KT 10SM OVC060 M02/M06 A3018 RMK AO2KDYT2020-04-05T07:35:00Z46.72-92.03-2.0-6.00010.030.180119TRUETRUEVFRSPECI186.02020-04-05 07:48:17 L}I) 5    3KHRJ 050735Z AUTO 00000KT 10SM CLR 10/08 A3007 RMK AO2 T01030075KHRJ2020-04-05T07:35:00Z35.38-78.7310.37.50010.030.070866TRUETRUEVFRMETAR60.02020-04-05 07:48:17I) 5    3KHNZ 050735Z AUTO 00000KT 10SM CLR 05/05 A3008 RMK AO2 T00520049KHNZ2020-04-05T07:35:00Z36.37-78.535.24.90010.030.079725TRUETRUEVFRMETAR161.02020-04-05 07:48:17M)5    3KGYL 050735Z AUTO 11004KT 7SM CLR M02/M07 A3013 RMK AO2 T10201070KGYL2020-04-05T07:35:00Z44.77-94.08-2.0-7.011047.030.129921TRUETRUEVFRSPECI302.02020-04-05 07:48:17[)/5    3KGEV 050735Z AUTO 00000KT 10SM SCT080 BKN085 OVC110 12/02 A3005 RMK AO2 T01160017KGEV2020-04-05T07:35:00Z36.43-81.4211.61.70010.030.050198TRUETRUEVFRMETAR969.02020-04-05 07:48:17 /gJ )5    3KLDJ 050735Z AUTO 00000KT 10SM BKN050 07/05 A3004 RMK AO2 T00720049KLDJ2020-04-05T07:35:00Z40.62-74.257.24.90010.030.041338TRUETRUEVFRSPECI7.02020-04-05 07:48:17=(y5    3KIXA 050735Z AUTO 00000KT 10SM CLR 04/04 A3010 RMK AO2KIXA2020-04-05T07:35:00Z36.33-77.634.04.00010.030.100393TRUETRUEVFRMETAR44.02020-04-05 07:48:174(s5     3KJFZ 050735Z AUTO 00000KT 10SM SCT100 A3003 RMK AO2KJFZ2020-04-05T07:35:00Z37.07-81.80010.030.029528TRUETRUEVFRMETAR809.02020-04-05 07:48:17B(}5    3KJMR 050735Z AUTO 00000KT 10SM CLR M03/M04 A3017 RMK AO2KJMR2020-04-05T07:35:00Z45.88-93.27-3.0-4.00010.030.171259TRUETRUEVFRSPECI309.02020-04-05 07:48:17K)5    3KIIB 050735Z AUTO 04003KT CLR 00/M04 A3014 RMK AO2 T10051044 PWINOKIIB2020-04-05T07:35:00Z42.45-91.95-0.5-4.440330.138779TRUETRUETRUESPECI298.02020-04-05 07:48:17 =gR )5    3K0S9 050735Z AUTO 31006KT 10SM FEW047 BKN055 OVC065 07/01 A2966 RMK AO2K0S92020-04-05T07:35:00Z48.05-122.827.01.0310610.029.660433TRUETRUEVFRSPECI33.02020-04-05 07:48:17C (}5    3K08D 050735Z AUTO 32005KT 10SM CLR M07/M07 A2993 RMK AO2K08D2020-04-05T07:35:00Z48.3-102.4-7.0-7.0320510.029.929134TRUETRUEVFRMETAR684.02020-04-05 07:48:17P )5    3K06D 050735Z AUTO 18006KT 10SM BKN012 OVC022 M04/M04 A2996 RMK AO2K06D2020-04-05T07:35:00Z48.88-99.62-4.0-4.0180610.029.958662TRUETRUEMVFRSPECI556.02020-04-05 07:48:17= (y5    3KLUA 050735Z AUTO 00000KT 10SM CLR 05/04 A3004 RMK AO2KLUA2020-04-05T07:35:00Z38.67-78.55.04.00010.030.041338TRUETRUEVFRMETAR275.02020-04-05 07:48:17 /wP)5    3K20U 050735Z AUTO 16004KT 10SM BKN080 OVC090 M05/M05 A2992 RMK AO2K20U2020-04-05T07:35:00Z46.93-103.98-5.0-5.0160410.029.920275TRUETRUEVFRSPECI840.02020-04-05 07:48:17T)5     3K1R7 050735Z AUTO 00000KT 6SM BR FEW047 BKN070 OVC110 16/15 A2999 RMK AO2K1R72020-04-05T07:35:00Z31.6-90.4216.015.0006.029.991142TRUETRUEBRVFRSPECI149.02020-04-05 07:48:172(q5   3K0VG 050735Z AUTO 00000KT 10SM 09/08 A3000 RMK AO2K0VG2020-04-05T07:35:00Z36.65-83.229.08.00010.030.0TRUETRUESPECI430.02020-04-05 07:48:17K) 5    3K0V4 050735Z AUTO 15006KT 10SM CLR 06/06 A3009 RMK AO1 T00570056K0V42020-04-05T07:35:00Z37.15-79.025.75.6150610.030.088583TRUETRUEVFRSPECI182.02020-04-05 07:48:17 *cC(}5    3K46D 050735Z AUTO 15008KT 10SM CLR M05/M06 A2998 RMK AO2K46D2020-04-05T07:35:00Z47.45-99.15-5.0-6.0150810.029.97933TRUETRUEVFRSPECI490.02020-04-05 07:48:17C({5    3K42J 050735Z AUTO 10003KT 10SM 18/16 A2991 RMK A01 TSNOK42J2020-04-05T07:35:00Z29.85-82.0518.016.0100310.029.911417TRUETRUETRUESPECI60.02020-04-05 07:48:17A({5    3K2D5 050735Z AUTO 10005KT 9SM CLR M04/M04 A2998 RMK AO2K2D52020-04-05T07:35:00Z46.17-98.08-4.0-4.010059.029.97933TRUETRUEVFRMETAR407.02020-04-05 07:48:17P)5    3K24J 050735Z AUTO 00000KT 10SM FEW060 SCT075 BKN085 17/13 A2991 RMK A01K24J2020-04-05T07:35:00Z30.3-83.0317.013.00010.029.911417TRUETRUEVFRSPECI32.02020-04-05 07:48:17 )QK) 5     3K4M9 050735Z AUTO 02006KT 10SM OVC085 09/07 A3008 RMK AO2 PWINOK4M92020-04-05T07:35:00Z36.4-90.659.07.020610.030.079725TRUETRUETRUEVFRSPECI90.02020-04-05 07:48:17B(5    3K4S2 050735Z AUTO 00000KT 10SM OVC039 05/02 A2965 RMK AO2K4S22020-04-05T07:35:00Z45.68-121.555.02.00010.029.648623TRUETRUEVFRSPECI192.02020-04-05 07:48:17R)5     3K57C 050735Z AUTO 00000KT 1/4SM FG OVC003 00/00 A3016 RMK AO2 T00040004K57C2020-04-05T07:35:00Z42.8-88.370.40.4000.2530.159449TRUETRUEFGLIFRSPECI262.02020-04-05 07:48:17Q)5    3K4A6 050735Z AUTO 00000KT 10SM FEW038 SCT046 BKN055 14/14 A2996 RMK AO2K4A62020-04-05T07:35:00Z34.68-86.014.014.00010.029.958662TRUETRUEVFRSPECI198.02020-04-05 07:48:17 6l=(5    3K6L4 050735Z AUTO 00000KT 10SM FEW090 13/03 A3000 RMK AO2K6L42020-04-05T07:35:00Z37.85-81.9213.03.00010.030.0TRUETRUEVFRMETAR508.02020-04-05 07:48:17A(5    3K6B9 050735Z AUTO 00000KT 10SM OVC050 08/07 A2999 RMK AO2K6B92020-04-05T07:35:00Z42.92-76.438.07.00010.029.991142TRUETRUEVFRSPECI316.02020-04-05 07:48:17D(}5    3K5H4 050735Z AUTO 11006KT 10SM CLR M07/M07 A2997 RMK AO2K5H42020-04-05T07:35:00Z47.78-99.93-7.0-7.0110610.029.970472TRUETRUEVFRSPECI490.02020-04-05 07:48:17D(5    3K4I3 050735Z AUTO 34006KT 10SM OVC060 10/05 A3003 RMK AO2K4I32020-04-05T07:35:00Z40.33-82.5310.05.0340610.030.029528TRUETRUEVFRSPECI363.02020-04-05 07:48:17 QI!) 5    3K7W6 050735Z AUTO 33004KT 10SM CLR 05/05 A3006 RMK AO2 T00510045K7W62020-04-05T07:35:00Z35.55-75.955.14.5330410.030.059055TRUETRUEVFRSPECI2.02020-04-05 07:48:17E (}5    3K7L2 050735Z AUTO 10006KT 10SM CLR M05/M05 A2996 RMK AO2K7L22020-04-05T07:35:00Z46.22-100.25-5.0-5.0100610.029.958662TRUETRUEVFRSPECI543.02020-04-05 07:48:17?(}5    3K77S 050735Z AUTO 00000KT 9SM OVC004 07/07 A2956 RMK A01K77S2020-04-05T07:35:00Z43.93-123.07.07.0009.029.56004TRUETRUELIFRSPECI164.02020-04-05 07:48:17d)55      3K6S2 050735Z AUTO 00000KT 10SM -RA SCT037 BKN050 07/07 A2952 RMK AO2 P0001 T00730070K6S22020-04-05T07:35:00Z43.98-124.127.37.00010.029.518702TRUETRUE-RAVFR0.01METAR16.02020-04-05 07:48:17 $F{R%)5    3KAEJ 050735Z AUTO 00000KT 10SM SCT080 M02/M06 A2990 RMK AO2 T10231061KAEJ2020-04-05T07:35:00Z38.82-106.12-2.3-6.10010.029.899607TRUETRUEVFRSPECI2422.02020-04-05 07:48:17E$)5    3KADU 050735Z AUTO 00000KT 10SM SCT100 M01/M07 A3012 RMK AO2KADU2020-04-05T07:35:00Z41.7-94.92-1.0-7.00010.030.121063TRUETRUEVFRMETAR392.02020-04-05 07:48:17X#)%5     3KAAO 050735Z AUTO 14004KT 3SM BR BKN008 OVC019 04/02 A3007 RMK AO2 T00390022KAAO2020-04-05T07:35:00Z37.75-97.223.92.214043.030.070866TRUETRUEBRIFRSPECI434.02020-04-05 07:48:17V")5    3K9D7 050735Z AUTO 12005KT 10SM FEW026 BKN033 OVC070 M05/M05 A2999 RMK AO2K9D72020-04-05T07:35:00Z48.48-99.23-5.0-5.0120510.029.991142TRUETRUEVFRSPECI452.02020-04-05 07:48:17 .YP))5    3KAMN 050735Z AUTO 36006KT 10SM OVC009 01/M01 A3013 RMK AO2 T00101007KAMN2020-04-05T07:35:00Z43.32-84.681.0-0.7360610.030.129921TRUETRUEIFRSPECI230.02020-04-05 07:48:17J() 5    3KAIK 050735Z AUTO 00000KT 10SM CLR 11/08 A2999 RMK AO2 T01110077KAIK2020-04-05T07:35:00Z33.65-81.6811.17.70010.029.991142TRUETRUEVFRSPECI161.02020-04-05 07:48:17O')5    3KAIB 050735Z AUTO 12005KT 10SM SCT100 BKN120 08/M06 A2986 RMK AO2KAIB2020-04-05T07:35:00Z38.23-108.578.0-6.0120510.029.861221TRUETRUEVFRMETAR1811.02020-04-05 07:48:17L&)5    3KAFP 050735Z AUTO 00000KT 10SM BKN100 11/06 A3003 RMK AO2 T01080060KAFP2020-04-05T07:35:00Z35.02-80.0810.86.00010.030.029528TRUETRUEVFRSPECI92.02020-04-05 07:48:17 <bE-(}5    3KBAC 050735Z AUTO 16011KT 10SM CLR M03/M03 A2999 RMK AO2KBAC2020-04-05T07:35:00Z46.93-98.02-3.0-3.01601110.029.991142TRUETRUEVFRSPECI427.02020-04-05 07:48:17G,)5    3KBDH 050735Z AUTO 13005KT 10SM SCT100 M01/M03 A3015 RMK AO2KBDH2020-04-05T07:35:00Z45.12-95.13-1.0-3.0130510.030.15059TRUETRUEVFRSPECI247.02020-04-05 07:48:17T+)5     3KBDN 050735Z AUTO 00000KT M1/4SM FG OVC001 02/01 A2956 RMK AO2 VIS M1/4V5KBDN2020-04-05T07:35:00Z44.1-121.22.01.0000.2529.56004TRUETRUEFGLIFRSPECI1055.02020-04-05 07:48:17>*(y5    3KAQX 050735Z AUTO 00000KT 10SM CLR 12/11 A2998 RMK AO2KAQX2020-04-05T07:35:00Z32.98-81.2712.011.00010.029.97933TRUETRUEVFRSPECI49.02020-04-05 07:48:17 8pL1)5     3KASJ 050735Z AUTO 00000KT 5SM BR CLR 04/04 A3009 RMK AO2 T00360036KASJ2020-04-05T07:35:00Z36.28-77.173.63.6005.030.088583TRUETRUEBRMVFRSPECI21.02020-04-05 07:48:17A0(y5    3KATS 050735Z AUTO 18006KT 10SM CLR 07/05 A2998 RMK AO2KATS2020-04-05T07:35:00Z32.85-104.477.05.0180610.029.97933TRUETRUEVFRSPECI1081.02020-04-05 07:48:17B/(5    3KAWG 050735Z AUTO 02006KT 10SM OVC100 05/01 A3012 RMK AO2KAWG2020-04-05T07:35:00Z41.27-91.675.01.020610.030.121063TRUETRUEVFRSPECI230.02020-04-05 07:48:17B.({5    3KAXA 050735Z AUTO 13007KT 10SM CLR 00/M01 A3010 RMK A01KAXA2020-04-05T07:35:00Z43.07-94.270.0-1.0130710.030.100393TRUETRUEVFRMETAR372.02020-04-05 07:48:17 7G6(5   3KBVU 050735Z AUTO 18007G14KT 10SM CLR 16/01 A2973 RMK AO2KBVU2020-04-05T07:35:00Z35.95-114.8716.01.018071410.029.731298TRUETRUEVFRSPECI671.02020-04-05 07:48:17M5) 5    3KBOW 050735Z AUTO 23003KT 10SM BKN003 BKN055 18/15 A2992 RMK AO2KBOW2020-04-05T07:35:00Z27.93-81.7718.015.0230310.029.920275TRUETRUELIFRSPECI39.02020-04-05 07:48:17F4)5    3KBNW 050735Z AUTO 05003KT 10SM BKN100 M00/M01 A3011 RMK AO2KBNW2020-04-05T07:35:00Z42.03-93.830.0-1.050310.030.109253TRUETRUEVFRSPECI354.02020-04-05 07:48:1713(k5     3KBKT 050735Z AUTO 00000KT 5SM CLR A3008 RMK AO1KBKT2020-04-05T07:35:00Z37.07-77.95005.030.079725TRUETRUEMVFRSPECI134.02020-04-05 07:48:17C2(5    3KBKN 050735Z AUTO 09003KT 10SM OVC012 05/05 A3008 RMK AO2KBKN2020-04-05T07:35:00Z36.75-97.355.05.090310.030.079725TRUETRUEMVFRSPECI314.02020-04-05 07:48:17 8[@:(y5    3KCBF 050735Z AUTO 20003KT 10SM CLR 01/01 A3009 RMK AO2KCBF2020-04-05T07:35:00Z41.27-95.771.01.0200310.030.088583TRUETRUEVFRSPECI382.02020-04-05 07:48:17O9)5    3KCAV 050735Z AUTO 10006KT 10SM FEW022 FEW029 M01/M02 A3013 RMK A01KCAV2020-04-05T07:35:00Z42.75-93.77-1.0-2.0100610.030.129921TRUETRUEVFRSPECI354.02020-04-05 07:48:17W8)5     3KC35 050735Z AUTO 00000KT 10SM CLR M02/M03 A3016 RMK AO2 T10181033 PWINOKC352020-04-05T07:35:00Z43.53-89.98-1.8-3.30010.030.159449TRUETRUETRUEVFRSPECI276.02020-04-05 07:48:17B7(y5    3KBXK 050735Z AUTO 23003KT 10SM CLR 15/03 A2981 RMK A01KBXK2020-04-05T07:35:00Z33.42-112.6815.03.0230310.029.811024TRUETRUEVFRMETAR315.02020-04-05 07:48:17 8p[?)/5    3KCFJ 050735Z AUTO 01005KT 10SM SCT011 BKN047 OVC100 03/01 A3008 RMK AO2 T00280008KCFJ2020-04-05T07:35:00Z39.98-86.922.80.810510.030.079725TRUETRUEVFRSPECI244.02020-04-05 07:48:178>(w5    3KCFE 050735Z 10SM CLR M02/M05 A3015 RMK AO2 T10171050KCFE2020-04-05T07:35:00Z45.17-93.85-1.7-5.010.030.15059TRUEVFRSPECI295.02020-04-05 07:48:179=(y5    3KCDN 050735Z AUTO 00000KT 10SM CLR 10/07 A3000 RMK AO2KCDN2020-04-05T07:35:00Z34.28-80.5710.07.00010.030.0TRUETRUEVFRSPECI92.02020-04-05 07:48:17B<(}5    3KCCY 050735Z AUTO 09005KT 10SM CLR M01/M03 A3015 RMK AO2KCCY2020-04-05T07:35:00Z43.07-92.62-1.0-3.090510.030.15059TRUETRUEVFRSPECI343.02020-04-05 07:48:17B;(5    3KCCA 050735Z AUTO 00000KT 10SM OVC011 10/08 A3007 RMK AO2KCCA2020-04-05T07:35:00Z35.6-92.4510.08.00010.030.070866TRUETRUEMVFRSPECI157.02020-04-05 07:48:17 -fHC)5    3KFSE 050735Z AUTO 13007KT 10SM OVC080 M01/M07 A3006 RMK AO2KFSE2020-04-05T07:35:00Z47.58-95.77-1.0-7.0130710.030.059055TRUETRUEVFRSPECI389.02020-04-05 07:48:17FB)5    3KCIN 050735Z AUTO 00000KT 10SM BKN095 M01/M02 A3011 RMK AO2KCIN2020-04-05T07:35:00Z42.03-94.77-1.0-2.00010.030.109253TRUETRUEVFRSPECI375.02020-04-05 07:48:17AA(5    3KCGC 050735Z AUTO 00000KT 10SM OVC120 17/13 A2993 RMK AO2KCGC2020-04-05T07:35:00Z28.87-82.5717.013.00010.029.929134TRUETRUEVFRSPECI3.02020-04-05 07:48:17M@) 5    3KCIC 050735Z AUTO 13014KT 10SM FEW012 OVC060 10/08 A2970 RMK AO1KCIC2020-04-05T07:35:00Z39.78-121.8310.08.01301410.029.698818TRUETRUEVFRMETAR73.02020-04-05 07:48:17 0UHG)5    3KGHW 050735Z AUTO 13006KT 10SM SCT100 M01/M03 A3010 RMK AO2KGHW2020-04-05T07:35:00Z45.63-95.32-1.0-3.0130610.030.100393TRUETRUEVFRSPECI425.02020-04-05 07:48:17NF)5    3KGDB 050735Z AUTO 00000KT 10SM SCT110 01/M01 A3012 RMK AO2 T00091014KGDB2020-04-05T07:35:00Z44.75-95.550.9-1.40010.030.121063TRUETRUEVFRSPECI319.02020-04-05 07:48:17UE)!5    3KGCD 050735Z AUTO 00000KT 10SM BKN033 OVC039 04/02 A2960 RMK AO2 T00350023KGCD2020-04-05T07:35:00Z44.38-118.973.52.30010.029.601377TRUETRUEVFRMETAR1127.02020-04-05 07:48:17JD)5    3KFYJ 050735Z AUTO 00000KT 10SM SCT008 07/07 A3010 RMK AO1 T00670066KFYJ2020-04-05T07:35:00Z37.52-76.776.76.60010.030.100393TRUETRUEVFRSPECI7.02020-04-05 07:48:17 ,]HK) 5    3KGWW 050735Z AUTO 00000KT 10SM CLR 06/06 A3008 RMK AO2 T00590059KGWW2020-04-05T07:35:00Z35.47-77.975.95.90010.030.079725TRUETRUEVFRSPECI41.02020-04-05 07:48:17HJ)5    3KGWR 050735Z AUTO 14008KT 10SM FEW042 M02/M02 A2999 RMK A01KGWR2020-04-05T07:35:00Z46.22-97.65-2.0-2.0140810.029.991142TRUETRUEVFRSPECI386.02020-04-05 07:48:17II) 5    3KGVE 050735Z AUTO 00000KT 10SM CLR 05/05 A3006 RMK AO1 T00470047KGVE2020-04-05T07:35:00Z38.15-78.174.74.70010.030.059055TRUETRUEVFRSPECI138.02020-04-05 07:48:17NH)5    3KGNT 050735Z AUTO 30009KT 10SM CLR 03/M09 A2999 RMK AO2 T00311092KGNT2020-04-05T07:35:00Z35.17-107.93.1-9.2300910.029.991142TRUETRUEVFRSPECI1987.02020-04-05 07:48:17 2^DO)5    3KHNR 050735Z AUTO 00000KT 10SM BKN085 01/M01 A3011 RMK AO2KHNR2020-04-05T07:35:00Z41.58-95.331.0-1.00010.030.109253TRUETRUEVFRSPECI375.02020-04-05 07:48:17MN)5    3KHLX 050735Z AUTO 08003KT 10SM SCT085 10/01 A3005 RMK AO2 T00950005KHLX2020-04-05T07:35:00Z36.77-80.829.50.580310.030.050198TRUETRUEVFRSPECI834.02020-04-05 07:48:17NM)5    3KHEG 050735Z AUTO 00000KT 7SM FEW043 FEW065 SCT120 17/15 A2994 RMK AO2KHEG2020-04-05T07:35:00Z30.28-81.817.015.0007.029.940945TRUETRUEVFRMETAR27.02020-04-05 07:48:17HL)5    3KHCO 050735Z AUTO 13008KT 10SM OVC075 M01/M04 A3004 RMK AO2KHCO2020-04-05T07:35:00Z48.75-96.93-1.0-4.0130810.030.041338TRUETRUEVFRSPECI250.02020-04-05 07:48:17 6oDT(5    3KHYX 050735Z AUTO 32008KT 10SM OVC011 02/00 A3011 RMK AO2KHYX2020-04-05T07:35:00Z43.43-83.872.00.0320810.030.109253TRUETRUEMVFRSPECI183.02020-04-05 07:48:17W(y5    3KI23 050735Z AUTO 00004KT 10SM CLR 10/08 A3002 RMK AO1KI232020-04-05T07:35:00Z39.57-83.4210.08.00410.030.02067TRUETRUEVFRSPECI299.02020-04-05 07:48:17CV(5    3KI67 050735Z AUTO 04007KT 10SM OVC060 10/07 A3004 RMK AO1KI672020-04-05T07:35:00Z39.25-84.7810.07.040710.030.041338TRUETRUEVFRMETAR178.02020-04-05 07:48:17CU(}5    3KHZE 050735Z AUTO 00000KT 10SM CLR M06/M06 A2996 RMK AO2KHZE2020-04-05T07:35:00Z47.28-101.58-6.0-6.00010.029.958662TRUETRUEVFRSPECI553.02020-04-05 07:48:17 8mH\) 5    3KISO 050735Z AUTO 00000KT 10SM CLR 06/05 A3009 RMK AO2 T00570047KISO2020-04-05T07:35:00Z35.32-77.625.74.70010.030.088583TRUETRUEVFRSPECI29.02020-04-05 07:48:17W[)%5    3KILE 050735Z AUTO 35005KT 10SM BKN005 OVC010 08/08 A3004 RMK AO2 CIG 004V007KILE2020-04-05T07:35:00Z31.07-97.678.08.0350510.030.041338TRUETRUEIFRSPECI258.02020-04-05 07:48:17EZ)5    3KIKV 050735Z AUTO 01004KT 10SM OVC100 02/M01 A3014 RMK AO2KIKV2020-04-05T07:35:00Z41.68-93.572.0-1.010410.030.138779TRUETRUEVFRSPECI275.02020-04-05 07:48:17BY(}5    3KICL 050735Z AUTO 00000KT 10SM CLR M01/M01 A3013 RMK AO2KICL2020-04-05T07:35:00Z40.72-95.02-1.0-1.00010.030.129921TRUETRUEVFRSPECI303.02020-04-05 07:48:17 0mT`)5     3KJSO 050735Z AUTO 00000KT 1/2SM FG OVC001 10/10 A3003 RMK AO2 T01040104KJSO2020-04-05T07:35:00Z31.87-95.2210.410.4000.530.029528TRUETRUEFGLIFRSPECI206.02020-04-05 07:48:17M_) 5    3KJHN 050735Z AUTO 13009KT 10SM CLR 01/00 A2994 RMK AO2 T00110001KJHN2020-04-05T07:35:00Z37.58-101.731.10.1130910.029.940945TRUETRUEVFRSPECI1013.02020-04-05 07:48:17=^(y5    3KJGG 050735Z AUTO 00000KT 10SM CLR 08/07 A3010 RMK AO1KJGG2020-04-05T07:35:00Z37.23-76.728.07.00010.030.100393TRUETRUEVFRSPECI15.02020-04-05 07:48:17J])5     3KJFX 050735Z AUTO 00000KT 10SM CLR 14/14 A2995 RMK AO2 PWINOKJFX2020-04-05T07:35:00Z33.9-87.3214.014.00010.029.949802TRUETRUETRUEVFRSPECI148.02020-04-05 07:48:17 7qId)5   3KCMR 050735Z AUTO 20011G17KT 10SM CLR 06/M04 A2992 RMK AO2KCMR2020-04-05T07:35:00Z35.3-112.26.0-4.0200111710.029.920275TRUETRUEVFRSPECI2036.02020-04-05 07:48:17Oc)5    3KCKP 050735Z AUTO 19006KT 10SM CLR M01/M04 A3009 RMK AO2 T10071041KCKP2020-04-05T07:35:00Z42.73-95.55-0.7-4.1190610.030.088583TRUETRUEVFRSPECI374.02020-04-05 07:48:17@b(y5    3KCLW 050735Z AUTO 07003KT 10SM CLR 20/16 A2991 RMK AO2KCLW2020-04-05T07:35:00Z27.98-82.7520.016.070310.029.911417TRUETRUEVFRSPECI22.02020-04-05 07:48:17Ca(}5    3KCKC 050735Z AUTO 00000KT 10SM CLR M07/M13 A3012 RMK AO2KCKC2020-04-05T07:35:00Z47.83-90.37-7.0-13.00010.030.121063TRUETRUEVFRSPECI548.02020-04-05 07:48:17 9iAh(5    3KCQW 050735Z AUTO 09003KT 10SM FEW050 10/08 A3002 RMK AO2KCQW2020-04-05T07:35:00Z34.72-79.9510.08.090310.030.02067TRUETRUEVFRSPECI73.02020-04-05 07:48:17Mg) 5     3KCPT 050735Z AUTO 34004KT 1 3/4SM BR OVC003 08/08 A3007 RMK A01KCPT2020-04-05T07:35:00Z32.35-97.438.08.034041.7530.070866TRUETRUEBRLIFRSPECI260.02020-04-05 07:48:17Jf)5     3KCOQ 050735Z AUTO 00000KT 10SM CLR M06/M09 A3014 RMK AO2 TSNOKCOQ2020-04-05T07:35:00Z46.7-92.5-6.0-9.00010.030.138779TRUETRUETRUEVFRSPECI390.02020-04-05 07:48:17Ae(5    3KCNC 050735Z AUTO 00000KT 10SM OVC090 03/03 A3011 RMK AO2KCNC2020-04-05T07:35:00Z41.02-93.373.03.00010.030.109253TRUETRUEVFRSPECI320.02020-04-05 07:48:17 7`Dl(}5    3KD60 050735Z AUTO 28004KT 10SM CLR M07/M07 A2994 RMK AO2KD602020-04-05T07:35:00Z48.38-102.9-7.0-7.0280410.029.940945TRUETRUEVFRSPECI693.02020-04-05 07:48:17Ik)5    3KD57 050735Z AUTO 24003KT 10SM BKN080 M05/M07 A2993 RMK AO2KD572020-04-05T07:35:00Z46.82-101.87-5.0-7.0240310.029.929134TRUETRUEVFRSPECI637.02020-04-05 07:48:17Qj)5    3KCVX 050735Z AUTO 34008KT 10SM SCT011 M02/M04 A3017 RMK AO2 T10171045KCVX2020-04-05T07:35:00Z45.3-85.27-1.7-4.5340810.030.171259TRUETRUEVFRSPECI204.02020-04-05 07:48:17Ci(5    3KCSQ 050735Z AUTO 10003KT 10SM OVC090 01/01 A3011 RMK AO2KCSQ2020-04-05T07:35:00Z41.02-94.371.01.0100310.030.109253TRUETRUEVFRMETAR394.02020-04-05 07:48:17 3iOp)5    3KDUH 050735Z AUTO 35004KT 10SM OVC015 07/07 A3007 RMK AO2 T00720065KDUH2020-04-05T07:35:00Z41.73-83.657.26.5350410.030.070866TRUETRUEMVFRMETAR204.02020-04-05 07:48:17Go)5    3KDNS 050735Z AUTO 12003KT 10SM SCT090 M00/M02 A3012 RMK AO2KDNS2020-04-05T07:35:00Z41.97-95.370.0-2.0120310.030.121063TRUETRUEVFRMETAR388.02020-04-05 07:48:17Dn({5    3KDNA 050735Z AUTO 23009KT 10SM CLR 14/M04 A2995 RMK AO2KDNA2020-04-05T07:35:00Z31.88-106.714.0-4.0230910.029.949802TRUETRUEVFRSPECI1253.02020-04-05 07:48:17Gm)5    3KDEH 050735Z AUTO 06004KT 10SM BKN014 M00/M03 A3013 RMK AO2KDEH2020-04-05T07:35:00Z43.27-91.720.0-3.060410.030.129921TRUETRUEMVFRSPECI353.02020-04-05 07:48:17 ;nLt)5    3KEGV 050735Z AUTO 00000KT 10SM CLR M07/M09 A3015 RMK AO2 T10681089KEGV2020-04-05T07:35:00Z45.93-89.27-6.8-8.90010.030.15059TRUETRUEVFRSPECI500.02020-04-05 07:48:17>s({5     3KEDJ 050735Z AUTO 03010KT 10SM OVC006 07/ A3005 RMK AO1KEDJ2020-04-05T07:35:00Z40.37-83.827.0301010.030.050198TRUETRUEIFRSPECI342.02020-04-05 07:48:17Gr) 5    3KEDE 050735Z AUTO 00000KT 10SM CLR 06/06 A3009 RMK AO2 T00600057KEDE2020-04-05T07:35:00Z36.02-76.576.05.70010.030.088583TRUETRUEVFRSPECI6.02020-04-05 07:48:17?q(y5    3KDYB 050735Z AUTO 00000KT 10SM CLR 11/10 A2996 RMK AO2KDYB2020-04-05T07:35:00Z33.07-80.2811.010.00010.029.958662TRUETRUEVFRSPECI18.02020-04-05 07:48:17 8d_x)15     3KETC 050735Z AUTO 00000KT 1 1/2SM BR VV007 05/05 A3009 RMK AO2 VIS 1/2V5 T00540052KETC2020-04-05T07:35:00Z35.93-77.555.45.2001.530.088583TRUETRUEBRLIFR700SPECI17.02020-04-05 07:48:17Qw)5    3KERY 050735Z AUTO 33004KT 10SM OVC016 M01/M02 A3015 RMK AO2 T10061023KERY2020-04-05T07:35:00Z46.3-85.45-0.6-2.3330410.030.15059TRUETRUEMVFRMETAR265.02020-04-05 07:48:17Nv)5     3KEQA 050735Z AUTO 17004KT 5SM BR BKN005 OVC021 05/03 A3007 RMK AO2KEQA2020-04-05T07:35:00Z37.78-96.825.03.017045.030.070866TRUETRUEBRIFRSPECI420.02020-04-05 07:48:17Bu(5    3KEOK 050735Z AUTO 01006KT 10SM SCT120 04/01 A3010 RMK AO2KEOK2020-04-05T07:35:00Z40.47-91.424.01.010610.030.100393TRUETRUEVFRSPECI205.02020-04-05 07:48:17 ,0b,?}(y5    3KFQD 050735Z AUTO 00000KT 10SM CLR 12/05 A2999 RMK AO2KFQD2020-04-05T07:35:00Z35.42-81.9312.05.00010.029.991142TRUETRUEVFRSPECI329.02020-04-05 07:48:17B|(5    3KFFL 050735Z AUTO 03006KT 10SM OVC100 05/01 A3012 RMK A01KFFL2020-04-05T07:35:00Z41.03-91.975.01.030610.030.121063TRUETRUEVFRSPECI244.02020-04-05 07:48:17#{(_5   3KFBL 050735Z 00000KT 10SM M03/M03 RMK AO2KFBL2020-04-05T07:35:00Z44.33-93.32-3.0-3.00010.0TRUESPECI322.02020-04-05 07:48:17Hz) 5    3KEZF 050735Z AUTO 00000KT 10SM CLR 05/05 A3007 RMK AO2 T00530049KEZF2020-04-05T07:35:00Z38.27-77.455.34.90010.030.070866TRUETRUEVFRSPECI26.02020-04-05 07:48:17Jy) 5    3KEXX 050735Z AUTO 07005KT 10SM CLR 11/05 A3003 RMK AO2 T01130051KEXX2020-04-05T07:35:00Z35.78-80.311.35.170510.030.029528TRUETRUEVFRSPECI223.02020-04-05 07:48:17  <x I) 5    3KKY8 050735Z AUTO 00000KT 10SM BKN075 OVC090 09/09 A3006 RMK A01KKY82020-04-05T07:35:00Z37.95-86.879.09.00010.030.059055TRUETRUEVFRSPECI126.02020-04-05 07:48:170(g5    3KJZI 050735Z AUTO 9SM CLR 13/13 A2997 RMK AO2KJZI2020-04-05T07:35:00Z32.7-80.013.013.09.029.970472TRUETRUEVFRSPECI6.02020-04-05 07:48:17M)5    3KJYM 050735Z AUTO 01004KT 10SM OVC007 04/03 A3008 RMK AO2 T00430031KJYM2020-04-05T07:35:00Z41.92-84.584.33.110410.030.079725TRUETRUEIFRSPECI360.02020-04-05 07:48:17>(w5    3KJYG 050735Z 15003KT 10SM M01/M03 A3013 RMK AO2 PWINOKJYG2020-04-05T07:35:00Z43.98-94.55-1.0-3.0150310.030.129921TRUETRUESPECI325.02020-04-05 07:48:17>~(y5    3KJVW 050735Z AUTO 00000KT 10SM CLR 16/16 A2997 RMK AO2KJVW2020-04-05T07:35:00Z32.3-90.4216.016.00010.029.970472TRUETRUEVFRSPECI76.02020-04-05 07:48:17 7ZO)5    3KLMO 050735Z AUTO 25005KT 10SM CLR 03/M02 A2982 RMK AO2 T00271024KLMO2020-04-05T07:35:00Z40.17-105.172.7-2.4250510.029.819881TRUETRUEVFRSPECI1541.02020-04-05 07:48:17=(y5    3KLBE 050735Z AUTO 00000KT 10SM CLR 04/04 A3001 RMK AO2KLBE2020-04-05T07:35:00Z40.27-79.44.04.00010.030.008858TRUETRUEVFRSPECI361.02020-04-05 07:48:17W)'5     3KL52 050735Z AUTO 00000KT 2 1/2SM BR FEW006 SCT010 BKN013 12/11 A2988 RMK A01KL522020-04-05T07:35:00Z35.1-120.6212.011.0002.529.878937TRUETRUEBRIFRSPECI4.02020-04-05 07:48:17C(5    3KL08 050735Z AUTO 00000KT 10SM FEW042 15/04 A2981 RMK AO2KL082020-04-05T07:35:00Z33.27-116.3215.04.00010.029.811024TRUETRUEVFRSPECI159.02020-04-05 07:48:17 8t? (5    3KLRO 050735Z AUTO 00000KT 10SM FEW042 12/12 A2998 RMK AO2KLRO2020-04-05T07:35:00Z32.9-79.7812.012.00010.029.97933TRUETRUEVFRSPECI4.02020-04-05 07:48:17L ) 5     3KLBO 050735Z AUTO 10003KT 2 1/2SM BR OVC002 04/03 A3009 RMK AO2KLBO2020-04-05T07:35:00Z37.65-92.654.03.010032.530.088583TRUETRUEBRLIFRSPECI403.02020-04-05 07:48:17>(y5    3KLHZ 050735Z AUTO 00000KT 10SM CLR 06/05 A3011 RMK AO2KLHZ2020-04-05T07:35:00Z36.02-78.336.05.00010.030.109253TRUETRUEVFRSPECI113.02020-04-05 07:48:17B(5    3KLKR 050735Z AUTO 00000KT 10SM OVC090 14/06 A2999 RMK AO2KLKR2020-04-05T07:35:00Z34.72-80.8514.06.00010.029.991142TRUETRUEVFRSPECI149.02020-04-05 07:48:17 2^A(y5    3KMAN 050735Z AUTO 13006KT 10SM CLR 07/06 A2965 RMK A01KMAN2020-04-05T07:35:00Z43.58-116.527.06.0130610.029.648623TRUETRUEVFRSPECI774.02020-04-05 07:48:17A (5    3KM40 050735Z AUTO 00000KT 10SM SCT120 16/07 A2997 RMK AO2KM402020-04-05T07:35:00Z33.87-88.4816.07.00010.029.970472TRUETRUEVFRSPECI69.02020-04-05 07:48:17N )5    3KM21 050735Z AUTO 34004KT 10SM OVC090 08/07 A3006 RMK AO2 T00840070KM212020-04-05T07:35:00Z37.22-87.158.47.0340410.030.059055TRUETRUEVFRSPECI129.02020-04-05 07:48:17H ) 5    3KLVL 050735Z AUTO 00000KT 10SM CLR 06/05 A3009 RMK AO1 T00550050KLVL2020-04-05T07:35:00Z36.78-77.85.55.00010.030.088583TRUETRUEVFRSPECI100.02020-04-05 07:48:17 ;S)5      3KMHL 050735Z AUTO 00000KT 10SM SCT060 04/02 A3012 RMK AO2 TSNO PWINOKMHL2020-04-05T07:35:00Z39.1-93.24.02.00010.030.121063TRUETRUETRUETRUEVFRSPECI237.02020-04-05 07:48:17G)5     3KMBO 050735Z AUTO 00000KT 7SM CLR 15/15 A2997 RMK AO2 PWINOKMBO2020-04-05T07:35:00Z32.43-90.115.015.0007.029.970472TRUETRUETRUEVFRSPECI99.02020-04-05 07:48:174(o5    3KMAW 050735Z AUTO 10SM SCT037 08/06 A3009 RMK AO2KMAW2020-04-05T07:35:00Z36.6-90.08.06.010.030.088583TRUETRUEVFRSPECI90.02020-04-05 07:48:17?(y5    3KMAO 050735Z AUTO 07005KT 10SM CLR 10/09 A3004 RMK AO2KMAO2020-04-05T07:35:00Z34.18-79.3310.09.070510.030.041338TRUETRUEVFRSPECI28.02020-04-05 07:48:17 .aF)5    3KMUT 050735Z AUTO 36005KT 10SM OVC110 05/M01 A3014 RMK AO2KMUT2020-04-05T07:35:00Z41.37-91.155.0-1.0360510.030.138779TRUETRUEVFRSPECI167.02020-04-05 07:48:17I) 5    3KMTV 050735Z AUTO 00000KT 10SM CLR 06/04 A3010 RMK AO2 T00550038KMTV2020-04-05T07:35:00Z36.63-80.025.53.80010.030.100393TRUETRUEVFRSPECI287.02020-04-05 07:48:17G)5    3KMOX 050735Z AUTO 14010KT 10SM SCT100 00/M04 A3008 RMK AO2KMOX2020-04-05T07:35:00Z45.57-95.970.0-4.01401010.030.079725TRUETRUEVFRSPECI344.02020-04-05 07:48:17L)5    3KMKJ 050735Z AUTO 00000KT 10SM SCT100 08/04 A3007 RMK AO2 T00810042KMKJ2020-04-05T07:35:00Z36.88-81.338.14.20010.030.070866TRUETRUEVFRSPECI780.02020-04-05 07:48:17 4cD)5    3KMXO 050735Z AUTO 00000KT 10SM OVC110 02/M01 A3014 RMK AO2KMXO2020-04-05T07:35:00Z42.22-91.172.0-1.00010.030.138779TRUETRUEVFRSPECI259.02020-04-05 07:48:17K) 5    3KMWK 050735Z AUTO 05005KT 10SM CLR 12/06 A3007 RMK AO2 T01200058KMWK2020-04-05T07:35:00Z36.47-80.5512.05.850510.030.070866TRUETRUEVFRSPECI380.02020-04-05 07:48:17K) 5     3KMWC 050735Z AUTO 00000KT 3/4SM BR OVC002 00/M01 A3017 RMK AO2KMWC2020-04-05T07:35:00Z43.12-88.030.0-1.0000.7530.171259TRUETRUEBRLIFRSPECI227.02020-04-05 07:48:17F)5    3KMVE 050735Z AUTO 18007KT 10SM OVC110 01/M04 A3010 RMK AO2KMVE2020-04-05T07:35:00Z44.97-95.721.0-4.0180710.030.100393TRUETRUEVFRMETAR315.02020-04-05 07:48:17 5qA(y5    3KSTF 050735Z AUTO 33003KT 10SM CLR 15/13 A2998 RMK AO2KSTF2020-04-05T07:35:00Z33.43-88.8515.013.0330310.029.97933TRUETRUEVFRSPECI102.02020-04-05 07:48:17C({5    3KSRR 050735Z AUTO 22008KT 10SM CLR 07/M08 A3002 RMK AO2KSRR2020-04-05T07:35:00Z33.47-105.527.0-8.0220810.030.02067TRUETRUEVFRMETAR2076.02020-04-05 07:48:17D({5    3KSOW 050735Z AUTO 19015KT 10SM CLR 08/M07 A2996 RMK AO2KSOW2020-04-05T07:35:00Z34.27-110.08.0-7.01901510.029.958662TRUETRUEVFRSPECI1954.02020-04-05 07:48:17>(}5    3KSNC 050735Z AUTO 00000KT 9SM OVC060 06/05 A3003 RMK AO2KSNC2020-04-05T07:35:00Z41.38-72.56.05.0009.030.029528TRUETRUEVFRSPECI127.02020-04-05 07:48:17E)5    3KMZH 050735Z AUTO 00000KT 10SM SCT120 M04/M06 A3014 RMK AO2KMZH2020-04-05T07:35:00Z46.42-92.8-4.0-6.00010.030.138779TRUETRUEVFRSPECI328.02020-04-05 07:48:17 1gL#) 5    3KSYM 050735Z AUTO 31004KT 10SM FEW050 BKN120 12/06 A3001 RMK AO2KSYM2020-04-05T07:35:00Z38.22-83.5812.06.0310410.030.008858TRUETRUEVFRSPECI313.02020-04-05 07:48:17E"(5    3KSVE 050735Z AUTO 34006KT 10SM OVC039 06/00 A2962 RMK AO2KSVE2020-04-05T07:35:00Z40.37-120.576.00.0340610.029.619095TRUETRUEVFRSPECI1263.02020-04-05 07:48:17D!(5    3KSUZ 050735Z AUTO 03003KT 10SM OVC037 12/11 A3004 RMK A01KSUZ2020-04-05T07:35:00Z34.58-92.4812.011.030310.030.041338TRUETRUEVFRSPECI119.02020-04-05 07:48:17I ) 5    3KSUA 050735Z AUTO 00000KT 10SM BKN039 BKN060 22/17 A2993 RMK AO2KSUA2020-04-05T07:35:00Z27.18-80.2222.017.00010.029.929134TRUETRUEVFRSPECI6.02020-04-05 07:48:17 ,]E')5    3KTNU 050735Z AUTO 04006KT 10SM BKN100 02/M03 A3012 RMK A01KTNU2020-04-05T07:35:00Z41.67-93.022.0-3.040610.030.121063TRUETRUEVFRMETAR290.02020-04-05 07:48:17B&)5     3KTME 050735Z AUTO 35006KT 5SM BR OVC003 13/13 A3000 RMK AO2KTME2020-04-05T07:35:00Z29.8-95.913.013.035065.030.0TRUETRUEBRLIFRSPECI51.02020-04-05 07:48:17I%) 5    3KTKX 050735Z AUTO 03007KT 10SM FEW060 FEW090 08/07 A3007 RMK AO2KTKX2020-04-05T07:35:00Z36.22-90.028.07.030710.030.070866TRUETRUEVFRSPECI80.02020-04-05 07:48:17N$)5    3KTEW 050735Z AUTO 34006KT 10SM OVC008 02/01 A3011 RMK AO2 T00220010KTEW2020-04-05T07:35:00Z42.57-84.422.21.0340610.030.109253TRUETRUEIFRSPECI280.02020-04-05 07:48:17 )bI+)5     3KUTA 050735Z AUTO 34006KT 7SM CLR 10/10 A3004 RMK AO2 TSNOKUTA2020-04-05T07:35:00Z34.68-90.3510.010.034067.030.041338TRUETRUETRUEVFRSPECI59.02020-04-05 07:48:17D*(5    3KUOX 050735Z AUTO 34005KT 10SM OVC120 14/12 A3002 RMK AO2KUOX2020-04-05T07:35:00Z34.38-89.5314.012.0340510.030.02067TRUETRUEVFRSPECI137.02020-04-05 07:48:17A)(5    3KUKT 050735Z AUTO 00000KT 10SM OVC045 09/08 A3003 RMK A01KUKT2020-04-05T07:35:00Z40.43-75.389.08.00010.030.029528TRUETRUEVFRSPECI160.02020-04-05 07:48:17Q()5    3KU42 050735Z AUTO 15014KT 10SM OVC100 13/01 A2969 RMK AO1 T01250008KU422020-04-05T07:35:00Z40.62-111.9812.50.81501410.029.68996TRUETRUEVFRSPECI1402.02020-04-05 07:48:17 8b;/(5    3KN03 050735Z AUTO 00000KT 10SM OVC050 07/07 A3000 RMK AO2KN032020-04-05T07:35:00Z42.6-76.227.07.00010.030.0TRUETRUEVFRSPECI366.02020-04-05 07:48:17O.)5    3KY31 050735Z AUTO 28007KT 10SM CLR M01/M03 A3010 RMK AO2 T10151034KY312020-04-05T07:35:00Z44.25-84.18-1.5-3.4280710.030.100393TRUETRUEVFRSPECI269.02020-04-05 07:48:17P-) 5     3KY19 050735Z AUTO 25004KT 7SM FEW090 M05/M05 A2994 RMK AO2 PWINOKY192020-04-05T07:35:00Z46.77-100.9-5.0-5.025047.029.940945TRUETRUETRUEVFRMETAR593.02020-04-05 07:48:17B,(5    3KVQQ 050735Z AUTO 00000KT 10SM SCT110 16/14 A2992 RMK AO2KVQQ2020-04-05T07:35:00Z30.22-81.8816.014.00010.029.920275TRUETRUEVFRSPECI25.02020-04-05 07:48:17 )[C3(}5    3KOLZ 050735Z AUTO 06006KT 10SM CLR M01/M03 A3014 RMK A01KOLZ2020-04-05T07:35:00Z42.67-91.97-1.0-3.060610.030.138779TRUETRUEVFRSPECI328.02020-04-05 07:48:17F2)5     3KOLV 050735Z AUTO 00000KT 6SM BR SCT075 11/11 A3002 RMK A01KOLV2020-04-05T07:35:00Z34.98-89.7811.011.0006.030.02067TRUETRUEBRVFRSPECI122.02020-04-05 07:48:17H1) 5    3KOCW 050735Z AUTO 00000KT 10SM CLR 06/05 A3008 RMK AO2 T00550048KOCW2020-04-05T07:35:00Z35.57-77.055.54.80010.030.079725TRUETRUEVFRSPECI12.02020-04-05 07:48:17Q0)5     3KOCH 050735Z AUTO 33004KT 1/2SM FG OVC002 12/12 A3002 RMK AO2 RVRNOKOCH2020-04-05T07:35:00Z31.57-94.7212.012.033040.530.02067TRUETRUEFGLIFRSPECI108.02020-04-05 07:48:17 ,VE7({5    3KPAN 050735Z AUTO 13004KT 10SM CLR 10/M03 A2994 RMK AO2KPAN2020-04-05T07:35:00Z34.25-111.3310.0-3.0130410.029.940945TRUETRUEVFRMETAR1572.02020-04-05 07:48:17E6)5    3KOXV 050735Z AUTO 05003KT 10SM FEW100 03/M01 A3012 RMK AO2KOXV2020-04-05T07:35:00Z41.28-93.123.0-1.050310.030.121063TRUETRUEVFRSPECI283.02020-04-05 07:48:17P5)5    3KORS 050735Z AUTO 34009KT 10SM FEW070 BKN080 OVC120 07/04 A2966 RMK AO2KORS2020-04-05T07:35:00Z48.7-122.927.04.0340910.029.660433TRUETRUEVFRSPECI9.02020-04-05 07:48:17N4)5    3KONZ 050735Z AUTO 36005KT 10SM OVC012 08/06 A3007 RMK AO2 T00750057KONZ2020-04-05T07:35:00Z42.1-83.157.55.7360510.030.070866TRUETRUEMVFRMETAR180.02020-04-05 07:48:17 0r4;(k5   3KPQN 050735Z 21003KT 10SM M01/M03 A3006 RMK AO2KPQN2020-04-05T07:35:00Z43.97-96.32-1.0-3.0210310.030.059055TRUESPECI529.02020-04-05 07:48:17R:)5    3KPLR 050735Z AUTO 00000KT 10SM FEW046 FEW050 BKN120 14/14 A2994 RMK A01KPLR2020-04-05T07:35:00Z33.57-86.2514.014.00010.029.940945TRUETRUEVFRSPECI148.02020-04-05 07:48:1789(y5    3KPJC 050735Z AUTO 00000KT 10SM CLR 05/05 A3000 RMK AO2KPJC2020-04-05T07:35:00Z40.8-80.175.05.00010.030.0TRUETRUEVFRMETAR284.02020-04-05 07:48:17J8)5    3KPEA 050735Z AUTO 00000KT 10SM CLR 02/M03 A3014 RMK AO2 T00211027KPEA2020-04-05T07:35:00Z41.4-92.952.1-2.70010.030.138779TRUETRUEVFRSPECI270.02020-04-05 07:48:17 -ZQ?)5    3KPZQ 050735Z AUTO 32004KT 10SM OVC012 M01/M04 A3015 RMK AO2 T10101036KPZQ2020-04-05T07:35:00Z45.4-83.82-1.0-3.6320410.030.15059TRUETRUEMVFRSPECI204.02020-04-05 07:48:17P>)5     3KPTS 050735Z AUTO 06003KT 5SM BR OVC005 05/04 A3008 RMK AO2 T00460043KPTS2020-04-05T07:35:00Z37.45-94.734.64.36035.030.079725TRUETRUEBRIFRSPECI290.02020-04-05 07:48:17M=)5    3KPSO 050735Z AUTO 00000KT 10SM CLR 03/M04 A2996 RMK AO2 T00291045KPSO2020-04-05T07:35:00Z37.28-107.052.9-4.50010.029.958662TRUETRUEVFRMETAR2334.02020-04-05 07:48:17M<)5    3KPSK 050735Z AUTO 07004KT 10SM SCT085 08/05 A3008 RMK AO2 T00800045KPSK2020-04-05T07:35:00Z37.12-80.678.04.570410.030.079725TRUETRUEVFRSPECI642.02020-04-05 07:48:17 BzEC) 5    3KRMN 050735Z AUTO 00000KT 7SM CLR 04/04 A3011 RMK AO2 T00420042KRMN2020-04-05T07:35:00Z38.4-77.454.24.2007.030.109253TRUETRUEVFRSPECI65.02020-04-05 07:48:17DB) 5    3KRHP 050735Z AUTO 00000KT 10SM CLR 09/07 A3000 RMK AO2 T00910068KRHP2020-04-05T07:35:00Z35.18-83.859.16.80010.030.0TRUETRUEVFRSPECI518.02020-04-05 07:48:17BA(}5    3KRDK 050735Z AUTO 00000KT 10SM CLR M01/M01 A3011 RMK AO2KRDK2020-04-05T07:35:00Z41.02-95.27-1.0-1.00010.030.109253TRUETRUEVFRSPECI318.02020-04-05 07:48:178@(q5   3KRCE 050735Z AUTO 09003KT 10SM 05/03 A3007 RMK AO2KRCE2020-04-05T07:35:00Z35.48-97.825.03.090310.030.070866TRUETRUESPECI413.02020-04-05 07:48:17 ,WKG) 5    3KRUQ 050735Z AUTO 07003KT 10SM CLR 11/04 A3001 RMK AO2 T01110035KRUQ2020-04-05T07:35:00Z35.65-80.5211.13.570310.030.008858TRUETRUEVFRSPECI236.02020-04-05 07:48:17JF)5    3KRUG 050735Z AUTO 14010KT 10SM OVC035 M05/M05 A2994 RMK AO2KRUG2020-04-05T07:35:00Z48.38-100.02-5.0-5.01401010.029.940945TRUETRUEVFRSPECI472.02020-04-05 07:48:17OE)5    3KRNV 050735Z AUTO 34008KT 10SM OVC090 14/14 A3001 RMK AO2 T01410141KRNV2020-04-05T07:35:00Z33.77-90.7514.114.1340810.030.008858TRUETRUEVFRSPECI41.02020-04-05 07:48:17ND)5    3KRMY 050735Z AUTO 02003KT 10SM OVC011 04/01 A3010 RMK AO2 T00380013KRMY2020-04-05T07:35:00Z42.23-84.953.81.320310.030.100393TRUETRUEMVFRSPECI287.02020-04-05 07:48:17 =sDL(}5    3KSLB 050735Z AUTO 15010KT 10SM CLR M01/M03 A3006 RMK AO2KSLB2020-04-05T07:35:00Z42.6-95.22-1.0-3.01501010.030.059055TRUETRUEVFRMETAR454.02020-04-05 07:48:17DK(}5    3KSHL 050735Z AUTO 13005KT 10SM CLR M02/M04 A3008 RMK AO2KSHL2020-04-05T07:35:00Z43.22-95.82-2.0-4.0130510.030.079725TRUETRUEVFRSPECI432.02020-04-05 07:48:17@J({5    3KSDA 050735Z AUTO 00000KT 9SM CLR M01/M01 A3011 RMK AO2KSDA2020-04-05T07:35:00Z40.75-95.42-1.0-1.0009.030.109253TRUETRUEVFRSPECI296.02020-04-05 07:48:17DI(}5    3KS25 050735Z AUTO 18004KT 10SM CLR M06/M06 A2994 RMK AO2KS252020-04-05T07:35:00Z47.8-103.25-6.0-6.0180410.029.940945TRUETRUEVFRSPECI644.02020-04-05 07:48:17=H(y5    3KRVL 050735Z AUTO 00000KT 10SM CLR 06/06 A3002 RMK AO2KRVL2020-04-05T07:35:00Z40.68-77.636.06.00010.030.02067TRUETRUEVFRSPECI250.02020-04-05 07:48:17 (QzAP(}5    3KBFW 050735Z AUTO 00000KT 10SM CLR M08/M09 A3016 RMK AO2KBFW2020-04-05T07:35:00Z47.25-91.4-8.0-9.00010.030.159449TRUETRUEVFRMETAR331.02020-04-05 07:48:17QO)5    3KLRU 050735Z AUTO 25013KT 10SM CLR 13/M04 A2995 RMK AO2 T01301045KLRU2020-04-05T07:35:00Z32.27-106.9213.0-4.52501310.029.949802TRUETRUEVFRMETAR1358.02020-04-05 07:48:17QN)5    3KNSI 050735Z AUTO 29008KT 10SM OVC016 11/07 A2991 RMK AO2 T01060072KNSI2020-04-05T07:35:00Z33.22-119.4510.67.2290810.029.911417TRUETRUEMVFRMETAR154.02020-04-05 07:48:17RM)5    3KSLH 050735Z AUTO 31007KT 10SM OVC015 M02/M04 A3015 RMK AO2 T10161043KSLH2020-04-05T07:35:00Z45.65-84.52-1.6-4.3310710.030.15059TRUETRUEMVFRSPECI195.02020-04-05 07:48:17 <eLT)5    3K17J 050735Z AUTO 00000KT 10SM BKN120 18/15 A2991 RMK AO2 T01840150K17J2020-04-05T07:35:00Z31.0-84.8718.415.00010.029.911417TRUETRUEVFRMETAR42.02020-04-05 07:48:17ZS))5    3KHAF 050735Z AUTO 22008KT 180V250 8SM BKN012 BKN023 OVC049 12/10 A2976 RMK AO2KHAF2020-04-05T07:35:00Z37.52-122.512.010.022088.029.760826TRUETRUEMVFRSPECI21.02020-04-05 07:48:17QR)5     3KBKD 050735Z AUTO 08003KT 2SM BR OVC003 08/08 A3006 RMK AO2 T00830083KBKD2020-04-05T07:35:00Z32.72-98.888.38.38032.030.059055TRUETRUEBRLIFRMETAR392.02020-04-05 07:48:17>Q(w5    3KBGF 050735Z AUTO 00000KT 7SM CLR 13/10 A2997 RMK A01KBGF2020-04-05T07:35:00Z35.18-86.0713.010.0007.029.970472TRUETRUEVFRSPECI299.02020-04-05 07:48:17 +TNX)5     3KCPK 050735Z AUTO 00000KT 4SM BR SCT007 03/02 A3009 RMK AO2 T00260020KCPK2020-04-05T07:35:00Z36.67-76.322.62.0004.030.088583TRUETRUEBRMVFRSPECI6.02020-04-05 07:48:17OW)5    3K2R9 050735Z AUTO 34006KT 10SM OVC004 12/11 A3002 RMK AO2 T01180110K2R92020-04-05T07:35:00Z28.82-97.8711.811.0340610.030.02067TRUETRUELIFRMETAR88.02020-04-05 07:48:17QV)5    3KAPY 050735Z AUTO 32006KT 10SM OVC011 18/18 A2999 RMK AO2 T01810178KAPY2020-04-05T07:35:00Z26.97-99.2518.117.8320610.029.991142TRUETRUEMVFRMETAR129.02020-04-05 07:48:17OU)5     3K6P9 050735Z AUTO 00000KT 1SM BR OVC003 07/07 A3005 RMK AO2 T00660066K6P92020-04-05T07:35:00Z32.43-98.66.66.6001.030.050198TRUETRUEBRLIFRMETAR449.02020-04-05 07:48:17 4bI\) 5    3K05U 050735Z AUTO 00000KT 10SM FEW065 OVC080 02/00 A2973 RMK A01K05U2020-04-05T07:35:00Z39.6-116.02.00.00010.029.731298TRUETRUEVFRMETAR1816.02020-04-05 07:48:17I[) 5    3KBCB 050735Z AUTO 00000KT 10SM CLR 08/05 A3010 RMK AO2 T00780052KBCB2020-04-05T07:35:00Z37.22-80.427.85.20010.030.100393TRUETRUEVFRMETAR650.02020-04-05 07:48:17LZ)5    3K24A 050735Z AUTO 00000KT 10SM OVC085 12/04 A3004 RMK AO2 T01150042K24A2020-04-05T07:35:00Z35.32-83.211.54.20010.030.041338TRUETRUEVFRMETAR871.02020-04-05 07:48:17FY) 5    3KW75 050735Z AUTO 00000KT 10SM CLR 06/06 A3009 RMK AO1 T00570057KW752020-04-05T07:35:00Z37.6-76.455.75.70010.030.088583TRUETRUEVFRSPECI9.02020-04-05 07:48:17 &S{L`)5    3K1U7 050735Z AUTO 00000KT 10SM SCT060 OVC075 02/M00 A2970 RMK A01K1U72020-04-05T07:35:00Z42.25-111.332.00.00010.029.698818TRUETRUEVFRMETAR1807.02020-04-05 07:48:17R_)5   3K18H 050735Z AUTO 24011G16KT 10SM SCT005 SCT120 25/23 A2984 RMK A01K18H2020-04-05T07:35:00Z26.13-92.0325.023.0240111610.029.840551TRUETRUEVFRMETAR10.02020-04-05 07:48:17M^)5    3K1A9 050735Z AUTO 00000KT 10SM OVC100 16/15 A2992 RMK AO2 T01630149K1A92020-04-05T07:35:00Z32.43-86.5216.314.90010.029.920275TRUETRUEVFRSPECI69.02020-04-05 07:48:17T])5     3K0R0 050735Z AUTO 00000KT 5SM BR FEW060 SCT075 BKN090 16/16 A2999 RMK AO2K0R02020-04-05T07:35:00Z31.3-89.8216.016.0005.029.991142TRUETRUEBRMVFRSPECI81.02020-04-05 07:48:17 /fRd)5    3K2LS 050735Z AUTO 13004KT 10SM FEW042 SCT050 BKN065 16/14 A2996 RMK AO2K2LS2020-04-05T07:35:00Z29.42-90.316.014.0130410.029.958662TRUETRUEVFRMETAR-2.02020-04-05 07:48:17@c(y5    3K2A0 050735Z AUTO 00000KT 10SM CLR 12/11 A2996 RMK A01K2A02020-04-05T07:35:00Z35.48-84.9312.011.00010.029.958662TRUETRUEVFRSPECI219.02020-04-05 07:48:17Cb(}5    3KBWW 050735Z AUTO 08006KT 10SM CLR M02/M04 A2990 RMK AO2KBWW2020-04-05T07:35:00Z46.17-103.3-2.0-4.080610.029.899607TRUETRUEVFRMETAR910.02020-04-05 07:48:17Ka) 5    3K1M5 050735Z AUTO 34006KT 10SM FEW085 BKN110 11/10 A3002 RMK A01K1M52020-04-05T07:35:00Z36.6-86.4811.010.0340610.030.02067TRUETRUEVFRSPECI250.02020-04-05 07:48:17 /\Qh)5    3K3D2 050735Z AUTO 00000KT 10SM OVC010 M02/M03 A3018 RMK AO2 T10161027K3D22020-04-05T07:35:00Z45.13-87.18-1.6-2.70010.030.180119TRUETRUEMVFRMETAR234.02020-04-05 07:48:17Ag(5    3K33N 050735Z AUTO 25005KT 10SM OVC041 09/08 A3006 RMK A01K33N2020-04-05T07:35:00Z39.22-75.69.08.0250510.030.059055TRUETRUEVFRMETAR17.02020-04-05 07:48:17Mf)5    3K2P2 050735Z AUTO 00000KT 10SM CLR M07/M07 A3019 RMK AO2 T10681071K2P22020-04-05T07:35:00Z45.38-86.92-6.8-7.10010.030.188976TRUETRUEVFRMETAR199.02020-04-05 07:48:17Ke) 5    3K2M2 050735Z AUTO 00000KT 10SM FEW055 FEW110 14/10 A2999 RMK A01K2M22020-04-05T07:35:00Z35.23-87.2514.010.00010.029.991142TRUETRUEVFRSPECI286.02020-04-05 07:48:17 /a8l(w5      3K3T5 050735Z AUTO 01006KT 1SM BR OVC002 A2999 RMK AO2K3T52020-04-05T07:35:00Z29.9-96.951061.029.991142TRUETRUEBRLIFRMETAR99.02020-04-05 07:48:17Rk)5    3K3LF 050735Z AUTO 00000KT 7SM BKN011 OVC031 06/03 A3012 RMK AO2 T00550034K3LF2020-04-05T07:35:00Z39.17-89.675.53.4007.030.121063TRUETRUEMVFRMETAR210.02020-04-05 07:48:17Hj)5     3K3K8 050735Z AUTO 13007KT 5SM BR OVC004 01/01 A3006 RMK AO2K3K82020-04-05T07:35:00Z37.22-99.331.01.013075.030.059055TRUETRUEBRLIFRSPECI636.02020-04-05 07:48:17Ki)5     3K3I2 050735Z AUTO 00000KT 10SM -RA CLR 11/08 A3000 RMK AO2 T01060075K3I22020-04-05T07:35:00Z38.92-82.110.67.50010.030.0TRUETRUE-RAVFRMETAR196.02020-04-05 07:48:17 <bOp)5    3KBGE 050735Z AUTO 26004KT 10SM BKN120 19/14 A2990 RMK AO2 T01850138KBGE2020-04-05T07:35:00Z30.97-84.6318.513.8260410.029.899607TRUETRUEVFRMETAR43.02020-04-05 07:48:17Mo)5    3KFMM 050735Z AUTO 15006KT 10SM CLR 03/M04 A2985 RMK AO2 T00331040KFMM2020-04-05T07:35:00Z40.33-103.83.3-4.0150610.029.84941TRUETRUEVFRMETAR1393.02020-04-05 07:48:17Tn)!5    3K3R7 050735Z AUTO 00000KT 10SM BKN017 BKN033 16/15 A2997 RMK AO2 T01560148K3R72020-04-05T07:35:00Z30.25-92.6715.614.80010.029.970472TRUETRUEMVFRSPECI7.02020-04-05 07:48:17>m(}5    3K3S8 050735Z AUTO 00000KT 9SM OVC015 07/06 A2956 RMK AO2K3S82020-04-05T07:35:00Z42.5-123.47.06.0009.029.56004TRUETRUEMVFRMETAR343.02020-04-05 07:48:17 1hQt) 5     3KCBK 050735Z AUTO 15009KT 10SM SCT120 01/M03 A2997 RMK AO2 PWINOKCBK2020-04-05T07:35:00Z39.43-101.051.0-3.0150910.029.970472TRUETRUETRUEVFRSPECI971.02020-04-05 07:48:17;s(q5   3KCCB 050735Z AUTO 29006KT 10SM 12/08 A2991 RMK AO2KCCB2020-04-05T07:35:00Z34.12-117.6812.08.0290610.029.911417TRUETRUEMETAR440.02020-04-05 07:48:17Cr(5    3KCEY 050735Z AUTO 34005KT 10SM OVC006 08/07 A3007 RMK AO1KCEY2020-04-05T07:35:00Z36.67-88.378.07.0340510.030.070866TRUETRUEIFRSPECI176.02020-04-05 07:48:17Iq) 5    3KBQK 050735Z AUTO 00000KT 10SM CLR 15/15 A2995 RMK AO2 T01550145KBQK2020-04-05T07:35:00Z31.25-81.4715.514.50010.029.949802TRUETRUEVFRMETAR8.02020-04-05 07:48:17 8fMx)5    3K4R5 050735Z AUTO 00000KT 10SM CLR M06/M06 A3018 RMK AO2 T10561062K4R52020-04-05T07:35:00Z46.78-90.77-5.6-6.20010.030.180119TRUETRUEVFRMETAR198.02020-04-05 07:48:17Mw)5     3K6R3 050735Z AUTO 36003KT 3SM BR OVC003 15/15 A3000 RMK AO2 T01540152K6R32020-04-05T07:35:00Z30.35-95.015.415.236033.030.0TRUETRUEBRLIFRMETAR46.02020-04-05 07:48:17Lv)5    3KC29 050735Z AUTO 00000KT 10SM CLR 00/M02 A3016 RMK AO1 T10011025KC292020-04-05T07:35:00Z43.12-89.53-0.1-2.50010.030.159449TRUETRUEVFRMETAR283.02020-04-05 07:48:17Bu(}5    3KCAD 050735Z AUTO 00000KT 10SM CLR M05/M06 A3010 RMK AO2KCAD2020-04-05T07:35:00Z44.27-85.42-5.0-6.00010.030.100393TRUETRUEVFRMETAR398.02020-04-05 07:48:17 4aZ|)!5     3K3N8 050735Z AUTO 15008KT 10SM BKN090 00/M04 A3005 RMK AO2 P0001 T00001043K3N82020-04-05T07:35:00Z47.25-95.880.0-4.3150810.030.050198TRUETRUEVFR0.01METAR383.02020-04-05 07:48:17F{) 5    3K49A 050735Z AUTO 01003KT 10SM CLR 11/08 A3000 RMK AO2 T01130076K49A2020-04-05T07:35:00Z34.63-84.5311.37.610310.030.0TRUETRUEVFRMETAR453.02020-04-05 07:48:17Mz)5      3K4F2 050735Z AUTO 33005KT 1/2SM FG OVC003 12/ A3002 RMK AO2 T0123////K4F22020-04-05T07:35:00Z32.18-94.312.333050.530.02067TRUETRUEFGLIFRMETAR76.02020-04-05 07:48:17Fy)5    3K4O4 050735Z AUTO 00000KT 1 1/4SM OVC002 09/08 A3003 RMK AO2K4O42020-04-05T07:35:00Z33.92-94.879.08.0001.2530.029528TRUETRUELIFRMETAR144.02020-04-05 07:48:17Y88@HPX`hpx (08@HPX`hpx (08@HPX`hpxhlptx} hlptx} #'+/37;?CGLPTX\`dhlptx| ‹Ë ċ$ŋ(Ƌ,Nj0ȋ4ɋ8ʋ<ˋ@̋D͋H΋LϋPЋTыXҋ\Ӌ`ԋdՋi֋n׋r؋vًzڋ~ۋ܋݋ ދߋ"'+/37;?CGKOT :dG)5     3K1F0 050735Z AUTO 01003KT 5SM BR OVC004 06/05 A3008 RMK AO2K1F02020-04-05T07:35:00Z34.15-97.126.05.01035.030.079725TRUETRUEBRLIFRMETAR257.02020-04-05 07:48:17N) 5     3K21D 050735Z AUTO 00000KT 10SM CLR M04/M04 A3017 RMK AO2 TSNOSNOK21D2020-04-05T07:35:00Z45.0-92.85-4.0-4.00010.030.171259TRUETRUETRUEVFRMETAR285.02020-04-05 07:48:17P~)5    3K28J 050735Z AUTO 00000KT 10SM FEW050 SCT065 BKN120 15/13 A2993 RMK AO2K28J2020-04-05T07:35:00Z29.65-81.6815.013.00010.029.929134TRUETRUEVFRMETAR9.02020-04-05 07:48:17@}(y5    3K3J7 050735Z AUTO 14003KT 10SM CLR 16/07 A2996 RMK AO2K3J72020-04-05T07:35:00Z33.6-83.1316.07.0140310.029.958662TRUETRUEVFRMETAR206.02020-04-05 07:48:17 0YE({5    3K82V 050735Z AUTO 19014KT 10SM CLR 03/M03 A2981 RMK AO2K82V2020-04-05T07:35:00Z41.15-104.133.0-3.01901410.029.811024TRUETRUEVFRMETAR1570.02020-04-05 07:48:17J)5    3K0F2 050735Z AUTO 00000KT 7SM OVC004 09/08 A3006 RMK AO2 T00860078K0F22020-04-05T07:35:00Z33.6-97.788.67.8007.030.059055TRUETRUELIFRMETAR336.02020-04-05 07:48:17Q)5     3K13K 050735Z AUTO 11004KT 4SM BR OVC004 04/04 A3008 RMK AO2 T00390035K13K2020-04-05T07:35:00Z37.85-96.33.93.511044.030.079725TRUETRUEBRLIFRMETAR369.02020-04-05 07:48:17J) 5    3K18A 050735Z AUTO 00000KT 10SM CLR 12/06 A2997 RMK AO2 T01220063K18A2020-04-05T07:35:00Z34.35-83.1312.26.30010.029.970472TRUETRUEVFRMETAR271.02020-04-05 07:48:17 7hM)5    3KUNI 050735Z AUTO 00000KT 10SM OVC090 12/09 A2999 RMK AO2 T01190085KUNI2020-04-05T07:35:00Z39.22-82.2311.98.50010.029.991142TRUETRUEVFRMETAR193.02020-04-05 07:48:17O)5    3KUVA 050735Z AUTO 00000KT 10SM OVC010 14/13 A3004 RMK AO2 T01350130KUVA2020-04-05T07:35:00Z29.22-99.7513.513.00010.030.041338TRUETRUEMVFRMETAR287.02020-04-05 07:48:17I) 5    3KW78 050735Z AUTO 00000KT 10SM CLR 06/05 A3009 RMK AO1 T00590051KW782020-04-05T07:35:00Z36.68-78.855.95.10010.030.088583TRUETRUEVFRMETAR129.02020-04-05 07:48:17C(5    3KWDG 050735Z AUTO 11003KT 10SM OVC009 05/03 A3008 RMK AO2KWDG2020-04-05T07:35:00Z36.37-97.775.03.0110310.030.079725TRUETRUEIFRMETAR356.02020-04-05 07:48:17 ,hN )5    3KTYQ 050735Z AUTO 35004KT 10SM OVC007 04/04 A3008 RMK AO2 T00350035KTYQ2020-04-05T07:35:00Z40.03-86.253.53.5350410.030.079725TRUETRUEIFRMETAR281.02020-04-05 07:48:17_ )-5     3KTZR 050735Z AUTO 36007KT 10SM SCT065 OVC090 11/08 A3003 RMK AO2 T01050080 PWINOKTZR2020-04-05T07:35:00Z39.9-83.1310.58.0360710.030.029528TRUETRUETRUEVFRMETAR276.02020-04-05 07:48:17> (s5   3KU68 050735Z AUTO 25003KT 10SM 00/M25 A2973 RMK AO2KU682020-04-05T07:35:00Z44.92-108.450.0-25.0250310.029.731298TRUETRUEMETAR1247.02020-04-05 07:48:17N )5    3KUKL 050735Z AUTO 10003KT 10SM OVC013 04/03 A3008 RMK AO2 T00400025KUKL2020-04-05T07:35:00Z38.3-95.734.02.5100310.030.079725TRUETRUEMVFRMETAR358.02020-04-05 07:48:17 5e?(y5    3KDKX 050735Z AUTO 00000KT 10SM CLR 11/09 A2997 RMK A01KDKX2020-04-05T07:35:00Z35.97-83.8711.09.00010.029.970472TRUETRUEVFRSPECI254.02020-04-05 07:48:17L) 5    3KDLP 050735Z AUTO 23003KT 10SM BKN070 OVC085 19/14 A2995 RMK A01KDLP2020-04-05T07:35:00Z29.12-89.5519.014.0230310.029.949802TRUETRUEVFRSPECI36.02020-04-05 07:48:17J)5    3KDNV 050735Z AUTO 00000KT 10SM OVC100 04/03 A3012 RMK AO2 T00370030KDNV2020-04-05T07:35:00Z40.2-87.63.73.00010.030.121063TRUETRUEVFRMETAR212.02020-04-05 07:48:17E )5     3KTQH 050735Z AUTO 00000KT 3SM BR OVC003 06/06 A3008 RMK AO2KTQH2020-04-05T07:35:00Z35.93-95.06.06.0003.030.079725TRUETRUEBRLIFRMETAR266.02020-04-05 07:48:17 3aB(}5    3KCXW 050735Z AUTO 33003KT 9SM SCT035 11/11 A3005 RMK A01KCXW2020-04-05T07:35:00Z35.02-92.5511.011.033039.030.050198TRUETRUEVFRSPECI84.02020-04-05 07:48:17?(y5    3KCZL 050735Z AUTO 00000KT 10SM CLR 12/10 A2998 RMK AO2KCZL2020-04-05T07:35:00Z34.47-84.9312.010.00010.029.97933TRUETRUEVFRSPECI195.02020-04-05 07:48:17L) 5    3KCZT 050735Z AUTO 00000KT 10SM BKN011 OVC020 13/13 A3003 RMK AO2KCZT2020-04-05T07:35:00Z28.52-99.8213.013.00010.030.029528TRUETRUEMVFRMETAR183.02020-04-05 07:48:17G) 5   3KD39 050735Z AUTO 12004KT 10SM M01/M05 A3012 RMK AO2 T10151048KD392020-04-05T07:35:00Z45.7-94.93-1.5-4.8120410.030.121063TRUETRUEMETAR380.02020-04-05 07:48:17 4kO)5    3K82C 050735Z AUTO 28003KT 10SM CLR M03/M04 A3016 RMK AO2 T10261039K82C2020-04-05T07:35:00Z43.83-90.13-2.6-3.9280310.030.159449TRUETRUEVFRMETAR276.02020-04-05 07:48:17<(y5    3K8A3 050735Z AUTO 36005KT 10SM CLR 14/09 A3000 RMK A01K8A32020-04-05T07:35:00Z36.42-85.3214.09.0360510.030.0TRUETRUEVFRSPECI419.02020-04-05 07:48:17C(5    3KAAS 050735Z AUTO 00000KT 10SM OVC090 13/10 A3006 RMK AO1KAAS2020-04-05T07:35:00Z37.35-85.3213.010.00010.030.059055TRUETRUEVFRSPECI281.02020-04-05 07:48:17F)5     3KACP 050735Z AUTO 00000KT 5SM BR OVC005 17/16 A2996 RMK AO2KACP2020-04-05T07:35:00Z30.75-92.6817.016.0005.029.958662TRUETRUEBRIFRSPECI33.02020-04-05 07:48:17 1fD(}5    3K6S0 050735Z AUTO 03009KT 10SM CLR M03/M07 A2977 RMK A01K6S02020-04-05T07:35:00Z45.8-109.97-3.0-7.030910.029.769686TRUETRUEVFRMETAR1363.02020-04-05 07:48:17T)5    3K6S5 050735Z AUTO 00000KT 10SM FEW030 BKN039 OVC060 03/M02 A2962 RMK AO2K6S52020-04-05T07:35:00Z46.25-114.133.0-2.00010.029.619095TRUETRUEVFRMETAR1110.02020-04-05 07:48:17E)5    3K7S1 050735Z AUTO 00000KT 10SM OVC070 05/M06 A2963 RMK AO2K7S12020-04-05T07:35:00Z45.53-112.35.0-6.00010.029.630905TRUETRUEVFRMETAR1456.02020-04-05 07:48:17I) 5    3K7W4 050735Z AUTO 00000KT 10SM CLR 04/04 A3007 RMK AO1 T00420035K7W42020-04-05T07:35:00Z37.97-77.754.23.50010.030.070866TRUETRUEVFRSPECI106.02020-04-05 07:48:17 ;mO )5    3K54J 050735Z AUTO 33006KT 10SM OVC110 18/14 A2993 RMK AO2 T01830140K54J2020-04-05T07:35:00Z30.73-86.1518.314.0330610.029.929134TRUETRUEVFRSPECI88.02020-04-05 07:48:17Q)5     3K5R8 050735Z AUTO 00000KT 5SM BR OVC003 17/16 A2997 RMK AO2 T01660162K5R82020-04-05T07:35:00Z30.43-93.4716.616.2005.029.970472TRUETRUEBRLIFRSPECI24.02020-04-05 07:48:17H)5     3K5T9 050735Z AUTO 00000KT 1SM BR OVC002 13/12 A3002 RMK A01K5T92020-04-05T07:35:00Z28.85-100.5213.012.0001.030.02067TRUETRUEBRLIFRMETAR270.02020-04-05 07:48:17?(y5    3K6A2 050735Z AUTO 00000KT 10SM CLR 15/06 A2996 RMK AO2K6A22020-04-05T07:35:00Z33.23-84.2715.06.00010.029.958662TRUETRUEVFRSPECI292.02020-04-05 07:48:17 ;fU$)5    3K46U 050735Z AUTO 05005KT 10SM FEW036 SCT049 BKN055 01/M06 A2974 RMK A01K46U2020-04-05T07:35:00Z43.18-111.051.0-6.050510.029.740158TRUETRUEVFRMETAR1717.02020-04-05 07:48:17`#)%5     3K4S1 050735Z AUTO 19017G25KT 7SM -RA BKN012 OVC018 09/08 A2950 RMK AO2 P0009K4S12020-04-05T07:35:00Z42.42-124.429.08.019017257.029.500984TRUETRUE-RAMVFR0.09METAR5.02020-04-05 07:48:17O")5    3K4V0 050735Z AUTO 00000KT 10SM SCT120 02/M02 A2976 RMK AO2 T00171022K4V02020-04-05T07:35:00Z40.1-108.771.7-2.20010.029.760826TRUETRUEVFRMETAR1608.02020-04-05 07:48:17?!(y5    3K54A 050735Z AUTO 00000KT 10SM CLR 20/20 A2990 RMK AO2K54A2020-04-05T07:35:00Z26.85-82.2520.020.00010.029.899607TRUETRUEVFRMETAR14.02020-04-05 07:48:17 .bB((5    3KUCY 050735Z AUTO 01008KT 10SM FEW100 08/07 A3005 RMK A01KUCY2020-04-05T07:35:00Z36.38-88.988.07.010810.030.050198TRUETRUEVFRSPECI104.02020-04-05 07:48:17C')5     3KDSF 050735Z AUTO 04015G20KT 1/2SM BR OVC004 A2993 RMK A01KDSF2020-04-05T07:35:00Z28.35-88.274015200.529.929134TRUETRUEBRLIFRMETAR130.02020-04-05 07:48:17F&)5    3KDXX 050735Z AUTO 14009KT 10SM SCT120 02/M01 A3007 RMK AO2KDXX2020-04-05T07:35:00Z44.98-96.182.0-1.0140910.030.070866TRUETRUEVFRMETAR330.02020-04-05 07:48:17L%)5     3KECU 050735Z AUTO 00000KT 1/4SM FG OVC002 11/11 A3007 RMK AO2KECU2020-04-05T07:35:00Z29.95-100.1711.011.0000.2530.070866TRUETRUEFGLIFRMETAR725.02020-04-05 07:48:17 9f>,(y5    3KTDF 050735Z AUTO 00000KT 10SM CLR 06/05 A3009 RMK AO2KTDF2020-04-05T07:35:00Z36.28-78.986.05.00010.030.088583TRUETRUEVFRSPECI186.02020-04-05 07:48:17A+(y5    3KTHA 050735Z AUTO 36004KT 10SM CLR 14/09 A2997 RMK A01KTHA2020-04-05T07:35:00Z35.38-86.2514.09.0360410.029.970472TRUETRUEVFRSPECI331.02020-04-05 07:48:17M*) 5    3KTMA 050735Z AUTO 11003KT 10SM CLR 18/13 A2992 RMK AO2 T01750127KTMA2020-04-05T07:35:00Z31.43-83.4817.512.7110310.029.920275TRUETRUEVFRMETAR109.02020-04-05 07:48:17A)(5    3KTPF 050735Z AUTO 00000KT 10SM SCT110 21/18 A2993 RMK AO2KTPF2020-04-05T07:35:00Z27.92-82.4521.018.00010.029.929134TRUETRUEVFRSPECI3.02020-04-05 07:48:17 -eX0)#5     3KS21 050735Z AUTO 00000KT 5SM -SN FEW005 SCT038 BKN055 00/M00 A2958 RMK AO2KS212020-04-05T07:35:00Z43.88-121.450.00.0005.029.58071TRUETRUE-SNMVFRMETAR1269.02020-04-05 07:48:17`/)15   3KEIR 050735Z AUTO 09009G19KT 060V120 10SM BKN010 BKN013 OVC028 17/16 A2993 RMK A01KEIR2020-04-05T07:35:00Z28.63-91.4817.016.09091910.029.929134TRUETRUEMVFRSPECI28.02020-04-05 07:48:17B.(}5    3KELO 050735Z AUTO 00000KT 10SM CLR M07/M09 A3014 RMK AO2KELO2020-04-05T07:35:00Z47.82-91.82-7.0-9.00010.030.138779TRUETRUEVFRMETAR443.02020-04-05 07:48:17M-) 5    3KEDU 050735Z AUTO 16007KT 10SM FEW004 BKN050 10/10 A2973 RMK AO1KEDU2020-04-05T07:35:00Z38.53-121.7810.010.0160710.029.731298TRUETRUEVFRMETAR21.02020-04-05 07:48:17 ;zH4)5    3KSAA 050735Z AUTO 15009KT 10SM OVC110 02/M06 A2981 RMK AO2KSAA2020-04-05T07:35:00Z41.45-106.832.0-6.0150910.029.811024TRUETRUEVFRMETAR2138.02020-04-05 07:48:17D3(5    3KSCF 050735Z AUTO 10024KT 10SM OVC065 19/14 A2991 RMK A01KSCF2020-04-05T07:35:00Z29.12-91.8719.014.01002410.029.911417TRUETRUEVFRSPECI8.02020-04-05 07:48:17;2(}5    3KSCX 050735Z AUTO 00000KT 9SM BKN110 11/05 A3000 RMK A01KSCX2020-04-05T07:35:00Z36.45-84.5811.05.0009.030.0TRUETRUEVFRSPECI471.02020-04-05 07:48:17?1(y5    3KRZR 050735Z AUTO 00000KT 10SM CLR 12/12 A2996 RMK A01KRZR2020-04-05T07:35:00Z35.22-84.812.012.00010.029.958662TRUETRUEVFRSPECI263.02020-04-05 07:48:17 '`E8({5    3KSEZ 050735Z AUTO 17004KT 10SM CLR 11/M01 A2991 RMK AO2KSEZ2020-04-05T07:35:00Z34.85-111.7811.0-1.0170410.029.911417TRUETRUEVFRMETAR1473.02020-04-05 07:48:17E7) 5    3KSFQ 050735Z AUTO 00000KT 7SM CLR 04/04 A3010 RMK AO2 T00420041KSFQ2020-04-05T07:35:00Z36.68-76.64.24.1007.030.100393TRUETRUEVFRSPECI22.02020-04-05 07:48:17A6)5     3KSMS 050735Z AUTO 00000KT 10SM -DZ CLR 10/10 A3000 RMK AO2KSMS2020-04-05T07:35:00Z34.0-80.3710.010.00010.030.0TRUETRUE-DZVFRSPECI56.02020-04-05 07:48:17S5)5    3KSNH 050735Z AUTO 01005KT 10SM SCT050 SCT060 BKN100 14/12 A2999 RMK A01KSNH2020-04-05T07:35:00Z35.17-88.2214.012.010510.029.991142TRUETRUEVFRSPECI144.02020-04-05 07:48:17 AyT<)5    3KTCY 050735Z AUTO 13008KT 10SM FEW048 SCT060 OVC075 11/11 A2973 RMK A01KTCY2020-04-05T07:35:00Z37.68-121.4311.011.0130810.029.731298TRUETRUEVFRMETAR59.02020-04-05 07:48:17H;)5     3KSRE 050735Z AUTO 00000KT 1/2SM BR OVC003 04/03 A3009 RMK AO2KSRE2020-04-05T07:35:00Z35.27-96.684.03.0000.530.088583TRUETRUEBRLIFRSPECI312.02020-04-05 07:48:17B:(y5    3KSYI 050735Z AUTO 36008KT 10SM CLR 14/11 A2999 RMK A01KSYI2020-04-05T07:35:00Z35.57-86.4514.011.0360810.029.991142TRUETRUEVFRSPECI245.02020-04-05 07:48:1799(y5    3KSRB 050735Z AUTO 00000KT 10SM CLR 09/08 A3000 RMK A01KSRB2020-04-05T07:35:00Z36.05-85.539.08.00010.030.0TRUETRUEVFRSPECI313.02020-04-05 07:48:17 D$DZ@)%5    3KCTB 050734Z AUTO 13008KT 10SM SCT010 OVC085 M04/M07 A2976 RMK AO2 T10441072KCTB2020-04-05T07:34:00Z48.6-112.37-4.4-7.2130810.029.760826TRUETRUEVFRSPECI1175.02020-04-05 07:48:17T?)5    3KBTL 050734Z AUTO 36006KT 10SM OVC009 04/03 A3011 RMK AO2 T00440028 $KBTL2020-04-05T07:34:00Z42.32-85.234.42.8360610.030.109253TRUETRUETRUEIFRSPECI290.02020-04-05 07:48:17u>)M5       3PAVL 050734Z AUTO 15009KT 5SM -RA BKN004 OVC014 09/01 A2915 RMK AO2 RAB0654 P0001 T00940006 TSNOPAVL2020-04-05T07:34:00Z67.73-164.559.40.615095.029.149607TRUETRUETRUE-RALIFR0.01SPECI3.02020-04-05 07:48:17=)a5    3PAJZ 050734Z AUTO 21026G31KT 7SM BKN010 OVC032 01/M01 A2988 RMK AO2 PK WND 21031/0732 CIG 007V012 FZRANO $PAJZ2020-04-05T07:34:00Z59.73-157.271.0-1.021026317.029.878937TRUETRUETRUETRUEMVFRMETAR82.02020-04-05 07:48:17 ~%O~~zD)E5       3KMLP 050734Z AUTO 1 1/4SM -SN BR OVC028 M04/M06 A2955 RMK AO2 SNB02 P0000 T10441061 FZRANO $KMLP2020-04-05T07:34:00Z47.45-115.67-4.4-6.11.2529.551182TRUETRUETRUETRUE-SN BRIFR0.005SPECI1837.02020-04-05 07:48:17KC) 5    3KMKE 050734Z 36004KT 7SM BKN004 01/M01 A3016 RMK AO2 T00111006 $KMKE2020-04-05T07:34:00Z42.95-87.91.1-0.636047.030.159449TRUETRUELIFRSPECI206.02020-04-05 07:48:17PB)5     3KLEB 050734Z AUTO 05003KT 1 3/4SM BR BKN001 02/01 A3000 RMK AO2 T00220011KLEB2020-04-05T07:34:00Z43.63-72.32.21.15031.7530.0TRUETRUEBRLIFRSPECI171.02020-04-05 07:48:17UA)!5    3KLAF 050734Z AUTO 01007KT 10SM BKN012 OVC100 04/02 A3010 RMK AO2 T00390017KLAF2020-04-05T07:34:00Z40.42-86.933.91.710710.030.100393TRUETRUEMVFRSPECI182.02020-04-05 07:48:17 .ePH)5     3KRVS 050733Z AUTO 00000KT 6SM BR OVC004 07/05 A3009 RMK AO2 T00670050KRVS2020-04-05T07:33:00Z36.05-95.986.75.0006.030.088583TRUETRUEBRLIFRSPECI200.02020-04-05 07:48:17CG({5    3KETH 050733Z AUTO 13011KT 10SM CLR 00/M02 A3007 RMK AO2KETH2020-04-05T07:33:00Z45.78-96.550.0-2.01301110.030.070866TRUETRUEVFRSPECI313.02020-04-05 07:48:17CF(y5     3CYED 050733Z AUTO 11006KT 7SM -SN OVC013 M09/M11 A2990CYED2020-04-05T07:33:00Z53.67-113.47-9.0-11.011067.029.899607TRUE-SNMVFRSPECI688.02020-04-05 07:48:17LE)5     3KTTN 050734Z AUTO 00000KT 4SM BR CLR 06/04 A3003 RMK AO2 T00560044KTTN2020-04-05T07:34:00Z40.28-74.825.64.4004.030.029528TRUETRUEBRMVFRSPECI59.02020-04-05 07:48:17 7 .7qL)G5     3KLVK 050733Z AUTO 00000KT 6SM -RA BR FEW025 BKN035 OVC045 11/10 A2974 RMK AO2 T01060100 PNO $KLVK2020-04-05T07:33:00Z37.7-121.8210.610.0006.029.740158TRUETRUETRUE-RA BRVFRSPECI117.02020-04-05 07:48:17XK)!5  3CYAM 050733Z 32011G18KT 20SM SCT014 OVC017 M00/M04 A3014 RMK SC3SC5 SLP218CYAM2020-04-05T07:33:00Z46.47-84.520.0-4.0320111820.030.1387791021.8MVFRSPECI192.02020-04-05 07:48:17hJ)'5      3PPIZ 050733Z AUTO 35015KT 2 1/2SM -SN BR M06/M07 A2924 RMK AO2 P0000 FZRANO $PPIZ2020-04-05T07:33:00Z69.73-163.0-6.0-7.0350152.529.241142TRUETRUETRUETRUE-SN BR0.005SPECI8.02020-04-05 07:48:17I)a5    3PANA 050733Z AUTO 23024G40KT 10SM SCT014 BKN020 OVC025 00/M02 A2967 RMK AO2 PK WND 23040/0728 PWINO FZRANOPANA2020-04-05T07:33:00Z60.68-161.980.0-2.0230244010.029.66929TRUETRUETRUETRUEMVFRMETAR5.02020-04-05 07:48:17 o6conP)G5      3KACV 050732Z AUTO 00000KT 5SM -RA BR BKN005 BKN028 OVC033 09/08 A2957 RMK AO2 P0006 T00940078KACV2020-04-05T07:32:00Z40.98-124.19.47.8005.029.568897TRUETRUE-RA BRIFR0.06SPECI67.02020-04-05 07:48:17MO)5    3KORB 050733Z AUTO 00000KT 10SM SCT090 BKN110 M03/M09 A3011 RMK AO2KORB2020-04-05T07:33:00Z48.02-92.87-3.0-9.00010.030.109253TRUETRUEVFRSPECI397.02020-04-05 07:48:17TN)%5     3KFTW 050733Z 33003KT 6SM BR OVC009 07/07 A3006 RMK AO2 CIG 005V011 T00720072KFTW2020-04-05T07:33:00Z32.83-97.377.27.233036.030.059055TRUEBRIFRSPECI214.02020-04-05 07:48:17jM)A5     3KSFO 050733Z 20009KT 10SM BKN020 BKN027 OVC040 12/09 A2974 RMK AO2 RAE32 P0003 T01170094 $KSFO2020-04-05T07:33:00Z37.62-122.3711.79.4200910.029.740158TRUETRUEMVFR0.03SPECI3.02020-04-05 07:48:17 N5XRN~T)c5     3PABE 050732Z 22031G44KT 9SM -SN SCT010 BKN018 OVC027 00/M02 A2966 RMK AO2 PK WND 21048/0708 P0000 T00001022PABE2020-04-05T07:32:00Z60.78-161.830.0-2.222031449.029.660433TRUE-SNMVFR0.005SPECI28.02020-04-05 07:48:17S)W5      3KWVI 050732Z AUTO 21015KT 6SM -RA BR FEW008 SCT027 OVC036 12/12 A2979 RMK AO2 RAB15 P0002 T01220117 $KWVI2020-04-05T07:32:00Z36.93-121.7812.211.7210156.029.790354TRUETRUETRUE-RA BRVFR0.02METAR43.02020-04-05 07:48:17WR)5     3KMLC 050732Z AUTO 35004KT 1 1/4SM BR OVC003 06/06 A3008 RMK AO2 T00610056KMLC2020-04-05T07:32:00Z34.88-95.786.15.635041.2530.079725TRUETRUEBRLIFRSPECI232.02020-04-05 07:48:17EQ)5    3KAQP 050732Z AUTO 13006KT 10SM BKN100 01/M03 A3008 RMK AO2KAQP2020-04-05T07:32:00Z45.22-96.01.0-3.0130610.030.079725TRUETRUEVFRSPECI311.02020-04-05 07:48:17 DjX)75    3KFSI 050731Z AUTO 11003KT 10SM SCT010 OVC027 06/06 A3007 RMK AO2 CIG 010V027 SLP185 $KFSI2020-04-05T07:31:00Z34.65-98.46.06.0110310.030.0708661018.5TRUETRUETRUEMVFRSPECI362.02020-04-05 07:48:17SW)#5     3FSIA 050732Z VRB03KT 9999 -RA FEW010 FEW015CB BKN018 27/25 Q1013 RETS NOSIGFSIA2020-04-05T07:32:00Z-4.6755.5227.025.0036.2129.911417TRUE-RAMVFRSPECI3.02020-04-05 07:48:17.V(u5   3FACV 050732Z AUTO 31001KT //// // ////// 18/04 Q1016FACV2020-04-05T07:32:00Z-31.519.7218.04.0310130.0TRUESPECI977.02020-04-05 07:48:176U(w5   3FASB 050732Z AUTO 36008KT //// // ////// 21/M02 Q1017FASB2020-04-05T07:32:00Z-29.6817.9321.0-2.0360830.029528TRUESPECI813.02020-04-05 07:48:17 Exl\)C5    3LEVX 050730Z 20014KT 160V220 0700 R19/P2000 R01/1100U -DZ BCFG VV001 12/12 Q1009 TEMPO 0800LEVX2020-04-05T07:30:00Z42.22-8.6212.012.0200140.4329.793306BCFG -DZLIFR100SPECI256.02020-04-05 07:48:176[(s5    3LFSI 050730Z AUTO 12005KT 090V150 CAVOK 14/02 Q1020LFSI2020-04-05T07:30:00Z48.624.914.02.012056.2130.11811TRUEVFRMETAR140.02020-04-05 07:48:17GZ(}5    3KC99 050731Z AUTO 20003KT 10SM CLR M03/M11 A2994 RMK AO2KC992020-04-05T07:31:00Z39.87-105.55-3.0-11.0200310.029.940945TRUETRUEVFRSPECI3334.02020-04-05 07:48:175Y(u5   3FAEO 050731Z AUTO 25009KT //// // ////// 14/11 Q1022FAEO2020-04-05T07:31:00Z-26.529.9714.011.0250930.177166TRUESPECI1737.02020-04-05 07:48:17 DkW`)+5    3UUBP 050730Z 30008MPS 9999 SCT033 05/M03 Q1027 R16/CLRD70 NOSIG RMK QFE752/1003UUBP2020-04-05T07:30:00Z53.2234.185.0-3.0300166.2130.324802TRUEVFRMETAR202.02020-04-05 07:48:17P_)5    3UIII 050730Z 36005MPS CAVOK 07/M09 Q1032 R30/CLRD60 NOSIG RMK QFE728/0971UIII2020-04-05T07:30:00Z52.27104.47.0-9.0360106.2130.47244TRUEVFRMETAR513.02020-04-05 07:48:17S^)%5    3UIBB 050730Z 17002MPS 9999 NSC 05/M09 Q1036 R30/911060 NOSIG RMK QFE733/0978UIBB2020-04-05T07:30:00Z56.37101.75.0-9.017046.2130.590551TRUEVFRMETAR490.02020-04-05 07:48:176](u5   3LEPP 050730Z 11006KT 080V150 9999 BKN049 10/02 Q1018LEPP2020-04-05T07:30:00Z42.77-1.6510.02.011066.2130.059055VFRMETAR459.02020-04-05 07:48:17 &UGd)5    3UWUU 050730Z 21006MPS 180V250 CAVOK 07/02 Q1012 R32L/0///60 NOSIGUWUU2020-04-05T07:30:00Z54.5755.877.02.0210126.2129.88189TRUEVFRMETAR137.02020-04-05 07:48:17Pc)#5    3USCC 050730Z 31005MPS 9999 FEW020CB 08/02 Q1009 R27/000060 NOSIG RMK QFE737USCC2020-04-05T07:30:00Z55.361.58.02.0310106.2129.793306TRUEVFRMETAR234.02020-04-05 07:48:17Kb)5    3USNN 050730Z 15006MPS CAVOK 06/M05 Q1018 R21/0///65 NOSIG RMK QFE758USNN2020-04-05T07:30:00Z60.9576.486.0-5.0150126.2130.059055TRUEVFRMETAR54.02020-04-05 07:48:17Ta)%5    3UIUU 050730Z 02008MPS 9999 NSC 07/M11 Q1030 R08/CLRD60 NOSIG RMK QFE726/0969UIUU2020-04-05T07:30:00Z51.8107.457.0-11.020166.2130.413385TRUEVFRMETAR515.02020-04-05 07:48:17 B:iB?i)5    3DIAP 050730Z 01004KT 320V030 8000 FEW012 26/25 Q1011 NOSIGDIAP2020-04-05T07:30:00Z5.25-3.9226.025.01044.9729.852362TRUEMVFRMETAR8.02020-04-05 07:48:172h(e5    3GABS 050730Z 07004KT CAVOK 29/13 Q1014 NOSIGGABS2020-04-05T07:30:00Z12.52-7.9529.013.07046.2129.940945TRUEVFRMETAR381.02020-04-05 07:48:17$g(Y5   3EISG 050730Z 11012KT CAVOK 09/05 Q1000EISG2020-04-05T07:30:00Z54.28-8.69.05.0110126.2129.52756VFRMETAR3.02020-04-05 07:48:17Kf)5    3USRR 050730Z 16007MPS CAVOK 08/M03 Q1011 R07/11//55 NOSIG RMK QFE754USRR2020-04-05T07:30:00Z61.3373.428.0-3.0160146.2129.852362TRUEVFRMETAR44.02020-04-05 07:48:17@e(y5    3KNQA 050730Z AUTO 35005KT 10SM CLR 10/08 A3003 RMK A01KNQA2020-04-05T07:30:00Z35.35-89.8710.08.0350510.030.029528TRUETRUEVFRSPECI86.02020-04-05 07:48:17 A8n(o5    3YLHI 050730Z AUTO 21005KT 9999 // NCD 21/20 Q1013YLHI2020-04-05T07:30:00Z-31.53159.0721.020.021056.2129.911417TRUEVFRMETAR2.02020-04-05 07:48:17Gm) 5    3YCIN 050730Z AUTO 26009KT 9999 // NCD 40/12 Q1006 RF00.0/000.0YCIN2020-04-05T07:30:00Z-17.58123.8340.012.026096.2129.704725TRUEVFRMETAR91.02020-04-05 07:48:17Wl)/5    3USSS 050730Z 28003MPS 250V330 CAVOK 09/00 Q1009 R26R/290040 NOSIG RMK QFE736/0981USSS2020-04-05T07:30:00Z56.7560.829.00.028066.2129.793306TRUEVFRMETAR233.02020-04-05 07:48:174k(s5    3RJBB 050730Z 35016KT 9999 FEW030 14/M00 Q1016 NOSIGRJBB2020-04-05T07:30:00Z34.42135.2514.00.0350166.2130.0TRUEVFRMETAR8.02020-04-05 07:48:179j(s5    3RJGG 050730Z 33026KT 9999 FEW030 11/M01 Q1014 NOSIGRJGG2020-04-05T07:30:00Z34.87136.811.0-1.0330266.2129.940945TRUEVFRMETAR5.02020-04-05 07:48:17 5zGr) 5    3YPPD 050730Z AUTO 34011KT 9999 // NCD 37/20 Q1008 RF00.0/000.0YPPD2020-04-05T07:30:00Z-20.37118.6237.020.0340116.2129.763779TRUEVFRMETAR6.02020-04-05 07:48:17Jq)5    3YBRK 050730Z AUTO 12005KT 9999 // SCT056 30/19 Q1011 RF00.0/000.0YBRK2020-04-05T07:30:00Z-23.37150.4730.019.012056.2129.852362TRUEVFRMETAR14.02020-04-05 07:48:175p(o5    3YWLM 050730Z AUTO 33008KT 9999 // NCD 22/09 Q1012YWLM2020-04-05T07:30:00Z-32.8151.8322.09.033086.2129.88189TRUEVFRMETAR9.02020-04-05 07:48:17Eo) 5    3YCFS 050730Z AUTO 01006KT 9999 // NCD 21/13 Q1014 RF00.0/000.2YCFS2020-04-05T07:30:00Z-30.32153.1221.013.01066.2129.940945TRUEVFRMETAR5.02020-04-05 07:48:17 .^Iv)5    3YPCC 050730Z AUTO 23013KT 9999 // SCT019 31/26 Q1009 RF00.0/000.0YPCC2020-04-05T07:30:00Z-12.1796.8231.026.0230136.2129.793306TRUEVFRMETAR3.02020-04-05 07:48:170u(e5   3YMHB 050730Z 29011KT 9999 FEW040 10/00 Q1001YMHB2020-04-05T07:30:00Z-42.82147.5210.00.0290116.2129.557087VFRMETAR27.02020-04-05 07:48:17Jt)5    3YMLT 050730Z AUTO 30013KT 9999 // SCT081 09/02 Q1002 RF00.0/006.0YMLT2020-04-05T07:30:00Z-41.52147.189.02.0300136.2129.586615TRUEVFRMETAR178.02020-04-05 07:48:17Ls)5    3YSNF 050730Z AUTO 08014KT 9999 // BKN021 21/17 Q1017 RF00.0/000.0YSNF2020-04-05T07:30:00Z-29.02167.9221.017.080146.2130.029528TRUEMVFRMETAR109.02020-04-05 07:48:17 3sez)C5    3YPKG 050730Z AUTO 10010KT 9999 // OVC125 23/03 Q1017 RF00.0/000.0 PRESENT WEATHER SENSOR USYPKG2020-04-05T07:30:00Z-30.77121.4523.03.0100106.2130.029528TRUEVFRMETAR360.02020-04-05 07:48:17Fy) 5    3YPLM 050730Z AUTO 03011KT 9999 // NCD 30/21 Q1009 RF00.0/000.0YPLM2020-04-05T07:30:00Z-22.22114.0730.021.030116.2129.793306TRUEVFRMETAR6.02020-04-05 07:48:17:x(o5    3YPTN 050730Z AUTO 07011KT 9999 // NCD 33/20 Q1008YPTN2020-04-05T07:30:00Z-14.52132.3833.020.070116.2129.763779TRUEVFRMETAR109.02020-04-05 07:48:17Gw) 5    3YBRM 050730Z AUTO 29011KT 9999 // NCD 34/19 Q1007 RF00.0/000.0YBRM2020-04-05T07:30:00Z-17.93122.2234.019.0290116.2129.734253TRUEVFRMETAR9.02020-04-05 07:48:17 5c|A~) 5    3YBAS 050730Z AUTO 13010KT 9999 // NCD 25/02 Q1016 RF00.0/000.0YBAS2020-04-05T07:30:00Z-23.8133.925.02.0130106.2130.0TRUEVFRMETAR541.02020-04-05 07:48:17a})?5    3YBCS 050730Z AUTO 21003KT 9999 // NCD 29/24 Q1009 RF00.0/000.0 FM1000 16005KT 9999 SCT025YBCS2020-04-05T07:30:00Z-16.87145.7529.024.021036.2129.793306TRUEVFRMETAR7.02020-04-05 07:48:17L|)5    3YSCB 050730Z AUTO 32016KT 9999 // BKN037 OVC043 OVC048 12/07 Q1014YSCB2020-04-05T07:30:00Z-35.28149.1712.07.0320166.2129.940945TRUEVFRMETAR577.02020-04-05 07:48:17E{) 5    3YBCG 050730Z AUTO 17007KT 9999 // NCD 22/16 Q1014 RF00.0/000.0YBCG2020-04-05T07:30:00Z-28.17153.522.016.017076.2129.940945TRUEVFRMETAR6.02020-04-05 07:48:17 +S9(q5    3YBBN 050730Z 11008KT 9999 FEW040 24/16 Q1013 NOSIGYBBN2020-04-05T07:30:00Z-27.38153.1324.016.011086.2129.911417TRUEVFRMETAR5.02020-04-05 07:48:17@(5    3URFF 050730Z 07009MPS CAVOK 15/M03 Q1025 R01/090095 NOSIGURFF2020-04-05T07:30:00Z45.0333.9815.0-3.070176.2130.265747TRUEVFRMETAR188.02020-04-05 07:48:17R)5   3UERR 050730Z 26006G11MPS CAVOK 02/M07 Q1021 R25/910350 NOSIG RMK QFE735UERR2020-04-05T07:30:00Z62.53114.052.0-7.026012216.2130.147638TRUEVFRMETAR347.02020-04-05 07:48:17O)5     3WBGG 050730Z 34005KT 300V030 9999 TS FEW015CB SCT018 30/25 Q1009 NOSIGWBGG2020-04-05T07:30:00Z1.47110.3530.025.034056.2129.793306TRUETSVFRMETAR27.02020-04-05 07:48:17 RK)5    3YPGV 050730Z AUTO 11011KT 9999 // SCT029 30/23 Q1009 RF00.0/000.0YPGV2020-04-05T07:30:00Z-12.27136.8230.023.0110116.2129.793306TRUEVFRMETAR55.02020-04-05 07:48:17G) 5    3YBHM 050730Z AUTO 10013KT 9999 // NCD 27/22 Q1011 RF00.0/000.0YBHM2020-04-05T07:30:00Z-20.35148.9527.022.0100136.2129.852362TRUEVFRMETAR5.02020-04-05 07:48:17G) 5    3YBMA 050730Z AUTO 15008KT 9999 // NCD 30/04 Q1013 RF00.0/000.0YBMA2020-04-05T07:30:00Z-20.67139.4730.04.015086.2129.911417TRUEVFRMETAR344.02020-04-05 07:48:17[)C5   3YPAD 050730Z 25019KT 9999 FEW025 BKN055 18/13 Q1016 INTER 0730/1030 5000 SHRA SCT015 BKN020YPAD2020-04-05T07:30:00Z-34.95138.5218.013.0250196.2130.0VFRMETAR4.02020-04-05 07:48:17 0j2 (e5    3YSSY 050730Z 27012KT CAVOK 22/05 Q1012 NOSIGYSSY2020-04-05T07:30:00Z-33.95151.1722.05.0270126.2129.88189TRUEVFRMETAR3.02020-04-05 07:48:17C ) 5    3YSDU 050730Z AUTO 25008KT 9999 // NCD 18/10 Q1016 RF00.0/000.2YSDU2020-04-05T07:30:00Z-32.22148.5718.010.025086.2130.0TRUEVFRMETAR275.02020-04-05 07:48:17H ) 5    3YPWR 050730Z AUTO 24012KT 9999 // NCD 21/07 Q1018 RF00.0/000.0YPWR2020-04-05T07:30:00Z-31.12136.8221.07.0240126.2130.059055TRUEVFRMETAR167.02020-04-05 07:48:17@(5    3YPDN 050730Z 25002KT 9999 FEW017 BKN240 29/25 Q1008 NOSIGYPDN2020-04-05T07:30:00Z-12.42130.929.025.025026.2129.763779TRUEVFRMETAR30.02020-04-05 07:48:17J)5    3YPKU 050730Z AUTO 02012KT 9999 // SCT064 37/22 Q1006 RF00.0/000.0YPKU2020-04-05T07:30:00Z-15.77128.6837.022.020126.2129.704725TRUEVFRMETAR45.02020-04-05 07:48:17 G:p;(u5    3YPEA 050730Z AUTO 09011KT 9999 // OVC110 27/04 Q1013YPEA2020-04-05T07:30:00Z-31.67116.0227.04.090116.2129.911417TRUEVFRMETAR49.02020-04-05 07:48:17D) 5    3YSRI 050730Z AUTO 24009KT 9999 // NCD 21/08 Q1012 RF00.0/000.0YSRI2020-04-05T07:30:00Z-33.6150.7721.08.024096.2129.88189TRUEVFRMETAR21.02020-04-05 07:48:17 )5   3YMML 050730Z 27009KT 9999 FEW038 BKN043 14/13 Q1010 INTER 0730/1030 26015G25KT 4000 SHRA BKN015 FM0730 MOD TURB BLW 5000FT TL1000YMML2020-04-05T07:30:00Z-37.67144.8214.013.027096.2129.822834VFRMETAR141.02020-04-05 07:48:173 (e5    3YPPH 050730Z 09015KT CAVOK 26/08 Q1013 NOSIGYPPH2020-04-05T07:30:00Z-31.93115.9826.08.090156.2129.911417TRUEVFRMETAR13.02020-04-05 07:48:17 "8x"F) 5    3YGEL 050730Z AUTO 25013KT 9999 // NCD 28/14 Q1011 RF00.0/000.0YGEL2020-04-05T07:30:00Z-28.8114.728.014.0250136.2129.852362TRUEVFRMETAR37.02020-04-05 07:48:179(o5    3YAMB 050730Z AUTO 08010KT 9999 // NCD 25/14 Q1013YAMB2020-04-05T07:30:00Z-27.63152.7225.014.080106.2129.911417TRUEVFRMETAR28.02020-04-05 07:48:17E) 5    3YGLA 050730Z AUTO 07009KT 9999 // NCD 27/22 Q1012 RF00.0/000.0YGLA2020-04-05T07:30:00Z-23.87151.2227.022.07096.2129.88189TRUEVFRMETAR52.02020-04-05 07:48:17:(q5    3WIHH 050730Z 36007KT 6000 SCT020 32/25 Q1008 NOSIGWIHH2020-04-05T07:30:00Z-6.25106.8832.025.036073.7329.763779TRUEMVFRMETAR25.02020-04-05 07:48:17B)5    3WAAA 050730Z 31006KT 260V010 9999 FEW019 32/24 Q1008 NOSIGWAAA2020-04-05T07:30:00Z-5.07119.5332.024.031066.2129.763779TRUEVFRMETAR14.02020-04-05 07:48:17 7zY))5     3UTTT 050730Z 05008KT 020V080 9999 -SHRA BKN047CB 17/12 Q1020 R08R/29//50 NOSIGUTTT2020-04-05T07:30:00Z41.2769.2717.012.05086.2130.11811TRUE-SHRAVFRMETAR489.02020-04-05 07:48:17G)5   3YPJT 050730Z AUTO 10012KT 9999 // ////// 24/10 Q1014 RF00.0/000.0YPJT2020-04-05T07:30:00Z-32.1115.8824.010.0100126.2129.940945TRUEMETAR30.02020-04-05 07:48:177(o5    3YHID 050730Z AUTO 06005KT 9999 // NCD 29/24 Q1009YHID2020-04-05T07:30:00Z-10.58142.329.024.06056.2129.793306TRUEVFRMETAR13.02020-04-05 07:48:17C) 5    3YSTW 050730Z AUTO 32005KT 9999 // NCD 18/11 Q1016 RF00.0/000.0YSTW2020-04-05T07:30:00Z-31.07150.8518.011.032056.2130.0TRUEVFRMETAR410.02020-04-05 07:48:17 "<o"J)5    3UTSA 050730Z 05008KT 010V090 6000 NSC 22/11 Q1018 R07/CLRD70 NOSIGUTSA2020-04-05T07:30:00Z40.1265.1722.011.05083.7330.059055TRUEMVFRMETAR346.02020-04-05 07:48:17>({5    3UTSB 050730Z 02012KT CAVOK 22/13 Q1018 R01/CLRD70 NOSIGUTSB2020-04-05T07:30:00Z39.7764.4822.013.020126.2130.059055TRUEVFRMETAR226.02020-04-05 07:48:173(o5   3UTSK 050730Z VRB02KT CAVOK 23/13 Q1018 R16/CLRD70UTSK2020-04-05T07:30:00Z38.8365.7723.013.0026.2130.059055VFRMETAR1365.02020-04-05 07:48:17G) 5    3UTST 050730Z 35004KT 9999 FEW060CB 21/11 Q1018 R88/CLRD70 NOSIGUTST2020-04-05T07:30:00Z37.2867.3221.011.035046.2130.059055TRUEVFRMETAR302.02020-04-05 07:48:17>)5   3UTFF 050730Z 04004KT 010V110 9999 NSC 21/09 Q1017 R99/CLRD70UTFF2020-04-05T07:30:00Z40.3771.7721.09.04046.2130.029528VFRMETAR577.02020-04-05 07:48:17 2>{2@")5    3WIMM 050730Z 02006KT 9999 FEW016CB SCT017 30/26 Q1008 NOSIGWIMM2020-04-05T07:30:00Z3.5798.6730.026.02066.2129.763779TRUEVFRMETAR25.02020-04-05 07:48:176!(q5    3VOAT 050730Z 00000KT 6000 FEW015 32/23 Q1013 NOSIGVOAT2020-04-05T07:30:00Z10.8272.1832.023.0003.7329.911417TRUEMVFRMETAR4.02020-04-05 07:48:17A )5    3UTFN 050730Z 19006KT 9999 NSC 22/07 Q1017 R28/CLRD70 NOSIGUTFN2020-04-05T07:30:00Z40.9871.5722.07.019066.2130.029528TRUEVFRMETAR490.02020-04-05 07:48:17=(}5    3UTNN 050730Z 01006KT CAVOK 17/M03 Q1023 R33/CLRD60 NOSIGUTNN2020-04-05T07:30:00Z42.4859.6317.0-3.01066.2130.206694TRUEVFRMETAR67.02020-04-05 07:48:17<({5    3UTNU 050730Z 03012KT CAVOK 17/05 Q1022 R31/CLRD70 NOSIGUTNU2020-04-05T07:30:00Z41.5860.6317.05.030126.2130.177166TRUEVFRMETAR98.02020-04-05 07:48:17 7.y7@')5    3VOBL 050730Z 19005KT 100V260 9999 FEW012 32/15 Q1017 NOSIGVOBL2020-04-05T07:30:00Z13.277.732.015.019056.2130.029528TRUEVFRMETAR915.02020-04-05 07:48:17:&(u5    3LFHP 050730Z AUTO 16011KT 120V200 CAVOK 11/M03 Q1020LFHP2020-04-05T07:30:00Z45.073.7711.0-3.0160116.2130.11811TRUEVFRMETAR833.02020-04-05 07:48:176%(q5   3LFLW 050730Z AUTO 12016KT 9999 ////// 12/M02 Q1019LFLW2020-04-05T07:30:00Z44.882.4212.0-2.0120166.2130.088583TRUEMETAR639.02020-04-05 07:48:17/$(c5    3LFQG 050730Z AUTO 12012KT CAVOK 11/02 Q1019LFQG2020-04-05T07:30:00Z47.03.111.02.0120126.2130.088583TRUEVFRMETAR181.02020-04-05 07:48:17L#)5    3WADD 050730Z 13005KT 090V220 9999 FEW015CB SCT015 31/27 Q1007 NOSIGWADD2020-04-05T07:30:00Z-8.73115.1731.027.013056.2129.734253TRUEVFRMETAR216.02020-04-05 07:48:17 -UE+)!5    3WALL 050730Z 06012KT 9999 TS FEW018CB SCT018 30/27 Q1007RMK CB TO W AND NWWALL2020-04-05T07:30:00Z-1.27116.930.027.060126.21TSVFRMETAR3.02020-04-05 07:48:178*(q5    3WAPP 050730Z 20009KT 9999 SCT018 32/24 Q1007 NOSIGWAPP2020-04-05T07:30:00Z-3.7128.0732.024.020096.2129.734253TRUEVFRMETAR12.02020-04-05 07:48:17R))5    3WATT 050730Z 30009KT 9999 FEW015CB SCT016 32/26 Q1008 NOSIG RMK CB TO NEWATT2020-04-05T07:30:00Z-10.17123.6732.026.030096.2129.763779TRUEVFRMETAR102.02020-04-05 07:48:17M()5     3WAHS 050730Z 18007KT 2000 -TSRA FEW013CB SCT014 27/23 Q1008 NOSIGWAHS2020-04-05T07:30:00Z-6.98110.3827.023.018071.2429.763779TRUE-TSRAIFRMETAR5.02020-04-05 07:48:17 >iV/)5   3KDWX 050730Z AUTO 24005G15KT 10SM OVC090 02/M05 A2982 RMK AO2 T00221049KDWX2020-04-05T07:30:00Z41.03-107.52.2-4.924051510.029.819881TRUETRUEVFRMETAR1996.02020-04-05 07:48:17J.) 5    3KAZE 050730Z AUTO 00000KT 10SM CLR 18/11 A2993 RMK AO2 T01760110KAZE2020-04-05T07:30:00Z31.88-82.6517.611.00010.029.929134TRUETRUEVFRMETAR78.02020-04-05 07:48:17O-)5     3K1K1 050730Z AUTO 00000KT 4SM BR OVC007 03/02 A3007 RMK AO2 T00320022K1K12020-04-05T07:30:00Z37.77-97.123.22.2004.030.070866TRUETRUEBRIFRMETAR416.02020-04-05 07:48:17<,(}5    3WIDD 050730Z 07010KT 9999 TS FEW013CB FEW014 33/25 Q1009WIDD2020-04-05T07:30:00Z1.12104.1233.025.070106.2129.793306TSVFRMETAR38.02020-04-05 07:48:17 +fT3)5    3KHSG 050730Z AUTO 25003KT 10SM SCT120 M04/M07 A2972 RMK AO2 T10401075KHSG2020-04-05T07:30:00Z43.72-108.38-4.0-7.5250310.029.719488TRUETRUEVFRMETAR1494.02020-04-05 07:48:17R2)5    3KBMC 050730Z AUTO 19004KT 10SM OVC100 08/M03 A2968 RMK AO1 T00791027KBMC2020-04-05T07:30:00Z41.55-112.077.9-2.7190410.029.681103TRUETRUEVFRMETAR1288.02020-04-05 07:48:17?1(y5    3KCNI 050730Z AUTO 00000KT 10SM CLR 13/06 A2997 RMK AO2KCNI2020-04-05T07:30:00Z34.32-84.4213.06.00010.029.970472TRUETRUEVFRMETAR372.02020-04-05 07:48:17O0)5    3KCVB 050730Z AUTO 00000KT 10SM OVC012 15/15 A3003 RMK AO2 T01450145KCVB2020-04-05T07:30:00Z29.35-98.8514.514.50010.030.029528TRUETRUEMVFRMETAR235.02020-04-05 07:48:17 4_{M7)5    3KRBO 050730Z AUTO 34009KT 7SM OVC002 13/12 A2998 RMK AO2 T01290121KRBO2020-04-05T07:30:00Z27.78-97.6812.912.134097.029.97933TRUETRUELIFRMETAR24.02020-04-05 07:48:17^6)+5     3KRQO 050730Z AUTO 10004KT 10SM BKN011 OVC034 05/03 A3008 RMK AO2 TSNO T00480033KRQO2020-04-05T07:30:00Z35.47-98.04.83.3100410.030.079725TRUETRUETRUEMVFRMETAR432.02020-04-05 07:48:17O5)5      3KRWV 050730Z AUTO 36007KT 3/4SM BR OVC003 09/ A3003 RMK AO2 T0093////KRWV2020-04-05T07:30:00Z30.52-96.79.336070.7530.029528TRUETRUEBRLIFRMETAR119.02020-04-05 07:48:17F4)5      3KGVT 050730Z AUTO 34004KT 3/4SM BR OVC002 09/ A3007 RMK AO2KGVT2020-04-05T07:30:00Z33.07-96.079.034040.7530.070866TRUETRUEBRLIFRMETAR163.02020-04-05 07:48:17 1iO;)5     3HECA 050730Z 30013KT 0500 R05C/0500 R23C/0500 SS NSC 22/08 Q1012 NOSIGHECA2020-04-05T07:30:00Z30.1231.3822.08.0300130.3129.88189TRUESSLIFRSPECI74.02020-04-05 07:48:17@:(y5    3KSBO 050730Z AUTO 00000KT 10SM CLR 15/10 A2996 RMK AO2KSBO2020-04-05T07:30:00Z32.62-82.3715.010.00010.029.958662TRUETRUEVFRMETAR100.02020-04-05 07:48:17B9(5    3KVES 050730Z AUTO 36006KT 10SM OVC007 06/05 A3006 RMK AO2KVES2020-04-05T07:30:00Z40.2-84.536.05.0360610.030.059055TRUETRUEIFRMETAR307.02020-04-05 07:48:17I8) 5    3KNOW 050730Z AUTO 20003KT 10SM CLR 05/02 A2968 RMK AO2 T00500016KNOW2020-04-05T07:30:00Z48.13-123.45.01.6200310.029.681103TRUETRUEVFRMETAR4.02020-04-05 07:48:17 2U[?)95    3URKA 050730Z 05004MPS 030V090 9999 BKN029 12/05 Q1024 R04/010070 NOSIG RMK QFE764/1019URKA2020-04-05T07:30:00Z45.037.3512.05.05086.2130.236221TRUEMVFRMETAR53.02020-04-05 07:48:17L>)5   3UUOB 050730Z 32007G12MPS 9999 BKN040 08/M07 Q1027 R29/010060 NOSIGUUOB2020-04-05T07:30:00Z50.6536.588.0-7.032014236.2130.324802TRUEVFRMETAR224.02020-04-05 07:48:17W=)+5    3UUOK 050730Z 31006MPS 9999 FEW033 07/M05 Q1026 R30/090060 NOSIG RMK QFE751/1001UUOK2020-04-05T07:30:00Z51.7536.287.0-5.0310126.2130.295275TRUEVFRMETAR209.02020-04-05 07:48:17H<) 5    3K2J5 050730Z AUTO 00000KT 10SM CLR 13/10 A2996 RMK AO2 T01260098K2J52020-04-05T07:30:00Z32.9-81.9712.69.80010.029.958662TRUETRUEVFRMETAR72.02020-04-05 07:48:17 *SwVC)%5   3UWKE 050730Z 33005G10MPS CAVOK 06/M03 Q1013 R21/090070 NOSIG RMK QFE743/0990UWKE2020-04-05T07:30:00Z55.5752.086.0-3.033010196.2129.911417TRUEVFRMETAR196.02020-04-05 07:48:17VB)-5    3UWOO 050730Z 21004MPS 170V250 CAVOK 13/04 Q1015 R26/290050 NOSIG RMK QFE751/1001UWOO2020-04-05T07:30:00Z51.855.4713.04.021086.2129.970472TRUEVFRMETAR109.02020-04-05 07:48:17QA)5    3UWSG 050730Z 32008MPS CAVOK 11/M05 Q1018 R26/CLRD70 NOSIG RMK QFE761/1014UWSG2020-04-05T07:30:00Z51.7246.1711.0-5.0320166.2130.059055TRUEVFRMETAR31.02020-04-05 07:48:17P@)+5    3UWWW 050730Z 29004MPS 9999 SCT033 07/M02 Q1016 R33/CLRD60 NOSIG RMK QFE751/1001UWWW2020-04-05T07:30:00Z53.550.177.0-2.029086.2130.0TRUEVFRMETAR146.02020-04-05 07:48:17 .WFG) 5    3UWGG 050730Z 29004MPS 9999 SCT033 06/M07 Q1019 R36R/090060 NOSIGUWGG2020-04-05T07:30:00Z56.2343.786.0-7.029086.2130.088583TRUEVFRMETAR73.02020-04-05 07:48:17PF)!5    3USCM 050730Z 25004MPS 9999 FEW040 11/M03 Q1012 R36/090060 NOSIG RMK QFE721USCM2020-04-05T07:30:00Z53.458.7511.0-3.025086.2129.88189TRUEVFRMETAR435.02020-04-05 07:48:17QE)#5    3USPP 050730Z 12002MPS 9999 BKN042CB 04/02 Q1010 R21/090060 NOSIG RMK QFE747USPP2020-04-05T07:30:00Z57.9256.024.02.012046.2129.822834TRUEVFRMETAR123.02020-04-05 07:48:17LD)5    3UWKD 050730Z 32007MPS CAVOK 06/M09 Q1016 R29/CLRD60 NOSIG RMK QFE751/1001UWKD2020-04-05T07:30:00Z55.6249.286.0-9.0320146.2130.0TRUEVFRMETAR126.02020-04-05 07:48:17 n(-EnQK)#5    3URMM 050730Z 29004MPS 9999 NSC 12/04 Q1023 R12/090070 NOSIG RMK QFE739/0985URMM2020-04-05T07:30:00Z44.2243.112.04.029086.2130.206694TRUEVFRMETAR314.02020-04-05 07:48:17bJ)G5    3URML 050730Z 14004MPS 9999 SCT004 10/07 Q1023 R14/01//70 NOSIG RMK QBB140 MT OBSC QFE767/1023URML2020-04-05T07:30:00Z42.8247.6510.07.014086.2130.206694TRUEVFRMETAR4.02020-04-05 07:48:17uI)k5    3URMG 050730Z 14002MPS 100V170 9000 SCT010 BKN/// 11/09 Q1023 R26/090070 NOSIG RMK MT OBSC OBST OBSC QFE752/1003URMG2020-04-05T07:30:00Z43.3745.711.09.014045.5930.206694TRUEVFRMETAR263.02020-04-05 07:48:17RH)'5    3URKK 050730Z 01002MPS 340V050 CAVOK 11/M00 Q1025 R23L/CLRD70 NOSIG RMK QFE765URKK2020-04-05T07:30:00Z45.0339.1511.00.01046.2130.265747TRUEVFRMETAR34.02020-04-05 07:48:17 "OQ({5    3LRBM 050730Z AUTO 18003KT 110V260 9999 NCD 13/M02 Q1029LRBM2020-04-05T07:30:00Z47.6723.4713.0-2.018036.2130.383858TRUEVFRMETAR185.02020-04-05 07:48:17(P([5   3LRCL 050730Z VRB02KT CAVOK 10/M01 Q1029LRCL2020-04-05T07:30:00Z46.7823.6810.0-1.0026.2130.383858VFRMETAR413.02020-04-05 07:48:17 X;X0Y(k5   3LJPZ 050730Z 02010KT 350V050 CAVOK 14/M02 Q1024LJPZ2020-04-05T07:30:00Z45.4713.6214.0-2.020106.2130.236221VFRMETAR2.02020-04-05 07:48:177X({5   3LJCE 050730Z 09004KT 040V130 CAVOK 11/M02 Q1028 RMK BLULJCE2020-04-05T07:30:00Z45.915.5211.0-2.09046.2130.35433VFRMETAR155.02020-04-05 07:48:172W(g5    3LRBS 050730Z 04018KT CAVOK 13/M03 Q1026 NOSIGLRBS2020-04-05T07:30:00Z44.526.0813.0-3.040186.2130.295275TRUEVFRMETAR91.02020-04-05 07:48:172V(e5    3LRCK 050730Z 05018KT CAVOK 11/03 Q1025 NOSIGLRCK2020-04-05T07:30:00Z44.3728.4811.03.050186.2130.265747TRUEVFRMETAR108.02020-04-05 07:48:17?U(}5   3LROP 050730Z 06016G27KT 020V090 CAVOK 13/M05 Q1026 NOSIGLROP2020-04-05T07:30:00Z44.5726.113.0-5.06016276.2130.295275TRUEVFRMETAR95.02020-04-05 07:48:17 gOg&^([5   3LRTM 050730Z VRB03KT CAVOK 11/M00 Q1028LRTM2020-04-05T07:30:00Z46.4724.4211.00.0036.2130.35433VFRMETAR309.02020-04-05 07:48:17=]({5    3LRSM 050730Z AUTO 10005KT 070V140 9999 NCD 13/M01 Q1029LRSM2020-04-05T07:30:00Z47.722.8813.0-1.010056.2130.383858TRUEVFRMETAR124.02020-04-05 07:48:171\(k5   3LROD 050730Z 05005KT 020V080 CAVOK 14/M01 Q1027LROD2020-04-05T07:30:00Z47.0321.9214.0-1.05056.2130.324802VFRMETAR140.02020-04-05 07:48:17<[(w5    3LJLJ 050730Z 28004KT 240V320 CAVOK 10/M01 Q1027 NOSIGLJLJ2020-04-05T07:30:00Z46.2214.4710.0-1.028046.2130.324802TRUEVFRMETAR385.02020-04-05 07:48:17+Z([5   3LJMB 050730Z 36010KT CAVOK 11/M02 Q1029LJMB2020-04-05T07:30:00Z46.4715.6711.0-2.0360106.2130.383858VFRMETAR265.02020-04-05 07:48:17 hN$h6c(o5     3LFMO 050730Z AUTO 00000KT CAVOK 09/04 Q1022 NOSIGLFMO2020-04-05T07:30:00Z44.124.879.04.0006.2130.177166TRUETRUEVFRMETAR55.02020-04-05 07:48:17-b(c5    3LFMY 050730Z AUTO 07004KT CAVOK 13/05 Q1022LFMY2020-04-05T07:30:00Z43.65.0813.05.07046.2130.177166TRUEVFRMETAR60.02020-04-05 07:48:17;a(5     3LFBM 050730Z AUTO 09006KT 070V130 CAVOK 11/08 Q1016 NOSIGLFBM2020-04-05T07:30:00Z43.92-0.511.08.09066.2130.0TRUETRUEVFRMETAR63.02020-04-05 07:48:170`(c5    3LFBC 050730Z AUTO 11006KT CAVOK 12/08 Q1015LFBC2020-04-05T07:30:00Z44.52-1.1212.08.011066.2129.970472TRUEVFRMETAR33.02020-04-05 07:48:17,_(c5    3LFBG 050730Z AUTO 12012KT CAVOK 13/02 Q1016LFBG2020-04-05T07:30:00Z45.67-0.3213.02.0120126.2130.0TRUEVFRMETAR31.02020-04-05 07:48:17 _K_8h(s5    3LFSX 050730Z AUTO 11004KT 060V140 CAVOK 12/02 Q1022LFSX2020-04-05T07:30:00Z47.776.3312.02.011046.2130.177166TRUEVFRMETAR273.02020-04-05 07:48:178g(s5    3LFSO 050730Z AUTO 13004KT 090V160 CAVOK 10/01 Q1021LFSO2020-04-05T07:30:00Z48.575.9710.01.013046.2130.147638TRUEVFRMETAR350.02020-04-05 07:48:176f(u5   3LFBY 050730Z AUTO 10008KT 9999 // ////// 10/07 Q1015LFBY2020-04-05T07:30:00Z43.67-1.0710.07.010086.2129.970472TRUEMETAR32.02020-04-05 07:48:17.e(c5    3LFKS 050730Z AUTO 01012KT CAVOK 16/03 Q1021LFKS2020-04-05T07:30:00Z41.929.416.03.010126.2130.147638TRUEVFRMETAR22.02020-04-05 07:48:17/d(o5   3LFMC 050730Z AUTO 00000KT 9999 ////// 08/02 Q1023LFMC2020-04-05T07:30:00Z43.376.378.02.0006.2130.206694TRUEMETAR78.02020-04-05 07:48:17 hK h2m(c5    3LFRJ 050730Z AUTO 16014KT CAVOK 13/07 Q1009LFRJ2020-04-05T07:30:00Z48.52-4.1513.07.0160146.2129.793306TRUEVFRMETAR115.02020-04-05 07:48:17:l(o5     3LFOJ 050730Z AUTO 14006KT CAVOK 11/03 Q1017 NOSIGLFOJ2020-04-05T07:30:00Z47.971.7511.03.014066.2130.029528TRUETRUEVFRMETAR125.02020-04-05 07:48:170k(c5    3LFOE 050730Z AUTO 12007KT CAVOK 10/02 Q1017LFOE2020-04-05T07:30:00Z49.021.2210.02.012076.2130.029528TRUEVFRMETAR146.02020-04-05 07:48:17/j(c5    3LFOC 050730Z AUTO 11005KT CAVOK 09/03 Q1017LFOC2020-04-05T07:30:00Z48.031.379.03.011056.2130.029528TRUEVFRMETAR127.02020-04-05 07:48:17/i(c5    3LFYR 050730Z AUTO 11004KT CAVOK 11/04 Q1018LFYR2020-04-05T07:30:00Z47.321.6711.04.011046.2130.059055TRUEVFRMETAR86.02020-04-05 07:48:17 NIN/r(c5    3LFOB 050730Z AUTO 11006KT CAVOK 08/04 Q1018LFOB2020-04-05T07:30:00Z49.472.128.04.011066.2130.059055TRUEVFRMETAR111.02020-04-05 07:48:17Mq)5    3LFMK 050730Z AUTO 08018KT 9999 OVC014 12/09 Q1019 BECMG 09020G30KT NSCLFMK2020-04-05T07:30:00Z43.222.3212.09.080186.2130.088583TRUEMVFRMETAR130.02020-04-05 07:48:177p(o5     3LFMT 050730Z AUTO 02005KT CAVOK 11/05 Q1022 NOSIGLFMT2020-04-05T07:30:00Z43.573.9711.05.02056.2130.177166TRUETRUEVFRMETAR6.02020-04-05 07:48:170o(c5    3LFLY 050730Z AUTO 14006KT CAVOK 14/01 Q1021LFLY2020-04-05T07:30:00Z45.724.9514.01.014066.2130.147638TRUEVFRMETAR201.02020-04-05 07:48:171n(c5    3LFRL 050730Z AUTO 15013KT CAVOK 13/09 Q1009LFRL2020-04-05T07:30:00Z48.27-4.4213.09.0150136.2129.793306TRUEVFRMETAR82.02020-04-05 07:48:17 NKN3w(e5    3LFCR 050730Z AUTO 12020KT CAVOK 12/M01 Q1018LFCR2020-04-05T07:30:00Z44.382.4712.0-1.0120206.2130.059055TRUEVFRMETAR580.02020-04-05 07:48:170v(c5    3LFJL 050730Z AUTO 11007KT CAVOK 10/01 Q1022LFJL2020-04-05T07:30:00Z48.976.2510.01.011076.2130.177166TRUEVFRMETAR264.02020-04-05 07:48:17Cu)5     3LFKC 050730Z AUTO 06012KT 030V100 CAVOK 18/M02 Q1021 NOSIGLFKC2020-04-05T07:30:00Z42.528.818.0-2.060126.2130.147638TRUETRUEVFRMETAR58.02020-04-05 07:48:17?t({5     3LFOK 050730Z AUTO 14007KT 9999 FEW002 11/04 Q1020 NOSIGLFOK2020-04-05T07:30:00Z48.784.1811.04.014076.2130.11811TRUETRUEVFRMETAR162.02020-04-05 07:48:17/s(c5    3LFMU 050730Z AUTO 07010KT CAVOK 13/09 Q1021LFMU2020-04-05T07:30:00Z43.323.3513.09.070106.2130.147638TRUEVFRMETAR17.02020-04-05 07:48:17 }R6}3|(k5   3LRBC 050730Z 35012KT 320V020 CAVOK 10/M05 Q1031LRBC2020-04-05T07:30:00Z46.5226.9210.0-5.0350126.2130.442913VFRMETAR185.02020-04-05 07:48:17({(Y5   3LRCV 050730Z 09015KT CAVOK 12/01 Q1025LRCV2020-04-05T07:30:00Z44.3223.8812.01.090156.2130.265747VFRMETAR191.02020-04-05 07:48:172z(k5   3LRIA 050730Z 31004KT 250V020 CAVOK 11/M07 Q1031LRIA2020-04-05T07:30:00Z47.1727.6211.0-7.031046.2130.442913VFRMETAR104.02020-04-05 07:48:170y(k5   3LRSV 050730Z 03007KT 350V070 CAVOK 08/M06 Q1031LRSV2020-04-05T07:30:00Z47.6826.358.0-6.03076.2130.442913VFRMETAR351.02020-04-05 07:48:17(x([5   3LRTC 050730Z 04018KT CAVOK 12/M01 Q1027LRTC2020-04-05T07:30:00Z45.0728.7212.0-1.040186.2130.324802VFRMETAR6.02020-04-05 07:48:17 A9|A/(c5    3LFBT 050730Z AUTO 17005KT CAVOK 12/03 Q1015LFBT2020-04-05T07:30:00Z43.170.012.03.017056.2129.970472TRUEVFRMETAR363.02020-04-05 07:48:179(s5    3LFBZ 050730Z AUTO 18010KT 120V250 CAVOK 17/01 Q1014LFBZ2020-04-05T07:30:00Z43.47-1.5217.01.0180106.2129.940945TRUEVFRMETAR71.02020-04-05 07:48:17A(5     3LFKB 050730Z AUTO 36007KT 330V030 CAVOK 16/05 Q1022 NOSIGLFKB2020-04-05T07:30:00Z42.539.4716.05.036076.2130.177166TRUETRUEVFRMETAR12.02020-04-05 07:48:177~(o5     3LFLB 050730Z AUTO VRB01KT CAVOK 09/06 Q1023 NOSIGLFLB2020-04-05T07:30:00Z45.635.879.06.0016.2130.206694TRUETRUEVFRMETAR239.02020-04-05 07:48:17A}(5     3LFML 050730Z AUTO 29003KT 280V340 CAVOK 13/08 Q1022 NOSIGLFML2020-04-05T07:30:00Z43.455.2213.08.029036.2130.177166TRUETRUEVFRMETAR36.02020-04-05 07:48:17 >?v>@(5     3LFPV 050730Z AUTO 15008KT 120V180 CAVOK 09/02 Q1018 NOSIGLFPV2020-04-05T07:30:00Z48.772.29.02.015086.2130.059055TRUETRUEVFRMETAR179.02020-04-05 07:48:17,(c5    3LFBI 050730Z AUTO 17010KT CAVOK 11/01 Q1016LFBI2020-04-05T07:30:00Z46.570.3211.01.0170106.2130.0TRUEVFRMETAR120.02020-04-05 07:48:17:(u5    3LFBL 050730Z AUTO 12009KT 090V150 CAVOK 11/M02 Q1018LFBL2020-04-05T07:30:00Z45.871.1711.0-2.012096.2130.059055TRUEVFRMETAR402.02020-04-05 07:48:17C)5    3LFBO 050730Z AUTO 14014KT CAVOK 14/07 Q1017 BECMG 14015G25KTLFBO2020-04-05T07:30:00Z43.621.3714.07.0140146.2130.029528TRUEVFRMETAR153.02020-04-05 07:48:17;(o5     3LFBP 050730Z AUTO 13005KT CAVOK 13/05 Q1015 NOSIGLFBP2020-04-05T07:30:00Z43.37-0.4213.05.013056.2129.970472TRUETRUEVFRMETAR185.02020-04-05 07:48:17 iJi- (c5    3LFPB 050730Z AUTO VRB03KT CAVOK 10/03 Q1019LFPB2020-04-05T07:30:00Z48.972.4510.03.0036.2130.088583TRUEVFRMETAR65.02020-04-05 07:48:170 (c5    3LFRD 050730Z AUTO 17016KT CAVOK 12/05 Q1012LFRD2020-04-05T07:30:00Z48.58-2.0712.05.0170166.2129.88189TRUEVFRMETAR59.02020-04-05 07:48:170 (c5    3LFRN 050730Z AUTO 14009KT CAVOK 12/05 Q1013LFRN2020-04-05T07:30:00Z48.07-1.7212.05.014096.2129.911417TRUEVFRMETAR37.02020-04-05 07:48:17<({5     3LFSB 050730Z AUTO VRB02KT 9999 FEW013 08/02 Q1023 NOSIGLFSB2020-04-05T07:30:00Z47.67.528.02.0026.2130.206694TRUETRUEVFRMETAR271.02020-04-05 07:48:170(c5    3LFOA 050730Z AUTO 12007KT CAVOK 11/02 Q1018LFOA2020-04-05T07:30:00Z47.032.6311.02.012076.2130.059055TRUEVFRMETAR179.02020-04-05 07:48:17 UFUB(5     3LFLS 050730Z AUTO 07010KT CAVOK 11/04 Q1021 BECMG 21009KTLFLS2020-04-05T07:30:00Z45.375.3211.04.070106.2130.147638TRUEVFR-0.9SPECI386.02020-04-05 07:48:177(s5    3LFMP 050730Z AUTO 12006KT 090V150 CAVOK 15/07 Q1019LFMP2020-04-05T07:30:00Z42.722.8715.07.012066.2130.088583TRUEVFRMETAR48.02020-04-05 07:48:17-(c5    3LFMV 050730Z AUTO 35004KT CAVOK 10/04 Q1022LFMV2020-04-05T07:30:00Z43.94.910.04.035046.2130.177166TRUEVFRMETAR38.02020-04-05 07:48:173 (e5    3LFSL 050730Z AUTO 12011KT CAVOK 13/M02 Q1018LFSL2020-04-05T07:30:00Z45.031.4813.0-2.0120116.2130.059055TRUEVFRMETAR310.02020-04-05 07:48:174 (i5    3LFCK 050730Z AUTO 12026KT 9000 NSC 15/01 Q1017LFCK2020-04-05T07:30:00Z43.552.2815.01.0120265.5930.029528TRUEVFRMETAR240.02020-04-05 07:48:17 J6uJ.(c5    3LFLU 050730Z AUTO VRB02KT CAVOK 10/01 Q1021LFLU2020-04-05T07:30:00Z44.924.9810.01.0026.2130.147638TRUEVFRMETAR160.02020-04-05 07:48:17-(c5    3LFLP 050730Z AUTO VRB01KT CAVOK 08/02 Q1023LFLP2020-04-05T07:30:00Z45.926.088.02.0016.2130.206694TRUEVFRMETAR463.02020-04-05 07:48:17>)5    3LFKF 050730Z AUTO VRB03KT CAVOK 17/02 Q1021 BECMG 05015G25KTLFKF2020-04-05T07:30:00Z41.59.0817.02.0036.2130.147638TRUEVFRMETAR23.02020-04-05 07:48:17;(5    3LFKJ 050730Z AUTO 36004KT CAVOK 14/03 Q1021 BECMG 22010KTLFKJ2020-04-05T07:30:00Z41.928.814.03.036046.2130.147638TRUEVFRSPECI9.02020-04-05 07:48:17D)5    3LFLC 050730Z AUTO 24006KT CAVOK 11/M01 Q1019 TEMPO 18015G25KTLFLC2020-04-05T07:30:00Z45.773.1711.0-1.024066.2130.088583TRUEVFRMETAR330.02020-04-05 07:48:17 kJk.(c5    3LFAT 050730Z AUTO 12009KT CAVOK 09/04 Q1018LFAT2020-04-05T07:30:00Z50.521.629.04.012096.2130.059055TRUEVFRMETAR14.02020-04-05 07:48:174(s5    3LFBU 050730Z AUTO 15012KT 120V180 CAVOK 14/00 Q1016LFBU2020-04-05T07:30:00Z45.720.2214.00.0150126.2130.0TRUEVFRMETAR133.02020-04-05 07:48:17-(c5    3LFGA 050730Z AUTO VRB01KT CAVOK 10/02 Q1023LFGA2020-04-05T07:30:00Z48.17.3510.02.0016.2130.206694TRUEVFRMETAR191.02020-04-05 07:48:178(s5    3LFJR 050730Z AUTO 14012KT 110V170 CAVOK 11/02 Q1015LFJR2020-04-05T07:30:00Z47.57-0.311.02.0140126.2129.970472TRUEVFRMETAR60.02020-04-05 07:48:170(c5    3LFPN 050730Z AUTO 13007KT CAVOK 10/02 Q1018LFPN2020-04-05T07:30:00Z48.752.1210.02.013076.2130.059055TRUEVFRMETAR164.02020-04-05 07:48:17 AKA8(o5     3LFQQ 050730Z AUTO 12009KT CAVOK 10/02 Q1019 NOSIGLFQQ2020-04-05T07:30:00Z50.573.110.02.012096.2130.088583TRUETRUEVFRMETAR52.02020-04-05 07:48:17K)5    3LFRB 050730Z AUTO 12007KT 090V190 CAVOK 13/08 Q1009 BECMG 14016G26KTLFRB2020-04-05T07:30:00Z48.45-4.4213.08.012076.2129.793306TRUEVFRSPECI103.02020-04-05 07:48:17B)5    3LFRS 050730Z AUTO 14013KT CAVOK 12/04 Q1013 BECMG 18015G25KTLFRS2020-04-05T07:30:00Z47.17-1.612.04.0140136.2129.911417TRUEVFRMETAR27.02020-04-05 07:48:17-(c5    3LFAC 050730Z AUTO 14009KT CAVOK 09/03 Q1018LFAC2020-04-05T07:30:00Z50.971.959.03.014096.2130.059055TRUEVFRMETAR3.02020-04-05 07:48:17/(c5    3LFAQ 050730Z AUTO 13010KT CAVOK 09/03 Q1019LFAQ2020-04-05T07:30:00Z49.972.79.03.0130106.2130.088583TRUEVFRMETAR111.02020-04-05 07:48:17 XCX0$(c5    3LFBH 050730Z AUTO 15015KT CAVOK 12/03 Q1014LFBH2020-04-05T07:30:00Z46.18-1.212.03.0150156.2129.940945TRUEVFRMETAR10.02020-04-05 07:48:17:#(o5     3LFLL 050730Z AUTO 13008KT CAVOK 12/02 Q1021 NOSIGLFLL2020-04-05T07:30:00Z45.725.0712.02.013086.2130.147638TRUETRUEVFRMETAR240.02020-04-05 07:48:17/"(e5    3LFMN 050730Z 33009KT CAVOK 14/01 Q1023 NOSIGLFMN2020-04-05T07:30:00Z43.637.214.01.033096.2130.206694TRUEVFRMETAR10.02020-04-05 07:48:17:!(o5     3LFPG 050730Z AUTO 14006KT CAVOK 10/02 Q1019 NOSIGLFPG2020-04-05T07:30:00Z49.022.5210.02.014066.2130.088583TRUETRUEVFRMETAR109.02020-04-05 07:48:177 (s5    3LFPO 050730Z AUTO 13004KT 100V170 CAVOK 10/03 Q1018LFPO2020-04-05T07:30:00Z48.722.3810.03.013046.2130.059055TRUEVFRMETAR96.02020-04-05 07:48:17 sE)s0)(c5    3LFOP 050730Z AUTO 13009KT CAVOK 11/03 Q1017LFOP2020-04-05T07:30:00Z49.371.1711.03.013096.2130.029528TRUEVFRMETAR157.02020-04-05 07:48:17,((c5    3LFQA 050730Z AUTO 12005KT CAVOK 09/03 Q1020LFQA2020-04-05T07:30:00Z49.24.159.03.012056.2130.11811TRUEVFRMETAR95.02020-04-05 07:48:170'(c5    3LFQB 050730Z AUTO 14007KT CAVOK 10/04 Q1019LFQB2020-04-05T07:30:00Z48.324.0210.04.014076.2130.088583TRUEVFRMETAR118.02020-04-05 07:48:17.&(c5    3LFSN 050730Z AUTO 00000KT CAVOK 10/02 Q1022LFSN2020-04-05T07:30:00Z48.676.2210.02.0006.2130.177166TRUEVFRMETAR217.02020-04-05 07:48:175%(o5     3LFBD 050730Z AUTO 13014KT CAVOK 12/06 Q1016 NOSIGLFBD2020-04-05T07:30:00Z44.82-0.712.06.0130146.2130.0TRUETRUEVFRMETAR61.02020-04-05 07:48:17 _N"_=.(y5   3LFRU 050730Z AUTO 15014G24KT 130V190 CAVOK 13/07 Q1009LFRU2020-04-05T07:30:00Z48.6-3.8213.07.015014246.2129.793306TRUEVFRMETAR86.02020-04-05 07:48:171-(o5    3LFRK 050730Z AUTO /////KT 9999 // NSC 09/04 Q1015LFRK2020-04-05T07:30:00Z49.17-0.459.04.06.2129.970472TRUEVFRSPECI67.02020-04-05 07:48:171,(c5    3LFRC 050730Z AUTO 16008KT CAVOK 11/05 Q1013LFRC2020-04-05T07:30:00Z49.63-1.4711.05.016086.2129.911417TRUEVFRMETAR138.02020-04-05 07:48:178+(o5     3LFLX 050730Z AUTO 08006KT CAVOK 08/04 Q1017 NOSIGLFLX2020-04-05T07:30:00Z46.851.728.04.08066.2130.029528TRUETRUEVFRMETAR157.02020-04-05 07:48:17,*(c5    3LFOH 050730Z AUTO 14012KT CAVOK 10/02 Q1016LFOH2020-04-05T07:30:00Z49.520.0710.02.0140126.2130.0TRUEVFRMETAR103.02020-04-05 07:48:17 aLa13(s5    3LFRM 050730Z AUTO 17004KT 110V220 CAVOK 12/02 Q1016LFRM2020-04-05T07:30:00Z47.950.212.02.017046.2130.0TRUEVFRMETAR52.02020-04-05 07:48:1782(s5    3LFRI 050730Z AUTO 14011KT 110V170 CAVOK 11/03 Q1014LFRI2020-04-05T07:30:00Z46.7-1.3711.03.0140116.2129.940945TRUEVFRMETAR91.02020-04-05 07:48:1711(c5    3LFOV 050730Z AUTO 13007KT CAVOK 10/04 Q1015LFOV2020-04-05T07:30:00Z48.03-0.7510.04.013076.2129.970472TRUEVFRMETAR101.02020-04-05 07:48:1790(o5     3LFMI 050730Z AUTO 10006KT CAVOK 14/02 Q1022 NOSIGLFMI2020-04-05T07:30:00Z43.524.9214.02.010066.2130.177166TRUETRUEVFRMETAR24.02020-04-05 07:48:17./(c5    3LFBA 050730Z AUTO 11005KT CAVOK 10/05 Q1017LFBA2020-04-05T07:30:00Z44.170.610.05.011056.2130.029528TRUEVFRMETAR60.02020-04-05 07:48:17 vI*v.8(c5    3LFBE 050730Z AUTO 05003KT CAVOK 10/03 Q1017LFBE2020-04-05T07:30:00Z44.820.5210.03.05036.2130.029528TRUEVFRMETAR52.02020-04-05 07:48:17/7(c5    3LFRZ 050730Z AUTO 10006KT CAVOK 13/07 Q1013LFRZ2020-04-05T07:30:00Z47.32-2.1713.07.010066.2129.911417TRUEVFRMETAR4.02020-04-05 07:48:17-6(c5    3LFSG 050730Z AUTO VRB01KT CAVOK 07/02 Q1022LFSG2020-04-05T07:30:00Z48.336.077.02.0016.2130.177166TRUEVFRMETAR330.02020-04-05 07:48:1715(c5    3LFRV 050730Z AUTO 15012KT CAVOK 12/06 Q1012LFRV2020-04-05T07:30:00Z47.72-2.7212.06.0150126.2129.88189TRUEVFRMETAR133.02020-04-05 07:48:1714(c5    3LFRO 050730Z AUTO 15013KT CAVOK 13/06 Q1010LFRO2020-04-05T07:30:00Z48.75-3.4713.06.0150136.2129.822834TRUEVFRMETAR89.02020-04-05 07:48:17 H4mH-=(c5    3LFMH 050730Z AUTO VRB01KT CAVOK 12/00 Q1020LFMH2020-04-05T07:30:00Z45.524.2812.00.0016.2130.11811TRUEVFRMETAR402.02020-04-05 07:48:17:<(o5     3LFOT 050730Z AUTO 14007KT CAVOK 11/02 Q1017 NOSIGLFOT2020-04-05T07:30:00Z47.430.7211.02.014076.2130.029528TRUETRUEVFRMETAR108.02020-04-05 07:48:17,;(c5    3LFRG 050730Z AUTO 16012KT CAVOK 10/02 Q1016LFRG2020-04-05T07:30:00Z49.370.1510.02.0160126.2130.0TRUEVFRMETAR146.02020-04-05 07:48:17A:(5     3LFST 050730Z AUTO 36004KT 320V020 CAVOK 09/02 Q1023 NOSIGLFST2020-04-05T07:30:00Z48.537.629.02.036046.2130.206694TRUETRUEVFRMETAR154.02020-04-05 07:48:17F9)5    3LFGJ 050730Z AUTO 08003KT 050V110 CAVOK 10/04 Q1021 BECMG 18010KTLFGJ2020-04-05T07:30:00Z47.055.4310.04.08036.2130.147638TRUEVFRSPECI196.02020-04-05 07:48:17 NEN/B(e5   3GCLA 050730Z 25003KT 9999 FEW040 19/14 Q1017GCLA2020-04-05T07:30:00Z28.62-17.7519.014.025036.2130.029528VFRMETAR31.02020-04-05 07:48:17/A(e5   3GCFV 050730Z 30004KT 9999 FEW020 19/15 Q1018GCFV2020-04-05T07:30:00Z28.43-13.8719.015.030046.2130.059055VFRMETAR23.02020-04-05 07:48:17E@)5    3LFTW 050730Z AUTO 05005KT 020V080 CAVOK 11/03 Q1022 BECMG 19012KTLFTW2020-04-05T07:30:00Z43.754.4211.03.05056.2130.177166TRUEVFRSPECI96.02020-04-05 07:48:17(s5    3LFMD 050730Z AUTO 01003KT 320V050 CAVOK 13/04 Q1023LFMD2020-04-05T07:30:00Z43.536.9513.04.01036.2130.206694TRUEVFRMETAR9.02020-04-05 07:48:17 WG W-G(c5    3LFSD 050730Z AUTO VRB02KT CAVOK 09/04 Q1021LFSD2020-04-05T07:30:00Z47.275.079.04.0026.2130.147638TRUEVFRMETAR227.02020-04-05 07:48:170F(c5    3LEAM 050730Z AUTO 32009KT CAVOK 15/07 Q1019LEAM2020-04-05T07:30:00Z36.85-2.3715.07.032096.2130.088583TRUEVFRMETAR21.02020-04-05 07:48:17:E(u5    3LEAS 050730Z 15008KT 100V170 CAVOK 18/08 Q1008 NOSIGLEAS2020-04-05T07:30:00Z43.57-6.0318.08.015086.2129.763779TRUEVFRMETAR120.02020-04-05 07:48:17AD)5    3GCTS 050730Z 04004KT 360V080 9999 FEW025 17/13 Q1017 NOSIGGCTS2020-04-05T07:30:00Z28.05-16.5717.013.04046.2130.029528TRUEVFRMETAR72.02020-04-05 07:48:173C(e5    3GCLP 050730Z 30003KT CAVOK 18/13 Q1017 NOSIGGCLP2020-04-05T07:30:00Z27.92-15.3718.013.030036.2130.029528TRUEVFRMETAR25.02020-04-05 07:48:17 U@ U/L(c5    3LFPM 050730Z AUTO 12004KT CAVOK 10/03 Q1018LFPM2020-04-05T07:30:00Z48.622.6710.03.012046.2130.059055TRUEVFRMETAR92.02020-04-05 07:48:17.K(c5    3LFPT 050730Z AUTO 12006KT CAVOK 10/02 Q1018LFPT2020-04-05T07:30:00Z49.12.0310.02.012066.2130.059055TRUEVFRMETAR99.02020-04-05 07:48:17DJ)5    3LFRH 050730Z AUTO 13015KT CAVOK 13/10 Q1011 BECMG 13010G22KTLFRH2020-04-05T07:30:00Z47.77-3.4513.010.0130156.2129.852362TRUEVFRSPECI44.02020-04-05 07:48:172I(c5    3LFRQ 050730Z AUTO 15013KT CAVOK 14/10 Q1010LFRQ2020-04-05T07:30:00Z47.97-4.1714.010.0150136.2129.822834TRUEVFRMETAR94.02020-04-05 07:48:17:H(s5    3LFRT 050730Z AUTO 17014KT 150V210 CAVOK 13/05 Q1011LFRT2020-04-05T07:30:00Z48.52-2.8513.05.0170146.2129.852362TRUEVFRMETAR136.02020-04-05 07:48:17 K_Q);5    3GCGM 050730Z AUTO 05003KT 000V100 CAVOK 18/14 Q1018 RMK R09/03004KT ARP/04004KT 330V070GCGM2020-04-05T07:30:00Z28.03-17.2218.014.05036.2130.059055TRUEVFRMETAR219.02020-04-05 07:48:17?P({5   3LEBB 050730Z 14014G24KT 110V200 CAVOK 16/07 Q1013 NOSIGLEBB2020-04-05T07:30:00Z43.28-2.9216.07.014014246.2129.911417TRUEVFRMETAR34.02020-04-05 07:48:17KO)5    3GCXO 050730Z 28006KT 240V300 9999 FEW001 BKN004 15/14 Q1019 NOSIGGCXO2020-04-05T07:30:00Z28.48-16.3515.014.028066.2130.088583TRUELIFRMETAR632.02020-04-05 07:48:17,N(c5    3LFLN 050730Z AUTO VRB03KT CAVOK 09/01 Q1020LFLN2020-04-05T07:30:00Z46.424.029.01.0036.2130.11811TRUEVFRMETAR244.02020-04-05 07:48:17/M(c5    3LFOZ 050730Z AUTO 14005KT CAVOK 10/03 Q1018LFOZ2020-04-05T07:30:00Z47.92.1710.03.014056.2130.059055TRUEVFRMETAR121.02020-04-05 07:48:17 M<$V(Y5   3LEGE 050730Z VRB01KT CAVOK 08/06 Q1021LEGE2020-04-05T07:30:00Z41.882.778.06.0016.2130.147638VFRMETAR129.02020-04-05 07:48:17.U(c5    3LEGR 050730Z AUTO 00000KT CAVOK 08/08 Q1019LEGR2020-04-05T07:30:00Z37.17-3.778.08.0006.2130.088583TRUEVFRMETAR559.02020-04-05 07:48:17&T(Y5   3LEMH 050730Z 06005KT CAVOK 14/11 Q1021LEMH2020-04-05T07:30:00Z39.874.2214.011.06056.2130.147638VFRMETAR82.02020-04-05 07:48:17+S(e5   3LERS 050730Z 02004KT 9999 FEW020 11/09 Q1021LERS2020-04-05T07:30:00Z41.131.1711.09.02046.2130.147638VFRMETAR76.02020-04-05 07:48:17-R(i5   3LESO 050730Z 18007KT 070V240 CAVOK 17/02 Q1014LESO2020-04-05T07:30:00Z43.35-1.817.02.018076.2129.940945VFRMETAR8.02020-04-05 07:48:17 I$nI5[(q5    3LEIB 050730Z VRB02KT 9999 FEW030 14/10 Q1021 NOSIGLEIB2020-04-05T07:30:00Z38.871.3714.010.0026.2130.147638TRUEVFRMETAR12.02020-04-05 07:48:17/Z(e5    3LEBL 050730Z 32009KT CAVOK 10/06 Q1022 NOSIGLEBL2020-04-05T07:30:00Z41.272.0710.06.032096.2130.177166TRUEVFRMETAR6.02020-04-05 07:48:17/Y(e5    3LEAL 050730Z 01005KT CAVOK 15/07 Q1020 NOSIGLEAL2020-04-05T07:30:00Z38.27-0.5515.07.01056.2130.11811TRUEVFRMETAR31.02020-04-05 07:48:170X(e5   3GCHI 050730Z 32013KT 9999 SCT033 21/17 Q1017GCHI2020-04-05T07:30:00Z27.82-17.8721.017.0320136.2130.029528VFRMETAR30.02020-04-05 07:48:17VW)5     3LECO 050730Z AUTO 17010KT 130V210 7000 -RA SCT037 BKN047 13/12 Q1006 RERALECO2020-04-05T07:30:00Z43.28-8.3713.012.0170104.3529.704725TRUE-RAMVFRMETAR103.02020-04-05 07:48:17 :@:1`(u5   3LEVT 050730Z 24004KT 190V320 9999 FEW040 11/05 Q1016LEVT2020-04-05T07:30:00Z42.87-2.7211.05.024046.2130.0VFRMETAR509.02020-04-05 07:48:17-_(e5   3LEZG 050730Z 10007KT 9999 FEW060 10/07 Q1020LEZG2020-04-05T07:30:00Z41.67-1.0210.07.010076.2130.11811VFRMETAR258.02020-04-05 07:48:17Z^)35    3LEST 050730Z 16009KT 120V210 9000 RA SCT010 OVC015 12/11 Q1008 TEMPO 3000 RA BKN005LEST2020-04-05T07:30:00Z42.88-8.4212.011.016095.5929.763779RAMVFRSPECI367.02020-04-05 07:48:176](q5    3LEMG 050730Z 29005KT 9999 FEW030 13/11 Q1019 NOSIGLEMG2020-04-05T07:30:00Z36.67-4.513.011.029056.2130.088583TRUEVFRMETAR7.02020-04-05 07:48:17:\(u5    3LEMD 050730Z 14003KT 100V180 CAVOK 11/07 Q1018 NOSIGLEMD2020-04-05T07:30:00Z40.48-3.5711.07.014036.2130.059055TRUEVFRMETAR582.02020-04-05 07:48:17 nK*n6e(q5    3LEVC 050730Z 33005KT 9999 FEW025 12/09 Q1021 NOSIGLEVC2020-04-05T07:30:00Z39.5-0.4712.09.033056.2130.147638TRUEVFRMETAR62.02020-04-05 07:48:17/d(c5    3LEZL 050730Z AUTO 06006KT CAVOK 13/10 Q1017LEZL2020-04-05T07:30:00Z37.42-5.913.010.06066.2130.029528TRUEVFRMETAR31.02020-04-05 07:48:17/c(c5    3LESA 050730Z AUTO 16005KT CAVOK 08/05 Q1015LESA2020-04-05T07:30:00Z40.95-5.58.05.016056.2129.970472TRUEVFRMETAR795.02020-04-05 07:48:171b(c5    3LEVD 050730Z AUTO 17008KT CAVOK 10/06 Q1015LEVD2020-04-05T07:30:00Z41.72-4.8310.06.017086.2129.970472TRUEVFRMETAR854.02020-04-05 07:48:17/a(c5    3LEDA 050730Z AUTO 06009KT CAVOK 10/06 Q1021LEDA2020-04-05T07:30:00Z41.730.5310.06.06096.2130.147638TRUEVFRMETAR350.02020-04-05 07:48:17 ?M ?Gj) 5    3GEML 050730Z AUTO 07007KT 030V110 9999 SCT009 OVC021 16/14 Q1019GEML2020-04-05T07:30:00Z35.27-2.9516.014.07076.2130.088583TRUEMVFRMETAR55.02020-04-05 07:48:17Fi) 5    3LELN 050730Z AUTO 17008KT 9999 BKN022 BKN031 OVC057 09/06 Q1014LELN2020-04-05T07:30:00Z42.57-5.659.06.017086.2129.940945TRUEMVFRMETAR914.02020-04-05 07:48:175h(q5    3LELC 050730Z 36006KT 9999 FEW020 14/11 Q1020 NOSIGLELC2020-04-05T07:30:00Z37.77-0.814.011.036066.2130.11811TRUEVFRMETAR3.02020-04-05 07:48:174g(o5  3LEXJ 050730Z 21015G33KT 160V300 CAVOK 18/07 Q1010LEXJ2020-04-05T07:30:00Z43.42-3.8218.07.021015336.2129.822834VFRMETAR6.02020-04-05 07:48:17-f(e5    3LEPA 050730Z VRB01KT CAVOK 12/07 Q1021 NOSIGLEPA2020-04-05T07:30:00Z39.532.7212.07.0016.2130.147638TRUEVFRMETAR8.02020-04-05 07:48:17 lS"l0o(c5    3LETL 050730Z AUTO 13006KT CAVOK 06/03 Q1020LETL2020-04-05T07:30:00Z40.42-1.226.03.013066.2130.11811TRUEVFRMETAR1013.02020-04-05 07:48:17/n(i5    3LECH 050730Z AUTO 00000KT 9000 NSC 08/06 Q1021LECH2020-04-05T07:30:00Z40.20.078.06.0005.5930.147638TRUEVFRMETAR337.02020-04-05 07:48:178m(o5    3LEBG 050730Z AUTO 17013KT 9999 FEW050 10/06 Q1015LEBG2020-04-05T07:30:00Z42.37-3.6210.06.0170136.2129.970472TRUEVFRMETAR891.02020-04-05 07:48:178l(o5    3LEAG 050730Z AUTO 11015KT 9999 OVC031 16/14 Q1019LEAG2020-04-05T07:30:00Z36.12-5.4516.014.0110156.2130.088583TRUEVFRMETAR32.02020-04-05 07:48:17'k(Y5   3LEMI 050730Z 36006KT CAVOK 12/10 Q1020LEMI2020-04-05T07:30:00Z37.8-1.1212.010.036066.2130.11811VFRMETAR193.02020-04-05 07:48:17 UDU@t(}5    3LPPT 050730Z 18011KT 9000 VCSH FEW002 BKN004 16/16 Q1012LPPT2020-04-05T07:30:00Z38.77-9.1216.016.0180115.5929.88189VCSHLIFRMETAR123.02020-04-05 07:48:17/s(e5   3LPPS 050730Z 27006KT 9999 FEW011 18/17 Q1013LPPS2020-04-05T07:30:00Z33.07-16.3518.017.027066.2129.911417VFRMETAR82.02020-04-05 07:48:170r(e5   3LPPR 050730Z 17018KT 9999 BKN020 16/13 Q1010LPPR2020-04-05T07:30:00Z41.22-8.6716.013.0170186.2129.822834MVFRMETAR73.02020-04-05 07:48:178q(y5   3LPMA 050730Z 34007KT 9999 FEW013 FEW015TCU 18/15 Q1013LPMA2020-04-05T07:30:00Z32.7-16.7718.015.034076.2129.911417VFRMETAR55.02020-04-05 07:48:176p(s5   3LPFR 050730Z 14012KT 9999 FEW007 BKN012 17/16 Q1015LPFR2020-04-05T07:30:00Z37.02-7.9717.016.0140126.2129.970472MVFRMETAR4.02020-04-05 07:48:17 N1~N4y(s5   3LPHR 050730Z 05007KT 9999 FEW016 BKN040 14/11 Q1004LPHR2020-04-05T07:30:00Z38.52-28.7214.011.05076.2129.64567VFRMETAR41.02020-04-05 07:48:17Ex)5    3LPCS 050730Z 17011KT 3500 -DZ BR OVC002 16/15 Q1011 RESHRALPCS2020-04-05T07:30:00Z38.73-9.3516.015.0170112.1729.852362-DZ BRLIFRMETAR99.02020-04-05 07:48:17%w(Y5   3LYVR 050730Z VRB02KT CAVOK 15/03 Q1026LYVR2020-04-05T07:30:00Z45.1321.3215.03.0026.2130.295275VFRMETAR85.02020-04-05 07:48:17-v(e5   3LPPD 050730Z VRB02KT 9999 FEW018 14/11 Q1006LPPD2020-04-05T07:30:00Z37.72-25.6814.011.0026.2129.704725VFRMETAR72.02020-04-05 07:48:17Iu) 5    3LPAZ 050730Z 14004KT 110V180 9999 VCSH SCT010 SCT045 15/14 Q1007LPAZ2020-04-05T07:30:00Z36.97-25.1715.014.014046.2129.734253VCSHVFRMETAR100.02020-04-05 07:48:17 4\5~(k5    3VASU 050730Z 36004KT 6000 NSC 38/16 Q1010 NOSIGVASU2020-04-05T07:30:00Z21.1272.7338.016.036043.7329.822834TRUEMVFRMETAR5.02020-04-05 07:48:175}(k5    3VAAH 050730Z 21003KT 6000 NSC 39/03 Q1011 NOSIGVAAH2020-04-05T07:30:00Z23.0772.6239.03.021033.7329.852362TRUEMVFRMETAR55.02020-04-05 07:48:17G|)5     3VELP 050730Z 33005KT 5000 HZ FEW020 SCT100 31/17 Q1013 NOSIGVELP2020-04-05T07:30:00Z23.8392.6231.017.033053.1129.911417TRUEHZMVFRMETAR291.02020-04-05 07:48:17R{)5   3UMMS 050730Z 29007G10MPS CAVOK 06/M06 Q1032 R31R/CLRD// R31L/////// NOSIGUMMS2020-04-05T07:30:00Z53.8828.036.0-6.029014196.2130.47244TRUEVFRMETAR205.02020-04-05 07:48:17Fz)5   3UMGG 050730Z 30006G09MPS 9999 SCT016 05/M03 Q1032 R28/D NOSIGUMGG2020-04-05T07:30:00Z52.5331.025.0-3.030012176.2130.47244TRUEVFRMETAR144.02020-04-05 07:48:17 W?W4(g5    3RKSI 050730Z 27014KT CAVOK 10/M01 Q1021 NOSIGRKSI2020-04-05T07:30:00Z37.47126.4510.0-1.0270146.2130.147638TRUEVFRMETAR7.02020-04-05 07:48:173(q5    3VOBG 050730Z VRB03KT 8000 FEW012 34/18 Q1016 NOSIGVOBG2020-04-05T07:30:00Z12.9577.6334.018.0034.9730.0TRUEMVFRMETAR897.02020-04-05 07:48:172(e5    3VOBZ 050730Z 18002KT CAVOK 37/23 Q1011 NOSIGVOBZ2020-04-05T07:30:00Z16.5280.7837.023.018026.2129.852362TRUEVFRMETAR24.02020-04-05 07:48:177(q5    3VORY 050730Z 21006KT 8000 FEW020 34/23 Q1012 NOSIGVORY2020-04-05T07:30:00Z17.181.8234.023.021064.9729.88189TRUEMVFRMETAR46.02020-04-05 07:48:17;(w5     3VEBS 050730Z 00000KT 4000 HZ SCT020 33/25 Q1011 NOSIGVEBS2020-04-05T07:30:00Z20.2585.8233.025.0002.4929.852362TRUEHZIFRMETAR46.02020-04-05 07:48:17 dMd5(o5    3LEBR 050730Z AUTO 14009KT 9999 OVC055 09/04 Q1019LEBR2020-04-05T07:30:00Z42.2-1.439.04.014096.2130.088583TRUEVFRMETAR295.02020-04-05 07:48:177(s5    3LELO 050730Z AUTO 06009KT 020V100 CAVOK 09/06 Q1018LELO2020-04-05T07:30:00Z42.45-2.329.06.06096.2130.059055TRUEVFRMETAR363.02020-04-05 07:48:17.(c5    3LEBT 050730Z AUTO VRB02KT CAVOK 11/09 Q1021LEBT2020-04-05T07:30:00Z39.58-0.4511.09.0026.2130.147638TRUEVFRMETAR50.02020-04-05 07:48:177(s5    3LEHC 050730Z AUTO 08006KT 050V110 CAVOK 10/03 Q1020LEHC2020-04-05T07:30:00Z42.08-0.3210.03.08066.2130.11811TRUEVFRMETAR539.02020-04-05 07:48:17-(c5    3LEBA 050730Z AUTO VRB02KT CAVOK 09/08 Q1018LEBA2020-04-05T07:30:00Z37.85-4.829.08.0026.2130.059055TRUEVFRMETAR92.02020-04-05 07:48:17 aK$a= (y5    3ZBAD 050730Z 22004MPS 170V270 CAVOK 19/M11 Q1021 NOSIGZBAD2020-04-05T07:30:00Z39.5116.4219.0-11.022086.2130.147638TRUEVFRMETAR25.02020-04-05 07:48:17= (y5    3ZBAA 050730Z 16004MPS 120V220 CAVOK 18/M08 Q1021 NOSIGZBAA2020-04-05T07:30:00Z40.07116.5818.0-8.016086.2130.147638TRUEVFRMETAR30.02020-04-05 07:48:17+ (c5    3LESB 050730Z AUTO VRB01KT CAVOK 13/05 Q1022LESB2020-04-05T07:30:00Z39.62.713.05.0016.2130.177166TRUEVFRMETAR48.02020-04-05 07:48:17- (c5    3LELL 050730Z AUTO VRB01KT CAVOK 10/08 Q1021LELL2020-04-05T07:30:00Z41.522.110.08.0016.2130.147638TRUEVFRMETAR250.02020-04-05 07:48:17/ (i5   3LEVS 050730Z 09004KT 050V140 CAVOK 12/07 Q1018LEVS2020-04-05T07:30:00Z40.37-3.7712.07.09046.2130.059055VFRMETAR687.02020-04-05 07:48:17 &=z&1(g5    3ZSPD 050730Z 05006MPS CAVOK 14/03 Q1025 NOSIGZSPD2020-04-05T07:30:00Z31.15121.814.03.050126.2130.265747TRUEVFRMETAR4.02020-04-05 07:48:17;(w5    3ZSHC 050730Z 11002MPS 030V160 CAVOK 15/04 Q1024 NOSIGZSHC2020-04-05T07:30:00Z30.22120.4315.04.011046.2130.236221TRUEVFRMETAR43.02020-04-05 07:48:17V)'5     3ZGGG 050730Z 35002MPS 310V020 9999 -RA SCT011 SCT020 BKN033 17/14 Q1018 NOSIGZGGG2020-04-05T07:30:00Z23.4113.317.014.035046.2130.059055TRUE-RAVFRMETAR15.02020-04-05 07:48:17=(y5    3ZBYN 050730Z 21004MPS 180V270 CAVOK 19/M06 Q1020 NOSIGZBYN2020-04-05T07:30:00Z37.77112.6319.0-6.021086.2130.11811TRUEVFRMETAR779.02020-04-05 07:48:17=(y5    3ZBTJ 050730Z 16005MPS 130V200 CAVOK 18/M05 Q1022 NOSIGZBTJ2020-04-05T07:30:00Z39.12117.3518.0-5.0160106.2130.177166TRUEVFRMETAR3.02020-04-05 07:48:17Y8J8@HPX`hpx (08@HPX`hpx (08@HPX`hpx^chmrw| ^chmrw| $).38=BGLQV [ ` e j oty~ "&*.27< A!F"K#P$T%Y&^'b(f)j*n+r,v-z.~/01 234567$8(9,:1;6<;=@>D?H@LAPBTCXD\E`FdGhHlIp Br)W5     3UAII 050730Z 13002MPS 100V160 9999 -SHRA SCT010 OVC033CB 14/12 Q1021 R10/2///55 NOSIG RMK QFE730/0973UAII2020-04-05T07:30:00Z42.3769.4814.012.013046.2130.147638TRUE-SHRAVFRSPECI422.02020-04-05 07:48:17\)95    3UAKK 050730Z 13002MPS 090V170 9999 BKN041 09/06 Q1015 R23/2///60 NOSIG RMK QFE714/0953UAKK2020-04-05T07:30:00Z49.6773.339.06.013046.2129.970472TRUEVFRSPECI538.02020-04-05 07:48:17=(y5    3ZWWW 050730Z 04003MPS 350V090 CAVOK 22/M12 Q1018 NOSIGZWWW2020-04-05T07:30:00Z43.8887.4722.0-12.04066.2130.059055TRUEVFRMETAR654.02020-04-05 07:48:178(w5    3ZSSS 050730Z 03004MPS 340V080 CAVOK 17/00 Q1024 NOSIGZSSS2020-04-05T07:30:00Z31.2121.3317.00.03086.2130.236221TRUEVFRMETAR7.02020-04-05 07:48:17 {?d{c)G5    3UADD 050730Z 34003MPS 290V050 9999 SCT046 OVC100 17/08 Q1019 R13/0///65 NOSIG RMK QFE707/0943UADD2020-04-05T07:30:00Z42.8571.317.08.034066.2130.088583TRUEVFRSPECI665.02020-04-05 07:48:17U))5    3UACC 050730Z 19004MPS 9999 OVC033 10/07 Q1014 R22/1///60 NOSIG RMK QFE729/0972UACC2020-04-05T07:30:00Z51.0271.4710.07.019086.2129.940945TRUEVFRMETAR355.02020-04-05 07:48:17L)5    3UACK 050730Z 25003MPS 9999 BKN056CB 07/06 Q1011 NOSIG RMK QFE735/0980UACK2020-04-05T07:30:00Z53.3269.587.06.025066.2129.852362TRUEVFRSPECI2547.02020-04-05 07:48:17i)G5     3UACP 050730Z 22004MPS 9999 -SHRA BKN010 OVC026CB 07/06 Q1010 R05/0/0060 NOSIG RMK QFE745/0994UACP2020-04-05T07:30:00Z54.7869.187.06.022086.2129.822834TRUE-SHRAMVFRSPECI142.02020-04-05 07:48:17 $Mt^);5    3UTDT 050730Z 00000MPS 9999 -SHRA FEW046CB OVC070 19/13 Q1018 R35/CLRD70 RMK QFE724/0965UTDT2020-04-05T07:30:00Z37.8768.8719.013.0006.2130.059055-SHRAVFRMETAR449.02020-04-05 07:48:17S)#5    3UTDL 050730Z 26010MPS 9999 NSC 19/10 Q1018 R26/CLRD70 NOSIG RMK QFE726/0968UTDL2020-04-05T07:30:00Z40.2269.719.010.0260196.2130.059055TRUEVFRSPECI442.02020-04-05 07:48:17Q)!5    3UAAA 050730Z 30003MPS 240V360 9999 FEW100 BKN200 22/03 Q1018 R88/65D NOSIGUAAA2020-04-05T07:30:00Z43.3577.0322.03.030066.2130.059055TRUEVFRMETAR681.02020-04-05 07:48:17V)-5    3UAAH 050730Z 21005MPS 170V240 CAVOK 19/01 Q1017 R05/0///60 NOSIG RMK QFE725/0967UAAH2020-04-05T07:30:00Z46.975.019.01.0210106.2130.029528TRUEVFRSPECI441.02020-04-05 07:48:17 4XB")5    3UKLL 050730Z 07002MPS 360V140 CAVOK 09/M06 Q1033 R31/D NOSIGUKLL2020-04-05T07:30:00Z49.8223.939.0-6.07046.2130.501968TRUEVFRMETAR325.02020-04-05 07:48:17K!)5    3UKDR 050730Z 36006MPS 320V040 CAVOK 12/M11 Q1029 R36/09//70 NOSIGUKDR2020-04-05T07:30:00Z48.0533.2212.0-11.0360126.2130.383858TRUEVFRSPECI124.02020-04-05 07:48:17V )15    3UTDD 050730Z VRB01MPS 9999 FEW066CB BKN100 20/08 Q1020 R09/D NOSIG RMK QFE696/0928UTDD2020-04-05T07:30:00Z38.5368.8220.08.0026.2130.11811TRUEVFRMETAR803.02020-04-05 07:48:17F)5   3UTDK 050730Z VRB02MPS 9999 NSC 21/11 Q1019 R01/09//70 RMK QFE707/0942UTDK2020-04-05T07:30:00Z37.9869.821.011.0046.2130.088583VFRMETAR699.02020-04-05 07:48:17 3oX&)-5    3NLWW 050730Z AUTO 00000KT 9999 SCT021/// 27/25 Q1008 TEMPO SHRA BKN014 FEW016TCUNLWW2020-04-05T07:30:00Z-13.23-176.1727.025.0006.2129.763779TRUEVFRMETAR23.02020-04-05 07:48:17@%)5    3UKBB 050730Z 35006MPS CAVOK 09/M07 Q1032 R36R/CLRD// NOSIGUKBB2020-04-05T07:30:00Z50.3330.99.0-7.0350126.2130.47244TRUEVFRMETAR119.02020-04-05 07:48:17>$(5    3UKOO 050730Z 05007MPS CAVOK 13/M08 Q1028 R34/090060 NOSIGUKOO2020-04-05T07:30:00Z46.4230.6813.0-8.050146.2130.35433TRUEVFRMETAR35.02020-04-05 07:48:17G#)5    3UKDD 050730Z 36004MPS 310V040 CAVOK 11/M08 Q1028 R26/090070 NOSIGUKDD2020-04-05T07:30:00Z48.3735.111.0-8.036086.2130.35433TRUEVFRSPECI149.02020-04-05 07:48:17 <xQ*)#5    3UASK 050730Z 36004MPS 9999 NSC 12/04 Q1019 R30/090060 NOSIG RMK QFE739/0985UASK2020-04-05T07:30:00Z50.0382.512.04.036086.2130.088583TRUEVFRMETAR286.02020-04-05 07:48:17O))5    3UAOO 050730Z 29002MPS CAVOK 17/M03 Q1021 R05/CLRD70 NOSIG RMK QFE754/1005UAOO2020-04-05T07:30:00Z44.765.617.0-3.029046.2130.147638TRUEVFRSPECI129.02020-04-05 07:48:17>((y5    3ZYTL 050730Z 30005MPS 280V340 CAVOK 13/M06 Q1024 NOSIGZYTL2020-04-05T07:30:00Z38.97121.5313.0-6.0300106.2130.236221TRUEVFRMETAR97.02020-04-05 07:48:17>'(y5    3ZYTX 050730Z 34002MPS 290V060 CAVOK 12/M23 Q1023 NOSIGZYTX2020-04-05T07:30:00Z41.63123.4812.0-23.034046.2130.206694TRUEVFRMETAR35.02020-04-05 07:48:17 (LuK.)5    3UATE 050730Z VRB01MPS CAVOK 15/04 Q1024 R30/0///70 NOSIG RMK QFE766/1022UATE2020-04-05T07:30:00Z43.8751.115.04.0026.2130.236221TRUEVFRMETAR22.02020-04-05 07:48:17Q-)5    3UARR 050730Z 22009MPS CAVOK 16/M01 Q1014 R22/CLRD70 NOSIG RMK QFE757/1010UARR2020-04-05T07:30:00Z51.1551.5316.0-1.0220176.2129.940945TRUEVFRSPECI38.02020-04-05 07:48:17V,)-5    3UASS 050730Z 08003MPS 030V160 CAVOK 16/02 Q1019 R26/0///60 NOSIG RMK QFE745/0994UASS2020-04-05T07:30:00Z50.3580.2316.02.08066.2130.088583TRUEVFRSPECI232.02020-04-05 07:48:17R+)5    3UASP 050730Z 13009MPS CAVOK 19/M10 Q1017 R03/0///60 NOSIG RMK QFE752/1003UASP2020-04-05T07:30:00Z52.277.0719.0-10.0130176.2130.029528TRUEVFRSPECI125.02020-04-05 07:48:17 *V_>2)5    3UDYZ 050730Z VRB02KT 9999 NSC 12/05 Q1025 R09/010070 NOSIGUDYZ2020-04-05T07:30:00Z40.1544.412.05.0026.2130.265747TRUEVFRSPECI865.02020-04-05 07:48:17q1)g5    3UAUU 050730Z 26003MPS 4200 BR BKN002 OVC033 06/05 Q1009 R15/190050 TEMPO 0400 FG VV002 RMK QBB070 QFE740/0987UAUU2020-04-05T07:30:00Z53.263.556.05.026062.6129.793306BRLIFRSPECI182.02020-04-05 07:48:17N0)5    3UATT 050730Z 26007MPS CAVOK 14/M01 Q1017 R31/70D NOSIG RMK QFE742/0990UATT2020-04-05T07:30:00Z50.2557.214.0-1.0260146.2130.029528TRUEVFRMETAR227.02020-04-05 07:48:17P/)5    3UATG 050730Z 22007MPS CAVOK 14/03 Q1022 R32/CLRD70 NOSIG RMK QFE768/1024UATG2020-04-05T07:30:00Z47.1251.8314.03.0220146.2130.177166TRUEVFRSPECI-22.02020-04-05 07:48:17 <;m<$7(Y5   3DABB 050730Z 21004KT CAVOK 11/09 Q1020DABB2020-04-05T07:30:00Z36.827.8211.09.021046.2130.11811VFRMETAR4.02020-04-05 07:48:1736(s5   3DAAG 050730Z 00000KT 8000 FEW026 SCT080 11/10 Q1019DAAG2020-04-05T07:30:00Z36.723.2211.010.0004.9730.088583MVFRMETAR25.02020-04-05 07:48:17H5)5    3UCFO 050730Z 33003MPS 250V050 9999 NSC 19/09 Q1018 R12/0///95 NOSIGUCFO2020-04-05T07:30:00Z40.672.819.09.033066.2130.059055TRUEVFRMETAR884.02020-04-05 07:48:17H4) 5    3UCFM 050730Z 26005MPS 240V300 CAVOK 18/09 Q1019 R26/0///95 NOSIGUCFM2020-04-05T07:30:00Z43.0774.4818.09.0260106.2130.088583TRUEVFRMETAR633.02020-04-05 07:48:17?3)5    3UDSG 050730Z VRB01KT 9000 NSC 09/01 Q1024 R02/CLRD70 NOSIGUDSG2020-04-05T07:30:00Z40.7543.879.01.0015.5930.236221TRUEVFRMETAR1524.02020-04-05 07:48:17 oQo&<(Y5   3DAUH 050730Z 13006KT CAVOK 15/06 Q1020DAUH2020-04-05T07:30:00Z31.676.1515.06.013066.2130.11811VFRMETAR142.02020-04-05 07:48:17';(Y5   3DAOO 050730Z 29001KT CAVOK 15/12 Q1018DAOO2020-04-05T07:30:00Z35.62-0.615.012.029016.2130.059055VFRMETAR90.02020-04-05 07:48:177:(s5   3DAON 050730Z 24002KT 6000 SCT010 BKN020 13/12 Q1018DAON2020-04-05T07:30:00Z35.02-1.4713.012.024023.7330.059055MVFRMETAR247.02020-04-05 07:48:17F9)5    3DABC 050730Z VRB02KT 0350 R32/0500U R34/0600U FG VV001 04/04 Q1020DABC2020-04-05T07:30:00Z36.276.624.04.0020.2230.11811FGLIFR100METAR694.02020-04-05 07:48:17)8([5   3DAAT 050730Z 35005KT CAVOK 22/M09 Q1020DAAT2020-04-05T07:30:00Z22.825.4722.0-9.035056.2130.11811VFRMETAR1377.02020-04-05 07:48:17 a8A(u5   3VDPP 050730Z 13012KT 090V290 9999 SCT017 37/18 Q1008VDPP2020-04-05T07:30:00Z11.55104.8337.018.0130126.2129.763779VFRMETAR10.02020-04-05 07:48:17A@)5    3VVNB 050730Z 36008KT 320V030 9999 OVC043 19/13 Q1017 NOSIGVVNB2020-04-05T07:30:00Z21.22105.819.013.036086.2130.029528TRUEVFRMETAR12.02020-04-05 07:48:17C?)5    3VVTS 050730Z 15013KT 120V190 9999 SCT020 37/15 Q1008 NOSIGVVTS2020-04-05T07:30:00Z10.82106.6737.015.0150136.2129.763779TRUEVFRMETAR19.02020-04-05 07:48:177>(q5    3VVCR 050730Z 08014KT 9999 FEW015 32/27 Q1012 NOSIGVVCR2020-04-05T07:30:00Z12.0109.2232.027.080146.2129.88189TRUEVFRMETAR12.02020-04-05 07:48:17\=)95     3VVCI 050730Z AUTO 01006KT 350V050 9999 FEW016/// SCT018/// OVC030/// 19/16 Q1016 NOSIGVVCI2020-04-05T07:30:00Z20.82106.7319.016.01066.2130.0TRUETRUEMVFRMETAR3.02020-04-05 07:48:17 NEN;F(q5    3VLVT 050730Z 12004KT 8000 BKN020 34/23 Q1009 NOSIGVLVT2020-04-05T07:30:00Z17.98102.5734.023.012044.9729.793306TRUEMVFRMETAR171.02020-04-05 07:48:177E(q5    3VYMD 050730Z 27007KT 7000 FEW020 39/07 Q1008 NOSIGVYMD2020-04-05T07:30:00Z21.795.9839.07.027074.3529.763779TRUEMVFRMETAR91.02020-04-05 07:48:176D(s5   3VDSR 050730Z 17006KT 9999 SCT015 SCT040 36/21 Q1007VDSR2020-04-05T07:30:00Z13.42103.8336.021.017066.2129.734253VFRMETAR15.02020-04-05 07:48:177C(u5   3VDSV 050730Z 14009KT 100V190 9999 SCT017 34/21 Q1009VDSV2020-04-05T07:30:00Z10.58103.6334.021.014096.2129.793306VFRMETAR10.02020-04-05 07:48:175B(q5    3VVDN 050730Z 09007KT 9999 FEW015 32/22 Q1012 NOSIGVVDN2020-04-05T07:30:00Z16.02108.232.022.09076.2129.88189TRUEVFRMETAR7.02020-04-05 07:48:17 BtAK)5    3VTBU 050730Z 18013KT 150V210 9999 FEW020 31/23 Q1010 NOSIGVTBU2020-04-05T07:30:00Z12.68101.031.023.0180136.2129.822834TRUEVFRMETAR5.02020-04-05 07:48:17EJ)5     3VTCC 050730Z 16006KT 110V200 5000 HZ NSC 37/12 Q1008 NOSIGVTCC2020-04-05T07:30:00Z18.7798.9737.012.016063.1129.763779TRUEHZMVFRMETAR314.02020-04-05 07:48:17@I)5    3VTSP 050730Z 10007KT 060V120 9999 FEW020 34/22 Q1008 NOSIGVTSP2020-04-05T07:30:00Z8.1298.3234.022.010076.2129.763779TRUEVFRMETAR10.02020-04-05 07:48:17HH)5    3VTBD 050730Z 19010KT 160V240 9999 FEW020 SCT040 36/23 Q1009 NOSIGVTBD2020-04-05T07:30:00Z13.92100.636.023.0190106.2129.793306TRUEVFRMETAR3.02020-04-05 07:48:178G(q5    3VYYY 050730Z 21006KT 8000 SCT020 38/24 Q1007 NOSIGVYYY2020-04-05T07:30:00Z16.996.1338.024.021064.9729.734253TRUEMVFRMETAR33.02020-04-05 07:48:17 7A|7:P(y5    3UKWW 050730Z 04005MPS 360V070 CAVOK 09/M07 Q1032 NOSIGUKWW2020-04-05T07:30:00Z49.2528.69.0-7.040106.2130.47244TRUEVFRMETAR293.02020-04-05 07:48:170O(k5   3UKKM 050730Z AUTO 34005MPS 9999 // 08/M05 Q1032UKKM2020-04-05T07:30:00Z50.630.28.0-5.0340106.2130.47244TRUEMETAR157.02020-04-05 07:48:17IN)5    3UKKK 050730Z 34004MPS 310V010 9000 NSC 08/M06 Q1032 R26/190060 NOSIGUKKK2020-04-05T07:30:00Z50.430.458.0-6.034085.5930.47244TRUEVFRMETAR179.02020-04-05 07:48:17?M(5    3VTSS 050730Z 08013KT 9999 SCT020 BKN100 33/23 Q1009 NOSIGVTSS2020-04-05T07:30:00Z6.92100.3833.023.080136.2129.793306TRUEVFRMETAR35.02020-04-05 07:48:179L(q5    3VTBS 050730Z 18014KT 9999 FEW025 35/24 Q1009 NOSIGVTBS2020-04-05T07:30:00Z13.68100.7535.024.0180146.2129.793306TRUEVFRMETAR2.02020-04-05 07:48:17  AbST))5     3RCMQ 050730Z 03005KT 7000 -RA FEW010 SCT030 BKN050 17/13 Q1016 NOSIG RMK A3003RCMQ2020-04-05T07:30:00Z24.27120.6217.013.03054.3530.0TRUE-RAMVFRSPECI5.02020-04-05 07:48:17YS))5     3RCSS 050730Z 10011KT 9999 -RA FEW016 BKN025 BKN040 18/13 Q1020 NOSIG RMK A3013RCSS2020-04-05T07:30:00Z25.07121.5318.013.0100116.2130.11811TRUE-RAMVFRSPECI6.02020-04-05 07:48:17YR)15    3RCKH 050730Z 32007KT 280V340 9999 FEW016 SCT054 BKN120 28/16 Q1015 NOSIG RMK A2998RCKH2020-04-05T07:30:00Z22.57120.3328.016.032076.2129.970472TRUEVFRMETAR9.02020-04-05 07:48:17ZQ))5     3RCTP 050730Z 06017KT 9999 -RA FEW012 BKN025 BKN035 17/13 Q1019 NOSIG RMK A3011RCTP2020-04-05T07:30:00Z25.07121.2217.013.060176.2130.088583TRUE-RAMVFRMETAR33.02020-04-05 07:48:17 /O0Y(i5   3EIWF 050730Z 16019KT 120V180 CAVOK 10/07 Q1003EIWF2020-04-05T07:30:00Z52.18-7.0810.07.0160196.2129.616142VFRMETAR36.02020-04-05 07:48:176X(m5    3EIKY 050730Z 15016KT 9999 -RA BKN030 11/08 Q0997EIKY2020-04-05T07:30:00Z52.18-9.5211.08.0150166.2129.438976-RAMVFRMETAR34.02020-04-05 07:48:17?W(5    3VMMC 050730Z 01012KT 9000 FEW008 SCT020 18/17 Q1017 NOSIGVMMC2020-04-05T07:30:00Z22.15113.5818.017.010125.5930.029528TRUEVFRMETAR6.02020-04-05 07:48:17ZV)15    3RCFN 050730Z 36006KT 310V040 9999 FEW020 SCT030 BKN045 22/14 Q1018 NOSIG RMK A3008RCFN2020-04-05T07:30:00Z22.77121.0722.014.036066.2130.059055TRUEVFRSPECI42.02020-04-05 07:48:17KU)5    3RCNN 050730Z 36012KT 9999 FEW012 BKN050 24/13 Q1015 NOSIG RMK A2999RCNN2020-04-05T07:30:00Z22.93120.224.013.0360126.2129.970472TRUEVFRSPECI19.02020-04-05 07:48:17 G{D^({5    3KBDU 050730Z AUTO 25005KT 10SM CLR 06/M03 A2982 RMK AO2KBDU2020-04-05T07:30:00Z40.03-105.236.0-3.0250510.029.819881TRUETRUEVFRSPECI1612.02020-04-05 07:48:17B]({5    3K7BM 050730Z AUTO 00000KT 10SM CLR 02/M07 A2994 RMK AO2K7BM2020-04-05T07:30:00Z38.78-106.222.0-7.00010.029.940945TRUETRUEVFRSPECI2995.02020-04-05 07:48:17O\)5    3K20V 050730Z AUTO 00000KT 10SM SCT075 BKN090 M01/M04 A2988 RMK AO2K20V2020-04-05T07:30:00Z40.05-106.37-1.0-4.00010.029.878937TRUETRUEVFRSPECI2259.02020-04-05 07:48:17F[(}5    3K04V 050730Z AUTO 34006KT 10SM CLR M01/M10 A2992 RMK AO2K04V2020-04-05T07:30:00Z38.1-106.17-1.0-10.0340610.029.920275TRUETRUEVFRSPECI2385.02020-04-05 07:48:173Z(e5    3GMFO 050730Z 33006KT CAVOK 13/12 Q1018 NOSIGGMFO2020-04-05T07:30:00Z34.77-1.9213.012.033066.2130.059055TRUEVFRMETAR470.02020-04-05 07:48:17 8_Ob) 5   3KCPW 050730Z AUTO 20023G34KT 10SM OVC040 M03/M09 A3006 RMK AO2KCPW2020-04-05T07:30:00Z37.45-106.8-3.0-9.0200233410.030.059055TRUETRUEVFRSPECI3584.02020-04-05 07:48:17Da({5    3KHEQ 050730Z AUTO 18008KT 10SM CLR 02/M05 A2990 RMK AO2KHEQ2020-04-05T07:30:00Z40.57-102.282.0-5.0180810.029.899607TRUETRUEVFRSPECI1137.02020-04-05 07:48:17S`)5    3KGNB 050730Z AUTO 08006KT 10SM SCT110 M02/M05 A2989 RMK AO2 T10221051KGNB2020-04-05T07:30:00Z40.08-105.92-2.2-5.180610.029.890747TRUETRUEVFRSPECI2500.02020-04-05 07:48:17B_({5    3KBJC 050730Z AUTO 24004KT 10SM CLR 03/M02 A2982 RMK AO2KBJC2020-04-05T07:30:00Z39.9-105.13.0-2.0240410.029.819881TRUETRUEVFRMETAR1724.02020-04-05 07:48:17 6Z=f(u5     3NZWN 050730Z AUTO 01008KT 9999 NCD 15/13 Q1026 NOSIGNZWN2020-04-05T07:30:00Z-41.32174.815.013.01086.2130.295275TRUETRUEVFRMETAR7.02020-04-05 07:48:17De)5     3NZAA 050730Z AUTO 07004KT 9999 BKN060/// 16/10 Q1025 NOSIGNZAA2020-04-05T07:30:00Z-37.02174.816.010.07046.2130.265747TRUETRUEVFRMETAR6.02020-04-05 07:48:17Vd)5    3KWYS 050730Z AUTO 00000KT 10SM FEW045 SCT050 OVC070 M04/M08 A2968 RMK AO2KWYS2020-04-05T07:30:00Z44.67-111.12-4.0-8.00010.029.681103TRUETRUEVFRSPECI2025.02020-04-05 07:48:17Dc({5    3KMNH 050730Z AUTO 19009KT 10SM CLR 00/M03 A2988 RMK AO2KMNH2020-04-05T07:30:00Z39.22-104.650.0-3.0190910.029.878937TRUETRUEVFRMETAR2152.02020-04-05 07:48:17 :plj)[5    3RJAA 050730Z 07007KT 040V110 9999 FEW015 SCT060 BKN080 08/04 Q1010 NOSIG RMK 1CU015 3SC060 7AC080 A2985RJAA2020-04-05T07:30:00Z35.77140.378.04.07076.2129.822834TRUEVFRMETAR44.02020-04-05 07:48:17Ei)5    3FMEP 050730Z AUTO 13018KT CAVOK 29/23 Q1014 BECMG 12020G30KTFMEP2020-04-05T07:30:00Z-21.3255.4229.023.0130186.2129.940945TRUEVFRMETAR18.02020-04-05 07:48:17Dh)5    3FMEE 050730Z AUTO 09016KT CAVOK 30/23 Q1013 TEMPO 12015G25KTFMEE2020-04-05T07:30:00Z-20.8755.5230.023.090166.2129.911417TRUEVFRSPECI25.02020-04-05 07:48:17@g(u5     3NZCH 050730Z AUTO 09012KT 9999 NCD 14/12 Q1022 NOSIGNZCH2020-04-05T07:30:00Z-43.47172.5514.012.090126.2130.177166TRUETRUEVFRMETAR34.02020-04-05 07:48:17 GR6n(s5   3ROAH 050730Z 36015KT 9999 FEW030 SCT/// 20/13 Q1018ROAH2020-04-05T07:30:00Z26.17127.6520.013.0360156.2130.059055VFRMETAR8.02020-04-05 07:48:17om)c5    3RJTT 050730Z 09009KT 9999 -RA FEW015 BKN050 BKN090 10/07 Q1010 BECMG 04010KT RMK 1CU015 6SC050 7AC090 A2984RJTT2020-04-05T07:30:00Z35.53139.7710.07.09096.2129.822834-RAVFRMETAR8.02020-04-05 07:48:17Kl)5    3RJFF 050730Z 35015KT 9999 FEW040 13/00 Q1019 NOSIG RMK 1CU040 A3009RJFF2020-04-05T07:30:00Z33.57130.4313.00.0350156.2130.088583TRUEVFRMETAR12.02020-04-05 07:48:17bk)A5    3RJCC 050730Z 18012KT 9999 VCSH FEW015 SCT070 06/M01 Q1007 RMK 1ST015 3AC070 A2974 SH SW-NWRJCC2020-04-05T07:30:00Z42.77141.676.0-1.0180126.2129.734253VCSHVFRMETAR30.02020-04-05 07:48:17 u%BuGr) 5    3UTSS 050730Z 11012KT 9999 SCT066CB 17/12 Q1019 R09/CLRD70 NOSIGUTSS2020-04-05T07:30:00Z39.766.9817.012.0110126.2130.088583TRUEVFRMETAR724.02020-04-05 07:48:17Oq)5    3YFRT 050730Z AUTO 18008KT 150V230 9999 // NCD 22/07 Q1019 RF00.0/000.0YFRT2020-04-05T07:30:00Z-30.83128.1222.07.018086.2130.088583TRUEVFRMETAR156.02020-04-05 07:48:17p)w5  )  3RJSA 050730Z 27008KT 1500 R24/1300VP1800N -SHSNRA BR FEW002 SCT005 BKN015 01/M01 Q1007 RMK 1ST002 3ST005 5CU015 A2975RJSA2020-04-05T07:30:00Z40.72140.681.0-1.027080.9329.734253-SHSN -SHRA BRLIFRSPECI201.02020-04-05 07:48:17Uo)5    3PAIM 050730Z AUTO VRB03KT 10SM BKN018 BKN055 01/00 A2945 RMK AO2 SLP991PAIM2020-04-05T07:30:00Z66.0-153.71.00.00310.029.450787999.1TRUETRUEMVFRSPECI389.02020-04-05 07:48:17 WMv)5    3UUOL 050730Z 27003MPS 230V310 9999 FEW040 07/M08 Q1023 R33/090060 NOSIGUUOL2020-04-05T07:30:00Z52.739.537.0-8.027066.2130.206694TRUEVFRMETAR176.02020-04-05 07:48:17/u(e5   3GCRR 050730Z 24004KT 9999 FEW020 19/16 Q1017GCRR2020-04-05T07:30:00Z28.93-13.5819.016.024046.2130.029528VFRMETAR40.02020-04-05 07:48:17At(5    3KF45 050730Z AUTO 00000KT 10SM OVC055 23/18 A2992 RMK AO2KF452020-04-05T07:30:00Z26.85-80.2223.018.00010.029.920275TRUETRUEVFRSPECI7.02020-04-05 07:48:17\s)55    3UUYY 050730Z 29004MPS 250V320 9999 BKN040 01/M10 Q1011 R18/61D NOSIG RMK QFE749/0999UUYY2020-04-05T07:30:00Z61.6550.821.0-10.029086.2129.852362TRUEVFRSPECI119.02020-04-05 07:48:17 :UqLz)5    3UNTT 050730Z 11006MPS CAVOK 08/M07 Q1029 R03/090060 NOSIG RMK QFE755UNTT2020-04-05T07:30:00Z56.3885.228.0-7.0110126.2130.383858TRUEVFRMETAR182.02020-04-05 07:48:17^y)?5    3USTR 050730Z VRB01MPS 9999 OVC010 07/05 Q1006 R12/290060 R03/290060 NOSIG RMK QFE746/0995USTR2020-04-05T07:30:00Z57.1765.327.05.0026.2129.704725TRUEMVFRMETAR115.02020-04-05 07:48:17_x)?5    3USHH 050730Z 14003MPS 9000 -SHRA SCT023CB 02/01 Q1008 R06/290055 TEMPO 2000 SHRA BKN011CBUSHH2020-04-05T07:30:00Z61.0369.082.01.014065.5929.763779-SHRAVFRMETAR23.02020-04-05 07:48:17@w(5    3UUBW 050730Z 26005MPS CAVOK 04/M03 Q1021 R30/010060 NOSIGUUBW2020-04-05T07:30:00Z55.5538.154.0-3.0260106.2130.147638TRUEVFRMETAR115.02020-04-05 07:48:17 )FsK~)5    3UNEE 050730Z 23001MPS CAVOK 09/M10 Q1028 R23/CLRD60 NOSIG RMK QFE748UNEE2020-04-05T07:30:00Z55.2786.089.0-10.023026.2130.35433TRUEVFRMETAR260.02020-04-05 07:48:17M})5    3UNKL 050730Z 11006MPS CAVOK 08/M11 Q1033 R11/CLRD65 NOSIG RMK QFE749UNKL2020-04-05T07:30:00Z56.1792.488.0-11.0110126.2130.501968TRUEVFRMETAR276.02020-04-05 07:48:17]|)55    3UNNT 050730Z 13005MPS CAVOK 11/M04 Q1026 R07/090070 R16/090070 NOSIG RMK QFE759/1013UNNT2020-04-05T07:30:00Z55.0282.6311.0-4.0130106.2130.295275TRUEVFRMETAR111.02020-04-05 07:48:17Q{)5   3UNOO 050730Z 13010G15MPS CAVOK 13/M09 Q1014 R07/CLRD60 NOSIG RMK QFE752UNOO2020-04-05T07:30:00Z54.9773.3213.0-9.013019296.2129.940945TRUEVFRMETAR95.02020-04-05 07:48:17 -^J)5    3URWI 050730Z 29006MPS 260V320 CAVOK 14/M02 Q1022 R27/010065 NOSIGURWI2020-04-05T07:30:00Z46.3744.3314.0-2.0290126.2130.177166TRUEVFRMETAR150.02020-04-05 07:48:17A(5    3URWW 050730Z 34007MPS CAVOK 12/M04 Q1021 R06/010070 NOSIGURWW2020-04-05T07:30:00Z48.7844.3312.0-4.0340146.2130.147638TRUEVFRMETAR147.02020-04-05 07:48:17I)5    3UNAA 050730Z 03004MPS CAVOK 10/M07 Q1028 R02/090065 NOSIG RMK QFE748UNAA2020-04-05T07:30:00Z53.7591.410.0-7.03086.2130.35433TRUEVFRMETAR245.02020-04-05 07:48:17M)5    3UNBB 050730Z 10008MPS CAVOK 10/M05 Q1024 R24/CLRD66 NOSIG RMK QFE746UNBB2020-04-05T07:30:00Z53.3783.5310.0-5.0100166.2130.236221TRUEVFRMETAR255.02020-04-05 07:48:17 }*@Y}V)%5    3UIAA 050730Z 35008MPS 9999 NSC 08/M16 Q1024 R29/CLRD60 NOSIG RMK QFE709/0946UIAA2020-04-05T07:30:00Z52.02113.328.0-16.0350166.2130.236221TRUEVFRMETAR685.02020-04-05 07:48:17a)G5   3URRP 050730Z 35008MPS 310V010 CAVOK 13/M10 Q1024 R05/CLRD70 TEMPO 33009G14MPS RMK QFE764/1018URRP2020-04-05T07:30:00Z47.539.9213.0-10.0350166.2130.236221VFRMETAR65.02020-04-05 07:48:17d)I5    3URSS 050730Z 26003MPS 9999 NSC 15/08 Q1021 R02/010070 R06/010070 NOSIG RMK R06/27004MPS QFE764URSS2020-04-05T07:30:00Z43.4539.9515.08.026066.2130.147638TRUEVFRMETAR16.02020-04-05 07:48:17P)5    3URWA 050730Z 24006MPS CAVOK 14/05 Q1022 R27/010070 NOSIG RMK QFE768/1025URWA2020-04-05T07:30:00Z46.2848.0214.05.0240126.2130.177166TRUEVFRMETAR-20.02020-04-05 07:48:17 6jqY ))5    3UEEE 050730Z 27006MPS 9999 SCT040CB M03/M11 Q1018 R23L/450150 NOSIG RMK QFE755UEEE2020-04-05T07:30:00Z62.08129.77-3.0-11.0270126.2130.059055TRUEVFRMETAR103.02020-04-05 07:48:17s )Y5     3UUBC 050730Z 29004MPS 250V310 9999 -SHGS BKN010CB OVC033 03/M01 Q1024 R31/190055 NOSIG RMK QFE751/1001UUBC2020-04-05T07:30:00Z54.5536.373.0-1.029086.2130.236221TRUE-SHGSMVFRMETAR199.02020-04-05 07:48:17F)5    3K65S 050730Z AUTO 00000KT 10SM BKN075 M03/M05 A2968 RMK AO2K65S2020-04-05T07:30:00Z48.73-116.3-3.0-5.00010.029.681103TRUETRUEVFRMETAR713.02020-04-05 07:48:17D(5    3K6I2 050730Z AUTO 35004KT 10SM BKN100 13/11 A3002 RMK AO2K6I22020-04-05T07:30:00Z37.63-85.2513.011.0350410.030.02067TRUETRUEVFRSPECI264.02020-04-05 07:48:17 ,hK)5    3UUDL 050730Z 28005MPS CAVOK 04/M05 Q1018 R23/010060 NOSIG RMK QFE755UUDL2020-04-05T07:30:00Z57.5740.174.0-5.0280106.2130.059055TRUEVFRMETAR88.02020-04-05 07:48:17U ))5    3UUEE 050730Z 30004MPS 250V330 CAVOK 03/M05 Q1021 R24L/CLRD62 R24R/CLRD62 NOSIGUUEE2020-04-05T07:30:00Z55.9737.423.0-5.030086.2130.147638TRUEVFRMETAR190.02020-04-05 07:48:17> (5    3UUWW 050730Z 27004MPS CAVOK 03/M03 Q1021 R24/190058 NOSIGUUWW2020-04-05T07:30:00Z55.637.273.0-3.027086.2130.147638TRUEVFRMETAR203.02020-04-05 07:48:17N )5    3UUMO 050730Z 29003MPS CAVOK 02/M00 Q1022 R26/190055 NOSIG RMK QFE751/1001UUMO2020-04-05T07:30:00Z55.5237.52.00.029066.2130.177166TRUEVFRMETAR174.02020-04-05 07:48:17 ,ap^)35    3UHMM 050730Z 22005MPS 9999 SCT018 M07/M10 Q1018 R10/15//60 NOSIG RMK MT OBSC QFE748UHMM2020-04-05T07:30:00Z59.92150.72-7.0-10.0220106.2130.059055TRUEVFRMETAR175.02020-04-05 07:48:17k)K5     3UHSS 050730Z 02006MPS 9999 -SHRA OVC020CB 02/M00 Q1010 R01/650251 NOSIG RMK MT OBSC QFE756/1008UHSS2020-04-05T07:30:00Z46.88142.722.00.020126.2129.822834TRUE-SHRAMVFRMETAR31.02020-04-05 07:48:17E) 5    3ULLI 050730Z 30008MPS 9999 FEW033 03/M07 Q1024 R28L/090060 NOSIGULLI2020-04-05T07:30:00Z59.830.273.0-7.0300166.2130.236221TRUEVFRMETAR4.02020-04-05 07:48:17N)%5   3UUDD 050730Z 28006MPS 9999 SCT033CB 03/M02 Q1021 R32L/290045 TEMPO 1500 SHSNUUDD2020-04-05T07:30:00Z55.437.93.0-2.0280126.2130.147638VFRMETAR168.02020-04-05 07:48:17 DjY)+5   3UUOO 050730Z 30007G13MPS 270V340 CAVOK 08/M08 Q1024 R30/090070 NOSIG RMK QFE754UUOO2020-04-05T07:30:00Z51.8239.238.0-8.030014256.2130.236221TRUEVFRMETAR157.02020-04-05 07:48:17T)5    3UHBB 050730Z 14005MPS CAVOK 11/M15 Q1017 R36/090060 NOSIG RMK QFE745/0994UHBB2020-04-05T07:30:00Z50.43127.4211.0-15.0140106.2130.029528TRUEVFRMETAR195.02020-04-05 07:48:17Q)!5    3UHHH 050730Z 02008MPS CAVOK 08/M06 Q1015 R05R/090060 NOSIG RMK QFE755/1007UHHH2020-04-05T07:30:00Z48.52135.188.0-6.020166.2129.970472TRUEVFRMETAR72.02020-04-05 07:48:17_)35     3UHWW 050730Z 05005MPS 9999 -SHSN BKN023CB 01/M01 Q1017 R07R/0///70 NOSIG RMK QFE761UHWW2020-04-05T07:30:00Z43.4132.151.0-1.050106.2130.029528TRUE-SHSNMVFRMETAR14.02020-04-05 07:48:17 .Qp^)=5    3ULAA 050730Z 30004MPS 260V340 9999 FEW020 M01/M05 Q1011 R26/910562 NOSIG RMK QFE757/1009ULAA2020-04-05T07:30:00Z64.640.72-1.0-5.030086.2129.852362TRUEVFRMETAR19.02020-04-05 07:48:17[)55    3ULMM 050730Z 28004MPS 9999 SCT020CB BKN040 M04/M08 Q1010 R31/490242 NOSIG RMK QFE750ULMM2020-04-05T07:30:00Z68.7832.75-4.0-8.028086.2129.822834TRUEVFRMETAR51.02020-04-05 07:48:17W)15    3ULOO 050730Z 30005MPS 260V330 9999 SCT045 04/M05 Q1028 R19/090065 NOSIG RMK QFE767ULOO2020-04-05T07:30:00Z57.7828.44.0-5.0300106.2130.35433TRUEVFRMETAR47.02020-04-05 07:48:17L)5    3UMKK 050730Z 24004MPS CAVOK 08/01 Q1034 R24/CLRD95 NOSIG RMK QFE775/1033UMKK2020-04-05T07:30:00Z54.8820.68.01.024086.2130.531496TRUEVFRMETAR21.02020-04-05 07:48:17 *8h*-(e5    3OTBD 050730Z 35015KT CAVOK 33/06 Q1016 NOSIGOTBD2020-04-05T07:30:00Z25.2551.5733.06.0350156.2130.0TRUEVFRMETAR10.02020-04-05 07:48:17@)5    3WBKK 050730Z 31005KT 230V350 9999 FEW015 34/26 Q1007 NOSIGWBKK2020-04-05T07:30:00Z5.92116.0334.026.031056.2129.734253TRUEVFRMETAR3.02020-04-05 07:48:17?(5    3WBSB 050730Z 32004KT 9999 FEW016 BKN300 33/26 Q1007 NOSIGWBSB2020-04-05T07:30:00Z4.92114.9233.026.032046.2129.734253TRUEVFRMETAR15.02020-04-05 07:48:17J)5   3WMKK 050730Z 23008KT 160V290 9000 FEW017CB 32/26 Q1008 TEMPO 6000 -TSRAWMKK2020-04-05T07:30:00Z2.75101.7232.026.023085.5929.763779VFRMETAR22.02020-04-05 07:48:17B)5    3WMKP 050730Z 23009KT 190V270 9999 FEW017CB 32/26 Q1008 NOSIGWMKP2020-04-05T07:30:00Z5.28100.2732.026.023096.2129.763779TRUEVFRMETAR4.02020-04-05 07:48:17 )h@$(5    3OPIS 050725Z 09006KT 6000 FEW040 BKN100 26/14 Q1015 NOSIGOPIS2020-04-05T07:25:00Z33.5572.8326.014.09063.7329.970472TRUEMVFRMETAR537.02020-04-05 07:48:176#(k5    3OPKC 050725Z 28006KT 6000 NSC 35/13 Q1013 NOSIGOPKC2020-04-05T07:25:00Z24.8867.1735.013.028063.7329.911417TRUEMVFRMETAR22.02020-04-05 07:48:17M")5   3OPLA 050725Z 15003KT 6000 FEW040 SCT100 30/14 Q1014 RMK QFE988 RMK A29.94OPLA2020-04-05T07:25:00Z31.5274.430.014.015033.7329.940945MVFRMETAR217.02020-04-05 07:48:17;!(u5   3KVWU 050728Z AUTO 00000KT 10SM M03/M05 A3010 RMK AO2KVWU2020-04-05T07:28:00Z48.15-94.52-3.0-5.00010.030.100393TRUETRUEMETAR360.02020-04-05 07:48:17Q ) 5   3KMYP 050729Z AUTO 23029G35KT 10SM SCT065 M03/M10 A3009 RMK AO2KMYP2020-04-05T07:29:00Z38.48-106.32-3.0-10.0230293510.030.088583TRUETRUEVFRSPECI3667.02020-04-05 07:48:17 En]()%5   3K5SM 050724Z AUTO 21010G21KT 10SM SCT035 BKN050 OVC060 M02/M08 A2998 RMK AO2K5SM2020-04-05T07:24:00Z39.43-107.38-2.0-8.0210102110.029.97933TRUETRUEVFRSPECI3232.02020-04-05 07:48:17C'({5    3K2V6 050724Z AUTO 15006KT 10SM CLR 00/M06 A2988 RMK AO2K2V62020-04-05T07:24:00Z40.1-102.720.0-6.0150610.029.878937TRUETRUEVFRSPECI1261.02020-04-05 07:48:17Q&)%5    3EBFS 050725Z AUTO 12007KT 9999 FEW085/// BKN100/// BKN220/// 10/01 Q1020 BLUEBFS2020-04-05T07:25:00Z50.224.6510.01.012076.2130.11811TRUEVFRMETAR299.02020-04-05 07:48:175%(q5    3EBCV 050725Z AUTO 12007KT 9999 NCD 11/02 Q1020 BLUEBCV2020-04-05T07:25:00Z50.573.8211.02.012076.2130.11811TRUEVFRMETAR63.02020-04-05 07:48:17 O~R,)5   3KMHV 050720Z AUTO 21012G17KT 10SM FEW033 FEW047 09/06 A2982 RMK A01KMHV2020-04-05T07:20:00Z35.07-118.159.06.0210121710.029.819881TRUETRUEVFRMETAR849.02020-04-05 07:48:18M+) 5    3KJSL 050720Z AUTO 22010KT 10SM FEW012 SCT020 25/23 A2984 RMK A01KJSL2020-04-05T07:20:00Z26.23-95.2525.023.02201010.029.840551TRUETRUEVFRMETAR10.02020-04-05 07:48:18K*)5     3KGZN 050720Z AUTO 11004KT 1/4SM FG OVC002 07/07 A3005 RMK AO2KGZN2020-04-05T07:20:00Z32.37-99.027.07.011040.2530.050198TRUETRUEFGLIFRMETAR522.02020-04-05 07:48:18+)(g5   3ENLE 050720Z 16026KT CAVOK 08/04 Q1020 W07/S4ENLE2020-04-05T07:20:00Z56.533.228.04.0160266.2130.11811VFRMETAR3.02020-04-05 07:48:17 X"iX31(s5   3FNCA 050700Z 00000KT 9999 FEW010 BKN080 27/25 Q1011FNCA2020-04-05T07:00:00Z-5.5812.1827.025.0006.2129.852362VFRMETAR20.02020-04-05 07:48:18!0(s5    3FNSO 050700Z 00000KT 9000 FEW008 BKN040 ///// Q////FNSO2020-04-05T07:00:00Z-6.1312.37005.59VFRMETAR5.02020-04-05 07:48:18+/(Y5   3SBAN 050700Z 07002KT CAVOK 20/19 Q1019SBAN2020-04-05T07:00:00Z-16.22-48.9720.019.07026.2130.088583VFRMETAR1137.02020-04-05 07:48:183.(c5    3SBNM 050700Z AUTO 09005KT CAVOK 13/11 Q1013SBNM2020-04-05T07:00:00Z-28.27-54.1713.011.09056.2129.911417TRUEVFRMETAR322.02020-04-05 07:48:18X-)5    3K33V 050715Z AUTO 13004KT 10SM SCT065 SCT080 SCT120 M01/M07 A2988 RMK AO1K33V2020-04-05T07:15:00Z40.75-106.28-1.0-7.0130410.029.878937TRUETRUEVFRSPECI2484.02020-04-05 07:48:18 VPV96(q5    3HEMM 050700Z 29018KT 7000 SCT020 18/11 Q1012 NOSIGHEMM2020-04-05T07:00:00Z31.3227.2218.011.0290184.3529.88189TRUEMVFRMETAR30.02020-04-05 07:48:18;5({5    3HEAX 050700Z 28014KT 3000 SA NSC 21/13 Q1011 TEMPO 4000HEAX2020-04-05T07:00:00Z31.1829.9321.013.0280141.8629.852362SAIFRSPECI7.02020-04-05 07:48:18D4)5     3HECP 050700Z 28014KT 0800 R19/1200 SS NSC 22/08 Q1012 NOSIGHECP2020-04-05T07:00:00Z30.0731.8322.08.0280140.529.88189TRUESSLIFRMETAR240.02020-04-05 07:48:18*3(Y5   3SGAS 050700Z 16005KT CAVOK 20/13 Q1012SGAS2020-04-05T07:00:00Z-25.25-57.5220.013.016056.2129.88189VFRMETAR101.02020-04-05 07:48:18*2(Y5   3SGES 050700Z 17003KT CAVOK 16/13 Q1012SGES2020-04-05T07:00:00Z-25.45-54.8516.013.017036.2129.88189VFRMETAR849.02020-04-05 07:48:18 aAa/;(e5    3HESH 050700Z 00000KT CAVOK 30/07 Q1013 NOSIGHESH2020-04-05T07:00:00Z27.9734.3830.07.0006.2129.911417TRUEVFRMETAR50.02020-04-05 07:48:181:(e5    3HEGN 050700Z 10003KT CAVOK 28/10 Q1011 NOSIGHEGN2020-04-05T07:00:00Z27.1833.828.010.010036.2129.852362TRUEVFRMETAR14.02020-04-05 07:48:1869(k5    3HEPS 050700Z 27016KT 6000 NSC 22/14 Q1010 NOSIGHEPS2020-04-05T07:00:00Z31.2832.2522.014.0270163.7329.822834TRUEMVFRMETAR6.02020-04-05 07:48:1828(k5    3HELX 050700Z 00000KT 6000 NSC 27/09 Q1011 NOSIGHELX2020-04-05T07:00:00Z25.6732.727.09.0003.7329.852362TRUEMVFRMETAR88.02020-04-05 07:48:1897(q5     3HEBA 050700Z 26015KT 2000 SA NSC 20/11 Q1012 NOSIGHEBA2020-04-05T07:00:00Z30.9229.720.011.0260151.2429.88189TRUESAIFRMETAR54.02020-04-05 07:48:18 <H <J@)!5   3MPMG 050700Z AUTO 36004KT //// R01///// // FEW046/// OVC080/// 26/22 Q1009MPMG2020-04-05T07:00:00Z8.98-79.5726.022.0360429.793306TRUEMETAR13.02020-04-05 07:48:18H?) 5    3CXWB 050700Z AUTO 34004KT M18/M24 RMK AO1 SLP384 T11811242 58009CXWB2020-04-05T07:00:00Z65.88-89.45-18.1-24.234041038.4TRUETRUE-0.9METAR18.02020-04-05 07:48:18/>(e5    3HEBL 050700Z 00000KT CAVOK 31/02 Q1012 NOSIGHEBL2020-04-05T07:00:00Z22.3831.6231.02.0006.2129.88189TRUEVFRMETAR188.02020-04-05 07:48:183=(g5    3HESG 050700Z 10004KT CAVOK 29/M04 Q1011 NOSIGHESG2020-04-05T07:00:00Z26.3331.7529.0-4.010046.2129.852362TRUEVFRMETAR70.02020-04-05 07:48:182<(e5    3HEAT 050700Z 33014KT CAVOK 26/03 Q1015 NOSIGHEAT2020-04-05T07:00:00Z27.0531.0226.03.0330146.2129.970472TRUEVFRMETAR70.02020-04-05 07:48:18 4qED)5    3KXVG 050752Z AUTO 00000KT 10SM BKN090 M04/M06 A3012 RMK AO2KXVG2020-04-05T07:52:00Z46.98-94.2-4.0-6.00010.030.121063TRUETRUEVFRMETAR407.02020-04-05 07:58:33^C)#5    3KP69 050752Z AUTO 00000KT 06/03 A2960 RMK AO1 SLP027 T00560028 401560017 $ KP692020-04-05T07:52:00Z46.15-115.65.62.80029.6013771002.7TRUETRUETRUE15.61.7METAR480.02020-04-05 07:58:33=B(u5   3KOWA 050753Z AUTO 12004KT 10SM M02/M04 A3014 RMK AO2KOWA2020-04-05T07:53:00Z44.12-93.25-2.0-4.0120410.030.138779TRUETRUEMETAR350.02020-04-05 07:58:33FA)5    3KFOZ 050753Z AUTO 00000KT 10SM SCT110 M06/M07 A3016 RMK AO2KFOZ2020-04-05T07:53:00Z47.77-93.65-6.0-7.00010.030.159449TRUETRUEVFRMETAR411.02020-04-05 07:58:33 GfLH) 5    3KILE 050752Z AUTO 36004KT 10SM FEW005 OVC010 08/08 A3003 RMK AO2KILE2020-04-05T07:52:00Z31.07-97.678.08.0360410.030.029528TRUETRUEMVFRMETAR258.02020-04-05 07:58:33[G)5    3KEST 050752Z AUTO 27005KT 10SM CLR M06/M07 A3011 RMK AO2 SLP212 T10561067KEST2020-04-05T07:52:00Z43.4-94.75-5.6-6.7270510.030.1092531021.2TRUETRUEVFRMETAR401.02020-04-05 07:58:33QF)5    3CZPC 050752Z AUTO /////KT 9SM OVC006 M06/M07 A2974 RMK WND MISG SLP136CZPC2020-04-05T07:52:00Z49.52-114.0-6.0-7.09.029.7401581013.6TRUEIFRSPECI1190.02020-04-05 07:58:33\E)'5     3CYVO 050752Z AUTO 29007KT 9SM -RA BKN005 BKN023 OVC028 03/03 A2991 RMK SLP144CYVO2020-04-05T07:52:00Z48.07-77.773.03.029079.029.9114171014.4TRUE-RAIFRSPECI337.02020-04-05 07:58:33 %%[L)5    3KCZZ 050752Z AUTO 24007KT 09/05 A2987 RMK AO1 SLP097 T00890050 401670050 KCZZ2020-04-05T07:52:00Z32.63-116.478.95.0240729.8700791009.7TRUETRUE16.75.0METAR807.02020-04-05 07:58:33qK)?5       3PAWS 050752Z AUTO 06005KT 10SM -RA FEW020 BKN047 OVC060 02/M01 A2987 RMK AO2 P0000 FZRANOPAWS2020-04-05T07:52:00Z61.57-149.532.0-1.060510.029.870079TRUETRUETRUE-RAVFR0.005METAR107.02020-04-05 07:58:33J)[5       3PAWM 050752Z AUTO 18018G27KT 1/2SM -RA OVC003 A2921 RMK AO2 PK WND 19027/0743 RAB04SNE04 P0000 FZRANO $PAWM2020-04-05T07:52:00Z64.68-163.4218018270.529.208662TRUETRUETRUETRUE-RALIFR0.005SPECI82.02020-04-05 07:58:33xI)G5     3PABA 050752Z AUTO 07010KT 10SM CLR M16/M18 A2949 RMK AO2 SNE0653 SLP994 T11561178 FZRANO TSNOPABA2020-04-05T07:52:00Z70.13-143.58-15.6-17.8701010.029.489174999.4TRUETRUETRUETRUEVFRMETAR2.02020-04-05 07:58:33 =pMP) 5   3KREO 050752Z AUTO 17008KT 03/M01 A2962 RMK AO1 SLP027 T00331006 KREO2020-04-05T07:52:00Z42.58-117.873.3-0.6170829.6190951002.7TRUETRUEMETAR1235.02020-04-05 07:58:33GO) 5   3KCDJ 050752Z AUTO 00000KT 01/00 A3012 RMK AO1 SLP210 T00060000 KCDJ2020-04-05T07:52:00Z39.77-93.480.60.00030.1210631021.0TRUETRUEMETAR234.02020-04-05 07:58:33XN)5    3KNRB 050752Z AUTO 09003KT 10SM CLR 19/17 A2992 RMK AO2 SLP131 T01940167 KNRB2020-04-05T07:52:00Z30.38-81.4219.416.790310.029.9202751013.1TRUETRUEVFRMETAR5.02020-04-05 07:58:33_M)#5    3KVTN 050752Z AUTO 18010KT 10SM BKN120 04/M07 A2993 RMK AO2 SLP139 T00391067KVTN2020-04-05T07:52:00Z42.87-100.553.9-6.71801010.029.9291341013.9TRUETRUEVFRMETAR788.02020-04-05 07:58:33 ?-?WT)+5   3PKMR 050751Z 08015KT 15SM FEW014 SCT050 OVC110 28/24 A2978 RMK SLP088 T02810243PKMR2020-04-05T07:51:00Z7.08171.3828.124.3801515.029.7785431008.8VFRMETAR4.02020-04-05 07:58:33lS)55     3KNZY 050752Z AUTO 15008KT 10SM OVC031 14/09 A2992 RMK AO2 SLP130 T01440089 401780139KNZY2020-04-05T07:52:00Z32.7-117.2214.48.9150810.029.9202751013.0TRUETRUEVFR17.813.9METAR8.02020-04-05 07:58:33R)m5     3KBAN 050752Z AUTO 23013G17KT 9SM -SN FEW024 OVC036 02/M04 A2967 RMK AO2 SNB05 SLP020 P0000 T00221044 401001006 $KBAN2020-04-05T07:52:00Z38.35-119.522.2-4.423013179.029.669291002.0TRUETRUETRUE-SNVFR10.0-0.60.005METAR2057.02020-04-05 07:58:33MQ) 5   3KN60 050752Z AUTO 28007KT M03/M04 A2992 RMK AO1 SLP158 T10331039KN602020-04-05T07:52:00Z47.65-101.43-3.3-3.9280729.9202751015.8TRUETRUEMETAR582.02020-04-05 07:58:33 <fEX)5    3KAQP 050751Z AUTO 13007KT 10SM BKN100 01/M03 A3008 RMK AO2KAQP2020-04-05T07:51:00Z45.22-96.01.0-3.0130710.030.079725TRUETRUEVFRMETAR311.02020-04-05 07:58:33PW)5     3YBTL 050751Z AUTO 36003KT 9999 SHRA SCT036 SCT064 BKN078 24/23 Q1010YBTL2020-04-05T07:51:00Z-19.25146.7524.023.036036.2129.822834TRUESHRAVFRSPECI6.02020-04-05 07:58:33SV)5     3CYDN 050751Z AUTO 29002KT 9SM -SN OVC039 M07/M10 A3001 RMK SLP185CYDN2020-04-05T07:51:00Z51.1-100.03-7.0-10.029029.030.0088581018.5TRUE-SNVFRSPECI305.02020-04-05 07:58:33eU)15    3CYNM 050751Z AUTO 32013G19KT 2 1/2SM -SN OVC008 M00/M01 A2992 RMK ICG INTMT SLP144CYNM2020-04-05T07:51:00Z49.77-77.820.0-1.032013192.529.9202751014.4TRUE-SNIFRSPECI281.02020-04-05 07:58:33 f!AQfe\)55     3KMPV 050751Z AUTO 00000KT 5SM BR FEW001 OVC090 00/M02 A3003 RMK AO2 SLP179 T00001017KMPV2020-04-05T07:51:00Z44.2-72.570.0-1.7005.030.0295281017.9TRUETRUEBRMVFRMETAR343.02020-04-05 07:58:33j[)75     3KOCF 050751Z AUTO 00000KT 2SM HZ FEW100 BKN120 18/14 A2992 RMK AO2 SLP130 T01830139 $KOCF2020-04-05T07:51:00Z29.17-82.2218.313.9002.029.9202751013.0TRUETRUETRUEHZIFRMETAR27.02020-04-05 07:58:33ZZ)!5    3KOXC 050751Z AUTO 19004KT 10SM OVC060 07/04 A3002 RMK AO2 SLP181 T00670044KOXC2020-04-05T07:51:00Z41.47-73.136.74.4190410.030.020671018.1TRUETRUEVFRMETAR222.02020-04-05 07:58:33YY)!5    3KDAW 050751Z AUTO 00000KT 10SM OVC035 04/02 A3003 RMK AO2 SLP166 T00440022KDAW2020-04-05T07:51:00Z43.28-70.924.42.20010.030.0295281016.6TRUETRUEVFRMETAR100.02020-04-05 07:58:33 303w`)C5       3PATE 050751Z AUTO 17017KT 4SM -SN BR SCT019 BKN025 OVC035 00/M01 A2909 RMK AO2 P0000 FZRANOPATE2020-04-05T07:51:00Z65.23-166.330.0-1.0170174.029.090551TRUETRUETRUE-SN BRMVFR0.005METAR90.02020-04-05 07:58:33X_)5    3KTPL 050751Z AUTO 35005KT 7SM OVC005 08/08 A3003 RMK AO2 SLP167 T00830083KTPL2020-04-05T07:51:00Z31.13-97.48.38.335057.030.0295281016.7TRUETRUEIFRMETAR208.02020-04-05 07:58:33|^)K5       3PAFM 050751Z AUTO 14009KT 8SM -SN OVC011 01/M01 A2937 RMK AO2 RAE06SNB06 P0001 400061022 FZRANOPAFM2020-04-05T07:51:00Z67.1-157.851.0-1.014098.029.371063TRUETRUETRUE-SNMVFR0.6-2.20.01METAR79.02020-04-05 07:58:33j])55     3PAMD 050751Z AUTO 20005KT 10SM OVC080 04/03 A2993 RMK AO2 SLP122 T00390028 400720033PAMD2020-04-05T07:51:00Z59.43-146.33.92.8200510.029.9291341012.2TRUETRUEVFR7.23.3METAR14.02020-04-05 07:58:33 }1M^}[d)5    3KGDP 050751Z AUTO 16005KT 10SM CLR 12/01 A3001 RMK AO2 SLP118 T01170011KGDP2020-04-05T07:51:00Z31.83-104.8211.71.1160510.030.0088581011.8TRUETRUEVFRMETAR1692.02020-04-05 07:58:33ic)15     3KATT 050751Z AUTO 02004KT 2 1/2SM BR OVC003 11/09 A3003 RMK AO2 SLP169 T01060094 $KATT2020-04-05T07:51:00Z30.32-97.7710.69.42042.530.0295281016.9TRUETRUETRUEBRLIFRMETAR201.02020-04-05 07:58:33^b)%5    3KNYC 050751Z AUTO 00000KT 10SM BKN060 09/06 A3005 RMK AO2 SLP166 T00890056 $KNYC2020-04-05T07:51:00Z40.78-73.978.95.60010.030.0501981016.6TRUETRUETRUEVFRMETAR11.02020-04-05 07:58:33Ia) 5   3KP58 050751Z AUTO 33008KT 02/M01 A3010 RMK AO1 SLP200 T00171006KP582020-04-05T07:51:00Z44.02-82.81.7-0.6330830.1003931020.0TRUETRUEMETAR179.02020-04-05 07:58:33 pAMpWh)%5    3KALB 050751Z 33003KT 10SM FEW028 OVC050 09/06 A3001 RMK AO2 SLP164 T00940061KALB2020-04-05T07:51:00Z42.75-73.89.46.1330310.030.0088581016.4TRUEVFRMETAR92.02020-04-05 07:58:33ng)55     3KAVX 050751Z AUTO 25008KT 10SM BKN025 11/08 A2991 RMK AO2 SLP121 T01060078 401670089KAVX2020-04-05T07:51:00Z33.4-118.4210.67.8250810.029.9114171012.1TRUETRUEMVFR16.78.9METAR482.02020-04-05 07:58:33Uf)5    3KBAZ 050751Z AUTO 02006KT 8SM OVC006 13/11 A3000 RMK AO2 SLP154 T01280111KBAZ2020-04-05T07:51:00Z29.72-98.0512.811.12068.030.01015.4TRUETRUEIFRMETAR195.02020-04-05 07:58:33^e))5    3KBDL 050751Z 19006KT 10SM BKN040 OVC065 08/04 A3001 RMK AO2 SLP164 T00780044 $KBDL2020-04-05T07:51:00Z41.93-72.687.84.4190610.030.0088581016.4TRUETRUEVFRMETAR60.02020-04-05 07:58:33 !Ckel)%5     3KEGI 050751Z AUTO 31003KT 10SM -RA FEW001 18/15 A2993 RMK AO2 RAB50 SLP135 $KEGI2020-04-05T07:51:00Z30.63-86.5218.015.0310310.029.9291341013.5TRUETRUETRUE-RAVFRSPECI59.02020-04-05 07:58:33Rk)5    3KABE 050751Z 25006KT 10SM OVC049 12/07 A3002 RMK AO2 SLP166 T01220067KABE2020-04-05T07:51:00Z40.65-75.4512.26.7250610.030.020671016.6TRUEVFRMETAR114.02020-04-05 07:58:33Xj)5    3KACT 050751Z AUTO 01005KT 8SM OVC007 09/07 A3004 RMK AO2 SLP171 T00890072KACT2020-04-05T07:51:00Z31.62-97.238.97.21058.030.0413381017.1TRUETRUEIFRMETAR151.02020-04-05 07:58:33Yi)5    3KAHN 050751Z AUTO 18003KT 10SM CLR 16/06 A2996 RMK AO2 SLP140 T01560056KAHN2020-04-05T07:51:00Z33.95-83.3315.65.6180310.029.9586621014.0TRUETRUEVFRMETAR244.02020-04-05 07:58:33 Lk~Vp)5    3KBGD 050751Z AUTO 19004KT 10SM CLR 08/01 A2998 RMK AO2 SLP140 T00780011KBGD2020-04-05T07:51:00Z35.7-101.47.81.1190410.029.979331014.0TRUETRUEVFRMETAR927.02020-04-05 07:58:33go)+5    3KBHK 050751Z AUTO 13003KT 10SM CLR M05/M06 A2989 RMK AO2 SLP140 T10501061 PNO $KBHK2020-04-05T07:51:00Z46.35-104.25-5.0-6.1130310.029.8907471014.0TRUETRUETRUEVFRMETAR902.02020-04-05 07:58:33[n)!5    3KBKW 050751Z AUTO 13005KT 10SM BKN080 10/01 A3003 RMK AO2 SLP154 T01000006KBKW2020-04-05T07:51:00Z37.8-81.1210.00.6130510.030.0295281015.4TRUETRUEVFRMETAR764.02020-04-05 07:58:33.m(i5   3EKRK 050751Z 18005KT 150V220 CAVOK 09/02 Q1031EKRK2020-04-05T07:51:00Z55.5712.129.02.018056.2130.442913VFRMETAR44.02020-04-05 07:58:33 0LxWt)5     3KBNO 050751Z AUTO 29003KT 1 1/2SM BR SCT001 SCT006 M01/M03 A2962 RMK AO2KBNO2020-04-05T07:51:00Z43.6-118.95-1.0-3.029031.529.619095TRUETRUEBRIFRMETAR1264.02020-04-05 07:58:33Ns)5    3KCAK 050751Z 35005KT 10SM OVC070 12/04 A3000 RMK AO2 SLP158 T01220039KCAK2020-04-05T07:51:00Z40.92-81.4512.23.9350510.030.01015.8TRUEVFRMETAR377.02020-04-05 07:58:33^r)/5    3KBED 050751Z AUTO 00000KT 10SM BKN041 OVC055 06/01 A3003 RMK AO2 SLP183 T00560011KBED2020-04-05T07:51:00Z42.47-71.35.61.10010.030.0295281018.3TRUETRUEVFRMETAR50.02020-04-05 07:58:33Jq)5     3KBEH 050751Z AUTO 00000KT 3SM BR SCT001 M01/M02 A3013 RMK AO2KBEH2020-04-05T07:51:00Z42.13-86.42-1.0-2.0003.030.129921TRUETRUEBRMVFRMETAR191.02020-04-05 07:58:33 #KcRx)5     3KCRS 050751Z AUTO 34004KT 2 1/2SM BR BKN003 OVC007 09/08 A3006 RMK AO2KCRS2020-04-05T07:51:00Z32.03-96.49.08.034042.530.059055TRUETRUEBRLIFRMETAR133.02020-04-05 07:58:33bw)/5    3KCSG 050751Z AUTO 06003KT 10SM FEW080 BKN110 19/08 A2992 RMK AO2 SLP127 T01940078KCSG2020-04-05T07:51:00Z32.52-84.9519.47.860310.029.9202751012.7TRUETRUEVFRMETAR135.02020-04-05 07:58:33Rv)5    3KCLE 050751Z 34006KT 10SM BKN050 08/03 A3007 RMK AO2 SLP182 T00830028KCLE2020-04-05T07:51:00Z41.42-81.858.32.8340610.030.0708661018.2TRUEVFRMETAR233.02020-04-05 07:58:33Wu)#5    3KCMH 050751Z 34007KT 9SM BKN065 OVC090 11/07 A3001 RMK AO2 SLP162 T01110067KCMH2020-04-05T07:51:00Z40.0-82.8811.16.734079.030.0088581016.2TRUEVFRMETAR247.02020-04-05 07:58:33 mAbmo|)C5   3KELP 050751Z 25021G31KT 10SM SCT250 18/M03 A2991 RMK AO2 PK WND 26031/0723 SLP069 T01831028KELP2020-04-05T07:51:00Z31.82-106.3818.3-2.8250213110.029.9114171006.9TRUEVFRMETAR1197.02020-04-05 07:58:33Y{)!5    3KERI 050751Z AUTO 00000KT 10SM OVC050 08/04 A3003 RMK AO2 SLP170 T00780039KERI2020-04-05T07:51:00Z42.08-80.187.83.90010.030.0295281017.0TRUETRUEVFRMETAR222.02020-04-05 07:58:33Vz)!5    3KCON 050751Z AUTO 00000KT 10SM OVC060 04/02 A3002 RMK AO2 SLP168 T00390017KCON2020-04-05T07:51:00Z43.2-71.53.91.70010.030.020671016.8TRUETRUEVFRMETAR103.02020-04-05 07:58:33]y)5     3KCRP 050751Z 33012KT 6SM BR OVC004 13/13 A2996 RMK AO2 SLP145 T01330128 $KCRP2020-04-05T07:51:00Z27.77-97.513.312.8330126.029.9586621014.5TRUETRUEBRLIFRMETAR14.02020-04-05 07:58:33 !4`W)%5    3KEWR 050751Z 19004KT 10SM SCT045 SCT100 08/06 A3003 RMK AO2 SLP167 T00780056KEWR2020-04-05T07:51:00Z40.68-74.177.85.6190410.030.0295281016.7TRUEVFRMETAR7.02020-04-05 07:58:33N) 5    3KFUL 050751Z AUTO 18005KT 10SM BKN021 OVC049 16/11 A2989 RMK AO2KFUL2020-04-05T07:51:00Z33.87-117.9816.011.0180510.029.890747TRUETRUEMVFRMETAR35.02020-04-05 07:58:33g~)75    3KHDO 050751Z AUTO 30003KT 8SM OVC010 13/12 A3002 RMK AO2 CIG 007V012 SLP157 T01330122KHDO2020-04-05T07:51:00Z29.37-99.1713.312.230038.030.020671015.7TRUETRUEMVFRMETAR282.02020-04-05 07:58:33Y})!5    3KEKN 050751Z AUTO 00000KT 10SM OVC080 03/01 A3005 RMK AO2 SLP181 T00330011KEKN2020-04-05T07:51:00Z38.88-79.853.31.10010.030.0501981018.1TRUETRUEVFRMETAR603.02020-04-05 07:58:33 "JiZ)!5    3KILG 050751Z AUTO 27005KT 10SM OVC047 11/07 A3005 RMK AO2 SLP175 T01060072KILG2020-04-05T07:51:00Z39.67-75.610.67.2270510.030.0501981017.5TRUETRUEVFRMETAR28.02020-04-05 07:58:33[)5    3KIGM 050751Z AUTO 17008KT 10SM CLR 12/01 A2980 RMK AO2 SLP039 T01220006KIGM2020-04-05T07:51:00Z35.25-113.9312.20.6170810.029.7992131003.9TRUETRUEVFRMETAR1032.02020-04-05 07:58:33R)5    3KHTS 050751Z 10003KT 10SM SCT100 13/05 A2998 RMK AO2 SLP147 T01280050KHTS2020-04-05T07:51:00Z38.37-82.5512.85.0100310.029.979331014.7TRUEVFRMETAR254.02020-04-05 07:58:33X)!5    3KHSE 050751Z AUTO VRB06KT 10SM SCT007 11/08 A3004 RMK AO2 SLP173 T01060083KHSE2020-04-05T07:51:00Z35.23-75.6210.68.30610.030.0413381017.3TRUETRUEVFRMETAR3.02020-04-05 07:58:33 y1^y_)#5    3KLGU 050751Z AUTO 11003KT 10SM OVC095 08/M02 A2968 RMK AO2 SLP026 T00831022KLGU2020-04-05T07:51:00Z41.78-111.858.3-2.2110310.029.6811031002.6TRUETRUEVFRMETAR1355.02020-04-05 07:58:33M)5    3KLGA 050751Z 18003KT 10SM CLR 09/05 A3002 RMK AO2 SLP166 T00890050KLGA2020-04-05T07:51:00Z40.78-73.888.95.0180310.030.020671016.6TRUEVFRMETAR11.02020-04-05 07:58:33^)35    3KJFK 050751Z 20008KT 10SM FEW007 SCT055 SCT070 07/07 A3004 RMK AO2 SLP173 T00670067KJFK2020-04-05T07:51:00Z40.63-73.776.76.7200810.030.0413381017.3TRUEVFRMETAR9.02020-04-05 07:58:33e)-5     3KJCT 050751Z AUTO 13004KT 1 3/4SM BR OVC002 10/10 A3003 RMK AO2 SLP155 T01000100KJCT2020-04-05T07:51:00Z30.5-99.7710.010.013041.7530.0295281015.5TRUETRUEBRLIFRMETAR522.02020-04-05 07:58:33 Q!QJ )5    3KORF 050751Z 00000KT 10SM CLR 07/05 A3008 RMK AO2 SLP186 T00720050KORF2020-04-05T07:51:00Z36.9-76.27.25.00010.030.0797251018.6TRUEVFRMETAR14.02020-04-05 07:58:33_ ))5    3KORD 050751Z 34004KT 10SM BKN160 BKN250 02/00 A3014 RMK AO2 SLP212 T00220000 $KORD2020-04-05T07:51:00Z41.98-87.932.20.0340410.030.1387791021.2TRUETRUEVFRMETAR200.02020-04-05 07:58:33m )A5      3KOAK 050751Z 22010KT 10SM -DZ SCT015 BKN021 OVC030 13/10 A2974 RMK AO2 RAB13E51DZB51 P0000KOAK2020-04-05T07:51:00Z37.72-122.2313.010.02201010.029.740158TRUE-DZMVFR0.005METAR26.02020-04-05 07:58:33 )W5      3KMYL 050751Z AUTO 16012KT 5SM -SN BR SCT005 BKN017 OVC031 01/M01 A2958 RMK AO2 SLP025 P0005 T00111011KMYL2020-04-05T07:51:00Z44.9-116.11.1-1.1160125.029.580711002.5TRUETRUE-SN BRMVFR0.05METAR1533.02020-04-05 07:58:33 {,W{V)%5    3KPVD 050751Z 00000KT 10SM BKN043 OVC060 05/03 A3005 RMK AO2 SLP175 T00500028KPVD2020-04-05T07:51:00Z41.72-71.435.02.80010.030.0501981017.5TRUEVFRMETAR16.02020-04-05 07:58:33O)5    3KPIT 050751Z 00000KT 10SM BKN100 08/03 A2999 RMK AO2 SLP163 T00830033KPIT2020-04-05T07:51:00Z40.47-80.28.33.30010.029.9911421016.3TRUEVFRMETAR339.02020-04-05 07:58:33T)5    3KPHX 050751Z 16011KT 10SM CLR 21/M02 A2977 RMK AO2 SLP068 T02061017KPHX2020-04-05T07:51:00Z33.43-112.0220.6-1.71601110.029.7696861006.8TRUEVFRMETAR336.02020-04-05 07:58:33t )C5     3KOXR 050751Z AUTO 27005KT 10SM BKN017 OVC039 13/10 A2990 RMK AO2 SLP122 T01280100 401720083KOXR2020-04-05T07:51:00Z34.2-119.212.810.0270510.029.8996071012.2TRUETRUEMVFR17.28.3METAR20.02020-04-05 07:58:33 Df[)5    3KSAD 050751Z AUTO 05003KT 10SM CLR 13/M05 A2988 RMK AO2 SLP081 T01281050KSAD2020-04-05T07:51:00Z32.85-109.6312.8-5.050310.029.8789371008.1TRUETRUEVFRMETAR962.02020-04-05 07:58:33X)5    3KROW 050751Z AUTO 20005KT 10SM CLR 07/04 A2994 RMK AO2 SLP107 T00670039KROW2020-04-05T07:51:00Z33.3-104.56.73.9200510.029.9409451010.7TRUETRUEVFRMETAR1112.02020-04-05 07:58:33R)5    3KRDU 050751Z 12004KT 10SM FEW250 10/07 A3007 RMK AO2 SLP180 T01000072KRDU2020-04-05T07:51:00Z35.9-78.7810.07.2120410.030.0708661018.0TRUEVFRMETAR130.02020-04-05 07:58:33^)/5    3KPWM 050751Z AUTO 00000KT 10SM SCT047 OVC060 05/02 A3004 RMK AO2 SLP173 T00500017KPWM2020-04-05T07:51:00Z43.65-70.35.01.70010.030.0413381017.3TRUETRUEVFRMETAR15.02020-04-05 07:58:33 i 'GiX)!5    3KSLK 050751Z AUTO 00000KT 10SM OVC028 04/02 A2997 RMK AO2 SLP156 T00390022KSLK2020-04-05T07:51:00Z44.4-74.23.92.20010.029.9704721015.6TRUETRUEMVFRMETAR498.02020-04-05 07:58:33Z)!5    3KSJT 050751Z AUTO 08004KT 10SM OVC009 10/07 A3002 RMK AO2 SLP166 T01000067KSJT2020-04-05T07:51:00Z31.37-100.510.06.780410.030.020671016.6TRUETRUEIFRMETAR576.02020-04-05 07:58:33`))5    3KSAT 050751Z 31005KT 10SM BKN009 OVC022 13/12 A3002 RMK AO2 SLP154 T01330117 $KSAT2020-04-05T07:51:00Z29.53-98.4713.311.7310510.030.020671015.4TRUETRUEIFRMETAR243.02020-04-05 07:58:33m)95     3KSAN 050751Z 15009KT 10SM FEW027 OVC032 16/10 A2994 RMK AO2 SLP136 T01610100 401890150KSAN2020-04-05T07:51:00Z32.73-117.1816.110.0150910.029.9409451013.6TRUEVFR18.915.0METAR12.02020-04-05 07:58:33 [A[`)%5     3KVCT 050751Z AUTO 35008KT 3SM BR OVC003 14/12 A2997 RMK AO2 SLP146 T01390122KVCT2020-04-05T07:51:00Z28.87-96.9313.912.235083.029.9704721014.6TRUETRUEBRLIFRMETAR31.02020-04-05 07:58:33J)5    3KTEB 050751Z 00000KT 10SM CLR 08/05 A3002 RMK AO2 SLP164 T00780050KTEB2020-04-05T07:51:00Z40.87-74.057.85.00010.030.020671016.4TRUEVFRMETAR7.02020-04-05 07:58:33l)55     3KSMX 050751Z AUTO 15005KT 10SM OVC031 12/09 A2988 RMK AO2 SLP120 T01170094 401670056KSMX2020-04-05T07:51:00Z34.9-120.4511.79.4150510.029.8789371012.0TRUETRUEVFR16.75.6METAR74.02020-04-05 07:58:33w)C5     3KSMO 050751Z AUTO 20006KT 10SM SCT018 OVC027 14/10 A2990 RMK AO2 SLP123 T01440100 401780106KSMO2020-04-05T07:51:00Z34.02-118.4514.410.0200610.029.8996071012.3TRUETRUEMVFR17.810.6METAR57.02020-04-05 07:58:33 rIrQ )%5   3OAKB 050750Z 11010KT 9999 FEW040 BKN075 BKN110 14/04 Q1023 RMK A3023 BLU BLUOAKB2020-04-05T07:50:00Z34.5569.2214.04.0110106.2130.206694VFRMETAR1791.02020-04-05 07:58:33M)5   3KP59 050751Z AUTO 31004KT M01/M03 A3018 RMK AO1 SLP230 T10061028 KP592020-04-05T07:51:00Z47.47-87.88-0.6-2.8310430.1801191023.0TRUETRUEMETAR190.02020-04-05 07:58:33Z))5    3KYNG 050751Z 31003KT 10SM FEW055 OVC070 09/04 A3000 RMK AO2 SLP158 T00940044 $KYNG2020-04-05T07:51:00Z41.25-80.679.44.4310310.030.01015.8TRUETRUEVFRMETAR360.02020-04-05 07:58:33~)Q5     3KVNY 050751Z AUTO 16006KT 10SM FEW020 BKN025 OVC060 13/09 A2988 RMK AO2 SLP114 T01330094 402000106KVNY2020-04-05T07:51:00Z34.22-118.4813.39.4160610.029.8789371011.4TRUETRUEMVFR20.010.6METAR245.02020-04-05 07:58:33 <=m<5%(g5    3EFOU 050750Z AUTO 31010KT CAVOK M02/M10 Q1022EFOU2020-04-05T07:50:00Z64.9225.37-2.0-10.0310106.2130.177166TRUEVFRMETAR15.02020-04-05 07:58:338$(q5    3LATI 050750Z 35014KT 9999 OVC150 14/03 Q1013 NOSIGLATI2020-04-05T07:50:00Z41.4219.7214.03.0350146.2129.911417TRUEVFRMETAR90.02020-04-05 07:58:332#(i5    3KEFD 050750Z 34005KT 5SM BR OVC004 17/16 A2995KEFD2020-04-05T07:50:00Z29.6-95.1717.016.034055.029.949802BRLIFRMETAR10.02020-04-05 07:58:33J")5    3VNKT 050750Z 27005KT 200V300 8000 FEW020 SCT030 25/07 Q1017 NOSIGVNKT2020-04-05T07:50:00Z27.6885.3725.07.027054.9730.029528TRUEMVFRMETAR1337.02020-04-05 07:58:33=!(y5    3KFDK 050750Z AUTO 00000KT 10SM CLR 07/07 A3005 RMK AO2KFDK2020-04-05T07:50:00Z39.42-77.377.07.00010.030.050198TRUETRUEVFRMETAR92.02020-04-05 07:58:33 H^*);5    3ENTO 050750Z 21010KT 0250 R18/0900N R36/0550N FG VV003 05/05 Q1026 BECMG 2000 BR OVC005ENTO2020-04-05T07:50:00Z59.210.275.05.0210100.1630.295275FGLIFR300METAR88.02020-04-05 07:58:339)(s5    3EFHK 050750Z 31013KT 9999 FEW044 03/M08 Q1027 NOSIGEFHK2020-04-05T07:50:00Z60.3224.973.0-8.0310136.2130.324802TRUEVFRMETAR56.02020-04-05 07:58:33B()5    3EFTP 050750Z AUTO 31010KT 270V350 9999 FEW034 01/M08 Q1026EFTP2020-04-05T07:50:00Z61.4223.621.0-8.0310106.2130.295275TRUEVFRMETAR112.02020-04-05 07:58:338'(u5    3EFTU 050750Z AUTO 29007KT 250V010 CAVOK 03/M08 Q1028EFTU2020-04-05T07:50:00Z60.5222.273.0-8.029076.2130.35433TRUEVFRMETAR59.02020-04-05 07:58:332&(g5    3EFVA 050750Z AUTO 28008KT CAVOK M01/M06 Q1026EFVA2020-04-05T07:50:00Z63.0321.77-1.0-6.028086.2130.295275TRUEVFRMETAR4.02020-04-05 07:58:33  8Y8.(5   3ENRO 050750Z AUTO VRB01KT 9999NDV SCT060/// M06/M11 Q1021ENRO2020-04-05T07:50:00Z62.5711.33-6.0-11.00130.147638TRUEMETAR626.02020-04-05 07:58:33Y-)+5     3ENRY 050750Z AUTO 18012KT 0600NDV R12/1100N R30/1700D -DZ OVC001/// 06/05 Q1026ENRY2020-04-05T07:50:00Z59.3710.776.05.0180120.6830.295275TRUE-DZLIFRMETAR53.02020-04-05 07:58:33K,)'5   3ENSB 050750Z VRB03KT 9999 FEW020 BKN200 M17/M21 Q1016 RMK WIND 1400FT 00000KTENSB2020-04-05T07:50:00Z78.2515.47-17.0-21.0036.2130.0VFRMETAR29.02020-04-05 07:58:33q+)c5    3ENTC 050750Z 18018KT 0800 SHSN VV004 M05/M06 Q1016 TEMPO 22020G30KT 0500 SHSN VV003 RMK WIND 2600FT 18027KTENTC2020-04-05T07:50:00Z69.6818.92-5.0-6.0180180.530.0SHSNLIFR400METAR10.02020-04-05 07:58:33 ?G?P3)5     3ENVA 050750Z 12009KT CAVOK M01/M08 Q1022 NOSIG RMK WIND 670FT 11009KTENVA2020-04-05T07:50:00Z63.4710.92-1.0-8.012096.2130.177166TRUEVFR-0.9METAR17.02020-04-05 07:58:33<2(5    3ENZV 050750Z 15012KT 9999 SCT057 BKN078 09/03 Q1022 NOSIGENZV2020-04-05T07:50:00Z58.875.629.03.0150126.2130.177166TRUEVFRMETAR9.02020-04-05 07:58:3331(s5   3ENAL 050750Z 14012KT 9999 SCT040 BKN070 05/02 Q1018ENAL2020-04-05T07:50:00Z62.576.125.02.0140126.2130.059055VFRMETAR22.02020-04-05 07:58:3310(s5   3ENCN 050750Z 04004KT 6000 FEW002 BKN084 04/04 Q1026ENCN2020-04-05T07:50:00Z58.28.074.04.04043.7330.295275MVFRMETAR17.02020-04-05 07:58:333/(s5   3ENHD 050750Z 16017KT 9999 FEW010 BKN065 08/04 Q1021ENHD2020-04-05T07:50:00Z59.355.228.04.0160176.2130.147638VFRMETAR24.02020-04-05 07:58:33 <jTJ7)5    3ENBO 050750Z 26009KT 9999 VCSH FEW005 FEW012CB SCT045 M02/M08 Q1022ENBO2020-04-05T07:50:00Z67.2714.37-2.0-8.026096.2130.177166VCSHVFRMETAR13.02020-04-05 07:58:336)5      3ENDU 050750Z AUTO 22004KT 150V320 9999 -SN FEW009/// SCT039/// BKN200/// M03/M10 Q1017 RMK WIND 1100FT 20020KT WIND 2200FT 23027KTENDU2020-04-05T07:50:00Z69.0318.55-3.0-10.022046.2130.029528TRUE-SNVFR2.0METAR79.02020-04-05 07:58:33L5)5    3ENGM 050750Z 16007KT 8000 -RA OVC003 03/02 Q1025 TEMPO 4000 -DZRA OVC004ENGM2020-04-05T07:50:00Z60.211.13.02.016074.9730.265747-RALIFRMETAR204.02020-04-05 07:58:33>4)5    3ENOL 050750Z 12015KT 9999 FEW040 BKN065 01/M05 Q1021 NOSIGENOL2020-04-05T07:50:00Z63.79.581.0-5.0120156.2130.147638TRUEVFRMETAR7.02020-04-05 07:58:33 %]K;)5    3EYPA 050750Z AUTO 23005KT 150V280 9999 FEW071/// BKN098/// 07/05 Q1033EYPA2020-04-05T07:50:00Z55.9721.087.05.023056.2130.501968TRUEVFRMETAR10.02020-04-05 07:58:33?:)5   3LLBG 050750Z 14013KT CAVOK 32/06 Q1009 BECMG 24015KT 6000 NSCLLBG2020-04-05T07:50:00Z32.034.8832.06.0140136.2129.793306VFRSPECI49.02020-04-05 07:58:33B9)5    3ENAN 050750Z AUTO 25020KT 9000 -SN ///039/// M02/M07 Q1017ENAN2020-04-05T07:50:00Z69.2816.13-2.0-7.0250205.5930.029528TRUE-SNMETAR14.02020-04-05 07:58:33U8)/5    3ENBR 050750Z 14013KT 9999 FEW020 BKN057 07/05 Q1020 NOSIG RMK WIND 1200FT 14024KTENBR2020-04-05T07:50:00Z60.285.227.05.0140136.2130.11811TRUEVFRMETAR50.02020-04-05 07:58:33 :C:8@(s5    3EETN 050750Z 30012KT 9999 FEW030 04/M08 Q1029 NOSIGEETN2020-04-05T07:50:00Z59.424.824.0-8.0300126.2130.383858TRUEVFRMETAR40.02020-04-05 07:58:334?(u5   3EYKA 050750Z 26007KT 210V300 9999 BKN008 04/01 Q1034EYKA2020-04-05T07:50:00Z54.9724.084.01.026076.2130.531496IFRMETAR77.02020-04-05 07:58:33J>)5    3CYWK 050750Z AUTO 02007KT 9SM OVC007 M03/M05 A2986 RMK SLP140CYWK2020-04-05T07:50:00Z52.92-66.87-3.0-5.02079.029.8612211014.0TRUEIFRSPECI551.02020-04-05 07:58:33;=(}5    3EYSA 050750Z 22007KT 190V250 CAVOK 06/01 Q1033 BLU NOSIGEYSA2020-04-05T07:50:00Z55.923.46.01.022076.2130.501968TRUEVFRMETAR135.02020-04-05 07:58:337<(q5    3EYVI 050750Z 29008KT 9999 SCT019 05/01 Q1033 NOSIGEYVI2020-04-05T07:50:00Z54.6325.285.01.029086.2130.501968TRUEVFRMETAR197.02020-04-05 07:58:33 A|wD)S5      3KSXT 050750Z AUTO 17008KT 3/4SM BR FEW017 OVC031 02/01 A2947 RMK AO2 VIS M1/4V5 RAE12UPB12E41 P0000KSXT2020-04-05T07:50:00Z42.6-123.372.01.017080.7529.471457TRUETRUEBRLIFR0.005METAR1170.02020-04-05 07:58:33%C(Y5   3EKSP 050750Z 15010KT CAVOK 09/02 Q1028EKSP2020-04-05T07:50:00Z55.229.279.02.0150106.2130.35433VFRMETAR40.02020-04-05 07:58:33?B(}5     3EKVG 050750Z AUTO 13018KT 9999 -RA OVC008/// 07/06 Q0999EKVG2020-04-05T07:50:00Z62.07-7.37.06.0130186.2129.498032TRUE-RAIFRMETAR85.02020-04-05 07:58:339A(w5    3EVRA 050750Z 30007KT 240V330 CAVOK 07/M04 Q1032 NOSIGEVRA2020-04-05T07:50:00Z56.9223.977.0-4.030076.2130.47244TRUEVFRMETAR10.02020-04-05 07:58:33 :hTH)'5    3MSLP 050750Z VRB01KT 8000 FEW011 BKN019 BKN053 27/26 Q1008 A2978 NOSIG RMK HZMSLP2020-04-05T07:50:00Z13.43-89.0527.026.0014.9729.763779TRUEMVFRMETAR25.02020-04-05 07:58:339G(m5    3ESNX 050750Z AUTO 26011KT 9999 NCD M06/M12 Q1021ESNX2020-04-05T07:50:00Z65.5819.28-6.0-12.0260116.2130.147638TRUEVFRMETAR379.02020-04-05 07:58:33LF)5    3ESUT 050750Z AUTO 00000KT 9999 SCT022/// BKN034/// M10/M11 Q1021 RESNESUT2020-04-05T07:50:00Z65.815.08-10.0-11.0006.2130.147638TRUEVFRMETAR463.02020-04-05 07:58:33@E(}5    3ESNL 050750Z AUTO 25007KT 220V280 9999 NCD M02/M12 Q1024ESNL2020-04-05T07:50:00Z64.5518.72-2.0-12.025076.2130.236221TRUEVFRMETAR214.02020-04-05 07:58:33 C>C5M(g5    3EFIV 050750Z AUTO 27008KT CAVOK M05/M13 Q1014EFIV2020-04-05T07:50:00Z68.6227.42-5.0-13.027086.2129.940945TRUEVFRMETAR148.02020-04-05 07:58:33_L)'5    3KRYY 050750Z AUTO 00000KT 10SM CLR 13/09 A2996 RMK AO2 SLP867 T01330094 PNO $KRYY2020-04-05T07:50:00Z34.02-84.613.39.40010.029.958662986.7TRUETRUETRUEVFRSPECI317.02020-04-05 07:58:33(K(Y5   3LLER 050750Z 18015KT CAVOK 30/05 Q1010LLER2020-04-05T07:50:00Z29.7235.0230.05.0180156.2129.822834VFRMETAR69.02020-04-05 07:58:33'J(Y5   3LLHA 050750Z 12017KT CAVOK 27/06 Q1010LLHA2020-04-05T07:50:00Z32.7835.0227.06.0120176.2129.822834VFRMETAR8.02020-04-05 07:58:33l(w5    3EFET 050750Z AUTO 25003KT 230V290 CAVOK M10/M15 Q1015EFET2020-04-05T07:50:00Z68.3723.43-10.0-15.025036.2129.970472TRUEVFRMETAR306.02020-04-05 07:58:33@k(}5   3EFKE 050750Z AUTO 30008G19KT 260V350 CAVOK M03/M13 Q1020EFKE2020-04-05T07:50:00Z65.7724.57-3.0-13.03008196.2130.11811TRUEVFRMETAR15.02020-04-05 07:58:33 6?}6:t(w5    3EFKK 050750Z AUTO 29009KT 240V320 CAVOK M00/M09 Q1024EFKK2020-04-05T07:50:00Z63.7223.130.0-9.029096.2130.236221TRUEVFRMETAR25.02020-04-05 07:58:33?s)5    3EFPO 050750Z AUTO 28010KT 240V300 9999 FEW029 02/M06 Q1028EFPO2020-04-05T07:50:00Z61.4721.82.0-6.0280106.2130.35433TRUEVFRMETAR17.02020-04-05 07:58:33[7 ({5   3EDDL 050750Z 15013KT CAVOK 13/02 Q1023 BECMG 15015G25KTEDDL2020-04-05T07:50:00Z51.36.7713.02.0150136.2130.206694VFRMETAR44.02020-04-05 07:58:332 (g5    3EDDM 050750Z 09013KT CAVOK 09/M00 Q1025 NOSIGEDDM2020-04-05T07:50:00Z48.3511.829.00.090136.2130.265747TRUEVFRMETAR447.02020-04-05 07:58:332 (e5    3EDDN 050750Z 10011KT CAVOK 10/00 Q1026 NOSIGEDDN2020-04-05T07:50:00Z49.511.0810.00.0100116.2130.295275TRUEVFRMETAR312.02020-04-05 07:58:330 (e5    3EDDS 050750Z 07008KT CAVOK 10/01 Q1024 NOSIGEDDS2020-04-05T07:50:00Z48.679.2210.01.07086.2130.236221TRUEVFRMETAR419.02020-04-05 07:58:33< (w5    3EDDT 050750Z 13010KT 090V160 CAVOK 10/M02 Q1031 NOSIGEDDT2020-04-05T07:50:00Z52.5713.3210.0-2.0130106.2130.442913TRUEVFRMETAR37.02020-04-05 07:58:33 TAT7(u5    3EDDR 050750Z 07009KT 040V120 CAVOK 10/01 Q1023 NOSIGEDDR2020-04-05T07:50:00Z49.227.110.01.07096.2130.206694TRUEVFRMETAR320.02020-04-05 07:58:33.(e5    3EDDW 050750Z 13010KT CAVOK 08/01 Q1027 NOSIGEDDW2020-04-05T07:50:00Z53.038.88.01.0130106.2130.324802TRUEVFRMETAR5.02020-04-05 07:58:338(u5    3EDDF 050750Z 09011KT 030V110 CAVOK 11/01 Q1025 NOSIGEDDF2020-04-05T07:50:00Z50.058.611.01.090116.2130.265747TRUEVFRMETAR113.02020-04-05 07:58:338(}5   3EDDH 050750Z 15015KT CAVOK 10/M00 Q1028 TEMPO 15015G25KTEDDH2020-04-05T07:50:00Z53.6310.010.00.0150156.2130.35433VFRMETAR16.02020-04-05 07:58:339(u5    3EDDK 050750Z 13010KT 100V160 CAVOK 12/01 Q1024 NOSIGEDDK2020-04-05T07:50:00Z50.877.1512.01.0130106.2130.236221TRUEVFRMETAR99.02020-04-05 07:58:33 SI S4(g5    3EDDB 050750Z 12010KT CAVOK 10/M01 Q1031 NOSIGEDDB2020-04-05T07:50:00Z52.3813.5310.0-1.0120106.2130.442913TRUEVFRMETAR48.02020-04-05 07:58:33<(w5    3EDDC 050750Z 15009KT 110V180 CAVOK 11/M01 Q1030 NOSIGEDDC2020-04-05T07:50:00Z51.1313.7511.0-1.015096.2130.413385TRUEVFRMETAR226.02020-04-05 07:58:337(u5    3EDDE 050750Z 04004KT 360V060 CAVOK 06/01 Q1028 NOSIGEDDE2020-04-05T07:50:00Z50.9810.976.01.04046.2130.35433TRUEVFRMETAR323.02020-04-05 07:58:337(u5    3EDDG 050750Z 12005KT 030V200 CAVOK 10/01 Q1025 NOSIGEDDG2020-04-05T07:50:00Z52.137.710.01.012056.2130.265747TRUEVFRMETAR52.02020-04-05 07:58:331(e5    3EDDP 050750Z 13008KT CAVOK 09/00 Q1029 NOSIGEDDP2020-04-05T07:50:00Z51.4312.239.00.013086.2130.383858TRUEVFRMETAR149.02020-04-05 07:58:33 sJ)s0(w5   3LSMA 050750Z AUTO 00000KT 9999NDV NCD 07/01 Q1023 RMKLSMA2020-04-05T07:50:00Z46.958.287.01.00030.206694TRUEMETAR444.02020-04-05 07:58:33/(w5   3LSMD 050750Z AUTO VRB01KT 9999NDV NCD 08/02 Q1023 RMKLSMD2020-04-05T07:50:00Z47.48.658.02.00130.206694TRUEMETAR448.02020-04-05 07:58:33.(w5   3LSME 050750Z AUTO 00000KT 9999NDV NCD 08/02 Q1023 RMKLSME2020-04-05T07:50:00Z47.18.38.02.00030.206694TRUEMETAR427.02020-04-05 07:58:332(y5   3LSMM 050750Z AUTO 00000KT 9999NDV NCD 09/M02 Q1023 RMKLSMM2020-04-05T07:50:00Z46.758.129.0-2.00030.206694TRUEMETAR577.02020-04-05 07:58:330(w5   3LSMP 050750Z AUTO 00000KT 9999NDV NCD 07/02 Q1023 RMKLSMP2020-04-05T07:50:00Z46.826.927.02.00030.206694TRUEMETAR491.02020-04-05 07:58:33Y88@HPX`hpx (08@HPX`hpx (08@HPX`hpxKxL|MNOP QRSTU V%KxL|MNOP QRSTU V%W*X.Y3Z7[;\@]D^H_M`RaWb\c`deejfogthyi~jkl mnoq!r%s)t-u1v5w9x=yAzE{J|N}R~W[_cgkosw{ "',16;@EJOSX]bfkpuy~ `UK`e!)+5    3KVPS 050750Z AUTO 31003KT 10SM SCT023 BKN090 18/15 A2993 RMK AO2 RAE35 SLP142 $KVPS2020-04-05T07:50:00Z30.47-86.5218.015.0310310.029.9291341014.2TRUETRUETRUEVFRMETAR26.02020-04-05 07:58:33$ (Y5   3EKVD 050750Z 15009KT CAVOK 09/04 Q1028EKVD2020-04-05T07:50:00Z55.429.329.04.015096.2130.35433VFRMETAR45.02020-04-05 07:58:33,(o5   3EKSB 050750Z AUTO 14011KT 9999NDV NCD 09/02 Q1028EKSB2020-04-05T07:50:00Z54.979.89.02.01401130.35433TRUEMETAR23.02020-04-05 07:58:33((Y5   3EKOD 050750Z 16010KT CAVOK 10/01 Q1029EKOD2020-04-05T07:50:00Z55.4710.3210.01.0160106.2130.383858VFRMETAR17.02020-04-05 07:58:33%(Y5   3EKVJ 050750Z 15012KT CAVOK 09/04 Q1026EKVJ2020-04-05T07:50:00Z55.978.339.04.0150126.2130.295275VFRMETAR5.02020-04-05 07:58:33 u8npuu%)M5     3KTBN 050749Z AUTO 00000KT 8SM -DZ BKN007 OVC014 05/03 A3007 RMK AO2 DZB49 CIG 006 RWY33 SLP191 $KTBN2020-04-05T07:49:00Z37.72-92.125.03.0008.030.0708661019.1TRUETRUETRUE-DZIFRMETAR353.02020-04-05 07:58:33x$)E5       3PFNO 050749Z AUTO 17018KT 2 1/2SM -SN BR OVC004 00/M01 A2926 RMK AO2 UPE44SNB44 P0000 FZRANOPFNO2020-04-05T07:49:00Z66.82-161.020.0-1.0170182.529.258858TRUETRUETRUE-SN BRLIFR0.005SPECI17.02020-04-05 07:58:33D#(}5    3KMVH 050750Z AUTO 00000KT 10SM CLR M05/M08 A2981 RMK AO2KMVH2020-04-05T07:50:00Z46.83-108.93-5.0-8.00010.029.811024TRUETRUEVFRMETAR1355.02020-04-05 07:58:33B") 5  3PTRO 050750Z 06008G12KT 15SM FEW020 SCT120 BKN300 29/22 A2979 PTRO2020-04-05T07:50:00Z7.37134.5529.022.06081215.029.790354VFRMETAR54.02020-04-05 07:58:33 0Xsf))-5    3PAFR 050749Z AUTO 16008KT 10SM FEW006 BKN050 OVC065 05/01 A2980 RMK AO2 SLP099 $PAFR2020-04-05T07:49:00Z61.27-149.655.01.0160810.029.7992131009.9TRUETRUETRUEVFRMETAR115.02020-04-05 07:58:33_()#5      3KACV 050749Z AUTO 22006KT 3SM RA BR BKN004 OVC029 10/08 A2957 RMK AO2 P0012KACV2020-04-05T07:49:00Z40.98-124.110.08.022063.029.568897TRUETRUERA BRLIFR0.12SPECI67.02020-04-05 07:58:33R')5     3KBVO 050749Z AUTO 00000KT 4SM BR OVC004 05/04 A3011 RMK AO2 CIG 002V006KBVO2020-04-05T07:49:00Z36.77-96.025.04.0004.030.109253TRUETRUEBRLIFRSPECI210.02020-04-05 07:58:33J&) 5    3KOSU 050749Z AUTO 33008KT 10SM SCT009 BKN065 09/07 A3002 RMK AO2KOSU2020-04-05T07:49:00Z40.08-83.089.07.0330810.030.02067TRUETRUEVFRSPECI280.02020-04-05 07:58:33 UB-(5    3KMGY 050748Z AUTO 34009KT 10SM OVC009 09/07 A3004 RMK AO2KMGY2020-04-05T07:48:00Z39.6-84.239.07.0340910.030.041338TRUETRUEIFRSPECI289.02020-04-05 07:58:33=,(y5     3KTUL 050748Z 33004KT 2SM BR OVC003 06/05 A3009 RMK AO2KTUL2020-04-05T07:48:00Z36.2-95.886.05.033042.030.088583TRUEBRLIFRSPECI207.02020-04-05 07:58:33g+)/5      3KWVI 050748Z AUTO 23018G23KT 4SM RA SCT008 OVC024 12/ A2979 RMK AO2 RAB15 P0008 $KWVI2020-04-05T07:48:00Z36.93-121.7812.023018234.029.790354TRUETRUETRUERAMVFR0.08SPECI43.02020-04-05 07:58:33u*)c5    3RJSA 050749Z 25008KT 1600 R24/P1800U -SHSN FEW002 SCT005 BKN009 00/M01 Q1007 RMK 1ST002 3ST005 5ST009 A2975RJSA2020-04-05T07:49:00Z40.72140.680.0-1.025080.9929.734253-SHSNLIFRMETAR201.02020-04-05 07:58:33 2;jK1) 5   3KJDN 050748Z AUTO 00000KT M02/M06 A2986 RMK AO1 SLP135 T10221061KJDN2020-04-05T07:48:00Z47.33-106.95-2.2-6.10029.8612211013.5TRUETRUESPECI801.02020-04-05 07:58:33K0)5   3KNFW 050748Z AUTO 00000KT FEW008 OVC013 09/07 A3007 RMK AO2 VISNO N $KNFW2020-04-05T07:48:00Z32.78-97.439.07.00030.070866TRUETRUETRUEMETAR198.02020-04-05 07:58:33q/)=5       3PAOT 050748Z AUTO 17013KT 2SM -SN BR FEW004 OVC021 00/M01 A2919 RMK AO2 SNB00 P0001 TSNOPAOT2020-04-05T07:48:00Z66.87-162.580.0-1.0170132.029.190945TRUETRUETRUE-SN BRIFR0.01SPECI3.02020-04-05 07:58:33H.) 5    3KGKY 050748Z AUTO 29003KT 7SM BKN006 OVC026 09/07 A3006 RMK AO2KGKY2020-04-05T07:48:00Z32.67-97.19.07.029037.030.059055TRUETRUEIFRSPECI192.02020-04-05 07:58:33 ReR 5){5       3PATG 050747Z AUTO 21015KT 7SM UP FEW015 SCT022 OVC036 01/M01 A2993 RMK AO2 PK WND 21026/0703 RAB14E23UPB23 P0000 FZRANOPATG2020-04-05T07:47:00Z59.05-160.381.0-1.0210157.029.929134TRUETRUETRUEUPVFR0.005SPECI4.02020-04-05 07:58:33)4(Y5   3FAUT 050748Z 01003KT CAVOK 26/15 Q1014FAUT2020-04-05T07:48:00Z-31.5228.6726.015.01036.2129.940945VFRSPECI732.02020-04-05 07:58:33f3)+5   3CWEU 050748Z 18028G39KT 1/8SM +BLSN VV005 M14/M17 A3014 RMK BLSN8 PRESFR SLP221CWEU2020-04-05T07:48:00Z80.0-85.92-14.0-17.018028390.1330.1387791022.1+BLSNLIFR500SPECI10.02020-04-05 07:58:33z2)w5    3UAUU 050748Z 31005MPS 260V340 4100 BR BKN002 OVC033 06/06 Q1009 R15/190050 TEMPO 0400 FG VV002 RMK QBB080 QFE741/0988UAUU2020-04-05T07:48:00Z53.263.556.06.0310102.5529.793306BRLIFRSPECI182.02020-04-05 07:58:33 _9)'5      3PHTO 050747Z 19005KT 3SM RA BR BKN025 BKN030 OVC035 22/21 A3003 RMK AO2 P0031PHTO2020-04-05T07:47:00Z19.72-155.0522.021.019053.030.029528TRUERA BRMVFR0.31SPECI12.02020-04-05 07:58:33P8) 5     3CYRV 050747Z AUTO 00000KT 5SM BR OVC095 M02/M04 A2977 RMK SLP104CYRV2020-04-05T07:47:00Z50.97-118.17-2.0-4.0005.029.7696861010.4TRUEBRMVFRSPECI443.02020-04-05 07:58:337)w5      3PAMO 050747Z AUTO 24029G40KT 5SM -SN BR SCT005 OVC009 M02/M03 A2940 RMK AO2 PK WND 21044/0721 UPE13SNB13 P0000 FZRANOPAMO2020-04-05T07:47:00Z62.1-163.68-2.0-3.024029405.029.40059TRUETRUETRUE-SN BRIFR0.005SPECI103.02020-04-05 07:58:336)5    3PANA 050747Z AUTO 22024G33KT 2 1/2SM BR BKN014 BKN020 OVC025 M01/M02 A2968 RMK AO2 PK WND 23040/0728 VIS 1V5 PWINO FZRANOPANA2020-04-05T07:47:00Z60.68-161.98-1.0-2.022024332.529.681103TRUETRUETRUETRUEBRIFRSPECI5.02020-04-05 07:58:33 *Ku:=(5   3MMTO 050746Z RTD 00000KT 6SM SCT200 13/01 A3032 RMK 8/001MMTO2020-04-05T07:46:00Z19.35-99.5713.01.0006.030.318897VFRMETAR2576.02020-04-05 07:58:33P<)%5   3RJCO 050747Z 18011KT 9999 FEW020 SCT080 06/M01 Q1007 RMK 1CU020 3AC080 A2974RJCO2020-04-05T07:47:00Z43.12141.376.0-1.0180116.2129.734253VFRSPECI11.02020-04-05 07:58:33Y;)/5    3KPSF 050747Z AUTO 00000KT 10SM SCT012 SCT038 OVC050 09/07 A2998 RMK AO2 T00940067KPSF2020-04-05T07:47:00Z42.43-73.289.46.70010.029.97933TRUETRUEVFRSPECI355.02020-04-05 07:58:33P:)5     3KUGN 050747Z AUTO 30003KT 5SM BR CLR 00/M01 A3015 RMK AO2 T00001011KUGN2020-04-05T07:47:00Z42.42-87.870.0-1.130035.030.15059TRUETRUEBRMVFRSPECI222.02020-04-05 07:58:33 &^\A)!5      3KSLG 050746Z AUTO 00000KT 1 1/2SM BR OVC003 07/07 A3007 RMK AO2 TSNO PNO $KSLG2020-04-05T07:46:00Z36.2-94.477.07.0001.530.070866TRUETRUETRUETRUEBRLIFRSPECI300.02020-04-05 07:58:33H@) 5    3KCGS 050746Z AUTO 00000KT 10SM CLR 09/05 A3006 RMK AO1 T00870052KCGS2020-04-05T07:46:00Z38.98-76.928.75.20010.030.059055TRUETRUEVFRMETAR15.02020-04-05 07:58:33B?(5    3K2W6 050746Z AUTO 23004KT 10SM OVC050 08/07 A3009 RMK AO1K2W62020-04-05T07:46:00Z38.32-76.558.07.0230410.030.088583TRUETRUEVFRMETAR44.02020-04-05 07:58:33T>)5     3CYMO 050746Z AUTO 28008KT 6SM -SN BKN010 OVC015 M01/M02 A3000 RMK SLP162CYMO2020-04-05T07:46:00Z51.28-80.62-1.0-2.028086.030.01016.2TRUE-SNMVFRSPECI10.02020-04-05 07:58:33 r6dur}E)Q5     3KDLF 050746Z AUTO 13004KT 2 1/4SM BR OVC003 12/12 A3001 RMK AO2 VIS 2 1/4V5 CIG 002 RWY13 SLP161 $KDLF2020-04-05T07:46:00Z29.37-100.7712.012.013042.2530.0088581016.1TRUETRUETRUEBRLIFRSPECI330.02020-04-05 07:58:33iD)75     3KCEC 050746Z AUTO 17016G21KT 7SM RA BKN009 OVC044 10/08 A2955 RMK AO2 P0006 T01000083KCEC2020-04-05T07:46:00Z41.77-124.2210.08.317016217.029.551182TRUETRUERAIFR0.06SPECI17.02020-04-05 07:58:33LC)5    3KLCH 050746Z AUTO 00000KT 10SM SCT018 14/14 A2996 RMK AO2 T01440139KLCH2020-04-05T07:46:00Z30.13-93.2214.413.90010.029.958662TRUETRUEVFRSPECI4.02020-04-05 07:58:33DB) 5    3KLIT 050746Z 04003KT 10SM SCT026 12/09 A3004 RMK AO2 T01170089KLIT2020-04-05T07:46:00Z34.73-92.2311.78.940310.030.041338TRUEVFRSPECI79.02020-04-05 07:58:33 %5^%2J(e5    3LMML 050745Z 32016KT CAVOK 16/08 Q1017 NOSIGLMML2020-04-05T07:45:00Z35.8514.4716.08.0320166.2130.029528TRUEVFRMETAR91.02020-04-05 07:58:33.I(g5   3KFMH 050745Z 01004KT 10SM OVC055 M01/00 A3004KFMH2020-04-05T07:45:00Z41.63-70.52-1.00.010410.030.041338VFRMETAR40.02020-04-05 07:58:33GH)5     3KROG 050745Z AUTO 08003KT 1SM BR OVC003 07/06 A3006 RMK AO2KROG2020-04-05T07:45:00Z36.37-94.087.06.08031.030.059055TRUETRUEBRLIFRSPECI415.02020-04-05 07:58:33QG) 5      3KVBT 050745Z AUTO 10003KT 3SM BR OVC004 07/07 A3008 RMK AO2 TSNOKVBT2020-04-05T07:45:00Z36.35-94.227.07.010033.030.079725TRUETRUETRUEBRLIFRSPECI395.02020-04-05 07:58:33EF)5    3FALA 050746Z 34004KT 300V010 6000 FEW010 16/14 Q1023 NOSIGFALA2020-04-05T07:46:00Z-25.9227.9216.014.034043.7330.206694TRUEMVFRSPECI1377.02020-04-05 07:58:33 8sKN) 5    3KCGE 050745Z AUTO 25003KT 10SM BKN010 OVC044 10/09 A3008 RMK A01KCGE2020-04-05T07:45:00Z38.53-76.0310.09.0250310.030.079725TRUETRUEMVFRMETAR6.02020-04-05 07:58:33MM)5    3KAEX 050745Z 00000KT 3/4SM FEW003 OVC090 16/16 A2996 RMK AO2 T01560156KAEX2020-04-05T07:45:00Z31.33-92.5715.615.6000.7529.958662TRUELIFRSPECI27.02020-04-05 07:58:33?L(y5    3K2G4 050745Z AUTO 22004KT 10SM CLR 07/01 A3002 RMK AO1K2G42020-04-05T07:45:00Z39.58-79.337.01.0220410.030.02067TRUETRUEVFRMETAR894.02020-04-05 07:58:33BK(}5    3KTWM 050745Z AUTO 00000KT 10SM CLR M06/M11 A3015 RMK AO2KTWM2020-04-05T07:45:00Z47.03-91.75-6.0-11.00010.030.15059TRUETRUEVFRSPECI328.02020-04-05 07:58:33 /_CR) 5    3CWPF 050745Z AUTO 00000KT 06/M00 RMK AO1 SLP042 T00571001 56007CWPF2020-04-05T07:45:00Z48.43-123.435.7-0.1001004.2TRUETRUE-0.7METAR12.02020-04-05 07:58:33@Q(5    3KFME 050745Z AUTO 00000KT 10SM OVC050 08/06 A3008 RMK AO1KFME2020-04-05T07:45:00Z39.08-76.778.06.00010.030.079725TRUETRUEVFRMETAR46.02020-04-05 07:58:33JP)5     3KLEB 050745Z AUTO 00000KT 3SM BR OVC001 02/01 A3000 RMK AO2 T00170006KLEB2020-04-05T07:45:00Z43.63-72.31.70.6003.030.0TRUETRUEBRLIFRSPECI171.02020-04-05 07:58:33KO)5    3KCMA 050745Z 00000KT 10SM BKN015 OVC035 13/09 A2990 RMK AO2 T01330094KCMA2020-04-05T07:45:00Z34.22-119.113.39.40010.029.899607TRUEMVFRSPECI23.02020-04-05 07:58:33 I:W(w5    3LHSN 050745Z 05017KT CAVOK 12/M01 Q1028 NOSIG RMK BLULHSN2020-04-05T07:45:00Z47.1220.2312.0-1.050176.2130.35433TRUEVFRMETAR98.02020-04-05 07:58:33&V(e5   3KSWF 050745Z 00000KT 10SM SCT060 08/05 A3000KSWF2020-04-05T07:45:00Z41.5-74.088.05.00010.030.0VFRMETAR150.02020-04-05 07:58:338U(}5     3CMGB 050745Z AUTO 36001KT 02/ RMK AO1 SLP160 T0023 58003CMGB2020-04-05T07:45:00Z45.37-72.772.336011016.0TRUETRUE-0.3METAR86.02020-04-05 07:58:33DT(5    3KW29 050745Z AUTO 21004KT 10SM OVC049 11/10 A3007 RMK AO2KW292020-04-05T07:45:00Z38.98-76.3311.010.0210410.030.070866TRUETRUEVFRMETAR15.02020-04-05 07:58:33gS)55      3KPDT 050745Z AUTO 26003KT 10SM -RA BKN027 OVC034 05/03 A2961 RMK AO2 P0001 T00500033KPDT2020-04-05T07:45:00Z45.7-118.835.03.3260310.029.610237TRUETRUE-RAMVFR0.01SPECI462.02020-04-05 07:58:33 3|U[) 5     3CYBU 050744Z AUTO 02008KT 1SM -SN VV015 M08/M09 A3003 RMK SLP200CYBU2020-04-05T07:44:00Z53.32-104.0-8.0-9.02081.030.0295281020.0TRUE-SNLIFR1500SPECI374.02020-04-05 07:58:33KZ) 5   3CYCK 050744Z AUTO 01015G21KT 9SM OVC008 03/02 A3006 RMK SLP184CYCK2020-04-05T07:44:00Z42.3-82.083.02.01015219.030.0590551018.4TRUEIFRSPECI198.02020-04-05 07:58:331Y(g5   3KS71 050745Z AUTO 05003KT 10SM M06/M07 A2988 KS712020-04-05T07:45:00Z48.6-109.25-6.0-7.050310.029.878937TRUEMETAR736.02020-04-05 07:58:33GX) 5    3LHKE 050745Z 06014KT CAVOK 12/M02 Q1028 R12/01//95 NOSIG RMK BLULHKE2020-04-05T07:45:00Z46.9219.7512.0-2.060146.2130.35433TRUEVFRMETAR115.02020-04-05 07:58:33 f:`ft_)75      3PAKK 050744Z AUTO 18016G23KT 1 1/2SM -SN BR OVC005 00/00 A2927 RMK AO2 P0000 FZRANO $PAKK2020-04-05T07:44:00Z64.93-161.150.00.018016231.529.27067TRUETRUETRUETRUE-SN BRIFR0.005SPECI47.02020-04-05 07:58:33T^)5    3KNGP 050744Z AUTO 33013KT 8SM OVC004 15/15 A2995 RMK AO2 T01500150 $KNGP2020-04-05T07:44:00Z27.68-97.2715.015.0330138.029.949802TRUETRUETRUELIFRSPECI6.02020-04-05 07:58:33S])5    3KMFD 050744Z AUTO 34009KT 8SM BKN007 OVC055 08/07 A3003 RMK AO2 T00830067KMFD2020-04-05T07:44:00Z40.82-82.528.36.734098.030.029528TRUETRUEIFRSPECI395.02020-04-05 07:58:33g\)A5     3KOSH 050744Z AUTO 11005KT 1 3/4SM R36/3500VP6000FT BR BKN002 01/00 A3015 RMK AO2 T00060000KOSH2020-04-05T07:44:00Z43.97-88.550.60.011051.7530.15059TRUETRUEBRLIFRSPECI248.02020-04-05 07:58:33 :~Rc)5    3KNTD 050743Z AUTO 29005KT 9SM FEW017 12/09 A2991 RMK AO2 T01170094 $KNTD2020-04-05T07:43:00Z34.12-119.1211.79.429059.029.911417TRUETRUETRUEVFRSPECI4.02020-04-05 07:58:33yb)E5      3PASA 050743Z AUTO 02015G21KT 2 1/2SM -SN BR FEW010 OVC015 M09/M11 A2917 RMK AO2 P0000 FZRANOPASA2020-04-05T07:43:00Z63.68-170.5-9.0-11.02015212.529.170275TRUETRUETRUE-SN BRIFR0.005SPECI16.02020-04-05 07:58:336a(u5   3FAPP 050744Z AUTO 22002KT //// // ////// 16/13 Q1021FAPP2020-04-05T07:44:00Z-23.8329.4516.013.0220230.147638TRUEMETAR1242.02020-04-05 07:58:33@`(5    3KMTN 050744Z AUTO 00000KT 10SM OVC049 11/09 A3007 RMK AO2KMTN2020-04-05T07:44:00Z39.32-76.4211.09.00010.030.070866TRUETRUEVFRMETAR7.02020-04-05 07:58:33  sg)C5    3KVBG 050743Z AUTO 16005KT 8SM SCT005 BKN013 OVC018 11/10 A2989 RMK AO2 CIG 005V016 SLP125 $KVBG2020-04-05T07:43:00Z34.73-120.5811.010.016058.029.8907471012.5TRUETRUETRUEMVFRSPECI112.02020-04-05 07:58:33rf)O5    3KGRK 050743Z AUTO 01005KT 10SM SCT006 OVC011 08/07 A3001 RMK AO2 CIG 006V011 CIG 005 RWY15 SLP165KGRK2020-04-05T07:43:00Z31.07-97.838.07.010510.030.0088581016.5TRUETRUEMVFRSPECI309.02020-04-05 07:58:33ze)_5     3KPOE 050743Z AUTO 00000KT 4SM BR BKN006 BKN080 BKN095 16/16 A2996 RMK AO2 CIG 006V095 BKN006 V FEW SLP146KPOE2020-04-05T07:43:00Z31.05-93.216.016.0004.029.9586621014.6TRUETRUEBRIFRSPECI101.02020-04-05 07:58:33yd)G5    3PACZ 050743Z AUTO 24041G47KT 10SM -FZDZ BKN017 M04/M06 A2939 RMK AO2 PK WND 24048/0715 SLP961PACZ2020-04-05T07:43:00Z61.78-166.03-4.0-6.0240414710.029.388779996.1TRUETRUE-FZDZMVFRSPECI146.02020-04-05 07:58:33 3ZWk)%5     3KESF 050743Z AUTO 00000KT 2SM BR BKN002 BKN100 16/16 A2997 RMK AO2 T01610156KESF2020-04-05T07:43:00Z31.4-92.2816.115.6002.029.970472TRUETRUEBRLIFRSPECI28.02020-04-05 07:58:33Tj)!5    3KJEF 050743Z AUTO 07003KT 10SM BKN025 OVC065 06/02 A3011 RMK AO2 T00560022KJEF2020-04-05T07:43:00Z38.6-92.155.62.270310.030.109253TRUETRUEMVFRSPECI168.02020-04-05 07:58:33Si)5    3KMLU 050743Z AUTO 03005KT 8SM BKN006 BKN120 17/15 A3001 RMK AO2 T01670150KMLU2020-04-05T07:43:00Z32.52-92.0316.715.03058.030.008858TRUETRUEIFRSPECI29.02020-04-05 07:58:33Gh) 5    3PHKO 050743Z 14003KT 10SM BKN017 25/20 A2998 RMK AO2 T02500200PHKO2020-04-05T07:43:00Z19.73-156.0525.020.0140310.029.97933TRUEMVFRSPECI27.02020-04-05 07:58:33 9Vo)5     3KMKO 050742Z AUTO 34003KT 2 1/2SM BR OVC003 06/06 A3010 RMK AO2 T00610056KMKO2020-04-05T07:42:00Z35.65-95.376.15.634032.530.100393TRUETRUEBRLIFRSPECI185.02020-04-05 07:58:33/n(q5    3GMMP 050742Z VRB01KT 5000 SCT016 16/15 Q1016 NOSIGGMMP2020-04-05T07:42:00Z34.3-6.616.015.0013.1130.0TRUEMVFRSPECI4.02020-04-05 07:58:33`m)+5      3KDAY 050743Z 35008KT 9SM -RA OVC007 08/06 A3006 RMK AO2 RAB28 P0000 T00830061 $KDAY2020-04-05T07:43:00Z39.9-84.228.36.135089.030.059055TRUETRUE-RAIFR0.005SPECI305.02020-04-05 07:58:33[l)#5     3KDEQ 050743Z AUTO 00000KT 2SM BR OVC002 12/12 A3003 RMK AO1 T01220117 PNO $KDEQ2020-04-05T07:43:00Z34.05-94.412.211.7002.030.029528TRUETRUETRUEBRLIFRSPECI106.02020-04-05 07:58:33 "9T"s(c5  3CWZQ 050740Z AUTO M02/M04 RMK AO1 T10161039CWZQ2020-04-05T07:40:00Z46.53-61.05-1.6-3.9TRUETRUEMETAR17.02020-04-05 07:58:33_r))5    3KDYS 050741Z AUTO 08003KT 10SM OVC011 08/04 A3001 RMK AO2 CIG 008 RWY34 SLP162KDYS2020-04-05T07:41:00Z32.42-99.838.04.080310.030.0088581016.2TRUETRUEMVFRSPECI545.02020-04-05 07:58:33cq))5    3KMTC 050741Z AUTO 35007KT 10SM OVC009 05/05 A3007 RMK AO2 CIG 007V009 SLP190 $KMTC2020-04-05T07:41:00Z42.62-82.825.05.0350710.030.0708661019.0TRUETRUETRUEIFRSPECI177.02020-04-05 07:58:33Xp)5    3KSKF 050741Z AUTO 02003KT 10SM OVC009 14/12 A2999 RMK AO2 SLP154 $KSKF2020-04-05T07:41:00Z29.37-98.5714.012.020310.029.9911421015.4TRUETRUETRUEIFRSPECI210.02020-04-05 07:58:33 ]/X}]w)5    3PAED 050738Z AUTO 15008KT 10SM FEW034 FEW040 BKN055 OVC120 04/01 A2984 RMK AO2 RAE01DZB01E08DZB12E15RAB15E24DZB24E28 SLP102 $PAED2020-04-05T07:38:00Z61.25-149.834.01.0150810.029.8405511010.2TRUETRUETRUEOVC12000VFRMETAR59.02020-04-05 07:58:33Uv)5    3K7S1 050740Z AUTO 13005KT 10SM OVC070 05/M06 A2963 RMK AO2 Twin Bridges K7S12020-04-05T07:40:00Z45.53-112.35.0-6.0130510.029.630905TRUETRUEVFRMETAR1456.02020-04-05 07:58:33Qu)5    3K6S0 050740Z AUTO 03009KT 10SM CLR M03/M08 A2977 RMK A01 Big Timber K6S02020-04-05T07:40:00Z45.8-109.97-3.0-8.030910.029.769686TRUETRUEVFRMETAR1363.02020-04-05 07:58:33Kt) 5    3KCBE 050740Z AUTO 16003KT 10SM CLR 03/03 A3008 RMK AO2 T00340028KCBE2020-04-05T07:40:00Z39.62-78.773.42.8160310.030.079725TRUETRUEVFRMETAR236.02020-04-05 07:58:33 Xr{)_5   3RJSN 050735Z 25018G28KT 9999 -SHRA FEW015 SCT020 BKN040 08/02 Q1013 WS R28 RMK 1CU015 3CU020 5CU040 A2994RJSN2020-04-05T07:35:00Z37.95139.128.02.025018286.2129.911417-SHRAVFRSPECI4.02020-04-05 07:58:33Pz)%5   3RJSS 050735Z 28012KT 9999 FEW020 SCT060 11/M05 Q1010 RMK 1CU020 3SC060 A2984RJSS2020-04-05T07:35:00Z38.12140.9211.0-5.0280126.2129.822834VFRSPECI5.02020-04-05 07:58:33=y(y5    3KTVK 050735Z AUTO 00000KT 10SM CLR 05/02 A3012 RMK AO2KTVK2020-04-05T07:35:00Z40.68-92.95.02.00010.030.121063TRUETRUEVFRMETAR314.02020-04-05 07:58:33_x)55     3KOXD 050736Z AUTO 01007KT 10SM RA SCT007 BKN060 OVC075 09/09 A3004 RMK AO2 T00860086KOXD2020-04-05T07:36:00Z39.5-84.788.68.610710.030.041338TRUETRUERAVFRSPECI317.02020-04-05 07:58:33 <eA({5     3GLRB 050730Z 32005KT 8000 VCBR FEW011 26/25 Q1012 NOSIGGLRB2020-04-05T07:30:00Z6.25-10.3326.025.032054.9729.88189TRUEVCBRMVFRMETAR18.02020-04-05 07:58:33:~(q5    3HKJK 050730Z 05009KT 9999 BKN022 23/16 Q1025 NOSIGHKJK2020-04-05T07:30:00Z-1.3236.9223.016.05096.2130.265747TRUEMVFRMETAR1624.02020-04-05 07:58:33Q})5     3KAQO 050730Z AUTO 00000KT 2 1/2SM OVC003 11/11 A3006 RMK AO2 PWINOKAQO2020-04-05T07:30:00Z30.78-98.6711.011.0002.530.059055TRUETRUETRUELIFRSPECI336.02020-04-05 07:58:33>|(}5    3KJVL 050735Z AUTO 00000KT 7SM SCT120 01/01 A3015 RMK AO2KJVL2020-04-05T07:35:00Z42.62-89.051.01.0007.030.15059TRUETRUEVFRMETAR246.02020-04-05 07:58:33 1/1F) 5    3CWNL 050700Z AUTO 32009KT M00/M02 RMK AO1 SLP196 T10011019 51001CWNL2020-04-05T07:00:00Z45.62-82.97-0.1-1.932091019.6TRUETRUE0.1METAR183.02020-04-05 07:58:33A(5    3KMER 050715Z AUTO 00000KT 10SM SCT044 09/09 A2978 RMK AO1KMER2020-04-05T07:15:00Z37.38-120.579.09.00010.029.778543TRUETRUEVFRSPECI57.02020-04-05 07:58:338(q5    3VIAR 050730Z 15004KT 6000 FEW100 29/15 Q1014 NOSIGVIAR2020-04-05T07:30:00Z31.774.829.015.015043.7329.940945TRUEMVFRMETAR234.02020-04-05 07:58:33'(e5    3FNUB 050730Z VRB03KT 9999 FEW020 22/// Q1024FNUB2020-04-05T07:30:00Z-14.9313.57036.2130.236221VFRMETAR1761.02020-04-05 07:58:33K) 5    3K2J3 050730Z AUTO 07003KT 10SM CLR 12/10 A2996 RMK AO2 T01240099K2J32020-04-05T07:30:00Z32.98-82.3812.49.970310.029.958662TRUETRUEVFRSPECI100.02020-04-05 07:58:33 6Ch69 (}5    3CWEF 050700Z AUTO M02/M05 RMK AO1 SLP155 T10171049 55004CWEF2020-04-05T07:00:00Z47.22-60.12-1.7-4.91015.5TRUETRUE-0.4METAR26.02020-04-05 07:58:33.(o5    3CWDA 050700Z AUTO M05/ RMK AO1 SLP157 T1045 56004CWDA2020-04-05T07:00:00Z50.72-56.12-4.51015.7TRUETRUE-0.4METAR29.02020-04-05 07:58:339)5  3CZMU 050700Z AUTO 15004KT M15/M15 RMK AO1 SOG 21 T11501153CZMU2020-04-05T07:00:00Z53.57-112.3-15.0-15.31504TRUETRUEMETAR683.02020-04-05 07:58:33U)-5    3CWMZ 050700Z AUTO 30020KT 01/01 RMK AO1 PK WND 30023/0657 SLP169 T00120008 50006CWMZ2020-04-05T07:00:00Z45.02-80.371.20.8300201016.9TRUETRUE0.6METAR191.02020-04-05 07:58:337({5    3CWCI 050700Z AUTO 01/M00 RMK AO1 SLP217 T00081004 50004CWCI2020-04-05T07:00:00Z47.32-85.820.8-0.41021.7TRUETRUE0.4METAR187.02020-04-05 07:58:33 ,Dx,((Y5   3SAAR 050800Z 00000KT CAVOK 14/12 Q1009SAAR2020-04-05T08:00:00Z-32.92-60.7714.012.0006.2129.793306VFRMETAR25.02020-04-05 08:05:16O )5    3KSBD 050800Z AUTO 00000KT 10SM OVC020 14/08 A2990 RMK AO2 T01400082KSBD2020-04-05T08:00:00Z34.08-117.2514.08.20010.029.899607TRUETRUEMVFRMETAR353.02020-04-05 08:05:16C (5    3KSAR 050801Z AUTO 32003KT 10SM OVC015 06/05 A3011 RMK AO2KSAR2020-04-05T08:01:00Z38.15-89.76.05.0320310.030.109253TRUETRUEMVFRMETAR164.02020-04-05 08:05:16F )5    3KBBB 050802Z AUTO 16008KT 10SM SCT100 01/M02 A3010 RMK AO2KBBB2020-04-05T08:02:00Z45.32-95.651.0-2.0160810.030.100393TRUETRUEVFRMETAR317.02020-04-05 08:05:166 (q5    3TAPA 050700Z VRB01KT 9999 FEW020 24/22 Q1012 NOSIGTAPA2020-04-05T07:00:00Z17.12-61.7824.022.0016.2129.88189TRUEVFRMETAR14.02020-04-05 07:58:33 ]P ]'(Y5   3SBPA 050800Z 07003KT CAVOK 15/14 Q1014SBPA2020-04-05T08:00:00Z-30.0-51.1715.014.07036.2129.940945VFRMETAR3.02020-04-05 08:05:16M) 5     3YPXM 050800Z AUTO 29003KT 9999 -SHRA BKN005 OVC010 25/24 Q1010YPXM2020-04-05T08:00:00Z-10.45105.6725.024.029036.2129.822834TRUE-SHRAIFRSPECI259.02020-04-05 08:05:164(e5    3SAEZ 050800Z 36003KT CAVOK 16/14 Q1010 NOSIGSAEZ2020-04-05T08:00:00Z-34.82-58.5216.014.036036.2129.822834TRUEVFRMETAR20.02020-04-05 08:05:163(e5    3SABE 050800Z 33007KT CAVOK 18/14 Q1010 NOSIGSABE2020-04-05T08:00:00Z-34.57-58.4218.014.033076.2129.822834TRUEVFRMETAR6.02020-04-05 08:05:16*(Y5   3SBRP 050800Z 05002KT CAVOK 17/15 Q1014SBRP2020-04-05T08:00:00Z-21.12-47.7717.015.05026.2129.940945VFRMETAR549.02020-04-05 08:05:16 -Fv-8(o5     3TFFF 050800Z AUTO 13004KT CAVOK 22/21 Q1012 NOSIGTFFF2020-04-05T08:00:00Z14.6-61.022.021.013046.2129.88189TRUETRUEVFRMETAR5.02020-04-05 08:05:16;)5    3VOBL 050800Z 13005KT 060V230 9999 FEW012 33/13 Q1016 NOSIGVOBL2020-04-05T08:00:00Z13.277.733.013.013056.2130.0TRUEVFRMETAR915.02020-04-05 08:05:16D)5     3VGHS 050800Z 12005KT 4000 HZ SCT015 BKN100 36/24 Q1011 NOSIGVGHS2020-04-05T08:00:00Z23.8590.436.024.012052.4929.852362TRUEHZIFRMETAR10.02020-04-05 08:05:16J)5    3YMEN 050800Z AUTO 24009KT 9999 // SCT019 BKN031 OVC036 14/12 Q1010YMEN2020-04-05T08:00:00Z-37.72144.914.012.024096.2129.822834TRUEVFRSPECI86.02020-04-05 08:05:164(o5    3YNBR 050800Z AUTO 27007KT 4200 // NCD 18/09 Q1016YNBR2020-04-05T08:00:00Z-30.32149.8318.09.027072.6130.0TRUEIFRSPECI240.02020-04-05 08:05:16 WAW)(o5    3NCMK 050800Z AUTO 01001KT //// ////// ///// Q1008NCMK2020-04-05T08:00:00Z-20.15-157.3810129.763779TRUEMETAR9.02020-04-05 08:05:16C({5    3KSTK 050800Z AUTO 18009KT 10SM CLR 03/M03 A2985 RMK AO2KSTK2020-04-05T08:00:00Z40.62-103.273.0-3.0180910.029.84941TRUETRUEVFRMETAR1231.02020-04-05 08:05:163(e5    3GOBD 050800Z 01025KT CAVOK 20/17 Q1013 NOSIGGOBD2020-04-05T08:00:00Z14.67-17.0720.017.010256.2129.911417TRUEVFRMETAR88.02020-04-05 08:05:163(e5    3OMAA 050800Z 29010KT CAVOK 32/12 Q1015 NOSIGOMAA2020-04-05T08:00:00Z24.4254.6332.012.0290106.2129.970472TRUEVFRMETAR27.02020-04-05 08:05:169(u5    3OMAD 050800Z 30009KT 240V340 CAVOK 34/10 Q1015 NOSIGOMAD2020-04-05T08:00:00Z24.4254.4734.010.030096.2129.970472TRUEVFRMETAR3.02020-04-05 08:05:16 pI/p9"({5   3NIUE 050800Z AUTO 14007KT //// // ///////// 25/23 Q1010NIUE2020-04-05T08:00:00Z-19.07-169.9225.023.0140729.822834TRUEMETAR20.02020-04-05 08:05:164!(s5   3NCAI 050800Z AUTO 35003KT //// ////// 26/24 Q1011.0NCAI2020-04-05T08:00:00Z-18.82-159.7726.024.0350329.852362TRUEMETAR6.02020-04-05 08:05:16+ (o5    3NCAT 050800Z AUTO 30004KT //// ////// ///// Q1003NCAT2020-04-05T08:00:00Z-19.97-158.12300429.616142TRUEMETAR11.02020-04-05 08:05:16)(o5    3NCMG 050800Z AUTO 31006KT //// ////// ///// Q1004NCMG2020-04-05T08:00:00Z-21.88-157.9310629.64567TRUEMETAR14.02020-04-05 08:05:161(o5   3NCMH 050800Z AUTO 10003KT //// ////// 29/28 Q1010NCMH2020-04-05T08:00:00Z-10.38-161.029.028.0100329.822834TRUEMETAR0.02020-04-05 08:05:16 JAJ8'(u5    3OMDB 050800Z 29008KT 260V340 CAVOK 34/08 Q1014 NOSIGOMDB2020-04-05T08:00:00Z25.2555.3734.08.029086.2129.940945TRUEVFRMETAR5.02020-04-05 08:05:169&(u5    3OMDW 050800Z 29009KT 260V320 CAVOK 33/12 Q1015 NOSIGOMDW2020-04-05T08:00:00Z24.955.1733.012.029096.2129.970472TRUEVFRMETAR25.02020-04-05 08:05:168%({5   3OMFJ 050800Z 07005KT 010V110 8000 NSC 36/15 Q1013 A2991OMFJ2020-04-05T08:00:00Z25.156.3236.015.07054.9729.911417MVFRMETAR28.02020-04-05 08:05:166$(u5   3OMRK 050800Z 22003KT 160V280 CAVOK 33/12 Q1014 A2996OMRK2020-04-05T08:00:00Z25.6255.9233.012.022036.2129.940945VFRMETAR31.02020-04-05 08:05:169#(u5    3OMSJ 050800Z 26007KT 230V290 CAVOK 34/07 Q1014 NOSIGOMSJ2020-04-05T08:00:00Z25.3255.5234.07.026076.2129.940945TRUEVFRMETAR33.02020-04-05 08:05:16 EMo E@,(u5     3SCEL 050800Z AUTO 21001KT 9999 NCD 12/09 Q1013 NOSIGSCEL2020-04-05T08:00:00Z-33.37-70.7712.09.021016.2129.911417TRUETRUEVFRMETAR476.02020-04-05 08:05:16*+(e5   3SBGO 050800Z 00000KT 9999 FEW040 23/22 Q1016SBGO2020-04-05T08:00:00Z-16.62-49.2223.022.0006.2130.0VFRMETAR747.02020-04-05 08:05:16.*(i5   3ORBI 050800Z 33005KT 270V040 CAVOK 25/07 Q1020ORBI2020-04-05T08:00:00Z33.2744.2325.07.033056.2130.11811VFRMETAR35.02020-04-05 08:05:16X))5     3KWBF 050800Z AUTO 03017G28KT 1/2SM FG OVC005 22/22 A2989 RMK A01 P0020KWBF2020-04-05T08:00:00Z26.93-90.522.022.03017280.529.890747TRUETRUEFGLIFR0.2METAR10.02020-04-05 08:05:16-((e5    3OMAL 050800Z 27005KT CAVOK 36/10 Q1016 NOSIGOMAL2020-04-05T08:00:00Z24.2555.636.010.027056.2130.0TRUEVFRMETAR262.02020-04-05 08:05:16 ]Q]-1(_5   3SLCB 050800Z 00000KT 9999 NSC 14/10 Q1022SLCB2020-04-05T08:00:00Z-17.42-66.1814.010.0006.2130.177166VFRMETAR2548.02020-04-05 08:05:1660(s5   3SASA 050800Z 00000KT 9999 SCT015 OVC100 16/14 Q1012SASA2020-04-05T08:00:00Z-24.85-65.4716.014.0006.2129.88189VFRMETAR1216.02020-04-05 08:05:16@/(5    3LEJR 050800Z AUTO 14012KT 100V180 9999 SCT049 17/10 Q1017LEJR2020-04-05T08:00:00Z36.75-6.0717.010.0140126.2130.029528TRUEVFRMETAR30.02020-04-05 08:05:169.(q5    3GVBA 050800Z 03009KT 9999 BKN015 22/16 Q1017 NOSIGGVBA2020-04-05T08:00:00Z16.13-22.8822.016.03096.2130.029528TRUEMVFRMETAR22.02020-04-05 08:05:16)-(Y5   3SBFI 050800Z 13005KT CAVOK 16/14 Q1012SBFI2020-04-05T08:00:00Z-25.6-54.4816.014.013056.2129.88189VFRMETAR243.02020-04-05 08:05:16 cLc06(o5   3NCPY 050800Z AUTO 06006KT //// ////// 28/24 Q1010NCPY2020-04-05T08:00:00Z-9.02-158.0728.024.060629.822834TRUEMETAR2.02020-04-05 08:05:1615(o5   3NCPK 050800Z AUTO 08001KT //// ////// 28/25 Q1009NCPK2020-04-05T08:00:00Z-10.88-165.8228.025.080129.793306TRUEMETAR3.02020-04-05 08:05:1614(o5   3NCRK 050800Z AUTO 09002KT //// ////// 29/25 Q1009NCRK2020-04-05T08:00:00Z-10.05-161.0829.025.090229.793306TRUEMETAR5.02020-04-05 08:05:16?3)5   3SLLP 050800Z 34004KT 9999 FEW005 BKN070 BKN200 06/04 Q1037SLLP2020-04-05T08:00:00Z-16.52-68.176.04.034046.2130.620079VFRMETAR4014.02020-04-05 08:05:16.2(_5   3SLVR 050800Z 35006KT 9999 NSC 21/20 Q1010SLVR2020-04-05T08:00:00Z-17.63-63.1221.020.035066.2129.822834VFRMETAR373.02020-04-05 08:05:16 sQ%s,;(e5    3OEDR 050800Z 06015KT CAVOK 32/04 Q1016 NOSIGOEDR2020-04-05T08:00:00Z26.2750.1732.04.060156.2130.0TRUEVFRMETAR17.02020-04-05 08:05:161:(e5    3OEJN 050800Z 27008KT CAVOK 32/20 Q1012 NOSIGOEJN2020-04-05T08:00:00Z21.6839.1532.020.027086.2129.88189TRUEVFRMETAR15.02020-04-05 08:05:1659(g5    3OERK 050800Z 12011KT CAVOK 30/M01 Q1021 NOSIGOERK2020-04-05T08:00:00Z24.9546.7230.0-1.0120116.2130.147638TRUEVFRMETAR612.02020-04-05 08:05:1648(g5    3OERY 050800Z 09010KT CAVOK 30/M06 Q1021 NOSIGOERY2020-04-05T08:00:00Z24.7246.7230.0-6.090106.2130.147638TRUEVFRMETAR612.02020-04-05 08:05:16)7(o5    3NCMR 050800Z AUTO 34001KT //// ////// ///// Q1009NCMR2020-04-05T08:00:00Z-19.85-157.7340129.793306TRUEMETAR8.02020-04-05 08:05:16 .I.+@(Y5   3SAME 050800Z 23004KT CAVOK 15/12 Q1007SAME2020-04-05T08:00:00Z-32.82-68.7715.012.023046.2129.734253VFRMETAR704.02020-04-05 08:05:16`?)?5    3SOCA 050800Z AUTO 13003KT 9999 SCT021 BKN026 BKN031 27/24 Q1010 TEMPO 4000 SHRA SCT012TCUSOCA2020-04-05T08:00:00Z4.82-52.3727.024.013036.2129.822834TRUEMVFRMETAR9.02020-04-05 08:05:16@>) 5    3OPPS 050800Z 18018KT 4000 HZ FEW030CB SCT035 SC080 23/15 Q1016OPPS2020-04-05T08:00:00Z34.0271.5223.015.0180182.4930.0HZIFRMETAR360.02020-04-05 08:05:168=(q5    3TBPB 050800Z 09010KT 9999 SCT016 26/22 Q1012 NOSIGTBPB2020-04-05T08:00:00Z13.07-59.4826.022.090106.2129.88189TRUEVFRMETAR52.02020-04-05 08:05:161<(e5    3OEDF 050800Z 36012KT CAVOK 33/03 Q1017 NOSIGOEDF2020-04-05T08:00:00Z26.4749.833.03.0360126.2130.029528TRUEVFRMETAR22.02020-04-05 08:05:16 V6y V1E(k5    3LBPG 050800Z 30006KT 2000 RA OVC005 07/06 Q1023LBPG2020-04-05T08:00:00Z42.2824.727.06.030061.2430.206694RAIFRMETAR58.02020-04-05 08:05:160D(e5    3UGTB 050800Z VRB04KT CAVOK 12/06 Q1026 NOSIGUGTB2020-04-05T08:00:00Z41.6744.9512.06.0046.2130.295275TRUEVFRMETAR495.02020-04-05 08:05:160C(e5    3UGSB 050800Z 35007KT CAVOK 13/10 Q1020 NOSIGUGSB2020-04-05T08:00:00Z41.6241.613.010.035076.2130.11811TRUEVFRMETAR32.02020-04-05 08:05:167B(q5    3UGKO 050800Z 09011KT 9999 BKN100 18/07 Q1019 NOSIGUGKO2020-04-05T08:00:00Z42.1842.4818.07.090116.2130.088583TRUEVFRMETAR68.02020-04-05 08:05:16DA)5    3UBBG 050800Z 12004KT 8000 OVC005 10/08 Q1024 R12/CLRD// NOSIGUBBG2020-04-05T08:00:00Z40.7346.3210.08.012044.9730.236221TRUEIFRMETAR330.02020-04-05 08:05:16 cM c7J(q5    3LBBG 050800Z 06019KT 9999 FEW036 11/05 Q1021 NOSIGLBBG2020-04-05T08:00:00Z42.5727.5211.05.060196.2130.147638TRUEVFRMETAR28.02020-04-05 08:05:161I(e5    3LBWN 050800Z 06020KT CAVOK 13/00 Q1022 NOSIGLBWN2020-04-05T08:00:00Z43.2227.8213.00.060206.2130.177166TRUEVFRMETAR43.02020-04-05 08:05:16+H(e5   3LBPL 050800Z 05008KT 9999 BKN100 09/04 Q1025LBPL2020-04-05T08:00:00Z43.4524.59.04.05086.2130.265747VFRMETAR101.02020-04-05 08:05:16?G(5    3LBSF 050800Z 10015KT 9999 FEW025 OVC041 06/02 Q1022 NOSIGLBSF2020-04-05T08:00:00Z42.6523.376.02.0100156.2130.177166TRUEVFRMETAR592.02020-04-05 08:05:16-F(e5   3LBIA 050800Z 04016KT 9999 OVC050 10/02 Q1020LBIA2020-04-05T08:00:00Z42.4526.3510.02.040166.2130.11811VFRMETAR155.02020-04-05 08:05:16 5+i5:O(w5    3LZTT 050800Z 05007KT 020V120 CAVOK 07/M06 Q1030 NOSIGLZTT2020-04-05T08:00:00Z49.0720.257.0-6.05076.2130.413385TRUEVFRMETAR707.02020-04-05 08:05:164N(g5    3LZIB 050800Z 09011KT CAVOK 11/M03 Q1030 NOSIGLZIB2020-04-05T08:00:00Z48.1717.2211.0-3.090116.2130.413385TRUEVFRMETAR134.02020-04-05 08:05:164M(g5    3LZKZ 050800Z 01014KT CAVOK 11/M05 Q1030 NOSIGLZKZ2020-04-05T08:00:00Z48.6721.2311.0-5.010146.2130.413385TRUEVFRMETAR232.02020-04-05 08:05:16 I<](u5    3YBWP 050800Z AUTO 26007KT 9999 // BKN097 30/24 Q1008YBWP2020-04-05T08:00:00Z-12.68141.9230.024.026076.2129.763779TRUEVFRMETAR12.02020-04-05 08:05:163\(u5   3YBWX 050800Z AUTO 35003KT //// // ////// 31/23 Q1009YBWX2020-04-05T08:00:00Z-20.88115.431.023.0350329.793306TRUEMETAR6.02020-04-05 08:05:167[(o5    3YBUD 050800Z AUTO 10007KT 9999 // NCD 25/20 Q1012YBUD2020-04-05T08:00:00Z-24.9152.3225.020.010076.2129.88189TRUEVFRMETAR82.02020-04-05 08:05:167Z(o5    3YWLM 050800Z AUTO 35005KT 9999 // NCD 20/10 Q1013YWLM2020-04-05T08:00:00Z-32.8151.8320.010.035056.2129.911417TRUEVFRMETAR9.02020-04-05 08:05:16 (5    3NTAA 050800Z VRB03KT 9999 FEW020 SCT110 28/23 Q1012 NOSIGNTAA2020-04-05T08:00:00Z-17.55-149.6228.023.0036.2129.88189TRUEVFRMETAR2.02020-04-05 08:05:16;(y5    3SAZM 050800Z 00000KT 5000 BR SCT020 OVC080 16/15 Q1009SAZM2020-04-05T08:00:00Z-37.92-57.5716.015.0003.1129.793306BRMVFRMETAR21.02020-04-05 08:05:16 R<3(u5   3FOOG 050800Z 16004KT 110V240 9999 FEW010 30/25 Q1013FOOG2020-04-05T08:00:00Z-0.78.7530.025.016046.2129.911417VFRMETAR4.02020-04-05 08:05:162(s5   3FOOB 050800Z /////KT 7000 SCT008 BKN023 24/22 Q1014FOOB2020-04-05T08:00:00Z2.0711.4724.022.04.3529.940945MVFRMETAR599.02020-04-05 08:05:16)(s5   3FOGM 050800Z /////KT 8000 SCT010 OVC025 25/24 Q////FOGM2020-04-05T08:00:00Z-1.8711.0225.024.04.97MVFRMETAR89.02020-04-05 08:05:16)([5   3EPPO 050800Z 12008KT CAVOK 10/M04 Q1034EPPO2020-04-05T08:00:00Z52.4216.8210.0-4.012086.2130.531496VFRMETAR92.02020-04-05 08:05:16( ([5   3EPRZ 050800Z 09011KT CAVOK 08/M05 Q1033EPRZ2020-04-05T08:00:00Z50.122.058.0-5.090116.2130.501968VFRMETAR202.02020-04-05 08:05:16 K91(k5   3EPMO 050800Z 17004KT 130V220 CAVOK 09/M04 Q1035EPMO2020-04-05T08:00:00Z52.4520.659.0-4.017046.2130.561024VFRMETAR104.02020-04-05 08:05:16(([5   3EPSC 050800Z 15008KT CAVOK 10/M02 Q1033EPSC2020-04-05T08:00:00Z53.5814.910.0-2.015086.2130.501968VFRMETAR47.02020-04-05 08:05:16'([5   3EPSY 050800Z VRB02KT CAVOK 07/M02 Q1035EPSY2020-04-05T08:00:00Z53.4720.937.0-2.0026.2130.561024VFRMETAR141.02020-04-05 08:05:161(k5   3EPWR 050800Z 13007KT 100V160 CAVOK 10/M02 Q1033EPWR2020-04-05T08:00:00Z51.116.8710.0-2.013076.2130.501968VFRMETAR121.02020-04-05 08:05:16/(k5   3EPZG 050800Z 13006KT 100V160 CAVOK 09/M01 Q1033EPZG2020-04-05T08:00:00Z52.1315.89.0-1.013066.2130.501968VFRMETAR59.02020-04-05 08:05:16 nJn)(s5   3FOOK 050800Z /////KT 9000 SCT012 OVC020 24/22 Q////FOOK2020-04-05T08:00:00Z0.5712.8724.022.05.59MVFRMETAR515.02020-04-05 08:05:16<(w5    3EPWA 050800Z 16004KT 120V200 CAVOK 10/M04 Q1035 NOSIGEPWA2020-04-05T08:00:00Z52.1720.9710.0-4.016046.2130.561024TRUEVFRMETAR107.02020-04-05 08:05:16/(k5   3EPBY 050800Z 15005KT 100V200 CAVOK 10/M04 Q1035EPBY2020-04-05T08:00:00Z53.118.010.0-4.015056.2130.561024VFRMETAR71.02020-04-05 08:05:160(k5   3EPKT 050800Z 09011KT 060V120 CAVOK 09/M04 Q1032EPKT2020-04-05T08:00:00Z50.4719.089.0-4.090116.2130.47244VFRMETAR284.02020-04-05 08:05:160(k5   3EPLB 050800Z 06004KT 020V100 CAVOK 09/M03 Q1035EPLB2020-04-05T08:00:00Z51.2322.729.0-3.06046.2130.561024VFRMETAR206.02020-04-05 08:05:16 bZb5 (k5    3VEPT 050800Z 28010KT 6000 NSC 35/01 Q1009 NOSIGVEPT2020-04-05T08:00:00Z25.685.0835.01.0280103.7329.793306TRUEMVFRMETAR60.02020-04-05 08:05:16B(5    3VOCL 050800Z 26010KT 7000 SCT012 SCT018 34/25 Q1011 NOSIGVOCL2020-04-05T08:00:00Z11.1375.9534.025.0260104.3529.852362TRUEMVFRMETAR104.02020-04-05 08:05:16>(5    3VOCI 050800Z 24009KT 6000 FEW020 SCT080 34/25 Q1011 NOSIGVOCI2020-04-05T08:00:00Z10.1576.434.025.024093.7329.852362TRUEMVFRMETAR8.02020-04-05 08:05:16+(s5   3FOOT 050800Z 00000KT 9999 SCT011 BKN030 28/23 Q////FOOT2020-04-05T08:00:00Z-2.8511.0228.023.0006.21MVFRMETAR79.02020-04-05 08:05:16 (e5   3FOGR 050800Z /////KT 9999 SCT010 27/24 Q////FOGR2020-04-05T08:00:00Z-0.710.2527.024.06.21VFRMETAR26.02020-04-05 08:05:16 X:X5%(k5    3VORY 050800Z 22008KT 8000 NSC 35/23 Q1011 NOSIGVORY2020-04-05T08:00:00Z17.181.8235.023.022084.9729.852362TRUEMVFRMETAR46.02020-04-05 08:05:160$(e5   3VOTP 050800Z 17005KT 8000 FEW020 37/22 Q1010VOTP2020-04-05T08:00:00Z13.6379.5537.022.017054.9729.822834MVFRMETAR107.02020-04-05 08:05:166#(k5    3VAJJ 050800Z 28013KT 6000 NSC 32/24 Q1011 NOSIGVAJJ2020-04-05T08:00:00Z19.1272.8232.024.0280133.7329.852362TRUEMVFRMETAR4.02020-04-05 08:05:16/"(e5   3VOMY 050800Z 14005KT 9999 FEW015 35/18 Q1015VOMY2020-04-05T08:00:00Z12.2376.6535.018.014056.2129.970472VFRMETAR722.02020-04-05 08:05:16@!) 5    3VOBM 050800Z 23008KT 9999 TS SCT015 SCT020 FEW025CB 33/22 Q1016VOBM2020-04-05T08:00:00Z15.8574.6233.022.023086.2130.0TSVFRMETAR758.02020-04-05 08:05:16 1J~1<*(w5     3VOVZ 050800Z 20010KT 4500 HZ FEW018 35/23 Q1011 NOSIGVOVZ2020-04-05T08:00:00Z17.7583.2235.023.0200102.829.852362TRUEHZIFRMETAR5.02020-04-05 08:05:169)(q5    3VOMM 050800Z 12013KT 6000 SCT020 34/25 Q1011 NOSIGVOMM2020-04-05T08:00:00Z13.080.1734.025.0120133.7329.852362TRUEMVFRMETAR16.02020-04-05 08:05:16F()5     3VEAT 050800Z 29003KT 5000 HZ FEW020 SCT025 36/23 Q1010 NOSIGVEAT2020-04-05T08:00:00Z23.8791.2536.023.029033.1129.822834TRUEHZMVFRMETAR16.02020-04-05 08:05:16F')5     3VEMN 050800Z 04006KT 5000 HZ FEW100 SCT250 29/16 Q1011 NOSIGVEMN2020-04-05T08:00:00Z27.4795.0229.016.04063.1129.852362TRUEHZMVFRMETAR111.02020-04-05 08:05:160&(e5   3VOHB 050800Z 15004KT 8000 FEW015 34/15 Q1017VOHB2020-04-05T08:00:00Z15.3775.0834.015.015044.9730.029528MVFRMETAR661.02020-04-05 08:05:16 #LvN.)5     3KOFP 050800Z AUTO 00000KT 1 1/2SM BR CLR 05/03 A3009 RMK AO2 T00500033KOFP2020-04-05T08:00:00Z37.7-77.435.03.3001.530.088583TRUETRUEBRIFRSPECI62.02020-04-05 08:05:16P-)5     3KMCE 050800Z AUTO 00000KT 1 1/4SM BR CLR 07/07 A2977 RMK AO2 T00720067KMCE2020-04-05T08:00:00Z37.28-120.57.26.7001.2529.769686TRUETRUEBRIFRSPECI47.02020-04-05 08:05:16Q,)5    3KMYF 050800Z AUTO 16005KT 10SM OVC030 14/08 A2992 RMK AO2 T01390078KMYF2020-04-05T08:00:00Z32.82-117.1313.97.8160510.029.920275TRUETRUEMVFRSPECI136.02020-04-05 08:05:16W+)!5    3KFUL 050800Z AUTO 19005KT 10SM FEW021 OVC049 16/11 A2989 RMK AO2 T01560106KFUL2020-04-05T08:00:00Z33.87-117.9815.610.6190510.029.890747TRUETRUEVFRSPECI35.02020-04-05 08:05:16 E `E63(q5    3TGPY 050800Z 09008KT 9999 FEW018 26/24 Q1011 NOSIGTGPY2020-04-05T08:00:00Z12.0-61.7826.024.09086.2129.852362TRUEVFRMETAR7.02020-04-05 08:05:16)2(Y5   3SAOC 050800Z 00000KT CAVOK 12/11 Q1007SAOC2020-04-05T08:00:00Z-33.12-64.2712.011.0006.2129.734253VFRMETAR421.02020-04-05 08:05:16*1(c5    3SCVD 050800Z AUTO VRB01KT CAVOK 07/07 Q1016SCVD2020-04-05T08:00:00Z-39.65-73.077.07.0016.2130.0TRUEVFRMETAR14.02020-04-05 08:05:16:0({5    3UBBB 050800Z VRB02KT CAVOK 15/08 Q1023 R88/CLRD// NOSIGUBBB2020-04-05T08:00:00Z40.4550.0715.08.0026.2130.206694TRUEVFRMETAR-6.02020-04-05 08:05:16Z/)/5    3KSTS 050800Z AUTO 13005KT 10SM FEW009 FEW015 OVC060 09/09 A2971 RMK AO2 T00940089KSTS2020-04-05T08:00:00Z38.5-122.829.48.9130510.029.71063TRUETRUEVFRSPECI39.02020-04-05 08:05:16 9a>8(y5     3LWSK 050800Z 28002KT 9999 -RA OVC050 09/07 Q1019 NOSIGLWSK2020-04-05T08:00:00Z41.9721.639.07.028026.2130.088583TRUE-RAVFRMETAR239.02020-04-05 08:05:16-7(e5    3OTBD 050800Z 35014KT CAVOK 33/06 Q1016 NOSIGOTBD2020-04-05T08:00:00Z25.2551.5733.06.0350146.2130.0TRUEVFRMETAR10.02020-04-05 08:05:16'6([5   3TNCM 050800Z VRB02KT CAVOK 25/21 Q1013 TNCM2020-04-05T08:00:00Z18.05-63.1225.021.0026.2129.911417VFRMETAR4.02020-04-05 08:05:16s5(%5 3OSDI 050800 OSDI2020-04-05T08:00:00Z33.4236.52METAR605.02020-04-05 08:05:16A4)5  3OSLK 050800Z 12015G33KT 9999 FEW030 SCT100 BKN200 25/05 Q1011OSLK2020-04-05T08:00:00Z35.435.9525.05.012015336.2129.852362VFRMETAR48.02020-04-05 08:05:16 :P:9=(y5   3SPSO 050800Z 02004KT 7000 OVC008 21/19 Q1011 RMK PP000SPSO2020-04-05T08:00:00Z-13.73-76.2221.019.02044.3529.852362IFRMETAR10.02020-04-05 08:05:16L<)5     3SPQT 050800Z 00000KT 8000 FEW015 BKN080 25/24 Q1009 NOSIG BR PP000SPQT2020-04-05T08:00:00Z-3.78-73.3225.024.0004.9729.793306TRUEBRMVFRMETAR126.02020-04-05 08:05:16?;({5     3FMCZ 050800Z AUTO 07007KT 9999 FEW024 33/25 Q1013 NOSIGFMCZ2020-04-05T08:00:00Z-12.845.2733.025.07076.2129.911417TRUETRUEVFRMETAR7.02020-04-05 08:05:16::(q5    3VOCB 050800Z 11004KT 7000 SCT015 35/23 Q1013 NOSIGVOCB2020-04-05T08:00:00Z11.0277.0335.023.011044.3529.911417TRUEMVFRMETAR399.02020-04-05 08:05:16*9(e5    3OTHH 050800Z 01010KT CAVOK 31/09 Q1016 NOSIGOTHH2020-04-05T08:00:00Z25.2551.631.09.010106.2130.0TRUEVFRMETAR0.02020-04-05 08:05:16  &V =B)5   3SCSN 050800Z AUTO VRB02KT //// R/////// // OVC010 12/11 Q1014SCSN2020-04-05T08:00:00Z-33.63-71.6212.011.00229.940945TRUEMETAR75.02020-04-05 08:05:167A(q5    3TNCA 050800Z 08015KT 9999 SCT016 27/25 Q1009 NOSIGTNCA2020-04-05T08:00:00Z12.5-70.027.025.080156.2129.793306TRUEVFRMETAR18.02020-04-05 08:05:160@(e5   3SELT 050800Z 16008KT 9999 BKN030 11/09 Q1028SELT2020-04-05T08:00:00Z-0.92-78.6211.09.016086.2130.35433MVFRMETAR2785.02020-04-05 08:05:16J?)5    3SEGU 050800Z 21007KT 9999 BKN033 BKN100 26/21 Q1008 NOSIG RMK A2978SEGU2020-04-05T08:00:00Z-2.13-79.8726.021.021076.2129.763779TRUEVFRMETAR9.02020-04-05 08:05:16T>)!5    3SEQM 050800Z 11001KT 9999 FEW010 SCT016 BKN080 13/13 Q1024 NOSIG RMK A3026SEQM2020-04-05T08:00:00Z-0.12-78.3513.013.011016.2130.236221TRUEVFRMETAR2400.02020-04-05 08:05:16 WIWBG)5    3FMNM 050800Z 16007KT 090V220 9999 FEW020 33/21 Q1013 NOSIGFMNM2020-04-05T08:00:00Z-15.6746.3533.021.016076.2129.911417TRUEVFRMETAR18.02020-04-05 08:05:165F(e5    3SACO 050800Z 35004KT CAVOK 13/12 Q1007 NOSIGSACO2020-04-05T08:00:00Z-31.32-64.2213.012.035046.2129.734253TRUEVFRMETAR474.02020-04-05 08:05:16(E(Y5   3SAWG 050800Z 25022KT CAVOK 04/00 Q0988SAWG2020-04-05T08:00:00Z-51.62-69.324.00.0250226.2129.17323VFRMETAR19.02020-04-05 08:05:16;D(q5    3FAOR 050800Z 20009KT 9999 FEW027 17/10 Q1023 NOSIGFAOR2020-04-05T08:00:00Z-26.1228.2217.010.020096.2130.206694TRUEVFRMETAR1700.02020-04-05 08:05:161C(g5   3SCAT 050800Z AUTO 00000KT 9999 // 16/13 Q1014SCAT2020-04-05T08:00:00Z-27.27-70.7716.013.0006.2129.940945TRUEMETAR204.02020-04-05 08:05:16 EI{E:L(q5    3FBSK 050800Z VRB02KT 9999 OVC015 17/15 Q1021 NOSIGFBSK2020-04-05T08:00:00Z-24.5525.9217.015.0026.2130.147638TRUEMVFRMETAR1005.02020-04-05 08:05:160K(e5   3FQQL 050800Z 30003KT 9999 BKN020 28/23 Q1015FQQL2020-04-05T08:00:00Z-17.8736.8728.023.030036.2129.970472MVFRMETAR16.02020-04-05 08:05:16:J(q5    3VOBG 050800Z 11005KT 8000 FEW012 34/16 Q1015 NOSIGVOBG2020-04-05T08:00:00Z12.9577.6334.016.011054.9729.970472TRUEMVFRMETAR897.02020-04-05 08:05:16HI) 5    3LUKK 050800Z 05012KT 020V080 CAVOK 13/M09 Q1030 R08/CLRD// NOSIGLUKK2020-04-05T08:00:00Z46.9328.9313.0-9.050126.2130.413385TRUEVFRMETAR122.02020-04-05 08:05:161H(o5   3SECU 050800Z AUTO VRB02KT ////NDV NCD 14/14 Q1024SECU2020-04-05T08:00:00Z-2.87-78.9714.014.00230.236221TRUEMETAR2531.02020-04-05 08:05:16 &b5Q(q5    3GVNP 050800Z 04017KT 9999 BKN016 22/16 Q1016 NOSIGGVNP2020-04-05T08:00:00Z14.95-23.4822.016.040176.2130.0TRUEMVFRMETAR70.02020-04-05 08:05:160P(u5    3SBMA 050800Z 35003KT 9999 FEW012 BKN080 25/245 Q1011SBMA2020-04-05T08:00:00Z-5.37-49.1335036.2129.852362VFRMETAR102.02020-04-05 08:05:16QO) 5    3KVTP 050800Z AUTO 24009G16KT 10SM CLR 00/M09 A2998 RMK AO2 TSNOKVTP2020-04-05T08:00:00Z37.5-105.170.0-9.024091610.029.97933TRUETRUETRUEVFRMETAR3114.02020-04-05 08:05:16>N(u5     3OJAQ 050800Z AUTO 19008KT 6000 NSC 27/08 Q1010 NOSIGOJAQ2020-04-05T08:00:00Z29.6235.0227.08.019083.7329.822834TRUETRUEMVFRMETAR51.02020-04-05 08:05:16TM)+5    3UBBN 050800Z VRB04KT 9999 FEW100 15/03 Q1023 R14R/CLRD// NOSIG RMK MT OP QFE692UBBN2020-04-05T08:00:00Z39.1845.4515.03.0046.2130.206694TRUEVFRMETAR873.02020-04-05 08:05:16 S8+V(e5   3FQCH 050800Z /////KT 9999 FEW015 24/19 Q1020FQCH2020-04-05T08:00:00Z-19.1533.4324.019.06.2130.11811VFRMETAR732.02020-04-05 08:05:16&U(Y5   3SBCF 050800Z 10002KT CAVOK 20/20 Q1016SBCF2020-04-05T08:00:00Z-19.63-43.9720.020.010026.2130.0VFRMETAR828.02020-04-05 08:05:169T(y5  3LWOH 050800Z 01010G20KT 9999 FEW010 BKN040 09/02 Q1015LWOH2020-04-05T08:00:00Z41.1820.759.02.01010206.2129.970472VFRMETAR761.02020-04-05 08:05:16*S(Y5   3SGES 050800Z 18003KT CAVOK 16/13 Q1012SGES2020-04-05T08:00:00Z-25.45-54.8516.013.018036.2129.88189VFRMETAR849.02020-04-05 08:05:16'R(Y5   3SULS 050800Z 02008KT CAVOK 13/12 Q1012SULS2020-04-05T08:00:00Z-34.87-55.113.012.02086.2129.88189VFRMETAR30.02020-04-05 08:05:16 ZDZ8[(q5    3MGGT 050800Z 00000KT 7000 SKC 18/16 Q1022 A3018 BRMGGT2020-04-05T08:00:00Z14.57-90.5318.016.0004.3530.177166BRMVFRMETAR1509.02020-04-05 08:05:16.Z(e5   3SBJP 050800Z 20004KT 9999 FEW017 26/25 Q1012SBJP2020-04-05T08:00:00Z-7.15-34.9526.025.020046.2129.88189VFRMETAR66.02020-04-05 08:05:16>Y(y5    3SPJC 050800Z 17006KT CAVOK 21/18 Q1011 NOSIG RMK PP000SPJC2020-04-05T08:00:00Z-12.02-77.1221.018.017066.2129.852362TRUEVFRMETAR13.02020-04-05 08:05:16.X(e5   3PLCH 050800Z 11006KT 9999 FEW020 27/24 Q1009PLCH2020-04-05T08:00:00Z1.98-157.3527.024.011066.2129.793306VFRMETAR3.02020-04-05 08:05:166W(s5   3FIMP 050800Z 13007KT 9999 SCT017 SCT250 29/22 Q1014FIMP2020-04-05T08:00:00Z-20.4257.6729.022.013076.2129.940945VFRMETAR57.02020-04-05 08:05:16 DI_) 5    3NFFN 050800Z 11002KT 9999 FEW028 SCT110 OVC280 26/24 Q1009 NOSIGNFFN2020-04-05T08:00:00Z-17.75177.4526.024.011026.2129.793306TRUEVFRMETAR18.02020-04-05 08:05:165^(k5    3OJAM 050800Z 05004KT 7000 NSC 22/07 Q1017 NOSIGOJAM2020-04-05T08:00:00Z31.9735.9722.07.05044.3530.029528TRUEMVFRMETAR773.02020-04-05 08:05:16E]) 5    3AGGH 050800Z 27008KT 9999 -DZ FEW016 BKN028 OVC100 26/25 Q1006AGGH2020-04-05T08:00:00Z-9.42160.0526.025.027086.2129.704725-DZMVFRMETAR9.02020-04-05 08:05:16k\)S5    3WIII 050800Z 16010KT 140V220 4000 TSRA FEW017CB BKN019 27/24 Q1008 TEMPO 3000 RMK CB OVER THE FIELDWIII2020-04-05T08:00:00Z-6.13106.6727.024.0160102.4929.763779TSRAIFRMETAR8.02020-04-05 08:05:16 M:M(d(Y5   3SBMO 050800Z 02004KT CAVOK 25/24 Q1012SBMO2020-04-05T08:00:00Z-9.52-35.7725.024.02046.2129.88189VFRMETAR115.02020-04-05 08:05:16Lc) 5    3KHQI 050800Z AUTO 09030KT 10SM FEW014 BKN060 21/17 A2986 RMK A01KHQI2020-04-05T08:00:00Z27.93-93.6721.017.0903010.029.861221TRUETRUEVFRMETAR26.02020-04-05 08:05:167b(o5   3KHHV 050800Z AUTO 06028KT 7SM 22/20 A2985 RMK A01KHHV2020-04-05T08:00:00Z26.93-94.6822.020.060287.029.84941TRUETRUEMETAR25.02020-04-05 08:05:16*a(Y5   3SBCG 050800Z 07005KT CAVOK 20/18 Q1013SBCG2020-04-05T08:00:00Z-20.47-54.6720.018.07056.2129.911417VFRMETAR567.02020-04-05 08:05:16@`)5    3LFVP 050800Z 06006KT 9999 SCT016 BKN040 M00/M03 Q1014 NOSIGLFVP2020-04-05T08:00:00Z46.77-56.180.0-3.06066.2129.940945TRUEVFRMETAR8.02020-04-05 08:05:16 wP,w/i(e5   3SBSV 050800Z 32003KT 9999 BKN017 27/26 Q1011SBSV2020-04-05T08:00:00Z-12.9-38.3227.026.032036.2129.852362MVFRMETAR6.02020-04-05 08:05:163h(w5   3FNLU 050800Z 28004T 9999 SCT020 FEW023TCU 26/24 Q1013FNLU2020-04-05T08:00:00Z-8.8313.2226.024.06.2129.911417VFRMETAR70.02020-04-05 08:05:166g(s5   3SBFZ 050800Z 15005KT 9999 FEW020 BKN070 26/25 Q1011SBFZ2020-04-05T08:00:00Z-3.77-38.5226.025.015056.2129.852362VFRMETAR25.02020-04-05 08:05:16)f(Y5   3SBBV 050800Z 10016KT CAVOK 29/22 Q1009SBBV2020-04-05T08:00:00Z2.85-60.729.022.0100166.2129.793306VFRMETAR140.02020-04-05 08:05:16*e(Y5   3SBCY 050800Z 32003KT CAVOK 25/23 Q1012SBCY2020-04-05T08:00:00Z-15.65-56.1225.023.032036.2129.88189VFRMETAR182.02020-04-05 08:05:16 Y<~Y)n(Y5   3SBMN 050800Z 35003KT CAVOK 27/25 Q1009SBMN2020-04-05T08:00:00Z-3.13-59.9727.025.035036.2129.793306VFRMETAR84.02020-04-05 08:05:16(m(Y5   3ORSU 050800Z 16006KT CAVOK 20/07 Q1024ORSU2020-04-05T08:00:00Z35.5745.3220.07.016066.2130.236221VFRMETAR761.02020-04-05 08:05:16Bl)5    3UBEE 050800Z 00000KT 9999 OVC013 14/09 Q1025 R30/CLRD// NOSIGUBEE2020-04-05T08:00:00Z40.6347.1514.09.0006.2130.265747TRUEMVFRMETAR15.02020-04-05 08:05:168k(q5    3MPTO 050800Z 26003KT 9999 FEW018 24/21 Q1009 NOSIGMPTO2020-04-05T08:00:00Z9.05-79.3724.021.026036.2129.793306TRUEVFRMETAR45.02020-04-05 08:05:16>j(5    3BKPR 050800Z 36016KT 9999 SCT030 BKN060 08/02 Q1020 NOSIGBKPR2020-04-05T08:00:00Z42.5821.038.02.0360166.2130.11811TRUEVFRMETAR576.02020-04-05 08:05:16 ;?;2s(e5    3OBBI 050800Z 33015KT CAVOK 29/12 Q1017 NOSIGOBBI2020-04-05T08:00:00Z26.2750.6329.012.0330156.2130.029528TRUEVFRMETAR2.02020-04-05 08:05:16br);5    3ZMUB 050800Z 33004MPS 270V030 9999 FEW033 BKN250 15/M19 Q1018 NOSIG RMK QFE656.2 08 MOPZMUB2020-04-05T08:00:00Z47.83106.7815.0-19.033086.2130.059055TRUEVFRMETAR1330.02020-04-05 08:05:16,q(e5   3SBPV 050800Z 00000KT 9999 FEW020 24/23 Q1009SBPV2020-04-05T08:00:00Z-8.72-63.924.023.0006.2129.793306VFRMETAR88.02020-04-05 08:05:16,p(e5   3SBEG 050800Z 00000KT 9999 FEW010 25/24 Q1009SBEG2020-04-05T08:00:00Z-3.02-60.0325.024.0006.2129.793306VFRMETAR2.02020-04-05 08:05:16;o(u5    3OPNH 050800Z 31510KT 6000 FAIR NSC 35/18 Q1012 NOSIGOPNH2020-04-05T08:00:00Z26.2268.3735.018.0315103.7329.88189TRUEMVFRMETAR38.02020-04-05 08:05:16 mL*m7x(s5   3SBPS 050800Z 24003KT 9999 SCT015 BKN070 25/23 Q1013SBPS2020-04-05T08:00:00Z-16.43-39.0725.023.024036.2129.911417VFRMETAR51.02020-04-05 08:05:164w(s5   3SBBE 050800Z 00000KT 9999 FEW015 SCT100 25/24 Q1010SBBE2020-04-05T08:00:00Z-1.37-48.4725.024.0006.2129.822834VFRMETAR16.02020-04-05 08:05:165v(q5    3FOOL 050800Z 09005KT 9999 FEW009 29/25 Q1013 NOSIGFOOL2020-04-05T08:00:00Z0.459.4229.025.09056.2129.911417TRUEVFRMETAR15.02020-04-05 08:05:16'u(Y5   3SBSL 050800Z 04003KT CAVOK 25/25 Q1010SBSL2020-04-05T08:00:00Z-2.6-44.2225.025.04036.2129.822834VFRMETAR53.02020-04-05 08:05:16.t(e5   3SBRF 050800Z 00000KT 9999 BKN015 28/25 Q1011SBRF2020-04-05T08:00:00Z-8.13-34.9228.025.0006.2129.852362MVFRMETAR19.02020-04-05 08:05:16 iR&i7}(q5    3WAMM 050800Z 02009KT 9999 SCT021 31/23 Q1008 NOSIGWAMM2020-04-05T08:00:00Z1.55124.9231.023.02096.2129.763779TRUEVFRMETAR80.02020-04-05 08:05:162|(e5    3SMJP 050800Z 13002KT CAVOK 25/24 Q1010 NOSIGSMJP2020-04-05T08:00:00Z5.45-55.1725.024.013026.2129.822834TRUEVFRMETAR16.02020-04-05 08:05:161{(e5   3SBPJ 050800Z 12004KT 9999 FEW040 24/23 Q1011SBPJ2020-04-05T08:00:00Z-10.28-48.3724.023.012046.2129.852362VFRMETAR236.02020-04-05 08:05:167z(q5     3OPSK 050800Z 00000KT 4000 HZ NSC 35/15 Q1010 NOSIGOPSK2020-04-05T08:00:00Z27.7268.835.015.0002.4929.822834TRUEHZIFRMETAR58.02020-04-05 08:05:16(y(Y5   3SBRB 050800Z 00000KT CAVOK 24/24 Q1010SBRB2020-04-05T08:00:00Z-9.87-67.8824.024.0006.2129.822834VFRMETAR190.02020-04-05 08:05:16 TiT&(Y5   3SBKP 050800Z 12011KT CAVOK 17/14 Q1016SBKP2020-04-05T08:00:00Z-23.0-47.1217.014.0120116.2130.0VFRMETAR661.02020-04-05 08:05:16.(e5   3SBAR 050800Z 03006KT 9999 FEW017 28/25 Q1011SBAR2020-04-05T08:00:00Z-10.97-37.0728.025.03066.2129.852362VFRMETAR9.02020-04-05 08:05:16/(e5    3LEMO 050800Z VRB01KT CAVOK 12/08 Q1017 NOSIGLEMO2020-04-05T08:00:00Z37.17-5.6212.08.0016.2130.029528TRUEVFRMETAR88.02020-04-05 08:05:160(e5   3SBGL 050800Z 32003KT 9999 BKN030 23/19 Q1015SBGL2020-04-05T08:00:00Z-22.82-43.2523.019.032036.2129.970472MVFRMETAR6.02020-04-05 08:05:16[~)15    3WADL 050800Z 24003KT 180V300 7000 SCT014CB BKN016 29/27 Q1008 NOSIG RMK CB ALL RWYWADL2020-04-05T08:00:00Z-8.75116.2829.027.024034.3529.763779TRUEMVFRMETAR97.02020-04-05 08:05:16 lJ#l1(g5   3KS71 050800Z AUTO 08005KT 10SM M06/M07 A2987 KS712020-04-05T08:00:00Z48.6-109.25-6.0-7.080510.029.870079TRUEMETAR736.02020-04-05 08:05:16)(Y5   3SBVT 050800Z 22007KT CAVOK 24/20 Q1014SBVT2020-04-05T08:00:00Z-20.27-40.2724.020.022076.2129.940945VFRMETAR4.02020-04-05 08:05:168(u5   3FQNP 050800Z 20006KT 140V240 9999 FEW020 27/19 Q1017FQNP2020-04-05T08:00:00Z-15.0839.2727.019.020066.2130.029528VFRMETAR441.02020-04-05 08:05:164(s5   3SBMQ 050800Z 01005KT 9999 SCT010 BKN090 26/26 Q1010SBMQ2020-04-05T08:00:00Z0.05-51.0726.026.01056.2129.822834VFRMETAR15.02020-04-05 08:05:160(e5   3NFTF 050800Z 12005KT 9999 FEW018 24/18 Q1012NFTF2020-04-05T08:00:00Z-21.23-175.1524.018.012056.2129.88189VFRMETAR38.02020-04-05 08:05:16 tH)t/ (e5   3FQTT 050800Z 12005KT 9999 FEW020 29/19 Q1017FQTT2020-04-05T08:00:00Z-16.133.6229.019.012056.2130.029528VFRMETAR160.02020-04-05 08:05:160 (e5   3FQNC 050800Z 24008KT 9999 FEW020 29/21 Q1014FQNC2020-04-05T08:00:00Z-14.4840.7229.021.024086.2129.940945VFRMETAR125.02020-04-05 08:05:16+ (Y5   3SANT 050800Z 36005KT CAVOK 20/17 Q1007SANT2020-04-05T08:00:00Z-26.85-65.0820.017.036056.2129.734253VFRMETAR450.02020-04-05 08:05:162 (e5    3SUMU 050800Z 02005KT CAVOK 14/11 Q1011 NOSIGSUMU2020-04-05T08:00:00Z-34.82-56.014.011.02056.2129.852362TRUEVFRMETAR32.02020-04-05 08:05:162(g5   3KPO1 050800Z AUTO 03004KT 10SM M05/M07 A2993 KPO12020-04-05T08:00:00Z48.13-105.17-5.0-7.030410.029.929134TRUEMETAR621.02020-04-05 08:05:16 wL7w:(u5    3OLBA 050800Z 15013KT 110V170 CAVOK 33/03 Q1009 NOSIGOLBA2020-04-05T08:00:00Z33.8235.4733.03.0150136.2129.793306TRUEVFRMETAR19.02020-04-05 08:05:160(e5    3OKBK 050800Z 01008KT CAVOK 30/06 Q1019 NOSIGOKBK2020-04-05T08:00:00Z29.2247.9730.06.01086.2130.088583TRUEVFRMETAR55.02020-04-05 08:05:16*(Y5   3SGAS 050800Z 16005KT CAVOK 20/13 Q1012SGAS2020-04-05T08:00:00Z-25.25-57.5220.013.016056.2129.88189VFRMETAR101.02020-04-05 08:05:16)(Y5   3SBFL 050800Z 30005KT CAVOK 18/11 Q1015SBFL2020-04-05T08:00:00Z-27.67-48.5318.011.030056.2129.970472VFRMETAR5.02020-04-05 08:05:16. (e5   3SBTE 050800Z 01002KT 9999 SCT020 26/24 Q1010SBTE2020-04-05T08:00:00Z-5.03-42.8226.024.01026.2129.822834VFRMETAR69.02020-04-05 08:05:16 LJL6(y5   3NGFU 050800Z 00000KT 9999 SCT018TCU BKN310 30/25 Q1006NGFU2020-04-05T08:00:00Z-8.52179.2230.025.0006.2129.704725VFRMETAR1.02020-04-05 08:05:169(y5   3SBSG 050800Z 24003KT 9000 SCT016 FEW023TCU 25/25 Q1011SBSG2020-04-05T08:00:00Z-5.77-35.3725.025.024035.5929.852362VFRMETAR83.02020-04-05 08:05:165(q5    3GVAC 050800Z 05011KT 9999 BKN013 22/16 Q1016 NOSIGGVAC2020-04-05T08:00:00Z16.72-22.9322.016.050116.2130.0TRUEMVFRMETAR55.02020-04-05 08:05:16B)5   3SBBR 050800Z 22003KT 190V270 9999 FEW035 BKN090 22/20 Q1018SBBR2020-04-05T08:00:00Z-15.87-47.9222.020.022036.2130.059055VFRMETAR1061.02020-04-05 08:05:160(e5   3SBGR 050800Z 07005KT 9999 FEW011 15/15 Q1017SBGR2020-04-05T08:00:00Z-23.42-46.4715.015.07056.2130.029528VFRMETAR750.02020-04-05 08:05:16 +Sr9(q5     3OPMT 050800Z 00000KT 8000 HZ NSC 30/14 Q1012 NOSIGOPMT2020-04-05T08:00:00Z30.1871.4230.014.0004.9729.88189TRUEHZMVFRMETAR123.02020-04-05 08:05:16[)/5    3PKWA 050800Z AUTO 05013KT 10SM SCT024 SCT029 SCT034 28/24 A2984 RMK AO2 T02800236PKWA2020-04-05T08:00:00Z8.72167.7228.023.6501310.029.840551TRUETRUEVFRMETAR8.02020-04-05 08:05:16R)%5    3UBBY 050800Z VRB02KT 9999 BKN020 12/08 Q1027 R33/////// NOSIG RMK MT PT OBSCUBBY2020-04-05T08:00:00Z41.5746.6712.08.0026.2130.324802TRUEMVFRMETAR390.02020-04-05 08:05:16O)5    3UBBQ 050800Z VRB02KT 9999 OVC018 11/06 Q1024 R16/////// NOSIG RMK MT OBSCUBBQ2020-04-05T08:00:00Z40.8247.7211.06.0026.2130.236221TRUEMVFRMETAR338.02020-04-05 08:05:16 :*k:*(Y5   3SCCF 050800Z 11013KT CAVOK 11/05 Q1025SCCF2020-04-05T08:00:00Z-22.5-68.911.05.0110136.2130.265747VFRMETAR2312.02020-04-05 08:05:163(e5    3SCFA 050800Z 04007KT CAVOK 19/14 Q1012 NOSIGSCFA2020-04-05T08:00:00Z-23.42-70.4219.014.04076.2129.88189TRUEVFRMETAR120.02020-04-05 08:05:16B(5    3SCIP 050800Z 09011KT 9999 SCT020 BKN040 22/18 Q1021 NOSIGSCIP2020-04-05T08:00:00Z-27.17-109.4322.018.090116.2130.147638TRUEVFRMETAR69.02020-04-05 08:05:169(q5    3GVSV 050800Z 07014KT 9999 SCT020 22/16 Q1017 NOSIGGVSV2020-04-05T08:00:00Z16.83-25.0722.016.070146.2130.029528TRUEVFRMETAR20.02020-04-05 08:05:16P)5     3HECA 050800Z 29011KT 0500 R05C/0500 R23C/0500 SS NSC 22/09 Q1013 NOSIGHECA2020-04-05T08:00:00Z30.1231.3822.09.0290110.3129.911417TRUESSLIFRMETAR74.02020-04-05 08:05:16 IE I<$(u5     3SCQP 050800Z AUTO 03003KT 5000 BR FEW003 01/01 Q1017SCQP2020-04-05T08:00:00Z-38.92-72.651.01.03033.1130.029528TRUEBRMVFRMETAR97.02020-04-05 08:05:166#(i5    3SCIC 050800Z AUTO 18009KT 9999 NCD 12/04 Q1013SCIC2020-04-05T08:00:00Z-34.97-71.2212.04.018096.2129.911417TRUEVFRMETAR242.02020-04-05 08:05:167"({5   3SCCH 050800Z AUTO 22009KT //// R/////// NCD 09/05 Q1014SCCH2020-04-05T08:00:00Z-36.57-72.029.05.0220929.940945TRUEMETAR148.02020-04-05 08:05:16;!(u5    3SCSE 050800Z AUTO 10006KT 9999 BKN200/// 15/13 Q1012SCSE2020-04-05T08:00:00Z-29.92-71.215.013.010066.2129.88189TRUEVFRMETAR146.02020-04-05 08:05:165 (k5    3SCAR 050800Z 34002KT 4000 HZ BKN030 22/15 Q1010SCAR2020-04-05T08:00:00Z-18.35-70.3222.015.034022.4929.822834HZIFRMETAR59.02020-04-05 08:05:16 5R55)(o5    3SCPQ 050800Z AUTO 33008KT 9999 SCT034 09/09 Q1012SCPQ2020-04-05T08:00:00Z-42.33-73.729.09.033086.2129.88189TRUEVFRMETAR5.02020-04-05 08:05:168((u5   3SCTN 050800Z AUTO 32010KT 9999 ///////// 11/11 Q1011SCTN2020-04-05T08:00:00Z-42.92-72.711.011.0320106.2129.852362TRUEMETAR4.02020-04-05 08:05:16L') 5     3SCTE 050800Z 36004KT 8000 -SHRA SCT006 OVC040 09/08 Q1014 NOSIGSCTE2020-04-05T08:00:00Z-41.42-73.079.08.036044.9729.940945TRUE-SHRAMVFRMETAR86.02020-04-05 08:05:16L&)5    3SCJO 050800Z AUTO 00000KT 9999 SCT032/// SCT051/// OVC067/// 08/06 Q1015SCJO2020-04-05T08:00:00Z-40.6-73.038.06.0006.2129.970472TRUEVFRMETAR65.02020-04-05 08:05:16(%(Y5   3SCIE 050800Z 20004KT CAVOK 09/07 Q1015SCIE2020-04-05T08:00:00Z-36.77-73.079.07.020046.2129.970472VFRMETAR16.02020-04-05 08:05:16 'nN-)5    3SCMK 050800Z AUTO 28012KT 240V320 9999 SCT019/// SCT041/// 11/08 Q1007SCMK2020-04-05T08:00:00Z-43.9-73.7311.08.0280126.2129.734253TRUEVFRMETAR11.02020-04-05 08:05:163,(o5   3SCAP 050800Z AUTO VRB07KT 9999 ////// 09/05 Q1007SCAP2020-04-05T08:00:00Z-43.62-71.789.05.0076.2129.734253TRUEMETAR277.02020-04-05 08:05:16j+)?5    3SCFT 050800Z AUTO 27015G25KT 220V300 9999 -SHRA FEW037/// BKN052/// OVC150/// 11/04 Q1006SCFT2020-04-05T08:00:00Z-43.17-71.8511.04.027015256.2129.704725TRUE-SHRAVFRMETAR318.02020-04-05 08:05:16c*)95     3SCON 050800Z AUTO 31005KT 260V340 9999 -SHRA SCT023/// BKN038/// OVC047/// 11/10 Q1010SCON2020-04-05T08:00:00Z-43.12-73.6211.010.031056.2129.822834TRUE-SHRAVFRMETAR3.02020-04-05 08:05:16 YCY92(s5    3SCRM 050800Z 36007KT 9999 SCT030 00/M00 Q0972 NOSIGSCRM2020-04-05T08:00:00Z-62.18-58.980.00.036076.2128.700787TRUEVFRMETAR45.02020-04-05 08:05:1631(e5    3MROC 050800Z 09010KT CAVOK 22/16 A2993 NOSIGMROC2020-04-05T08:00:00Z10.0-84.2222.016.090106.2129.929134TRUEVFRMETAR920.02020-04-05 08:05:16(0(Y5   3GBYD 050800Z 02010KT CAVOK 23/17 Q1012GBYD2020-04-05T08:00:00Z13.33-16.6523.017.020106.2129.88189VFRMETAR36.02020-04-05 08:05:16>/(5    3SVMI 050800Z 09001KT 9999 FEW016 BKN070 24/22 Q1008 NOSIGSVMI2020-04-05T08:00:00Z10.58-67.024.022.09016.2129.763779TRUEVFRMETAR48.02020-04-05 08:05:167.(k5    3SBCT 050800Z 12002KT 5000 BR FEW002 11/11 Q1018SBCT2020-04-05T08:00:00Z-25.52-49.1711.011.012023.1130.059055BRMVFRMETAR908.02020-04-05 08:05:16 ;dL6)5    3KSAW 050759Z AUTO 00000KT 10SM CLR M07/M08 A3016 RMK AO2 T10661076KSAW2020-04-05T07:59:00Z46.35-87.4-6.6-7.60010.030.159449TRUETRUEVFRMETAR372.02020-04-05 08:05:16]5)'5   3KC07 050800Z AUTO 23009G20KT 200V280 10SM SCT050 OVC070 M01/M08 A2990 RMK AO2KC072020-04-05T08:00:00Z40.35-106.7-1.0-8.023092010.029.899607TRUETRUEVFRMETAR3224.02020-04-05 08:05:16Q4)5   3KHAF 050800Z AUTO 19010G16KT 8SM BKN012 BKN047 12/10 A2974 RMK AO2KHAF2020-04-05T08:00:00Z37.52-122.512.010.019010168.029.740158TRUETRUEMVFRMETAR21.02020-04-05 08:05:16?3(5    3SCCI 050800Z 26011KT 9999 SCT030 SCT080 04/01 Q0987 NOSIGSCCI2020-04-05T08:00:00Z-53.0-70.834.01.0260116.2129.143702TRUEVFRMETAR37.02020-04-05 08:05:16 .ItF:)5    3MTPP 050759Z AUTO 10005KT 9000 ////// 26/21 Q1011 A2987 NOSIGMTPP2020-04-05T07:59:00Z18.57-72.2826.021.010055.5929.852362TRUETRUEMETAR37.02020-04-05 08:05:16O9)5   3KP92 050759Z AUTO 12009KT 16/13 A2990 RMK AO1 PRESFR SLP124 T01610133KP922020-04-05T07:59:00Z29.57-91.5316.113.3120929.8996071012.4TRUETRUEMETAR1.02020-04-05 08:05:16_8)5    3KNOZ 050759Z AUTO 13006KT 10SM CLR 16/11 A2979 RMK AO2 SLP039 T01560106 $KNOZ2020-04-05T07:59:00Z32.53-114.515.610.6130610.029.7903541003.9TRUETRUETRUEVFRMETAR78.02020-04-05 08:05:16L7)5    3KNGU 050759Z 00000KT 9SM FEW010 06/04 A3010 RMK AO2 SLP192 T00560044KNGU2020-04-05T07:59:00Z36.92-76.275.64.4009.030.1003931019.2TRUEVFRMETAR5.02020-04-05 08:05:16 J#*2Jb>)!5    3K1BW 050758Z AUTO 18011KT 10SM CLR 00/M03 A2983 RMK AO2 SLP093 T00031035 $K1BW2020-04-05T07:58:00Z41.52-104.00.3-3.51801110.029.8287411009.3TRUETRUETRUEVFRMETAR1607.02020-04-05 08:05:16r=)A5      3K0J4 050758Z AUTO 00000KT 10SM -RA OVC110 18/14 A2995 RMK AO2 RAB21 SLP139 P0000 T01780144K0J42020-04-05T07:58:00Z31.05-86.3217.814.40010.029.9498021013.9TRUETRUE-RAVFR0.005METAR96.02020-04-05 08:05:16s<)75     3KGOV 050758Z AUTO 29004KT 10SM CLR M05/M05 A3012 RMK AO2 SLP220 T10531055 400531053 $KGOV2020-04-05T07:58:00Z44.68-84.73-5.3-5.5290410.030.1210631022.0TRUETRUETRUEVFR5.3-5.3METAR353.02020-04-05 08:05:16W;)5     3CYYN 050759Z AUTO VRB02KT 9SM -SN OVC010 M08/M10 A2989 RMK ICG SLP168CYYN2020-04-05T07:59:00Z50.27-107.67-8.0-10.0029.029.8907471016.8TRUE-SNMVFRSPECI818.02020-04-05 08:05:16Y88@HPX`hpx (08@HPX`hpx (08@HPX`hpx %*.38=BG %*.38=BGLQV[_dinsx} ‹Ëċ$ŋ)Ƌ-Nj2ȋ6ɋ:ʋ>̋B͋F΋JϋNЋRыVҋZӋ^ԋaՋe֋i׋m؋qًuڋyۋ}܋݋ދ ߋ !%)-159<@CGKOSVY]aeimquy} w,IwLB) 5    3KCUL 050758Z AUTO 36004KT 10SM SCT009 OVC017 08/07 A3007 RMK AO2KCUL2020-04-05T07:58:00Z38.08-88.128.07.0360410.030.070866TRUETRUEMVFRMETAR118.02020-04-05 08:05:16]A)5     3PALU 050758Z AUTO 02011KT 1 3/4SM -SN OVC009 M09/M10 A2929 RMK AO2 SLP918PALU2020-04-05T07:58:00Z68.88-166.1-9.0-10.020111.7529.291338991.8TRUETRUE-SNIFRMETAR3.02020-04-05 08:05:16c@)!5    3K1HW 050758Z AUTO 19011KT 10SM CLR 02/M04 A2986 RMK AO2 SLP108 T00201036 $K1HW2020-04-05T07:58:00Z41.32-102.832.0-3.61901110.029.8612211010.8TRUETRUETRUEVFRMETAR1263.02020-04-05 08:05:16e?)'5    3K1IW 050758Z AUTO 20021KT 10SM FEW120 04/M04 A2985 RMK AO2 SLP102 T00411044 $K1IW2020-04-05T07:58:00Z41.05-102.874.1-4.42002110.029.849411010.2TRUETRUETRUEVFRMETAR1293.02020-04-05 08:05:16 W=TWwF)G5    3OAIX 050758Z 16004KT 9999 FEW060 SCT100 BKN130 BKN290 18/04 A3013 RMK AO2A SLP143 T01830044 $OAIX2020-04-05T07:58:00Z34.9569.2718.34.416046.2130.1299211014.3TRUETRUEBKN29000VFRMETAR1492.02020-04-05 08:05:16cE)%5   3RKSO 050758Z AUTO 27013G17KT 7SM CLR 11/M04 A3015 RMK AO2 SLP213 T01051039 $RKSO2020-04-05T07:58:00Z37.07127.0210.5-3.927013177.030.150591021.3TRUETRUETRUEVFRMETAR12.02020-04-05 08:05:16UD)5    3KBKF 050758Z 19015KT 10SM CLR 05/M02 A2981 RMK AO2A SLP057 T00471022KBKF2020-04-05T07:58:00Z39.72-104.754.7-2.21901510.029.8110241005.7TRUEVFRMETAR1726.02020-04-05 08:05:16bC)!5    3KCWN 050758Z AUTO 29003KT 10SM CLR 01/M04 A2984 RMK AO2 SLP001 T00081037 $KCWN2020-04-05T07:58:00Z38.75-104.850.8-3.7290310.029.8405511000.1TRUETRUETRUEVFRMETAR2040.02020-04-05 08:05:16 6qdJ)15    3KHUA 050758Z AUTO 03005KT 10SM CLR 15/10 A2994 RMK AO2 LTG DSNT S SLP136 T01520100KHUA2020-04-05T07:58:00Z34.68-86.6815.210.030510.029.9409451013.6TRUETRUEVFRMETAR209.02020-04-05 08:05:16fI)75    3KSEQ 050758Z AUTO 02007KT 10SM R13/5500FT OVC007 11/11 A3004 RMK AO2 SLP174 T01090107KSEQ2020-04-05T07:58:00Z29.57-97.910.910.720710.030.0413381017.4TRUETRUEIFRMETAR160.02020-04-05 08:05:16?H(y5    3KJES 050758Z AUTO 00000KT 10SM CLR 15/13 A2994 RMK AO2KJES2020-04-05T07:58:00Z31.55-81.8815.013.00010.029.940945TRUETRUEVFRMETAR33.02020-04-05 08:05:16DG({5    3KMMH 050758Z AUTO 07005KT 10SM CLR 03/M10 A2974 RMK AO2KMMH2020-04-05T07:58:00Z37.62-118.823.0-10.070510.029.740158TRUETRUEVFRMETAR2173.02020-04-05 08:05:16 g8DgWN)5    3KHEY 050758Z AUTO 00000KT 10SM CLR 18/14 A2990 RMK AO2 SLP125 T01840144KHEY2020-04-05T07:58:00Z31.35-85.6518.414.40010.029.8996071012.5TRUETRUEVFRMETAR97.02020-04-05 08:05:16nM)95     3PWAK 050758Z AUTO 07015KT 9999 OVC060 26/18 A3000 RMK AO2 SLP165 T02550182 402990228 $PWAK2020-04-05T07:58:00Z19.28166.6525.518.270156.2130.01016.5TRUETRUETRUEVFR29.922.8METAR4.02020-04-05 08:05:16EL(5    3OKAS 050758Z 34006KT 9999 CLR 29/04 A3010 RMK AO2A SLP189OKAS2020-04-05T07:58:00Z29.3547.5229.04.034066.2130.1003931018.9TRUEVFRMETAR144.02020-04-05 08:05:16wK)K5     3KAPG 050758Z AUTO 21003KT 9SM R22/5500FT OVC046 10/09 A3006 RMK AO2 SLP183 T01000088 PNO TSNO $KAPG2020-04-05T07:58:00Z39.47-76.1710.08.821039.030.0590551018.3TRUETRUETRUETRUEVFRMETAR18.02020-04-05 08:05:16 Z#C[Z{R)M5     3PAFR 050758Z AUTO 16009KT 10SM FEW048 BKN060 OVC085 06/01 A2980 RMK AO2 SLP099 P0000 T00560007 $PAFR2020-04-05T07:58:00Z61.27-149.655.60.7160910.029.7992131009.9TRUETRUETRUEVFR0.005METAR115.02020-04-05 08:05:16bQ)/5    3PAFB 050758Z AUTO 06004KT 10SM BKN037 OVC065 01/01 A2965 RMK AO2 SLP047 T00080005PAFB2020-04-05T07:58:00Z64.83-147.620.80.560410.029.6486231004.7TRUETRUEVFRMETAR137.02020-04-05 08:05:16ZP)5    3KSXS 050758Z AUTO 31005KT 10SM CLR 19/14 A2991 RMK AO2 SLP127 T01860143KSXS2020-04-05T07:58:00Z31.37-85.8518.614.3310510.029.9114171012.7TRUETRUEVFRMETAR122.02020-04-05 08:05:16WO)5    3KLOR 050758Z AUTO 00000KT 10SM CLR 17/16 A2991 RMK AO2 SLP110 T01660158KLOR2020-04-05T07:58:00Z31.35-85.7516.615.80010.029.9114171011.0TRUETRUEVFRMETAR74.02020-04-05 08:05:16 d 7dMV)5    3CYOO 050758Z AUTO 35002KT 7SM BKN033 OVC055 06/06 A2999 RMK SLP159CYOO2020-04-05T07:58:00Z43.92-78.96.06.035027.029.9911421015.9TRUEVFRSPECI139.02020-04-05 08:05:16UU)5     3CYGW 050758Z AUTO 32004KT 2 1/2SM -SN OVC002 M02/M02 A2985 RMK SLP111CYGW2020-04-05T07:58:00Z55.27-77.77-2.0-2.032042.529.849411011.1TRUE-SNLIFRSPECI12.02020-04-05 08:05:16qT)55     3RKSY 050758Z AUTO 26004KT 9999 CLR 12/M05 A3012 RMK AO2 SLP203 T01201049 401370015 $RKSY2020-04-05T07:58:00Z37.52126.9712.0-4.926046.2130.1210631020.3TRUETRUETRUEVFR13.71.5METAR12.02020-04-05 08:05:16qS)75     3PHSF 050758Z AUTO 00000KT 1/4SM FG VV001 12/12 A3031 RMK AO2 SLP150 T01190116 RVRNO $PHSF2020-04-05T07:58:00Z19.77-155.5511.911.6000.2530.310041015.0TRUETRUETRUEFGLIFR100METAR1887.02020-04-05 08:05:16 v+OkvoZ)15     3K9L2 050758Z AUTO 21012KT 9SM CLR 09/06 A2981 RMK AO2 SLP085 T00900064 402080056 $K9L22020-04-05T07:58:00Z34.97-117.879.06.4210129.029.8110241008.5TRUETRUETRUEVFR20.85.6METAR701.02020-04-05 08:05:16^Y)5    3K4MR 050758Z AUTO 13003KT 10SM CLR 04/03 A2997 RMK AO2 SLP126 T00370029 $K4MR2020-04-05T07:58:00Z34.3-103.83.72.9130310.029.9704721012.6TRUETRUETRUEVFRMETAR1326.02020-04-05 08:05:16VX)5   3CYCA 050758Z AUTO 30010G16KT 9SM -SN M08/M12 A3002 RMK CLD MISG SLP169CYCA2020-04-05T07:58:00Z53.68-57.03-8.0-12.030010169.030.020671016.9TRUE-SNSPECI12.02020-04-05 08:05:16OW) 5     3CYRV 050758Z AUTO 00000KT 6SM BR OVC095 M02/M04 A2977 RMK SLP103CYRV2020-04-05T07:58:00Z50.97-118.17-2.0-4.0006.029.7696861010.3TRUEBRVFRSPECI443.02020-04-05 08:05:16 ++c^)!5    3KHMN 050758Z AUTO 12006KT 10SM CLR 12/M01 A2992 RMK AO2 SLP078 T01171008 $KHMN2020-04-05T07:58:00Z32.85-106.0811.7-0.8120610.029.9202751007.8TRUETRUETRUEVFRMETAR1248.02020-04-05 08:05:16b])!5    3KGXF 050758Z AUTO 18008KT 10SM CLR 19/M01 A2977 RMK AO2 SLP071 T01881012 $KGXF2020-04-05T07:58:00Z32.87-112.7218.8-1.2180810.029.7696861007.1TRUETRUETRUEVFRMETAR262.02020-04-05 08:05:16m\)/5     3KDMA 050758Z AUTO 13004KT 10SM CLR 17/M04 A2989 RMK AO2 SLP088 T01721041 FZRANO $KDMA2020-04-05T07:58:00Z32.17-110.8717.2-4.1130410.029.8907471008.8TRUETRUETRUETRUEVFRMETAR824.02020-04-05 08:05:16 [)a5     3KBAB 050758Z AUTO 14009KT 10SM OVC049 11/10 A2971 RMK AO2 DZE01RAB01E11 SLP064 P0000 T01050099 401180053 $KBAB2020-04-05T07:58:00Z39.12-121.4210.59.9140910.029.710631006.4TRUETRUETRUEVFR11.85.30.005METAR34.02020-04-05 08:05:16 7&7ia)35    3KMUO 050758Z AUTO 12008KT 10SM BKN070 OVC110 05/05 A2966 RMK AO2 SLP043 T00540054 $KMUO2020-04-05T07:58:00Z43.03-115.875.45.4120810.029.6604331004.3TRUETRUETRUEVFRMETAR913.02020-04-05 08:05:16Z`)5    3KLUF 050758Z AUTO 23008KT 10SM CLR 19/01 A2978 RMK AO2 SLP075 T01860007KLUF2020-04-05T07:58:00Z33.52-112.3718.60.7230810.029.7785431007.5TRUETRUEVFRMETAR332.02020-04-05 08:05:16t_)55     3KINS 050758Z AUTO 11011KT 10SM CLR 15/M02 A2965 RMK AO2 SLP008 T01531017 402190046 $KINS2020-04-05T07:58:00Z36.58-115.6715.3-1.71101110.029.6486231000.8TRUETRUETRUEVFR21.94.6METAR955.02020-04-05 08:05:16 be)!5    3K1OW 050758Z AUTO 14010KT 10SM CLR 01/M03 A2983 RMK AO2 SLP097 T00081035 $K1OW2020-04-05T07:58:00Z40.88-104.00.8-3.51401010.029.8287411009.7TRUETRUETRUEVFRMETAR1649.02020-04-05 08:05:16bd)#5    3K1GM 050758Z AUTO 35006KT 10SM CLR M07/M09 A2969 RMK AO2 SLP097 T10691088 $K1GM2020-04-05T07:58:00Z47.33-112.1-6.9-8.8350610.029.689961009.7TRUETRUETRUEVFRMETAR1311.02020-04-05 08:05:16nc)75    3K1AM 050758Z AUTO 11014KT 10SM FEW210 FEW240 M03/M08 A2972 RMK AO2 SLP053 T10321079 $K1AM2020-04-05T07:58:00Z47.28-110.8-3.2-7.91101410.029.7194881005.3TRUETRUETRUEVFRMETAR1219.02020-04-05 08:05:16"b) 5      3KTCM 050758Z AUTO 36007KT 10SM -DZ OVC050 07/02 A2963 RMK AO2 RAB10E11DZB11E14RAB14E56DZB56 SLP038 P0001 T00650024 401241023 $KTCM2020-04-05T07:58:00Z47.12-122.476.52.4360710.029.6309051003.8TRUETRUETRUE-DZVFR12.4-2.30.01METAR98.02020-04-05 08:05:16 m9Umbi)#5    3K1NM 050758Z AUTO 00000KT 10SM CLR M07/M07 A2978 RMK AO2 SLP138 T10671073 $K1NM2020-04-05T07:58:00Z47.07-109.03-6.7-7.30010.029.7785431013.8TRUETRUETRUEVFRMETAR1161.02020-04-05 08:05:16^h)%5     3KROG 050758Z AUTO 08003KT 1SM BR OVC003 07/06 A3007 RMK AO2 SLP183 T00670061KROG2020-04-05T07:58:00Z36.37-94.086.76.18031.030.0708661018.3TRUETRUEBRLIFRMETAR415.02020-04-05 08:05:16Xg)5     3KOCF 050758Z AUTO 00000KT 1 3/4SM HZ FEW090 OVC110 18/14 A2991 RMK AO2 $KOCF2020-04-05T07:58:00Z29.17-82.2218.014.0001.7529.911417TRUETRUETRUEHZIFRMETAR27.02020-04-05 08:05:16cf)!5    3K1EW 050758Z AUTO 19014KT 10SM CLR 02/M03 A2982 RMK AO2 SLP092 T00181031 $K1EW2020-04-05T07:58:00Z41.12-103.981.8-3.11901410.029.8198811009.2TRUETRUETRUEVFRMETAR1609.02020-04-05 08:05:16 T  :T`m)5    3KLGF 050758Z AUTO 26005KT 10SM CLR 18/10 A2978 RMK AO2 SLP082 T01750102 $KLGF2020-04-05T07:58:00Z32.87-114.417.510.2260510.029.7785431008.2TRUETRUETRUEVFRMETAR132.02020-04-05 08:05:16`l)5    3KCVS 050758Z AUTO 17005KT 10SM CLR 05/05 A2997 RMK AO2 SLP127 T00520052 $KCVS2020-04-05T07:58:00Z34.37-103.325.25.2170510.029.9704721012.7TRUETRUETRUEVFRMETAR1309.02020-04-05 08:05:16gk))5    3K1OM 050758Z AUTO 16008KT 10SM SCT095 M06/M08 A2980 RMK AO2 SLP139 T10601076 $K1OM2020-04-05T07:58:00Z47.33-108.93-6.0-7.6160810.029.7992131013.9TRUETRUETRUEVFRMETAR1086.02020-04-05 08:05:16mj)75    3K1JM 050758Z AUTO 04006KT 10SM FEW100 FEW230 M05/M08 A2973 RMK AO2 SLP118 T10551076 $K1JM2020-04-05T07:58:00Z47.75-111.55-5.5-7.640610.029.7312981011.8TRUETRUETRUEVFRMETAR1152.02020-04-05 08:05:16 { ?_{^q)5    3KAFF 050758Z AUTO 33003KT 10SM CLR M02/M05 A2987 RMK AO2 SLP114 T10231048KAFF2020-04-05T07:58:00Z38.97-104.82-2.3-4.8330310.029.8700791011.4TRUETRUEVFRMETAR2003.02020-04-05 08:05:16Zp)5    3KABH 050758Z AUTO 07008KT 10SM CLR 00/M04 A2989 RMK AO2 SLP124 T00001044KABH2020-04-05T07:58:00Z38.75-104.30.0-4.470810.029.8907471012.4TRUETRUEVFRMETAR1840.02020-04-05 08:05:16[o)5    3KFHU 050758Z AUTO 20013KT 9SM CLR 14/M07 A2998 RMK AO2 SLP090 T01371073KFHU2020-04-05T07:58:00Z31.58-110.3513.7-7.3200139.029.979331009.0TRUETRUEVFRMETAR1438.02020-04-05 08:05:16Zn)5    3KGUR 050758Z AUTO 00000KT 10SM CLR 01/M07 A2982 RMK AO2 SLP094 T00111072KGUR2020-04-05T07:58:00Z42.25-104.721.1-7.20010.029.8198811009.4TRUETRUEVFRMETAR1358.02020-04-05 08:05:16 %(?%u)i5      3KGRF 050758Z AUTO 32004KT 10SM -RA BKN028 07/06 A2962 RMK AO2 DZB16E25RAB25 SLP035 P0000 T00660055 401261016 $KGRF2020-04-05T07:58:00Z47.07-122.576.65.5320410.029.6190951003.5TRUETRUETRUE-RAMVFR12.6-1.60.005METAR92.02020-04-05 08:05:16ct)#5    3KGFA 050758Z AUTO 36006KT 10SM CLR M06/M06 A2975 RMK AO2 SLP118 T10591065 $KGFA2020-04-05T07:58:00Z47.5-111.17-5.9-6.5360610.029.7490161011.8TRUETRUETRUEVFRMETAR1075.02020-04-05 08:05:16bs)#5    3KFEW 050758Z AUTO 00000KT 10SM CLR M01/M05 A2984 RMK AO2 SLP092 T10061049 $KFEW2020-04-05T07:58:00Z41.13-104.87-0.6-4.90010.029.8405511009.2TRUETRUETRUEVFRMETAR1878.02020-04-05 08:05:16jr)/5     3KEDW 050758Z AUTO 25009KT 10SM CLR 09/07 A2980 RMK AO2 SLP082 T00910070 401980075KEDW2020-04-05T07:58:00Z34.88-117.879.17.0250910.029.7992131008.2TRUETRUEVFR19.87.5METAR702.02020-04-05 08:05:16 4(4ny)55     3KRIV 050758Z AUTO 13005KT 10SM FEW049 10/08 A2990 RMK AO2 SLP122 T01030075 401960092KRIV2020-04-05T07:58:00Z33.87-117.2710.37.5130510.029.8996071012.2TRUETRUEVFR19.69.2METAR469.02020-04-05 08:05:16px)?5      3KPOE 050758Z AUTO 04003KT 5SM BR BKN004 OVC090 16/16 A2996 RMK AO2 SLP146 P0001 T01590157KPOE2020-04-05T07:58:00Z31.05-93.215.915.74035.029.9586621014.6TRUETRUEBRLIFR0.01METAR101.02020-04-05 08:05:16_w)#5    3KHIF 050758Z AUTO 19003KT 10SM OVC080 10/M03 A2968 RMK AO2 SLP020 T00981032KHIF2020-04-05T07:58:00Z41.12-111.979.8-3.2190310.029.6811031002.0TRUETRUEVFRMETAR1459.02020-04-05 08:05:16wv)M5     3KGXA 050758Z AUTO 00000KT 10SM CLR 05/04 A2981 RMK AO2 SLP085 WND DATA ESTMD T00500039 401940042KGXA2020-04-05T07:58:00Z34.57-117.675.03.90010.029.8110241008.5TRUETRUEVFR19.44.2METAR923.02020-04-05 08:05:16 f}))5    3K1MM 050758Z AUTO 08004KT 10SM BKN140 M05/M08 A2974 RMK AO2 SLP119 T10491076 $K1MM2020-04-05T07:58:00Z47.02-109.63-4.9-7.680410.029.7401581011.9TRUETRUETRUEVFRMETAR1256.02020-04-05 08:05:16g|))5    3K1EM 050758Z AUTO 09013KT 10SM FEW220 M06/M07 A2977 RMK AO2 SLP136 T10571071 $K1EM2020-04-05T07:58:00Z47.45-109.42-5.7-7.1901310.029.7696861013.6TRUETRUETRUEVFRMETAR1116.02020-04-05 08:05:16{)[5     3KVBG 050758Z AUTO 16006KT 10SM BKN015 OVC022 11/10 A2989 RMK AO2 BKN V OVC SLP125 T01050099 401480052 $KVBG2020-04-05T07:58:00Z34.73-120.5810.59.9160610.029.8907471012.5TRUETRUETRUEMVFR14.85.2METAR112.02020-04-05 08:05:16yz)I5     3KSLI 050758Z AUTO 19004KT 10SM BKN022 15/09 A2990 RMK AO2 BKN V OVC SLP128 T01450087 401910102KSLI2020-04-05T07:58:00Z33.77-118.0314.58.7190410.029.8996071012.8TRUETRUEMVFR19.110.2METAR11.02020-04-05 08:05:16 V*@Vd)#5    3K1IM 050758Z AUTO 18005KT 10SM CLR M07/M07 A2973 RMK AO2 SLP114 T10681075 $K1IM2020-04-05T07:58:00Z47.32-111.47-6.8-7.5180510.029.7312981011.4TRUETRUETRUEVFRMETAR1108.02020-04-05 08:05:16d))5    3K1KM 050758Z AUTO 00000KT 10SM FEW085 M03/M08 A2977 RMK AO2 SLP112 T10351077 $K1KM2020-04-05T07:58:00Z46.45-109.8-3.5-7.70010.029.7696861011.2TRUETRUETRUEVFRMETAR1330.02020-04-05 08:05:16b)#5    3K1DM 050758Z AUTO 08006KT 10SM CLR M06/M07 A2974 RMK AO2 SLP129 T10581072 $K1DM2020-04-05T07:58:00Z47.37-109.8-5.8-7.280610.029.7401581012.9TRUETRUETRUEVFRMETAR1093.02020-04-05 08:05:16h~))5   3K1CM 050758Z AUTO 15017G21KT 10SM CLR M02/M07 A2971 RMK AO2 SLP100 T10221066 $K1CM2020-04-05T07:58:00Z47.1-110.17-2.2-6.6150172110.029.710631010.0TRUETRUETRUEVFRMETAR1337.02020-04-05 08:05:16 R'=Re))5    3K1BM 050758Z AUTO 00000KT 10SM SCT220 M07/M07 A2973 RMK AO2 SLP123 T10661069 $K1BM2020-04-05T07:58:00Z47.28-110.37-6.6-6.90010.029.7312981012.3TRUETRUETRUEVFRMETAR1234.02020-04-05 08:05:16d)'5    3K1MW 050758Z AUTO 18006KT 10SM FEW240 03/M04 A2986 RMK AO2 SLP107 T00291040 $K1MW2020-04-05T07:58:00Z40.7-103.482.9-4.0180610.029.8612211010.7TRUETRUETRUEVFRMETAR1336.02020-04-05 08:05:16g))5    3K1LM 050758Z AUTO 19015KT 10SM FEW230 M04/M07 A2973 RMK AO2 SLP114 T10381073 $K1LM2020-04-05T07:58:00Z46.7-109.73-3.8-7.31901510.029.7312981011.4TRUETRUETRUEVFRMETAR1414.02020-04-05 08:05:16f))5    3K1HM 050758Z AUTO 32004KT 10SM SCT100 M07/M09 A2973 RMK AO2 SLP108 T10731089 $K1HM2020-04-05T07:58:00Z47.7-111.95-7.3-8.9320410.029.7312981010.8TRUETRUETRUEVFRMETAR1181.02020-04-05 08:05:16 H!9OH )U5     3KSUU 050758Z AUTO 15006KT 10SM FEW041 BKN050 OVC060 11/09 A2972 RMK AO2 SLP071 T01050093 401550068 $KSUU2020-04-05T07:58:00Z38.27-121.9210.59.3150610.029.7194881007.1TRUETRUETRUEVFR15.56.8METAR19.02020-04-05 08:05:16d)#5    3KFCS 050758Z AUTO 32006KT 10SM CLR M01/M04 A2987 RMK AO2 SLP131 T10121044 $KFCS2020-04-05T07:58:00Z38.67-104.77-1.2-4.4320610.029.8700791013.1TRUETRUETRUEVFRMETAR1789.02020-04-05 08:05:16b)/5    3KGRK 050758Z AUTO 02005KT 10SM FEW007 OVC011 08/07 A3001 RMK AO2 SLP165 T00800074KGRK2020-04-05T07:58:00Z31.07-97.838.07.420510.030.0088581016.5TRUETRUEMVFRMETAR309.02020-04-05 08:05:16Y)!5    3KHLR 050758Z AUTO 00000KT 10SM OVC011 08/08 A3002 RMK AO2 SLP166 T00820076KHLR2020-04-05T07:58:00Z31.13-97.728.27.60010.030.020671016.6TRUETRUEMVFRMETAR283.02020-04-05 08:05:16 E.Ec )!5    3K1FW 050758Z AUTO 19014KT 10SM CLR 02/M03 A2984 RMK AO2 SLP093 T00201033 $K1FW2020-04-05T07:58:00Z41.37-103.472.0-3.31901410.029.8405511009.3TRUETRUETRUEVFRMETAR1453.02020-04-05 08:05:16b )!5    3K1GW 050758Z AUTO 18010KT 10SM CLR 02/M04 A2986 RMK AO2 SLP104 T00221039 $K1GW2020-04-05T07:58:00Z41.22-103.12.2-3.91801010.029.8612211010.4TRUETRUETRUEVFRMETAR1334.02020-04-05 08:05:16] )/5    3KCQT 050758Z AUTO 00000KT 10SM SCT020 BKN028 OVC055 16/10 A2989 RMK AO2 T01610100KCQT2020-04-05T07:58:00Z34.02-118.2816.110.00010.029.890747TRUETRUEMVFRMETAR56.02020-04-05 08:05:16 )Q5    3K1CW 050758Z AUTO 20024G28KT 10SM CLR 05/M03 A2982 RMK AO2 PK WND 19033/18 SLP079 T00481034 TSNO $K1CW2020-04-05T07:58:00Z41.58-103.574.8-3.4200242810.029.8198811007.9TRUETRUETRUETRUEVFRMETAR1371.02020-04-05 08:05:16 !FfQ)5     3CYWK 050757Z AUTO 03007KT 9SM -SN OVC007 M03/M05 A2986 RMK SLP140CYWK2020-04-05T07:57:00Z52.92-66.87-3.0-5.03079.029.8612211014.0TRUE-SNIFRSPECI551.02020-04-05 08:05:16Z)!5    3KMEI 050758Z AUTO 00000KT 10SM FEW100 17/15 A2994 RMK AO2 SLP137 T01670150KMEI2020-04-05T07:58:00Z32.33-88.7516.715.00010.029.9409451013.7TRUETRUEVFRMETAR89.02020-04-05 08:05:16U)5    3KMRH 050758Z AUTO 02005KT 10SM CLR 08/07 A3005 RMK AO2 SLP175 T00830067KMRH2020-04-05T07:58:00Z34.73-76.658.36.720510.030.0501981017.5TRUETRUEVFRMETAR3.02020-04-05 08:05:16Y)!5    3K1J0 050758Z AUTO 00000KT 10SM OVC100 18/16 A2993 RMK AO2 SLP091 T01780156K1J02020-04-05T07:58:00Z30.85-85.617.815.60010.029.9291341009.1TRUETRUEVFRMETAR26.02020-04-05 08:05:16 :RzI) 5    3KDVP 050757Z AUTO 16005KT M01/M03 A3009 RMK AO2 T10081030 PWINOKDVP2020-04-05T07:57:00Z43.98-95.78-0.8-3.0160530.088583TRUETRUETRUEMETAR495.02020-04-05 08:05:16R)5    3PHNG 050757Z 13005KT 7SM FEW030 27/22 A2997 RMK AO2 SLP144 T02670217 PHNG2020-04-05T07:57:00Z21.43-157.7726.721.713057.029.9704721014.4TRUEVFRMETAR3.02020-04-05 08:05:16b)+5    3PGUA 050757Z 10006KT 10SM SCT016 BKN036 26/23 A2988 RMK AO2A SLP109 T02580229 $PGUA2020-04-05T07:57:00Z13.57144.9225.822.9100610.029.8789371010.9TRUETRUEVFRMETAR187.02020-04-05 08:05:16@(}5    3K06C 050757Z AUTO 36003KT 7SM BKN110 01/01 A3014 RMK AO1K06C2020-04-05T07:57:00Z41.98-88.11.01.036037.030.138779TRUETRUEVFRMETAR244.02020-04-05 08:05:16 7l\)5    3KFLG 050757Z AUTO 25005KT 10SM CLR 04/M03 A2993 RMK AO2 SLP078 T00391033KFLG2020-04-05T07:57:00Z35.13-111.673.9-3.3250510.029.9291341007.8TRUETRUEVFRMETAR2134.02020-04-05 08:05:16E)5    3KAEX 050757Z 31003KT 3SM OVC090 16/16 A2997 RMK AO2 T01560156KAEX2020-04-05T07:57:00Z31.33-92.5715.615.631033.029.970472TRUEMVFRMETAR27.02020-04-05 08:05:16`)5    3KNYL 050757Z AUTO 15006KT 10SM CLR 17/12 A2978 RMK AO2 SLP082 T01670122 $KNYL2020-04-05T07:57:00Z32.63-114.6216.712.2150610.029.7785431008.2TRUETRUETRUEVFRMETAR65.02020-04-05 08:05:16])%5     3KAQV 050757Z AUTO 00000KT 3SM BR OVC002 16/15 A2996 RMK AO2 SLP145 T01610150KAQV2020-04-05T07:57:00Z31.4-93.316.115.0003.029.9586621014.5TRUETRUEBRLIFRMETAR111.02020-04-05 08:05:16 V'=GVk)15     3KPWT 050756Z AUTO 05007KT 10SM CLR 06/M01 A2963 RMK AO2 SLP040 T00611006 401171039KPWT2020-04-05T07:56:00Z47.5-122.756.1-0.650710.029.6309051004.0TRUETRUEVFR11.7-3.9METAR147.02020-04-05 08:05:16p)75     3PAWG 050756Z AUTO 12006KT 10SM CLR M01/M06 A2993 RMK AO2 SLP135 T10061056 FZRANO TSNOPAWG2020-04-05T07:56:00Z56.48-132.37-0.6-5.6120610.029.9291341013.5TRUETRUETRUETRUEVFRMETAR11.02020-04-05 08:05:16d))5     3KPWG 050756Z AUTO 01005KT 6SM BR OVC003 08/08 A3004 RMK AO2 SLP172 T00830083 $KPWG2020-04-05T07:56:00Z31.47-97.328.38.31056.030.0413381017.2TRUETRUETRUEBRLIFRMETAR180.02020-04-05 08:05:16S)5     3KLEB 050757Z AUTO 00000KT 1 1/2SM BR OVC001 02/01 A3001 RMK AO2 T00220011KLEB2020-04-05T07:57:00Z43.63-72.32.21.1001.530.008858TRUETRUEBRLIFRMETAR171.02020-04-05 08:05:16 7dI!) 5    3KUNV 050756Z AUTO 00000KT 10SM CLR 07/03 A3001 RMK AO2 T00660033KUNV2020-04-05T07:56:00Z40.85-77.836.63.30010.030.008858TRUETRUEVFRMETAR378.02020-04-05 08:05:16@ (5    3KHZL 050756Z AUTO 00000KT 10SM OVC050 08/06 A3004 RMK AO2KHZL2020-04-05T07:56:00Z40.98-76.08.06.00010.030.041338TRUETRUEVFRMETAR489.02020-04-05 08:05:16M)5    3KGYL 050756Z AUTO 00000KT 10SM CLR M02/M07 A3014 RMK AO2 T10161068KGYL2020-04-05T07:56:00Z44.77-94.08-1.6-6.80010.030.138779TRUETRUEVFRMETAR302.02020-04-05 08:05:16C(5    3KIMS 050756Z AUTO 32003KT 10SM OVC070 08/08 A3005 RMK AO1KIMS2020-04-05T07:56:00Z38.75-85.478.08.0320310.030.050198TRUETRUEVFRMETAR250.02020-04-05 08:05:16 (Ta%)%5    3KRUT 050756Z AUTO 35003KT 10SM OVC041 07/06 A3001 RMK AO2 SLP160 T00670061 $KRUT2020-04-05T07:56:00Z43.52-72.956.76.1350310.030.0088581016.0TRUETRUETRUEVFRMETAR240.02020-04-05 08:05:16O$)5    3KROS 050756Z AUTO 00000KT 10SM OVC120 M02/M06 A3016 RMK AO2 T10211063KROS2020-04-05T07:56:00Z45.7-92.95-2.1-6.30010.030.159449TRUETRUEVFRMETAR281.02020-04-05 08:05:16N#) 5     3KRZT 050756Z AUTO 34004KT 10SM OVC065 12/08 A3002 RMK AO2 PWINOKRZT2020-04-05T07:56:00Z39.43-83.0212.08.0340410.030.02067TRUETRUETRUEVFRMETAR221.02020-04-05 08:05:16R")5    3KSJX 050756Z AUTO 35004KT 10SM BKN015 M02/M04 A3018 RMK AO2 T10201040KSJX2020-04-05T07:56:00Z45.7-85.57-2.0-4.0350410.030.180119TRUETRUEMVFRMETAR204.02020-04-05 08:05:16 k%CkR))5    3KSQI 050756Z 11006KT 10SM OVC100 05/03 A3014 RMK AO2 SLP073 T00500033KSQI2020-04-05T07:56:00Z41.75-89.675.03.3110610.030.1387791007.3TRUEVFRMETAR197.02020-04-05 08:05:16\()!5    3KSRC 050756Z AUTO 36004KT 10SM OVC019 12/09 A3006 RMK AO2 SLP177 T01170094KSRC2020-04-05T07:56:00Z35.22-91.7311.79.4360410.030.0590551017.7TRUETRUEMVFRMETAR80.02020-04-05 08:05:16h')35     3KSUE 050756Z AUTO 00000KT 10SM FEW008 M04/M04 A3020 RMK AO2 SLP233 T10391044 FZRANOKSUE2020-04-05T07:56:00Z44.85-87.42-3.9-4.40010.030.2007871023.3TRUETRUETRUEVFRMETAR221.02020-04-05 08:05:16g&)35     3KRKD 050756Z AUTO 00000KT 10SM OVC060 M01/M01 A3005 RMK AO2 SLP175 T10061011 FZRANOKRKD2020-04-05T07:56:00Z44.07-69.08-0.6-1.10010.030.0501981017.5TRUETRUETRUEVFRMETAR17.02020-04-05 08:05:16 Y$8CYd-)15    3KSKX 050756Z AUTO VRB03KT 10SM FEW075 BKN090 05/M04 A2997 RMK AO2 SLP120 T00501044KSKX2020-04-05T07:56:00Z36.45-105.675.0-4.40310.029.9704721012.0TRUETRUEVFRMETAR2161.02020-04-05 08:05:16o,);5      3KSLG 050756Z AUTO 00000KT 1SM BR OVC003 07/07 A3007 RMK AO2 SLP185 T00720067 TSNO PNO $KSLG2020-04-05T07:56:00Z36.2-94.477.26.7001.030.0708661018.5TRUETRUETRUETRUEBRLIFRMETAR300.02020-04-05 08:05:16f+)15    3KSMN 050756Z AUTO 20009KT 10SM FEW070 OVC080 05/M01 A2961 RMK AO2 SLP030 T00501006KSMN2020-04-05T07:56:00Z45.12-113.875.0-0.6200910.029.6102371003.0TRUETRUEVFRMETAR1233.02020-04-05 08:05:16V*)5    3KSOP 050756Z AUTO 08003KT 10SM CLR 09/07 A3006 RMK AO2 SLP183 T00940072KSOP2020-04-05T07:56:00Z35.22-79.49.47.280310.030.0590551018.3TRUETRUEVFRMETAR141.02020-04-05 08:05:16 u?]ub1)/5    3KSGH 050756Z AUTO 33008KT 10SM BKN009 OVC065 09/08 A3005 RMK AO2 SLP175 T00890078KSGH2020-04-05T07:56:00Z39.83-83.838.97.8330810.030.0501981017.5TRUETRUEIFRMETAR321.02020-04-05 08:05:16\0)5    3KSGJ 050756Z AUTO 00000KT 10SM CLR 18/17 A2992 RMK AO2 SLP132 T01830167 $KSGJ2020-04-05T07:56:00Z29.97-81.3218.316.70010.029.9202751013.2TRUETRUETRUEVFRMETAR3.02020-04-05 08:05:16Z/)!5    3KSGT 050756Z AUTO 34005KT 10SM SCT024 11/09 A3006 RMK AO2 SLP179 T01060094KSGT2020-04-05T07:56:00Z34.6-91.5710.69.4340510.030.0590551017.9TRUETRUEVFRMETAR68.02020-04-05 08:05:16[.)5    3KSGU 050756Z AUTO 17010KT 10SM CLR 15/00 A2975 RMK AO2 SLP051 T01500000KSGU2020-04-05T07:56:00Z37.07-113.5215.00.01701010.029.7490161005.1TRUETRUEVFRMETAR896.02020-04-05 08:05:16 j"=Sjc5)-5    3KUCP 050756Z AUTO 00000KT 10SM OVC085 09/05 A3001 RMK AO2 SLP177 T00890050 PNO $KUCP2020-04-05T07:56:00Z41.03-80.428.95.00010.030.0088581017.7TRUETRUETRUEVFRMETAR327.02020-04-05 08:05:16d4)-5     3KSDY 050756Z AUTO 00000KT 10SM CLR M06/M07 A2995 RMK AO2 SLP537 T10561072 FZRANOKSDY2020-04-05T07:56:00Z47.7-104.2-5.6-7.20010.029.9498021053.7TRUETRUETRUEVFRMETAR605.02020-04-05 08:05:16_3)/5    3KSFM 050756Z AUTO 00000KT 10SM BKN037 OVC060 04/03 A3004 RMK AO2 SLP177 T00390028KSFM2020-04-05T07:56:00Z43.38-70.723.92.80010.030.0413381017.7TRUETRUEVFRMETAR74.02020-04-05 08:05:16X2)!5    3KSFZ 050756Z AUTO 00000KT 10SM OVC036 04/02 A3003 RMK AO2 SLP119 T00440017KSFZ2020-04-05T07:56:00Z41.92-71.54.41.70010.030.0295281011.9TRUETRUEVFRMETAR134.02020-04-05 08:05:16 A"+Ad9)/5     3KWVL 050756Z AUTO 00000KT 10SM OVC060 02/01 A3001 RMK AO2 SLP192 T00170011 FZRANOKWVL2020-04-05T07:56:00Z44.52-69.671.71.10010.030.0088581019.2TRUETRUETRUEVFRMETAR101.02020-04-05 08:05:16q8)C5     3KVIS 050756Z AUTO 00000KT 10SM BKN095 OVC120 12/08 A2980 RMK AO2 SLP100 T01220078 402170050KVIS2020-04-05T07:56:00Z36.32-119.412.27.80010.029.7992131010.0TRUETRUEVFR21.75.0METAR89.02020-04-05 08:05:16h7)/5      3KVBT 050756Z AUTO 11003KT 3SM BR OVC004 07/07 A3008 RMK AO2 SLP192 T00720072 TSNOKVBT2020-04-05T07:56:00Z36.35-94.227.27.211033.030.0797251019.2TRUETRUETRUEBRLIFRMETAR395.02020-04-05 08:05:16j6)35     3KTVF 050756Z AUTO 12009KT 10SM OVC080 M01/M04 A3006 RMK AO2 SLP197 T10111044 FZRANOKTVF2020-04-05T07:56:00Z48.07-96.17-1.1-4.4120910.030.0590551019.7TRUETRUETRUEVFRMETAR340.02020-04-05 08:05:16 - <)a5       3PFNO 050756Z AUTO 17017KT 2 1/2SM UP BR OVC004 00/M01 A2926 RMK AO2 SNB44E55 SLP988 P0000 T00001006 FZRANOPFNO2020-04-05T07:56:00Z66.82-161.020.0-0.6170172.529.258858998.8TRUETRUETRUEBR UPLIFR0.005METAR17.02020-04-05 08:05:16;) 5      3PFSH 050756Z AUTO 18023KT 9SM -SN OVC024 01/M01 A2933 RMK AO2 PK WND 18031/0703 RAB11E38SNE11B38 SLP932 T00111006 FZRANO PNO $PFSH2020-04-05T07:56:00Z64.37-161.221.1-0.6180239.029.329725993.2TRUETRUETRUETRUE-SNMVFRMETAR7.02020-04-05 08:05:16M:)5    3KVLL 050756Z AUTO 01005KT 10SM OVC008 05/04 A3010 RMK AO2 T00540041KVLL2020-04-05T07:56:00Z42.55-83.185.44.110510.030.100393TRUETRUEIFRMETAR222.02020-04-05 08:05:16 1 1V@)5    3KWWD 050756Z AUTO 24003KT 10SM CLR 03/02 A3006 RMK AO2 SLP182 T00330017KWWD2020-04-05T07:56:00Z39.02-74.923.31.7240310.030.0590551018.2TRUETRUEVFRMETAR7.02020-04-05 08:05:16l?)15     3KY50 050756Z AUTO 26003KT 10SM CLR M04/M06 A3016 RMK AO2 SLP221 T10441056 FZRANO $KY502020-04-05T07:56:00Z44.03-89.3-4.4-5.6260310.030.1594491022.1TRUETRUETRUETRUEVFRMETAR262.02020-04-05 08:05:16e>)+5     3KYKN 050756Z AUTO 15004KT 10SM CLR 01/M04 A3006 RMK AO2 SLP204 T00061044 FZRANOKYKN2020-04-05T07:56:00Z42.92-97.370.6-4.4150410.030.0590551020.4TRUETRUETRUEVFRMETAR398.02020-04-05 08:05:16=)s5     3PAHX 050756Z AUTO 20018G24KT OVC007 01/01 A2949 RMK AO2 PK WND 21026/0744 SLP988 T00060006 400170006 PWINO FZRANO $PAHX2020-04-05T07:56:00Z62.7-159.570.60.6200182429.489174998.8TRUETRUETRUETRUETRUE1.70.6METAR24.02020-04-05 08:05:16   YC)5    3PHBK 050756Z AUTO 11004KT 10SM CLR 22/19 A2999 RMK AO2 SLP156 T02170194PHBK2020-04-05T07:56:00Z22.03-159.7821.719.4110410.029.9911421015.6TRUETRUEVFRMETAR8.02020-04-05 08:05:16rB)35     3KNID 050756Z AUTO 21013KT 10SM CLR 12/02 A2974 RMK AO2 SLP061 T01220022 402500044 $KNID2020-04-05T07:56:00Z35.67-117.6712.22.22101310.029.7401581006.1TRUETRUETRUEVFR25.04.4METAR696.02020-04-05 08:05:16A)5      3KMHS 050756Z AUTO VRB04KT 10SM -RA BKN009 OVC013 03/02 A2956 RMK AO2 UPB52E56 CIG 006V010 SLP035 P0007 T00280017 400501017KMHS2020-04-05T07:56:00Z41.32-122.322.81.70410.029.560041003.5TRUETRUE-RAIFR5.0-1.70.07METAR1078.02020-04-05 08:05:16 @qJG) 5   3K2WX 050756Z AUTO 06008KT M02/M06 A2985 RMK AO1 SLP127 T10171061K2WX2020-04-05T07:56:00Z45.6-103.55-1.7-6.160829.849411012.7TRUETRUEMETAR915.02020-04-05 08:05:16IF)5   3MUGM 050756Z 33009KT 10SM FEW035 23/21 A2991 RMK SLP128 T02280206MUGM2020-04-05T07:56:00Z19.9-75.222.820.6330910.029.9114171012.8VFRMETAR17.02020-04-05 08:05:16=E(u5    3KNRS 050756Z AUTO 10SM OVC031 A2993 RMK AO2 SLP136 $KNRS2020-04-05T07:56:00Z32.57-117.1210.029.9291341013.6TRUETRUETRUEVFRMETAR7.02020-04-05 08:05:16wD)A5     3KNLC 050756Z AUTO 24008KT 10SM FEW100 10/05 A2981 RMK AO2 SLP093 T01000050 402220022 PNO $KNLC2020-04-05T07:56:00Z36.32-119.9510.05.0240810.029.8110241009.3TRUETRUETRUEVFR22.22.2METAR72.02020-04-05 08:05:16 |2@d|bK)%5    3KNMM 050756Z AUTO 31003KT 10SM OVC100 17/13 A2994 RMK AO2 SLP146 T01720133 $KNMM2020-04-05T07:56:00Z32.53-88.5717.213.3310310.029.9409451014.6TRUETRUETRUEVFRMETAR97.02020-04-05 08:05:16VJ)5    3KNBT 050756Z AUTO 01009KT 10SM CLR 10/06 A3005 RMK AO2 SLP180 T01000056KNBT2020-04-05T07:56:00Z35.02-76.4710.05.610910.030.0501981018.0TRUETRUEVFRMETAR5.02020-04-05 08:05:16lI)=5     3PFWS 050756Z AUTO 21018KT 10SM FEW011 OVC033 01/01 A2999 RMK AO2 SLP200 T00110011 FZRANOPFWS2020-04-05T07:56:00Z58.7-157.01.11.12101810.029.9911421020.0TRUETRUETRUEVFRMETAR49.02020-04-05 08:05:16HH) 5   3KGNR 050756Z AUTO 00000KT 03/M03 A2997 RMK AO1 SLP161 T00281028KGNR2020-04-05T07:56:00Z45.47-69.552.8-2.80029.9704721016.1TRUETRUEMETAR427.02020-04-05 08:05:16 ]Ba]~O)K5      3KPRN 050756Z AUTO 26005KT 10SM -RA OVC100 18/14 A2993 RMK AO2 RAE03B46 SLP131 P0000 T01780139 $KPRN2020-04-05T07:56:00Z31.85-86.6217.813.9260510.029.9291341013.1TRUETRUETRUE-RAVFR0.005METAR138.02020-04-05 08:05:16[N)5    3KNCA 050756Z AUTO 02006KT 10SM CLR 09/07 A3006 RMK AO2 SLP183 T00890067 $KNCA2020-04-05T07:56:00Z34.72-77.458.96.720610.030.0590551018.3TRUETRUETRUEVFRMETAR8.02020-04-05 08:05:16SM)5    3KNFE 050756Z AUTO 00000KT 10SM CLR 06/03 A3008 RMK AO2 SLP189 T00560033KNFE2020-04-05T07:56:00Z36.7-76.135.63.30010.030.0797251018.9TRUETRUEVFRMETAR5.02020-04-05 08:05:16_L)#5     3KNUC 050756Z AUTO 29007KT OVC029 13/ A2993 RMK AO2 SLP132 T0128 401670111 $KNUC2020-04-05T07:56:00Z33.02-118.5712.8290729.9291341013.2TRUETRUETRUE16.711.1METAR55.02020-04-05 08:05:16 .\yKS)5    3KNTU 050756Z 00000KT 10SM CLR 04/03 A3008 RMK AO2 SLP188 T00390028KNTU2020-04-05T07:56:00Z36.82-76.023.92.80010.030.0797251018.8TRUEVFRMETAR7.02020-04-05 08:05:16]R)5    3KNBC 050756Z AUTO 00000KT 10SM CLR 15/12 A2997 RMK AO2 SLP147 T01500122 $KNBC2020-04-05T07:56:00Z32.47-80.7215.012.20010.029.9704721014.7TRUETRUETRUEVFRMETAR12.02020-04-05 08:05:16LQ) 5   3KP60 050756Z AUTO 00000KT M06/M08 A2975 RMK AO1 SLP082 T10561078KP602020-04-05T07:56:00Z44.55-110.42-5.6-7.80029.7490161008.2TRUETRUEMETAR2388.02020-04-05 08:05:16LP) 5   3KP53 050756Z AUTO 18006KT M06/M08 A3018 RMK AO1 SLP231 T10611078KP532020-04-05T07:56:00Z46.42-86.65-6.1-7.8180630.1801191023.1TRUETRUEMETAR187.02020-04-05 08:05:16 &&hV)/5     3KNUW 050756Z 35008KT 10SM OVC110 09/01 A2969 RMK AO2 SLP052 T00890006 401330033 $KNUW2020-04-05T07:56:00Z48.35-122.658.90.6350810.029.689961005.2TRUETRUEVFR13.33.3METAR14.02020-04-05 08:05:16mU)/5     3KNXP 050756Z AUTO 27010KT 10SM CLR 14/03 A2984 RMK AO2 SLP078 T01390033 402440100KNXP2020-04-05T07:56:00Z34.28-116.1713.93.32701010.029.8405511007.8TRUETRUEVFR24.410.0METAR626.02020-04-05 08:05:16sT)55     3KNFL 050756Z AUTO 24005KT 10SM CLR 04/M06 A2964 RMK AO2 SLP022 T00441061 401781028 $KNFL2020-04-05T07:56:00Z39.42-118.74.4-6.1240510.029.6397631002.2TRUETRUETRUEVFR17.8-2.8METAR1199.02020-04-05 08:05:16   _Y)#5    3KIAB 050756Z AUTO 15004KT 7SM OVC006 04/02 A3006 RMK AO2 SLP189 T00410020 $KIAB2020-04-05T07:56:00Z37.62-97.274.12.015047.030.0590551018.9TRUETRUETRUEIFRMETAR418.02020-04-05 08:05:16^X)#5    3KLSF 050756Z AUTO 00000KT 9SM FEW110 15/13 A2991 RMK AO2 SLP132 T01510129 $KLSF2020-04-05T07:56:00Z32.32-84.9715.112.9009.029.9114171013.2TRUETRUETRUEVFRMETAR71.02020-04-05 08:05:16&W)5      3KMEH 050756Z AUTO 00000KT 5SM -SN BR BKN005 OVC010 01/M01 A2956 RMK AO2 RAE00B10E20SNB00 CIG 005V008 SLP022 P0003 T00111006 400831050KMEH2020-04-05T07:56:00Z45.52-118.421.1-0.6005.029.560041002.2TRUETRUE-SN BRIFR8.3-5.00.03METAR1136.02020-04-05 08:05:16 A#A\])5    3KDOV 050756Z AUTO 22005KT 10SM CLR 06/06 A3005 RMK AO2 SLP179 T00570057 $KDOV2020-04-05T07:56:00Z39.12-75.475.75.7220510.030.0501981017.9TRUETRUETRUEVFRMETAR9.02020-04-05 08:05:16Z\)5    3KFAF 050756Z AUTO 00000KT 10SM CLR 07/05 A3006 RMK AO2 SLP183 T00670050 $KFAF2020-04-05T07:56:00Z37.12-76.626.75.00010.030.0590551018.3TRUETRUETRUEVFRMETAR4.02020-04-05 08:05:16b[)%5    3KFTK 050756Z AUTO 32003KT 10SM OVC085 11/10 A3004 RMK AO2 SLP173 T01130097 $KFTK2020-04-05T07:56:00Z37.88-85.9711.39.7320310.030.0413381017.3TRUETRUETRUEVFRMETAR230.02020-04-05 08:05:16Z)m5      3KHRT 050756Z AUTO 34004KT 10SM -RA BKN028 BKN065 BKN095 18/15 A2992 RMK AO2 CIG 028V100 SLP134 P0000 T01800154 $KHRT2020-04-05T07:56:00Z30.42-86.6718.015.4340410.029.9202751013.4TRUETRUETRUE-RAMVFR0.005METAR12.02020-04-05 08:05:16 "Tk_a)%5    3KTDR 050756Z AUTO 00000KT 10SM OVC130 19/17 A2992 RMK AO2 SLP135 T01920168 $KTDR2020-04-05T07:56:00Z30.05-85.5219.216.80010.029.9202751013.5TRUETRUETRUEVFRMETAR5.02020-04-05 08:05:16c`))5    3KRYM 050756Z AUTO 00000KT 10SM BKN110 M04/M06 A3014 RMK AO2 SLP224 T10401065 $KRYM2020-04-05T07:56:00Z46.08-94.37-4.0-6.50010.030.1387791022.4TRUETRUETRUEVFRMETAR351.02020-04-05 08:05:16H_) 5   3KP28 050756Z AUTO 18006KT 03/02 A3006 RMK AO1 SLP184 T00330017KP282020-04-05T07:56:00Z37.28-98.553.31.7180630.0590551018.4TRUETRUEMETAR469.02020-04-05 08:05:16X^)5    3KBIX 050756Z AUTO 04006KT 10SM CLR 18/16 A2994 RMK AO2 SLP141 T01770157KBIX2020-04-05T07:56:00Z30.42-88.9217.715.740610.029.9409451014.1TRUETRUEVFRMETAR10.02020-04-05 08:05:16 N1N]e)5    3KMGE 050756Z AUTO 00000KT 10SM CLR 14/09 A2995 RMK AO2 SLP137 T01370089 $KMGE2020-04-05T07:56:00Z33.92-84.5213.78.90010.029.9498021013.7TRUETRUETRUEVFRMETAR326.02020-04-05 08:05:16Yd)!5    3KMUI 050756Z AUTO 00000KT 10SM OVC055 07/07 A3003 RMK AO2 SLP173 T00730067KMUI2020-04-05T07:56:00Z40.42-76.577.36.70010.030.0295281017.3TRUETRUEVFRMETAR149.02020-04-05 08:05:16zc)Q5      3KMXF 050756Z AUTO 00000KT 10SM -RA SCT100 18/14 A2991 RMK AO2 DZB51E55RAB55 SLP130 P0000 T01770144KMXF2020-04-05T07:56:00Z32.37-86.3717.714.40010.029.9114171013.0TRUETRUE-RAVFR0.005METAR51.02020-04-05 08:05:16jb)35    3KSKF 050756Z AUTO 33003KT 10SM OVC009 14/12 A3001 RMK AO2 PRESRR SLP161 T01350117 $KSKF2020-04-05T07:56:00Z29.37-98.5713.511.7330310.030.0088581016.1TRUETRUETRUEIFRMETAR210.02020-04-05 08:05:16 c)Hc_i)%5    3KTTS 050756Z AUTO 00000KT 10SM OVC150 21/20 A2989 RMK AO2 SLP126 T02080196 $KTTS2020-04-05T07:56:00Z28.62-80.7220.819.60010.029.8907471012.6TRUETRUETRUEVFRMETAR3.02020-04-05 08:05:16[h)5    3KWRI 050756Z AUTO 00000KT 10SM CLR 04/04 A3003 RMK AO2 SLP169 T00430042 $KWRI2020-04-05T07:56:00Z40.02-74.584.34.20010.030.0295281016.9TRUETRUETRUEVFRMETAR41.02020-04-05 08:05:16pg)35     3BGTL 050756Z AUTO 11010KT 9999 OVC070 M13/M16 A3052 RMK AO2 SLP324 T11261158 TSNO $BGTL2020-04-05T07:56:00Z76.53-68.75-12.6-15.8110106.2130.5196861032.4TRUETRUETRUETRUEVFRMETAR77.02020-04-05 08:05:16[f)5    3ETAD 050756Z AUTO 07007KT 9999 CLR 11/01 A3021 RMK AO2 SLP224 T01060006 $ETAD2020-04-05T07:56:00Z49.986.710.60.67076.2130.2096461022.4TRUETRUETRUEVFRMETAR365.02020-04-05 08:05:16 V'=Vam)%5    3KPAM 050756Z AUTO 27006KT 10SM FEW120 20/17 A2992 RMK AO2 SLP135 T01990171 $KPAM2020-04-05T07:56:00Z30.07-85.5719.917.1270610.029.9202751013.5TRUETRUETRUEVFRMETAR5.02020-04-05 08:05:16[l)5    3KPOB 050756Z AUTO 00000KT 10SM CLR 08/07 A3006 RMK AO2 SLP182 T00810070 $KPOB2020-04-05T07:56:00Z35.17-79.028.17.00010.030.0590551018.2TRUETRUETRUEVFRMETAR66.02020-04-05 08:05:16k)]5      3KVPS 050756Z AUTO 00000KT 10SM -RA SCT023 BKN085 18/15 A2993 RMK AO2 RAE35RAB54 SLP142 P0001 T01810153 $KVPS2020-04-05T07:56:00Z30.47-86.5218.115.30010.029.9291341014.2TRUETRUETRUE-RAVFR0.01METAR26.02020-04-05 08:05:16Sj)5   3KD07 050756Z AUTO 19007KT M03/M07 A2989 RMK AO1 SLP153 T10331067 $KD072020-04-05T07:56:00Z45.03-102.02-3.3-6.7190729.8907471015.3TRUETRUETRUEMETAR784.02020-04-05 08:05:16 `0N`hq)35    3KXMR 050756Z AUTO 33003KT 10SM BKN150 BKN180 21/19 A2988 RMK AO2 SLP121 T02060189 $KXMR2020-04-05T07:56:00Z28.47-80.5720.618.9330310.029.8789371012.1TRUETRUETRUEVFRMETAR3.02020-04-05 08:05:16\p)5    3KALK 050756Z AUTO 24008KT 10SM CLR 12/M08 A2999 RMK AO2 SLP080 T01171083KALK2020-04-05T07:56:00Z31.6-110.4311.7-8.3240810.029.9911421008.0TRUETRUEVFRMETAR1453.02020-04-05 08:05:16Zo)5    3KBAD 050756Z AUTO 35004KT 8SM OVC002 14/14 A3001 RMK AO2 SLP165 T01410141KBAD2020-04-05T07:56:00Z32.5-93.6714.114.135048.030.0088581016.5TRUETRUELIFRMETAR51.02020-04-05 08:05:16jn)35     3KMCF 050756Z AUTO 00000KT 10SM OVC130 20/17 A2991 RMK AO2 SLP132 T01990167 FZRANO $KMCF2020-04-05T07:56:00Z27.85-82.5219.916.70010.029.9114171013.2TRUETRUETRUETRUEVFRMETAR4.02020-04-05 08:05:16 n1Pn\u)5    3KMMT 050756Z AUTO 00000KT 10SM CLR 11/09 A2999 RMK AO2 SLP157 T01050094 $KMMT2020-04-05T07:56:00Z33.92-80.7810.59.40010.029.9911421015.7TRUETRUETRUEVFRMETAR77.02020-04-05 08:05:16[t)5    3KRCA 050756Z AUTO 27003KT 10SM CLR 01/M04 A2986 RMK AO2 SLP129 T00121045KRCA2020-04-05T07:56:00Z44.13-103.081.2-4.5270310.029.8612211012.9TRUETRUEVFRMETAR999.02020-04-05 08:05:16cs))5    3KRDR 050756Z AUTO 18004KT 10SM OVC065 M04/M05 A3002 RMK AO2 SLP185 T10391049 $KRDR2020-04-05T07:56:00Z47.97-97.4-3.9-4.9180410.030.020671018.5TRUETRUETRUEVFRMETAR278.02020-04-05 08:05:16`r)%5    3KSZL 050756Z AUTO 00000KT 10SM OVC022 05/05 A3006 RMK AO2 SLP188 T00480048 $KSZL2020-04-05T07:56:00Z38.72-93.534.84.80010.030.0590551018.8TRUETRUETRUEMVFRMETAR265.02020-04-05 08:05:16 M.M[y)5    3KDAA 050756Z AUTO 00000KT 10SM CLR 05/04 A3006 RMK AO2 SLP182 T00480036 $KDAA2020-04-05T07:56:00Z38.72-77.174.83.60010.030.0590551018.2TRUETRUETRUEVFRMETAR21.02020-04-05 08:05:16ix)=5    3KDYS 050756Z AUTO 09004KT 10SM OVC011 08/05 A3001 RMK AO2 CIG 008 RWY34 SLP162 T00770045KDYS2020-04-05T07:56:00Z32.42-99.837.74.590410.030.0088581016.2TRUETRUEMVFRMETAR545.02020-04-05 08:05:16ww)E5      3KEGI 050756Z AUTO 00000KT 10SM -RA FEW001 18/15 A2994 RMK AO2 RAB50 SLP138 P0001 T01820154 $KEGI2020-04-05T07:56:00Z30.63-86.5218.215.40010.029.9409451013.8TRUETRUETRUE-RAVFR0.01METAR59.02020-04-05 08:05:16`v)%5    3KGTB 050756Z AUTO 18004KT 10SM OVC046 08/05 A2998 RMK AO2 SLP155 T00750045 $KGTB2020-04-05T07:56:00Z44.07-75.727.54.5180410.029.979331015.5TRUETRUETRUEVFRMETAR207.02020-04-05 08:05:16 c'AcX})5    3KLFI 050756Z AUTO 00000KT 9SM CLR 05/05 A3008 RMK AO2 SLP193 T00470047 $KLFI2020-04-05T07:56:00Z37.07-76.374.74.7009.030.0797251019.3TRUETRUETRUEVFRMETAR3.02020-04-05 08:05:16`|)%5    3KLHW 050756Z AUTO 00000KT 10SM SCT095 14/13 A2992 RMK AO2 SLP135 T01440129 $KLHW2020-04-05T07:56:00Z31.87-81.5714.412.90010.029.9202751013.5TRUETRUETRUEVFRMETAR14.02020-04-05 08:05:16p{)A5    3KMTC 050756Z AUTO 35007KT 10SM OVC010 05/05 A3007 RMK AO2 CIG 009 RWY01 SLP190 T00470047 $KMTC2020-04-05T07:56:00Z42.62-82.824.74.7350710.030.0708661019.0TRUETRUETRUEMVFRMETAR177.02020-04-05 08:05:16]z)'5     3K2DP 050756Z AUTO 33005KT 10SM CLR 03/03 A3007 RMK AO2 SLPNO T00310031 TSNO $K2DP2020-04-05T07:56:00Z35.68-75.93.13.1330510.030.070866TRUETRUETRUETRUEVFRMETAR3.02020-04-05 08:05:16 <k])5    3KXNO 050756Z AUTO 00000KT 10SM CLR 11/11 A2999 RMK AO2 SLP157 T01080106 $KXNO2020-04-05T07:56:00Z33.62-81.0710.810.60010.029.9911421015.7TRUETRUETRUEVFRMETAR98.02020-04-05 08:05:16K) 5   3K8D3 050756Z AUTO 14004KT M02/M03 A3002 RMK AO1 SLP185 T10221033K8D32020-04-05T07:56:00Z45.67-96.98-2.2-3.3140430.020671018.5TRUETRUEMETAR354.02020-04-05 08:05:16])#5    3KFRI 050756Z AUTO 00000KT 10SM BKN028 00/M02 A3009 RMK AO2 SLP195 T10031020KFRI2020-04-05T07:56:00Z39.03-96.77-0.3-2.00010.030.0885831019.5TRUETRUEMVFRMETAR325.02020-04-05 08:05:16[~)5    3KGSB 050756Z AUTO 00000KT 10SM CLR 07/05 A3007 RMK AO2 SLP186 T00660054 $KGSB2020-04-05T07:56:00Z35.32-77.976.65.40010.030.0708661018.6TRUETRUETRUEVFRMETAR33.02020-04-05 08:05:16 h7Qhc)#5    3KMIB 050756Z AUTO 18003KT 10SM CLR M04/M05 A2992 RMK AO2 SLP160 T10451052 $KMIB2020-04-05T07:56:00Z48.42-101.33-4.5-5.2180310.029.9202751016.0TRUETRUETRUEVFRMETAR508.02020-04-05 08:05:16`)#5    3KOFF 050756Z AUTO 00000KT 10SM CLR M02/M03 A3011 RMK AO2 SLP209 T10221035 $KOFF2020-04-05T07:56:00Z41.12-95.92-2.2-3.50010.030.1092531020.9TRUETRUETRUEVFRMETAR319.02020-04-05 08:05:16a)#5     3KSSC 050756Z AUTO 04004KT 3SM HZ CLR 11/08 A2999 RMK AO2 SLP156 T01080082 $KSSC2020-04-05T07:56:00Z33.97-80.4710.88.24043.029.9911421015.6TRUETRUETRUEHZMVFRMETAR74.02020-04-05 08:05:16\)5    3KVOK 050756Z AUTO 26005KT 10SM CLR M03/M04 A3016 RMK AO2 SLP226 T10351036KVOK2020-04-05T07:56:00Z43.92-90.27-3.5-3.6260510.030.1594491022.6TRUETRUEVFRMETAR277.02020-04-05 08:05:16 B$/NB )e5     3KDLF 050756Z AUTO 10004KT 1 1/2SM BR OVC003 12/12 A3001 RMK AO2 VIS 1 1/2V2 CIG 002 RWY13 SLP161 T01220116 $KDLF2020-04-05T07:56:00Z29.37-100.7712.211.610041.530.0088581016.1TRUETRUETRUEBRLIFRMETAR330.02020-04-05 08:05:16[)5    3KFBG 050756Z AUTO 00000KT 10SM CLR 10/10 A3005 RMK AO2 SLP178 T00950095 $KFBG2020-04-05T07:56:00Z35.12-78.929.59.50010.030.0501981017.8TRUETRUETRUEVFRMETAR74.02020-04-05 08:05:16o)A5    3KGUS 050756Z AUTO 02010KT 10SM OVC005 03/03 A3008 RMK AO2 CIG 004 RWY23 SLP194 T00290029 $KGUS2020-04-05T07:56:00Z40.63-86.152.92.9201010.030.0797251019.4TRUETRUETRUEIFRMETAR247.02020-04-05 08:05:16V)5    3KHST 050756Z AUTO 00000KT 10SM CLR 19/18 A2989 RMK AO2 SLP125 T01940179KHST2020-04-05T07:56:00Z25.47-80.3719.417.90010.029.8907471012.5TRUETRUEVFRMETAR2.02020-04-05 08:05:16 C0Cg )-5     3ETAR 050756Z AUTO 06009KT 9999 CLR 11/01 A3023 RMK AO2 SLP245 T01090006 FZRANO $ETAR2020-04-05T07:56:00Z49.427.5810.90.66096.2130.2303141024.5TRUETRUETRUETRUEVFRMETAR238.02020-04-05 08:05:16^ )5    3ETOU 050756Z AUTO 10013KT 9999 CLR 10/01 A3028 RMK AO2 SLP259 T01030009 $ETOU2020-04-05T07:56:00Z50.038.3210.30.9100136.2130.2805121025.9TRUETRUETRUEVFRMETAR141.02020-04-05 08:05:16` )%5    3KADW 050756Z AUTO 17004KT 10SM SCT050 08/07 A3005 RMK AO2 SLP183 T00750069 $KADW2020-04-05T07:56:00Z38.82-76.877.56.9170410.030.0501981018.3TRUETRUETRUEVFRMETAR86.02020-04-05 08:05:16 )a5    3KBLV 050756Z AUTO 33003KT 10SM OVC017 07/04 A3010 RMK AO2 CIG 016 RWY32L CIG 016 RWY32R SLP198 T00650043 $KBLV2020-04-05T07:56:00Z38.53-89.836.54.3330310.030.1003931019.8TRUETRUETRUEMVFRMETAR138.02020-04-05 08:05:16